Weather

Current METAR: AGGH 160700Z 14002KT 9999 HZ FEW017 BKN300 29/25 Q1005 AYMH 160700Z 00000 9999 FEW080 22/17 Q1012 AYNZ 160600Z 11009KT 9999 SCT040 32/22 Q1001 RMK AYPY 160700Z 21010KT 9999 SCT030 32/24 Q1003 RMK AZUH 160650Z 18004KT 8000 SCT040 OVC080 M00/M01 Q1023 BGBW 160650Z AUTO 11002KT 9999NDV FEW060/// BKN210/// M13/M24 Q1005 BGGH 160650Z AUTO 07007KT 020V080 6000NDV -SG OVC020/// M14/M15 Q1011 BGJN 160650Z AUTO 09010KT 060V120 9999NDV NCD M16/M19 Q1004 BGKK 160650Z AUTO 34013KT 6000NDV -SN SCT024/// OVC042/// M07/M09 Q0976 BGSF 160650Z AUTO 06006KT 8000NDV -SG FEW042/// BKN049/// M22/M24 Q1012 BGTL 160656Z AUTO 10010KT 9999 CLR M25/M29 A2956 RMK AO2 SLP003 T12471287 TSNO $ BIAR 160700Z VRB03KT 9999 FEW020 BKN044 M05/M07 Q0962 R01/490164 BIEG 160700Z VRB03KT 9999 FEW046 SCT060 M03/M10 Q0961 BIHU 160644Z 32005KT 1000 SN OVC008 M05/M09 Q0961 R20/491095 RMK BEDID MED MOKSTUR BIIS 160700Z 03016G30KT 0800 SN BLSN VV003 M04/M05 Q0969 BIKF 160700Z 02015KT 9999 FEW025 M03/M08 Q0966 BIRK 160700Z 36016KT 9999 SCT033 M03/M08 Q0966 BIVM 160700Z 36020KT CAVOK M03/M07 Q0963 BKPR 160700Z 16010KT 2000 BR SCT008 OVC015 01/M01 Q1016 TEMPO 1200 RMK 17290095 CAHR 160700Z AUTO 03013G18KT M05/M07 RMK AO1 SOG 04 6035 PK WND 04023/0617 SLP295 T10481071 CBBC 160710Z AUTO VRB02KT 9SM -RA BKN060 OVC077 06/04 A2962 RMK SLP032 CERM 160700Z AUTO 30002KT M26/M29 RMK AO1 SOG 50 6021 SLP381 T12631291 CMFM 160700Z AUTO 00000KT M25/M28 RMK AO1 SOG 54 6028 SLP338 T12481275 CMGB 160700Z AUTO 00000KT M18/M19 RMK AO1 SOG 31 6015 SLP331 T11761193 CPFI 160700Z AUTO 17010KT M13/M15 RMK AO1 PK WND 22025/0600 T11291153 CPRO 160700Z AUTO 18010KT M16/M19 RMK AO1 PK WND 16022/0606 T11601190 CPRY 160600Z AUTO 18021KT M04/M07 RMK AO1 PK WND 18032/0531 T10421073 CPST 160700Z AUTO 16014KT M15/M16 RMK AO1 T11511164 CPSV 160700Z AUTO 21014KT M10/M17 RMK AO1 PK WND 19018/0657 T10971171 CPXL 160700Z AUTO 14015KT M15/M20 RMK AO1 PK WND 14025/0645 T11531195 CTCK 160700Z AUTO 07008KT M15/M17 RMK AO1 SOG 19 6019 SLP326 T11511167 CTNK 160700Z AUTO 05001KT M16/M19 RMK AO1 2PAST HR SOG 09 6014 SLP297 P0001 T11581186 50002 CTRA 160700Z AUTO 35002KT M24/M26 RMK AO1 SOG 37 5002 SLP455 T12381255 CWAF 160700Z AUTO 10009KT M14/M15 RMK AO1 T11391153 CWAJ 160700Z AUTO RMK AO1 CWAQ 160700Z AUTO 15007KT M26/M29 RMK AO1 SOG 00 8019 SLP424 T12571288 CWAV 160700Z AUTO 26003KT M14/M15 RMK AO1 SOG 17 8014 SLP220 T11381154 CWBA 160700Z AUTO 02002KT M14/M16 RMK AO1 SOG 17 T11391157 CWBE 160700Z AUTO 03004KT M14/M18 RMK AO1 SLP316 T11431176 56013 CWBK 160500Z AUTO 04017G23KT M05/M05 RMK AO1 6PAST HR SOG 04 6048 PK WND 04024/0426 SLP304 P0002 T10461054 50009 CWBO 160700Z AUTO 17016G22KT M17/M20 RMK AO1 SOG 17 8024 PK WND 19022/0637 SLP284 T11711204 CWBS 160700Z AUTO 04010KT M14/M16 RMK AO1 T11351159 CWBT 160500Z AUTO 02002KT M23/M25 RMK AO1 SLP410 T12311253 58030 CWBU 160700Z AUTO 21008KT M20/M24 RMK AO1 SOG 13 8035 SLP376 T11961240 CWBY 160700Z AUTO 02003KT M22/M24 RMK AO1 SOG 46 8020 SLP386 T12171244 CWBZ 160500Z AUTO 07004KT M17/M19 RMK AO1 SLP341 T11731192 57020 CWCA 160700Z 22005KT 15SM SKC M21/M25 A3067 RMK SLP389 CWCF 160700Z AUTO 20004KT M23/M27 RMK AO1 SOG 08 8028 SLP428 T12341270 CWCI 160600Z AUTO M07/M08 RMK AO1 20 0544Z 8001 SLP317 T10661082 CWCJ 160700Z AUTO 04003KT M15/M17 RMK AO1 SOG 39 3001 SLP349 T11541167 CWCO 160700Z AUTO 15003KT M12/M14 RMK AO1 2PAST HR 6012 SLP283 P0001 T11161135 50002 CWCT 160400Z AUTO 17021KT M15/M20 RMK AO1 SOG 00 6027 PK WND 17025/0349 SLP324 T11491204 CWDA 160600Z AUTO 33005KT M13/M14 RMK AO1 SLP389 T11291136 58024 CWDC 160700Z AUTO 07001KT M21/M23 RMK AO1 SOG 33 8020 SLP199 T12101232 CWDJ 160700Z AUTO 13009KT M24/M28 RMK AO1 SLP424 T12391282 57022 CWDK 160700Z AUTO 09002KT M12/M14 RMK AO1 SOG 11 8023 SLP247 T11221136 CWDM 160700Z AUTO 01010KT M17/M22 RMK AO1 SOG 11 6032 SLP388 T11711216 CWDO 160700Z AUTO 05009KT M09/M11 RMK AO1 SOG 16 8038 SLP363 T10881111 CWDQ 160700Z AUTO 34004KT M22/M25 RMK AO1 SOG 30 6016 SLP374 T12151250 CWDT 160600Z AUTO 31005KT M28/M31 RMK AO1 SLP403 T12771312 56018 CWDV 160700Z AUTO 02003KT M16/M18 RMK AO1 SOG 39 7002 SLP389 T11551183 CWDZ 160700Z AUTO 16008KT M18/M21 RMK AO1 T11821206 CWEB 160700Z AUTO 15026G36KT 09/08 RMK AO1 7PAST HR 3023 PK WND 15036/0658 SLP055 P0007 T00940084 50017 CWEF 160600Z AUTO 07021KT M04/M07 RMK AO1 PK WND 07025/0532 SLP314 T10391069 56046 CWEH 160700Z AUTO 14013G18KT M20/M22 RMK AO1 SOG 38 8023 PK WND 15023/0620 SLP366 T11971223 CWEK 160600Z AUTO 06022G27KT 08/03 RMK AO1 PK WND 06028/0502 SLP021 T00750033 50014 CWEL 160700Z AUTO 16012KT 08/06 RMK AO1 PK WND 14017/0605 SLP125 T00800058 53017 CWEP 160700Z AUTO 04023KT M01/M02 RMK AO1 2PAST HR SOG 03 8049 PK WND 03028/0627 SLP282 P0001 T10141022 50002 CWEQ 160700Z AUTO 23008KT M19/M24 RMK AO1 SOG 11 8034 SLP414 T11881236 CWER 160700Z AUTO 05017KT RMK AO1 PK WND 07023/0628 CWEU 160700Z 17003KT 080V230 15SM IC SKC M32/M36 A3000 RMK SLP163 CWEW 160700Z AUTO 03006KT M15/M18 RMK AO1 SOG 12 6021 SLP347 T11511177 CWEZ 160700Z AUTO 17004KT 11/07 RMK AO1 SLP120 T01140067 53013 CWFD 160700Z AUTO 28005KT 240V310 ////SM //// NCD ///// A//// CWFF 160700Z AUTO 21014KT M19/M23 RMK AO1 SOG 11 8038 PK WND 19018/0624 SLP370 T11871227 CWFJ 160700Z AUTO M11/M16 RMK AO1 T11081155 CWFQ 160700Z AUTO 00000KT M17/M20 RMK AO1 SOG 20 6012 SLP321 T11711196 CWGB 160700Z AUTO 13015KT 09/05 RMK AO1 PK WND 12023/0604 SLP115 T00890053 53017 CWGD 160700Z AUTO 12004KT M07/M09 RMK AO1 SOG 03 5002 SLP257 T10651090 CWGL 160700Z AUTO 09006KT M13/M15 RMK AO1 SLP276 T11271147 56011 CWGM 160700Z AUTO 22022G29KT 04/M09 RMK AO1 PK WND 22034/0613 T00421086 CWGR 160700Z AUTO 05018G24KT M05/M09 RMK AO1 PRESFR PK WND 04024/0653 SLP301 T10481088 58051 CWGT 160700Z AUTO 13024KT 09/05 RMK AO1 PK WND 12030/0610 SLP109 T00860051 53008 CWGW 160700Z AUTO 22001KT M03/M04 RMK AO1 SOG 18 8009 SLP306 T10251037 CWGX 160700Z AUTO 22013KT M19/M22 RMK AO1 PRESFR SOG 40 8061 PK WND 23018/0616 SLP271 T11891220 CWGY 160700Z AUTO 11007KT M17/M22 RMK AO1 SLP320 T11671220 58028 CWHI 160700Z AUTO 09005KT M18/M20 RMK AO1 T11811202 CWHL 160700Z AUTO 15013G18KT 07/04 RMK AO1 PK WND 17018/0650 SLP018 T00730035 51009 CWHN 160700Z AUTO 22005KT 9SM CLR M20/M25 A3021 RMK SLP296 CWHO 160700Z AUTO 25013G18KT M20/M24 RMK AO1 PK WND 26018/0658 SLP366 T11981243 56022 CWHP 160600Z AUTO 05017KT M08/M11 RMK AO1 PK WND 04020/0536 SLP364 T10831108 58045 CWHQ 160700Z AUTO 07007KT M14/M16 RMK AO1 T11401155 CWHT 160700Z AUTO 32001KT M01/M02 RMK AO1 SOG 20 6011 SLP050 T10141019 CWHV 160700Z AUTO 18002KT M15/M17 RMK AO1 SLP346 T11511167 55023 CWID 160700Z AUTO 00000KT M16/M18 RMK AO1 SLP110 T11601181 58012 CWIG 160700Z AUTO 04011KT RMK AO1 PK WND 04017/0634 CWII 160700Z AUTO 22005KT M24/M27 RMK AO1 T12401267 CWIJ 160700Z AUTO 25014KT M17/M20 RMK AO1 SOG 31 5008 SLP079 T11651195 CWIK 160700Z AUTO 22007KT M20/M24 RMK AO1 3PAST HR 8020 SLP433 P0001 T11971242 50003 CWIL 160700Z AUTO 10011KT ////SM BKN140 OVC160 ///// A//// CWIP 160700Z AUTO 30004KT M18/ RMK AO1 T1184 CWIS 160700Z AUTO 03005KT M20/M22 RMK AO1 SOG 22 6031 SLP340 T12021216 CWIT 160700Z AUTO 16002KT M18/M20 RMK AO1 5PAST HR SOG 21 6017 SLP325 P0002 T11801201 50005 CWIW 160700Z AUTO 18012KT M22/M25 RMK AO1 PRESFR SOG 01 8031 SLP394 T12211252 CWIX 160600Z AUTO 03003KT M27/M30 RMK AO1 SLP377 T12661298 58027 CWIZ 160700Z AUTO 04003KT M17/M19 RMK AO1 SOG 23 T11671190 CWJB 160700Z AUTO 05006KT M14/ RMK AO1 SOG 25 T1137 CWJC 160700Z AUTO 25014KT M12/M15 RMK AO1 SOG 13 6018 PK WND 27024/0600 SLP129 T11241148 CWJD 160700Z AUTO 21006KT M20/M24 RMK AO1 SOG 39 8039 SLP398 T12001244 CWJH 160700Z AUTO 22005KT M17/ RMK AO1 SOG 41 8024 SLP290 T1168 CWJI 160700Z AUTO 13005KT M22/M26 RMK AO1 SOG 01 6023 SLP404 T12211261 CWJO 160600Z AUTO 24002KT M27/M30 RMK AO1 SLP395 T12671299 58024 CWJR 160700Z AUTO 07008KT 01/M02 RMK AO1 SOG 10 6008 SLP274 T00071023 CWJT 160700Z AUTO 07004KT M15/M17 RMK AO1 SLP335 T11481172 56019 CWJV 160700Z AUTO 08002KT M04/M04 RMK AO1 SLP233 T10361036 55002 CWJW 160700Z AUTO 22002KT M13/M14 RMK AO1 SLP246 T11301140 58008 CWJX 160700Z AUTO 18007KT M18/M23 RMK AO1 SOG 02 8028 SLP324 T11771233 CWKG 160700Z AUTO 02003KT M07/M08 RMK AO1 5PAST HR SOG 07 5001 SLP283 P0002 T10651076 50005 CWKH 160700Z AUTO 08/04 RMK AO1 SLP116 T00840035 53018 CWKK 160600Z AUTO 01010KT M16/M17 RMK AO1 SOG 30 8002 SLP385 T11611174 50001 CWKM 160700Z AUTO 28010KT M05/ A2962 RMK SLP034 CWKO 160700Z AUTO 20017KT M20/M24 RMK AO1 SOG 06 7020 PK WND 21023/0617 SLP404 T11981238 CWKP 160700Z AUTO ///// M04/ A2957 RMK SLP045 CWKW 160700Z AUTO ///// A2993 CWKX 160700Z AUTO 35004G15KT M12/M14 RMK AO1 SOG 23 8008 SLP131 T11161135 CWLB 160700Z AUTO 36007KT M15/M18 RMK AO1 SOG 13 6023 SLP263 T11451175 CWLC 160700Z AUTO 13015KT 08/04 RMK AO1 PK WND 13022/0614 T00840038 CWLE 160700Z AUTO 18006KT M20/M24 RMK AO1 SOG 01 8010 SLP367 T11971236 CWLI 160700Z AUTO 21004KT ////SM //// FEW004 OVC033 M05/M05 A2957 CWLM 160700Z AUTO 18011G18KT 10/08 RMK AO1 PK WND 17018/0659 SLP120 T01020076 53017 CWLP 160700Z AUTO 14024KT 09/07 RMK AO1 0PAST HR 3022 PK WND 13030/0607 SLP044 P0004 T00870070 50010 CWLS 160700Z AUTO 11004KT M11/M12 RMK AO1 SOG 02 5007 SLP260 T11061121 CWLY 160700Z AUTO 17005KT 9SM OVC017 00/M00 A3006 RMK SLP190 CWME 160600Z AUTO 04030G35KT 08/01 RMK AO1 PK WND 04038/0530 SLP046 T00750011 50007 CWMJ 160700Z AUTO 03005KT M14/M16 RMK AO1 SOG 02 6016 SLP322 T11431155 CWMM 160700Z AUTO 28001KT 07/06 RMK AO1 6PAST HR 1034 SLP141 P0002 T00700056 50006 CWMQ 160700Z AUTO 18021G32KT M08/M20 RMK AO1 SOG 02 6034 PK WND 18032/0651 SLP305 T10801203 CWMT 160700Z AUTO 28005KT M10/M11 RMK AO1 SLP093 T10991112 55001 CWMZ 160600Z AUTO 08013KT M11/M13 RMK AO1 PK WND 10017/0509 SLP279 T11121131 56012 CWNC 160700Z AUTO 06003KT M11/M14 RMK AO1 SOG 06 5010 SLP279 T11091142 CWND 160600Z AUTO 22007KT M07/M08 RMK AO1 SLP987 T10721080 52022 CWNE 160700Z AUTO 00005KT RMK AO1 56027 CWNH 160700Z AUTO 00000KT M22/M25 RMK AO1 SOG 22 6020 SLP382 T12231248 CWNK 160700Z AUTO 26006KT M24/M28 RMK AO1 T12351283 CWNL 160600Z AUTO 07007G16KT M11/M13 RMK AO1 PK WND 06017/0508 SLP289 T11101131 58010 CWNM 160700Z AUTO 08009G15KT 02/M00 RMK AO1 SOG 09 8008 PK WND 06019/0611 SLP255 T00211004 CWNP 160700Z AUTO 11003KT M01/M01 RMK AO1 SOG 37 6010 SLP261 T10061012 CWNQ 160700Z AUTO 06008KT M14/M17 RMK AO1 SLP341 T11431174 56019 CWNZ 160700Z AUTO 34004KT M17/M20 RMK AO1 SOG 47 8005 SLP362 T11741197 CWOB 160700Z AUTO 29008KT ////SM //// FEW026 BKN037 OVC060 M27/M30 A2988 CWOC 160700Z AUTO 36006KT M14/M16 RMK AO1 SLP368 T11431164 56026 CWOD 160700Z AUTO 26003KT M24/M27 RMK AO1 SOG 05 6021 SLP368 T12421269 CWOE 160600Z AUTO 08015KT M24/M26 RMK AO1 SOG 17 6017 SLP383 T12381255 CWOY 160700Z AUTO 19005KT M17/M22 RMK AO1 SOG 03 8030 SLP389 T11681221 CWPC 160700Z AUTO 20014KT M04/M06 RMK AO1 PK WND 20018/0636 SLP266 T10361055 55007 CWPD 160700Z AUTO 20002KT M26/M28 RMK AO1 SLP350 T12621282 56025 CWPE 160700Z AUTO 36005KT M08/M09 RMK AO1 SOG 02 6005 SLP321 T10781091 CWPF 160700Z AUTO 09005KT 11/07 RMK AO1 SLP116 T01140071 53014 CWPK 160700Z AUTO 11003KT M20/M23 RMK AO1 SOG 20 6015 SLP343 T12041232 CWPO 160700Z AUTO 24006KT M28/M31 RMK AO1 SOG 03 8013 SLP482 T12821312 CWPR 160700Z AUTO 26001KT M00/M00 RMK AO1 SOG 41 3006 SLP207 T10011003 CWPS 160600Z AUTO 16015KT M03/M05 RMK AO1 PK WND 16019/0502 SLP253 T10271050 56005 CWPX 160700Z AUTO ///// ////SM //// OVC002 M16/M19 A2963 CWPZ 160700Z AUTO 00000KT M02/M03 RMK AO1 SOG 40 6014 SLP122 T10191029 CWQH 160700Z AUTO 07001KT M18/M19 RMK AO1 SOG 15 T11791194 CWQK 160700Z AUTO 34010KT 11/06 RMK AO1 PK WND 02021/0607 SLP117 T01090055 53017 CWQO 160700Z AUTO 11005KT M14/M17 RMK AO1 T11421166 CWQP 160700Z AUTO 05012KT M12/M14 RMK AO1 SOG 21 6011 PK WND 04017/0620 SLP289 T11241144 CWQR 160700Z AUTO 02013KT M16/ RMK AO1 T1162 CWQS 160600Z AUTO 15026G32KT 08/07 RMK AO1 0PAST HR 3030 PK WND 17041/0501 SLP968 P0004 T00800074 50060 CWQV 160700Z AUTO 14003KT M17/M19 RMK AO1 T11681193 CWRA 160700Z AUTO 07019G40KT M03/M03 RMK AO1 7PAST HR PRESFR 6060 PK WND 07040/0656 SLP306 P0003 T10251026 50007 CWRF 160700Z AUTO 18005KT M25/ A2979 RMK SLP148 CWRH 160700Z AUTO ///// M24/ A3003 RMK SLP227 CWRJ 160700Z AUTO 14008KT M17/M22 RMK AO1 SOG 02 6016 SLP357 T11721215 CWRK 160700Z AUTO 04004KT M16/M19 RMK AO1 SOG 03 6014 SLP296 T11591187 CWRM 160700Z AUTO 12004KT M16/M17 RMK AO1 SOG 20 8016 SLP224 T11551166 CWRN 160700Z AUTO 02020KT M01/M02 RMK AO1 PK WND 01028/0615 SLP248 T10131015 56045 CWRO 160600Z AUTO 11024G30KT 08/07 RMK AO1 6PAST HR 0003 PK WND 12032/0512 SLP995 P0002 T00820073 50020 CWRT 160700Z AUTO 31001KT M08/M09 RMK AO1 T10841088 CWRU 160600Z AUTO 12048G54KT 09/09 RMK AO1 2PAST HR 5014 PK WND 12054/0555 SLP985 P0001 T00850091 50122 CWRX 160700Z AUTO 17006KT ////SM //// ////// M28/M31 A3000 CWRY 160700Z AUTO 16013KT M17/M19 RMK AO1 SOG 14 8021 SLP308 T11691190 CWRZ 160700Z AUTO 36009KT M12/M15 RMK AO1 SLP362 T11191148 56029 CWSA 160700Z AUTO 05020G26KT 1 1/2SM -RA BR OVC005 03/02 A2998 RMK TS/LTNG TEMPO UNAVBL SLP154 CWSD 160700Z AUTO 04016KT M05/M07 RMK AO1 SOG 01 8020 PK WND 04024/0618 SLP310 T10501071 CWSF 160700Z AUTO 17006KT M14/M17 RMK AO1 SOG 28 6021 SLP384 T11431171 CWSG 160700Z AUTO 20010KT M19/M20 RMK AO1 SLP390 T11881195 56022 CWSK 160700Z AUTO 01002KT 03/03 RMK AO1 5PAST HR SOG 05 1026 SLP147 P0002 T00340032 50005 CWSL 160700Z AUTO 14001KT 01/01 RMK AO1 SOG 14 3001 SLP229 T00050005 CWSP 160700Z AUTO 30009KT 11/07 RMK AO1 SLP124 T01080067 53030 CWSR 160700Z AUTO 13002KT M20/M25 RMK AO1 SOG 00 8023 SLP326 T11951246 CWSS 160700Z AUTO 34007KT M10/M12 RMK AO1 SOG 04 8008 SLP336 T10951119 CWST 160700Z AUTO 07001KT M18/M21 RMK AO1 SOG 14 6029 SLP372 T11811209 CWTA 160700Z AUTO 03005KT M15/M17 RMK AO1 SOG 68 6021 SLP334 T11471173 CWTG 160700Z AUTO 34006KT M18/M21 RMK AO1 SLP394 T11841209 56024 CWTN 160700Z AUTO 03004KT M13/M16 RMK AO1 SLP376 T11301155 56028 CWTT 160700Z AUTO 36002KT M19/M21 RMK AO1 T11911208 CWTU 160700Z AUTO ///// A3029 CWTY 160700Z AUTO 06015G21KT M13/M15 RMK AO1 PK WND 06021/0630 SLP344 T11291149 56025 CWUP 160700Z AUTO ///// M25/ A2975 RMK SLP129 CWUS 160700Z AUTO 00000KT M00/M00 RMK AO1 SLP231 T10041002 55002 CWUW 160700Z AUTO 18007KT ////SM //// OVC007 M31/M34 A2977 CWUX 160700Z AUTO 28002KT M28/M30 RMK AO1 SLP371 T12761295 56028 CWVD 160700Z AUTO 24004KT M24/ A2966 RMK SLP130 CWVF 160700Z AUTO 09014KT 09/05 RMK AO1 PK WND 08018/0626 T00930052 CWVH 160700Z AUTO 28006KT 00/ A2960 RMK SLP047 CWVI 160700Z AUTO 17010KT M13/M17 RMK AO1 SLP264 T11301172 58023 CWVN 160700Z AUTO 00000KT M27/M31 RMK AO1 SOG 06 7025 SLP420 T12741308 CWVP 160700Z AUTO 18012KT M15/M24 RMK AO1 SOG 21 8017 PK WND 18017/0628 SLP336 T11511239 CWVQ 160700Z AUTO 04006KT M15/M17 RMK AO1 SOG 22 6023 SLP333 T11521172 CWVT 160700Z AUTO 18008KT M16/M20 RMK AO1 SOG 20 6038 SLP285 T11571195 CWVU 160700Z AUTO 02020G25KT M02/M03 RMK AO1 PK WND 01028/0621 SLP312 T10221029 55006 CWWA 160700Z AUTO 07006KT 11/06 RMK AO1 SLP135 T01110056 51031 CWWB 160700Z AUTO M07/M08 RMK AO1 SLP267 T10661078 55007 CWWE 160700Z AUTO 35009G15KT M05/M05 RMK AO1 5PAST HR SOG 01 6006 SLP267 P0002 T10511053 50005 CWWF 160600Z AUTO 17007KT M26/M30 RMK AO1 SLP458 T12641299 56012 CWWK 160700Z AUTO 06004KT 08/05 RMK AO1 SLP136 T00830052 51022 CWWL 160600Z AUTO 13014G24KT 10/ RMK AO1 2PAST HR 1003 PK WND 13032/0526 P0005 T0095 50052 CWWS 160700Z AUTO 21012KT M21/M25 RMK AO1 SOG 70 8029 SLP416 T12111250 CWWX 160600Z AUTO 11019KT M08/M09 RMK AO1 PK WND 11024/0534 SLP276 T10781089 58005 CWWZ 160700Z AUTO 18008KT M04/M06 RMK AO1 SOG 03 5010 SLP266 T10411062 CWXA 160600Z AUTO 25011G20KT M02/M06 RMK AO1 PK WND 24025/0523 SLP229 T10151055 56008 CWXC 160600Z AUTO 12001KT M28/M30 RMK AO1 SLP368 T12771303 58023 CWXI 160600Z AUTO 10004KT M13/M16 RMK AO1 8019 SLP380 T11281162 50015 CWXL 160700Z AUTO 15028KT M17/M20 RMK AO1 PK WND 15032/0659 T11721201 CWXR 160700Z AUTO 12008KT M10/ A2960 RMK SLP037 CWYJ 160700Z AUTO 18008KT 11/07 RMK AO1 SLP122 T01110073 53018 CWYL 160700Z AUTO 24002KT M08/M09 RMK AO1 SOG 84 8006 SLP284 T10831090 CWYM 160700Z AUTO ///// M28/ A2969 RMK SLP146 CWYY 160700Z AUTO 17002KT M00/M00 RMK AO1 SOG 02 5002 SLP235 T10021002 CWZA 160700Z AUTO 26004KT 08/02 RMK AO1 2PAST HR 1029 PK WND 05027/0617 SLP141 P0001 T00800020 50001 CWZG 160700Z AUTO 24007KT M06/M08 RMK AO1 SOG 20 8009 SLP276 T10641077 CWZL 160600Z AUTO 15033G39KT 09/08 RMK AO1 1007 PK WND 15040/0520 SLP976 T00910081 50004 CWZO 160700Z AUTO 00018KT RMK AO1 CWZQ 160700Z AUTO 01015G20KT M03/M04 RMK AO1 PRESFR PK WND 01020/0650 SLP267 T10311035 58047 CWZS 160700Z AUTO 35002KT M26/M29 RMK AO1 SLP387 T12611287 56021 CWZV 160500Z AUTO 17019KT 08/ RMK AO1 PK WND 16039/0401 SLP985 T0081 53015 CWZW 160700Z AUTO 09003KT M03/M05 RMK AO1 SOG 31 6013 SLP101 T10331047 CWZZ 160700Z AUTO 31032G41KT ////SM //// FEW075 OVC085 M21/M25 A3008 CXAF 160600Z AUTO 14010KT M16/M19 RMK AO1 T11621188 CXAG 160600Z AUTO 15013KT M14/M17 RMK AO1 PK WND 16017/0533 T11431173 CXAK 160600Z AUTO 18013KT M15/M17 RMK AO1 PK WND 18022/0507 T11461170 CXAT 160600Z AUTO 19001KT M33/M37 RMK AO1 SOG 05 6004 SLP142 T13311367 CXBA 160600Z AUTO 18018KT M17/M22 RMK AO1 PK WND 18021/0538 T11691220 CXBI 160700Z AUTO 09006KT M13/M14 RMK AO1 2PAST HR SOG 14 6011 SLP281 P0001 T11271143 50002 CXBK 160700Z AUTO 16012KT M23/M27 RMK AO1 SLP407 T12311274 58018 CXBO 160600Z AUTO 06011G16KT RMK AO1 PK WND 06018/0537 CXBR 160600Z AUTO 27013KT 01/M05 RMK AO1 PK WND 30025/0553 T00081049 CXCA 160700Z AUTO 35006KT M15/M17 RMK AO1 SOG 30 0004 SLP389 T11501168 CXCD 160600Z AUTO 00000KT M09/M10 RMK AO1 T10931104 CXCH 160600Z AUTO M04/M06 RMK AO1 T10361064 CXCK 160700Z AUTO 00000KT M04/M05 RMK AO1 SOG 24 6011 SLP063 T10401047 CXCP 160700Z AUTO 10004KT M14/M14 RMK AO1 T11361144 CXCS 160600Z AUTO 10006KT M21/M24 RMK AO1 T12121240 CXDB 160600Z AUTO 17010KT M10/M11 RMK AO1 PK WND 16019/0522 T10951108 CXDE 160700Z AUTO 35003KT M07/M09 RMK AO1 SOG 105 3010 SLP079 T10731086 CXDI 160700Z AUTO 21001KT M07/M07 RMK AO1 SOG 04 5000 SLP256 T10651072 CXDK 160600Z AUTO M20/M22 RMK AO1 SLP163 T12011221 CXDP 160600Z AUTO 11008KT M17/M18 RMK AO1 T11691184 CXDW 160700Z AUTO 26008KT M23/M27 RMK AO1 SOG 02 8016 SLP468 T12321273 CXEA 160700Z AUTO 24002KT M26/M28 RMK AO1 SOG 42 8011 SLP435 T12611283 CXEC 160700Z AUTO 16005KT M13/M15 RMK AO1 SOG 02 6019 SLP238 T11261148 CXEG 160600Z AUTO M14/M15 RMK AO1 T11371153 CXET 160700Z AUTO 07004KT M12/M14 RMK AO1 SOG 02 6009 SLP276 T11211142 CXFM 160600Z AUTO 13015KT M20/M24 RMK AO1 PK WND 12026/0524 T12021235 CXFR 160700Z AUTO 00000KT M16/M18 RMK AO1 T11591181 CXGH 160700Z AUTO 24004KT M26/M29 RMK AO1 T12571292 CXHA 160700Z AUTO 25006KT M08/M10 RMK AO1 2PAST HR SOG 04 3009 SLP273 P0001 T10801098 50002 CXHD 160600Z AUTO M15/M18 RMK AO1 T11461175 CXHF 160700Z AUTO M14/M16 RMK AO1 T11401159 CXHM 160700Z AUTO 04001KT M06/M06 RMK AO1 SLP263 T10561056 55007 CXHR 160600Z AUTO 16015KT M20/M22 RMK AO1 PK WND 15018/0514 T12041223 CXIB 160700Z AUTO 02005KT M03/M04 RMK AO1 1PAST HR SOG 00 6046 SLP293 P0008 T10321035 50021 CXKA 160700Z AUTO 01002KT M21/M24 RMK AO1 SOG 40 6012 SLP350 T12121235 CXKE 160700Z AUTO 06003KT M15/M17 RMK AO1 2PAST HR SOG 11 6021 SLP312 P0001 T11511168 50002 CXKI 160700Z AUTO M18/M19 RMK AO1 SOG 12 6020 SLP320 T11791194 CXKM 160600Z AUTO 16014KT M14/M18 RMK AO1 PK WND 16017/0554 T11381179 CXKT 160700Z AUTO 02005KT M06/M07 RMK AO1 8PAST HR SOG 05 6021 SLP288 P0003 T10601066 50008 CXLB 160700Z AUTO 30013KT M04/M04 RMK AO1 PK WND 32017/0644 SLP265 T10441044 55011 CXLL 160600Z AUTO 22005KT M11/M12 RMK AO1 SOG 41 6011 SLP114 T11051123 CXMD 160700Z AUTO 26006KT M23/M28 RMK AO1 SOG 00 8014 SLP471 T12341280 CXMG 160600Z AUTO 16007KT M15/M17 RMK AO1 T11481166 CXMM 160700Z AUTO 11006KT M13/M17 RMK AO1 SOG 32 6022 SLP221 T11251166 CXMO 160600Z AUTO 18014KT M18/M20 RMK AO1 PK WND 19020/0532 T11801203 CXMY 160700Z AUTO M05/M05 RMK AO1 5PAST HR M P0006 T10471050 50015 CXNM 160700Z AUTO 10015G22KT M07/M08 RMK AO1 SOG 11 PK WND 08026/0643 T10731076 CXNP 160700Z AUTO 01012KT M06/M07 RMK AO1 3PAST HR SOG 01 6018 SLP306 P0005 T10591066 50013 CXOL 160600Z AUTO 09004KT M18/M19 RMK AO1 T11771193 CXOX 160700Z AUTO 18005KT M20/M24 RMK AO1 SOG 40 6036 SLP321 T12041242 CXOY 160600Z AUTO 17012KT M18/M22 RMK AO1 T11791220 CXPA 160600Z AUTO 35001KT M17/M19 RMK AO1 T11661186 CXPC 160700Z AUTO RMK AO1 SOG 06 6011 CXPL 160600Z AUTO 15014KT M17/M20 RMK AO1 PK WND 15017/0549 T11721201 CXRB 160700Z AUTO 24002KT M28/M31 RMK AO1 SOG 03 0003 SLP143 T12781306 CXRH 160700Z AUTO 05001KT M11/ RMK AO1 T1114 CXRL 160700Z AUTO 06007KT M20/M22 RMK AO1 T11971217 CXSC 160600Z AUTO 10005KT M16/M21 RMK AO1 T11611206 CXSE 160700Z AUTO 10008KT M24/M27 RMK AO1 SOG 29 3008 SLP150 T12431268 CXSH 160700Z AUTO 03005KT M15/M17 RMK AO1 SLP343 T11481173 56023 CXSL 160700Z AUTO 16011KT M14/M17 RMK AO1 PK WND 14017/0613 T11421167 CXSP 160700Z AUTO 16009KT M15/M20 RMK AO1 T11541201 CXSR 160600Z AUTO 20006KT M02/M02 RMK AO1 SOG 37 6011 SLP155 T10211023 50003 CXTD 160700Z AUTO 01008KT M04/M04 RMK AO1 7PAST HR SOG 09 6040 SLP270 P0007 T10391044 50017 CXTH 160600Z AUTO 15015KT M14/M18 RMK AO1 PK WND 15019/0550 T11401177 CXTN 160600Z AUTO 28014KT M06/M08 RMK AO1 PK WND 26018/0559 SLP037 T10581076 53012 CXTO 160700Z AUTO M07/M08 RMK AO1 SOG 05 5009 SLP266 T10651081 CXTP 160700Z AUTO 02002KT M09/M10 RMK AO1 SLP360 T10871100 56038 CXTV 160600Z AUTO 26008KT M05/M06 RMK AO1 SOG 21 3022 SLP021 T10481063 CXVM 160600Z AUTO 15005KT M15/M21 RMK AO1 T11511211 CXVN 160700Z AUTO 18004KT M05/M07 RMK AO1 SOG 05 5007 SLP261 T10461067 CXVW 160700Z AUTO 17009KT M10/M12 RMK AO1 T11011121 CXWB 160600Z AUTO 10003KT M24/M27 RMK AO1 SLP152 T12421273 58020 CXWM 160600Z AUTO 16024KT M11/M15 RMK AO1 PK WND 16032/0518 T11121146 CXWN 160700Z AUTO 32001KT M24/M27 RMK AO1 SLP466 T12371273 58014 CXYH 160600Z AUTO M18/M19 RMK AO1 SLP115 T11761194 58017 CXZC 160700Z AUTO 31002KT M18/M19 RMK AO1 SOG 38 6015 SLP364 T11751192 CXZV 160700Z AUTO 02006KT M21/M24 RMK AO1 SOG 86 8021 SLP395 T12081236 CYAH 160700Z AUTO 22006KT 9SM -SN OVC036 M21/M23 A3052 RMK SLP377 CYAM 160700Z 00000KT 12SM -SN FEW035 BKN058 OVC080 M13/M15 A3040 RMK SC2SC3AC3 SLP311 CYAT 160700Z AUTO /////KT 9SM CLR M28/M31 A3063 RMK WND MISG SLP375 CYAY 160700Z AUTO 19002KT 9SM CLR M15/M17 A3066 RMK ICG SLP388 CYBC 160700Z AUTO 34004KT 9SM -SN OVC025 M16/M19 A3067 RMK SLP391 CYBG 160700Z 13002KT 25SM OVC160 M26/M29 A3059 RMK AC8 SLP380 CYBK 160700Z 07004KT 15SM OVC018 M17/M19 A2977 RMK SC8 SLP084 CYBL 160500Z 00000KT 1SM R12/6000FT/U -RA BR BKN003 OVC006 05/04 A2982 RMK SF5SC3 LAST OBS / NEXT 161400 UTC SLP104 CYBN 160700Z AUTO 00000KT 4SM BKN014 BKN043 BKN052 M12/M13 A3031 RMK PCPN 0.5MM PAST HR SLP281 CYBQ 160700Z AUTO 25011G16KT 240V300 9SM BKN023 OVC029 M13/M17 A2997 RMK SLP184 CYBR 160700Z 26004KT 15SM SKC M29/M32 A3075 RMK SLP474 CYBU 160700Z AUTO 18008KT 9SM CLR M20/M23 A3050 RMK SLP379 CYBW 160700Z AUTO 31007KT 9SM CLR M10/M11 A3004 RMK SLP249 CYBX 160700Z 02009KT 15SM OVC180 M16/M21 A3067 RMK CI8 SLP390 CYCB 160700Z 08010KT 12SM IC FEW020 SCT050 BKN110 M18/M20 A2978 RMK SC2SC2AC2 SLP092 CYCD 160500Z 19004KT 15SM MIFG FEW075 OVC100 05/05 A2985 RMK AC2AC6 LAST OBS/NEXT 161400UTC PRESRR SLP111 CYCK 160700Z AUTO 25004KT 7SM -SN FEW011 BKN021 OVC055 M07/M08 A3029 RMK SLP270 CYCO 160700Z 28005KT 230V330 15SM SCT080 BKN150 M14/M16 A2968 RMK AC3AS4 SLP054 CYCX 160700Z 36007KT 9SM -SHSN OVC012 M11/M14 A3053 RMK SC8 DA-3750FT SLP341 CYCY 160700Z AUTO 25009KT 9SM CLR M25/M29 A2988 RMK SLP123 CYDB 160700Z AUTO 11005KT 9SM FEW230 02/M01 A2951 RMK SLP025 CYDF 160700Z 04012KT 15SM OVC120 M12/M15 A3061 RMK AC8 SLP368 CYDL 160700Z AUTO 00000KT 9SM FEW160 M12/M14 A2972 RMK SLP116 CYDN 160700Z AUTO 24013G19KT 9SM CLR M20/M25 A3070 RMK SLP435 CYDQ 160713Z AUTO 29002KT 1/2SM SN VV003 M08/M08 A2993 RMK ICG SLP182 CYED 160700Z AUTO 16007KT 9SM CLR M13/M16 A3009 RMK SLP240 CYEG 160700Z 15009KT 15SM BKN230 M13/M16 A3007 RMK CI5 SLP241 CYEK 160700Z AUTO 23010KT 9SM OVC035 M14/M17 A2986 RMK SLP113 CYEN 160700Z 21011KT 15SM SKC M25/M28 A3069 RMK SLP464 CYER 160700Z AUTO 23012G17KT 9SM BKN120 M23/M27 A3040 RMK SLP297 CYET 160700Z AUTO 28005KT 1 1/2SM BR OVC003 M13/M14 A2999 RMK SLP223 CYEV 160700Z 03005KT 15SM FEW250 M09/M10 A2962 RMK CI1 CI TR SLP038 CYFB 160700Z 15002KT 15SM -SN OVC062 M25/M28 A3014 RMK SC8 SLP213 CYFC 160700Z AUTO 34011KT 9SM -SN OVC014 M10/M13 A3053 RMK SLP341 CYFS 160700Z 12005KT 15SM FEW210 M11/M12 A2979 RMK CI2 SLP107 CYGK 160400Z 03009KT 3SM -SN OVC011 M15/M18 A3043 RMK SF8 LAST STFD OBS/NEXT 161100 UTC SLP315 CYGL 160700Z 18009KT 15SM IC SCT040 M22/M24 A3051 RMK SC3 SLP361 CYGP 160700Z 26006KT 15SM SCT220 M18/M21 A3064 RMK CI4 SLP379 CYGQ 160700Z 02004KT 10SM -SN OVC006 M18/M19 A3055 RMK ST8 CIG RAG SLP381 CYGR 160300Z 06015G25KT 15SM -SN BKN018 M06/M09 A3063 RMK SC7 LAST STFD OBS/NEXT 161000 UTC SLP375 CYGV 160700Z AUTO 01006KT 9SM SCT240 M21/M24 A3068 RMK SLP395 CYGW 160700Z AUTO 17005KT 9SM CLR M23/M26 A3055 RMK SLP347 CYGX 160700Z 21014KT 15SM BKN030 M19/M23 A3027 RMK SC7 PRESFR SLP271 CYHD 160700Z AUTO 35003KT 6SM BR OVC006 M21/M23 A3065 RMK SLP431 CYHE 160700Z AUTO 09012KT 9SM SCT140 OVC170 05/01 A3002 RMK SLP167 CYHK 160700Z AUTO 09010KT 3SM BR SCT120 OVC240 M22/M24 A2987 RMK SLP123 CYHM 160700Z 13004KT 3SM -SN FEW014 OVC036 M06/M07 A3026 RMK SF2SC6 SLP263 CYHU 160700Z AUTO 04008KT 9SM BKN080 OVC100 M16/M19 A3052 RMK SLP338 CYHY 160700Z 21006KT 15SM FEW230 M06/M08 A2983 RMK CI2 SLP116 CYHZ 160700Z 36012KT 1 1/2SM -SN SCT007 OVC023 M06/M06 A3028 RMK CF4SC4 /S03/ SLP263 CYIN 160700Z AUTO 12009KT 9SM CLR M01/M02 A2989 RMK SLP154 CYIO 160700Z AUTO 19006KT 9SM CLR M31/M34 A2992 RMK SLP146 CYIV 160700Z 25009KT 15SM DRSN BKN200 M23/M27 A3057 RMK CI5 SLP387 CYJT 160700Z 07012KT 15SM OVC140 M08/M13 A3052 RMK AC8 SLP338 CYKA 160700Z 08012KT 12SM OVC009 01/M01 A3008 RMK ST8 SLP205 CYKF 160712Z AUTO 03003KT 3SM -SN SCT013 BKN023 OVC028 M09/M10 A3024 RMK SLP264 CYKJ 160700Z AUTO 23008KT 9SM CLR M17/M21 A3013 RMK SLP262 CYKL 160700Z AUTO VRB03KT 9SM CLR M26/M29 A3041 RMK SLP370 CYKP 160700Z AUTO 28006KT 9SM SCT019 M26/M28 A3063 RMK SLP404 CYKY 160700Z 18006KT 15SM SKC M18/M23 A3031 RMK PRESFR SLP332 CYKZ 160700Z 08004KT 8SM -SN OVC007 M09/M12 A3029 RMK SC8 SLP274 CYLD 160200Z 05008KT 13SM -SN SCT033 OVC070 M13/M15 A3040 RMK SC4AS4 LAST STFD OBS/NEXT 161100UTC SLP339 CYLL 160700Z AUTO 16011KT 9SM FEW240 M18/M22 A3024 RMK SLP308 CYLT 160700Z 28003KT 15SM SKC M31/M36 A3022 RMK FST OBS SLP240 CYLW 160700Z AUTO VRB02KT 7SM OVC006 01/00 A3016 RMK SLP232 CYMA 160700Z 02006G16KT 340V060 20SM SCT150 OVC200 05/M02 A2964 RMK AC3CI5 SLP061 CYMH 160700Z AUTO 26008KT 200V270 9SM BKN200 M19/M23 A3068 RMK SLP394 CYMM 160700Z AUTO 10007KT 9SM CLR M14/M17 A3011 RMK SLP233 CYMO 160700Z AUTO 31003KT 9SM OVC055 M17/M19 A3060 RMK SLP364 CYMT 160700Z AUTO 06004KT 9SM SCT150 BKN170 M24/M27 A3047 RMK SLP366 CYMX 160700Z 05005KT 25SM BKN045 OVC100 M15/M18 A3049 RMK SC6AC2 SLP336 CYNA 160700Z AUTO 04008KT 9SM BKN220 BKN240 M18/M21 A3067 RMK PRESFR SLP389 CYND 160200Z 07009KT 15SM FEW044 BKN100 BKN170 M16/M20 A3056 RMK SC2AC3AC2 LAST STFD OBS/NEXT 161200 UTC PRESFR SLP359 CYNE 160700Z AUTO 22014KT 9SM M20/M24 A3057 RMK CLD MISG SLP384 CYNM 160700Z AUTO 03003KT 360V060 9SM FEW150 M21/M23 A3048 RMK ICG SLP353 CYOC 160200Z 00000KT 35SM FEW011 SCT038 SCT190 BKN210 M15/M17 A2961 RMK ST1SC3AC1CI2 ST TR CLIMAT -13.2/-19.1/0.5MM/0.1CM/TRMWE/LAST STFD OBS/NXT 161400Z SLP057 CYOD 160700Z 12005KT 15SM SKC M19/M25 A3026 RMK SLP305 CYOJ 160700Z AUTO 00000KT 9SM CLR M17/M19 A2995 RMK SLP180 CYOO 160710Z AUTO 07006KT 4SM -SN OVC010 M09/M12 A3032 RMK SLP280 CYOW 160700Z 06009KT 1 1/4SM -SN VV008 M15/M17 A3044 RMK SN8 SLP320 CYOY 160700Z AUTO 08011G16KT 050V130 9SM OVC016 OVC034 M14/M18 A3054 RMK SLP360 CYPA 160700Z 08003KT 050V160 15SM SKC M28/M31 A3047 RMK SLP378 CYPD 160700Z AUTO 04012G18KT 3/4SM -SN VV007 M05/M06 A3025 RMK SLP253 CYPE 160700Z 21004KT 15SM SKC M13/M15 A2996 RMK SLP193 CYPG 160400Z 23005KT 15SM FEW250 M25/M28 A3086 RMK CI2 LAST OBS/NEXT 161200 UTC SLP489 CYPH 160700Z AUTO 24012G19KT 9SM BKN019 OVC024 M26/M29 A3035 RMK SLP282 CYPL 160200Z 33004KT 12SM IC FEW200 M25/M27 A3065 RMK CI1 LAST STFD OBS/NEXT 161100Z SLP435 CYPO 160700Z AUTO 23010G15KT 9SM CLR M27/M31 A3047 RMK SLP331 CYPQ 160712Z AUTO 08003KT 040V110 4SM -SN BKN016 OVC038 M13/M15 A3034 RMK SLP291 CYPR 160700Z AUTO 12006KT 110V180 9SM -RA BKN070 OVC085 09/05 A2958 RMK SLP019 CYPW 160300Z 06004KT 060V170 10SM -RA FEW002 SCT063 OVC087 07/05 A2982 RMK SF1SC3AC5 SF TR LAST STFD OBS NEXT OBS 161500 UTC SLP102 CYPX 160712Z AUTO 21011KT 6SM -SN BKN024 M26/M29 A3026 RMK SLP253 CYPY 160700Z AUTO 21004KT 150V280 9SM CLR M10/M12 A2999 RMK SLP181 CYQA 160700Z AUTO 07004KT 030V120 8SM -SN OVC050 M13/M16 A3029 RMK ICG SLP282 CYQB 160700Z 07013KT 10SM FEW015 OVC024 M14/M17 A3059 RMK CF1SC8 CF TR SLP366 CYQD 160700Z 19008KT 15SM OVC075 M19/M24 A3053 RMK AC8 SLP373 CYQF 160700Z 15006KT 2 1/2SM IC DRSN FEW003 M14/M16 A3005 RMK ST2 SLP244 CYQG 160700Z 22008KT 7SM SCT013 M09/M10 A3029 RMK SC4 SLP269 CYQH 160700Z 31002KT 10SM BKN120 M11/M13 A2985 RMK AC7 SLP166 CYQI 160700Z 36010KT 6SM -SN OVC030 M06/M08 A3039 RMK NS8 SLP296 CYQK 160700Z 34006KT 15SM SKC M25/M28 A3068 RMK SLP443 CYQL 160700Z AUTO 21008KT 9SM CLR M07/M10 A3015 RMK PRESFR SLP269 CYQM 160700Z 01012G19KT 15SM -SN OVC015 M06/M08 A3045 RMK SC8 SLP319 CYQQ 160700Z 19005KT 20SM -RA BKN045 OVC080 06/06 A2987 RMK SC6AC2 SLP115 CYQR 160700Z 13012KT 15SM SKC M24/M28 A3059 RMK SLP427 CYQT 160700Z 24004KT 15SM FEW023 M16/M17 A3060 RMK SC2 SLP381 CYQU 160700Z VRB02KT 1/4SM FZFG VV001 M09/M10 A2994 RMK FG8 FROIN SLP185 CYQV 160700Z AUTO 20008KT 9SM OVC130 M21/M24 A3061 RMK SLP427 CYQW 160700Z AUTO 12008KT 9SM CLR M21/M26 A3040 RMK SLP358 CYQX 160700Z 08005KT 20SM BKN014 OVC100 M10/M13 A3057 RMK SC6AC2 SLP367 CYQY 160700Z 04017G25KT 1/2SM SN VV006 M02/M03 A3031 RMK SN8 SLP269 CYQZ 160700Z AUTO 00000KT 1/4SM FZFG VV002 M04/M04 A2987 RMK ICG PAST HR SLP147 CYRB 160700Z VRB03KT 15SM IC SKC M29/M32 A2995 RMK SLP155 CYRJ 160700Z 30005KT 20SM OVC160 M25/M27 A3059 RMK AS8 SLP383 CYRL 160300Z 00000KT 15SM SKC M28/M30 A3071 RMK LAST STFD OBS/NEXT 161000 UTC SLP458 CYRQ 160700Z AUTO 05008G15KT 9SM OVC120 M14/M17 A3053 RMK SLP347 CYRT 160700Z 18008KT 10SM BKN018 BKN077 M18/M20 A2984 RMK SC5AC1 SLP112 CYRV 160700Z AUTO 00000KT 9SM OVC022 M02/M03 A3026 RMK SLP273 CYSB 160700Z 05007KT 10SM -SN OVC025 M15/M18 A3033 RMK SC8 SLP304 CYSC 160700Z AUTO 07005KT 9SM CLR M17/M20 A3046 RMK SLP339 CYSF 160700Z AUTO 07004KT 9SM CLR M19/M21 A3004 RMK SLP206 CYSJ 160700Z 03014KT 4SM -SN BKN008 OVC040 M08/M09 A3043 RMK SC7SC1 SLP313 CYSM 160700Z 13005KT 15SM SKC M12/M14 A2991 RMK SLP151 CYSN 160200Z 10007KT 1SM -SN VV008 M07/M08 A3035 RMK SN8 CIG VRB 6-10 VIS VRB 3/4-1 1/4 /S01/ LAST STFD OBS/NEXT 161200 UTC SLP285 CYTE 160700Z AUTO VRB02KT 9SM OVC013 M25/M27 A3007 RMK SLP192 CYTH 160700Z 21012KT 15SM IC DRSN OVC110 M19/M23 A3034 RMK AC8 SLP307 CYTL 160700Z AUTO 24008KT 9SM CLR M25/M28 A3051 RMK SLP367 CYTR 160700Z 04008KT 3SM -SN BKN014 OVC029 M14/M16 A3039 RMK SF7SC1 VIS VRB 2 1/4-4 SLP298 CYTS 160700Z 06008KT 10SM SCT080 OVC250 M16/M18 A3042 RMK AC4CI4 SLP329 CYTZ 160700Z AUTO 06010KT 4SM -SN BKN021 OVC027 M06/M07 A3031 RMK SLP272 CYUA 160700Z AUTO 00000KT ////SM //// NCD M04/M07 A2962 CYUB 160600Z 24004KT 15SM OVC036 M04/M05 A2959 RMK SC8 MEDIUM PACK(1/4 ICE COVERED) LAST OBS/NEXT 161400UTC SLP022 CYUL 160700Z 03012KT 15SM -SN BKN025 OVC045 M15/M18 A3050 RMK SC5SC3 SLP334 CYUS 160700Z AUTO 10004KT 060V130 ////SM //// NCD ///// A//// CYUX 160700Z AUTO 30009KT 9SM CLR M35/M39 A3000 RMK SLP164 CYUY 160700Z 10003KT 060V130 15SM BKN098 M17/M19 A3041 RMK AC7 SLP330 CYVC 160700Z 18005KT 15SM SKC M20/M25 A3035 RMK WND ESTD SLP326 CYVL 160700Z AUTO 20010KT 9SM CLR M03/M06 A2963 RMK SLP060 CYVM 160700Z AUTO 20010KT 9SM CLR M28/M33 A2997 RMK SLP150 CYVO 160700Z AUTO 03003KT 9SM FEW065 BKN088 M18/M19 A3041 RMK SLP334 CYVP 160700Z 23010G15KT 15SM BKN088 M21/M25 A3043 RMK AC7 SLP312 CYVQ 160700Z 11007KT 30SM SKC M08/M11 A2972 RMK SLP073 CYVR 160700Z 08010KT 15SM -SHRA SCT050 BKN071 OVC090 10/06 A2991 RMK SC4AC3AC1 CVCTV CLD EMBD SLP130 CYVT 160400Z 18008KT 15SM FEW250 M16/M21 A3031 RMK CI2 LAST STFD OBS/NXT 161200 UTC SLP316 CYVV 160700Z 09006KT 2SM -SHSN OVC025 M09/M09 A3028 RMK SN2SC6 CVCTV CLD EMBD SLP271 CYWA 160700Z AUTO 00000KT 1 1/4SM VV012 M14/M17 A3044 RMK SLP323 CYWE 160700Z AUTO 25004KT 9SM CLR M15/M16 A2970 RMK SLP100 CYWG 160700Z 25004KT 15SM SCT180 M27/M30 A3082 RMK CI3 SLP471 CYWH 160500Z 02007KT 350V090 15SM SCT070 BKN120 OVC240 10/05 A2984 RMK AC3AC3CI2 LAST STFD OBS/NEXT 161400 UTC SLP106 CYWK 160700Z AUTO 16006KT 9SM CLR M36/M40 A3049 RMK SLP408 CYWL 160700Z 12017KT 15SM FEW240 03/M00 A2986 RMK CI2 SLP144 CYXC 160700Z 00000KT 10SM -SN OVC010 M03/M04 A3031 RMK ST8 SLP308 CYXE 160700Z 17009KT 15SM SKC M19/M24 A3047 RMK SLP378 CYXH 160700Z AUTO 36002KT 9SM CLR M25/M27 A3028 RMK ICG SLP332 CYXJ 160700Z 10005KT 1/8SM R29/2400FT/N FZFG VV001 M08/M09 A2991 RMK FG8 SLP179 CYXL 160700Z 35005KT 12SM -SN OVC007 M21/M24 A3064 RMK SC8 SLP424 CYXR 160700Z AUTO 04004KT 9SM CLR M16/M17 A3041 RMK ICG SLP324 CYXS 160700Z AUTO 00000KT 9SM CLR M08/M08 A2985 RMK SLP154 CYXT 160700Z 01011G22KT 15SM OVC120 03/M01 A2974 RMK AC8 PRESFR SLP080 CYXU 160700Z 00000KT 3SM -SN SCT009 OVC021 M07/M09 A3025 RMK SF3SC5 SLP264 CYXX 160700Z 02004KT 350V060 15SM -RA BKN060 OVC080 07/04 A2994 RMK SC6AC2 SLP141 CYXY 160700Z 20008KT 15SM BKN110 03/M00 A2961 RMK AC7 SLP060 CYYB 160700Z AUTO 07008KT 2 1/2SM -SN OVC020 M15/M17 A3032 RMK SLP304 CYYC 160700Z 21011KT 10SM SKC M08/M10 A3004 RMK FROIN SLP243 CYYD 160700Z AUTO 14006KT 9SM SCT042 SCT120 OVC140 M01/M03 A2982 RMK SLP122 CYYE 160700Z 00000KT 15SM FEW200 M19/M21 A2987 RMK CI1 SLP155 CYYF 160700Z VRB02KT 6SM BR OVC007 01/00 A3017 RMK ST8 SLP233 CYYG 160700Z 03018KT 3SM -SN DRSN SCT017 OVC040 M05/M07 A3038 RMK SC3NS5 PRESFR SLP293 CYYH 160700Z 36005KT 15SM IC SKC M32/M35 A2994 RMK WND ESTD SLP146 CYYJ 160700Z 13009KT 30SM SCT075 BKN130 OVC170 11/07 A2990 RMK AC3AC4AC1 SLP127 CYYL 160700Z AUTO 24013G22KT 9SM OVC190 M16/M19 A3018 RMK PRESFR SLP263 CYYN 160700Z AUTO 19024G33KT 9SM CLR M17/M21 A3032 RMK SLP342 CYYQ 160700Z 24018G23KT 15SM OVC075 M15/M20 A3002 RMK AC8 PRESFR SLP172 CYYR 160700Z 31008KT 15SM SKC M26/M30 A3072 RMK SLP410 CYYT 160700Z 10018KT 3SM -SNPL BR BKN007 OVC017 M05/M06 A3050 RMK SF7SC1 PRESFR SLP339 CYYU 160700Z 01005KT 15SM BKN042 M20/M22 A3049 RMK SC7 ICE ON INDICATOR SLP350 CYYW 160700Z AUTO 33004KT 9SM -SN FEW028 OVC042 M18/M20 A3060 RMK SLP410 CYYY 160700Z 16009KT 15SM SCT020 BKN200 M20/M23 A3067 RMK SC4CI2 SLP392 CYYZ 160700Z 02007KT 6SM -SN OVC010 M08/M10 A3029 RMK SC8 SLP271 CYZE 160700Z AUTO 05012KT 9SM BKN045 M13/M16 A3036 RMK SLP298 CYZF 160700Z 18007KT 15SM SKC M12/M14 A2977 RMK SLP104 CYZH 160700Z AUTO 09011G21KT 9SM CLR M13/M16 A3003 RMK SLP222 CYZP 160707Z AUTO 15018G25KT 5SM -RA BR SCT006 SCT034 OVC049 09/09 A2947 RMK SLP980 CYZR 160700Z AUTO 22004KT 6SM BR BKN055 OVC072 M09/M09 A3028 RMK ICG SLP268 CYZS 160700Z VRB02KT 15SM IC SCT210 M35/M39 A3003 RMK CI4 SLP185 CYZT 160700Z 11019G24KT 15SM -RA OVC050 09/07 A2967 RMK SC8 SLP050 CYZU 160500Z 10007KT 15SM SKC M14/M16 A3005 RMK FROIN LAST OBS/NEXT 161300Z SLP246 CYZV 160700Z 04008KT 15SM FEW030 SCT170 M22/M26 A3068 RMK SC1AC2 SLP397 CYZX 160700Z 03011KT 3SM -SHSN BKN020 OVC040 M05/M07 A3040 RMK SC5SC3 /S01/ WNDY HILL UNAVBL SLP298 CYZY 160700Z AUTO 34003KT 310V020 1 1/4SM BR OVC003 M08/M09 A2993 RMK SLP186 CZBF 160700Z 33006KT 300V010 12SM -SN OVC015 M13/M15 A3060 RMK SC8 SLP368 CZCP 160700Z AUTO 08016KT ////SM //// OVC030 M09/M11 A2961 CZCR 160700Z AUTO 25004KT M16/M18 RMK AO1 SOG 57 6028 SLP379 T11571175 CZDB 160700Z AUTO 01011G17KT M06/M07 RMK AO1 6PAST HR SOG 01 6038 PK WND 04019/0625 SLP276 P0002 T10551067 50006 CZEL 160700Z AUTO 08004KT M10/M12 RMK AO1 SOG 01 5006 SLP261 T11021117 CZEV 160700Z AUTO 14001KT M06/M07 RMK AO1 SOG 26 1019 SLP038 T10551066 CZFS 160600Z AUTO 11005KT M11/M12 RMK AO1 SOG 31 6011 SLP105 T11071122 CZMD 160700Z AUTO 22009KT 9SM FEW130 M25/M28 A3054 RMK SLP384 CZMJ 160700Z AUTO 13008KT M23/M26 RMK AO1 SLP414 T12271255 58019 CZMT 160200Z 14006KT 100V160 10SM -SHRA BKN025TCU OVC050 08/06 A2952 RMK TCU5SC3 LAST STFD OBS/NEXT 161500 UTC SLP997 CZMU 160600Z AUTO 16012KT M15/M18 RMK AO1 SOG 04 T11461176 CZOL 160600Z AUTO 17006KT M11/M14 RMK AO1 T11141137 CZPC 160700Z AUTO 27018KT 9SM CLR 02/M05 A3010 RMK SLP243 CZPS 160600Z AUTO 16004KT M14/M16 RMK AO1 T11421156 CZSJ 160700Z AUTO 25005KT 210V300 9SM SCT130 M24/M27 A3058 RMK SLP400 CZSM 160700Z AUTO 11003KT M12/M14 RMK AO1 SOG 50 6012 SLP145 T11191140 CZSP 160600Z AUTO 04011G19KT M04/M08 RMK AO1 SOG 02 6047 PK WND 04021/0507 SLP309 T10441076 CZTB 160700Z AUTO 23004KT M16/M18 RMK AO1 SOG 20 1005 SLP379 T11591179 CZUM 160700Z AUTO VRB02KT 9SM CLR M34/M37 A3053 RMK SLP405 CZVL 160700Z AUTO 15006KT 9SM CLR M13/M15 A3007 RMK SLP235 CZZJ 160700Z AUTO 27003KT M12/M13 RMK AO1 SOG 22 8017 SLP224 T11181128 DAAD 160700Z 27008KT CAVOK 08/04 Q1029 DAAE 160700Z 23011KT 6000 FEW010 08/07 Q1028 DAAG 160700Z 23004KT 190V260 8000 FEW036 05/04 Q1029 DAAJ 160700Z 07001KT CAVOK 01/M11 Q1025 DAAP 160700Z 01004KT 8000 NSC 04/M09 Q1024 DAAS 160700Z 34004KT CAVOK M00/M01 Q1027 DAAT 160700Z 06012KT CAVOK 10/M15 Q1024 DAAV 160700Z 13003KT 9999 FEW020 08/06 Q1028 DAAY 160700Z 00000KT 0200 FG BKN006 SCT020 M02/M02 Q1031 DABB 160700Z 23006KT CAVOK 07/06 Q1026 DABC 160700Z 23003KT CAVOK 01/00 Q1027 DABS 160700Z 16006KT CAVOK M02/M05 Q1027 DABT 160700Z 20006KT CAVOK M00/M01 Q1028 DAFH 160700Z 01010KT CAVOK 02/00 Q1028 DAOB 160700Z 28004KT CAVOK M00/M01 Q1029 DAOF 160700Z 06014KT 6000 FEW030CB BKN040 09/06 Q1014 RERA DAOI 160700Z 00000KT 9000 SCT030 SCT100 07/06 Q1029 DAOL 160700Z 06004KT 4000 BR NSC 02/02 Q1030 DAON 160700Z 12003KT CAVOK 04/04 Q1030 DAOO 160700Z 26002KT 3000 BR NSC 04/04 Q1030 DAOR 160700Z 10009KT CAVOK 09/M02 Q1027 DAOV 160700Z 00000KT 4000 BR SCT013 02/02 Q1029 DAOY 160700Z 14003KT CAVOK M02/M03 Q1028 DATM 160700Z 12008KT CAVOK 13/M04 Q1017 DAUA 160700Z 08020KT 8000 DRSA NSC 11/M14 Q1020 DAUB 160700Z 01007KT CAVOK 07/01 Q1027 DAUE 160700Z 04008KT CAVOK 08/M01 Q1027 DAUG 160700Z 36007KT CAVOK 07/M01 Q1029 DAUH 160700Z 36005KT CAVOK 06/M01 Q1026 DAUI 160700Z 06020KT 9000 DRSA NSC 14/M07 Q1022 DAUK 160700Z 00000KT CAVOK 03/M01 Q1028 DAUL 160700Z 00000KT CAVOK 01/01 Q1029 DAUO 160700Z 33005KT 8000 NSC 02/M01 Q1028 DAUT 160700Z 05021KT 8000 DRSA NSC 08/M06 Q1023 DAUU 160700Z 32004KT CAVOK 03/M02 Q1027 DAUZ 160700Z 06007KT CAVOK 02/M09 Q1024 DBBB 160700Z 32003KT 3500 BR SCT010 25/24 Q1012 TEMPO 2500 BR DFFD 160700Z 08003KT 6000 NSC 17/01 Q1014 TEMPO 4000 DU DFOO 160700Z 00000KT 8000 NSC 16/04 Q1014 DGAA 160700Z 28006KT 3000 BR NSC 25/25 Q1012 NOSIG DIAP 160700Z 25003KT 200V280 8000 FEW012 26/24 Q1011 NOSIG DNMM 160700Z VRB02KT 2000 HZ FEW009 25/24 Q1014 TEMPO 1500 HZ DNPO 160600Z 00000KT 0600 FG VV003 22/22 Q1012 TEMPO 0300 DRRM 160700Z 08010KT 0600 DU NSC 16/M08 Q1018 DRRN 160700Z 08008KT 1000 R09/1200 DU NSC 19/M02 Q1015 NOSIG DRRT 160600Z 08006KT 1600 DU NSC 18/M11 Q1016 DRZA 160700Z 08021KT 4000 DU NSC 17/M07 Q1019 DRZR 160700Z 04010KT 0300 DU NSC 16/M08 Q1019 DTKA 160700Z 22006KT 9999 FEW020 11/08 Q1026 NOSIG DTMB 160700Z 16004KT 2500 BR NSC 05/05 Q1027 DTNH 160630Z 22006KT 7000 NSC 04/03 Q1026 DTTA 160700Z 22008KT 9999 FEW026 08/05 Q1026 NOSIG DTTB 160700Z 21003KT 180V240 5000 FEW020 09/08 Q1025 DTTD 160700Z VRB02KT CAVOK 06/01 Q1026 DTTF 160700Z 07009KT CAVOK 02/M02 Q1028 NOSIG DTTG 160700Z 16003KT 0700 FG SCT030 02/02 Q1027 NOSIG DTTJ 160700Z 33003KT 1000 FG NSC 11/10 Q1027 NOSIG DTTK 160700Z 24002KT 8000 NSC 06/03 Q1026 DTTL 160700Z 25003KT 160V320 6000 FEW020 08/08 Q1026 DTTN 160700Z 21006KT CAVOK 04/02 Q1027 DTTR 160700Z 07007KT 8000 NSC 06/M02 Q1026 DTTX 160700Z 29002KT 8000 FEW030 05/M00 Q1027 NOSIG DTTZ 160700Z 00000KT 8000 NSC Q//// NOSIG DXNG 160700Z 06006KT CAVOK 22/M02 Q1016 NOSIG DXSK 160600Z 00000KT 7000 NSC 18/08 Q//// DXXX 160700Z 00000KT 3200 BR FEW010 25/24 Q1012 TEMPO 2500 BR EBAW 160650Z 25012KT 9999 FEW019 07/04 Q0992 NOSIG EBBE 160655Z 23016KT 9999 FEW018 SCT024 BKN140 06/03 Q0993 WHT BLU TEMPO WHT EBBL 160655Z 24017KT 9999 BKN022 07/04 Q0992 WHT WHT TEMPO GRN EBBR 160650Z 24014KT 9999 FEW020 06/04 Q0993 NOSIG EBCI 160650Z 24016KT 9999 FEW012 SCT014 BKN020 06/03 Q0994 TEMPO 24015G25KT 3000 SHRA BR BKN012 EBCV 160655Z AUTO 23014KT 9999 BKN094/// BKN120/// 06/04 Q0994 BLU EBDT 160655Z 25011KT 9999 SCT019 BKN025 07/04 Q0992 BLACKWHT WHT TEMPO GRN EBFN 160655Z 27022KT 9999 FEW023 BKN028 BKN110 08/03 Q0993 BLU BLU TEMPO WHT EBFS 160655Z 24017KT 6000 -SHRA SCT010 BKN022 05/03 Q0995 GRN WHT TEMPO GRN EBLB 160655Z AUTO 25011KT 9999 -RA OVC007/// 03/02 Q0992 GRN EBLG 160650Z 24016KT 9999 FEW014 BKN025 05/04 Q0993 TEMPO 4000 SHRA BKN010 EBOS 160650Z 27024G35KT 9999 FEW024 07/02 Q0993 TEMPO 24020G30KT 4000 SHRA BKN014TCU EDDB 160650Z 17009KT 9999 -RA SCT008 BKN050 01/01 Q0991 R07/290095 NOSIG EDDC 160650Z 17014KT 9999 BKN030 02/M01 Q0994 TEMPO 17020G30KT EDDE 160650Z 20008KT 9999 -SHRA SCT025 FEW036CB SCT060 04/02 Q0992 TEMPO 25015G25KT EDDF 160650Z 22006KT 9999 VCSH SCT015TCU SCT030 06/04 Q0995 NOSIG EDDG 160650Z 34005KT 300V060 9999 TS FEW008 SCT013CB BKN020 02/02 Q0989 BECMG NSW EDDH 160650Z 23009KT 9999 -SHRA SCT016CB BKN037 04/02 Q0986 TEMPO 24015G25KT SHRA BKN014CB EDDK 160650Z 21008KT 9999 -SHRA FEW023TCU BKN028 05/04 Q0992 NOSIG EDDL 160650Z 23014KT 9999 FEW025 SCT040 07/03 Q0991 NOSIG EDDM 160650Z 23012KT 9999 FEW033 SCT060 BKN110 06/01 Q0999 TEMPO 24020G30KT EDDN 160650Z 20007KT 160V230 9999 -SHRA SCT016TCU BKN024 05/04 Q0996 RESHRA TEMPO 26015G25KT SHRA BKN012CB EDDP 160650Z 21012KT CAVOK 05/03 Q0992 TEMPO 22015G25KT EDDR 160650Z 26025G36KT 9999 FEW013 BKN018 06/04 Q0997 NOSIG EDDS 160650Z 21012KT 170V240 9999 -SHRA FEW011 SCT019TCU BKN026 06/05 Q0997 TEMPO 23015G30KT EDDT 160650Z 19010KT 9999 SCT007 SCT023 BKN075 03/02 Q0991 R88/290195 NOSIG EDDV 160650Z 23009KT 200V270 9999 SCT016CB SCT080 03/01 Q0989 TEMPO 24015G25KT SHRA BKN014CB EDDW 160650Z 27009KT 9999 -SHRA SCT010 BKN016CB 03/02 Q0987 RESHRA TEMPO 27015G25KT SHRA BKN012CB EDFH 160650Z 27010KT 9999 -DZ SCT002 BKN005 03/03 Q0994 EDFM 160650Z 20005KT 160V230 9999 -RA FEW017 BKN027 06/06 Q0997 EDGS 160650Z 23012G22KT 9999 4000SE VCSH PRFG SCT002 BKN006 01/01 Q0992 EDHI 160650Z 23008KT 8000 -RA FEW014 BKN025 04/02 Q0987 EDHK 160650Z 29007KT 240V330 9999 -SHRA SCT008TCU 03/02 Q0985 EDHL 160650Z 21008KT 9999 BKN023 03/03 Q0986 EDJA 160650Z 23019KT 9999 -RA FEW023 SCT027 OVC055 05/02 Q0999 EDLN 160650Z 24010G20KT 200V270 8000 -RA SCT021 BKN150 07/04 Q0991 EDLP 160650Z 23013KT 9999 SCT031 05/02 Q0990 EDLV 160650Z 26004KT 230V290 9999 -RA BKN017 05/05 Q0990 EDLW 160650Z 23013KT 9999 -RA BKN017 BKN021 BKN026 06/02 Q0990 EDMA 160650Z 22020KT 9999 -RA SCT027 BKN040 06/02 Q0999 EDMO 160650Z 23016KT 9999 SCT056 BKN110 06/01 Q1000 EDNY 160650Z 24010KT 9999 -SHRA BKN034 OVC040 07/03 Q1002 EDOP 160650Z 19008KT 160V220 9999 SCT006 BKN028 OVC040 03/03 Q0988 EDQM 160650Z 22013KT 9999 -DZ SCT010 BKN012 02/01 Q0994 EDSB 160650Z 21018KT 9999 VCSH OVC028 08/06 Q0998 RESHRA EDTL 160650Z 20014KT 9999 -DZ SCT009 BKN036 08/07 Q1000 EDTY 160650Z 24011KT 8000 -RA OVC011 05/// Q0996 RERA EDVE 160650Z 20011KT 9999 -RA FEW019 SCT026 BKN046 05/05 Q0989 EDVK 160650Z 24014KT 9999 -RA SCT019 BKN035 03/02 Q0991 EEEI 160650Z 14013G23KT 120V180 8000 -SN OVC016 M09/M12 Q1010 R24/190095 NOSIG EEKA 160650Z 15017T 9999 OVC009 M04/M06 Q1007 EEKE 160650Z 16025KT 9999 OVC009 M04/M06 Q1007 R17/0///95 EEPU 160650Z 14008KT 100V230 CAVOK M09/M14 Q1011 EETN 160650Z 15013KT 120V180 9999 SCT012 M10/M13 Q1011 R08/450295 TEMPO 15016G30KT EETU 160650Z 13011KT CAVOK M12/M15 Q1016 EFET 160650Z AUTO 16013KT 120V210 2600 -SN OVC011 M10/M12 Q1000 EFHA 160650Z 15018KT 9999 -SN BKN015 M08/M11 Q1009 EFHK 160650Z 14015KT 9999 -SN BKN013 M08/M10 Q1011 NOSIG EFIV 160650Z AUTO 16017KT 9999 -SN OVC019 M10/M14 Q1006 EFJO 160650Z 15014KT 110V180 9999 BKN012 M08/M11 Q1016 EFJY 160650Z 15014KT 9000 -SN BKN017 M08/M11 Q1010 EFKE 160650Z AUTO 14015KT 100V170 5000 -SN OVC029 M10/M13 Q1008 EFKI 160650Z AUTO 15007KT 110V200 6000 -SN BKN014 M12/M15 Q1012 EFKK 160650Z 13011KT 100V170 9999 -SN OVC023 M08/M11 Q1007 EFKS 160650Z AUTO 16010KT 9999 -SN OVC010 M11/M13 Q1010 EFKT 160650Z AUTO 15016KT 9999 -SN OVC015 M11/M13 Q1005 EFKU 160650Z 14011KT 6000 -SN OVC015 M12/M15 Q1014 EFLP 160650Z AUTO 13009KT 070V180 9999 -SN OVC009 M11/M13 Q1015 EFMA 160650Z AUTO 14020G32KT 100V180 9999 OVC012 M01/M04 Q0999 EFMI 160650Z AUTO 14014KT 090V200 5000 -SN OVC013 M09/M12 Q1014 EFOU 160650Z AUTO 13014KT 9999 -SN OVC023/// M10/M12 Q1009 EFPO 160650Z AUTO 13021KT 9999 OVC013/// M07/M09 Q1004 EFRO 160650Z 15010KT 9999 -SN SCT013 BKN018 M11/M13 Q1007 EFSA 160650Z 14005KT 110V180 6000 -SN BKN010 M12/M14 Q1017 EFSI 160650Z AUTO 15012KT 110V190 7000 -SN FEW019 OVC022 M08/M11 Q1005 EFTP 160650Z 14010KT 6000 -SN BKN017 M09/M11 Q1008 EFTU 160650Z AUTO 14012KT 110V180 9999 OVC013/// M05/M08 Q1005 EFUT 160650Z 15018KT 5000 -SN OVC014 M07/M10 Q1013 EFVA 160650Z AUTO 14015KT 120V180 9999 -SN OVC019/// M08/M11 Q1004 EGAA 160650Z 23011KT 6000 -RASN SCT002 BKN006 01/01 Q0988 EGAC 160650Z 22014KT 9999 FEW014 01/01 Q0988 EGAE 160650Z 23015KT 8000 VCSH SCT015 BKN030 03/01 Q0987 EGBB 160650Z 27009KT 9999 FEW024 04/00 Q0992 EGCC 160650Z 25012KT 9999 -SHRASN SCT022 BKN035 03/01 Q0990 TEMPO 4000 SHRASN EGCK 160650Z AUTO 27027KT 9999 BKN027/// 06/01 Q0993 EGCN 160650Z 25013KT 9999 FEW032 SCT048 04/01 Q0990 EGDM 160650Z 27019KT 9999 -SHRA FEW022 BKN050 05/01 Q0996 BLU EGDR 160650Z 28018G31KT 9999 -SHRA FEW012 SCT020 BKN030 07/05 Q1002 WHT TEMPO 4000 SHRA SCT010 BKN016TCU GRN EGDX 160650Z AUTO 29018KT 9999 FEW023/// 05/03 Q0996 RERA EGDY 160650Z 28017KT 9999 FEW020CB 04/02 Q0998 RESHRA BLU TEMPO 4000 +SHRA BKN012 GRN EGFF 160650Z AUTO 30018G28KT 270V330 9999 -RA SCT017 BKN032 05/03 Q0997 RERA EGGD 160650Z AUTO 26017KT 9999 FEW019 BKN025 BKN032 03/03 Q0996 EGGP 160650Z 26019KT 9999 -SHRA FEW016 BKN028 04/02 Q0991 EGGW 160650Z AUTO 27020KT 9999 NCD 03/01 Q0993 EGHH 160650Z 27014KT 9999 RA SCT030 06/03 Q0998 EGHI 160650Z 27009KT 9000 FEW035 SCT046 06/01 Q0997 EGHQ 160650Z 28022G35KT 9999 VCSH FEW015 SCT026 07/04 Q1001 EGJA 160650Z 28025G35KT 9999 SCT030 09/// Q1001 EGJB 160650Z 28023G36KT 9999 FEW022 08/05 Q1002 RESHRA EGJJ 160650Z 28025G39KT 9999 FEW016 09/06 Q1002 RESHRA EGKB 160650Z 26013G23KT 230V290 9999 FEW030 05/02 Q0994 EGKK 160650Z 26014KT CAVOK 05/02 Q0995 EGLC 160650Z AUTO 26016KT 220V290 9999 -RA FEW023 BKN032 BKN042 07/02 Q0994 EGLF 160650Z 27013KT 240V300 CAVOK 05/02 Q0995 EGLL 160650Z AUTO 26017KT 9999 NCD 06/01 Q0995 EGMC 160650Z 26011KT 9999 FEW026 05/01 Q0993 EGMD 160650Z AUTO 26014KT 9999 NCD 06/03 Q0995 EGNH 160650Z 27026KT 9999 SCT022 05/01 Q0989 EGNJ 160650Z 23013KT 9999 FEW021 03/01 Q0988 EGNM 160650Z 27015KT 190V350 9999 FEW025 02/M01 Q0987 EGNO 160650Z 27022KT 9999 SCT023 05/01 Q0989 EGNR 160650Z 27012KT 9999 FEW010 05/M01 Q0992 EGNS 160650Z 26021G31KT 230V290 9999 FEW018 BKN022 04/00 Q0989 TEMPO 4000 SHRAGS EGNT 160650Z 26018KT 9999 FEW014 02/M00 Q0984 EGNV 160650Z 22007KT CAVOK 00/M02 Q0986 EGNX 160650Z 24015KT 9999 FEW037 02/00 Q0991 EGOM 160650Z AUTO 25016KT 0400 SG BKN002/// BKN050/// M00/M00 Q0984 EGOP 160650Z AUTO 27024KT 9000 // FEW027/// BKN060/// 06/03 Q0997 EGOS 160650Z 29019G32KT 9999 FEW018 SCT040 BKN130 03/00 Q0992 BLU EGOV 160650Z 26025G36KT 9999 FEW025 BKN030 05/M01 Q0992 BLU NOSIG EGPA 160650Z 22016KT 9999 VCSH FEW010 FEW018CB 02/00 Q0973 R/SNOCLO EGPB 160650Z 23025KT 9999 FEW010 SCT018 03/01 Q0970 EGPC 160650Z 23008KT 9999 FEW045 00/M01 Q0974 R/SNOCLO EGPD 160650Z AUTO 23008KT 9999 NCD 01/M03 Q0978 NOSIG EGPE 160650Z 23014KT 9999 -SHSN FEW005 SCT015 00/M00 Q0978 EGPF 160650Z AUTO 24011KT 9999 -RA SCT018/// BKN035/// //////TCU 01/00 Q0983 RERA EGPH 160650Z 24013KT 9999 -RASN FEW003 BKN024TCU 01/00 Q0982 R24/590195 EGPI 160650Z 29032KT 9999 FEW037 SCT048 03/01 Q0984 EGPK 160650Z 27020KT 9999 -SHRA FEW010 SCT018 03/01 Q0984 EGPL 160650Z AUTO 27026KT 9999 FEW027/// SCT038/// OVC045/// 03/00 Q0977 EGPM 160650Z 19017KT 9999 -SHSN FEW023 01/M01 Q0968 EGPN 160650Z 25011KT 9999 FEW040 02/01 Q0981 EGPO 160650Z 24012KT 9999 VCSH FEW016CB SCT032 01/M01 Q0974 EGPU 160650Z AUTO 29025KT 6000 -RA FEW017/// BKN028/// 02/00 Q0981 EGQK 160650Z AUTO 24014KT 9999 FEW050/// 01/M01 Q0977 RESN EGQL 160650Z 26014KT 9999 FEW048 SCT140 01/M01 Q0981 BLU EGQS 160650Z 24016KT 9999 FEW027CB SCT050 00/M01 Q0977 BLU TEMPO 2000 SHSN SCT005 BKN014CB YLO2 EGSH 160650Z 25014KT CAVOK 03/02 Q0990 NOSIG EGSS 160650Z AUTO 27012KT 9999 NCD 04/01 Q0993 EGTE 160650Z 28014G25KT 250V320 9999 FEW020 07/03 Q0998 EGTK 160650Z 26012KT 9999 FEW025 SCT040 04/01 Q0994 EGUB 160650Z 25011KT CAVOK 05/01 Q0994 BLU TEMPO 6000 -SHRA SCT020 WHT EGUL 160656Z AUTO 26014KT 9999 FEW130 04/04 A2926 RMK AO2 SLP912 T00370037 $ EGUN 160656Z AUTO 26013G21KT 9999 FEW130 04/04 A2926 RMK AO2 SLP912 T00360036 EGUW 160650Z 28016KT 9999 FEW041 SCT120 04/01 Q0991 BLU EGVA 160656Z AUTO 26013KT M M FEW080 BKN095 M A2938 RMK AO2 SLPNO ALSTG ESTMD RVRNO $ EGVN 160650Z 26009KT 9999 FEW040 BKN080 05/00 Q0994 NOSIG EGVO 160650Z 27018KT 9999 FEW020 BKN070 05/01 Q0995 BLU EGVP 160650Z 27017G27KT 9999 FEW020 BKN040 06/M00 Q0996 BLU EGWU 160650Z 28016KT 9999 FEW025 SCT040 06/01 Q0994 BLU NOSIG EGXC 160650Z 26012KT 9999 FEW025 02/00 Q0989 BLU NOSIG EGXE 160650Z 26017G28KT CAVOK 03/M01 Q0986 BLU EGXP 160650Z AUTO 26010KT 9999 // NCD 02/00 Q0989 EGXS 160650Z AUTO 23014KT 9999 // NCD 03/01 Q0988 EGXT 160650Z 25014KT 9999 FEW038 SCT045 02/01 Q0990 BLU EGXU 160650Z 26010KT CAVOK 03/M01 Q0987 BLU TEMPO 3000 -SHSN SCT014CB YLO1 EGXV 160650Z AUTO 26016G27KT 9999 NCD 02/M00 Q0987 EGXW 160650Z 24010KT 9999 FEW020CB SCT035 02/M00 Q0989 BLU EGXZ 160650Z AUTO 27011KT 9999 NCD 03/M01 Q0987 RERA EGYD 160650Z 25012KT 9999 FEW020 02/M00 Q0990 BLU TEMPO 6000 -SHRASN BKN015CB WHT EGYM 160650Z 24014KT 9999 FEW015 03/01 Q0990 RESHRA BLU TEMPO 4000 -SHRASN BKN015 GRN EGYP 160650Z 02008KT CAVOK 10/03 Q1001 BLU EHAK 160655Z AUTO 31022KT 9999 FEW008/// SCT029/// BKN046/// 05/01 Q0980 W///H/// EHAM 160655Z 26014KT 9999 -SHRA FEW018CB SCT027 06/04 Q0988 TEMPO 7000 -SHRAGS EHBK 160655Z AUTO 23013KT 210V270 9999 FEW016 SCT020 06/04 Q0992 TEMPO 7000 SHRA FEW018CB EHDL 160655Z AUTO 24014KT 180V290 9999 TS FEW015CB SCT062 BKN070 05/02 Q0989 REDZ BLU EHDV 160655Z AUTO 28035KT 250V320 9999 FEW020/// SCT034/// 06/01 Q0983 W///H/// EHEH 160707Z AUTO 23015KT 200V260 9999 FEW020 SCT025 OVC100 06/04 Q0991 BLU 23012KT 9999 SCT020 BKN040 TEMPO 25015G25KT 4000 SHRA SCT010 SCT015CB BKN020 EHFD 160655Z AUTO 27034G44KT 9999 FEW011/// SCT023/// BKN034/// 05/02 Q0981 W///H/// EHFS 160655Z AUTO 26019KT 9999 SCT023 BKN027 OVC031 07/04 Q0991 W///H/// EHFZ 160655Z AUTO 28029KT 9999 FEW016CB SCT034 06/02 Q0983 W///H/// EHGG 160655Z AUTO 24012KT 9999 -RA FEW015CB SCT022 BKN031 04/03 Q0986 TEMPO 4000 SHRAGS SCT018CB EHGR 160655Z AUTO 24011KT 210V270 9999 FEW015CB SCT081 OVC100 07/04 Q0990 REDZ BLU EHHW 160655Z AUTO 31025KT //// // ///////// 05/01 Q0984 RE// W///H/// EHJA 160655Z AUTO 27033KT 9999 FEW018/// SCT021/// BKN033/// 06/01 Q0985 W///H/// EHJR 160655Z AUTO 28033KT //// // ///////// 06/02 Q0986 RE// W08/H29 EHKD 160702Z AUTO 25019KT 220V280 9999 -DZ FEW015CB SCT028 BKN051 05/03 Q0987 BLU 26018G28KT 9999 SCT020 SCT050 TEMPO 27025G38KT 4000 SHRASN SCT012 SCT018CB EHKV 160655Z AUTO 27034KT 260V320 9999 SCT015CB SCT020 BKN043 06/02 Q0987 W///H/// EHLW 160705Z AUTO 27014KT 230V310 9999 DZ FEW013 FEW015CB SCT029 BKN038 04/02 Q0986 BLU EHMA 160655Z AUTO 29024KT 9999 FEW015CB SCT031 BKN042 05/02 Q0985 W///H/// EHMG 160655Z AUTO 26027KT 9999 FEW019 SCT035 BKN039 06/02 Q0984 W///H/// EHPG 160655Z AUTO VRB36G49KT 9999 -RA FEW012 FEW015CB SCT028 BKN045 06/02 Q0988 W///H/// EHQE 160655Z AUTO 23032KT 9999 FEW012 SCT020 BKN033 07/02 Q0986 W///H/// EHRD 160655Z AUTO 28009G21KT 220V310 9999 DZRA FEW015CB SCT018 BKN028 06/03 Q0989 TEMPO 29020G30KT 6000 SHRAGS EHSA 160655Z AUTO 28023KT 9999 ///////// 05/03 Q0990 REDZ W07/H27 EHSC 160655Z AUTO 29035KT 260V320 9999 -RA ///////// 05/02 Q0990 RERA REDZ W07/H26 EHVK 160707Z AUTO 24014KT 210V270 9999 FEW015CB SCT023 BKN027 06/04 Q0990 WHT EHVL 160706Z AUTO 27027KT 9999 SCT019 SCT025 BKN032 06/02 Q0986 WHT EHWO 160711Z AUTO 25016KT 220V290 9999 SCT021 BKN027 OVC031 07/04 Q0991 WHT 24012G22KT 9999 SCT020 BKN040 TEMPO 26015G25KT SHRA FEW011 SCT018CB BKN030 EICK 160700Z 28017KT 9999 -SHRA FEW010 FEW018CB BKN035 03/01 Q0998 NOSIG EIDW 160700Z 26022KT 9999 FEW012 SCT050 BKN100 02/M00 Q0992 NOSIG EIKN 160700Z 27012KT 9999 -SHSN SCT017CB SCT023 BKN032 01/M00 Q0991 TEMPO 3000 EIKY 160700Z 28010KT 240V320 9999 -RA FEW024 BKN043 06/01 Q0999 EIME 160700Z 25015G27KT 9999 FEW013 SCT020 BKN120 01/00 Q0993 EINN 160700Z 26024KT 9999 SCT018CB 05/00 Q0996 NOSIG EKAH 160650Z AUTO 21006KT 140V270 9999NDV BKN022/// BKN083/// 03/03 Q0980 EKBI 160650Z AUTO 21008KT 9999NDV BKN012/// OVC098/// 02/02 Q0980 EKCH 160650Z 20013KT 9999 BKN015 04/03 Q0984 TEMPO BKN008 EKEB 160650Z AUTO 23015G25KT 190V250 9999NDV BKN014/// BKN100/// 03/01 Q0981 EKKA 160658Z AUTO 21009KT 9999NDV BKN014/// BKN060/// 03/02 Q0979 TEMPO 2500 SHRASNGS BKN008 SCT020CB EKOD 160650Z 21011KT 9999 FEW009 BKN015 03/02 Q0982 EKRK 160650Z AUTO 20011KT 9999NDV FEW005/// BKN011/// BKN016/// 03/03 Q0983 EKRN 160650Z AUTO 17026KT 5000NDV -SN OVC005/// 01/01 Q0988 R11/590240 EKSB 160650Z 19006KT 9999 BKN025 03/02 Q0983 EKSP 160650Z 22009KT 9999 FEW011 SCT022 BKN032 03/02 Q0982 TEMPO 2500 SHRAGS SCT020CB EKVD 160650Z 24013KT 9999 -SHRA SCT015TCU BKN026 03/02 Q0981 EKVG 160650Z AUTO 08002KT 9999NDV SCT023/// BKN086/// BKN230/// M01/M01 Q0962 RMK FEW066/// WIND 850FT VRB01KT EKYT 160710Z AUTO 23013KT 9999NDV -RA FEW007/// BKN011/// BKN016/// OVC019/// 03/03 Q0977 ELLX 160650Z 26014KT 7000 -SHRA FEW009 BKN014TCU 04/03 Q0996 TEMPO SHRA ENAL 160650Z 14012KT 9999 SCT040 05/M02 Q0972 ENAN 160650Z 15025KT 9999 SCT057 02/M05 Q0986 ENAT 160650Z VRB05KT 9999 SCT035 SCT130 M05/M10 Q0998 RMK WIND 700FT 18033G51KT ENBL 160650Z 06003KT 030V150 9999 -SN FEW007 SCT015 BKN030 M01/M02 Q0972 ENBN 160650Z 14036G55KT 110V180 CAVOK 02/M05 Q0978 ENBO 160650Z 12028G41KT CAVOK 02/M06 Q0983 TEMPO 13040G55KT ENBR 160650Z 14006KT 110V200 1100 R17/P2000N SHSN VV006 00/M00 Q0973 TEMPO 22015KT 2500 SHSNRAGS BKN012CB RMK WIND 1200FT 14011KT ENBS 160650Z 21028KT 9999 FEW015 SCT018 M08/M11 Q1001 ENBV 160650Z 19030KT 9999 -BLSN FEW020 M06/M10 Q1001 ENCN 160650Z VRB03KT 9999 FEW049 BKN068 01/M00 Q0973 ENDR 160650Z AUTO 14029KT 04/M03 Q0972 ENDU 160650Z 11020G33KT CAVOK M01/M09 Q0989 TEMPO 12020KT RMK WIND 1100FT 34007KT WIND 2200FT 14034KT ENEV 160650Z 16012KT 130V200 9999 SCT062 BKN084 01/M08 Q0987 RMK WIND 1400FT 16021KT ENFB 160650Z AUTO 21018KT //// FEW028/// 04/M02 Q0969 W///S6 ENFL 160650Z 11015KT 9999 FEW015 SCT018 BKN025 02/01 Q0972 ENGC 160650Z 23018KT 9999 FEW025TCU SCT030 04/M02 Q0970 W05/S6 ENGK 160650Z 32002KT 3000 -SN VV013 00/M00 Q0973 ENGM 160650Z 11006KT 020V140 2000 SN VV007 M01/M03 Q0978 NOSIG ENHD 160650Z 18004KT 120V280 6000 -RADZ FEW010 BKN024 01/01 Q0974 RERA ENHE 160650Z 16032KT 9999 BKN027 06/00 Q0972 W///S6 ENHF 160650Z 18026G41KT CAVOK M04/M09 Q0992 RMK WIND 1254FT 19056G66KT ENHK 160620Z 16021G32KT CAVOK M01/M07 Q0992 ENHM 160650Z 26019KT 9999 SCT030 04/00 Q0972 W08/S5 ENHV 160650Z 19033G57KT 130V210 9999 BKN019 M03/M07 Q0996 ENKB 160650Z 15009KT 090V240 CAVOK 04/M07 Q0972 RMK WIND 745FT 16017KT ENKR 160650Z 18023KT CAVOK M09/M13 Q1005 RMK WIND 731FT 18030KT ENLA 160650Z AUTO 27018KT 9999NDV -SHRA FEW030/// BKN037/// 04/00 Q0976 W///S4 ENLE 160650Z 28021KT 9999 FEW025TCU SCT060 05/M01 Q0978 W07/S5 ENLK 160650Z 14021G42KT 110V170 9999 SCT040 BKN060 03/M06 Q0983 ENMH 160550Z 16043G53KT 9999 FEW033 M07/M11 Q0997 ENML 160650Z 12013KT 9999 FEW050 BKN062 05/M05 Q0972 ENMS 160650Z 19011G23KT 07V230 9999 SCT024 BKN032 01/M05 Q0984 RMK WIND 412FT VRB06G17KT ENNA 160650Z 17030G41KT 9999 -SN BKN022 M07/M11 Q0998 RMK WIND 1800FT 18045G56KT ENNE 160650Z 15040KT 9999 FEW025 BKN050 04/M01 Q0973 W///S7 ENNM 160650Z 09015G28KT 040V130 9999 FEW036 BKN100 02/M05 Q0981 ENNO 160650Z 28004KT 9000 4000NW -RASN VV023 00/M00 Q0976 ENOA 160650Z 23021KT 9999 SCT025 04/M02 Q0971 W///S6 ENOL 160650Z 14036G47KT CAVOK 02/M06 Q0974 NOSIG ENOV 160650Z VRB04KT 9999 -SN SCT022 BKN038 03/M03 Q0972 RMK WIND 2175FT 13024KT ENQA 160650Z AUTO 23016KT 9999NDV FEW025/// BKN200/// 04/M01 Q0972 W04/S6 ENQC 160650Z AUTO 22016KT 9999NDV FEW025/// 04/M01 Q0971 W///S6 ENQR 160650Z AUTO 21018KT 9999NDV SCT029/// SCT140/// BKN170/// 05/M02 Q0969 W///S6 ENRA 160650Z 10021G31KT 9999 BKN040 01/M07 Q0987 ENRM 160650Z 13028G39KT 9999 FEW040 SCT080 02/M06 Q0978 ENRO 160650Z 13017KT 6000 -SN FEW026 BKN060 M05/M06 Q0978 ENRS 160650Z 15028KT 9999 FEW039 BKN045 03/M05 Q0981 ENRY 160650Z AUTO 10016KT 1400NDV R12/P2000N R30/P2000N -SN VV009 M00/M01 Q0977 ENSB 160650Z 08009KT 9999 -RASN FEW020 SCT025 BKN060 01/M01 Q0994 NOSIG RMK WIND 1400FT 09010KT ENSD 160650Z 17003KT 9999 -SHSNRA FEW017 BKN033 02/M01 Q0973 RMK WIND 1138FT VRB05KT ENSE 160650Z AUTO 22017KT 9999NDV FEW170/// 05/M01 Q0969 W///S7 ENSF 160650Z AUTO 21019KT 9999NDV FEW027/// 06/M02 Q0969 W///S6 ENSG 160650Z 01005KT 330V070 9999 VCSH FEW/// SCT015 BKN030 M01/M05 Q0972 RMK WIND 3806FT 12021KT ENSH 160650Z 14014KT 9999 FEW045 SCT055 BKN070 03/M05 Q0984 RMK WIND 150FT 12026G37KT ENSK 160650Z 12020KT 9999 BKN045 03/M04 Q0985 ENSL 160650Z 27033KT 9999 -SHRA SCT035 BKN060 04/M03 Q0974 W05/S5 ENSO 160650Z 13008KT 9999 BKN006 01/01 Q0973 ENSR 160620Z 15031G41KT 9999 -BLSN SCT049 BKN120 M03/M08 Q0993 WIND 1119FT 13042G52KT ENSS 160650Z 19019G32KT 160V220 9999 BKN018 M05/M09 Q1006 RMK WIND 500FT 21033KT ENST 160650Z VRB19G35KT CAVOK 03/M06 Q0979 RMK WIND 300FT 13046G70KT TURB WRNG - SEE IPPC ENTC 160650Z 18017G29KT 150V210 CAVOK 01/M08 Q0989 NOSIG RMK WIND 2600FT /////KT ENTO 160650Z 13009KT 1300 R18/P2000N R36/P2000N -SN VV003 M00/M00 Q0976 ENUG 160650Z AUTO 17022KT 9999NDV NCD 01/M06 Q0991 W06/S6 ENVA 160650Z 15018G31KT 110V180 9999 FEW045 BKN100 03/M07 Q0979 TEMPO 14018KT RMK WIND 670FT 16035G50KT ENVD 160650Z 20016KT 9999 BKN017 M07/M10 Q1006 ENVR 160650Z 14021KT CAVOK 03/M03 Q0982 ENWV 160650Z AUTO 27019KT 9999NDV -SHRA FEW029/// 05/00 Q0978 W///S5 ENZV 160650Z 12004KT 9999 FEW020 SCT045 BKN120 01/00 Q0974 TEMPO 25015KT 4000 SHRASNGS BKN012CB EPBY 160700Z 16016G29KT 3300 -SN BR SCT017 BKN020 OVC024 M03/M06 Q0998 R26/49//95 EPGD 160700Z 15017KT 9999 OVC014 M06/M09 Q0997 EPKK 160700Z 03006KT CAVOK M05/M08 Q1005 EPKT 160700Z 15005KT 7000 NSC M05/M08 Q1004 EPLB 160700Z 13009KT CAVOK M10/M12 Q1011 EPLL 160700Z 13015KT CAVOK M04/M09 Q1003 EPMO 160700Z 13013KT 110V170 CAVOK M07/M10 Q1005 EPPO 160700Z 16014KT 1900 -SN BR OVC009 M01/M02 Q0996 R10/09//95 EPRA 160700Z 16013KT CAVOK M09/M11 Q1007 EPRZ 160700Z 17015G25KT 140V200 9999 BKN024 M03/M09 Q1009 EPSC 160700Z 16013KT 3000 -SN BR BKN002 OVC003 M00/M00 Q0991 RESN REBLSN R13/590592 EPSY 160700Z 14010KT 100V190 9999 BKN012 M10/M11 Q1005 EPWA 160700Z 14016KT CAVOK M07/M10 Q1006 NOSIG EPWR 160700Z 17020KT CAVOK M00/M06 Q0999 EPZG 160700Z 15010KT 110V200 1800 -SN BR FEW002 BKN006 OVC009 M00/M00 Q0995 EQYG 160657Z AUTO 26008KT 10SM FEW041 SCT060 13/ A3025 RMK AO2 RAE22 SLP239 P0002 T0128 $ ESCF 160650Z 14013KT 110V170 5000 -SN BR OVC013 M00/M01 Q0987 ESDF 160650Z 16016KT 2000 SN VV004 M00/M00 Q0988 ESGG 160650Z 15017KT 2400 -SN FEW005 BKN009 OVC012 M00/M01 Q0977 R21/590234 ESGJ 160650Z 14018KT 1700 SN OVC009 M01/M01 Q0982 R19/490067 ESGR 160650Z AUTO 14016KT 100V170 9999 -RA SCT016/// BKN022/// OVC028/// 01/M04 Q0982 ESGT 160650Z 14016KT 9000 -SN BR SCT009 BKN014 01/01 Q0978 ESIB 160650Z 14017KT 9999 -SN FEW010 SCT016 BKN024 01/M00 Q0979 ESKM 160650Z AUTO 12016KT 2300 -SN FEW007/// OVC018/// M01/M03 Q0985 ESKN 160650Z 15024G38KT 9999 BKN014 01/M02 Q0991 R26/09//95 ESMK 160650Z 16012KT 4100 -SN FEW005 SCT009 BKN011 01/01 Q0985 ESMQ 160650Z 16021KT 1500 -SN FEW002 OVC005 M00/M00 Q0990 ESMS 160650Z 19014KT 4000 -RA BR OVC003 02/02 Q0984 R17/690195 ESMT 160650Z 15015KT 3400 -SN BKN005 OVC007 01/01 Q0981 ESMX 160650Z 14013KT 1700 -SN BKN002 M00/M01 Q0985 ESND 160650Z AUTO 12013KT 2300 -SN ///025/// M03/M04 Q0985 ESNG 160650Z 15018KT 4000 SG OVC014 M07/M09 Q0998 ESNK 160650Z 15022KT 6000 -RASN SCT006 OVC011 M00/M03 Q0995 ESNL 160650Z AUTO 13017KT 4600 -FZDZ OVC008/// M03/M06 Q0995 REFZUP ESNN 160650Z 14029KT 7000 -SN OVC009 M01/M02 Q0995 R16/79//28 ESNO 160650Z 16019KT 9999 BKN010 M03/M04 Q0998 ESNQ 160650Z 16017G31KT 5000 -SN BKN016 OVC021 M07/M09 Q0994 ESNS 160650Z 15012KT 9999 -SG OVC008 M06/M07 Q1002 ESNU 160650Z 15021KT 9999 OVC010 M05/M06 Q1002 R14/75//40 ESNV 160650Z AUTO 14016KT 2300 -SN OVC012/// M03/M05 Q0991 ESNX 160650Z 13018KT 5000 -SG OVC006 M07/M08 Q0995 ESNZ 160650Z 13018KT 3500 SG FEW010 BKN015 OVC019 M03/M05 Q0985 ESOE 160650Z 12016KT 9999 -SN OVC013 01/00 Q0986 ESOK 160650Z 12016G26KT 0800 R03/P1500N R21/P1500N SN VV003 M00/M01 Q0982 ESOW 160650Z AUTO 14022G32KT 9999 OVC015/// 01/M02 Q0991 ESPA 160650Z 16020KT 2000 -FZDZ -SN -SG BKN006 BKN010 M06/M07 Q1004 ESPE 160650Z 15015KT 6000 -SN BKN013 M06/M08 Q0999 ESSA 160650Z 14022KT 9999 OVC015 01/M03 Q0993 R01L/19//64 R01R/19//75 R08/19//67 NOSIG ESSB 160650Z 13025G35KT 9999 BKN018 01/M03 Q0993 R12/19//59 ESSD 160650Z 13017KT 1300 R32/P1500N -SN VV009 M01/M01 Q0987 ESSL 160650Z 14020G31KT 2800 -SN FEW003 SCT006 OVC013 00/M01 Q0987 R29/490195 ESSP 160650Z 14022KT 9999 -SN OVC015 02/M01 Q0989 R09/19//95 ESST 160650Z 12008KT 0900 R16/P2000N R34/P2000N -SN VV008 M01/M01 Q0982 ESSV 160650Z 15027G38KT 9999 OVC015 M00/M04 Q0994 R21/09//95 ESTA 160650Z 15013KT 9999 BKN005 OVC011 02/01 Q0982 ESUD 160650Z AUTO 15021KT 5000 -SN BKN020/// OVC025/// M03/M05 Q0992 ESUP 160650Z AUTO 13015KT 4700 -SN FEW008/// OVC013/// ///// Q1003 ESUT 160650Z AUTO 13036KT 0800 R33/1800N -SN ///025 M04/M06 Q0984 ETAD 160656Z AUTO 26011KT 9999 -RA BKN010 OVC016 04/03 A2937 RMK AO2 RAE0558DZB04E13RAB30 CIG 010V016 SLP948 P0001 T00410031 TSNO $ ETAR 160706Z 25021G29KT 9999 -RA SCT017 SCT023 BKN039 06/05 A2943 RMK AO2A SLP975 $ ETEB 160711Z AUTO 23012KT 9999 -RA SCT011 BKN022 04/03 A2941 RMK AO2 CIG 012V022 SLPNO FZRANO $ ETGG 160620Z 23012G22KT 9999 SCT022 03/01 Q0983 BLU+ ETHA 160709Z 26020G39KT 9999 SCT040 BKN100 05/01 Q0999 BLU BLU TEMPO WHT ETHB 160656Z 26010KT 3000 SHSNRA BR OVC006CB 02/02 Q0989 YLO BLU TEMPO YLO ETHC 160620Z 21009KT 9999 FEW020 SCT030 BKN040 03/01 Q0989 BLU BLU TEMPO WHT ETHF 160620Z 22014KT 9999 SCT020 BKN050 05/03 Q0992 BLU BLU TEMPO GRN ETHL 160620Z 23020G31KT 9999 -RA BKN018 06/03 Q0999 WHT BLU TEMPO WHT ETHN 160700Z 23013G24KT 7000 RA BKN008 OVC022 04/03 Q0995 GRN GRN TEMPO YLO ETHS 160620Z 24007KT 9999 -SHRA FEW010 BKN025 04/02 Q0988 BLU BLU TEMPO GRN ETIC 160711Z AUTO 14006KT 9000 -DZ BR BKN009 OVC016 02/02 A2940 RMK AO2 RAE10DZB10 SLP976 FZRANO $ ETIH 160711Z AUTO 00000KT 9999 RA BR OVC015 03/03 M RMK AO2 SLPNO $ ETIK 160656Z AUTO 22014G20KT 9999 -RA BKN019 OVC028 06/06 A2941 RMK AO2 SLP970 P0003 T00560056 $ ETML 160620Z AUTO 19010KT //// // ////// 03/01 Q0984 /// ETMN 160620Z 22009KT 9999 SCT017 BKN035 03/02 Q0985 BLU BLU TEMPO WHT ETND 160620Z 24019KT 9999 -SHRA BKN015TCU BKN030 04/02 Q0988 WHT BLU TEMPO GRN ETNG 160650Z 24015G25KT 9999 SCT020 BKN045 07/04 Q0992 NOSIG ETNH 160620Z 27004KT 9000 SCT015 BKN100 03/02 Q0984 BLU BLU TEMPO YLO ETNL 160620Z 21007KT 9999 BKN007 BKN012 03/02 Q0987 GRN GRN BECMG BLU ETNN 160620Z 26018KT 9999 FEW025 SCT040 BKN130 07/03 Q0992 BLU BLU TEMPO GRN ETNS 160652Z 22013KT 4200 -SHRASN BR SCT012 BKN017TCU 02/01 Q0984 RERASN GRN BLU TEMPO YLO ETNT 160620Z 24009KT 9999 SCT011 BKN032 04/02 Q0985 BLU BLU TEMPO GRN ETNW 160620Z 24014G24KT 9999 -SHRA VCTS SCT015CB BKN080 04/02 Q0988 RESHGS BLU BLU TEMPO YLO ETOU 160656Z AUTO 24005KT 9999 FEW015 SCT031 SCT042 BKN080 BKN120 05/03 A2937 RMK AO2 RAE23DZB40E49 SLP952 P0001 T00480033 $ ETSA 160620Z AUTO 22018G29KT //// // ////// 05/01 Q1000 /// ETSB 160620Z 26012KT 9999 SCT006 BKN016 04/02 Q0993 WHT WHT TEMPO YLO ETSH 160708Z 20008KT 9999 FEW024 SCT040 BKN070 04/03 Q0992 BLU BLU TEMPO WHT ETSI 160620Z 24014KT 9999 FEW025 BKN035 BKN050 07/02 Q0999 BLU BLU TEMPO WHT ETSL 160620Z 22019G31KT 9999 FEW020 BKN110 05/01 Q0999 BLU ETSN 160705Z 22015KT 7000 -RA FEW020 BKN028 BKN060 07/03 Q0998 WHT BLU TEMPO GRN ETWM 160620Z 22007KT 9999 SCT016 BKN024 04/02 Q0987 WHT EVLA 160650Z AUTO 13012KT 9999 NCD M07/M10 Q1004 EVRA 160650Z 15015KT CAVOK M09/M12 Q1011 R18/190095 NOSIG EVVA 160650Z AUTO 14015KT CAVOK M08/M11 Q1005 EYKA 160650Z 15018KT CAVOK M08/M14 Q1012 R08/0///95 EYPA 160650Z 15019KT CAVOK M08/M12 Q1004 R19/0///95 EYSA 160650Z 14018KT CAVOK M10/M12 Q1009 R14L/29//95 R14R/29//95 BLU NOSIG EYVI 160650Z 15018KT CAVOK M11/M14 Q1014 R19/1///95 NOSIG FABL 160700Z 01018KT 340V040 CAVOK 25/13 Q1023 NOSIG FACT 160700Z 16004KT 110V220 CAVOK 21/11 Q1014 NOSIG FACV 160452Z 09011KT CAVOK 20/07 Q1017 FADY 160524Z 12014KT CAVOK 19/10 Q1020 FAEL 160600Z 06009KT 020V090 9999 SCT029 20/14 Q1022 FAEO 160618Z 11009KT 9999 BKN008 14/12 Q1028 FAGG 160700Z 11011KT 9999 FEW020 20/13 Q1018 FAHS 160700Z AUTO 19011KT //// // ////// ///// Q1021 FAJB 160700Z AUTO 08004KT //// // ////// 21/13 Q1025 FAKM 160700Z 36016KT CAVOK 29/10 Q1020 FAKN 160700Z 18010KT 9999 SCT020 22/12 Q1024 NOSIG FALA 160700Z 04012KT CAVOK 22/13 Q1025 NOSIG FALE 160700Z 26005KT 9999 SCT010 BKN030 22/18 Q1023 NOSIG FALM 160500Z 13015KT 8000 BKN014 20/// Q1023 FALW 160600Z 18005KT CAVOK 19/// Q1014 FAMM 160700Z 03011KT CAVOK 25/13 Q1022 NOSIG FAOB 160700Z AUTO 13015KT //// // ////// 23/14 Q1018 FAOR 160700Z 07015KT 9999 FEW020 19/13 Q1026 NOSIG FAPE 160700Z 07015KT 9999 BKN027 23/14 Q1020 NOSIG FAPN 160700Z AUTO 06008KT //// // ////// 27/14 Q1021 FAPP 160700Z 08011KT 9999 SCT025 23/11 Q1024 NOSIG FAPR 160655Z 08007KT 9999 FEW025 21/13 Q1025 FAUP 160700Z 07002KT 9999 FEW050 28/05 Q1016 NOSIG FAUT 160515Z 11007KT 9999 BKN010 16/15 Q1023 FAVV 160700Z AUTO 35012KT //// // ////// 21/14 Q1024 FAWB 160600Z 09007KT CAVOK 23/13 Q1023 FAWK 160400Z AUTO 09011KT //// // ////// ///// Q1025 FBFT 160700Z 09018G30KT 050V130 9999 BKN025 26/16 Q1020 FBKE 160700Z 11009KT 060V130 CAVOK 29/16 Q1017 FBMN 160700Z 07014KT CAVOK 30/15 Q1015 FBSK 160700Z 05012KT 020V090 CAVOK 21/11 Q1020 NOSIG FBSP 160700Z 11010KT 9999 BKN020 25/17 Q1021 FCBB 160700Z 15002KT 6000 -RA FEW003 BKN016 FEW030CB 22/21 Q1015 RETS NOSIG FCPP 160700Z 09004KT 9000 FEW010 SCT023 FEW030CB 27/24 Q1012 NOSIG FDJR 160600Z AUTO 15004KT //// // ////// 19/11 Q1025 FDMS 160700Z VRB02KT 9999 BKN035 22/15 Q1024 NOSIG FDPP 160400Z AUTO 36006KT //// // ////// 16/13 Q1027 FDSK 160700Z 20014KT 9999 BKN030 24/16 Q1022 NOSIG FDST 160300Z AUTO 23011G24KT //// // ////// 18/16 Q1021 FDUS 160700Z AUTO 07006KT //// // ////// 21/16 Q1024 FEFF 160700Z 27003KT 4000 BR NSC 22/16 Q1013 BECMG 6000 NSW FEFT 160700Z 36004KT CAVOK 19/17 Q1012 FGBT 160600Z 00000KT 8000 SCT010 26/26 Q1011 FGSL 160600Z 27004KT 9999 FEW012 FEW020CB 25/23 Q1012 NOSIG FIMP 160700Z 17019KT 9999 VCSH SCT015 BKN050 BKN250 29/23 Q1009 FIMR 160600Z 09025G40KT 2000 +RA SCT005 BKN015 BKN045 BKN090 26/25 Q1001 FJDG 160655Z 25006KT 9999 FEW020 BKN080 OVC220 30/27 A2985 RMK SLP105 T03010265 FKKD 160700Z VRB03KT 1600 BR SCT016 FEW020CB 26/26 Q1012 NOSIG FKKN 160700Z 00000KT 2500 HZ NSC 12/07 Q1019 FKKR 160700Z 16004KT 1800 HZ NSC 21/06 Q1015 NOSIG FKYS 160700Z 24001KT 4000 BR BKN011 22/22 Q1018 BECMG BKN016 FLKK 160500Z VRB03KT CAVOK 24/19 Q1019 FMCH 160700Z 35010KT 320V010 9999 FEW020 29/25 Q1011 NOSIG FMCZ 160700Z 32008KT 300V360 9999 FEW018CB SCT020TCU BKN093 29/24 Q1011 NOSIG FMEE 160700Z 28009KT 9999 FEW033 SCT044 BKN280 31/20 Q1009 NOSIG FMEP 160700Z AUTO 13021KT 9999 4800 BKN021/// BKN033/// BKN044/// ///TCU 27/23 Q1011 TEMPO 4500 SHRA BECMG 14020G30KT FMMI 160700Z 14011KT 100V180 9999 FEW020 22/15 Q1019 NOSIG FMMT 160700Z 18014KT 9000 VCSH FEW007 SCT017TCU BKN033 27/23 Q1013 TEMPO 4000 RA FMNM 160700Z 12006KT 9999 SCT020CB 29/22 Q1011 NOSIG FMNN 160700Z 03006KT 9999 VCSH BKN020 27/24 Q1012 FMSD 160700Z 06016KT 9999 FEW016 28/21 Q1015 FNBC 160600Z 22005KT 8000 BKN011 21/// Q1014 FNBG 160600Z 12004KT 9999 FEW020 BKN080 24/22 Q1013 FNCA 160700Z VRB03KT 9999 FEW013 SCT025 BKN080 26/24 Q1013 FNDU 160700Z 00000KT 9000 FEW010 SCT023 20/// Q1017 FNHU 160600Z 35005KT 7000 -RA FEW007 BKN060 17/16 Q1021 FNKU 160700Z 36008KT 9999 FEW014 BKN090 18/16 Q1020 FNLU 160600Z 10004KT 5000 BR FEW020 BKN090 25/23 Q1012 NOSIG FNSA 160600Z 00000KT 9999 FEW015 BKN090 20/19 Q1018 FNSO 160700Z VRB03KT 9000 SCT016 BKN080 ///// Q1013 FNSU 160700Z 12006KT 9999 FEW012 BKN060 25/// Q1015 FNUB 160600Z 00000KT 9999 FEW020 19/// Q1023 FNUE 160600Z 32007KT 9999 FEW030 18/16 Q1017 FOGM 160700Z /////KT 8000 SCT008 OVC020 24/23 Q//// FOGR 160700Z /////KT 8000 SCT008 BKN025 24/24 Q//// FOOB 160700Z /////KT 9000 SCT010 23/22 Q1013 FOOG 160700Z 16004KT 9999 FEW010 BKN040 27/24 Q1012 FOOK 160700Z 00000KT 2000 BR OVC010 23/21 Q1015 FOOL 160700Z VRB02KT 9000 FEW011 FEW016TCU SCT035 26/25 Q1013 NOSIG FOON 160600Z 14001KT 7000 FEW002 BKN016 FEW023CB 21/21 Q1013 FOOR 160700Z /////KT 3000 BR FEW003 SCT005 23/22 Q//// FOOT 160700Z VRB02KT 8000 SCT006 BKN026 25/23 Q1015 FPST 160600Z 22002KT 9999 FEW025CB BKN110 24/23 Q1012 NOSIG FQBR 160700Z /////KT 9999 BKN018 29/25 Q1013 FQCH 160700Z 16008KT 9999 BKN015 25/21 Q1019 FQIN 160700Z 17012KT 9999 SCT020 30/22 Q1017 FQLC 160500Z 23002KT 7000 SCT003 BKN014 FEW020CB BKN070 19/19 Q1019 RMK CB TO E/NE FQMA 160600Z 23008KT 9999 SCT020 28/20 Q1019 NOSIG FQNP 160500Z /////KT 2000 +RA BKN010 OVC020 22/22 Q1008 FQQL 160700Z 14011KT 110V180 9999 BKN020 30/24 Q1012 FQVL 160700Z 18011KT 140V210 9999 BKN020 28/24 Q1015 FSIA 160700Z 33010KT 9999 SCT018 30/24 Q1012 NOSIG FSPP 160700Z 35009KT //// //// 29/24 Q1012 FTTA 160700Z 36004KT CAVOK 22/04 Q1016 FTTC 160700Z 08012KT CAVOK 19/M06 Q1017 FTTD 160700Z 22004KT 3500 HZ NSC 19/07 Q1016 FTTJ 160700Z 02008KT 2500 DU NSC 18/M09 Q1016 NOSIG FWKI 160600Z VRB03KT 9999 SCT017 BKN070 21/20 Q1018 NOSIG FYGB 160700Z AUTO 10005KT //// // ////// 29/06 Q1021 FYKM 160700Z 05004KT CAVOK 28/20 Q1016 FYLZ 160700Z AUTO 19015KT //// // ////// 21/12 Q1012 FYML 160700Z AUTO 15001KT //// // ////// 32/M07 Q1019 FYOA 160700Z 27006KT CAVOK 25/17 Q1018 FYOO 160700Z AUTO 00000KT //// // ////// 28/15 Q1017 FYOW 160700Z AUTO 28003KT //// // ////// 24/15 Q1018 FYRN 160700Z 27005KT CAVOK 27/17 Q1017 FYRU 160600Z AUTO 36008KT //// // ////// 24/15 Q1019 FYWB 160600Z 34008KT 9999 OVC011 16/13 Q1014 FYWE 160700Z 10011KT CAVOK 28/02 Q1022 FYWH 160700Z 15010KT CAVOK 26/M01 Q1022 NOSIG FYWW 160700Z 09012G23KT CAVOK 28/02 Q1021 FZAA 160700Z 20006KT 7000 SCT016 BKN100 22/20 Q1014 NOSIG GABS 160700Z 04003KT 8000 NSC 13/M01 Q1014 NOSIG GAMB 160600Z 00000KT 8000 NSC 16/02 Q1013 GANR 160600Z 00000KT CAVOK 12/M01 Q1014 GBYD 160700Z 33006KT CAVOK 18/05 Q1013 GCFV 160700Z 02028G38KT 9999 FEW038 SCT041 16/08 Q1022 GCGM 160700Z VRB17G33KT 9999 FEW040 16/08 Q1024 RMK R09/VRB08G24KT ARP/VRB12G26KT GCHI 160700Z 04023KT 360V060 9999 FEW028 18/11 Q1026 GCLA 160700Z 02022G32KT 340V050 9999 FEW030 18/10 Q1027 GCLP 160700Z 02030G40KT 9999 FEW040 BKN065 17/09 Q1023 NOSIG GCRR 160700Z 02024G34KT 9999 FEW040 15/07 Q1022 GCTS 160700Z VRB07KT 9999 FEW040 17/06 Q1023 NOSIG GCXO 160700Z 32015G29KT 280V010 9999 SCT025 BKN030 11/07 Q1026 NOSIG GEML 160700Z VRB01KT CAVOK 07/06 Q1030 GGOV 160700Z 36005KT CAVOK 17/12 Q1012 NOSIG GLRB 160700Z 02006KT 0400 FG OVC001 24/23 Q1012 GMAD 160700Z 04007KT CAVOK 14/02 Q1019 NOSIG GMAG 160700Z 11008KT 8000 FEW016 08/07 Q1018 NOSIG GMAT 160700Z 04012KT 8000 FEW016 12/08 Q1018 NOSIG GMFF 160700Z 06008KT CAVOK 06/04 Q1027 NOSIG GMFK 160700Z 36008KT CAVOK 06/00 Q1029 NOSIG GMFM 160700Z 11005KT CAVOK 05/03 Q1026 NOSIG GMFO 160700Z VRB04KT 8000 NSC 02/01 Q1029 BECMG CAVOK GMMB 160700Z AUTO 04008KT //// ////// 06/05 Q1027 NOSIG GMMC 160700Z 06006KT CAVOK 10/07 Q1026 GMMD 160700Z 10002KT 9999 SCT100 03/02 Q1024 NOSIG GMME 160700Z VRB02KT CAVOK 06/03 Q1026 NOSIG GMMH 160700Z 07010KT 8000 NSC 14/11 Q1021 NOSIG GMMI 160700Z 05012KT 8000 NSC 08/06 Q1023 NOSIG GMML 160700Z 02019KT 8000 FEW030 SCT040 14/08 Q1019 NOSIG GMMN 160700Z 04004KT 9999 FEW016 08/05 Q1026 NOSIG GMMW 160700Z VRB02KT CAVOK 05/04 Q1030 NOSIG GMMX 160700Z 00000KT 9999 SCT080 04/02 Q1023 NOSIG GMMZ 160700Z 02017KT 340V040 8000 SCT030 07/M02 Q1024 NOSIG GMTA 160700Z 16006KT CAVOK 05/04 Q1030 NOSIG GMTN 160700Z 35003KT 9999 FEW023 05/03 Q1029 NOSIG GMTT 160700Z 08008KT 9999 FEW016 11/07 Q1029 NOSIG GOBD 160700Z 02012KT CAVOK 16/05 Q1014 NOSIG GOGG 160600Z 36006KT CAVOK 20/05 Q1012 GOGK 160600Z 00000KT 8000 NSC 12/10 Q1011 GOGS 160600Z 02008KT CAVOK 19/11 Q1013 GOOD 160600Z 02006KT 8000 NSC 17/02 Q1014 GOOG 160600Z 08006KT 8000 NSC 19/02 Q//// GOOK 160600Z 04010KT CAVOK 18/06 Q1013 GOOY 160700Z 04014KT 8000 NSC 20/13 Q1014 GOSM 160600Z 36004KT CAVOK 16/01 Q1013 GOSP 160600Z 04006KT CAVOK 17/04 Q1015 GOSS 160600Z 36004KT CAVOK 15/08 Q1015 GOTK 160600Z 12004KT CAVOK 20/04 Q1012 GOTT 160600Z 34006KT CAVOK 19/02 Q1011 GQNO 160630Z 01009KT 8000 NSC 14/04 Q1016 NOSIG GQPP 160700Z 04019KT 6000 DRSA NSC 14/08 Q1020 NOSIG GQPZ 160600Z 30008KT CAVOK 10/04 Q1018 GUCY 160600Z 00000KT 3000 BR NSC 23/23 Q1012 NOSIG GVAC 160700Z 05017KT 9000 FEW014 BKN200 20/15 Q1017 NOSIG GVBA 160700Z 04012KT 9999 FEW014 19/15 Q1017 NOSIG GVNP 160700Z 04019KT CAVOK 20/16 Q1016 NOSIG GVSV 160700Z 07017KT 9000 SCT018 SCT200 20/14 Q1018 NOSIG HAAB 160700Z 16006KT C A V O K 15/M08 Q1028 HBBA 160600Z 36004KT 8000 FEW025 BKN100 22/20 Q1016 NOSIG HCMF 160700Z 00000KT 9999 FEW022 23/18 Q1018 NOSIG HCMH 160700Z 36013KT CAVOK 18/02 Q1022 NOSIG HCMM 160700Z 09016KT 9999 SCT023 28/24 Q1012 NOSIG HDAM 160600Z 16003KT 9999 FEW023 27/19 Q1018 HEAR 160700Z 00000KT CAVOK 14/04 Q1026 NOSIG HEAT 160700Z 32012KT CAVOK 11/05 Q1026 NOSIG HEAX 160700Z 23001KT 4000 HZ SCT020 SCT022 13/09 Q1026 NOSIG HEBA 160700Z 00000KT 9999 SCT020 12/08 Q1026 NOSIG HEBL 160700Z 02006KT CAVOK 15/03 Q1022 NOSIG HECA 160700Z 05003KT 4000 BR NSC 14/10 Q1026 NOSIG HEGN 160700Z 31013KT CAVOK 17/07 Q1024 NOSIG HEIS 160700Z 28003KT 3000 BR SCT025 11/09 Q1026 HELX 160700Z 00000KT 6000 NSC 14/04 Q1023 NOSIG HEMA 160700Z 32019KT CAVOK 20/11 Q1022 NOSIG HEMM 160500Z 24005KT 7000 FEW020 08/07 Q1027 NOSIG HEPS 160700Z 26004KT 6000 FEW020 15/10 Q1026 NOSIG HESC 160700Z 02003KT CAVOK 06/01 Q1027 NOSIG HESG 160700Z 31005KT CAVOK 12/06 Q1024 NOSIG HESH 160700Z 36015KT CAVOK 19/05 Q1022 NOSIG HESN 160700Z 01007KT CAVOK 14/03 Q1022 NOSIG HETR 160700Z 35004KT 9999 FEW020 15/06 Q1023 HKEL 160600Z 10004KT CAVOK 17/08 Q1025 HKJK 160700Z 03008KT CAVOK 22/10 Q1022 HKKI 160700Z 14003KT CAVOK 25/14 Q1018 HKML 160500Z 33008KT 9999 SCT020 BKN080 24/22 Q1013 HKMO 160700Z 02010KT 9999 BKN023 27/21 Q1013 NOSIG HKNW 160600Z 03007KT 9999 FEW022 20/09 Q1021 HKWJ 160600Z 08012KT CAVOK 27/19 Q1013 HLLB 160650Z 13007KT 9999 FEW020 SCT200 11/08 Q1027 HRYR 160600Z 07003KT SCT023 BKN100 18/17 Q1022 NOSIG HSNN 160700Z 02012KT 6000 18/M12 Q1019 HSOB 160700Z 36017KT CAVOK 20/M01 Q1019 HSPN 160700Z 35012KT 9999 SCT030 24/14 Q1019 HSSS 160700Z 36015KT CAVOK 22/04 Q1018 NOSIG HTDA 160600Z 01016KT 9999 FEW016 SCT017 BKN080 27/24 Q1012 NOSIG HTKJ 160600Z 36005KT CAVOK 23/16 Q1016 NOSIG HTMW 160600Z 00000KT 9999 FEW019 FEW020CB SCT260 21/19 Q1017 NOSIG HTZA 160600Z 02012KT 9999 SCT018 28/24 Q1011 NOSIG HUEN 160700Z 20004KT 9000 FEW022 24/20 Q1018 NOSIG K04V 160656Z AUTO 35004KT 10SM CLR M07/M11 A3031 RMK AO2 K04W 160655Z AUTO 35009G14KT 10SM CLR M15/M17 A3058 RMK AO2 K05U 160655Z AUTO 21005KT 10SM CLR M04/M06 A3025 RMK A01 K06C 160655Z AUTO 27004KT 3/4SM OVC014 M13/M15 A3031 RMK AO2 T11351155 K06D 160655Z AUTO 24007KT 10SM CLR M25/M29 A3072 RMK AO2 K08D 160655Z AUTO 21005KT 10SM CLR M27/M30 A3070 RMK AO2 K0A9 160655Z AUTO 05004KT 10SM FEW050 M02/M04 A3035 RMK AO2 K0CO 160653Z AUTO 33015G22KT CLR M18/M25 A3022 RMK AO2 PWINO K0E0 160655Z AUTO 13010KT 10SM OVC011 M06/M08 A3049 RMK AO2 T10561078 K0F2 160655Z AUTO 36012G17KT 10SM OVC080 M06/M15 A3069 RMK AO2 T10621155 K0J4 160658Z AUTO 00000KT 10SM CLR 00/M02 A3042 RMK AO2 SLP300 T00001022 K0R0 160655Z AUTO 00000KT 10SM -UP CLR M01/M02 A3040 RMK AO2 K0R4 160655Z AUTO BKN100 A3037 RMK AO2 PWINO TSNO K0S9 160655Z AUTO 13008G15KT 10SM SCT026 BKN035 OVC070 10/09 A2994 RMK AO2 P0002 K0V4 160655Z AUTO 10SM CLR M08/M09 A3042 RMK AO1 T10781095 K0VG 160650Z AUTO 00000KT 10SM CLR M03/M04 A3035 RMK AO2 K11R 160655Z AUTO 36015G23KT 7SM -RA OVC010 05/04 A3046 RMK AO2 P0001 T00450040 K12N 160654Z AUTO 04003KT M07/M10 A3045 RMK AO1 SLP328 T10721100 K14Y 160655Z AUTO 31008KT 10SM BKN011 M20/M22 A3063 RMK AO2 K17J 160655Z AUTO 00000KT 10SM CLR 01/00 A3041 RMK AO2 T00121003 K18A 160655Z AUTO 00000KT 10SM CLR M02/M06 A3042 RMK AO2 T10251058 K18H 160655Z AUTO 08010G15KT 070V130 10SM 21/12 A3028 RMK A01 K19S 160655Z AUTO 31009KT 10SM CLR M19/M22 A3070 RMK AO2 T11861220 K1A5 160655Z AUTO 00000KT 10SM CLR M07/M08 A3037 RMK AO2 T10661081 K1A6 160655Z AUTO 00000KT 10SM BKN060 M02/M04 A3033 RMK AO2 T10181041 K1A9 160655Z AUTO 00000KT 10SM CLR M01/M01 A3039 RMK AO2 T10141015 K1AM 160658Z AUTO 10011KT 10SM CLR M09/M12 A3025 RMK AO2 SLP271 T10861117 410391093 $ K1AN 160656Z AUTO 25005KT 10SM CLR M28/M31 A3074 RMK AO2 SLP494 T12841314 $ K1AW 160658Z AUTO 31010KT 10SM CLR M19/M23 A3047 RMK AO2 SLP439 T11891231 410561201 $ K1BN 160656Z AUTO 22008KT 10SM CLR M26/M30 A3074 RMK AO2 SLP486 T12581300 $ K1BW 160658Z AUTO 30009KT 10SM CLR M20/M23 A3051 RMK AO2 SLP448 T11961229 410571200 $ K1CM 160658Z AUTO 13003KT 10SM CLR M08/M15 A3024 RMK AO2 SLP324 T10781153 410711148 $ K1CN 160656Z AUTO 26005KT 10SM CLR M30/M33 A3076 RMK AO2 SLP498 T12971330 $ K1DM 160658Z AUTO M 10SM CLR M16/M17 A3028 RMK AO2 SLP362 T11571174 410971196 $ K1DN 160656Z AUTO 24004KT 10SM CLR M29/M33 A3073 RMK AO2 SLP491 T12891327 K1DW 160658Z AUTO 34009KT 10SM CLR M21/M23 A3054 RMK AO2 SLP453 T12111235 410521213 $ K1EM 160658Z AUTO 12009KT 10SM FEW140 M23/M25 A3032 RMK AO2 SLP392 T12311251 411501261 $ K1EN 160656Z AUTO 27006KT 10SM CLR M27/M31 A3070 RMK AO2 SLP486 T12741306 $ K1F0 160655Z AUTO 05008KT 10SM OVC110 M06/M15 A3071 RMK AO2 K1FM 160658Z AUTO 17004KT 10SM CLR M08/M08 A3022 RMK AO2 SLP311 T10811078 410431109 $ K1FN 160656Z AUTO 25009KT 10SM CLR M29/M32 A3062 RMK AO2 SLP489 T12921320 $ K1FW 160658Z AUTO 30007KT 10SM CLR M21/M23 A3054 RMK AO2 SLP444 T12071235 410431209 $ K1GM 160658Z AUTO 18033G39KT 10SM CLR M03/M07 A3018 RMK AO2 PK WND 18039/31 SLP273 T10351070 410231074 $ K1GN 160656Z AUTO 22008KT 10SM CLR M30/M33 A3069 RMK AO2 SLP486 T12971332 $ K1H2 160655Z AUTO 27008KT 10SM CLR M16/M19 A3055 RMK AO2 T11631191 K1HM 160658Z AUTO 00000KT 10SM CLR M13/M14 A3024 RMK AO2 SLP315 T11331136 410471160 $ K1HN 160656Z AUTO 00000KT 10SM CLR M28/M31 A3075 RMK AO2 SLP492 T12801313 PWINO FZRANO $ K1IM 160658Z AUTO 17007KT 10SM CLR M05/M11 A3027 RMK AO2 SLP316 T10501106 410261092 $ K1IN 160656Z AUTO 23005KT 10SM CLR M27/M31 A3068 RMK AO2 SLP479 T12751310 $ K1IW 160658Z AUTO 32008KT 10SM CLR M21/M24 A3058 RMK AO2 SLP460 T12121238 410471224 $ K1JM 160658Z AUTO 13006KT 10SM CLR M15/M17 A3025 RMK AO2 SLP344 T11531170 410641211 $ K1JN 160656Z AUTO 25009KT 10SM CLR M26/M29 A3067 RMK AO2 SLP473 T12611295 $ K1JW 160658Z AUTO M 10SM CLR M19/M22 A3054 RMK AO2 SLP438 T11871216 410481207 $ K1K1 160655Z AUTO 10SM SCT031 M16/M21 A3074 RMK AO2 T11581206 K1KM 160658Z AUTO 26003KT 10SM OVC003 M10/M11 A3041 RMK AO2 SLP397 T11001110 410561134 $ K1KN 160656Z AUTO 23015KT 10SM CLR M25/M28 A3065 RMK AO2 SLP465 T12501283 $ K1KW 160658Z AUTO 32009KT 10SM CLR M19/M21 A3051 RMK AO2 SLP433 T11861212 410381186 $ K1LN 160656Z AUTO 22007KT 10SM CLR M26/M29 A3070 RMK AO2 SLP470 T12581293 K1LW 160658Z AUTO 33011KT 10SM CLR M17/M21 A3053 RMK AO2 SLP437 T11681211 410391177 $ K1M4 160656Z AUTO 35005KT 10SM CLR M02/M03 A3039 RMK AO2 SLP319 T10221033 K1M5 160655Z AUTO 35008KT 5SM BR FEW003 SCT012 BKN027 M08/M09 A3045 RMK A01 K1MN 160656Z AUTO 25007KT 10SM CLR M25/M29 A3071 RMK AO2 SLP473 T12511289 $ K1NM 160658Z AUTO 25009KT 10SM CLR M13/M19 A3030 RMK AO2 SLP364 T11271189 411131220 $ K1NN 160656Z AUTO 23008KT 10SM CLR M27/M31 A3075 RMK AO2 SLP479 T12751310 $ K1ON 160656Z AUTO 21004KT 10SM CLR M29/M32 A3077 RMK AO2 SLP485 T12951325 K1OW 160658Z AUTO 32010KT 10SM CLR M21/M25 A3048 RMK AO2 SLP445 T12131247 410441213 PWINO FZRANO $ K1P1 160715Z AUTO 00000KT 10SM OVC033 M14/M15 A3050 RMK AO2 T11381152 K1S5 160655Z AUTO 19003KT 10SM BKN090 OVC120 01/01 A3014 RMK AO2 T00100005 K1V4 160654Z AUTO M13/M15 A3047 RMK AO1 SLP341 T11331150 K1V6 160650Z AUTO 04005KT 10SM BKN021 OVC038 M07/M09 A3050 RMK AO2 K1YT 160658Z AUTO 06006KT 10SM FEW080 SCT095 SCT130 BKN190 03/01 A3010 RMK AO2 RAB09E35SHRAB35E47 SLPNO P0001 T00310011 $ K20U 160715Z AUTO 18008KT 10SM CLR M27/M30 A3066 RMK AO2 K21D 160655Z AUTO 34007KT 7SM -SN SCT032 M15/M18 A3056 RMK AO2 K22N 160655Z AUTO 00000KT 10SM OVC017 M03/M07 A3045 RMK AO2 K24A 160550Z AUTO 00000KT 10SM CLR M02/M06 A3034 RMK AO2 T10221062 10018 21027 K24J 160655Z AUTO 00000KT 10SM CLR 01/M00 A3042 RMK A01 K27K 160715Z AUTO 30008KT 3SM SCT008 SCT012 OVC025 M07/M09 A3040 RMK AO1 K28J 160655Z AUTO 00000KT 10SM FEW015 FEW022 SCT031 00/00 A3038 RMK AO2 K2A0 160655Z AUTO 00000KT 10SM OVC014 M04/M04 A3034 RMK A01 K2C8 160715Z AUTO 26008KT 10SM M26/M29 A3083 RMK AO2 K2D5 160655Z AUTO 33012KT 10SM M24/M28 A3079 RMK AO2 PWINO K2DP 160656Z AUTO 35006KT 7/8SM BR VV002 00/00 A3040 RMK AO2 SLPNO T00001001 $ K2F5 160655Z AUTO 05013KT 10SM OVC070 M05/M17 A3062 RMK AO2 K2G4 160655Z AUTO 19004KT 4SM OVC007 M07/M08 A3021 RMK AO1 K2G9 160655Z AUTO 17003KT 10SM OVC028 M06/M11 A3025 RMK AO2 PWINO K2I0 160635Z AUTO 33008KT 4SM -SN BKN025 OVC035 M09/M11 A3053 RMK AO2 T10861110 K2J3 160650Z AUTO 00000KT 10SM CLR M03/M04 A3044 RMK AO2 T10271045 K2J9 160715Z AUTO 00000KT 10SM OVC031 01/M01 A3042 RMK AO2 K2LS 160655Z AUTO 00000KT 10SM FEW037 08/07 A3039 RMK AO2 K2P2 160655Z AUTO 06008G14KT 10SM BKN012 M07/M09 A3037 RMK AO2 T10701093 K2V5 160715Z AUTO 27003KT 10SM CLR M20/M22 A3065 RMK AO2 K2V6 160659Z AUTO 27004KT 10SM CLR M23/M26 A3061 RMK AO2 K2W6 160657Z AUTO 00000KT 4SM OVC005 M02/M02 A3047 RMK AO1 K2WX 160656Z AUTO 15006KT M29/M31 A3057 RMK AO1 SLP454 T12891311 411941289 K33V 160655Z AUTO 13007KT 10SM CLR M21/M25 A3041 RMK AO1 K3AU 160655Z AUTO 34011KT 10SM SCT030 M15/M20 A3074 RMK AO2 K3D2 160655Z AUTO 36009KT 7SM SCT017 BKN023 OVC070 M10/M12 A3035 RMK AO2 T11051116 K3F3 160655Z AUTO 32012G18KT 5SM -DZ BKN009 OVC015 04/03 A3050 RMK AO2 T00410030 K3I2 160655Z AUTO 00000KT 10SM OVC020 00/M03 A3037 RMK AO2 T00001031 K3J7 160655Z AUTO 11003KT 10SM CLR 02/M05 A3039 RMK AO2 K3K3 160655Z AUTO 33003KT 10SM CLR M18/M22 A3068 RMK AO2 K3L4 160655Z AUTO 12003KT 10SM FEW037 SCT043 OVC095 07/07 A3036 RMK A01 K3LF 160655Z AUTO 30010KT 10SM CLR M17/M21 A3055 RMK AO2 T11731213 K3N8 160655Z AUTO 35009KT 10SM OVC008 M25/M28 A3073 RMK AO2 T12481277 K3R7 160655Z AUTO 00000KT 10SM SCT085 07/04 A3035 RMK AO2 T00650042 K3S8 160655Z AUTO 00000KT 3SM BR FEW011 BKN040 OVC065 07/07 A3011 RMK AO2 P0001 K3T5 160715Z AUTO 35012G20KT 10SM DZ OVC010 04/02 A3045 RMK AO2 T00350023 K40B 160616Z AUTO 00000KT M17/M19 A3051 RMK AO1 SLP379 T11661187 11158 21167 58025 60001 K40J 160655Z AUTO 00000KT 10SM CLR 03/00 A3041 RMK AO2 T00330000 K42J 160655Z AUTO 00000KT 10SM CLR 01/00 A3038 RMK AO1 TSNO K46D 160655Z AUTO 31006KT 10SM CLR M26/M29 A3080 RMK AO2 K46U 160620Z AUTO 13010KT 10SM CLR M06/M08 A3043 RMK A01 K49A 160655Z AUTO 14003KT 10SM CLR M03/M06 A3039 RMK AO2 T10321056 K4A6 160655Z AUTO 00000KT 10SM CLR M03/M04 A3036 RMK AO2 K4A9 160655Z AUTO 10SM CLR M03/M05 A3035 RMK AO2 K4BM 160654Z AUTO 36012G19KT 10SM CLR M13/M25 A3026 RMK AO2 LTG DSNT N AND NW K4I3 160655Z AUTO 00000KT 1 3/4SM UP OVC006 M05/M05 A3030 RMK AO2 P0002 K4MR 160658Z AUTO 05011G19KT 10SM OVC042 M05/M14 A3057 RMK AO2 SLP377 T10551142 400551055 $ K4O4 160655Z AUTO 35013G19KT 10SM CLR M06/M16 A3063 RMK AO2 K4S2 160655Z AUTO 05006KT 10SM SCT029 OVC038 04/03 A3015 RMK AO2 K4V0 160655Z AUTO 04007KT 10SM CLR M07/M16 A3046 RMK AO2 T10691159 400451115 K54J 160655Z AUTO 00000KT 10SM CLR 03/00 A3041 RMK AO2 T00301005 K57C 160655Z AUTO 33005KT 10SM SCT044 BKN075 OVC100 M09/M10 A3030 RMK AO2 T10901100 K5A6 160655Z AUTO 35007KT 10SM SCT017 OVC050 02/M01 A3042 RMK AO2 T00181007 K5C1 160655Z AUTO 02015G25KT 5SM OVC013 02/01 A3045 RMK AO1 P0003 K5H4 160655Z AUTO 25005KT 10SM CLR M29/M32 A3081 RMK AO2 K5M9 160655Z AUTO 33008KT 10SM OVC060 M12/M17 A3054 RMK AO2 T11171168 K5R8 160655Z AUTO 00000KT 10SM SCT055 BKN080 OVC110 07/06 A3035 RMK AO2 T00720061 K5SM 160653Z AUTO 01003KT 10SM CLR M11/M13 A3035 RMK AO2 K5T9 160655Z AUTO 34013G21KT 10SM BKN030 OVC048 11/01 A3036 RMK A01 K65S 160650Z AUTO 00000KT 10SM FEW034 M01/M03 A3024 RMK AO2 K66R 160655Z AUTO 35013G22KT 7SM -RA OVC007 06/05 A3041 RMK AO2 P0006 T00600050 K6A1 160655Z AUTO 16004KT 10SM 02/M04 A3041 RMK AO2 T00231042 K6A2 160655Z AUTO 00000KT 10SM CLR 00/M03 A3040 RMK AO2 K6B0 160655Z AUTO 00000KT 10SM BKN042 OVC070 M13/M16 A3046 RMK AO2 T11321157 K6B9 160655Z AUTO 20007G14KT 160V230 3SM BR FEW021 BKN027 OVC032 M05/M07 A3031 RMK AO2 K6I2 160650Z AUTO 30006KT 2SM -SN OVC001 M08/M10 A3044 RMK AO2 K6L4 160655Z AUTO 00000KT 10SM FEW070 BKN100 BKN120 01/M06 A3030 RMK AO2 K6P9 160655Z AUTO 36015G23KT 10SM OVC055 M04/M14 A3064 RMK AO2 T10431137 K6R3 160655Z AUTO 01005KT 10SM -RA OVC022 10/09 A3039 RMK AO2 P0002 T01010085 K6R6 160653Z AUTO 02016G26KT 05/M06 A3048 RMK AO1 PK WND 01032/0603 SLP313 T00501061 K6S0 160655Z AUTO 26005KT 10SM OVC003 M08/M09 A3042 RMK A01 K6S2 160655Z AUTO 15005KT 10SM SCT050 A3003 RMK AO2 K74V 160715Z AUTO 00000KT 10SM OVC050 00/M10 A3048 RMK AO2 K79J 160656Z AUTO 00000KT 10SM CLR 01/M01 A3039 RMK AO2 SLP291 T00111011 $ K7L2 160655Z AUTO 28004KT 10SM M29/M34 A3083 RMK AO2 K7N0 160656Z AUTO 00000KT 10SM CLR 09/06 A3038 RMK AO2 SLP288 T00940061 K7W4 160655Z AUTO 00000KT 1/4SM OVC002 M05/M06 A3045 RMK AO1 T10551061 K7W6 160655Z AUTO 32006KT 3/4SM BR OVC003 M01/M01 A3040 RMK AO2 T10091010 K82C 160655Z AUTO 30007KT 7SM -SN BKN019 BKN024 M13/M15 A3040 RMK AO2 T11291149 K8A0 160655Z AUTO 18004KT 10SM CLR 02/M03 A3034 RMK AO2 K8A3 160655Z AUTO 00000KT 10SM OVC008 M02/M03 A3035 RMK A01 K8B0 160655Z AUTO 09003KT 10SM -SN OVC019 M14/M16 A3040 RMK AO2 K8D3 160656Z AUTO 33017KT M22/M25 A3076 RMK AO1 SLP478 T12221250 PNO $ K8W2 160655Z AUTO 00000KT 10SM CLR M06/M10 A3037 RMK AO1 T10601099 K96D 160715Z AUTO 24005KT 10SM CLR M25/M29 A3082 RMK AO2 K9A5 160655Z AUTO 00000KT 10SM CLR M04/M05 A3038 RMK AO2 T10411050 K9D7 160655Z AUTO 29006KT 10SM CLR M30/M33 A3080 RMK AO2 K9L2 160658Z AUTO 00000KT 10SM CLR M A3015 RMK AO2 SLPNO FZRANO $ K9MN 160655Z AUTO 30011G18KT 10SM SCT018 BKN027 OVC039 M16/M19 A3050 RMK AO1 T11631190 K9V9 160655Z AUTO 32013KT 10SM BKN021 M20/M24 A3079 RMK AO2 T12001242 KA08 160655Z AUTO 00000KT 10SM CLR M01/M02 A3038 RMK AO2 T10151016 KA39 160655Z AUTO 11004KT 10SM CLR 08/02 A3014 RMK AO2 KAAA 160655Z AUTO 27006KT 10SM CLR M18/M21 A3053 RMK AO2 T11771211 KAAF 160653Z AUTO 05005KT 10SM CLR 03/01 A3039 RMK AO2 SLP289 T00330011 KAAO 160707Z AUTO 34012KT 10SM BKN029 M16/M19 A3073 RMK AO2 T11561189 KAAT 160655Z AUTO 00000KT 6SM HZ BKN120 05/M01 A3011 RMK AO2 SLP192 T00501006 KABE 160651Z AUTO 09004KT 10SM OVC015 M03/M08 A3046 RMK AO2 SLP322 T10281083 $ KABH 160656Z AUTO 33004KT RMK AO2 SLPNO $ KABI 160652Z 01020G30KT 10SM OVC055 M05/M18 A3064 RMK AO2 PK WND 01031/0611 SLP377 T10501178 KABQ 160652Z 09024G32KT 10SM FEW030 FEW180 SCT250 M03/M08 A3039 RMK AO2 PK WND 08035/0641 SLP295 MTN TOPS OBSC E-SE T10331083 401221033 KABR 160653Z AUTO 34009KT 10SM OVC013 M22/M26 A3081 RMK AO2 SLP475 T12221261 KABY 160653Z AUTO 34003KT 9SM CLR 00/M02 A3043 RMK AO2 SLP306 T00001017 KACB 160655Z AUTO 31003KT 10SM CLR M09/M10 A3035 RMK AO2 T10951103 KACJ 160655Z AUTO 04003KT 10SM CLR 00/M05 A3043 RMK AO2 KACK 160709Z AUTO 35013KT 6SM BR BKN010 BKN017 OVC023 M01/M01 A3045 RMK AO2 SNE0659 P0000 T10061006 TSNO KACP 160655Z AUTO 00000KT 10SM OVC075 04/03 A3037 RMK AO2 T00380030 KACQ 160655Z AUTO 31011KT 7SM OVC015 M19/M22 A3058 RMK AO2 KACT 160651Z AUTO 35021G28KT 9SM UP SCT021 OVC049 M01/M03 A3060 RMK AO2 PK WND 36032/0633 UPB03E06B23E33B49SNB06E23B33E49 SLP362 P0000 T10111033 KACV 160653Z AUTO 09004KT 8SM -RA FEW028 OVC044 13/11 A3012 RMK AO2 SLP206 P0003 T01280111 KACY 160654Z 29005KT 10SM FEW016 BKN034 M04/M05 A3046 RMK AO2 SLP316 T10391050 KADC 160655Z AUTO 29004KT 10SM -SN OVC011 M23/M26 A3065 RMK AO2 KADF 160712Z AUTO 35011KT 2SM -SN BR FEW009 OVC020 M03/M04 A3059 RMK AO2 P0000 FZRANO KADG 160703Z AUTO 27007KT 9SM OVC016 M11/M13 A3031 RMK AO2 T11061133 TSNO KADH 160655Z AUTO 36014G21KT 10SM CLR M08/M15 A3070 RMK AO2 KADM 160655Z AUTO 01014G19KT 10SM SCT120 M07/M13 A3071 RMK AO2 T10671135 KADS 160655Z AUTO 36017G24KT 10SM SCT060 OVC070 M03/M10 A3068 RMK AO2 T10351098 KADU 160655Z AUTO 32012G15KT 10SM CLR M21/M25 A3062 RMK AO2 KADW 160656Z AUTO 00000KT 5SM BR OVC004 M03/M04 A3044 RMK AO2 CIG 003 RWY19L SLP319 T10261036 KAEG 160447Z 33003KT 10SM SKC M03/M07 A3035 KAEJ 160655Z AUTO 14004KT 10SM OVC013 M09/M12 A3036 RMK AO2 T10921125 KAEL 160655Z AUTO 32010G14KT 5SM HZ SCT009 BKN026 OVC055 M22/M25 A3053 RMK AO2 KAEX 160653Z 33005KT 10SM OVC065 07/03 A3037 RMK AO2 SLP290 T00720033 KAFF 160658Z AUTO 00000KT 8SM BLSN OVC002 M11/M14 A3043 RMK AO2 SLP391 P0000 T11151138 400201139 KAFJ 160705Z AUTO 24006KT 9SM -SN FEW012 OVC041 M03/M04 A3033 RMK AO2 P0000 FZRANO KAFK 160655Z AUTO 34008KT 10SM SCT023 M19/M23 A3068 RMK AO2 T11931226 KAFN 160652Z AUTO 00000KT 10SM OVC024 M08/M16 A3043 RMK AO2 SLP329 T10781156 KAFO 160655Z AUTO 20004KT 1/2SM FZFG OVC003 M16/M18 A3041 RMK AO2 KAFP 160655Z AUTO 00000KT 10SM CLR M06/M09 A3046 RMK AO2 T10651087 KAFW 160653Z 01017G24KT 10SM OVC070 M04/M15 A3067 RMK AO2 PK WND 36029/0612 SLP394 T10391150 KAGC 160653Z 24007KT 4SM -SN BR OVC042 M03/M06 A3029 RMK AO2 SLP281 P0000 T10331056 KAGS 160653Z AUTO 00000KT 10SM CLR M04/M05 A3045 RMK AO2 SLP312 T10391050 KAHN 160651Z AUTO 00000KT 10SM CLR M02/M06 A3041 RMK AO2 SLP307 T10221061 KAHQ 160655Z AUTO 10SM OVC024 M18/M22 A3070 RMK AO2 T11801225 KAIA 160653Z AUTO 23005KT 10SM CLR M27/M29 A3062 RMK AO2 SLP478 T12721289 410891278 $ KAIB 160655Z AUTO 00000KT 10SM CLR 00/M07 A3037 RMK AO2 KAIG 160655Z AUTO 01006KT 10SM OVC010 M13/M14 A3036 RMK AO2 T11261138 KAIK 160715Z AUTO 00000KT 10SM CLR M04/M06 A3046 RMK AO2 KAIO 160715Z AUTO 33012KT 10SM FEW012 SCT031 BKN038 M21/M24 A3065 RMK AO2 KAIT 160655Z AUTO 34004KT 10SM OVC012 M18/M21 A3061 RMK AO2 KAIZ 160656Z AUTO VRB06KT 10SM OVC027 M17/M21 A3065 RMK AO2 SNB07E21 SLP400 P0000 T11671211 FZRANO KAJG 160655Z AUTO 31010KT 10SM CLR M14/M19 A3055 RMK AO2 T11401191 KAJO 160656Z AUTO 00000KT 10SM CLR 11/07 A3014 RMK AO2 SLP216 T01110072 KAJR 160655Z AUTO 05003KT 10SM CLR M02/M06 A3040 RMK AO2 T10191060 KAJZ 160655Z AUTO 00000KT 10SM CLR M02/M07 A3038 RMK AO2 T10241074 KAKH 160654Z AUTO 00000KT 10SM CLR M04/M08 A3043 RMK AO2 SLP312 T10391083 KAKO 160653Z AUTO 27007KT 10SM CLR M20/M22 A3056 RMK AO2 SLP439 T12001222 400001206 KAKQ 160654Z AUTO 01003KT 2SM BR OVC002 M01/M02 A3045 RMK AO2 SLP314 T10111017 KAKR 160654Z AUTO 27006KT 10SM SCT016 BKN110 M04/M08 A3029 RMK AO2 SLP271 T10391078 $ KALB 160651Z 00000KT 10SM OVC024 M09/M15 A3050 RMK AO2 SLP332 T10941150 KALI 160653Z AUTO 03005KT 10SM FEW043 OVC080 14/11 A3029 RMK AO2 SLP254 T01390106 KALM 160655Z AUTO 01005KT 10SM CLR 01/M06 A3039 RMK AO2 KALN 160655Z AUTO 29009KT 10SM CLR M16/M20 A3059 RMK AO2 T11601197 KALO 160654Z AUTO 30010KT 10SM CLR M21/M24 A3053 RMK AO2 SLP364 T12111244 KALS 160652Z AUTO 11004KT 10SM CLR M12/M14 A3030 RMK AO2 SLP291 T11171139 400781167 KALW 160702Z AUTO 23005KT 1SM R20/3500VP6000FT BR VV002 03/02 A3016 RMK AO2 T00280022 KALX 160655Z AUTO 00000KT 10SM CLR M02/M02 A3039 RMK AO2 T10251025 KAMA 160653Z AUTO 01013KT 10SM OVC080 M09/M19 A3062 RMK AO2 SLP400 T10891189 KAMG 160653Z AUTO 00000KT 10SM CLR M01/M02 A3042 RMK AO2 SLP300 T10111022 KAMN 160658Z AUTO 35004KT 7SM -SN OVC047 M14/M15 A3029 RMK AO2 T11421150 KAMW 160653Z AUTO 32013KT 10SM SCT014 M22/M25 A3060 RMK AO2 SLP387 T12171250 KANB 160653Z AUTO 07003KT 10SM CLR M02/M04 A3039 RMK AO2 SLP302 T10221039 KAND 160656Z AUTO 00000KT 10SM CLR M04/M07 A3043 RMK AO2 SLP311 T10441067 KANE 160655Z AUTO 31006KT 10SM CLR M17/M20 A3058 RMK AO2 KANJ 160655Z AUTO 05003KT 10SM SCT055 M11/M14 A3039 RMK AO2 SLP304 T11061144 KANK 160715Z AUTO 00000KT 10SM OVC019 M08/M11 A3045 RMK AO1 T10761114 KANW 160655Z AUTO 32013KT 10SM CLR M21/M24 A3071 RMK AO2 T12061241 KAOH 160653Z AUTO 26013KT 10SM BKN019 M14/M17 A3035 RMK AO2 SLP297 T11391167 KAOO 160653Z AUTO 18007KT 10SM OVC040 M04/M09 A3032 RMK AO2 SLP292 T10441089 KAPA 160653Z 18004KT 10SM FEW018 M16/M19 A3047 RMK AO2 SLP416 T11561189 410111156 $ KAPC 160702Z AUTO 00000KT 6SM BR OVC013 12/09 A3016 RMK AO2 T01170094 KAPF 160653Z AUTO 04005KT 10SM CLR 13/09 A3027 RMK AO2 SLP249 T01280094 $ KAPG 160658Z AUTO 00000KT 10SM OVC010 M A3048 RMK AO2 SLPNO $ KAPN 160654Z AUTO 04011KT 1 1/2SM -SN BR SCT015 BKN021 OVC026 M07/M09 A3032 RMK AO2 SLP280 P0001 T10721089 $ KAPS 160655Z AUTO 00000KT 10SM CLR 04/03 A3037 RMK AO2 T00390029 KAPY 160655Z AUTO 10006KT 10SM CLR 15/10 A3024 RMK AO2 T01500103 KAQO 160655Z AUTO 01011G19KT 040V010 10SM OVC029 01/M08 A3061 RMK AO2 KAQP 160713Z AUTO 32010KT 10SM SCT016 M23/M27 A3074 RMK AO2 KAQR 160655Z AUTO 36014G20KT 10SM BKN120 M07/M16 A3071 RMK AO2 KAQV 160656Z AUTO VRB03KT 10SM OVC055 08/04 A3037 RMK AO2 SLP284 T00830044 $ KAQW 160652Z AUTO 11005KT 10SM OVC075 M08/M12 A3044 RMK AO2 SLP322 T10781117 KAQX 160655Z AUTO 00000KT 10SM CLR M03/M04 A3043 RMK AO2 KARA 160653Z AUTO 15004KT 10SM CLR 04/01 A3035 RMK AO2 SLP277 T00390011 KARB 160653Z AUTO 21005KT 6SM BR OVC007 M08/M08 A3027 RMK AO2 CIG 006V011 SLP265 T10781083 KARG 160656Z AUTO 34015KT 10SM OVC065 M08/M15 A3062 RMK AO2 SLP375 T10831150 FZRANO KARM 160655Z AUTO 05004KT 10SM OVC100 12/09 A3031 RMK AO2 T01170089 KARR 160652Z AUTO 26013KT 7SM OVC006 M17/M19 A3037 RMK AO2 SLP299 T11671189 KART 160708Z AUTO 01005KT 1 3/4SM -SN FEW023 OVC029 M07/M14 A3037 RMK AO2 P0000 T10721139 TSNO KARV 160655Z AUTO 36005KT 10SM CLR M12/M14 A3038 RMK AO2 T11211137 KARW 160655Z AUTO 01004KT 7SM CLR 01/M03 A3043 RMK AO2 KASD 160653Z AUTO 02004KT 10SM CLR 02/00 A3038 RMK AO2 SLP286 T00170000 KASE 160653Z AUTO 19003KT 10SM CLR M11/M13 A3034 RMK AO2 SLP281 T11061133 400391117 KASG 160248Z 33011KT 10SM OVC100 M10/M16 A3061 KASH 160656Z AUTO 34004KT 10SM OVC028 M07/M14 A3052 RMK AO2 SLP347 T10721139 KASJ 160700Z AUTO 36003KT 3/4SM BR OVC002 M03/M03 A3045 RMK AO2 T10351035 KASL 160655Z AUTO 35009G17KT 3SM OVC007 M01/M02 A3055 RMK AO1 P0001 T10101021 KASN 160655Z AUTO 00000KT 10SM CLR M02/M03 A3040 RMK AO2 T10251035 KAST 160655Z AUTO 19009KT 10SM OVC027 12/08 A2997 RMK AO2 SLP147 T01170083 KASW 160655Z AUTO 24007KT 10SM CLR M16/M18 A3036 RMK AO2 KASX 160653Z AUTO 36013KT 1 1/2SM -SN BR BKN020 OVC027 M07/M09 A3051 RMK AO2 SNB14 SLP351 P0000 T10721094 $ KATL 160652Z 00000KT 10SM FEW250 02/M04 A3039 RMK AO2 SLP297 T00171044 $ KATP 160655Z AUTO 08008KT 10SM BKN021 BKN027 BKN037 18/09 A3033 RMK A01 KATS 160655Z AUTO 04008KT 10SM OVC050 M01/M12 A3061 RMK AO2 KATT 160651Z AUTO 36016G24KT 6SM -RA BR BKN014 BKN021 OVC030 02/01 A3053 RMK AO2 SLP341 P0004 T00220006 $ KATW 160655Z AUTO 34008KT 10SM BKN050 BKN070 BKN090 M10/M13 A3033 RMK AO2 KATY 160653Z AUTO 34012KT 9SM OVC010 M22/M24 A3067 RMK AO2 SLP442 T12221244 KAUG 160653Z AUTO 02013KT 10SM OVC029 M11/M14 A3052 RMK AO2 SLP341 T11061139 KAUH 160655Z AUTO 32013KT 10SM SCT024 M18/M23 A3069 RMK AO2 T11851228 KAUM 160707Z AUTO 32013KT 10SM -SN BKN017 OVC037 M20/M23 A3050 RMK AO2 KAUN 160655Z AUTO 00000KT 10SM SCT080 11/06 A3015 RMK AO1 KAUO 160656Z AUTO 12003KT 10SM CLR 04/M03 A3040 RMK AO2 SLP323 T00391033 KAUS 160712Z 01022G28KT 5SM -RA BR BKN014 OVC021 03/03 A3052 RMK AO2 PK WND 02028/0709 P0001 T00280028 KAUW 160654Z AUTO 32004KT 10SM FEW049 M13/M14 A3037 RMK AO2 SLP316 I1000 T11331144 KAVC 160655Z AUTO 00000KT 10SM CLR M05/M07 A3049 RMK AO2 T10531068 KAVK 160655Z AUTO 32008KT 10SM SCT015 SCT035 SCT044 M14/M20 A3079 RMK AO2 KAVL 160654Z AUTO 00000KT 10SM CLR M04/M07 A3036 RMK AO2 SLP295 T10441072 KAVP 160654Z 00000KT 9SM OVC016 M04/M07 A3038 RMK AO2 SLP300 T10391072 KAVQ 160655Z AUTO 11005KT 10SM CLR 09/00 A3013 RMK AO2 T00890004 KAVX 160651Z AUTO 26004KT 10SM CLR 17/02 A3014 RMK AO2 SLP188 T01670017 $ KAWG 160655Z AUTO 29014KT 10SM -SN SCT025 OVC035 M20/M23 A3057 RMK AO2 KAWM 160653Z AUTO 36012KT 1 1/2SM -SN BR SCT012 OVC024 M06/M07 A3056 RMK AO2 SLP353 P0000 T10611067 TSNO $ KAWO 160656Z AUTO 16007KT 10SM -RA OVC070 09/07 A2998 RMK AO2 SLP157 P0003 T00890072 KAXA 160655Z AUTO 34016KT 7SM BKN006 OVC014 M22/ A3058 RMK AO2 PWINO KAXH 160655Z AUTO 00000KT 10SM SCT060 BKN075 OVC100 12/10 A3032 RMK AO2 T01150095 KAXN 160653Z AUTO 32009KT 10SM OVC010 M23/M26 A3064 RMK AO2 SLP425 T12331261 KAXS 160655Z AUTO 36018G23KT 10SM CLR M07/M18 A3075 RMK AO2 T10691180 KAXV 160655Z AUTO 25008KT 7SM BKN020 M13/M15 A3038 RMK AO2 KAXX 160655Z AUTO 21010KT 10SM OVC017 M10/M13 A3034 RMK AO2 T11001132 KAYS 160655Z AUTO 00000KT 10SM CLR 00/M02 A3042 RMK AO2 T10031017 KAZC 160655Z AUTO 17003KT 10SM CLR 00/M01 A3026 RMK AO2 KAZE 160655Z AUTO 00000KT 10SM CLR 01/M02 A3041 RMK AO2 T00121021 KAZO 160653Z AUTO 22008KT 8SM BKN015 M12/M15 A3029 RMK AO2 SLP275 T11221150 KBAB 160713Z AUTO 00000KT 1/2SM R15/1200FT FG OVC002 10/09 A3013 RMK AO2 SLP206 KBAC 160655Z AUTO 32013KT 10SM CLR M26/M29 A3080 RMK AO2 KBAD 160656Z 36014G20KT 10SM -RAPL OVC007 01/01 A3049 RMK AO2A RAE25RAPLB25 OVC V BKN SLP328 P0002 T00090005 CHINO RWY15 $ KBAF 160653Z AUTO 36005KT 10SM OVC030 M07/M14 A3049 RMK AO2 SLP336 T10671139 KBAK 160245Z 30008KT 10SM SKC M11/M15 A3043 RMK LAST KBAM 160655Z AUTO 09006KT 7SM CLR M01/M02 A3018 RMK AO1 KBAX 160655Z AUTO 00000KT 7SM -SN BKN024 BKN028 OVC034 M12/M14 A3028 RMK AO2 T11241136 KBAZ 160704Z AUTO 01021G31KT 10SM -RA SCT013 BKN018 OVC024 03/02 A3046 RMK AO2 PK WND 01031/0657 P0000 T00330017 $ KBBB 160659Z AUTO 35012KT 10SM BKN014 M24/M27 A3071 RMK AO2 KBBF 160655Z AUTO 16019KT 10SM OVC085 19/11 A3027 RMK A01 KBBG 160655Z AUTO 31011G23KT 10SM OVC027 M15/M19 A3062 RMK AO2 KBBP 160655Z AUTO 00000KT 10SM CLR M03/M05 A3046 RMK AO2 KBBW 160653Z AUTO 34017KT 10SM CLR M19/M24 A3067 RMK AO2 SLP456 T11941244 KBCB 160655Z AUTO 00000KT 10SM CLR M05/M10 A3037 RMK AO2 T10471101 KBCE 160653Z AUTO 22004KT 10SM CLR M06/M07 A3033 RMK AO2 SLP238 T10561067 401001067 KBCK 160655Z AUTO 31005KT 4SM -SN SCT021 SCT038 OVC049 M12/M15 A3045 RMK AO2 T11201150 KBCT 160347Z 08017G23KT 10SM BKN038 20/13 A3028 RMK LAST KBDE 160653Z AUTO 30005KT 10SM OVC009 M24/M27 A3071 RMK AO2 SLP440 T12441267 $ KBDG 160655Z AUTO 08004KT 10SM M02/M07 A3034 RMK AO1 T10161067 401001055 KBDH 160655Z AUTO 31014KT 10SM OVC013 M24/M27 A3068 RMK AO2 KBDL 160651Z 35004KT 10SM SCT031 M07/M13 A3049 RMK AO2 SLP329 T10671128 KBDN 160715Z AUTO 00000KT 1/4SM FG OVC001 01/00 A3006 RMK AO2 KBDR 160652Z AUTO 33005KT 10SM BKN015 M07/M12 A3050 RMK AO2 SLP329 T10671117 $ KBDU 160654Z AUTO 00000KT 10SM CLR M13/M19 A3051 RMK AO2 KBEA 160655Z AUTO 06003KT 10SM BKN085 12/12 A3029 RMK AO2 T01220115 KBEC 160655Z AUTO 36008KT 10SM BKN029 M15/M19 A3073 RMK AO2 T11481195 KBED 160656Z AUTO 35004KT 10SM OVC030 M07/M14 A3050 RMK AO2 SLP345 T10671144 KBEH 160705Z AUTO 18008KT 1 1/4SM -SN OVC016 M12/M16 A3031 RMK AO2 P0000 T11221156 KBFD 160653Z AUTO 16006KT 1 3/4SM -SN BR OVC022 M08/M09 A3021 RMK AO2 SLP265 P0001 T10781094 KBFF 160653Z AUTO 00000KT 10SM CLR M19/M22 A3062 RMK AO2 SLP455 T11941222 410221211 KBFI 160653Z 26003KT 10SM -RA OVC060 11/08 A2998 RMK AO2 SLP152 P0001 T01060083 KBFL 160654Z AUTO 29004KT 3SM HZ CLR 12/09 A3013 RMK AO2 SLP202 T01220094 KBFM 160653Z AUTO 32003KT 10SM CLR 03/03 A3039 RMK AO2 SLP291 T00330028 KBFW 160712Z AUTO 34005KT 10SM CLR M14/M17 A3052 RMK AO2 KBGD 160651Z AUTO 04004KT 10SM CLR M10/M19 A3068 RMK AO2 SLP424 T11001189 KBGE 160655Z AUTO 00000KT 03/02 A3041 RMK AO2 KBGF 160655Z AUTO 00000KT M02/M04 A3038 RMK KBGM 160453Z AUTO 17006KT 8SM BKN023 OVC047 M07/M09 A3032 RMK AO2 SNB0358E51 SLP299 P0001 T10721094 410721194 $ KBGR 160653Z 02012KT 9SM -SN OVC028 M11/M14 A3053 RMK AO2 SLP345 P0000 T11061139 KBHB 160656Z AUTO 36010KT 9SM -SN OVC018 M10/M13 A3051 RMK AO2 SNB17 SLP335 T11001128 FZRANO PNO $ KBHC 160655Z AUTO 00000KT 10SM CLR M01/M01 A3041 RMK AO2 KBHK 160651Z AUTO 14007KT 10SM CLR M27/M29 A3064 RMK AO2 SLP471 T12671294 412171328 KBHM 160653Z 00000KT 10SM CLR M01/M04 A3039 RMK AO2 SLP292 T10061039 KBID 160656Z AUTO 03011G15KT 10SM OVC030 M03/M05 A3048 RMK AO2 SLP327 T10281050 FZRANO KBIE 160655Z AUTO 33012KT 10SM SCT028 M18/M22 A3071 RMK AO2 T11811220 KBIF 160658Z AUTO 04015KT 10SM CLR 01/M05 A3040 RMK AO2 SLP283 T00111053 401581029 $ KBIH 160656Z AUTO VRB03KT 10SM CLR 03/M02 A3020 RMK AO2 SLP212 T00331022 KBIL 160653Z 21006KT 10SM CLR M19/M21 A3047 RMK AO2 SLP406 T11891206 410941189 KBIS 160652Z 25003KT 10SM CLR M28/M31 A3083 RMK AO2 SLP501 T12781311 $ KBIV 160704Z AUTO 19008KT 1 1/2SM -SN BR OVC012 M07/M08 A3027 RMK AO2 P0000 T10671083 KBIX 160656Z AUTO 00000KT 10SM CLR 06/05 A3037 RMK AO2 SLP287 T00550046 $ KBJC 160650Z AUTO 14003KT 10SM CLR M13/M20 A3049 RMK AO2 KBJI 160655Z AUTO 32006KT 10SM OVC009 M22/M24 A3067 RMK AO2 T12161237 KBJJ 160656Z AUTO 00000KT 8SM FEW040 M08/M09 A3029 RMK AO2 SLP277 T10781094 KBKB 160654Z AUTO 00000KT 10SM OVC060 08/05 A3035 RMK AO2 SLP306 T00830050 $ KBKE 160653Z AUTO 09009KT 10SM CLR 06/M01 A3019 RMK AO2 SLP232 T00611011 KBKF 160658Z 13007KT 10SM CLR M16/M20 A3049 RMK AO2A SLP409 T11641200 410161168 KBKL 160653Z 23008KT 10SM OVC050 M05/M08 A3031 RMK AO2 SLP273 T10501083 KBKN 160655Z AUTO 32011KT 10SM CLR M13/M19 A3082 RMK AO2 KBKS 160655Z AUTO 09003KT 10SM SCT055 BKN070 16/12 A3027 RMK AO1 T01590115 KBKT 160655Z AUTO 00000KT 10SM CLR M06/M07 A3043 RMK AO1 T10581066 KBKV 160653Z AUTO 03004KT 10SM FEW065 06/02 A3036 RMK AO2 SLP281 T00560022 KBKW 160651Z AUTO 17003KT 10SM FEW046 FEW085 M01/M07 A3027 RMK AO2 SLP280 T10061067 TSNO KBKX 160656Z AUTO 34013KT 9SM OVC013 M21/M24 A3066 RMK AO2 SLP449 T12111239 FZRANO KBLF 160652Z AUTO 23008KT 10SM CLR M02/M07 A3028 RMK AO2 SLP275 T10171067 KBLH 160652Z AUTO 34004KT 10SM CLR 14/03 A3008 RMK AO2 SLP184 T01390033 KBLI 160653Z AUTO 00000KT 10SM FEW055 OVC075 08/04 A2992 RMK AO2 RAE41 SLP141 P0000 T00780044 KBLM 160656Z AUTO 00000KT 10SM OVC017 M02/M04 A3047 RMK AO2 SLP323 T10221039 FZRANO KBLU 160652Z AUTO 15007KT 10SM CLR 08/M03 A3021 RMK AO2 SLP189 T00831028 KBLV 160656Z AUTO 30007KT 10SM FEW016 M15/M20 A3058 RMK AO2 SLP368 T11491202 VISNO RWY14L CHINO RWY14L $ KBMC 160655Z AUTO 00000KT 10SM CLR 03/M04 A3033 RMK AO1 T00251038 KBMG 160653Z AUTO 29010KT 10SM CLR M16/M20 A3046 RMK AO2 SLP330 T11561200 KBMI 160656Z AUTO 25010KT 10SM CLR M19/M22 A3046 RMK AO2 SLP346 T11941222 KBML 160652Z AUTO 00000KT 10SM CLR M16/M18 A3045 RMK AO2 SLP340 T11611183 KBMQ 160653Z AUTO 01017G28KT 10SM OVC019 M01/M04 A3055 RMK AO2 PK WND 01030/0639 RAB25E39UPB39E40 SLP345 P0000 T10111044 KBMT 160655Z AUTO 00000KT 10SM OVC060 11/09 A3034 RMK AO2 T01080090 KBNA 160653Z 34009KT 10SM FEW017 OVC023 M04/M09 A3045 RMK AO2 SNE29 SLP316 P0000 T10441089 KBNL 160655Z AUTO 00000KT 10SM M03/M05 A3044 RMK AO2 KBNO 160653Z AUTO 00000KT 10SM FEW120 M01/M01 A3015 RMK AO2 SLP221 T10061011 KBNW 160655Z AUTO 31013G19KT 10SM OVC007 M22/M26 A3058 RMK AO2 KBOI 160653Z 16008KT 10SM CLR 03/M02 A3021 RMK AO2 SLP241 T00331017 400831011 KBOK 160656Z AUTO 12003KT 10SM OVC018 10/09 A3012 RMK AO2 SLP214 T01000094 KBOS 160654Z 35007KT 10SM BKN012 OVC027 M06/M11 A3051 RMK AO2 SLP330 T10611111 KBOW 160655Z AUTO 02007KT 10SM BKN065 08/06 A3034 RMK AO2 KBPC 160655Z AUTO 00000KT 10SM CLR M12/M18 A3070 RMK AO2 KBPG 160655Z AUTO 02013G19KT 10SM OVC048 M03/M19 A3064 RMK AO2 T10351192 KBPI 160653Z AUTO 20003KT 10SM OVC022 M04/M08 A3043 RMK AO2 SLP324 T10391083 410171083 KBPK 160653Z AUTO 35009G17KT 10SM FEW028 M12/M17 A3060 RMK AO2 SLP376 T11221172 KBPT 160653Z AUTO 11005KT 10SM OVC100 11/09 A3032 RMK AO2 SLP266 T01110094 KBQK 160655Z AUTO 00000KT 1 1/2SM BR VV007 00/M01 A3042 RMK AO2 KBQP 160655Z AUTO 36005KT 10SM OVC014 03/00 A3046 RMK AO2 T00320002 KBQX 160655Z AUTO 16015KT 9SM OVC041 18/12 A3029 RMK A01 KBRD 160653Z AUTO 36010KT 10SM OVC011 M18/M21 A3063 RMK AO2 SLP412 T11831211 KBRL 160653Z AUTO 29009KT 10SM BKN035 M19/M24 A3054 RMK AO2 SLP359 T11941244 $ KBRO 160653Z AUTO 11007KT 10SM OVC070 18/13 A3025 RMK AO2 SLP242 T01830133 KBRY 160715Z AUTO 34003KT 3SM OVC004 M09/M11 A3046 RMK AO1 KBTA 160655Z AUTO 33011G17KT 10SM CLR M19/M23 A3067 RMK AO2 T11901230 KBTL 160707Z AUTO 23010KT 8SM SCT013 OVC047 M12/M14 A3029 RMK AO2 T11171144 $ KBTM 160712Z AUTO 02006KT 10SM FEW012 M08/M11 A3032 RMK AO2 T10781106 KBTP 160656Z AUTO 17003KT 2 1/2SM -SN BR SCT012 BKN023 OVC028 M05/M06 A3029 RMK AO2 VIS 2V3 SLP282 P0001 T10501061 FZRANO KBTR 160653Z AUTO 12004KT 10SM CLR 05/03 A3035 RMK AO2 SLP275 T00500033 TSNO KBTV 160654Z 00000KT 10SM BKN045 OVC090 M15/M18 A3048 RMK AO2 SLP328 T11501178 KBUF 160654Z 16007KT 5SM -SN BR FEW027 SCT038 OVC047 M06/M08 A3029 RMK AO2 SLP270 P0000 T10561078 KBUR 160653Z 00000KT 10SM CLR 14/08 A3012 RMK AO2 SLP189 T01440078 KBUU 160655Z AUTO 33007KT 10SM CLR M11/M13 A3030 RMK AO2 T11151129 KBUY 160654Z AUTO 00000KT 10SM CLR M06/M09 A3042 RMK AO2 SLP307 T10561089 KBVE 160651Z AUTO 36003KT 8SM CLR 09/08 A3037 RMK AO2 SLP284 T00940083 $ KBVN 160655Z AUTO 33018G23KT 10SM OVC020 M18/M22 A3068 RMK AO2 T11811221 KBVO 160653Z AUTO 33005KT 10SM CLR M14/M19 A3078 RMK AO2 SLP433 T11391189 KBVS 160655Z AUTO 14004KT 10SM FEW044 SCT055 OVC070 11/06 A2994 RMK A01 KBVU 160655Z AUTO 30003KT 10SM FEW043 FEW120 13/04 A3015 RMK AO2 KBVX 160656Z AUTO VRB06KT 10SM OVC060 M08/M16 A3061 RMK AO2 SNE0559 SLP370 P0000 T10831161 FZRANO KBVY 160653Z AUTO 34007KT 10SM OVC011 M07/M11 A3051 RMK AO2 SLP329 T10671106 $ KBWD 160655Z AUTO 35017KT 10SM OVC046 M03/M10 A3063 RMK AO2 P0001 KBWG 160653Z AUTO 33004KT 1 1/2SM -SN BR OVC013 M07/M09 A3049 RMK AO2 SLP332 P0002 T10721094 FZRANO $ KBWI 160654Z 00000KT 8SM BKN010 OVC017 M02/M04 A3045 RMK AO2 SLP313 T10171039 KBWP 160655Z AUTO 33012G17KT OVC014 M23/M26 A3079 RMK AO1 KBWW 160715Z AUTO 23009KT 10SM CLR M25/M28 A3054 RMK AO2 KBXA 160655Z AUTO 00000KT 10SM CLR 01/00 A3038 RMK AO2 T00091002 KBXK 160655Z AUTO 05005KT 10SM OVC120 11/03 A3008 RMK AO1 KBYG 160653Z AUTO 18004KT 10SM CLR M14/M20 A3045 RMK AO2 SLP398 T11391200 410781178 KBYI 160653Z AUTO 05008G20KT 10SM CLR 01/M03 A3026 RMK AO2 SLP255 T00111033 400781017 KBYL 160655Z AUTO 00000KT 10SM BKN013 OVC055 00/M02 A3035 RMK AO1 KBYS 160655Z AUTO 00000KT 10SM BKN150 10/05 A3016 RMK AO2 SLP214 WND DATA ESTMD T01010045 KBYY 160655Z AUTO 08005KT 10SM OVC095 12/11 A3030 RMK AO2 T01310112 KBZN 160656Z 17003KT 10SM CLR M12/M14 A3040 RMK AO2 SLP354 I1000 T11171139 400061122 KC07 160653Z AUTO 00000KT 10SM CLR M14/M16 A3030 RMK AO2 KC09 160655Z AUTO 27015KT 10SM BKN080 M17/M20 A3039 RMK AO2 T11691199 KC29 160655Z AUTO 29005KT 10SM OVC017 M11/M13 A3037 RMK AO1 T11071129 KC35 160655Z AUTO 30006KT 10SM -SN OVC017 M13/M14 A3039 RMK AO2 T11261145 KC62 160715Z AUTO 27013G18KT 10SM OVC013 M15/M17 A3032 RMK AO2 T11511176 KC65 160655Z AUTO 23007KT 9SM BKN004 BKN045 M17/M18 A3036 RMK A01 KC75 160655Z AUTO 27008KT 7SM -SN SCT023 OVC042 M18/M21 A3048 RMK AO2 T11801215 KC83 160655Z AUTO 00000KT M1/4SM FG OVC002 09/09 A3016 RMK AO2 KCAD 160655Z AUTO 00000KT 7SM -SN BKN011 BKN047 BKN085 M17/M18 A3025 RMK AO2 T11711189 KCAE 160656Z 00000KT 10SM CLR M03/M06 A3045 RMK AO2 SLP312 T10331056 $ KCAG 160653Z AUTO 10004KT 10SM CLR M15/M18 A3046 RMK AO2 SLP395 T11501183 400171150 KCAK 160651Z 27008KT 9SM FEW023 OVC055 M04/M08 A3029 RMK AO2 SNE47 SLP275 P0000 T10391083 $ KCAO 160655Z AUTO 04008KT 10SM OVC028 M12/M17 A3053 RMK AO2 SLP397 T11221172 400561122 KCAR 160654Z AUTO 00000KT 10SM OVC023 M18/M21 A3055 RMK AO2 SLP367 T11781211 KCAV 160655Z AUTO 33016KT 10SM OVC006 M22/M25 A3057 RMK AO2 PWINO KCBE 160657Z AUTO 00000KT 10SM SCT070 A3042 RMK AO1 KCBF 160655Z AUTO 33013G19KT 8SM FEW003 FEW008 FEW013 M20/M22 A3067 RMK AO2 KCBG 160655Z AUTO 31004KT 10SM SCT080 M17/M21 A3059 RMK AO2 KCBK 160655Z AUTO 33012KT 10SM CLR M17/M19 A3066 RMK AO2 KCBM 160656Z AUTO 33007KT 10SM CLR M A3041 RMK AO2 SLPNO ALSTG ESTMD TSNO $ KCCA 160715Z AUTO VRB05G15KT 10SM BKN075 OVC120 M09/M16 A3062 RMK AO2 KCCB 160655Z AUTO 31004KT 10SM CLR 15/03 A3013 RMK AO2 KCCO 160655Z AUTO 00000KT 10SM CLR 00/M04 A3039 RMK AO2 T10051039 KCCR 160707Z AUTO 00000KT 3SM BR OVC022 11/09 A3017 RMK AO2 T01110094 KCCY 160655Z AUTO 32011G19KT -SN BKN007 OVC015 M19/M22 A3051 RMK AO2 KCDA 160655Z AUTO 06004KT 10SM OVC027 M14/M16 A3044 RMK AO2 T11431162 KCDC 160653Z AUTO 02003KT 10SM CLR M02/M03 A3026 RMK AO2 SLP252 T10171028 401001039 KCDD 160707Z AUTO 33006KT 7SM -SN OVC010 M18/M19 A3067 RMK AO2 KCDH 160655Z AUTO 02011G16KT 2SM -SN FEW011 BKN018 OVC023 M02/M04 A3054 RMK AO2 KCDI 160655Z AUTO 00000KT 5SM -SN SCT013 BKN025 OVC060 M03/M04 A3033 RMK AO2 T10311039 KCDJ 160652Z AUTO 31009KT M19/M24 A3068 RMK AO1 SLP423 T11891239 $ KCDN 160655Z AUTO 00000KT 10SM CLR M04/M08 A3046 RMK AO2 KCDR 160653Z AUTO 00000KT 10SM CLR M25/M28 A3070 RMK AO2 SLP497 T12501283 411061250 KCDS 160653Z AUTO 01009KT 10SM CLR M08/M19 A3071 RMK AO2 SLP418 T10781194 KCDW 160653Z AUTO 05003KT 10SM OVC018 M05/M09 A3050 RMK AO2 SLP335 T10501089 TSNO KCEC 160656Z AUTO 15007KT 10SM FEW022 SCT033 12/09 A3012 RMK AO2 SLP200 T01220094 KCEF 160656Z AUTO 04005KT 10SM OVC030 M07/M13 A3048 RMK AO2 SLP332 T10671132 KCEU 160654Z AUTO 00000KT 10SM CLR M01/M07 A3043 RMK AO2 SLP310 T10061067 KCEW 160653Z AUTO 00000KT 9SM CLR M02/M03 A3041 RMK AO2 SLP299 T10171028 $ KCEZ 160653Z AUTO 00000KT 10SM CLR M04/M08 A3027 RMK AO2 SLP248 T10441078 400891089 KCFD 160655Z AUTO 34016G21KT 7SM -RA OVC009 01/01 A3051 RMK AO2 T00110011 KCFE 160655Z AUTO 31009KT 10SM OVC011 M18/M20 A3062 RMK AO2 T11781205 KCFJ 160655Z AUTO 10SM CLR M18/M20 RMK AO2 T11761196 KCFS 160655Z AUTO 00000KT 7SM CLR M13/M14 A3028 RMK AO2 T11331145 KCFV 160652Z AUTO 32011KT 10SM CLR M14/M18 A3075 RMK AO2 SLP429 T11391178 KCGC 160655Z AUTO 08003KT 10SM CLR 04/00 A3037 RMK AO2 KCGE 160655Z AUTO 32005KT 10SM OVC007 M01/M04 A3047 RMK A01 KCGF 160345Z 20007KT 10SM BKN015 OVC025 M02/M04 A3027 KCGI 160653Z AUTO 35010KT 10SM CLR M11/M17 A3058 RMK AO2 SLP361 T11061167 KCGS 160657Z AUTO 00000KT 7SM OVC009 M02/M04 A3046 RMK AO1 T10161039 KCHA 160653Z AUTO 19003KT 10SM CLR M02/M06 A3036 RMK AO2 SLP283 T10221056 $ KCHD 160347Z 00000KT 10SM CLR 15/02 A3007 RMK LAST KCHK 160655Z AUTO 36024G29KT 10SM CLR M09/M18 A3071 RMK AO2 T10881178 KCHO 160653Z AUTO 00000KT 10SM CLR M03/M10 A3042 RMK AO2 SLP305 T10331100 KCHS 160656Z 00000KT 10SM CLR M02/M06 A3044 RMK AO2 SLP308 T10221061 KCIC 160655Z AUTO 00000KT 2 1/2SM SCT002 BKN037 OVC043 09/09 A3015 RMK AO1 P0001 KCID 160652Z AUTO 30014KT 10SM OVC009 M20/M23 A3050 RMK AO2 SLP351 T12001233 KCIN 160655Z AUTO 32016KT 10SM -SN OVC033 M21/M24 A3062 RMK AO2 KCIR 160655Z AUTO 33012KT 10SM SCT080 OVC100 M10/M16 A3059 RMK AO2 T11031164 KCIU 160656Z AUTO 02004KT 9SM -SN SCT035 BKN043 OVC060 M12/M14 A3038 RMK AO2 SLP316 T11221139 FZRANO PNO $ KCJR 160655Z AUTO 00000KT 10SM CLR M04/M07 A3045 RMK AO2 T10451067 KCKB 160653Z 28006KT 4SM -SN OVC044 01/M05 A3032 RMK AO2 SNB45 SLP272 P0000 T00061050 KCKC 160655Z AUTO 34011G15KT 7SM -SN BKN005 M16/M18 A3047 RMK AO2 KCKF 160655Z AUTO 00000KT 10SM CLR 01/M01 A3043 RMK AO2 T00131011 KCKI 160715Z AUTO 00000KT 10SM CLR M05/M06 A3045 RMK AO2 KCKM 160715Z AUTO 36023KT 1SM BR OVC003 M03/M03 A3053 RMK A01 KCKN 160655Z AUTO 34010KT 10SM CLR M26/M29 A3083 RMK AO2 KCKP 160655Z AUTO 34010G15KT 10SM OVC033 M20/M23 A3066 RMK AO2 T12001234 KCKV 160652Z AUTO 33013KT 1 1/2SM -SN FEW015 OVC027 M08/M11 A3051 RMK AO2 SLP337 P0000 T10831111 KCKZ 160655Z AUTO 11003KT 10SM OVC009 M04/M04 A3046 RMK AO2 KCLE 160651Z 19004KT 10SM BKN050 M05/M07 A3033 RMK AO2 SLP284 T10501072 KCLI 160655Z AUTO 01006KT 10SM SCT012 BKN045 BKN050 M10/M12 A3038 RMK AO2 KCLK 160715Z AUTO M10/M19 RMK AO2 PWINO PNO TSNO KCLL 160709Z AUTO 36020G29KT 2 1/2SM -SN BR BKN009 OVC015 02/01 A3049 KCLM 160653Z AUTO 29003KT 10SM OVC065 09/07 A2988 RMK AO2 SLP118 T00890067 KCLS 160655Z AUTO 19006KT 10SM OVC060 11/08 A3000 RMK AO2 KCLT 160652Z 00000KT 10SM CLR M05/M09 A3044 RMK AO2 SLP313 T10501089 KCLW 160655Z AUTO 07005KT 10SM SCT060 07/04 A3034 RMK AO2 KCMA 160655Z AUTO 07006KT 6SM BR OVC007 15/13 A3011 RMK AO2 SLP206 T01500128 KCMD 160655Z AUTO 00000KT 10SM CLR 00/M05 A3037 RMK AO2 T10021053 KCMH 160711Z 29017KT 1 3/4SM -SN BR FEW013 OVC021 M08/M09 A3035 RMK AO2 WSHFT 0654 FROPA P0000 T10781094 $ KCMI 160653Z AUTO 27015KT 10SM CLR M19/M22 A3048 RMK AO2 SLP338 T11891217 KCMR 160655Z AUTO 16008KT 10SM CLR M01/M06 A3024 RMK AO2 KCMX 160653Z AUTO 03007KT 10SM BKN049 OVC060 M07/M12 A3043 RMK AO2 SLP325 T10721117 $ KCMY 160655Z AUTO 00000KT 10SM -SN SCT015 M13/M14 A3045 RMK AO2 T11301145 KCNB 160655Z AUTO 30013G18KT 270V330 10SM OVC016 M21/M24 A3074 RMK AO2 T12101241 KCNC 160655Z AUTO 31013KT 10SM CLR M21/M24 A3059 RMK AO2 KCNI 160655Z AUTO 00000KT 10SM CLR 00/M03 A3040 RMK AO2 KCNK 160655Z AUTO 33013KT 10SM SCT031 M17/M21 A3072 RMK AO2 SLP438 T11671211 KCNM 160653Z AUTO 03014KT 10SM OVC043 M02/M13 A3061 RMK AO2 SLP357 T10171128 401391050 KCNO 160653Z AUTO 00000KT 6SM HZ CLR 13/08 A3014 RMK AO2 SLP202 T01280083 $ KCNU 160652Z AUTO 34013KT 10SM OVC039 M14/M20 A3073 RMK AO2 SLP424 T11441200 KCNW 160455Z 36016G27KT 10SM -DZ OVC035 02/M02 A3053 KCNY 160653Z AUTO VRB03KT 10SM CLR 02/M08 A3035 RMK AO2 SLP285 T00171078 400891044 KCOD 160656Z AUTO 18004KT 10SM CLR M11/M13 A3044 RMK AO2 SLP373 T11111128 410061111 FZRANO KCOE 160656Z AUTO 02017KT 10SM CLR 03/M01 A3014 RMK AO2 SLP240 T00281011 KCOF 160656Z AUTO 34007KT 10SM CLR 14/13 M RMK AO2 SLPNO T01370134 $ KCOM 160655Z AUTO 01016G24KT 10SM OVC049 M03/M15 A3061 RMK AO2 T10321154 KCON 160651Z AUTO 03004KT 10SM OVC031 M09/M15 A3051 RMK AO2 SLP337 T10941150 $ KCOQ 160655Z AUTO 33014G18KT 10SM BKN031 BKN039 OVC045 M16/M18 A3055 RMK AO2 KCOS 160654Z 16004KT 8SM FEW008 OVC013 M11/M14 A3047 RMK AO2 SNE28 SLP395 P0000 T11061139 400281106 KCOT 160653Z AUTO 09006KT 10SM FEW090 14/10 A3030 RMK AO2 SLP255 T01390100 KCOU 160654Z AUTO 30007KT 10SM CLR M18/M22 A3061 RMK AO2 SLP385 T11781222 KCPC 160655Z AUTO 00000KT 10SM CLR M02/M05 A3044 RMK AO2 T10201053 KCPK 160655Z AUTO 36004KT 3/4SM BR OVC002 00/00 A3044 RMK AO2 T00000000 KCPR 160653Z AUTO 25004KT 10SM CLR M20/M22 A3048 RMK AO2 SLP427 I1000 T12001222 410561206 KCPS 160653Z AUTO 30012G20KT 10SM CLR M15/M21 A3061 RMK AO2 PK WND 30026/0610 SLP374 T11501206 KCPT 160655Z AUTO 36023G30KT 10SM FEW024 SCT037 OVC060 M03/M12 A3064 RMK AO2 KCPU 160655Z AUTO 17005KT 10SM CLR 08/06 A3014 RMK AO2 T00820060 KCPW 160650Z AUTO 32004KT 10SM CLR M08/M28 A3035 RMK AO2 KCQB 160655Z AUTO 36013G19KT 10SM CLR M11/M17 A3075 RMK AO2 T11131171 KCQC 160653Z AUTO 11012KT 1 1/2SM BR OVC002 M09/M11 A3043 RMK AO2 SLP349 T10941111 400441094 KCQF 160655Z AUTO 00000KT 10SM SCT038 01/01 A3038 RMK AO2 KCQM 160655Z AUTO 36006KT 10SM BKN010 OVC014 M18/M19 A3062 RMK AO2 KCQT 160647Z AUTO 00000KT 4SM BR CLR 14/13 A3012 RMK AO2 SLP197 T01390128 KCQW 160715Z AUTO 00000KT 10SM CLR M05/M08 A3046 RMK AO2 KCQX 160652Z AUTO VRB05KT 10SM FEW019 BKN027 OVC032 M01/M02 A3046 RMK AO2 SNE01 SLP318 P0000 T10061017 TSNO KCRE 160653Z AUTO 00000KT 10SM CLR M02/M04 A3044 RMK AO1 SLP308 T10221044 KCRG 160653Z AUTO 36004KT 10SM CLR 04/02 A3039 RMK AO2 SLP290 T00390022 KCRP 160651Z 01004KT 10SM FEW033 SCT050 OVC085 15/13 A3028 RMK AO2 SLP253 T01500128 $ KCRQ 160653Z AUTO 00000KT 9SM CLR 14/11 A3011 RMK AO2 SLP196 T01390106 KCRS 160653Z AUTO 36015G23KT 5SM -SN BR OVC031 M04/M06 A3062 RMK AO2 PK WND 02030/0605 UPE0555B18E28SNB0555E18B28 SLP369 P0000 T10391056 $ KCRW 160654Z 00000KT 10SM BKN045 OVC060 01/M04 A3033 RMK AO2 SLP280 T00061044 KCRX 160655Z AUTO 35012KT 10SM SCT013 BKN019 OVC034 M01/M04 A3045 RMK AO2 KCSG 160651Z AUTO 00000KT 10SM CLR 02/M03 A3041 RMK AO2 SLP298 T00171028 KCSM 160653Z AUTO 01019KT CLR M10/M19 A3072 RMK AO2 PK WND 01026/0638 SLP422 T11001194 $ KCSQ 160655Z AUTO 31012KT 10SM CLR M21/M25 A3061 RMK AO2 KCSV 160653Z AUTO 34003KT 10SM CLR M02/M05 A3031 RMK AO2 SLP276 T10221050 KCTB 160703Z AUTO 18005KT 3SM BR OVC001 M18/M18 A3024 RMK AO2 T11781183 KCTJ 160655Z AUTO 00000KT 10SM CLR M03/M04 A3042 RMK AO2 T10281045 KCTY 160655Z AUTO 00000KT 10SM CLR 00/00 A3044 RMK AO2 T00011004 KCTZ 160655Z AUTO 00000KT 10SM CLR M03/M04 A3045 RMK AO2 T10341041 KCUB 160653Z AUTO 00000KT 10SM CLR M02/M06 A3046 RMK AO2 SLP317 T10221056 KCUH 160655Z AUTO 36008KT 10SM CLR M12/M17 A3076 RMK AO2 T11221175 KCUL 160655Z AUTO 31011KT 10SM SCT120 M12/M17 A3056 RMK AO2 T11251173 KCUT 160653Z AUTO 28005KT 10SM CLR M20/M32 A3042 RMK AO2 SLP416 T12001322 411171217 $ KCVB 160615Z AUTO 01019G35KT 10SM -RA OVC021 08/03 A3040 RMK AO2 T00770025 KCVC 160656Z AUTO 00000KT 10SM CLR M01/M04 A3040 RMK AO2 KCVG 160652Z 29011KT 10SM FEW019 FEW041 OVC050 M11/M14 A3041 RMK AO2 SNE45 SLP308 P0000 T11061139 $ KCVH 160655Z AUTO 00000KT 10SM CLR 10/07 A3015 RMK A01 KCVN 160656Z AUTO 04009KT 10SM OVC055 M07/M15 A3058 RMK AO2 SLP393 T10671150 400171067 FZRANO KCVO 160656Z AUTO 11006KT 9SM -RA FEW029 OVC055 08/07 A3004 RMK AO2 SLP173 P0000 T00780072 KCVS 160658Z AUTO 05007KT 10SM OVC045 M06/M14 A3057 RMK AO2 SLP381 T10601145 400191060 $ KCVW 160655Z AUTO 14005KT 10SM BKN060 BKN075 OVC095 11/10 A3034 RMK A01 KCVX 160655Z AUTO 05006KT 10SM SCT015 SCT033 OVC065 M08/M10 A3038 RMK AO2 T10801105 KCWA 160655Z AUTO 35008KT 10SM BKN050 M11/M12 A3038 RMK AO2 KCWC 160655Z AUTO 10SM OVC085 M06/M17 A3076 RMK AO2 T10611170 KCWF 160655Z AUTO 17003KT 10SM BKN060 OVC085 07/06 A3034 RMK AO2 T00710065 KCWI 160656Z AUTO 27015KT 10SM -SN SCT045 M18/M21 A3046 RMK AO2 SNB52 SLP344 P0000 T11831206 FZRANO KCWN 160708Z AUTO 01003KT 3SM -SN BKN004 M12/M13 A3035 RMK AO2 SLP278 $ KCWV 160655Z AUTO 00000KT 10SM CLR M01/M02 A3044 RMK AO2 T10151020 KCXE 160655Z AUTO 00000KT 10SM CLR M06/M08 A3043 RMK AO1 T10651083 KCXO 160653Z AUTO 34012G19KT 7SM -RA OVC005 09/09 A3039 RMK AO2 CIG 004V010 SLP289 P0004 T00890089 KCXP 160715Z AUTO 00000KT 10SM CLR 00/M02 A3020 RMK AO2 KCXU 160655Z AUTO 00000KT 10SM CLR 01/00 A3041 RMK AO1 T00060001 KCXY 160656Z AUTO 00000KT 10SM OVC014 M02/M07 A3045 RMK AO2 SLP319 T10221072 $ KCYS 160653Z AUTO 28007KT 10SM CLR M19/M22 A3044 RMK AO2 SLP420 T11941217 410281200 KCZL 160655Z AUTO 20003KT 10SM CLR M03/M05 A3039 RMK AO2 T10351048 KCZT 160655Z AUTO 00000KT 10SM SCT070 SCT085 10/08 A3029 RMK AO2 KD07 160656Z AUTO 29006KT M27/M28 A3072 RMK AO1 SLP495 T12671283 411891267 KD25 160655Z AUTO 35003KT 10SM SCT031 BKN050 OVC085 M17/M17 A3040 RMK AO2 T11671175 KD39 160655Z AUTO 31007KT 10SM M23/M25 A3064 RMK AO2 T12261250 KD50 160655Z AUTO 21014KT 10SM CLR M26/M29 A3070 RMK AO2 KD55 160655Z AUTO 30003KT 10SM CLR M28/M31 A3075 RMK AO2 KD57 160655Z AUTO 17005KT 10SM CLR M31/M36 A3076 RMK AO2 KD60 160615Z AUTO 19004KT 10SM CLR M27/M29 A3071 RMK AO2 KD73 160655Z AUTO 00000KT 10SM CLR M04/M05 A3042 RMK AO2 T10351051 KD95 160655Z AUTO 00000KT 3/4SM BR OVC008 M16/M18 A3027 RMK AO2 VIS 1/4V4 T11561176 KDAA 160711Z AUTO 00000KT 10SM OVC006 M01/M03 A3046 RMK AO2 CIG 004V006 SLP319 $ KDAB 160653Z 36004KT 10SM CLR 11/09 A3035 RMK AO2 SLP275 T01060089 KDAG 160650Z AUTO 00000KT 10SM CLR 12/04 A3014 RMK AO2 SLP196 T01170044 KDAL 160653Z 36016KT 10SM FEW032 OVC055 M02/M11 A3066 RMK AO2 PK WND 01029/0619 SNE14 SLP384 P0000 T10221106 KDAN 160653Z AUTO 00000KT 10SM CLR M08/M11 A3043 RMK AO2 SLP306 T10831111 KDAW 160651Z AUTO 35006KT 10SM OVC028 M08/M11 A3050 RMK AO2 SLP332 T10831111 KDAY 160656Z 27013KT 10SM BKN019 M12/M15 A3038 RMK AO2 SLP305 T11221150 KDBN 160655Z AUTO 00000KT 10SM CLR M02/M03 A3045 RMK AO2 KDBQ 160653Z AUTO 33009KT 5SM -SN BKN038 OVC044 M16/M19 A3040 RMK AO2 SLP322 P0000 T11561189 KDCA 160707Z 18003KT 9SM OVC009 M01/M02 A3047 RMK AO2 T10061017 KDCM 160655Z AUTO 00000KT 10SM CLR M03/M09 A3044 RMK AO2 KDCU 160653Z AUTO 30005KT 10SM CLR M01/M04 A3039 RMK AO2 SLP293 T10111039 $ KDCY 160655Z AUTO 30011KT 10SM CLR M14/M20 A3053 RMK AO2 T11441200 KDDC 160652Z AUTO 32009KT 10SM CLR M18/M22 A3069 RMK AO2 SLP443 T11781217 $ KDDH 160654Z AUTO 00000KT 10SM BKN075 OVC090 M10/M13 A3042 RMK AO2 SLP315 T11001128 KDEC 160654Z AUTO 28012KT 10SM CLR M18/M21 A3051 RMK AO2 SLP347 T11781211 $ KDED 160655Z AUTO 34005KT 10SM CLR 06/05 A3034 RMK AO2 KDEH 160715Z AUTO 33009KT 10SM OVC014 M15/M18 A3045 RMK AO2 KDEN 160653Z 15009KT 10SM CLR M19/M23 A3050 RMK AO2 SLP415 T11941233 410111194 $ KDEQ 160653Z AUTO 33009KT 9SM OVC046 M04/M14 A3060 RMK AO2 SNB40E50 SLP364 P0000 T10441139 KDET 160653Z 25006KT 8SM OVC046 M06/M08 A3028 RMK AO2 SNE13 SLP266 P0000 T10561078 KDEW 160653Z AUTO 03012KT 10SM CLR 03/M01 A3014 RMK AO2 SLP221 T00281011 KDFI 160653Z AUTO 24008KT 10SM OVC016 M13/M17 A3035 RMK AO2 SNE0556 SLP292 P0000 T11331167 KDFW 160653Z 36023KT 9SM -SN FEW032 SCT055 OVC075 M02/M11 A3063 RMK AO2 PK WND 36027/0623 SNE09B33 SLP373 P0000 T10221106 $ KDGW 160653Z AUTO 11003KT 10SM CLR M20/M24 A3053 RMK AO2 SLP436 T12001239 410561206 KDHN 160653Z AUTO 05003KT 10SM CLR 02/M01 RMK AO2 SLPNO T00171011 PNO $ KDHT 160653Z AUTO 06008KT 10SM OVC075 M10/M18 A3062 RMK AO2 SLP407 T11001178 KDIJ 160656Z AUTO 10SM RMK AO2 SLPNO $ KDIK 160656Z AUTO 19004KT 10SM CLR M26/M29 A3066 RMK AO2 SLP469 T12611294 412001289 KDKB 160655Z AUTO 28016KT 3SM -SN SCT018 SCT033 OVC044 M16/M18 A3034 RMK AO2 T11601182 KDKK 160653Z AUTO 20008KT 6SM -SN OVC026 M04/M08 A3029 RMK AO2 SNB0558 SLP269 P0000 T10441078 KDKR 160650Z AUTO 35013G18KT 5SM BR 01/00 A3052 RMK AO2 P0003 KDKX 160655Z AUTO 00000KT 8SM M04/M04 A3035 RMK A01 KDLF 160709Z 36013G20KT 10SM -RA OVC037 07/M01 A3045 RMK AO2A RAB01 PRESRR SLP310 $ KDLH 160655Z 34008KT 10SM FEW070 M17/M18 A3054 RMK AO2 SNE01 SLP383 P0000 T11671183 KDLL 160655Z AUTO 32004KT 5SM -SN OVC017 M12/M14 A3038 RMK AO2 T11211137 KDLN 160711Z AUTO 23005KT 10SM OVC015 M03/M06 A3035 RMK AO2 T10281056 KDLO 160655Z AUTO 00000KT 1 3/4SM BR VV007 09/08 A3014 RMK AO2 T00850077 KDLP 160655Z AUTO 03008KT 10SM CLR 13/12 A3035 RMK A01 KDLS 160653Z AUTO 11003KT 9SM SCT020 OVC026 06/04 A3017 RMK AO2 SLP219 T00560039 KDLZ 160655Z AUTO 29011KT 10SM -SN OVC013 M08/M11 A3034 RMK AO2 KDMA 160658Z AUTO 12005KT 10SM CLR 08/M05 A3013 RMK AO2 SLP182 T00791052 402480077 $ KDMH 160654Z AUTO M01/M04 A3046 RMK AO1 SLP314 T10061039 KDMN 160653Z AUTO 07016KT 10SM CLR 02/M05 A3031 RMK AO2 SLP238 T00221050 401941044 KDMO 160653Z AUTO 32007KT 10SM CLR M17/M22 A3066 RMK AO2 SLP404 T11721217 KDMW 160655Z AUTO 17004KT 5SM BR OVC013 M02/M03 A3041 RMK AO2 KDNA 160655Z AUTO 11013KT 10SM CLR 02/M05 A3034 RMK AO2 PWINO KDNL 160653Z AUTO 00000KT 10SM CLR 02/M06 A3044 RMK AO2 SLP310 T00171061 $ KDNN 160655Z AUTO 00000KT 10SM CLR M01/M03 A3040 RMK AO2 KDNS 160655Z AUTO 32010G17KT 10SM SCT018 BKN023 OVC055 M21/M24 A3066 RMK AO2 KDNV 160655Z AUTO 26014KT 10SM CLR M18/M21 A3044 RMK AO2 T11801214 KDOV 160656Z AUTO 34005KT 10SM BKN015 OVC023 M01/M01 A3046 RMK AO2 CIG 015V023 BKN V SCT SLP318 T10131013 $ KDPA 160700Z 26009KT 1/2SM SN FZFG VV014 M15/M17 A3034 RMK AO2 P0000 T11501167 RVRNO $ KDPL 160655Z AUTO 00000KT 10SM CLR M04/M05 A3045 RMK AO2 KDQH 160655Z AUTO 00000KT 10SM CLR 00/M01 A3043 RMK AO2 KDRI 160655Z AUTO 34004KT 10SM OVC060 08/05 A3039 RMK AO2 T00840047 KDRM 160655Z AUTO 03004KT 10SM SCT029 BKN035 OVC050 M13/M14 A3037 RMK AO2 T11271145 KDRO 160653Z AUTO 00000KT 10SM CLR M06/M08 A3026 RMK AO2 SLP271 T10561078 400831111 KDRT 160653Z AUTO 34015G20KT 10SM OVC045 07/M01 A3046 RMK AO2 SLP308 T00721011 KDSF 160655Z AUTO 04011KT 10SM SCT036 BKN044 BKN049 17/10 A3035 RMK A01 KDSM 160654Z 32014KT 9SM -SN OVC014 M21/M25 A3061 RMK AO2 SLP393 P0000 T12061250 KDSV 160654Z AUTO 13005KT 3SM -SN OVC034 M06/M08 A3031 RMK AO2 SLP285 P0000 T10561083 KDTA 160655Z AUTO 00000KT 10SM CLR 00/M02 A3030 RMK AO1 KDTL 160655Z AUTO 33011KT 5SM HZ OVC009 M23/M26 A3069 RMK AO2 KDTN 160653Z AUTO A3051 RMK AO2 SLPNO PWINO FZRANO $ KDTO 160653Z AUTO 01018G27KT 10SM OVC080 M04/M15 A3068 RMK AO2 PK WND 36027/0648 SLP391 T10441150 KDTS 160653Z AUTO 00000KT 10SM CLR 06/02 A3041 RMK AO2 SLP297 T00560017 KDTW 160700Z 20008KT 6SM BR SCT007 BKN035 OVC055 M09/M11 A3030 RMK AO2 T10891106 KDUA 160655Z AUTO 33016G20KT 280V010 10SM OVC090 M06/M14 A3069 RMK AO2 KDUB 160655Z AUTO 31007KT 10SM CLR M12/M14 A3038 RMK AO2 KDUC 160655Z AUTO 36015G24KT 10SM CLR M08/M16 A3072 RMK AO2 T10821163 KDUG 160656Z AUTO 02007KT 10SM CLR 07/M08 A3018 RMK AO2 SLP187 T00671078 402221022 $ KDUH 160655Z AUTO 27007KT 5SM -SN OVC012 M10/M12 A3032 RMK AO2 T11011125 KDUJ 160712Z AUTO 00000KT 2SM -SN BR OVC040 M07/M09 A3025 RMK AO2 P0000 T10721089 KDUX 160655Z AUTO 04003KT 10SM CLR M12/M20 A3063 RMK AO2 T11251200 KDVK 160655Z AUTO 32008KT 4SM -SN OVC022 M06/M08 A3041 RMK AO2 KDVL 160656Z AUTO 31003KT 10SM CLR M28/M31 A3080 RMK AO2 SLP508 T12831311 FZRANO KDVN 160652Z AUTO 27012KT 10SM CLR A3049 RMK AO2 SNE13 SLPNO P0000 $ KDVO 160655Z AUTO 18003KT 3SM BR OVC012 12/11 A3016 RMK AO2 KDVP 160707Z AUTO 34020G24KT 4SM HZ OVC045 M23/M26 A3062 RMK AO2 T12291260 KDVT 160653Z AUTO VRB03KT 10SM CLR 13/01 A3008 RMK AO2 SLP175 T01330011 402220083 KDWH 160709Z 34011G22KT 5SM RA BR BKN007 OVC020 09/09 A3038 RMK AO2 CIG 005V012 P0002 T00940089 $ KDWU 160656Z AUTO 30007KT 10SM BKN027 OVC041 M01/M04 A3037 RMK AO2 SLP292 T10061044 FZRANO KDWX 160655Z AUTO 07003KT 10SM M12/M19 A3047 RMK AO2 T11181194 401751218 KDXR 160653Z AUTO 00000KT 10SM OVC019 M07/M11 A3048 RMK AO2 SLP328 T10671106 KDXX 160655Z AUTO 33013KT 10SM OVC016 M21/M25 A3074 RMK AO2 KDYA 160715Z AUTO 13004KT 10SM M02/M04 A3039 RMK AO2 T10251036 KDYB 160715Z AUTO 00000KT 10SM CLR M02/M03 A3045 RMK AO1 KDYL 160654Z AUTO 00000KT 10SM OVC010 M03/M06 A3046 RMK AO2 SLP323 T10331061 $ KDYR 160702Z AUTO 35014KT 2 1/2SM -SN BR SCT013 OVC020 M08/M11 A3057 RMK AO2 VIS 1 3/4V3 FZRANO PNO $ KDYS 160656Z AUTO 36019KT 10SM OVC055 M04/M18 A3064 RMK AO2 PK WND 35027/23 UPB0556E29 SLP380 P0000 T10401179 $ KDYT 160656Z AUTO 31008G14KT 10SM -SN BKN035 OVC042 M12/M15 A3061 RMK AO2 KDZB 160655Z AUTO 36010G20KT 10SM -DZ OVC018 02/00 A3054 RMK AO2 T00190004 KDZJ 160655Z AUTO 00000KT 7SM CLR M05/M07 A3037 RMK AO2 T10541066 KE11 160655Z AUTO 04014G19KT 10SM OVC055 M04/M18 A3061 RMK AO2 T10401184 KE16 160650Z AUTO 00000KT 10SM FEW004 10/09 A3017 RMK AO2 KE38 160655Z AUTO 05016G20KT 10SM OVC013 M02/M06 A3054 RMK AO2 T10201056 KE80 160655Z AUTO 32007KT 10SM CLR M03/M07 A3039 RMK AO2 T10301068 KEAN 160655Z AUTO 14004KT 10SM CLR M18/M21 A3054 RMK AO2 T11771215 410351181 KEAR 160656Z AUTO 34015KT 10SM CLR M19/M23 A3070 RMK AO2 SLP449 T11891233 FZRANO KEAT 160704Z AUTO 31004KT 1/4SM FG VV002 01/01 A3015 RMK AO2 T00110011 KEAU 160656Z AUTO VRB06KT 10SM BKN019 OVC050 M12/M14 A3047 RMK AO2 SLP340 T11171144 KEBA 160655Z AUTO 35003KT 10SM CLR M03/M07 A3046 RMK AO2 T10311067 KEBG 160655Z AUTO 10008KT 10SM OVC044 18/12 A3025 RMK AO2 T01800122 KEBS 160655Z AUTO 32016KT 10SM OVC006 M22/M26 A3057 RMK AO2 KECG 160654Z AUTO 02005KT 1/4SM FG VV002 00/00 A3043 RMK AO2 SLP303 T00000000 $ KECP 160653Z AUTO 00000KT 10SM CLR 02/M01 A3039 RMK AO2 SLP305 T00221006 KECS 160655Z AUTO 19003KT 10SM CLR M24/M28 A3059 RMK AO2 KECU 160655Z AUTO 04017G25KT 01/M03 A3047 RMK AO2 KEDC 160655Z AUTO 36019G25KT 2 1/2SM RA BKN012 BKN019 OVC031 02/02 A3053 RMK AO2 P0003 KEDE 160655Z AUTO 00000KT 10SM CLR M01/M02 A3043 RMK AO2 T10151023 KEDJ 160655Z AUTO 27011KT 10SM OVC017 M13/M16 A3035 RMK AO1 KEDN 160655Z AUTO 00000KT 10SM CLR 00/00 A3040 RMK AO2 T00001004 KEDU 160700Z AUTO 17003KT 1/2SM OVC001 09/09 A3016 RMK AO1 KEDW 160658Z AUTO 00000KT 10SM CLR 08/02 A3014 RMK AO2 SLP205 T00820020 KEED 160656Z AUTO 30004KT 10SM CLR 15/04 A3010 RMK AO2 SLP176 T01500044 KEEN 160656Z AUTO 00000KT 10SM OVC032 M08/M13 A3049 RMK AO2 SLP347 T10781133 FZRANO KEEO 160653Z AUTO 10006KT 10SM CLR M09/M13 A3042 RMK AO2 SLP336 T10891128 400221089 KEET 160653Z AUTO 00000KT 10SM CLR M01/M02 A3038 RMK AO2 SLP288 T10061017 KEFD 160650Z 09004KT 10SM SCT050 BKN070 12/10 A3032 KEFK 160655Z AUTO 00000KT 10SM OVC095 M16/M18 A3045 RMK AO2 T11611176 KEFT 160655Z AUTO 30010KT 10SM OVC014 M12/M15 A3033 RMK AO2 KEGE 160656Z AUTO 11004KT 10SM CLR M10/M13 A3044 RMK AO2 SLP367 T11001133 FZRANO KEGI 160656Z AUTO 00000KT 10SM CLR M01/M03 A3039 RMK AO2 SLP293 T10151026 $ KEGV 160655Z AUTO 00000KT 10SM CLR M15/M17 A3037 RMK AO2 T11501168 KEHA 160655Z AUTO 35007KT 10SM CLR M15/M18 A3065 RMK AO2 T11491185 KEHC 160655Z AUTO 11015KT 10SM FEW027 BKN032 BKN039 19/13 A3032 RMK A01 KEHO 160655Z AUTO 00000KT 10SM CLR M05/M08 A3043 RMK AO2 T10551084 KEHR 160656Z AUTO 32009KT 10SM CLR M11/M16 A3056 RMK AO2 SLP362 T11111161 FZRANO KEHY 160655Z AUTO 00000KT 10SM CLR M16/M23 A3037 RMK AO2 KEIK 160653Z AUTO 00000KT 10SM CLR M18/M20 A3059 RMK AO2 T11771203 KEIR 160655Z AUTO 09012KT 10SM CLR 14/11 A3038 RMK A01 KEKM 160148Z 24010KT 10SM -SN SCT005 OVC017 M10/M13 A3028 RMK LAST KEKN 160651Z AUTO 16008KT 10SM SCT028 OVC042 00/M04 A3029 RMK AO2 SLP278 T00001039 TSNO $ KEKO 160656Z AUTO 36003KT 10SM CLR M01/M03 A3023 RMK AO2 SLP245 T10061033 $ KEKQ 160656Z AUTO 29010KT 10SM OVC011 M02/M03 A3040 RMK AO2 SLP323 T10171033 KEKS 160655Z AUTO 00000KT 10SM CLR M09/M11 A3040 RMK AO2 KEKX 160715Z AUTO 30005KT 2SM -SN SCT015 OVC021 M10/M11 A3046 RMK AO2 T11001114 KEKY 160656Z AUTO 00000KT 10SM CLR 03/M03 A3038 RMK AO2 SLP312 T00281033 KELA 160655Z AUTO 36013G27KT 7SM RA BKN008 BKN015 OVC022 08/07 A3038 RMK AO2 P0002 T00750069 KELD 160711Z AUTO 01012G21KT 9SM UP SCT006 BKN017 OVC033 M01/M02 A3053 RMK AO2 UPB06SNE06 PRESRR P0000 T10061017 KELK 160655Z AUTO 01013KT 10SM CLR M10/M19 A3069 RMK AO2 T11001191 KELM 160653Z AUTO 12003KT 10SM SCT070 OVC095 M06/M07 A3034 RMK AO2 SLP290 T10561072 $ KELN 160653Z AUTO 01005KT 9SM RA BKN060 OVC075 05/02 A3010 RMK AO2 RAB36 SLP200 P0001 T00500022 KELO 160655Z AUTO 33004KT 10SM OVC008 M17/M18 A3058 RMK AO2 KELP 160651Z 09011KT 10SM SCT250 02/M04 A3039 RMK AO2 SLP274 T00171044 401720000 KELY 160653Z AUTO 17008KT 10SM CLR M06/M08 A3028 RMK AO2 SLP260 T10561078 KELZ 160705Z AUTO 12005KT 1 1/4SM -SN BR BKN021 OVC034 M07/M09 A3023 RMK AO2 P0000 T10721094 $ KEMK 160655Z AUTO 13014KT 10SM FEW038 SCT048 19/10 A3032 RMK A01 KEMP 160653Z AUTO 34016G22KT 10SM CLR M17/M22 A3072 RMK AO2 SLP432 T11671217 KEMT 160345Z 00000KT 10SM CLR 16/10 A3008 KEMV 160655Z AUTO 30003KT 5SM BR SCT001 M05/M06 A3046 RMK AO2 KEND 160656Z AUTO 34009KT 10SM CLR M13/M20 A3076 RMK AO2 SLP442 T11331197 $ KENL 160655Z AUTO 30009KT 10SM CLR M14/M19 A3057 RMK AO2 T11431187 KENV 160656Z AUTO 00000KT 10SM CLR M02/M05 A3031 RMK AO2 SLP290 T10171050 400611061 FZRANO KENW 160653Z AUTO 29007KT 2SM -SN BR OVC025 M09/M11 A3028 RMK AO2 SNE0554B19 SLP268 P0000 T10891111 KEOD 160658Z AUTO 34009KT 1 7/8SM -SN BR OVC027 M09/M10 A3051 RMK AO2 SLP342 P0000 T10891104 KEOE 160655Z AUTO 00000KT 10SM CLR M03/M06 A3047 RMK AO2 KEOK 160655Z AUTO 29009KT 10SM BKN018 M19/M23 A3057 RMK AO2 KEPH 160653Z AUTO 36005KT 10SM CLR 03/M01 A3014 RMK AO2 SLP214 T00331011 KEQA 160655Z AUTO 00000KT 10SM CLR M14/M19 A3072 RMK AO2 KEQY 160653Z AUTO 00000KT 10SM CLR M05/M09 A3043 RMK AO2 SLP329 T10501089 KERI 160701Z AUTO 22006KT 9SM BKN021 OVC025 M03/M06 A3029 RMK AO2 T10331061 KERV 160655Z AUTO 36014G22KT 10SM OVC014 02/00 A3047 RMK AO2 P0001 T00220001 KERY 160655Z AUTO 36003KT 7SM -SN OVC015 M13/M13 A3038 RMK AO2 T11271131 KESC 160656Z AUTO VRB04KT 10SM SCT075 BKN090 M12/M13 A3041 RMK AO2 SLP325 T11171133 FZRANO KESF 160653Z AUTO 00000KT 10SM OVC065 03/03 A3037 RMK AO2 SLP285 T00330028 KESN 160708Z AUTO 34004KT 10SM OVC011 M01/M05 A3050 RMK AO2 T10111047 KEST 160705Z AUTO 33015KT 9SM BKN006 M23/M26 A3060 RMK AO2 T12331261 KETB 160655Z AUTO 34006KT 1 1/4SM -SN BKN012 BKN019 OVC024 M07/M08 A3031 RMK AO2 KETH 160634Z AUTO 32011G16KT 10SM OVC016 M23/M27 A3079 RMK AO2 KETN 160655Z AUTO 01019G25KT 10SM OVC060 M05/M17 A3064 RMK AO2 T10501174 KEUF 160658Z AUTO 00000KT 10SM CLR M01/M02 A3040 RMK AO2 SLP295 T10111022 KEUG 160654Z 12006KT 10SM -RA OVC042 08/08 A3004 RMK AO2 SLP175 P0003 T00830083 $ KEVB 160247Z 02010KT 10SM SKC 12/08 A3039 RMK LAST KEVM 160655Z AUTO 36004KT 10SM OVC012 M18/M21 A3059 RMK AO2 T11771206 KEVU 160655Z AUTO 32012G16KT 10SM CLR M18/M28 A3065 RMK AO2 KEVV 160654Z 30007G15KT 10SM BKN120 M12/M18 A3056 RMK AO2 SLP356 T11221178 KEVW 160653Z AUTO 07008KT 10SM CLR M07/M09 A3037 RMK AO2 SLP307 T10671094 400331072 KEWB 160653Z AUTO 36007KT 10SM OVC011 M06/M11 A3048 RMK AO2 SLP322 T10561106 KEWK 160656Z AUTO 34011KT 10SM CLR M17/M20 A3072 RMK AO2 SLP436 T11721200 FZRANO KEWN 160654Z AUTO 33004KT 10SM CLR M02/M04 A3044 RMK AO2 SLP305 T10171039 KEWR 160651Z 02004KT 10SM BKN018 BKN250 M05/M08 A3049 RMK AO2 SLP323 T10501083 KEXX 160655Z AUTO 00000KT 10SM CLR M07/M10 A3043 RMK AO2 T10701097 KEYE 160653Z AUTO VRB05KT 10SM CLR M16/M19 A3043 RMK AO2 SLP319 T11611194 KEYW 160653Z AUTO 02010KT 10SM BKN060 17/15 A3022 RMK AO2 SLP233 T01720150 KEZF 160655Z AUTO 00000KT 10SM OVC009 M03/M04 A3047 RMK AO2 T10261036 KEZM 160655Z AUTO 00000KT 10SM CLR M02/M05 A3045 RMK AO2 T10191047 KEZS 160700Z AUTO 01008KT 10SM BKN012 OVC055 M08/M11 A3038 RMK AO2 T10821106 KF00 160655Z AUTO 35011G19KT 10SM -SN OVC085 M06/M13 A3067 RMK AO2 T10611129 KF05 160655Z AUTO 01011KT 10SM CLR M06/M19 A3075 RMK AO1 T10621195 KF17 160655Z AUTO 35013G22KT 10SM BKN009 OVC016 04/01 A3047 RMK AO2 T00360014 KF44 160655Z AUTO 36015G22KT 4SM -SN BKN010 OVC034 M06/M07 A3059 RMK AO2 KF46 160655Z AUTO 10SM BKN055 OVC065 M04/M11 A3065 RMK AO2 T10371112 KF70 160655Z AUTO 00000KT 10SM CLR 12/06 A3013 RMK AO1 KFAF 160711Z AUTO 00000KT 3SM BR OVC002 M01/M02 A3043 RMK AO2 SLP308 $ KFAM 160656Z AUTO 30010G16KT 10SM OVC027 M14/M19 A3057 RMK AO2 SLP371 T11391189 FZRANO KFAR 160653Z 34015KT 10SM SCT005 M24/M27 A3081 RMK AO2 SLP469 T12391267 $ KFAT 160658Z 25006KT 1/8SM R29R/P6000FT BR OVC150 10/08 A3016 KFAY 160653Z 30003KT 10SM CLR M04/M07 A3044 RMK AO2 SLP303 T10391072 KFBG 160656Z AUTO 00000KT 10SM CLR M05/M08 A3043 RMK AO2 SLP310 T10471076 $ KFBL 160655Z AUTO 29007KT 7SM SCT038 BKN048 OVC050 M19/M21 A3057 RMK AO2 KFBR 160655Z AUTO 06006KT 10SM CLR M09/M10 A3043 RMK AO2 T10931099 KFCH 160655Z AUTO 28006KT M1/4SM FG 09/09 A3016 RMK A01 KFCM 160653Z AUTO 33009KT 10SM SCT065 M18/M22 A3059 RMK AO2 SLP383 T11781217 KFCS 160709Z AUTO 16005KT 9SM -SN OVC005 M11/M13 A3046 RMK AO2 SNE08SNB09 SLP411 $ KFDK 160655Z AUTO 00000KT 10SM OVC012 M02/M07 A3048 RMK AO2 KFDR 160653Z AUTO 02012KT 10SM CLR M08/M17 A3070 RMK AO2 SLP404 T10781167 KFDW 160715Z AUTO 12003KT 10SM CLR M01/M09 A3044 RMK AO1 KFDY 160653Z AUTO 24013KT 10SM OVC021 M12/M16 A3035 RMK AO2 UPE10 SLP288 P0000 T11171161 KFEP 160655Z AUTO 28010KT 3SM -SN SCT015 OVC023 M14/M17 A3039 RMK AO2 T11451167 KFET 160655Z AUTO 32011KT 10SM SCT024 M19/M22 A3070 RMK AO2 T11861225 KFEW 160658Z AUTO 00000KT 10SM CLR M22/M25 A3046 RMK AO2 SLP434 T12161252 410231216 $ KFFA 160655Z AUTO 3/4SM BR OVC002 A3039 RMK AO2 KFFC 160653Z AUTO 00000KT 10SM CLR M03/M04 A3040 RMK AO2 SLP302 I1000 T10331044 KFFL 160655Z AUTO 29013KT 10SM FEW012 SCT029 OVC034 M20/M26 A3057 RMK AO2 PWINO KFFM 160655Z AUTO 33008KT 10SM CLR M25/M28 A3078 RMK AO2 KFFO 160656Z 29009KT 10SM FEW007 OVC016 M11/M15 A3038 RMK AO2A SLP288 T11081151 KFFT 160653Z AUTO 32006KT 1 1/4SM -SN FEW010 OVC019 M09/M12 A3042 RMK AO2 SLP311 P0000 T10891122 KFFX 160656Z AUTO 01003KT 10SM SCT038 OVC065 M11/M14 A3029 RMK AO2 T11151140 KFFZ 160150Z 00000KT 40SM SKC 19/01 A3005 KFGN 160655Z AUTO 00000KT 10SM CLR M26/M29 A3074 RMK AO2 KFGX 160655Z AUTO 28010KT 5SM -SN BKN008 OVC012 M05/M06 A3038 RMK AO2 T10511063 KFHB 160654Z AUTO 02005KT 10SM CLR 08/03 A3039 RMK AO1 KFHR 160653Z AUTO 12019G29KT 10SM BKN085 OVC110 11/06 A2990 RMK AO2 PK WND 13031/0641 SLP123 T01110056 KFHU 160658Z AUTO 24009KT 9SM CLR 10/M06 A3020 RMK AO2 SLP181 T01001064 402260044 $ KFIG 160707Z AUTO 01003KT 2SM -SN BR OVC029 M07/M08 A3030 RMK AO2 P0000 T10721083 KFIN 160655Z AUTO 36004KT 10SM CLR 08/07 A3036 RMK AO2 T00820069 KFIT 160652Z AUTO 00000KT 10SM OVC028 M06/M14 A3051 RMK AO2 SLP337 T10611144 KFKA 160656Z AUTO 33013KT 10SM OVC012 M16/M19 A3046 RMK AO2 T11651190 KFKL 160656Z AUTO 19005KT 3SM -SN BR OVC012 M06/M07 A3026 RMK AO2 SLP271 P0001 T10611072 FZRANO KFKN 160655Z AUTO 32004KT 4SM BR OVC003 M01/M01 A3046 RMK AO2 T10101012 KFKR 160655Z AUTO 28014KT 10SM CLR M15/M19 A3043 RMK AO2 T11531186 KFKS 160655Z AUTO 00000KT 7SM -SN SCT013 SCT021 BKN030 M12/M14 A3033 RMK AO2 T11241140 KFLD 160653Z AUTO 35008KT 10SM BKN010 BKN070 OVC095 M09/M12 A3034 RMK AO2 SLP290 T10891117 TSNO KFLG 160657Z AUTO 05003KT 10SM CLR M04/M07 A3028 RMK AO2 SLP219 T10391067 401391050 KFLL 160653Z 05011G19KT 10SM FEW038 SCT048 19/14 A3023 RMK AO2 SLP235 T01890139 KFLO 160653Z AUTO 00000KT 10SM CLR M03/M08 A3046 RMK AO2 SLP313 T10281078 KFLP 160656Z AUTO 31013KT 10SM OVC028 M11/M17 A3064 RMK AO2 SNB09E22 SLP386 P0000 T11111167 FZRANO KFLY 160655Z AUTO 25007KT 3SM -SN SCT005 M14/M15 A3042 RMK AO2 T11401152 400181140 KFME 160657Z AUTO 00000KT 7SM OVC006 M02/M03 A3048 RMK AO1 KFMH 160715Z AUTO 4SM -SN SCT008 OVC017 M05/M06 A3047 RMK AO2 KFMM 160655Z AUTO 00000KT 10SM CLR M19/M23 A3059 RMK AO2 T11881230 KFMN 160653Z AUTO 02004KT 10SM CLR M04/M07 A3025 RMK AO2 SLP264 T10391067 400831106 KFMY 160653Z AUTO 04009KT 9SM CLR 12/09 A3029 RMK AO2 SLP258 T01170089 KFNB 160653Z AUTO 32009KT 10SM CLR M19/M24 A3070 RMK AO2 SLP423 T11941239 KFNL 160656Z AUTO 18008KT 10SM CLR M18/M21 A3053 RMK AO2 SLP416 T11781211 410061178 FZRANO KFNT 160706Z AUTO 00000KT 5SM BR BKN028 OVC033 M13/M14 A3028 KFOA 160655Z AUTO 30011G18KT 10SM CLR M14/M19 A2944 RMK AO2 T11431195 KFOD 160656Z AUTO 32008G14KT 10SM OVC027 M22/M26 A3060 RMK AO2 SNE50 SLP430 P0000 T12221256 FZRANO KFOE 160653Z AUTO 33008KT 10SM CLR M17/M23 A3071 RMK AO2 SLP423 T11721228 KFOK 160653Z AUTO 00000KT 10SM CLR M09/M11 A3051 RMK AO2 SLP331 I1000 T10941111 KFOT 160655Z AUTO 00000KT 10SM SCT021 OVC027 12/10 A3013 RMK AO1 P0001 KFOZ 160713Z AUTO 34005KT 10SM OVC008 M18/M21 A3064 RMK AO2 KFPK 160655Z AUTO 24007KT 3SM -SN OVC012 M08/M10 A3026 RMK AO2 T10811100 KFPR 160653Z 06005KT 10SM CLR 17/11 A3028 RMK AO2 SLP254 T01720111 KFQD 160655Z AUTO 00000KT 10SM CLR M05/M07 A3043 RMK AO2 T10551074 KFRG 160653Z 00000KT 10SM OVC009 M04/M06 A3050 RMK AO2 SLP328 T10441061 KFRH 160655Z AUTO 30004KT 10SM SCT015 OVC021 M13/M18 A3048 RMK AO1 KFRI 160656Z AUTO 32006KT 10SM CLR M A3076 RMK AO2 SLPNO ALSTG ESTMD $ KFRM 160656Z AUTO 33017KT 8SM -SN SCT039 M23/M26 A3061 RMK AO2 SLP406 P0000 T12281256 FZRANO KFRR 160655Z AUTO 10SM CLR M06/M08 A3038 RMK AO1 KFSD 160656Z AUTO 33011KT 10SM OVC015 M19/M22 A3068 RMK AO2 SLP434 T11941222 KFSE 160655Z AUTO 33011KT 10SM SCT007 OVC010 M26/M28 A3073 RMK AO2 KFSI 160656Z AUTO 01021G28KT 10SM OVC110 M08/M16 A3070 RMK AO2 PK WND 36029/27 SLP409 T10771163 $ KFSM 160653Z AUTO 35014KT 10SM CLR M08/M17 A3070 RMK AO2 SLP401 T10831167 KFSO 160655Z AUTO 00000KT 10SM SCT032 BKN038 OVC060 M19/M21 A3050 RMK AO2 T11901211 KFST 160653Z AUTO 04014KT 10SM OVC034 M01/M10 A3056 RMK AO2 SLP331 T10061100 KFSW 160655Z AUTO 29012G18KT 10SM BKN036 M19/M23 A3055 RMK AO2 KFTG 160654Z AUTO 18005KT 10SM CLR M17/M21 A3051 RMK AO2 T11721215 KFTK 160656Z AUTO 30006KT 1 7/8SM R18/5000FT -SN OVC016 M10/M12 A3044 RMK AO2 SLP322 P0001 T11001125 KFTN 160655Z AUTO 10005KT 10SM BKN065 OVC075 14/11 A3029 RMK A01 KFTW 160653Z 35016G28KT 10SM OVC070 M03/M14 A3067 RMK AO2 PK WND 33029/0612 SLP388 T10281144 KFTY 160653Z 00000KT 10SM CLR M03/M03 A3040 RMK AO2 SLP300 T10281033 KFUL 160653Z AUTO 00000KT 10SM CLR 14/11 A3012 RMK AO2 SLP198 T01390111 KFVE 160653Z AUTO 35006KT 10SM CLR M22/M23 A3052 RMK AO2 SLP364 T12171233 KFVX 160655Z AUTO 00000KT 10SM CLR M07/M07 A3043 RMK AO2 T10741074 KFWA 160654Z 26011KT 10SM FEW005 BKN021 M14/M17 A3036 RMK AO2 SLP297 T11441172 $ KFWB 160655Z AUTO 32012G17KT 10SM M15/M20 A3062 RMK AO2 KFWC 160655Z AUTO 30003KT 10SM CLR M13/M19 A3057 RMK AO1 T11311188 KFWN 160653Z AUTO 00000KT 10SM OVC017 M07/M09 A3046 RMK AO2 SLP320 T10721089 KFWS 160655Z AUTO 34021G24KT 7SM BKN046 OVC070 M03/M12 A3066 RMK AO2 T10281121 KFWZ 160655Z AUTO 25005KT 10SM CLR M08/M15 RMK AO2 TSNO KFXE 160653Z 05010G18KT 10SM FEW049 BKN060 19/12 A3024 RMK AO2 SLP242 T01940122 $ KFXY 160655Z AUTO 32014G21KT 3SM -SN BKN011 BKN018 OVC035 M20/M23 A3055 RMK AO2 KFYE 160655Z AUTO 35013G20KT 5SM BR BKN016 BKN023 OVC047 M05/M07 A3050 RMK A01 KFYG 160655Z AUTO 30010KT 10SM FEW020 BKN026 M15/M20 A3062 RMK AO2 KFYJ 160655Z AUTO 00000KT 5SM OVC003 00/M01 A3048 RMK AO2 T10031010 KFYM 160655Z AUTO VRB04KT 10SM OVC050 00/M04 A3035 RMK A01 KFYV 160705Z AUTO 35009G16KT 10SM BKN027 M13/M18 A3064 RMK AO2 T11281178 KFZG 160655Z AUTO 00000KT 10SM CLR 00/M01 A3043 RMK AO2 T00001006 KFZY 160654Z AUTO VRB03KT 3SM -SN BR OVC036 M08/M09 A3035 RMK AO2 SLP287 P0000 T10781094 KGAD 160656Z AUTO 00000KT 10SM CLR M04/M04 A3039 RMK AO2 SLP299 T10441044 FZRANO KGAF 160715Z AUTO 27004KT 10SM CLR M24/M28 A3087 RMK AO2 PWINO KGAG 160653Z AUTO 33006KT 10SM CLR M16/M21 A3073 RMK AO2 SLP445 T11561206 KGAI 160656Z AUTO VRB04KT 10SM OVC007 M02/M03 A3043 RMK AO2 SLP340 T10221033 FZRANO KGAO 160655Z AUTO 00000KT M1/4SM FG OVC002 03/02 A3038 RMK AO2 T00320021 KGBD 160656Z AUTO 31006KT 10SM CLR M18/M22 A3074 RMK AO2 SLP453 T11831217 FZRANO KGBG 160655Z AUTO 28015KT 10SM CLR M19/M22 A3051 RMK AO2 T11931221 KGBK 160655Z AUTO 09010KT 10SM BKN043 BKN050 19/10 A3033 RMK A01 KGCC 160653Z AUTO 16010KT 10SM M20/M24 A3052 RMK AO2 SLP439 T12001239 411221272 $ KGCD 160655Z AUTO 14006KT 10SM SCT110 08/00 A3011 RMK AO2 T00750003 KGCK 160654Z AUTO 32010KT 10SM CLR M17/M21 A3068 RMK AO2 SLP445 T11721211 KGCM 160655Z AUTO 34007KT 10SM CLR M12/M16 A3076 RMK AO2 KGCN 160654Z 04005KT 10SM CLR 02/M06 A3029 RMK AO2 SLP222 T00171056 401331044 KGDB 160655Z AUTO 30015G20KT 10SM OVC013 M22/M25 A3073 RMK AO2 T12201253 KGDJ 160655Z AUTO 33018G22KT 10SM OVC070 M02/M14 A3068 RMK AO2 T10201139 KGDP 160651Z AUTO 05037G44KT 10SM OVC018 M05/M11 A3040 RMK AO2 PK WND 05045/0637 SLP289 T10501106 401501056 KGDV 160656Z AUTO 21009KT 10SM CLR M27/M30 A3067 RMK AO2 SLP473 T12671300 411561283 FZRANO KGED 160654Z AUTO 00000KT 7SM SCT031 M03/M04 A3044 RMK AO2 SLP308 I1000 T10281044 KGEG 160653Z 05008KT 10SM CLR 02/M01 A3013 RMK AO2 SLP218 T00171006 KGEU 160247Z 00000KT 10SM SCT250 18/02 A3006 RMK LAST KGEV 160700Z AUTO 00000KT 10SM CLR M06/M11 A3028 RMK AO2 T10621113 KGEY 160653Z AUTO 12005KT 10SM CLR M18/M20 A3054 RMK AO2 SLP418 T11831200 410221183 KGEZ 160653Z AUTO 28010KT 10SM CLR M14/M19 A3044 RMK AO2 SLP320 T11391194 KGFA 160658Z AUTO 08005KT 3/4SM FZFG VV001 M18/M19 A3030 RMK AO2 SLP376 T11791192 410571181 $ KGFK 160653Z AUTO 32008KT 10SM CLR M25/M28 A3085 RMK AO2 SLP480 T12501283 TSNO $ KGFL 160653Z AUTO 00000KT 4SM -SN BR OVC048 M12/M14 A3048 RMK AO2 SNB16E35B48 SLP334 P0000 T11171139 KGGE 160715Z AUTO 00000KT 10SM CLR M01/M07 A3045 RMK AO2 KGGG 160700Z AUTO 34014G22KT 9SM -SN SCT010 SCT014 OVC044 M03/M03 A3054 RMK AO2 P0000 T10281028 KGGI 160715Z AUTO 30014KT 10SM CLR M22/M25 A3056 RMK AO2 T12181250 KGGP 160655Z AUTO 25012KT 7SM OVC024 M16/M19 A3041 RMK AO2 KGGW 160653Z AUTO 11015KT 10SM CLR A3059 RMK AO2 SLPNO $ KGHG 160655Z AUTO 10SM OVC007 M04/M05 A3049 RMK AO2 KGHW 160655Z AUTO 32008KT 10SM CLR M23/M26 A3065 RMK AO2 KGIC 160655Z AUTO 00000KT 7SM CLR 00/00 A3013 RMK AO1 KGIF 160653Z AUTO 03008KT 10SM BKN065 08/06 A3035 RMK AO2 SLP275 T00830061 KGJT 160653Z AUTO VRB03KT 10SM CLR M02/M08 A3038 RMK AO2 SLP293 T10171083 401001072 KGKJ 160658Z AUTO 23004KT 3SM -SN BR BKN007 BKN012 OVC019 M04/M05 A3026 RMK AO2 P0000 T10441050 KGKT 160655Z AUTO 00000KT 10SM SCT048 M04/M05 A3033 RMK A01 KGKY 160653Z AUTO 34017G26KT 10SM UP OVC060 M03/M10 A3065 RMK AO2 PK WND 33026/0645 UPB33SNE29B36E47 SLP381 P0000 T10281100 $ KGLD 160653Z AUTO 30011KT 10SM CLR M18/M21 A3063 RMK AO2 SLP438 T11781211 410061183 KGLE 160655Z AUTO 34013G25KT 10SM OVC085 M06/M18 A3071 RMK AO2 T10631176 KGLH 160653Z AUTO 36017KT 10SM OVC011 M01/M03 A3050 RMK AO2 PK WND 01027/0625 SLP336 T10061033 KGLR 160702Z AUTO 04008KT 2SM -SN BR OVC015 M11/M11 A3027 RMK AO2 P0000 T11061111 $ KGLS 160652Z AUTO 11011KT 10SM OVC095 14/13 A3031 RMK AO2 SLP263 T01440128 KGLW 160655Z AUTO 36005KT 3SM -SN SCT011 BKN027 OVC036 M07/M08 A3045 RMK AO2 T10721085 KGLY 160655Z AUTO 10SM FEW019 M18/M23 A3069 RMK AO2 KGMJ 160655Z AUTO 34009KT 10SM SCT033 M12/M16 A3072 RMK AO2 KGMU 160653Z AUTO 35004KT 10SM CLR M01/M08 A3042 RMK AO2 SLP310 T10061078 KGNA 160656Z AUTO 36013G29KT M11/M15 A3054 RMK AO1 PK WND 34029/0653 SLP361 T11061150 KGNB 160650Z AUTO 06004KT 10SM CLR M20/M23 A3043 RMK AO2 T12031232 410151216 KGNC 160655Z AUTO 04007KT 10SM CLR M05/M14 A3062 RMK AO2 T10551145 KGNR 160656Z AUTO 03003KT A3042 RMK AO1 SLPNO P0002 $ KGNT 160655Z AUTO 17012G20KT 10SM CLR M02/M07 A3034 RMK AO2 T10251067 401341096 KGNV 160653Z AUTO 00000KT 10SM CLR M01/M02 A3041 RMK AO2 SLP299 T10061017 KGOK 160653Z AUTO 36009G19KT 10SM CLR M12/M19 A3076 RMK AO2 SLP436 T11171194 KGON 160656Z AUTO 03006KT 10SM OVC035 M04/M09 A3048 RMK AO2 SLP320 T10441094 KGOO 160655Z AUTO 00000KT 10SM SCT070 10/02 A3016 RMK AO1 KGOP 160655Z AUTO 00000KT 10SM OVC041 M02/M06 A3060 RMK AO2 KGOV 160655Z AUTO 02009KT 3SM -SN M09/M11 A3028 RMK AO2 T10951115 KGPC 160655Z AUTO 26004KT 10SM CLR M16/M20 A3045 RMK AO2 KGPH 160715Z AUTO 31007KT 10SM CLR M17/M23 A3070 RMK AO2 KGPI 160655Z 23004KT 1/4SM FZFG VV001 M09/M09 A3030 RMK AO2 SLP299 I1001 T10891094 400441094 KGPM 160655Z AUTO 33013G18KT 10SM SCT005 SCT009 BKN031 M02/M09 A3067 RMK AO2 T10201091 KGPT 160653Z AUTO 00000KT 9SM CLR 04/03 A3037 RMK AO2 SLP283 T00390028 KGPZ 160656Z AUTO 36011KT 6SM -SN BR OVC007 M18/M20 A3064 RMK AO2 SLP419 P0000 T11831200 FZRANO KGRB 160706Z AUTO 35008KT 5SM -SN BR SCT015 BKN023 OVC060 M09/M11 A3036 RMK AO2 P0000 T10891111 KGRD 160656Z AUTO 00000KT 10SM CLR M05/M07 A3044 RMK AO2 SLP314 T10501072 KGRF 160709Z AUTO 00000KT 10SM OVC044 09/09 A3000 RMK AO2 RAE09 SLP164 $ KGRI 160653Z AUTO 33014KT 10SM CLR M19/M22 A3069 RMK AO2 SLP447 T11891222 KGRK 160658Z AUTO 02020G27KT 10SM SCT015 BKN021 OVC032 M01/M05 A3053 RMK AO2 PK WND 34030/32 FZRAE0558UPB0558E08 CIG 014V021 BKN V OVC SLP343 P0000 KGRN 160655Z AUTO 32005KT 10SM CLR M22/M25 A3063 RMK AO2 T12221255 KGRR 160704Z AUTO 06004KT 1 1/2SM -SN BR OVC024 M09/M11 A3028 KGRY 160700Z AUTO 11006KT 10SM 18/09 A3034 RMK A01 KGSB 160656Z AUTO 00000KT 10SM CLR M03/M06 A3043 RMK AO2 SLP309 T10311057 $ KGSH 160653Z AUTO 23008KT 10SM CLR M17/M19 A3035 RMK AO2 SLP294 T11671194 KGSO 160654Z 00000KT 10SM CLR M05/M10 A3040 RMK AO2 SLP304 T10501100 KGSP 160653Z AUTO 34003KT 10SM CLR M03/M07 A3043 RMK AO2 SLP310 T10331072 KGTB 160700Z AUTO 15010KT 7SM FEW006 BKN026 M08/M11 A3033 RMK AO2 SNE0658 CIG 024 RWY21 SLP286 KGTF 160653Z 17016KT 10SM CLR M05/M12 A3027 RMK AO2 SLP314 T10501122 410501144 KGTR 160656Z AUTO 34008KT 10SM CLR M01/M03 A3041 RMK AO2 SLP300 T10061028 FZRANO KGTU 160656Z AUTO 35020G29KT 10SM UP OVC015 00/M02 A3055 RMK AO2 PK WND 34029/0649 RAE17UPB55 SLP350 P0000 T00001022 FZRANO KGUC 160656Z AUTO 00000KT 10SM CLR M09/M13 A3033 RMK AO2 SLP332 T10941128 FZRANO KGUL 160655Z AUTO 12009KT 10SM FEW043 18/10 A3033 RMK A01 KGUP 160653Z AUTO 00000KT 10SM CLR M04/M07 A3028 RMK AO2 SLP244 T10391072 401331100 KGUS 160655Z AUTO 26013KT 10SM BKN006 OVC022 M16/M18 A3039 RMK AO2 SNE00 SLP311 KGUY 160653Z AUTO 36007KT 10SM CLR M14/M20 A3068 RMK AO2 SLP429 T11441200 KGVE 160655Z AUTO 00000KT 10SM CLR M05/M06 A3043 RMK AO1 T10511061 KGVL 160653Z AUTO 00000KT 10SM CLR M02/M05 A3041 RMK AO2 SLP304 T10171050 KGVT 160650Z AUTO 36018G23KT 10SM BKN060 OVC070 M02/M11 A3064 RMK AO2 KGWB 160655Z AUTO 25006KT 10SM OVC014 M14/M17 A3035 RMK AO2 KGWO 160653Z AUTO 34009G20KT 10SM OVC018 02/M01 A3046 RMK AO2 SLP315 T00221011 KGWR 160655Z AUTO 33010KT 10SM M23/M27 A3078 RMK A01 KGWW 160655Z AUTO 00000KT 10SM CLR M04/M05 A3045 RMK AO2 T10401048 KGXA 160655Z AUTO 22003KT 10SM CLR 09/M14 A3016 RMK AO2 SLP194 WND DATA ESTMD T00881145 KGXF 160658Z AUTO 14008KT 10SM CLR 13/01 A3007 RMK AO2 SLP177 T01280012 402220068 KGXY 160656Z AUTO 23004KT 10SM CLR M18/M21 A3057 RMK AO2 SLP438 T11781206 400061183 FZRANO KGYB 160655Z AUTO 01016G25KT 10SM BKN009 OVC014 A3047 RMK AO2 KGYH 160147Z 00000KT 10SM SKC 01/M07 A3041 RMK LAST KGYI 160655Z AUTO 35020G24KT 10SM OVC085 M06/M14 A3069 RMK AO2 T10571140 KGYL 160659Z AUTO 30010KT 10SM SCT015 BKN070 M20/M23 A3062 RMK AO2 KGYR 160347Z 24004KT 10SM SCT250 14/03 A3007 RMK LAST KGYY 160655Z AUTO 23007KT 2 1/2SM -SN BKN012 BKN018 OVC034 M13/M16 A3037 RMK AO2 T11301162 KGZH 160653Z AUTO 00000KT 7SM CLR M01/M02 A3040 RMK AO2 SLP294 T10061022 KGZN 160620Z AUTO 36012G19KT 10SM FEW046 OVC055 M04/M16 A3062 RMK AO2 KGZS 160655Z AUTO 34006KT 10SM OVC060 01/M02 A3039 RMK A01 KHAE 160655Z AUTO 29009KT 10SM SCT043 SCT050 SCT070 M17/M23 A3058 RMK AO2 KHAF 160655Z AUTO 19004KT 1 1/4SM BR OVC009 13/12 A3014 RMK AO2 KHAI 160655Z AUTO 24006KT 5SM -SN M12/M15 A3032 RMK AO2 T11231150 KHAO 160653Z AUTO 30010KT 10SM FEW120 M11/M15 A3044 RMK AO2 SLP320 T11111150 KHBG 160653Z AUTO 00000KT 10SM CLR 00/M01 A3038 RMK AO2 SLP288 T00001006 KHBI 160715Z AUTO 00000KT 10SM CLR M06/M11 A3045 RMK AO2 T10561114 KHBR 160653Z AUTO 02015G25KT 10SM FEW110 M08/M18 A3072 RMK AO2 PK WND 01029/0611 SLP420 T10831178 KHBV 160655Z AUTO 00000KT 10SM SCT033 BKN046 OVC055 12/10 A3028 RMK AO2 T01160097 KHCD 160655Z AUTO 29009KT 10SM BKN013 BKN060 M20/M23 A3064 RMK AO2 T12051233 KHCO 160655Z AUTO 35005KT 10SM CLR M26/M29 A3083 RMK AO2 KHCR 160655Z AUTO 00000KT 10SM CLR M03/M06 A3036 RMK AO2 KHDC 160655Z AUTO 00000KT 10SM CLR 01/01 A3037 RMK AO2 KHDE 160655Z AUTO 34013G25KT 10SM CLR M18/M22 A3068 RMK AO2 T11761216 KHDN 160656Z AUTO 10008KT 10SM CLR M13/M18 A3045 RMK AO2 SLP384 T11331178 FZRANO KHDO 160651Z AUTO 02020G27KT 5SM RA FEW014 OVC024 07/04 A3041 RMK AO2 PK WND 02035/0605 RAB10E20B36 SLP291 P0001 T00720039 KHEF 160656Z AUTO 00000KT 10SM BKN011 M06/M07 A3046 RMK AO2 SLP328 T10561072 FZRANO PNO $ KHEI 160653Z AUTO 00000KT 10SM CLR M28/M31 A3071 RMK AO2 SLP489 T12781306 411941306 $ KHEQ 160650Z AUTO 32005KT 10SM CLR M17/M21 A3064 RMK AO2 KHEY 160658Z AUTO 00000KT 10SM CLR 00/M01 A3039 RMK AO2 SLP295 T10041011 FZRANO KHEZ 160656Z AUTO 00000KT 10SM SCT070 BKN090 02/M01 A3037 RMK AO2 SLP291 T00171011 FZRANO KHFD 160653Z AUTO 36003KT 10SM CLR A3051 RMK AO2 SLP333 $ KHFF 160356Z AUTO 00000KT 10SM CLR M05/M08 A3047 RMK AO2 SLP339 T10551080 $ KHFJ 160650Z AUTO 31006KT 10SM SCT016 BKN025 M16/M19 A3063 RMK AO2 KHFY 160655Z AUTO 28008G14KT 10SM CLR M15/M19 A3044 RMK AO2 T11461187 KHGR 160709Z AUTO 18005KT 6SM BR BKN010 M03/M06 A3040 RMK AO2 T10331056 KHHF 160655Z AUTO 02007KT 10SM CLR M12/M19 A3072 RMK AO2 T11161188 KHHG 160655Z AUTO 25010KT 10SM OVC019 M14/M17 A3037 RMK AO2 T11451175 TSNO KHHR 160653Z AUTO 00000KT 5SM CLR 15/14 A3013 RMK AO2 SLP200 T01500139 $ KHHV 160655Z AUTO 15011G16KT 10SM CLR 19/10 A3030 RMK A01 KHHW 160655Z AUTO 35016G21KT 10SM OVC085 M06/M15 A3066 RMK AO2 T10561146 KHIB 160653Z AUTO 35010KT 6SM BR OVC009 M18/M19 A3060 RMK AO2 SLP402 T11781194 KHIE 160652Z AUTO 00000KT 10SM CLR M18/M20 A3045 RMK AO2 SLP340 T11781200 KHIF 160658Z AUTO 09018G23KT 10SM CLR 03/M06 A3030 RMK AO2 PK WND 10029/05 SLP260 T00281061 400671016 KHII 160655Z AUTO 14005KT 10SM CLR 14/03 A3010 RMK AO2 KHIO 160653Z AUTO 12006KT 6SM -RA BR OVC048 08/07 A3003 RMK AO2 RAB07E19B46 SLP170 P0001 T00780067 KHJH 160655Z AUTO 31004KT 10SM SCT037 M18/M22 A3073 RMK AO2 T11851220 KHJO 160653Z AUTO 29004KT 1 3/4SM BR CLR 09/08 A3016 RMK AO2 SLP217 T00890083 KHKA 160653Z AUTO 35016KT 1 3/4SM -SN BR OVC019 M08/M08 A3059 RMK AO2 SLP362 P0000 T10831083 $ KHKS 160653Z AUTO 30003KT 9SM FEW065 01/M02 A3036 RMK AO2 SLP278 T00061017 $ KHKY 160653Z AUTO 00000KT 10SM CLR M06/M09 A3040 RMK AO2 SLP298 T10561089 KHLB 160655Z AUTO RMK A01 PNO KHLC 160653Z AUTO 31006KT 10SM CLR M17/M21 A3073 RMK AO2 SLP455 T11671211 KHLG 160653Z AUTO 22005KT 3SM -SN BR OVC045 M03/M05 A3030 RMK AO2 SLP280 P0001 T10331050 KHLN 160653Z AUTO 00000KT CLR M10/M11 A3038 RMK AO2 SLPNO T11001111 $ KHLR 160658Z AUTO 36018G29KT 10SM BKN016 OVC036 M01/M04 A3052 RMK AO2 PK WND 01029/48 SNE09 SLP338 P0000 T10131039 KHLX 160655Z AUTO 18004KT 10SM CLR M05/M12 A3029 RMK AO2 T10471120 KHME 160650Z 12008KT 9999 FEW035 06/M04 Q1022 KHMN 160658Z AUTO 22014KT 10SM CLR 01/M05 A3040 RMK AO2 SLP273 T00131054 401751042 KHMP 160655Z AUTO 00000KT 10SM CLR M02/M04 A3040 RMK AO2 T10241038 KHMZ 160655Z AUTO 00000KT 10SM OVC050 M04/M10 A3034 RMK AO2 T10441096 KHNB 160706Z AUTO 32012KT 10SM FEW016 SCT026 OVC110 M13/M16 A3054 RMK AO2 FZRANO KHND 160656Z AUTO 17004KT 10SM CLR 11/04 A3017 RMK AO2 SLP213 T01110039 $ KHNR 160655Z AUTO 33014KT 10SM FEW019 FEW027 M21/M24 A3068 RMK AO2 KHNZ 160700Z AUTO 00000KT 10SM CLR M07/M09 A3043 RMK AO2 T10691095 KHOB 160655Z AUTO 05012G20KT 10SM OVC046 M05/M14 A3058 RMK AO2 KHOE 160655Z AUTO 00000KT 10SM CLR 00/00 A3042 RMK AO2 KHON 160655Z AUTO 34012G20KT 10SM OVC016 M22/M25 A3080 RMK AO2 SLP470 T12171250 $ KHOP 160708Z 32011KT 2 3/4SM R23/6000FT -SN BR FEW002 OVC012 M10/M12 A3052 RMK AO2A SNB0603 PRESRR SLP345 KHOT 160707Z AUTO 34008KT 4SM -SN BKN018 BKN026 OVC085 M04/M07 A3058 RMK AO2 P0000 T10441072 KHOU 160653Z 11004KT 10SM SCT049 OVC065 12/11 A3031 RMK AO2 SLP268 T01170111 KHPN 160656Z 02003KT 10SM BKN011 M06/M10 A3045 RMK AO2 SLP324 T10611100 KHQG 160655Z AUTO 30003KT 10SM CLR M18/M22 A3069 RMK AO2 T11771222 KHQI 160655Z AUTO 11012KT 10SM BKN041 BKN048 18/10 A3032 RMK A01 KHQM 160653Z AUTO 10010KT 10SM BKN028 OVC034 11/08 A2995 RMK AO2 RAE06 SLP146 P0000 T01060078 KHQU 160655Z AUTO 00000KT 10SM CLR M04/M05 A3049 RMK AO2 T10421054 KHQZ 160655Z AUTO 35019G26KT 10SM SCT049 BKN055 OVC065 M03/M11 A3065 RMK AO1 T10311112 KHRI 160653Z AUTO 19004KT 10SM OVC016 03/03 A3017 RMK AO2 SLP219 T00330028 $ KHRJ 160655Z AUTO 00000KT 10SM CLR M04/M07 A3044 RMK AO2 T10381075 KHRL 160652Z AUTO 10006KT 10SM SCT047 OVC070 16/13 A3024 RMK AO2 SLP241 T01610128 $ KHRO 160653Z AUTO 34011G20KT 10SM SCT024 M13/M18 A3058 RMK AO2 SLP378 T11331183 KHRT 160656Z AUTO 00000KT 10SM CLR 01/00 A3039 RMK AO2 SLP293 T00141001 $ KHRX 160655Z AUTO 10SM CLR M06/M17 A3062 RMK AO2 T10631172 KHSA 160155Z 00000KT 10SM CLR 04/04 A3040 KHSB 160655Z AUTO 32010KT 10SM CLR M11/M17 A3059 RMK AO2 T11151166 KHSD 160655Z AUTO 35017KT 10SM CLR M11/M19 A3074 RMK A01 KHSG 160650Z AUTO 02003KT 10SM CLR M14/M16 A3047 RMK AO2 T11421161 410041171 KHSI 160653Z AUTO 34017KT 10SM CLR M18/M23 A3069 RMK AO2 SLP443 T11831233 KHSP 160655Z AUTO 23010KT 10SM SCT110 M02/M08 A3022 RMK AO2 T10201080 KHST 160656Z AUTO 05012KT 10SM CLR 19/18 A3021 RMK AO2 SLP233 T01930176 KHSV 160653Z AUTO 01004KT 10SM CLR 01/M03 A3036 RMK AO2 SLP283 T00061033 KHTH 160655Z AUTO VRB03KT 10SM CLR 03/M03 A3017 RMK A01 KHTL 160706Z AUTO 00000KT 9SM SCT027 OVC050 M16/M17 A3027 KHTO 160655Z AUTO 00000KT 10SM OVC030 M04/M07 A3048 RMK AO2 T10381066 KHTS 160651Z 00000KT 10SM BKN017 OVC024 M01/M04 A3035 RMK AO2 UPB02E03 SLP283 P0000 T10061044 KHUA 160658Z AUTO 05006KT 10SM SCT190 M01/M04 A3035 RMK AO2 SLP283 T10081040 KHUF 160653Z 28007KT 10SM CLR M17/M22 A3050 RMK AO2 SLP341 T11671217 KHUL 160653Z AUTO 01006KT 6SM BR OVC019 M14/M16 A3053 RMK AO2 SNE17 SLP351 P0000 T11391161 KHUM 160655Z AUTO 00000KT 1 1/4SM BR SCT001 03/03 A3037 RMK AO2 T00310030 KHUT 160652Z AUTO 33007KT 10SM CLR M16/M20 A3073 RMK AO2 SLP432 T11611200 KHVE 160655Z AUTO 33005KT 10SM CLR 00/M05 A3040 RMK AO2 KHVN 160653Z AUTO 00000KT CLR M08/M13 A3049 RMK AO2 SLP325 T10781133 $ KHVR 160653Z AUTO 27003KT 10SM CLR M34/M37 A3043 RMK AO2 SLP400 T13391367 412111344 $ KHVS 160655Z AUTO 00000KT 10SM CLR M05/M08 A3044 RMK AO2 KHWD 160654Z AUTO 00000KT 9SM OVC028 13/08 A3015 RMK AO2 SLP219 T01330083 KHWO 160653Z AUTO -RA A3025 RMK AO2 SLP245 PNO $ KHWV 160656Z AUTO 00000KT 10SM CLR M08/M09 A3050 RMK AO2 SLP328 I1000 T10781089 KHWY 160655Z AUTO 00000KT 10SM OVC004 M04/M07 A3044 RMK AO2 T10441066 KHXD 160715Z AUTO 02003KT 10SM CLR 02/M03 A3044 RMK AO2 KHYA 160656Z AUTO 36010KT 9SM OVC023 M01/M03 A3044 RMK AO2 SLP309 T10061028 $ KHYI 160656Z AUTO 01022G38KT 10SM SCT011 SCT017 OVC023 03/01 A3049 RMK AO2 PK WND 01038/0648 RAE48 PRESRR SLP323 P0001 T00330011 $ KHYR 160653Z AUTO VRB04KT 1 1/4SM -SN OVC017 M10/M13 A3049 RMK AO2 SLP351 P0000 T11001128 KHYS 160656Z AUTO 33012KT 10SM CLR M16/M21 A3073 RMK AO2 SLP449 T11611206 FZRANO KHYW 160655Z AUTO 00000KT 7SM CLR M04/M04 A3045 RMK AO2 KHYX 160655Z AUTO 00000KT 1 1/4SM -SN OVC040 M13/M14 A3029 RMK AO2 KHZD 160655Z AUTO 35008G16KT 320V020 2SM BR BKN003 BKN013 OVC023 M07/M09 A3051 RMK A01 KHZE 160715Z AUTO 10SM M30/M34 A3081 RMK AO2 KHZL 160655Z AUTO 00000KT 10SM OVC008 M05/M07 A3037 RMK AO2 KHZR 160655Z AUTO 14006KT 10SM CLR 05/01 A3034 RMK AO2 T00500014 KHZX 160655Z AUTO 35009KT 10SM OVC010 M16/M18 A3061 RMK AO2 KHZY 160710Z AUTO 29008KT 10SM BKN014 OVC020 M04/M06 A3030 RMK AO2 T10391061 KI19 160655Z AUTO 28007KT 10SM OVC015 M09/M12 A3039 RMK AO2 T10921117 KI23 160655Z AUTO 30011KT 3SM OVC006 M09/M09 A3036 RMK AO1 KI35 160655Z AUTO 00000KT 10SM CLR 01/M05 A3031 RMK AO1 KI63 160655Z AUTO 29012KT 10SM CLR M19/M23 A3055 RMK AO2 T11901230 KI67 160655Z AUTO 30006G14KT 10SM BKN120 M10/M15 A3044 RMK AO1 KI68 160715Z AUTO 28013G17KT 10SM SCT120 M11/M15 A3041 RMK AO2 KI69 160655Z AUTO 30011KT 4SM -SN SCT020 SCT060 OVC075 M10/M13 A3042 RMK AO2 T11001130 KI75 160655Z AUTO 30010G16KT 10SM BKN024 M20/M23 A3060 RMK AO2 T11981235 KIAB 160656Z AUTO 35012KT 10SM CLR M15/M20 A3073 RMK AO2 SLP439 T11471199 KIAD 160652Z 19004KT 8SM OVC008 M03/M03 A3045 RMK AO2 SLP315 T10281033 KIAG 160705Z AUTO 00000KT 10SM SCT024 OVC032 M04/M07 A3029 RMK AO2 T10441072 KIAH 160653Z 36009KT 10SM -RA SCT013 BKN042 OVC100 12/10 A3034 RMK AO2 RAB47 SLP274 P0000 T01220100 $ KIBM 160655Z AUTO 30003KT 10SM CLR M18/M22 A3052 RMK AO2 T11841217 410321185 KICL 160655Z AUTO 34010KT 10SM BKN013 BKN033 BKN039 M20/M23 A3070 RMK AO2 KICR 160653Z AUTO 32012KT 10SM CLR M21/M24 A3077 RMK AO2 SLP478 T12061244 KICT 160653Z 34008KT 10SM FEW033 FEW250 M14/M19 A3075 RMK AO2 SLP439 T11391189 $ KIDA 160653Z AUTO 33003KT 10SM CLR M03/M04 A3036 RMK AO2 SLP311 T10331044 400441050 KIDI 160655Z AUTO 22004KT 3SM BR FEW003 SCT023 OVC041 M04/M06 A3032 RMK A01 KIDP 160655Z AUTO 31010KT 10SM CLR M15/M19 A3076 RMK AO2 T11471189 KIEN 160652Z AUTO 00000KT 10SM CLR M28/M31 A3068 RMK AO2 SLP488 T12781306 411331278 KIER 160655Z AUTO 34010KT 10SM OVC050 08/04 A3041 RMK AO2 T00790039 KIFA 160715Z AUTO 30012KT 10SM CLR M21/M25 A3056 RMK AO2 T12151246 KIFP 160655Z AUTO 01005KT 10SM CLR 17/04 A3009 RMK AO2 KIGM 160651Z AUTO 09008KT 10SM CLR 08/01 A3018 RMK AO2 SLP181 T00830006 401830017 KIGQ 160655Z AUTO 23009KT 2SM -SN OVC032 M15/M17 A3037 RMK AO2 T11481166 KIGX 160656Z AUTO 00000KT 10SM CLR M05/M08 A3044 RMK AO2 SLP312 T10501083 KIIB 160655Z AUTO 31013G19KT 10SM SCT048 M21/M23 A3049 RMK AO2 T12061235 KIIY 160655Z AUTO 00000KT 10SM CLR M02/M05 A3042 RMK AO2 TSNO KIJD 160652Z AUTO 02003KT 10SM OVC032 M05/M11 A3048 RMK AO2 SLP325 T10501106 KIJX 160655Z AUTO 28012KT 10SM CLR M18/M22 A3056 RMK AO2 T11841222 KIKG 160655Z AUTO 35003KT 10SM BKN070 14/13 A3029 RMK AO2 T01370125 KIKK 160655Z AUTO 25014KT 10SM -SN BKN023 BKN029 OVC070 M17/M20 A3042 RMK AO2 T11701200 KIKT 160655Z AUTO 10009KT 10SM BKN036 BKN042 17/09 A3037 RMK A01 KIKV 160655Z AUTO 31013KT 10SM BKN011 BKN026 BKN035 M21/M25 A3062 RMK AO2 KIKW 160655Z AUTO 00000KT 10SM -SN CLR M15/M17 A3030 RMK AO2 T11511171 KILE 160656Z AUTO 36017G22KT 10SM OVC035 M01/M03 A3056 RMK AO2 PK WND 35032/0608 UPE27 SLP372 P0000 T10061033 FZRANO KILG 160651Z AUTO 05006KT 10SM OVC017 M01/M04 A3048 RMK AO2 SLP321 T10111039 KILM 160653Z AUTO 31004KT 10SM CLR M03/M04 A3044 RMK AO2 SLP307 T10281039 $ KILN 160654Z AUTO 29014KT 4SM -SN BR FEW013 OVC044 M09/M11 A3035 RMK AO2 SNE02B35 SLP315 P0000 T10941111 KIML 160653Z AUTO 32010KT 10SM CLR M18/M22 A3067 RMK AO2 SLP458 T11781217 410281178 KIMM 160655Z AUTO 01006KT 10SM SCT036 OVC043 11/09 A3029 RMK AO2 KIMS 160655Z AUTO 27007KT 10SM BKN100 OVC120 M10/M14 A3045 RMK AO1 KIMT 160654Z AUTO 00000KT 10SM FEW007 M20/M23 A3037 RMK AO2 SLP315 I1000 T12001228 KIND 160654Z 25010KT 10SM FEW040 SCT180 M17/M20 A3044 RMK AO2 SLP324 T11721200 KINF 160655Z AUTO 03003KT 10SM CLR 05/03 A3037 RMK AO2 KINJ 160655Z AUTO 36018G27KT 10SM UP OVC050 M02/M06 A3060 RMK AO2 T10191065 KINK 160653Z AUTO 04014KT 10SM OVC040 M02/M17 A3060 RMK AO2 SLP355 T10171172 $ KINL 160655Z AUTO 33006KT 10SM OVC007 M18/M21 A3068 RMK AO2 SLP427 T11831206 KINS 160658Z AUTO 00000KT 10SM CLR 09/02 A3015 RMK AO2 SLP192 T00920023 $ KINT 160654Z AUTO 00000KT 10SM CLR M04/M11 A3042 RMK AO2 SLP311 T10441111 KINW 160656Z AUTO 22007KT 10SM CLR M02/M08 A3026 RMK AO2 SLP247 T10171083 401441067 KIOB 160655Z AUTO 32005KT 10SM OVC017 M04/M06 A3039 RMK AO2 KIOW 160652Z AUTO 29011KT 10SM OVC012 M18/M23 A3055 RMK AO2 SLP361 T11831233 KIPJ 160700Z AUTO 00000KT 10SM CLR M07/M09 A3042 RMK AO2 T10681088 KIPL 160653Z AUTO 00000KT 10SM CLR 14/05 A3006 RMK AO2 SLP178 T01440050 TSNO KIPT 160710Z AUTO 03006KT 3SM -SN BR OVC015 M04/M07 A3041 RMK AO2 P0000 T10441067 KIRK 160655Z AUTO 29010KT 10SM CLR M20/M22 A3059 RMK AO2 SLP387 T12001217 KIRS 160655Z AUTO 25009KT 10SM BKN012 BKN018 M13/M16 A3031 RMK AO2 T11351160 KISM 160656Z AUTO 36005KT 10SM CLR 08/06 A3034 RMK AO2 SLP278 T00830061 KISN 160652Z AUTO 22003KT 10SM CLR M27/M31 A3072 RMK AO2 SLP476 T12721311 KISO 160655Z AUTO 00000KT 10SM CLR M03/M05 A3045 RMK AO2 T10341048 KISP 160711Z AUTO 00000KT 10SM OVC010 M04/M06 A3049 RMK AO2 T10441061 KISQ 160655Z AUTO 02005KT 10SM CLR M14/M15 A3039 RMK AO2 T11451152 KISW 160654Z AUTO 36007KT 10SM CLR M12/M14 A3040 RMK AO2 SLP317 T11171144 KITH 160656Z AUTO 17007KT 10SM -SN FEW035 BKN055 OVC070 M06/M08 A3033 RMK AO2 SNE32B52 SLP288 P0000 T10611078 TSNO KITR 160653Z AUTO 31006KT 10SM CLR M20/M22 A3060 RMK AO2 SLP438 T12001222 400111200 KIWA 160648Z 12005KT 20SM SKC 09/02 A3010 KIWD 160711Z AUTO 00000KT 1 1/4SM -SN BR OVC010 M16/M17 A3045 RMK AO2 CIG 007V012 P0000 FZRANO KIWI 160653Z AUTO 36004KT 10SM OVC030 M09/M12 A3054 RMK AO2 SLP342 T10941122 KIXA 160655Z AUTO 00000KT 10SM CLR M04/M05 A3044 RMK AO2 KIXD 160653Z AUTO 32010KT 10SM CLR M18/M23 A3070 RMK AO2 SLP418 T11831228 KIYA 160655Z AUTO 10SM CLR 04/04 A3035 RMK AO2 T00430043 KIZA 160655Z AUTO 00000KT 5SM HZ OVC005 A3017 RMK AO2 KIZG 160654Z AUTO 00000KT 10SM OVC028 M09/M13 A3052 RMK AO2 SLP345 T10891128 KJAC 160712Z AUTO 02005KT 6SM BR BKN001 M16/M18 A3043 RMK AO2 FZRANO KJAN 160654Z AUTO 00000KT 10SM CLR 00/M03 A3034 RMK AO2 SLP276 T00001028 $ KJAQ 160655Z AUTO 13003KT 10SM CLR 13/04 A3014 RMK AO1 T01330041 KJAS 160655Z AUTO 00000KT 10SM SCT035 OVC060 10/07 A3041 RMK AO2 T01000072 KJAU 160655Z AUTO VRB03KT 10SM BKN055 BKN065 M02/M04 A3036 RMK A01 KJAX 160656Z 00000KT 10SM CLR 02/00 A3040 RMK AO2 SLP293 T00220000 KJBR 160653Z AUTO 35009G19KT 5SM -SN OVC031 M08/M12 A3060 RMK AO2 SLP363 P0000 T10781117 FZRANO $ KJCA 160655Z AUTO 00000KT 10SM CLR M02/M05 A3041 RMK AO2 KJCT 160651Z AUTO 02015G23KT 10SM OVC028 00/M11 A3053 RMK AO2 PK WND 02029/0611 SLP326 T00001111 KJDD 160655Z AUTO 01009G18KT 3/4SM -SN BR BKN010 OVC013 M06/M08 A3062 RMK AO2 P0001 KJEF 160653Z AUTO 30007KT 10SM CLR M16/M22 A3067 RMK AO2 SLP386 T11611217 KJER 160653Z AUTO 05021KT 10SM CLR 02/M04 A3024 RMK AO2 PK WND 04028/0648 SLP253 T00171044 400941006 KJES 160656Z AUTO 00000KT 10SM CLR M01/M02 A3043 RMK AO2 KJFK 160651Z 04008KT 10SM OVC013 M04/M07 A3050 RMK AO2 SLP326 T10391067 KJFX 160655Z AUTO 10SM CLR M04/M04 A3037 RMK AO2 PWINO KJFZ 160655Z AUTO 21004KT 10SM CLR 00/M06 A3028 RMK AO2 T00001065 KJGG 160655Z AUTO 00000KT 5SM OVC003 01/M02 A3046 RMK AO1 KJHN 160655Z AUTO 34010KT 10SM CLR M15/M20 A3067 RMK AO2 T11551205 KJHW 160656Z AUTO 18005KT 7SM -SN BKN020 BKN027 OVC035 M08/M09 A3023 RMK AO2 SLP273 P0000 T10781089 FZRANO KJKA 160655Z AUTO 00000KT 10SM CLR 01/01 A3039 RMK AO2 T00060006 KJKJ 160655Z AUTO 34004KT 10SM OVC013 M24/M28 A3080 RMK AO2 KJKL 160653Z AUTO 29004KT 10SM BKN012 OVC019 M01/M04 A3033 RMK AO2 SLP278 T10111039 $ KJLN 160653Z AUTO 32007KT 10SM CLR M17/M20 A3070 RMK AO2 SLP414 T11671200 $ KJMR 160655Z AUTO 35005KT 10SM CLR M16/M19 A3059 RMK AO2 KJMS 160656Z AUTO 31010KT 10SM CLR M24/M28 A3077 RMK AO2 SLP475 T12441278 KJNX 160715Z AUTO 00000KT 10SM CLR M05/M05 A3045 RMK AO2 KJOT 160655Z AUTO 25007KT 210V270 5SM -SN SCT007 BKN021 OVC026 M16/M18 A3039 RMK AO2 T11581183 KJQF 160705Z AUTO 00000KT 10SM CLR M05/M08 A3046 RMK AO2 KJRB 160655Z 06007KT 10SM BKN015 M03/M06 RMK AO2 PWINO FZRANO RVRNO KJSL 160700Z AUTO 00000KT 9SM FEW028 BKN033 OVC060 A3029 RMK A01 P0001 KJSO 160715Z AUTO 01012G19KT 5SM UP SCT007 OVC013 M02/M02 A3052 RMK AO2 T10201025 KJST 160654Z AUTO 21003KT 10SM OVC026 M06/M11 A3023 RMK AO2 SNB21E43 SLP276 P0000 T10611106 KJSV 160655Z AUTO 34013G18KT 10SM SCT032 M08/M15 A3071 RMK AO2 KJTC 160655Z AUTO 20009KT 10SM CLR M01/M09 A3028 RMK AO2 KJVL 160655Z AUTO 31007KT 10SM OVC010 M08/M10 A3033 RMK AO2 KJVW 160655Z AUTO 32005KT 10SM SCT050 01/M01 A3038 RMK AO2 KJWG 160655Z AUTO 35013G19KT 10SM CLR M11/M17 A3074 RMK AO2 T11131166 KJWN 160655Z AUTO 36010KT 9SM OVC016 M06/M08 A3046 RMK A01 KJWY 160655Z AUTO 34022G27KT 10SM -SN SCT046 OVC060 M03/M07 A3064 RMK AO2 T10301072 KJXI 160655Z AUTO 1 1/4SM -SN BKN008 OVC016 M05/M06 A3058 RMK AO2 P0001 T10521063 KJXN 160656Z AUTO 21006KT 6SM BR OVC018 M12/M14 A3028 RMK AO2 SLP272 T11221144 $ KJYG 160655Z AUTO 31016G20KT 5SM -SN SCT035 OVC040 M22/M25 A3064 RMK AO2 KJYL 160655Z AUTO 00000KT 10SM CLR M02/M02 A3044 RMK AO2 T10201022 KJYM 160655Z AUTO 25005KT 10SM -SN OVC018 M11/M14 A3026 RMK AO2 KJYO 160655Z AUTO 00000KT 7SM OVC008 M02/M02 A3045 RMK AO2 KJYR 160655Z AUTO 33012G15KT 10SM OVC022 M18/M21 A3070 RMK AO2 KJZI 160655Z AUTO 36004KT 10SM CLR M01/M05 A3044 RMK AO2 KJZP 160655Z AUTO 14004KT 10SM CLR 01/M05 A3041 RMK AO2 T00061055 PNO KK88 160655Z AUTO 34005KT 10SM M16/M20 A3073 RMK AO1 T11601200 KKLS 160656Z AUTO 14010KT 10SM -RA BKN050 OVC060 08/06 A3003 RMK AO2 SLP173 P0000 T00830061 KKY8 160655Z AUTO 31009G15KT 10SM BKN044 BKN100 M10/M14 A3052 RMK AO1 KL18 160655Z AUTO 34004KT 10SM CLR 13/07 A3012 RMK AO2 KL35 160655Z AUTO 00000KT 10SM 01/M06 A3028 RMK AO2 KLAA 160653Z AUTO 00000KT 10SM CLR M20/M23 A3064 RMK AO2 SLP437 T12001233 400001200 KLAF 160654Z AUTO 25009KT 10SM OVC013 M17/M20 A3045 RMK AO2 SLP321 T11721200 KLAL 160655Z AUTO 03005KT 10SM BKN060 07/05 A3034 RMK AO2 KLAM 160655Z AUTO 19013G20KT 10SM OVC009 M07/M09 A3037 RMK AO2 T10661087 KLAN 160653Z 04003KT 3SM -SN BR FEW028 OVC039 M08/M09 A3027 RMK AO2 SLP266 P0001 T10831094 KLAR 160653Z AUTO 14005KT 10SM CLR M17/M22 A3038 RMK AO2 SLP370 T11721222 410111211 KLAS 160656Z 00000KT 10SM BKN160 OVC220 13/06 A3014 RMK AO2 SLP199 T01330056 KLAW 160653Z AUTO 36018G28KT 10SM BKN120 M07/M17 A3073 RMK AO2 PK WND 01028/0638 SLP417 T10721172 KLAX 160653Z 26008KT 10SM SCT007 BKN150 15/14 A3013 RMK AO2 SLP200 T01500144 KLBB 160653Z 02014KT 10SM OVC060 M06/M19 A3060 RMK AO2 SLP379 BINOVC T10611189 $ KLBE 160655Z AUTO 19005KT 10SM -RA BKN023 OVC030 M02/M04 A3032 RMK AO2 KLBF 160653Z AUTO 32010KT 10SM CLR M18/M24 A3070 RMK AO2 SLP463 T11831239 $ KLBL 160656Z AUTO 31007KT 10SM CLR M18/M21 A3070 RMK AO2 SLP449 T11831211 FZRANO KLBO 160715Z AUTO 32006G14KT 10SM SCT002 SCT017 SCT023 M16/M21 A3060 RMK AO2 KLBT 160654Z AUTO 00000KT 10SM CLR M04/M06 A3044 RMK AO2 SLP310 T10441061 KLBX 160653Z AUTO 00000KT 10SM OVC095 13/11 A3030 RMK AO2 SLP261 T01280106 KLCG 160655Z AUTO 33008KT 10SM BKN023 OVC040 M19/M22 A3069 RMK AO2 T11911225 KLCH 160653Z AUTO 15004KT 10SM BKN080 OVC100 06/05 A3034 RMK AO2 SLP282 T00610050 KLCK 160655Z AUTO 30012G24KT 1 3/4SM -SN OVC008 M05/M05 A3034 RMK AO2 T10461048 KLCQ 160655Z AUTO 04003KT 10SM CLR 01/00 A3040 RMK AO2 KLDJ 160655Z AUTO 00000KT 10SM OVC014 M03/M08 A3050 RMK AO2 T10351077 KLDM 160655Z AUTO 03003KT 10SM OVC070 M11/M12 A3032 RMK AO2 T11151125 KLEB 160653Z AUTO 30003KT 10SM OVC036 M09/M13 A3048 RMK AO2 SLP338 T10891133 KLEE 160653Z AUTO 01003KT 10SM CLR 06/05 A3036 RMK AO2 SLP280 T00610050 KLEW 160656Z AUTO 01008KT 9SM -SN OVC028 M10/M13 A3052 RMK AO2 SLP354 P0000 T11001128 FZRANO KLEX 160654Z 28008KT 2 1/2SM -SN OVC048 M07/M10 A3040 RMK AO2 SLP304 P0001 T10721100 $ KLFI 160656Z AUTO 35004KT 7/8SM R26/2200V3000FT BR VV002 00/00 A3043 RMK AO2 SLP312 T10011002 $ KLFK 160653Z AUTO 33010G21KT 8SM -RA BKN008 OVC012 04/03 A3044 RMK AO2 RAB01 SLP307 P0000 T00440033 KLFT 160653Z AUTO 00000KT 10SM CLR 05/03 A3035 RMK AO2 SLP276 T00500028 $ KLGA 160651Z 10008KT 10SM OVC013 M04/M08 A3049 RMK AO2 SLP323 T10391083 KLGB 160653Z AUTO 30006KT 6SM BR CLR 16/13 A3012 RMK AO2 SLP200 T01560133 $ KLGC 160655Z AUTO 00000KT 10SM CLR M02/M02 A3040 RMK AO2 T10171020 KLGD 160656Z AUTO 14015G27KT 10SM CLR 08/M01 A3016 RMK AO2 PK WND 13034/0636 SLP344 T00831006 KLGU 160651Z AUTO 28004KT 10SM CLR M02/M06 A3035 RMK AO2 SLP294 T10171056 400611056 $ KLHB 160655Z AUTO 34019G23KT 5SM UP BKN013 OVC020 00/00 A3054 RMK AO2 T00000000 KLHM 160655Z AUTO 00000KT 1/4SM OVC003 05/05 A3014 RMK AO1 KLHQ 160708Z AUTO 22005KT 2SM -SN BR BKN020 OVC029 M03/M04 A3032 RMK AO2 P0000 T10331044 KLHW 160656Z AUTO 00000KT 10SM CLR M01/M03 A3041 RMK AO2 SLP301 T10131027 $ KLHX 160653Z AUTO 13005KT 10SM CLR M13/M19 A3059 RMK AO2 SLP411 T11281189 410111133 KLHZ 160655Z AUTO 31003KT 10SM CLR M05/M06 A3046 RMK AO2 KLIC 160655Z AUTO 29009KT 10SM CLR M19/M22 A3051 RMK AO2 SLP418 T11891222 410221206 KLIT 160653Z 36013KT 3/4SM -SN BR SCT015 BKN023 OVC036 M07/M08 A3060 RMK AO2 TWR VIS 3 SLP368 P0001 T10671083 RVRNO KLJF 160656Z AUTO 32006KT 10SM BKN013 BKN060 M21/M23 A3063 RMK AO2 KLKR 160655Z AUTO 00000KT 10SM CLR M05/M09 A3045 RMK AO2 KLKU 160655Z AUTO 00000KT 10SM CLR M08/M09 A3047 RMK AO2 T10791087 KLKV 160656Z AUTO 18009KT 10SM BKN075 BKN090 OVC120 06/00 A3010 RMK AO2 SLP201 T00560000 PNO $ KLLJ 160710Z AUTO 00000KT 2 1/2SM BR OVC002 M04/M05 A3035 RMK AO2 I1000 T10391050 KLLQ 160707Z AUTO 02009G17KT 7SM SCT010 BKN015 OVC037 M02/M04 A3052 RMK AO2 SNE0654 P0000 T10171044 KLMO 160655Z AUTO 00000KT 10SM CLR M15/M20 A3056 RMK AO2 T11511196 KLMT 160653Z AUTO 15006KT BKN080 BKN090 OVC120 08/00 A3008 RMK AO2 SLP174 T00780000 $ KLNA 160655Z AUTO 03012G19KT 10SM BKN040 BKN048 OVC060 19/12 A3026 RMK AO2 T01930124 KLNC 160655Z AUTO 34019G23KT 10SM -SN OVC060 M02/M08 A3065 RMK AO2 T10251079 KLND 160653Z AUTO 23003KT 10SM OVC015 M06/M09 A3046 RMK AO2 SLP366 T10611094 410061061 KLNK 160654Z AUTO 34015G19KT 10SM OVC025 M18/M23 A3073 RMK AO2 SLP437 T11781228 KLNL 160655Z AUTO 00000KT 5SM -SN SCT035 SCT042 SCT055 M15/M17 A3039 RMK AO2 T11501169 KLNN 160655Z AUTO 27009KT 10SM BKN015 BKN023 OVC031 M04/M06 A3031 RMK AO1 T10371058 KLNP 160655Z AUTO 00000KT 10SM SCT110 00/M05 A3028 RMK AO2 KLNR 160656Z AUTO 29007KT 8SM OVC021 M12/M15 A3043 RMK AO2 SLP313 T11221150 KLNS 160653Z AUTO 00000KT 10SM OVC011 M03/M06 A3045 RMK AO2 SLP317 T10281061 KLOL 160653Z AUTO 05005KT 10SM BKN120 M01/M02 A3018 RMK AO2 SLP230 T10061022 TSNO KLOM 160655Z AUTO 00000KT 10SM OVC013 M02/M04 A3048 RMK AO1 KLOR 160658Z AUTO 00000KT 10SM CLR M01/M01 A3040 RMK AO2 SLP279 T10071007 FZRANO $ KLOT 160655Z AUTO 27011G17KT 4SM -SN SCT010 SCT040 SCT055 M17/M19 A3037 RMK AO2 T11661187 KLOU 160653Z AUTO 30005KT 2SM -SN OVC024 M09/M12 A3048 RMK AO2 SLP327 P0000 T10891117 KLOZ 160653Z AUTO 30006KT BKN013 OVC055 M01/M03 A3034 RMK AO2 SLP282 T10061033 PWINO FZRANO $ KLPC 160656Z AUTO 09004KT 10SM CLR 11/09 A3016 RMK AO2 SLP215 T01060094 KLPR 160653Z AUTO 25004KT 8SM OVC049 M07/M10 A3031 RMK AO2 SLP277 T10721100 $ KLQK 160655Z AUTO 00000KT 10SM CLR M06/M06 A3041 RMK AO2 T10611065 KLRD 160656Z 07007KT 10SM BKN050 15/11 A3027 RMK AO2 SLP258 T01500111 KLRF 160656Z 33008KT 4SM -SN FEW012 OVC018 M07/M09 A3059 RMK AO2A SLP365 P0001 T10671094 KLRJ 160655Z AUTO 33016G21KT 10SM OVC017 M20/M24 A3069 RMK AO2 KLRO 160655Z AUTO 00000KT 10SM CLR M01/M03 A3045 RMK AO2 KLRU 160655Z AUTO 13016G22KT 10SM CLR 02/M05 A3034 RMK AO2 T00201055 KLRY 160715Z AUTO 33004KT 10SM CLR M17/M22 A3072 RMK AO2 KLSE 160701Z AUTO 33011KT 9SM SCT021 OVC049 M13/M16 A3048 RMK AO2 T11281161 KLSF 160656Z AUTO 00000KT 10SM CLR M02/M02 A3041 RMK AO2 SLP305 T10231024 $ KLSV 160655Z 00000KT 10SM BKN170 OVC250 11/05 A3015 RMK AO2A SLP211 WND DATA ESTMD ALSTG/SLP DATA ESTMD T01140052 $ KLTS 160656Z AUTO 02013G17KT 10SM CLR M08/M19 A3073 RMK AO2 SLP422 T10821192 $ KLUA 160655Z AUTO 00000KT 10SM CLR M05/M07 A3038 RMK AO2 KLUF 160658Z AUTO 02005KT 10SM CLR 11/04 A3008 RMK AO2 SLP182 T01060038 402270070 VISNO RWY21 $ KLUK 160653Z AUTO 32005KT 4SM -SN SCT023 OVC033 M09/M14 A3046 RMK AO2 SNB15 SLP320 P0000 T10941139 KLUL 160715Z AUTO 00000KT 10SM CLR M01/M01 A3039 RMK AO2 T10151015 KLUM 160655Z AUTO 30008KT 10SM SCT039 OVC047 M13/M16 A3050 RMK AO2 T11301160 KLUX 160655Z AUTO 00000KT 10SM CLR M03/M07 A3043 RMK AO2 KLVJ 160653Z AUTO 05004KT 10SM OVC100 12/11 A3033 RMK AO2 SLP269 T01170106 KLVK 160653Z AUTO 16003KT 6SM BR CLR 10/08 A3014 RMK AO2 SLP206 T01000078 KLVL 160655Z AUTO 00000KT 10SM CLR M05/M06 A3043 RMK AO1 T10501064 KLVM 160653Z AUTO 32006KT 6SM BR OVC003 M07/M07 A3039 RMK AO2 SLP349 I1000 T10721072 410331072 KLVN 160655Z AUTO 30010KT 10SM BKN036 M18/M21 A3057 RMK AO2 KLVS 160701Z AUTO 18007KT 3SM -SN BR OVC002 M09/M10 A3044 RMK AO2 P0000 T10941100 $ KLWA 160655Z AUTO 18007KT 5SM -SN BKN008 OVC014 M10/M13 A3029 RMK AO2 T11051130 KLWB 160655Z AUTO 00000KT 10SM SCT041 SCT110 M05/M07 A3031 RMK AO2 T10491073 KLWC 160652Z AUTO 31008KT 10SM CLR M18/M23 A3073 RMK AO2 SLP424 T11831228 KLWD 160653Z AUTO 31013KT 10SM CLR M21/M24 A3060 RMK AO2 SLP394 T12061244 KLWM 160654Z AUTO 02004KT 10SM FEW015 OVC032 M06/M11 A3053 RMK AO2 SLP342 T10561111 KLWS 160656Z AUTO 00000KT 10SM CLR 07/02 A3011 RMK AO2 SLP200 T00670022 KLWT 160654Z AUTO 12008KT 10SM CLR M14/M17 A3030 RMK AO2 SLP335 T11441172 410781211 KLWV 160653Z AUTO 30011KT 10SM CLR M14/M19 A3055 RMK AO2 SLP352 T11391189 KLXL 160655Z AUTO 34003KT 10SM OVC011 M18/M23 A3065 RMK AO2 KLXN 160655Z AUTO 33013KT 10SM CLR M17/M22 A3070 RMK AO2 T11751225 KLXT 160653Z AUTO 32009KT 10SM CLR M18/M23 A3068 RMK AO2 SLP414 T11781233 KLXV 160653Z AUTO 04009KT 10SM CLR M15/M18 A3029 RMK AO2 SLP258 T11501183 400001156 KLXY 160655Z AUTO 36015G22KT 10SM BKN012 OVC027 M03/M05 A3057 RMK AO2 T10281050 KLYH 160654Z AUTO 00000KT 10SM CLR M07/M13 A3040 RMK AO2 SLP306 T10671133 KLYV 160655Z AUTO 34007KT 7SM SCT012 M22/M25 A3067 RMK AO2 KLZU 160656Z AUTO 00000KT 10SM CLR M05/M07 RMK AO2 SLPNO T10501067 FZRANO $ KLZZ 160655Z AUTO 36012G21KT 10SM OVC028 M02/M08 A3056 RMK AO2 T10161080 KM04 160655Z AUTO 36013G19KT 1 1/4SM BR OVC003 M07/M09 A3056 RMK A01 KM08 160655Z AUTO 32009KT 9SM BKN012 OVC018 M03/M05 A3048 RMK A01 KM19 160656Z AUTO 35017KT 8SM -SN SCT016 M08/M13 A3061 RMK AO2 SLP372 P0000 T10781133 KM21 160655Z AUTO 34008KT 1 3/4SM -SN BKN011 OVC017 M10/M12 A3052 RMK AO2 T10971117 KM25 160715Z AUTO 35008KT 5SM -SN SCT036 SCT043 OVC050 M10/M13 A3056 RMK AO2 KM30 160655Z AUTO 34008G14KT 10SM OVC060 M10/M17 A3058 RMK AO2 T11051169 KM33 160655Z AUTO 33010G15KT 10SM FEW014 OVC025 M06/M10 A3048 RMK A01 KM40 160655Z AUTO 35006KT 10SM 00/01 A3042 RMK AO2 KM63 160658Z AUTO 12032KT 7SM CLR M01/M07 A3033 RMK AO2 PK WND 11043/13 SLP255 WND DATA ESTMD T10071069 401561007 KM75 160655Z AUTO 07006KT 10SM CLR M24/M28 A3054 RMK A01 KM91 160655Z AUTO 33006G12KT 5SM BR SCT011 SCT017 OVC043 M08/M10 A3046 RMK A01 P0001 KMAE 160653Z AUTO 26005KT 1/4SM FG VV001 08/08 A3016 RMK AO2 SLP213 T00830083 KMAF 160653Z 03017KT 10SM OVC037 M03/M18 A3059 RMK AO2 PK WND 03027/0623 SLP350 T10281178 KMAI 160653Z AUTO 00000KT 10SM CLR 01/M01 A3040 RMK AO2 SLP293 T00061011 $ KMAN 160655Z AUTO 15007KT 10SM CLR 05/03 A3022 RMK A01 KMAO 160715Z AUTO 00000KT 10SM CLR M03/M06 A3046 RMK AO2 KMAW 160735Z AUTO 34013KT CLR M08/M14 A3061 RMK AO2 PWINO KMBG 160652Z AUTO 33005KT 10SM CLR M23/M27 A3077 RMK AO2 SLP476 T12331272 KMBL 160656Z AUTO 00000KT 10SM -SN FEW015 SCT026 BKN080 M17/M18 A3033 RMK AO2 SNB55 SLP296 T11671178 FZRANO PNO $ KMBO 160655Z AUTO 34007G14KT 10SM CLR 00/M01 A3037 RMK AO2 KMBS 160708Z 35005KT 2 1/2SM BR FEW016 SCT039 M12/M13 A3031 RMK AO2 T11221128 KMBY 160715Z AUTO 29012G17KT 10SM CLR M17/M23 A3062 RMK AO2 KMCB 160653Z AUTO 00000KT 10SM CLR 03/00 A3035 RMK AO2 SLP275 T00330000 $ KMCC 160650Z AUTO 13003KT M1/4SM FG OVC002 08/08 A3016 RMK AO2 KMCD 160655Z AUTO 06009G15KT 3SM -SN OVC013 M10/M13 A3037 RMK AO2 T11031127 KMCE 160653Z AUTO 30003KT M1/4SM FG VV002 09/08 A3014 RMK AO2 SLP207 T00890078 KMCF 160656Z 06008KT 10SM FEW060 08/05 A3033 RMK SLP274 $ KMCI 160653Z 32010KT 10SM CLR M19/M23 A3067 RMK AO2 SLP409 T11891228 KMCJ 160715Z AUTO VRB05KT 10SM FEW065 FEW080 OVC100 13/10 A3030 RMK A01 KMCK 160653Z AUTO 33013KT 10SM CLR M17/M22 A3072 RMK AO2 SLP462 T11671217 KMCN 160653Z AUTO 00000KT 10SM CLR M02/M03 A3043 RMK AO2 SLP304 T10221033 $ KMCO 160653Z 36006KT 10SM FEW065 08/07 A3034 RMK AO2 SLP272 T00780067 KMCW 160653Z AUTO 32016KT 8SM OVC016 M21/M24 A3054 RMK AO2 SNB25E37 SLP374 P0000 T12111244 KMCX 160715Z AUTO 25009KT 10SM SCT030 M17/M21 A3042 RMK AO2 T11701206 KMDD 160655Z AUTO 03013G20KT 10SM M02/M18 A3061 RMK AO2 T10251180 KMDH 160652Z AUTO 31010G17KT 10SM CLR M12/M18 A3059 RMK AO2 SLP365 T11171178 KMDJ 160655Z AUTO 04009KT 10SM CLR A3036 RMK A01 KMDQ 160655Z AUTO 35003KT 10SM CLR 00/M03 A3038 RMK AO2 KMDS 160655Z AUTO 34014KT 10SM OVC010 M20/M22 A3066 RMK AO2 KMDT 160656Z 09003KT 10SM OVC014 M03/M08 A3044 RMK AO2 SLP314 T10331078 KMDW 160653Z 26010KT 1 1/2SM -SN BR OVC034 M13/M16 A3034 RMK AO2 SLP294 DRSN P0000 T11331161 $ KMDZ 160655Z AUTO 36006KT 10SM SCT012 M12/M14 A3038 RMK AO2 T11231137 KMEB 160652Z AUTO 34003KT 10SM CLR M04/M07 A3046 RMK AO2 SLP317 T10391072 KMEH 160656Z AUTO 00000KT 10SM BKN120 06/M01 A3009 RMK AO2 SLP196 T00561011 KMEI 160658Z AUTO 00000KT 10SM CLR M02/M03 A3038 RMK AO2 SLP288 T10171033 KMEM 160654Z 36016G22KT 5SM -SN BR BKN012 OVC060 M06/M08 A3053 RMK AO2 SLP341 P0000 T10561078 $ KMER 160655Z AUTO 26004KT M1/4SM OVC001 09/09 A3015 RMK AO1 KMEV 160655Z AUTO 12005KT 10SM CLR M01/M01 A3021 RMK AO2 KMEZ 160655Z AUTO 36007KT 10SM SCT070 SCT090 OVC110 M06/M15 A3057 RMK AO2 KMFD 160706Z AUTO 28010G15KT 7SM -SN BKN011 BKN019 OVC024 M06/M07 A3028 KMFE 160653Z AUTO 09009KT 10SM SCT039 BKN070 17/12 A3024 RMK AO2 SLP238 T01720117 KMFI 160705Z AUTO 03006KT 10SM BKN012 BKN047 M09/M12 A3038 RMK AO2 T10941122 TSNO KMFR 160653Z AUTO 00000KT 6SM -RA BR OVC055 09/09 A3005 RMK AO2 RAB25 SLP181 P0002 T00940089 $ KMFV 160655Z AUTO 33005KT 1SM BR OVC002 00/00 A3043 RMK AO2 T00000000 KMGC 160655Z AUTO 21009KT 10SM -SN SCT016 OVC055 M13/M17 A3035 RMK AO2 KMGE 160656Z AUTO 00000KT 10SM CLR M02/M05 A3039 RMK AO2 SLP301 T10181048 $ KMGG 160655Z AUTO 10SM OVC012 M17/M19 A3062 RMK AO2 T11751195 KMGJ 160654Z AUTO 00000KT 10SM OVC016 M06/M11 A3046 RMK AO2 SLP320 T10611111 KMGM 160653Z AUTO 00000KT 10SM CLR 00/M03 A3040 RMK AO2 SLP294 T00001033 $ KMGN 160656Z AUTO 04007KT 10SM BKN060 M09/M11 A3034 RMK AO2 T10961116 KMGR 160655Z AUTO 00000KT 10SM CLR 03/M01 A3040 RMK AO2 KMGW 160653Z AUTO VRB04KT 10SM OVC040 01/M06 A3032 RMK AO2 SLP279 T00061056 KMGY 160653Z AUTO 29006KT 10SM CLR M12/M16 A3037 RMK AO2 SLP301 T11171156 KMHE 160653Z AUTO 34018G23KT 10SM OVC018 M19/M23 A3079 RMK AO2 SLP467 T11941233 KMHK 160652Z AUTO VRB03KT 10SM CLR M17/M22 A3075 RMK AO2 SLP439 T11671217 KMHL 160715Z AUTO 31008KT 10SM CLR M16/M21 A3068 RMK AO2 KMHR 160645Z 00000KT 1/8SM OVC002 08/08 A3015 FG KMHS 160656Z AUTO VRB03KT 9SM -RA BKN041 OVC050 07/03 A3013 RMK AO2 RAB40 SLP215 P0001 T00670033 KMHT 160653Z 36004KT 10SM OVC030 M07/M15 A3049 RMK AO2 SLP348 T10721150 $ KMHV 160600Z AUTO 33007KT 10SM CLR 10/03 A3016 RMK A01 KMIA 160653Z 05009KT 10SM FEW035 SCT060 20/13 A3023 RMK AO2 SLP236 T02000133 KMIB 160656Z AUTO 18005KT 10SM CLR M29/M33 A3075 RMK AO2 SLP484 T12921326 KMIC 160653Z AUTO 31008KT 10SM CLR M18/M23 A3059 RMK AO2 SLP381 T11831228 TSNO KMIE 160653Z AUTO 26010KT 9SM OVC021 M14/M18 A3039 RMK AO2 SLP303 T11391178 KMIS 160655Z AUTO 11012KT 10SM OVC035 18/10 A3036 RMK A01 KMIV 160654Z AUTO 02005KT 10SM BKN029 M02/M03 A3046 RMK AO2 SLP313 T10221033 KMIW 160653Z AUTO 31016KT 10SM OVC010 M22/M25 A3055 RMK AO2 SLP374 T12221250 KMJQ 160655Z AUTO 32015G22KT 7SM -SN SCT008 SCT016 OVC037 M23/M26 A3060 RMK AO2 KMJX 160656Z AUTO 01003KT 10SM OVC016 M03/M04 A3047 RMK AO2 SLPNO T10331044 FZRANO KMKC 160654Z 31007KT 10SM CLR M17/M22 A3072 RMK AO2 SLP420 T11671222 $ KMKE 160708Z 33007KT 1 1/4SM -SN BR BKN014 BKN019 OVC024 M06/M08 A3030 RMK AO2 P0000 T10611078 $ KMKG 160655Z AUTO 02006KT 9SM OVC032 M11/M13 A3030 RMK AO2 SLP273 T11061133 KMKJ 160655Z AUTO 06003KT 10SM CLR M04/M08 A3034 RMK AO2 T10431083 KMKL 160653Z AUTO 36012KT 5SM -SN BR SCT016 BKN024 OVC050 M05/M07 A3052 RMK AO2 UPB20E29SNE20B29 SLP338 P0000 T10501072 KMKN 160655Z AUTO 01016G22KT 10SM OVC049 M03/M11 A3063 RMK AO2 T10351109 KMKO 160653Z AUTO 35018G25KT 10SM FEW029 M10/M17 A3075 RMK AO2 PK WND 35026/0600 SLP420 T11001167 KMKS 160655Z AUTO 00000KT 10SM CLR M03/M06 A3044 RMK AO2 KMKT 160656Z AUTO 31013KT 9SM -SN OVC013 M21/M24 A3061 RMK AO2 SLP400 P0000 T12111244 FZRANO KMKY 160656Z AUTO 01006KT 10SM FEW043 13/09 A3028 RMK AO2 SLP253 T01280094 KMLB 160653Z AUTO 30004KT 10SM BKN042 12/11 A3031 RMK AO2 SLP261 T01220111 KMLC 160653Z AUTO 36015G21KT 10SM FEW090 SCT110 M09/M15 A3070 RMK AO2 SNE30 SLP405 P0000 T10891150 KMLE 160655Z AUTO 33015G19KT 10SM BKN025 M17/M22 A3071 RMK AO2 T11731221 KMLF 160652Z AUTO 22003KT 10SM CLR M03/M04 A3029 RMK AO2 SLP267 T10281039 401001056 KMLI 160652Z AUTO 28015KT 10SM CLR M18/M22 A3049 RMK AO2 SLP339 T11781217 $ KMLJ 160655Z AUTO 00000KT 10SM CLR 00/M01 A3043 RMK AO2 KMLP 160653Z AUTO 16011KT 1/2SM FZFG VV001 M03/M04 A3015 RMK AO2 SLP238 T10281044 TSNO $ KMLS 160653Z AUTO 14008KT 10SM CLR M26/M28 A3063 RMK AO2 SLP458 T12611278 411891283 KMLT 160653Z AUTO 36004KT 8SM OVC024 M13/M15 A3054 RMK AO2 SLP358 T11281150 KMLU 160653Z AUTO 03011KT 10SM OVC015 05/02 A3044 RMK AO2 SLP307 T00500017 KMMH 160655Z AUTO 00000KT 10SM SCT120 02/M08 A3028 RMK AO2 T00191078 KMMI 160655Z AUTO 00000KT M06/M07 A3036 RMK KMMK 160653Z AUTO 00000KT 10SM CLR M08/M13 A3050 RMK AO2 SLP330 T10831128 KMML 160656Z AUTO 33016KT 7SM OVC016 M23/M26 A3070 RMK AO2 SLP441 T12281261 FZRANO KMMT 160656Z AUTO 00000KT 7SM CLR M05/M07 A3045 RMK AO2 SLP316 T10531073 $ KMMU 160655Z AUTO 00000KT 10SM OVC017 M05/M08 A3049 RMK AO2 KMMV 160653Z AUTO 13005KT 8SM -RA OVC055 08/08 A3003 RMK AO2 SLP168 P0002 T00830078 $ KMNE 160655Z AUTO 36008KT 320V030 5SM -RA BKN007 OVC011 03/02 A3049 RMK AO2 T00320021 KMNH 160652Z AUTO 22007KT 10SM CLR M17/M18 A3041 RMK AO2 KMNI 160655Z 10SM CLR M03/M06 A3046 RMK AO2 KMNM 160656Z AUTO 02010G15KT 9SM -SN SCT060 OVC070 M10/M12 A3039 RMK AO2 SNB33 SLP314 P0000 T11001117 FZRANO $ KMNN 160653Z AUTO 30012KT 7SM OVC014 M11/M14 A3033 RMK AO2 SNE09 SLP290 P0000 T11061139 KMNV 160655Z AUTO 25004KT 10SM SCT050 M01/M05 A3033 RMK A01 KMNZ 160655Z AUTO 36018G23KT 10SM -SN OVC045 M04/M07 A3060 RMK AO2 T10361071 KMOB 160656Z AUTO 00000KT 10SM CLR 04/02 A3038 RMK AO2 SLP287 T00440022 KMOD 160706Z AUTO 00000KT 1 1/2SM BR OVC003 09/09 A3014 RMK AO2 T00940094 KMOP 160655Z AUTO 00000KT 1 1/2SM -SN BKN017 BKN024 BKN070 M13/M15 A3029 RMK AO2 VIS 1/2V5 T11351155 KMOR 160655Z AUTO 05003KT 10SM BKN047 M02/M05 A3032 RMK A01 KMOT 160654Z AUTO 00000KT 10SM CLR M26/M29 A3075 RMK AO2 SLP477 T12561294 KMOX 160655Z AUTO 33013G16KT 5SM HZ SCT007 OVC013 M24/M27 A3070 RMK AO2 KMPO 160653Z AUTO 12004KT 10SM OVC008 M08/M09 A3033 RMK AO2 SLP305 T10831094 KMPV 160651Z AUTO 00000KT 10SM FEW035 OVC075 M13/M13 A3046 RMK AO2 SLP344 T11281133 KMPZ 160655Z AUTO 30010G18KT 10SM BKN035 M20/M23 A3055 RMK AO2 KMQB 160655Z AUTO 28015KT 10SM CLR M19/M23 A3056 RMK AO2 T11931226 KMQE 160656Z AUTO 35006KT M08/M12 A3045 RMK AO1 SLP333 T10781117 KMQI 160655Z AUTO 36008KT 1/2SM FG OVC002 02/02 A3041 RMK AO2 T00170017 KMQJ 160655Z AUTO 27008KT 10SM SCT017 M17/M19 A3043 RMK AO1 KMQS 160655Z AUTO 00000KT 10SM OVC007 M02/M03 A3045 RMK AO2 KMQY 160656Z AUTO 35012KT 10SM OVC016 M04/M07 A3046 RMK AO2 SNE44 SLP332 P0000 T10391067 KMRB 160653Z AUTO 00000KT 8SM CLR M04/M07 A3041 RMK AO2 SLP304 T10441067 KMRC 160655Z AUTO 35011KT 10SM BKN012 OVC017 M01/M03 A3040 RMK A01 KMRF 160656Z AUTO 10SM OVC010 M03/M05 RMK AO2 SLPNO T10331050 402001056 FZRANO $ KMRH 160658Z AUTO 36005KT 10SM CLR M01/M02 A3040 RMK AO2 SLP296 I1005 T10061022 TSNO KMRJ 160655Z AUTO 31009KT 10SM -SN OVC016 M13/M14 A3036 RMK AO2 KMRN 160655Z AUTO 00000KT 10SM CLR M07/M08 A3044 RMK AO2 T10671078 KMRT 160655Z AUTO 29013KT 10SM SCT013 M11/M13 A3035 RMK AO2 T11061135 KMRY 160654Z AUTO 14003KT 8SM BKN002 11/11 A3018 RMK AO2 PRESRR SLP230 T01110106 KMSL 160653Z AUTO 35005KT 10SM SCT020 OVC060 01/M03 A3041 RMK AO2 SLP299 T00111033 KMSN 160653Z AUTO 31006KT 5SM BR OVC016 M11/M13 A3036 RMK AO2 SNE47 SLP296 P0000 T11111128 KMSO 160653Z AUTO 13014KT 10SM CLR 01/M04 A3028 RMK AO2 SLP279 T00111039 400391044 KMSP 160709Z 32008KT 10SM BKN030 M18/M20 A3059 RMK AO2 T11781200 KMSS 160704Z AUTO 06010KT 1 1/2SM -SN BR OVC017 M15/M17 A3047 RMK AO2 P0000 T11501172 KMSV 160706Z AUTO 10003KT 10SM SCT009 OVC050 M08/M10 A3039 RMK AO2 FZRANO KMSY 160653Z 00000KT 8SM FEW250 06/05 A3037 RMK AO2 SLP287 T00560050 KMTC 160706Z AUTO 00000KT 9SM -SN SCT010 OVC015 M07/M07 A3027 RMK AO2 CIG 010V015 CIG 012 RWY01 SLP266 $ KMTH 160653Z AUTO 01011KT 10SM CLR 17/14 A3021 RMK AO2 SLP229 T01720144 KMTJ 160653Z AUTO 16007KT 10SM CLR M06/M08 A3039 RMK AO2 SLP298 T10561083 400671083 KMTN 160703Z AUTO 00000KT 10SM OVC009 M01/M03 A3049 RMK AO2 KMTO 160653Z AUTO 29014G19KT 10SM CLR M18/M22 A3050 RMK AO2 SLP344 T11831217 KMTP 160654Z AUTO 05008KT M01/M04 A3049 RMK AO1 SLP323 T10061044 KMTV 160655Z AUTO 00000KT 10SM SCT120 M09/M11 A3044 RMK AO2 T10901111 KMTW 160656Z AUTO 33009KT 8SM -SN BKN032 OVC042 M08/M10 A3034 RMK AO2 SLP298 P0000 T10831100 FZRANO KMUI 160656Z AUTO 00000KT 10SM OVC011 M04/M07 A3044 RMK AO2 SLP319 T10401068 $ KMUO 160658Z AUTO 13013KT 10SM CLR 03/01 A3022 RMK AO2 SLP247 T00340010 400951024 $ KMUT 160655Z AUTO 29013KT 10SM -SN FEW009 BKN014 OVC040 M18/M22 A3056 RMK AO2 KMVE 160655Z AUTO 36014G18KT 10SM CLR M24/M27 A3072 RMK AO2 KMVH 160700Z AUTO VRB05G16KT 10SM CLR M03/M30 A3034 RMK AO2 KMVL 160654Z AUTO 00000KT 10SM OVC090 M13/M15 A3046 RMK AO2 SLP334 T11331150 PNO $ KMVN 160556Z AUTO VRB06KT 10SM CLR M13/M17 A3056 RMK AO2 SLP355 60000 T11281172 11083 21128 410171128 50005 FZRANO KMVY 160653Z AUTO 33012KT 8SM SCT009 BKN019 OVC039 A3047 RMK AO2 SLPNO $ KMWA 160655Z AUTO 31004KT 10SM SCT120 M12/M18 A3059 RMK AO2 T11201184 KMWC 160655Z AUTO 34007KT 3SM -SN SCT016 SCT025 OVC043 M07/M10 A3031 RMK AO2 KMWH 160652Z AUTO 35005KT 10SM CLR 01/M01 A3015 RMK AO2 SLP217 T00061006 KMWK 160700Z AUTO 00000KT 10SM CLR M05/M09 A3042 RMK AO2 T10471094 KMWL 160653Z AUTO 35015G25KT 10SM OVC070 M04/M16 A3067 RMK AO2 PK WND 36028/0628 UPB23E34 SLP388 P0000 T10441156 KMWM 160655Z AUTO 31017G23KT 2 1/2SM -SN SCT030 OVC037 M23/M30 A3061 RMK AO2 KMWN 160657Z 25020KT 90SM BKN/// FEW040 M12/M35 RMK TPS LWR BKN050 KMWO 160655Z AUTO 28007KT 10SM CLR M11/M16 A3044 RMK AO2 PWINO T11141159 KMWT 160653Z AUTO 34009G18KT 10SM OVC050 M06/M13 A3055 RMK AO2 SNE17 SLP357 P0000 T10611133 KMXF 160656Z AUTO 00000KT 10SM CLR 01/00 A3038 RMK AO2 SLP291 T00060002 $ KMXO 160655Z AUTO 30011G16KT 10SM -SN OVC009 M19/M22 A3046 RMK AO2 KMYF 160653Z AUTO 28004KT 10SM CLR 16/09 A3012 RMK AO2 SLP195 T01610089 KMYJ 160715Z AUTO 30013G18KT 10SM SCT110 M18/M22 A3060 RMK AO2 KMYL 160651Z AUTO 28003KT 4SM BR SCT001 M06/M07 A3021 RMK AO2 SLP271 T10561072 410111056 KMYP 160655Z AUTO 26012G15KT 10SM CLR M11/M17 A3036 RMK AO2 KMYR 160656Z AUTO 33003KT 10SM CLR M02/M06 A3046 RMK AO2 SLP315 T10171056 FZRANO KMYV 160653Z AUTO 11003KT 1SM BR OVC002 09/09 A3015 RMK AO2 SLP212 T00940089 KMYZ 160655Z AUTO 33010KT 10SM CLR M19/M23 A3071 RMK AO2 KMZG 160655Z AUTO 22011G18KT 10SM SCT036 OVC085 20/12 A3027 RMK A01 KMZH 160655Z AUTO 00000KT 10SM CLR M16/M18 A3057 RMK AO2 KMZZ 160655Z AUTO 27009KT 3SM BR SCT008 OVC020 M15/M17 A3040 RMK AO2 T11481171 KN03 160655Z AUTO 00000KT 10SM SCT017 BKN031 OVC038 M05/M07 A3032 RMK AO2 KN38 160655Z AUTO 18006KT 1 3/4SM -SN BKN003 OVC009 M08/M09 A3027 RMK AO2 KN60 160652Z AUTO 29003KT M26/M29 A3077 RMK AO1 SLP486 T12611289 KNAK 160654Z AUTO 00000KT 7SM OVC012 M01/M04 A3046 RMK AO2 SLP317 T10111039 $ KNBC 160656Z AUTO 35003KT 10SM CLR M01/M02 A3044 RMK AO2 SLP308 T10111022 $ KNBG 160709Z AUTO 00000KT 2SM BR SCT005 02/02 A3037 RMK AO2 T00220022 PNO $ KNCA 160656Z AUTO 33004KT 10SM CLR M01/M04 A3043 RMK AO2 SLP306 T10111039 KNDZ 160656Z AUTO 07003KT 10SM CLR 02/M01 A3040 RMK AO2 SLP282 T00171006 $ KNEL 160600Z AUTO 00000KT 10SM OVC016 M02/M04 A3045 RMK AO2 SLP312 6//// T10221044 11011 21028 56010 FZRANO PNO $ KNEW 160702Z AUTO 00000KT 2 1/2SM BR CLR 08/07 A3038 RMK AO2 T00780067 KNFE 160656Z AUTO 35005KT 3/4SM BR VV003 02/01 A3043 RMK AO2 SLP306 T00220006 KNFG 160655Z 00000KT 10SM CLR 11/10 A3012 RMK A02 SLP197 T01110100 KNFW 160652Z AUTO 01021KT 10SM BKN070 OVC090 M03/M15 A3068 RMK AO2 PK WND 36029/0607 SLP368 T10281150 FZRANO $ KNGP 160656Z AUTO 00000KT 10SM OVC090 17/14 A3028 RMK AO2 SLP252 T01670139 $ KNGU 160659Z 01004KT 3/4SM BR OVC002 01/00 A3044 RMK AO2 SLP308 T00110000 $ KNHK 160652Z AUTO 32008KT 6SM BR OVC006 M02/M03 A3046 RMK AO2 SLP316 T10171028 VISNO RY24 $ KNID 160656Z AUTO 00000KT 10SM CLR 10/05 A3015 RMK AO2 SLP209 T01000050 $ KNIP 160653Z 02006KT 10SM FEW250 08/03 A3040 RMK AO2 SLP288 T00780028 KNJM 160657Z AUTO 34004KT 10SM CLR M01/M03 A3042 RMK AO2 SLP305 T10061028 $ KNKT 160255Z 35006KT 7SM SKC 03/M02 A3047 RMK SLP315 T00281022 51015 KNKX 160655Z 30004KT 10SM SCT250 13/09 A3011 RMK AO2 SLP193 T01330089 $ KNLC 160656Z AUTO 31006KT OVC003 07/07 A3017 RMK AO2 SLP216 T00720072 RVRNO $ KNMM 160656Z AUTO 00000KT 10SM CLR M02/M04 A3038 RMK AO2 SLP300 T10171039 $ KNOG 160656Z AUTO 08004KT 10SM SCT042 SCT049 OVC080 15/12 A3030 RMK AO2 SLP240 T01500117 $ KNOW 160655Z AUTO 31008KT 10SM OVC085 09/06 A2987 RMK AO2 T00900061 401010052 KNOZ 160659Z AUTO 00000KT 10SM CLR 15/03 A3007 RMK AO2 SLP134 T01500028 402560100 PNO $ KNPA 160656Z AUTO 00000KT CLR 02/00 A3039 RMK AO2 SLP291 T00170000 $ KNQA 160650Z 35014G20KT 2SM -SN BR SCT004 OVC019 M06/M08 A3054 KNQI 160656Z AUTO 03005KT 10SM OVC080 14/12 A3028 RMK AO2 SLP249 T01440117 PWINO $ KNQX 160653Z AUTO 03017G22KT 10SM BKN060 17/17 A3022 RMK AO2 SLP231 T01720167 $ KNRB 160652Z AUTO 03007KT 10SM CLR 09/06 A3039 RMK AO2 SLP288 T00890056 $ KNTU 160656Z 34006KT 2SM BR OVC002 01/M01 A3042 RMK AO2 SLP304 T00111006 KNUI 160653Z AUTO 30004KT 5SM BR OVC006 M01/M02 A3046 RMK AO2 SLP314 T10111022 $ KNUQ 160656Z 24003KT 9SM BKN030 BKN037 12/11 A3016 RMK AO2 SLP214 T01170106 $ KNXP 160656Z AUTO 36003KT 10SM CLR 12/03 A3020 RMK AO2 SLP204 T01170033 KNY0 160655Z AUTO 13003KT 5SM SCT033 BKN039 OVC085 M11/M12 A3041 RMK AO2 KNYC 160651Z AUTO 00000KT 10SM OVC016 M04/M08 A3050 RMK AO2 SLP320 T10391078 PWINO FZRANO $ KNYG 160656Z AUTO 20005KT 10SM OVC012 M01/M03 A3048 RMK AO2 SLP321 T10061028 $ KNZY 160652Z 34006KT 7SM FEW250 14/13 A3010 RMK SLP194 T01440128 KO22 160655Z AUTO 00000KT 10SM CLR 06/04 A3017 RMK AO1 KO69 160655Z AUTO 00000KT 3SM BR OVC010 11/11 A3016 RMK A01 KO86 160650Z AUTO 00000KT 2 1/2SM BKN006 OVC036 07/06 A3015 RMK AO1 KOAJ 160656Z AUTO 32003KT 10SM CLR M04/M05 A3044 RMK AO2 SLP314 T10391050 FZRANO KOAK 160653Z 25005KT 8SM OVC020 13/13 A3016 RMK AO2 PRESRR SLP212 T01330128 KOBE 160655Z AUTO 36003KT 10SM CLR 08/08 A3031 RMK AO2 KOCF 160651Z AUTO 02004KT 10SM CLR 04/01 A3038 RMK AO2 SLP291 T00390011 KOCH 160656Z AUTO 35015KT 8SM -RA OVC007 02/01 A3047 RMK AO2 RAE02B48UPB26E48 SLP323 P0001 T00170006 FZRANO KOCQ 160655Z AUTO 36008KT 10SM SCT012 SCT026 OVC065 M09/M11 A3038 RMK AO1 T10951115 KOCW 160655Z AUTO 00000KT 10SM CLR M03/M04 A3043 RMK AO2 T10281043 KODO 160653Z AUTO 05018KT 10SM OVC035 M03/ A3060 RMK AO2 PK WND 04026/0600 SLP353 T1033 $ KODX 160702Z AUTO 33012G22KT 10SM BKN024 M19/M23 A3071 KOEB 160655Z AUTO 24012KT 10SM BKN021 M13/M15 A3029 RMK AO2 T11271150 KOEO 160655Z AUTO 32006KT 10SM CLR M16/M19 A3060 RMK AO2 T11621190 KOFF 160656Z 33008KT 10SM BKN025 M19/M24 A3070 RMK AO2A SLP429 T11891237 TSNO $ KOFK 160656Z AUTO 33015G21KT 9SM OVC018 M20/M23 A3068 RMK AO2 SLP434 T12001228 KOFP 160654Z AUTO 00000KT 6SM BR OVC004 M03/M03 A3047 RMK AO2 SLP319 T10281033 KOGA 160655Z AUTO 30005KT 10SM CLR M18/M21 A3068 RMK AO2 T11761215 410381181 KOGB 160653Z AUTO 00000KT 10SM CLR M03/M05 A3044 RMK AO2 SLP311 T10281050 KOGD 160653Z AUTO 32004KT 10SM CLR 02/M04 A3031 RMK AO2 SLP262 T00171039 400831028 KOGS 160655Z AUTO 07006KT 2SM -SN OVC008 M15/M17 A3042 RMK AO2 T11471166 KOJA 160655Z AUTO 36013KT 10SM SCT100 M10/M18 A3074 RMK AO2 KOJC 160653Z AUTO 34010KT 10SM CLR M18/M23 A3068 RMK AO2 SLP414 T11831233 KOKB 160710Z AUTO 26004KT 6SM BR SCT007 13/12 A3012 RMK AO2 T01330122 KOKC 160652Z 36021G35KT 10SM SCT120 BKN150 M10/M19 A3072 RMK AO2 PK WND 35035/0646 SLP418 T11001194 KOKM 160655Z AUTO 35015G19KT 10SM CLR M11/M18 A3074 RMK AO2 T11091181 KOKV 160655Z AUTO RMK AO2 PWINO PNO TSNO KOKZ 160655Z AUTO 00000KT 10SM CLR M02/M03 A3043 RMK AO2 T10161031 KOLE 160655Z AUTO 19006KT 3SM -SN SCT011 SCT020 OVC039 M09/M09 A3021 RMK AO2 KOLF 160653Z AUTO 04003KT 10SM CLR M27/M31 A3068 RMK AO2 SLP459 T12671311 412001294 KOLG 160655Z AUTO 34006KT 10SM OVC012 M13/M16 A3052 RMK AO1 KOLM 160654Z AUTO 14005KT 10SM BKN039 OVC060 09/08 A2998 RMK AO2 RAB08E20 SLP155 P0000 T00890078 KOLS 160654Z AUTO 06004KT 10SM CLR 07/M06 A3017 RMK AO2 SLP179 T00671056 402440022 $ KOLU 160656Z AUTO 32013KT 10SM OVC022 M19/M22 A3072 RMK AO2 SLP443 T11891222 FZRANO KOLV 160150Z 34008KT 10SM OVC037 M01/M01 A3041 KOLY 160655Z AUTO 30011G15KT 10SM CLR M15/M21 A3056 RMK AO2 T11531213 KOLZ 160655Z AUTO 31014G19KT 8SM -SN SCT006 OVC011 M20/M21 A3048 RMK AO2 KOMA 160652Z 33017G24KT 10SM BKN019 BKN025 M19/M23 A3070 RMK AO2 SLP423 T11891228 KOMH 160655Z AUTO 00000KT 10SM CLR M05/M07 A3043 RMK AO2 KOMK 160653Z AUTO 08003KT 1/4SM FZFG VV002 M01/M01 A3018 RMK AO2 SLP234 T10061006 KONA 160655Z AUTO 33011G17KT 10SM OVC031 M12/M15 RMK AO2 KONL 160655Z AUTO 31014G19KT 10SM OVC020 M20/M23 A3071 RMK AO2 T11971229 KONM 160655Z AUTO 07004KT 10SM CLR M02/M07 A3042 RMK AO2 T10191072 KONO 160653Z AUTO 25006KT 8SM CLR 00/M01 A3026 RMK AO2 SLP264 T00001011 400781039 KONP 160655Z AUTO 18008G16KT 7SM SCT021 BKN030 BKN037 11/09 A3004 RMK AO2 KONT 160653Z 25003KT 9SM FEW170 OVC250 15/07 A3012 RMK AO2 SLP192 T01500067 KONX 160715Z AUTO 36004KT 1/2SM FG OVC003 00/00 A3043 RMK AO2 T00000000 KONZ 160655Z AUTO 23007KT 10SM CLR M08/M10 A3029 RMK AO2 T10821102 KOOA 160655Z AUTO 31015KT 10SM CLR M21/M25 A3059 RMK AO2 T12111246 KOPF 160653Z AUTO 04008KT 10SM CLR 19/13 A3024 RMK AO2 SLP240 T01940133 KOPL 160655Z AUTO 32003KT 10SM SCT100 04/01 A3036 RMK AO2 T00370010 KOPN 160655Z AUTO 00000KT 10SM CLR M01/M05 A3042 RMK AO2 KOQT 160653Z AUTO 00000KT 10SM CLR M03/M05 A3035 RMK AO2 SLP290 T10281050 KORB 160653Z AUTO 00000KT 7SM -SN OVC010 M18/M21 A3060 RMK AO2 KORC 160655Z AUTO 34008G16KT 7SM SCT010 OVC019 M20/M23 A3065 RMK AO2 KORD 160651Z 27010KT 1 3/4SM -SN OVC020 M12/M15 A3032 RMK AO2 SLP280 P0000 T11221150 $ KORE 160652Z AUTO 35004KT 10SM OVC029 A3049 RMK AO2 SLPNO $ KORF 160659Z 02005KT 3/4SM R05/4000V6000FT BR OVC002 01/01 A3042 KORG 160655Z AUTO 00000KT 10SM OVC100 10/10 A3035 RMK AO2 T01040098 KORH 160654Z AUTO 04004KT 10SM OVC023 M08/M16 A3043 RMK AO2 SLP327 T10831156 KORL 160653Z AUTO 36006KT 10SM CLR 09/07 A3033 RMK AO2 SLP277 T00940072 KORS 160655Z AUTO 16012G24KT 6SM HZ FEW055 BKN075 OVC110 14/05 A2989 RMK AO2 KOSA 160655Z AUTO 34009KT 2 1/2SM BKN006 OVC009 M06/M07 A3063 RMK AO1 T10561074 KOSC 160655Z AUTO 32005KT 1 1/2SM -SN SCT012 OVC023 M08/M10 A3028 RMK AO2 T10811100 KOSH 160712Z AUTO 35008KT 10SM BKN011 OVC045 M09/M12 A3035 RMK AO2 T10941117 KOSU 160709Z AUTO 29016KT 1 3/4SM -SN BR OVC016 M09/M12 A3035 RMK AO2 P0000 T10941117 KOTG 160656Z AUTO 34015G21KT 10SM CLR M24/M26 A3061 RMK AO2 SNB22E45 SLP423 P0000 T12391261 FZRANO KOTH 160656Z AUTO 18006KT 10SM FEW026 SCT035 BKN049 11/09 A3006 RMK AO2 RAB32E45 SLP180 P0000 T01110094 KOTM 160653Z AUTO 30011KT 10SM CLR M21/M25 A3057 RMK AO2 SLP375 T12061250 KOUN 160655Z AUTO 35017G22KT 10SM CLR M09/M18 A3070 RMK AO2 T10931183 KOVE 160653Z AUTO 11005KT 1 3/4SM BR OVC002 10/09 A3015 RMK AO2 SLP212 T01000094 KOVL 160655Z AUTO 32012G20KT 10SM OVC013 M22/M25 A3067 RMK AO2 KOVS 160653Z AUTO 00000KT 10SM OVC016 M14/M17 A3046 RMK AO2 SLP331 T11391172 $ KOWA 160652Z AUTO 30013KT 10SM SCT016 OVC070 M19/M21 A3055 RMK AO2 KOWB 160656Z AUTO 33013KT 9SM -SN BKN045 OVC055 M11/M16 A3054 RMK AO2 SNB0558 SLP356 P0000 T11111156 KOWD 160653Z AUTO 33003KT 10SM FEW015 OVC025 M04/M11 A3051 RMK AO2 SLP332 T10441111 KOWI 160655Z AUTO 32007KT 10SM FEW004 BKN019 OVC025 M17/M20 A3071 RMK AO2 KOWP 160655Z AUTO 33007KT 10SM CLR M11/M17 A3076 RMK AO2 T11101175 KOWX 160655Z AUTO 24010KT 10SM SCT019 M14/M17 A3038 RMK AO1 KOXB 160653Z AUTO 32003KT 3SM BR CLR M02/M03 A3043 RMK AO2 SLP305 I1001 T10221028 KOXC 160651Z AUTO 00000KT 10SM FEW025 M09/M13 A3045 RMK AO2 SLP336 T10891133 FZRANO KOXI 160655Z AUTO 23011KT 10SM OVC049 M16/M18 A3037 RMK AO1 KOXR 160651Z AUTO 08004KT 5SM BR CLR 13/12 A3011 RMK AO2 SLP195 T01330117 KOXV 160655Z AUTO 31012KT 10SM OVC010 M21/M27 A3058 RMK AO2 KOZA 160655Z AUTO 04022G26KT 10SM OVC027 00/M16 A3054 RMK AO2 KOZR 160656Z AUTO 05003KT 10SM CLR 02/M02 A3040 RMK AO2 SLP298 T00161024 KOZS 160655Z AUTO 30008KT 10SM CLR M16/M22 A3063 RMK AO2 KOZW 160656Z AUTO 26004KT 7SM -SN OVC008 M08/M08 A3025 RMK AO2 T10781084 KP28 160656Z AUTO 31006KT M17/M19 A3076 RMK AO1 SLP450 T11671194 KP53 160656Z AUTO 18004KT M15/M16 A3043 RMK AO1 SLP318 T11501161 KP58 160651Z AUTO 28004KT M07/M09 A3027 RMK AO1 SLP268 T10721094 KP59 160651Z AUTO 11012G18KT M06/M08 A3047 RMK AO1 SLP335 T10561083 KP60 160656Z AUTO 00000KT M19/M22 A3040 RMK AO1 SLP382 T11941217 410391200 $ KP92 160653Z AUTO 13005KT 07/06 A3034 RMK AO1 SLP275 T00670056 $ KPAE 160653Z AUTO 12007KT 6SM -RA OVC060 11/07 A2997 RMK AO2 SLP151 P0006 T01060067 KPAH 160653Z AUTO 34008KT 10SM UP OVC060 M10/M17 A3056 RMK AO2 UPB45 SLP355 P0000 T11001172 $ KPAM 160656Z AUTO 08004KT 10SM CLR 06/00 A3040 RMK AO2 SLP298 T00590004 TSNO $ KPAN 160655Z AUTO 00000KT 10SM CLR 06/M07 A3021 RMK AO2 KPAO 160447Z 00000KT 7SM SCT120 10/10 A3013 RMK LAST KPBF 160702Z AUTO 36016G22KT 2 1/2SM -SN BR BKN013 OVC017 M05/M06 A3057 RMK AO2 P0000 T10501061 KPBG 160653Z AUTO 00000KT 9SM BKN010 OVC044 M17/M20 A3049 RMK AO2 SLP332 T11721200 KPBH 160655Z AUTO 35003KT 10SM SCT070 M13/M14 A3041 RMK AO2 T11311137 KPBI 160653Z 06010KT 10SM FEW024 SCT045 SCT060 18/12 A3026 RMK AO2 SLP247 T01830117 KPBX 160655Z AUTO 28003KT 10SM BKN075 00/M03 A3032 RMK AO2 T00001028 KPCD 160655Z AUTO 10SM SCT026 SCT031 M13/M18 A3061 RMK AO2 T11321180 PWINO KPCM 160655Z AUTO 03006KT 10SM BKN060 08/05 A3036 RMK AO2 KPCW 160655Z AUTO 25016G23KT 10SM FEW031 BKN040 OVC048 M10/M13 A3032 RMK AO2 KPCZ 160655Z AUTO 35007KT 10SM SCT035 SCT050 BKN065 M09/M11 A3038 RMK AO2 T10861112 KPDC 160655Z AUTO 30006KT 10SM -SN OVC020 M15/M19 A3048 RMK AO2 T11501188 KPDK 160653Z AUTO 00000KT 10SM CLR M03/M06 A3040 RMK AO2 SLP310 T10281061 KPDT 160653Z AUTO 28004KT 1/2SM FG VV002 02/02 A3014 RMK AO2 SLP211 T00220022 RVRNO KPDX 160653Z 12015KT 10SM OVC026 08/04 A3006 RMK AO2 RAE05 SLP177 P0000 T00830044 $ KPEA 160715Z AUTO 31013G17KT 10SM CLR M21/M25 A3060 RMK AO2 T12151255 KPEO 160709Z AUTO 20008KT 2 1/2SM -SN OVC035 M06/M08 A3032 RMK AO2 P0000 T10561083 KPEQ 160655Z AUTO 01014G19KT 10SM OVC037 00/M10 A3061 RMK AO2 T00001103 KPEX 160655Z AUTO 32007KT 10SM OVC010 M20/M22 A3064 RMK AO2 T11981216 KPEZ 160655Z AUTO 03018G27KT 10SM SCT014 OVC026 08/04 A3040 RMK AO2 T00820042 KPGA 160653Z AUTO 00000KT 5SM HZ CLR 04/M02 A3029 RMK AO2 SLP252 T00391017 401170006 TSNO KPGD 160653Z AUTO 04009KT 10SM CLR 10/08 A3032 RMK AO2 SLP267 T01000078 KPGV 160700Z AUTO 00000KT 10SM CLR M03/M04 A3044 RMK AO2 KPHD 160703Z AUTO 00000KT 3SM -SN BR OVC044 M04/M06 A3032 RMK AO2 P0000 T10391056 KPHF 160654Z AUTO 34004KT 1SM BR OVC002 M01/M01 A3045 RMK AO2 SLP311 T10061011 KPHL 160654Z 00000KT 10SM OVC016 M01/M05 A3049 RMK AO2 SLP325 T10111050 $ KPHN 160655Z AUTO 00000KT 10SM SCT050 OVC070 M12/M13 A3029 RMK AO2 KPHP 160655Z AUTO 30007KT 10SM CLR M24/M27 A3079 RMK AO2 SLP490 T12441272 411561244 $ KPHT 160655Z AUTO 35010G17KT 1 1/4SM BR OVC003 M09/M11 A3052 RMK A01 KPHX 160651Z 10005KT 10SM BKN250 14/03 A3007 RMK AO2 SLP174 T01390033 402390094 KPIA 160654Z 28011KT 10SM CLR M19/M22 A3050 RMK AO2 SLP346 T11891222 $ KPIB 160656Z AUTO 00000KT 10SM CLR M02/M02 A3038 RMK AO2 SLP291 T10171022 FZRANO KPIE 160653Z AUTO 06008KT 10SM FEW060 10/06 A3034 RMK AO2 SLP274 T01000061 KPIH 160653Z AUTO 02003KT 10SM CLR M05/M06 A3033 RMK AO2 SLP298 I1001 T10501061 400671056 KPIL 160653Z AUTO 13007KT 10SM BKN070 17/13 A3024 RMK AO2 SLP240 T01720133 KPIM 160655Z AUTO 15003KT 10SM CLR 01/M02 A3040 RMK AO2 T00111023 PWINO KPIR 160653Z AUTO 33005KT 10SM CLR M22/M26 A3081 RMK AO2 SLP485 T12221256 KPIT 160651Z 21005KT 6SM -SN BR OVC047 M03/M04 A3029 RMK AO2 SLP281 P0001 T10331044 KPKB 160653Z AUTO 26003KT 9SM OVC036 M01/M04 A3036 RMK AO2 SNB36E46 SLP288 P0000 T10111039 KPKD 160653Z AUTO 01008KT 5SM HZ OVC010 M19/M22 A3064 RMK AO2 SLP421 T11941222 $ KPKV 160655Z AUTO 11003KT 10SM SCT038 SCT047 OVC090 13/11 A3029 RMK AO2 T01260112 KPLN 160711Z AUTO 01005KT 3SM -SN BR OVC016 M12/M14 A3037 RMK AO2 P0000 T11221139 $ KPLR 160655Z AUTO 00000KT 10SM CLR M04/M04 A3040 RMK A01 KPLU 160655Z AUTO 00000KT 10SM OVC050 09/09 A2998 RMK AO2 KPMD 160653Z AUTO 21004KT 10SM CLR 08/04 A3016 RMK AO2 SLP205 T00780039 KPMP 160653Z AUTO 05014G19KT 10SM SCT041 SCT049 BKN060 20/13 A3024 RMK AO2 SLP242 T02000133 KPMU 160655Z AUTO 35009G14KT 10SM BKN013 BKN021 OVC036 M01/M04 A3051 RMK AO2 T10101045 KPMV 160655Z AUTO 31012KT 10SM SCT016 BKN022 M19/M22 A3068 RMK AO2 T11921224 KPNA 160655Z AUTO 12003KT 10SM OVC023 M05/M09 A3043 RMK AO2 KPNC 160653Z AUTO 32007KT 10SM CLR M14/M19 A3078 RMK AO2 SLP440 T11391189 KPNE 160654Z 03004KT 10SM OVC015 M01/M05 A3049 RMK AO2 SLP326 T10111050 KPNM 160655Z AUTO 31007KT 10SM SCT013 M17/M19 A3059 RMK AO2 TSNO KPNS 160653Z AUTO 00000KT 10SM CLR 04/01 A3039 RMK AO2 SLP294 T00390011 KPNT 160655Z AUTO 26012G17KT 10SM CLR M18/M20 A3045 RMK AO2 T11801203 KPOB 160656Z AUTO 00000KT 10SM CLR M05/M08 A3045 RMK AO2 SLP317 T10531077 $ KPOC 160447Z 00000KT 10SM CLR 14/07 A3012 KPOE 160701Z AUTO 33005KT 7SM SCT060 OVC075 08/05 A3037 RMK AO2 RAE01 SLP287 KPOF 160653Z AUTO 33008KT 10SM CLR M09/M16 A3060 RMK AO2 SLP372 T10941161 KPOU 160653Z AUTO 00000KT 10SM OVC018 M06/M12 A3049 RMK AO2 SLP322 T10611117 KPOV 160655Z AUTO 27008KT 10SM CLR M05/M08 A3028 RMK AO2 T10531081 KPOY 160655Z AUTO 13014KT 10SM CLR M13/M16 A3041 RMK AO2 KPPA 160655Z AUTO 02008KT 10SM CLR M12/M19 A3065 RMK AO2 T11211187 KPPF 160711Z AUTO 35009KT 8SM -SN OVC030 M13/M17 A3074 RMK AO2 SNB10 P0000 T11331172 KPPO 160655Z AUTO 22009KT 5SM BR SCT070 BKN085 M16/M18 A3035 RMK AO2 T11571180 KPPQ 160655Z AUTO 29008KT 10SM CLR M17/M22 A3058 RMK AO2 T11751219 KPQI 160656Z AUTO 35005KT 10SM OVC024 M17/M19 A3058 RMK AO2 SNE30 SLP405 P0000 T11671194 FZRANO KPQL 160653Z AUTO 00000KT 9SM CLR 02/01 A3038 RMK AO2 SLP289 T00170006 $ KPQN 160655Z AUTO 36011G15KT 5SM HZ OVC010 M22/M24 A3062 RMK AO2 KPRC 160653Z AUTO 20007KT 10SM CLR 03/M04 A3021 RMK AO2 SLP201 T00331039 401781006 KPRG 160655Z AUTO 27010KT 10SM CLR M18/M20 A3050 RMK AO2 T11801205 KPRN 160656Z AUTO 00000KT 10SM CLR 00/M03 A3038 RMK AO2 SLP287 T00001028 KPRO 160655Z AUTO 32010G15KT 10SM SCT030 SCT037 M21/M25 A3063 RMK AO2 T12131253 KPRS 160655Z AUTO 35016G21KT 10SM CLR 05/M03 A3041 RMK AO2 T00461035 KPRX 160656Z AUTO 35018G27KT 9SM -SN FEW065 OVC085 M06/M13 A3064 RMK AO2 PK WND 36027/0650 SNB11 SLP396 P0000 T10611128 FZRANO KPSC 160653Z AUTO 04003KT 10SM OVC009 03/02 A3018 RMK AO2 CIG 008V012 SLP223 T00330022 KPSF 160654Z AUTO 00000KT 10SM SCT024 OVC070 M09/M13 A3040 RMK AO2 SLP317 T10891128 KPSK 160655Z AUTO 00000KT 10SM CLR M04/M08 A3035 RMK AO2 T10451081 KPSM 160656Z 35007KT 10SM OVC031 M08/M12 A3051 RMK AO2A SLP336 T10761116 KPSN 160655Z AUTO 33016G21KT 2SM BR OVC011 M01/M02 A3056 RMK AO2 T10181025 KPSO 160655Z AUTO 00000KT 10SM CLR M07/M08 A3027 RMK AO2 T10681080 KPSP 160653Z AUTO 33005KT 10SM CLR 18/05 A3010 RMK AO2 SLP191 T01830050 KPSX 160653Z AUTO 06005KT 10SM FEW048 OVC095 13/12 A3029 RMK AO2 SLP257 T01330122 KPTB 160702Z AUTO 00000KT 10SM OVC007 M07/M09 A3046 RMK AO2 KPTK 160708Z AUTO 00000KT 4SM BR OVC010 M08/M08 A3025 RMK AO2 CIG 008V013 T10781083 KPTN 160656Z AUTO 14007KT 10SM CLR 06/06 A3036 RMK AO2 SLP281 T00610056 KPTS 160715Z AUTO 34006KT 10SM CLR M16/M19 A3070 RMK AO2 T11591190 KPTT 160655Z AUTO 31008KT 10SM CLR M17/M21 A3073 RMK AO2 T11671210 KPTV 160705Z AUTO 00000KT 2SM BR CLR 09/09 A3015 RMK AO2 KPTW 160654Z AUTO 00000KT 9SM OVC014 M03/M06 A3047 RMK AO2 SLP320 T10281056 KPUB 160653Z AUTO 00000KT 10SM CLR M10/M16 A3055 RMK AO2 SLP398 T11001161 400001100 KPUC 160653Z AUTO 03013KT 10SM CLR 01/M06 A3035 RMK AO2 SLP300 T00061061 401001044 KPUJ 160655Z AUTO 00000KT 10SM CLR 03/00 A3037 RMK AO2 KPUW 160653Z AUTO 09015KT 10SM CLR 05/02 A3010 RMK AO2 SLP205 T00500017 KPVB 160655Z AUTO 32012KT 7SM SCT018 M14/M16 A3040 RMK AO1 T11421160 KPVC 160656Z AUTO 36011KT 9SM FEW018 OVC026 M01/M03 A3048 RMK AO2 SNB41E52 SLP321 T10111033 FZRANO KPVD 160651Z AUTO 36006KT 10SM OVC030 M05/M13 A3050 RMK AO2 SLP329 T10501128 KPVE 160655Z AUTO 34008KT 7SM BKN016 OVC045 M03/M06 A3048 RMK A01 KPVF 160655Z AUTO 13003KT 10SM CLR 12/00 A3017 RMK AO1 KPVG 160656Z AUTO VRB03KT 1 1/4SM BR OVC002 00/M01 A3044 RMK AO2 UPB28E49 SLP310 P0000 T00001011 FZRANO KPVJ 160655Z AUTO 36012G17KT 10SM BKN120 M08/M15 A3071 RMK AO2 T10811152 KPVU 160656Z AUTO 00000KT 10SM CLR M03/M04 A3034 RMK AO2 SLP297 T10281039 400561056 FZRANO KPVW 160655Z AUTO 03008G12KT 10SM OVC070 M07/M19 A3059 RMK AO2 T10701190 KPWA 160653Z AUTO 35020G26KT 10SM CLR M10/M18 A3074 RMK AO2 PK WND 36030/0628 SLP426 T11001183 KPWC 160655Z AUTO 34004KT 10SM CLR M21/M23 A3066 RMK AO2 KPWG 160713Z AUTO 36017G26KT 10SM FEW020 SCT035 OVC046 M02/M06 A3060 RMK AO2 PK WND 36026/0711 FZRANO KPWK 160707Z AUTO 26008KT 1SM -SN BR VV013 M12/M13 A3033 RMK AO2 P0000 T11171133 KPWM 160651Z AUTO VRB06KT 10SM OVC029 M09/M12 A3054 RMK AO2 SLP345 T10891117 KPWT 160656Z AUTO 26004KT 7SM -RA FEW030 OVC040 09/08 A2999 RMK AO2 SLP176 P0004 T00890083 KPXE 160655Z AUTO 00000KT 10SM CLR M02/M03 A3043 RMK AO2 T10161026 KPYM 160652Z AUTO 32009KT 10SM OVC008 M05/M07 A3048 RMK AO2 SLP324 T10501072 $ KPYX 160655Z AUTO 34005KT 10SM CLR M14/M18 A3068 RMK AO2 T11401182 KPZQ 160655Z AUTO 06009KT 5SM -SN OVC013 M08/M10 A3036 RMK AO2 T10801103 KQBD 160625Z AUTO 09002KT 10SM OVC220 01/M03 A3034 RMK AO2 SLP273 WND DATA ESTMD T00111032 KQBL 160656Z AUTO 00000KT 10SM CLR 02/01 A3043 RMK AO2 SLP307 WND DATA ESTMD T00160008 KQD3 160656Z AUTO VRB04G14KT 9999 CLR 26/17 A3012 RMK AO2 SLP165 WND DATA ESTMD T02600168 KQDG 160656Z AUTO 15004KT 9999 CLR 03/M05 A3010 RMK AO2 SLP195 T00291054 PWINO $ KQEL 160710Z AUTO 19001KT 6000 HZ OVC034 05/M03 A3011 RMK A02 TSNO KQEN 160710Z AUTO 26008G17KT 4000 HZ OVC023 01/M04 A2992 RMK A02 TSNO KQEP 160710Z AUTO 12003KT 4800 BR CLR M01/M10 / RMK A02 TSNO KQES 160710Z AUTO 03001KT 2400 HZ CLR 04/01 A3006 RMK A02 TSNO KQEV 160710Z AUTO 03002KT 4800 HZ OVC065 06/02 A2999 RMK A02 TSNO KQEW 160710Z AUTO 27005KT 9999 OVC065 09/M03 A3000 RMK A02 TSNO KQEY 160710Z AUTO 28005KT 9999 OVC041 07/M01 A2972 RMK A02 TSNO KQFB 160700Z AUTO 30001KT 4800 -SHRA OVC049 06/04 A3003 RMK A02 TSNO KQFR 160656Z AUTO 00000KT 10SM OVC009 M03/M05 A2948 RMK AO1 KQFT 160710Z AUTO 17002KT 4000 HZ OVC038 05/M03 A3002 RMK A02 TSNO KQFV 160710Z AUTO 00000KT 4000 HZ OVC025 03/M02 A3003 RMK A02 TSNO KQFW 160710Z AUTO 00000KT 6000 HZ BKN044 06/M06 A3003 RMK A02 TSNO KQFX 160710Z AUTO 01001KT 3200 HZ OVC055 04/M01 A3002 RMK A02 TSNO KQGE 160656Z AUTO 06003KT 10SM CLR 02/00 A3040 RMK AO2 SLP299 T00230000 $ KQHY 160656Z AUTO 06003KT 10SM CLR 02/01 A3042 RMK AO2 SLP308 T00170006 KQKG 160655Z AUTO 00000KT 5SM BR FEW170 20/15 A2997 RMK AO2 SLP108 WND DATA ESTMD T01950154 KQKR 160656Z AUTO VRB03KT 5000 HZ CLR 22/01 A2998 RMK AO2 SLPNO WND DATA ESTMD T02160014 KQN3 160656Z AUTO VRB03KT 1600 HZ CLR 19/M02 A2995 RMK AO2 SLP138 WND DATA ESTMD T01931024 KQND 160656Z AUTO 00000KT 2400 HZ CLR 18/M09 A3008 RMK AO2 SLPNO WND DATA ESTMD T01771086 KQOV 160658Z AUTO 03008KT 4SM -SN BR OVC026 M09/M11 A3026 RMK AO2 SNE03SNB33 CIG 018V026 OVC V BKN SLP276 P0000 T10951110 KQRD 160658Z AUTO 00000KT 9SM CLR 02/02 A3040 RMK AO2 SLP299 KQRH 160656Z AUTO VRB04KT 9999 FEW030 26/17 A3009 RMK AO2 SLP176 WND DATA ESTMD T02640168 KQWX 160655Z AUTO VRB02KT 12SM FEW023 M19/M24 A3071 RMK AO2 SLP451 WND DATA ESTMD T11891238 KQZF 160655Z AUTO 07006KT 3/4SM HZ BKN002 OVC004 14/M11 A3015 RMK AO2 SLP205 WND DATA ESTMD T01411112 $ KRAC 160653Z AUTO 01008KT 10SM BKN041 OVC050 M05/M11 A3030 RMK AO2 SLP271 T10501106 KRAL 160653Z AUTO 00000KT 10SM CLR 13/07 A3013 RMK AO2 SLP190 T01330072 $ KRAP 160652Z AUTO 25006KT 10SM CLR M23/M25 A3067 RMK AO2 SLP481 T12281250 411561239 $ KRAW 160715Z AUTO 31005KT 10SM CLR A3067 RMK AO2 KRBD 160653Z AUTO 01015G21KT 10SM OVC047 M03/M11 A3063 RMK AO2 PK WND 35031/0606 SNB05E47 SLP375 P0000 T10281106 KRBG 160653Z AUTO 00000KT 4SM -RA BR FEW022 SCT029 OVC036 11/11 A3004 RMK AO2 SLP174 P0006 T01060106 $ KRBL 160654Z AUTO 10004KT 5SM BR FEW065 OVC090 11/09 A3016 RMK AO2 SLP211 T01060094 KRBW 160655Z AUTO 00000KT 10SM CLR M03/M05 A3046 RMK AO2 KRCA 160656Z AUTO 22004KT 10SM CLR M23/M26 A3065 RMK AO2 SLP479 T12351258 411561258 $ KRCM 160735Z AUTO 30005KT 10SM CLR M18/M23 A3070 RMK AO2 KRCR 160655Z AUTO 24008KT 7SM SCT006 SCT023 M15/M17 A3038 RMK AO2 KRCV 160650Z AUTO 00000KT 10SM CLR M10/M13 A3031 RMK AO2 T10991134 400861103 KRCX 160655Z AUTO 34005KT 10SM CLR M14/M16 A3046 RMK AO2 T11391156 KRCZ 160655Z AUTO 00000KT 10SM CLR M05/M08 A3045 RMK AO2 T10521076 KRDD 160653Z AUTO 11003KT 8SM OVC055 11/09 A3014 RMK AO2 SLP207 T01060089 $ KRDG 160654Z 15004KT 10SM OVC013 M02/M04 A3045 RMK AO2 SLP322 T10171044 KRDK 160655Z AUTO 32009G14KT 10SM BKN036 BKN042 M20/M24 A3068 RMK AO2 KRDM 160704Z AUTO 29003KT 1SM BR OVC002 01/01 A3007 RMK AO2 T00060006 KRDR 160656Z AUTO 32006KT 10SM CLR M25/M30 A3084 RMK AO2 SNB0556E21SNB36E48 SLP483 P0000 T12521298 $ KRDU 160651Z 00000KT 10SM CLR M05/M08 A3044 RMK AO2 SLP312 T10501083 KREG 160655Z AUTO 00000KT 10SM CLR 03/02 A3035 RMK AO2 T00270018 KREO 160652Z AUTO 10003KT 00/00 A3016 RMK AO1 SLP233 T00000000 400671039 $ KRFD 160654Z 28007KT 6SM -SN OVC016 M14/M17 A3038 RMK AO2 SLP305 P0000 T11391167 KRGA 160655Z AUTO 31005KT 10SM OVC011 M04/M05 A3037 RMK AO2 KRGK 160655Z AUTO 30005KT 10SM -SN OVC050 M15/M19 A3054 RMK AO2 KRHI 160653Z AUTO 03003KT 10SM BKN013 M13/M14 A3038 RMK AO2 SLP322 I1000 T11281139 KRHP 160655Z AUTO 00000KT 10SM CLR M06/M06 A3038 RMK AO2 T10581063 KRHV 160555Z 00000KT 10SM BKN170 12/10 A3012 RMK LAST KRIC 160654Z 31003KT 2 1/2SM BR OVC004 M02/M03 A3045 RMK AO2 SLP320 T10221028 KRID 160715Z AUTO 28015KT 7SM CLR M15/M17 A3038 RMK AO2 KRIL 160653Z AUTO 00000KT 10SM CLR M05/M08 A3041 RMK AO2 SLP318 T10501078 400721067 KRIV 160658Z AUTO 00000KT 10SM CLR 10/07 A3013 RMK AO2 SLP198 T00950069 KRIW 160653Z AUTO 00000KT 10SM OVC023 M08/M12 A3047 RMK AO2 SLP376 T10831122 410111089 KRKP 160653Z AUTO 14006KT 10SM OVC080 16/13 A3028 RMK AO2 SLP254 T01560128 KRKR 160655Z AUTO 33011KT 10SM OVC034 M07/M16 A3071 RMK AO2 KRKS 160654Z AUTO 05003KT 10SM CLR M11/M15 A3043 RMK AO2 SLP369 T11061150 410171106 KRKW 160655Z AUTO 25005KT 10SM FEW055 00/M06 A3030 RMK A01 KRLD 160655Z AUTO 08005KT 10SM SCT110 03/03 A3018 RMK AO2 T00330029 KRME 160705Z AUTO 11007KT 4SM -SN BR OVC037 M09/M11 A3041 RMK AO2 P0000 T10891106 $ KRMG 160653Z AUTO 29003KT 10SM CLR M04/M05 A3038 RMK AO2 SLP289 T10391050 KRMN 160655Z AUTO 00000KT 10SM OVC007 M04/M04 A3050 RMK AO2 T10411041 KRMY 160655Z AUTO 23006KT 7SM -SN BKN013 OVC050 M11/M14 A3028 RMK AO2 T11151136 KRNC 160655Z AUTO 01006KT 10SM FEW014 OVC055 M01/M03 A3038 RMK A01 KRND 160656Z AUTO 36022G35KT 9SM -RA BKN011 BKN017 OVC024 04/02 A3044 RMK AO2 PK WND 02040/40 SLP309 P0009 T00390016 KRNH 160655Z AUTO 34010KT 4SM -SN SCT016 SCT032 BKN065 M15/M18 A3054 RMK AO2 T11531185 KRNM 160653Z AUTO 12003KT 10SM CLR 10/08 A3012 RMK AO2 SLP191 T01000078 KRNO 160655Z 00000KT 10SM BKN150 BKN220 03/00 A3018 RMK AO2 SLP215 T00330000 KRNP 160655Z AUTO 00000KT 7SM SCT027 M15/M17 A3028 RMK AO2 T11501169 KRNT 160653Z AUTO 00000KT 10SM OVC070 11/08 A2997 RMK AO2 RAE52 SLP155 P0000 T01110078 KRNV 160655Z AUTO 01018G24KT 10SM OVC013 M01/M03 A3049 RMK AO2 T10111027 KROA 160654Z 00000KT 10SM BKN150 M04/M11 A3041 RMK AO2 SLP309 T10391106 KROC 160654Z 22004KT 9SM -SN OVC060 M06/M07 A3032 RMK AO2 SLP282 P0000 T10561072 KROG 160658Z AUTO 32009KT 10SM FEW023 M14/M18 A3065 RMK AO2 SLP402 T11441183 KROS 160655Z AUTO 34007KT 10SM SCT080 BKN110 M16/M19 A3058 RMK AO2 T11651189 KROW 160651Z AUTO 06008KT 10SM OVC055 M02/M14 A3059 RMK AO2 SLP361 T10171139 400831050 KROX 160655Z AUTO 28005KT 10SM CLR M27/M30 A3077 RMK AO2 KRPD 160655Z AUTO 00000KT 10SM CLR M14/M16 A3051 RMK AO2 T11381161 KRPH 160655Z AUTO 34018G29KT M05/M17 A3069 RMK AO2 T10501175 PWINO KRPJ 160655Z AUTO 27011KT 7SM -SN SCT030 BKN046 OVC055 M17/M19 A3039 RMK AO2 T11701194 KRQB 160655Z AUTO 00000KT 10SM OVC075 M12/M14 A3028 RMK AO2 T11181140 KRQE 160653Z AUTO 00000KT 10SM CLR M04/M07 A3028 RMK AO2 SLP221 T10391072 401441083 TSNO KRQO 160655Z AUTO 36019KT 10SM CLR M10/M19 A3074 RMK AO2 T11031189 KRRL 160655Z AUTO 01003KT 10SM CLR M13/M14 A3039 RMK AO2 T11261139 KRRT 160655Z AUTO 29003KT 10SM CLR M26/M29 A3075 RMK AO2 KRSL 160653Z AUTO 33007KT 10SM CLR A3072 RMK AO2 SLPNO $ KRSN 160655Z AUTO 03014G17KT 10SM OVC020 04/00 A3047 RMK AO2 T00411002 KRSP 160632Z AUTO 21005G15KT 1 1/4SM BR OVC002 M06/M06 A3055 KRST 160710Z AUTO 33017KT 9SM SCT024 OVC040 M17/M19 A3047 RMK AO2 T11721189 KRSV 160655Z AUTO 31008KT 10SM CLR M16/M20 A3055 RMK AO2 T11631201 KRSW 160653Z AUTO 04008KT 10SM CLR 11/09 A3029 RMK AO2 SLP255 T01110094 KRTN 160653Z AUTO 21004KT 10SM BKN005 OVC040 M09/M11 A3044 RMK AO2 SLP348 T10941106 410061094 KRTS 160655Z AUTO 09004KT 10SM FEW120 02/00 A3020 RMK AO2 KRUE 160653Z AUTO 33011KT 10SM BKN110 M07/M16 A3062 RMK AO2 SLP368 T10671161 KRUG 160715Z AUTO 28005KT 10SM CLR M30/M32 A3077 RMK AO2 KRUQ 160655Z AUTO 00000KT 10SM CLR M07/M10 A3043 RMK AO2 T10721096 KRUT 160656Z AUTO 16009KT 10SM OVC043 M08/M14 A3043 RMK AO2 SLP327 T10831139 FZRANO $ KRVS 160653Z 35007KT 320V020 10SM CLR M11/M19 A3078 RMK AO2 SLP436 T11111189 KRWF 160712Z AUTO 32013KT 7SM OVC014 M23/M26 A3068 RMK AO2 T12331261 KRWI 160653Z AUTO 00000KT 10SM CLR M04/M06 A3044 RMK AO2 SLP311 T10441056 KRWL 160653Z AUTO 00000KT 10SM CLR M14/M19 A3043 RMK AO2 SLP374 T11441189 400111167 KRWV 160655Z AUTO 36017G32KT 7SM -RA BR BKN008 OVC012 01/M01 A3049 RMK AO2 P0002 T00061005 KRXE 160653Z AUTO 05004KT 10SM CLR M08/M09 A3037 RMK AO2 SLP327 T10831094 400391083 KRYM 160656Z AUTO 36009KT 10SM OVC011 M19/M22 A3065 RMK AO2 SLP417 T11941220 PWINO FZRANO $ KRYN 160245Z KT 10SM SKC 14/M02 A3010 RMK WIND MISSING LAST KRYV 160655Z AUTO 33005KT 7SM -SN OVC055 M09/M09 A3032 RMK AO2 T10911092 KRYW 160655Z AUTO 5SM -SN BKN012 OVC019 01/00 A3051 RMK AO2 T00080000 KRYY 160648Z AUTO 00000KT 10SM CLR M02/M04 A3040 RMK AO2 SLP016 T10221044 FZRANO KRZL 160655Z AUTO 24014G20KT 10SM SCT007 BKN013 OVC020 M16/M21 A3041 RMK AO2 KRZN 160655Z AUTO 33003KT 10SM SCT015 M16/M18 A3057 RMK AO2 T11631185 KRZR 160655Z AUTO 21006KT 10SM FEW049 00/M04 A3033 RMK A01 KRZT 160655Z AUTO 31013KT 1 1/2SM -SN BKN014 OVC020 M05/M06 A3036 RMK AO2 KS25 160655Z AUTO 00000KT 10SM CLR M30/M33 A3072 RMK AO2 KS32 160715Z AUTO 33012KT 10SM CLR M25/M29 A3078 RMK AO2 KS33 160715Z AUTO 00000KT 1 1/4SM -RA OVC004 A3010 RMK AO2 KS39 160655Z AUTO 15003KT 3/4SM BR OVC002 01/01 A3006 RMK AO2 KS52 160655Z AUTO 00000KT 7SM BR OVC044 01/00 A3017 RMK AO2 T00060002 KSAA 160655Z AUTO 00000KT 10SM CLR M16/M21 A3043 RMK AO2 KSAC 160653Z AUTO 14003KT 1/2SM FG VV002 09/09 A3015 RMK AO2 SLP209 T00890089 $ KSAD 160651Z AUTO 12006KT 10SM CLR 05/M06 A3015 RMK AO2 SLP196 T00501061 402000028 KSAF 160653Z AUTO 14016KT 10SM OVC023 M06/M09 A3041 RMK AO2 PK WND 13027/0605 SLP296 T10611089 400721083 KSAN 160651Z 33004KT 8SM BKN200 BKN250 15/12 A3012 RMK AO2 SLP200 T01500117 KSAR 160655Z AUTO 30008G14KT 10SM CLR M14/M19 A3059 RMK AO2 T11401186 KSAT 160707Z 01015G25KT 10SM -RA BKN014 OVC029 04/01 A3045 KSAV 160653Z AUTO 01003KT 10SM CLR 01/M03 A3044 RMK AO2 SLP309 T00061028 KSAW 160658Z AUTO 31004KT 1 1/4SM -SN BKN013 OVC018 M14/M15 A3039 RMK AO2 T11391155 KSAZ 160655Z AUTO 35006KT 10SM OVC013 M21/M23 A3065 RMK AO2 KSBA 160653Z AUTO 00000KT 5SM BR CLR 11/09 A3012 RMK AO2 SLP199 T01060094 KSBD 160700Z AUTO 00000KT 10SM CLR 14/04 A3014 RMK AO2 T01420043 KSBM 160653Z AUTO 35006KT 7SM -SN BKN024 BKN036 OVC045 M08/M09 A3032 RMK AO2 SLP280 P0000 T10781094 TSNO KSBN 160706Z AUTO 21008KT BKN015 OVC047 M17/M19 A3034 KSBO 160655Z AUTO 00000KT 10SM CLR 00/M01 A3044 RMK AO2 KSBP 160656Z 00000KT 10SM CLR 11/09 A3015 RMK AO2 SLP209 T01110094 KSBS 160654Z AUTO 00000KT 10SM CLR M15/M18 A3043 RMK AO1 T11551185 KSBY 160705Z AUTO 32003KT 4SM BR FEW006 BKN015 M03/M03 A3044 RMK AO2 T10331033 $ KSCD 160655Z AUTO 00000KT 10SM CLR M02/M02 A3039 RMK AO2 T10191019 KSCF 160650Z AUTO 12013KT 10SM CLR 12/09 A3036 RMK A01 KSCH 160146Z AUTO 00000KT 10SM CLR M11M16 A3054 RMK LAST KSCK 160655Z 00000KT 1 1/4SM BR OVC002 10/09 A3014 RMK AO2 SLP205 T01000094 KSCR 160655Z AUTO 00000KT 10SM CLR M08/M10 A3043 RMK AO2 T10811103 KSCX 160655Z AUTO 36003KT 10SM SCT010 OVC050 M01/M03 A3032 RMK A01 KSDA 160655Z AUTO 32007KT 10SM FEW040 M20/M23 A3071 RMK AO2 KSDB 160653Z AUTO 22006KT 10SM CLR 13/M04 A3021 RMK AO2 SLP193 T01331039 KSDC 160715Z AUTO 00000KT 10SM SCT038 BKN047 OVC065 M06/M06 A3035 RMK AO2 KSDF 160656Z 30009KT 2 1/2SM -SN OVC024 M09/M13 A3047 RMK AO2 SLP326 P0001 T10891128 KSDL 160653Z AUTO 00000KT 10SM CLR 12/03 A3010 RMK AO2 SLP180 T01170033 402330078 KSDM 160653Z AUTO 00000KT 10SM CLR 14/10 A3010 RMK AO2 SLP190 T01440100 KSDY 160656Z AUTO 18006KT 10SM CLR M28/M31 A3072 RMK AO2 SLP482 T12781311 FZRANO KSEA 160653Z 25003KT 10SM -RA OVC060 11/07 A2998 RMK AO2 PRESRR SLP159 P0001 T01060067 KSEE 160655Z AUTO 00000KT 10SM CLR 13/09 A3010 RMK AO2 KSEF 160655Z AUTO 01007KT 10SM CLR 10/08 A3031 RMK AO2 T01000078 KSEG 160653Z AUTO 21003KT 9SM OVC015 M04/M07 A3044 RMK AO2 SNB21E48 SLP315 P0000 T10391072 KSEM 160655Z AUTO 00000KT 10SM CLR M01/M03 A3039 RMK AO2 KSEP 160655Z AUTO 36016G21KT 10SM OVC055 M04/M13 A3064 RMK AO2 T10361135 KSET 160654Z AUTO 29014G26KT 10SM OVC018 M16/M21 A3060 RMK AO2 PK WND 29026/0646 SLP371 T11561206 KSEZ 160655Z AUTO 05013KT 10SM CLR 10/M03 A3021 RMK AO2 KSFB 160653Z 35006KT 10SM CLR 08/06 A3034 RMK AO2 SLP273 T00830061 KSFF 160653Z AUTO 00000KT 10SM CLR 00/M01 A3015 RMK AO2 SLP221 T00001011 KSFM 160703Z AUTO 36006KT 9SM -SN BKN015 OVC033 M09/M11 A3053 RMK AO2 P0000 FZRANO KSFO 160656Z 14003KT 9SM FEW013 BKN017 OVC036 13/11 A3015 RMK AO2 SLP211 T01330111 $ KSFQ 160655Z AUTO 00000KT 2 1/2SM BR OVC003 00/00 A3044 RMK AO2 T00000000 KSFY 160655Z AUTO 27006KT 7SM -SN OVC032 M16/M19 A3045 RMK AO2 T11631195 KSFZ 160656Z AUTO 03006KT 10SM OVC024 A3048 RMK AO2 SLPNO FZRANO $ KSGF 160652Z 33010KT 10SM CLR M17/M22 A3061 RMK AO2 SLP391 T11721222 $ KSGH 160656Z AUTO 30011KT 9SM -SN OVC014 M11/M14 A3036 RMK AO2 SLP301 P0000 T11111139 KSGJ 160656Z AUTO 01006KT 10SM CLR 08/06 A3039 RMK AO2 SLP288 T00830061 KSGR 160653Z AUTO 11003KT 10SM BKN060 OVC095 13/09 A3030 RMK AO2 SLP263 T01330094 KSGS 160655Z AUTO 32009KT 10SM SCT033 M16/M20 A3057 RMK AO2 T11641198 KSGT 160706Z AUTO 01019KT 2 1/2SM -SN BR FEW008 OVC022 M06/M07 A3057 RMK AO2 P0000 FZRANO KSGU 160656Z AUTO 00000KT 10SM CLR 09/02 A3022 RMK AO2 SLP228 T00890017 401560033 KSHD 160655Z AUTO 00000KT 10SM SCT120 M04/M11 A3038 RMK AO2 T10411113 KSHL 160655Z AUTO 34012KT 10SM BKN008 BKN021 OVC030 M22/M26 A3064 RMK AO2 KSHM 160703Z AUTO 27007KT 5SM -SHSN BKN004 M13/M15 A3046 RMK AO2 CIG 004V008 SLP414 KSHN 160653Z AUTO 32004KT 10SM BKN041 OVC065 09/09 A2995 RMK AO2 RAE08 SLP146 P0000 T00940089 $ KSHR 160653Z AUTO 00000KT 10SM CLR M24/M27 A3051 RMK AO2 SLP438 T12391267 410721261 KSHV 160711Z 36017KT 4SM -SN BR BKN007 OVC013 01/01 A3050 RMK AO2 CIG 005V010 P0000 T00060006 KSIF 160655Z AUTO 00000KT 10SM CLR M09/M12 A3043 RMK AO2 T10901120 KSIK 160715Z AUTO 33005KT 10SM CLR M08/M15 A3060 RMK AO2 KSIY 160653Z AUTO 13005KT 10SM -RA OVC050 07/06 A3010 RMK AO2 SLP203 P0002 T00720061 $ KSJC 160653Z 14006KT 10SM FEW024 SCT120 BKN160 13/09 A3015 RMK AO2 SLP208 T01330094 $ KSJN 160654Z AUTO 19005KT 10SM CLR 02/M06 A3024 RMK AO2 SLP218 T00171056 401441056 TSNO KSJS 160655Z AUTO 00000KT 10SM OVC019 00/M04 A3034 RMK AO2 T00021036 KSJT 160651Z AUTO 02020G26KT 10SM OVC036 M02/ A3060 RMK AO2 PK WND 03026/0612 SLP368 T1017 $ KSJX 160655Z AUTO 05006KT 10SM CLR M10/M12 A3038 RMK AO2 T11001122 KSKA 160658Z 01006KT 10SM CLR 00/00 A3011 RMK AO2A SLP220 T10031003 $ KSKF 160711Z AUTO 01020G29KT 10SM -RA SCT014 OVC030 05/03 A3041 RMK AO2 SLP298 $ KSKX 160656Z AUTO 27006KT 10SM OVC018 M05/M08 A3039 RMK AO2 SLP307 T10501078 400831128 FZRANO $ KSLB 160655Z AUTO 33017KT 10SM -SN OVC030 M22/M25 A3060 RMK AO2 KSLC 160654Z 13004KT 10SM SCT200 02/M02 A3031 RMK AO2 SLP264 T00221022 400891011 KSLE 160656Z AUTO 13005KT 10SM OVC046 08/07 A3002 RMK AO2 RAB14E54 SLP167 P0001 T00830067 KSLG 160656Z AUTO 35014KT 10SM SCT026 M14/M18 A3067 RMK AO2 SLP406 T11391183 FZRANO KSLH 160655Z AUTO 04007KT 10SM -SN SCT016 OVC021 M08/M11 A3036 RMK AO2 T10881108 KSLI 160703Z AUTO 00000KT 5SM BR CLR 12/12 A3012 RMK AO2 SLP203 KSLK 160651Z AUTO 02003KT 1 1/2SM -SN BR OVC015 M14/M17 A3030 RMK AO2 SNB0559 SLP298 P0000 T11441167 $ KSLN 160653Z AUTO 31010KT 10SM FEW035 M15/M20 A3077 RMK AO2 SLP445 T11501200 KSLO 160655Z AUTO 30008KT 10SM CLR M14/M20 A3057 RMK AO2 T11451196 KSLR 160655Z AUTO 36019G23KT 10SM SCT050 OVC070 M04/M11 A3066 RMK AO2 T10381108 KSME 160655Z AUTO 33006KT 10SM OVC020 M01/M05 A3039 RMK AO2 KSMF 160711Z 19006KT 3/4SM R16R/4500FT BR BCFG OVC002 09/09 A3015 RMK AO2 T00940094 $ KSMN 160656Z AUTO 20009KT 10SM OVC016 M01/M04 A3039 RMK AO2 SLP330 T10111039 400061028 FZRANO KSMO 160651Z AUTO 00000KT 7SM CLR 14/13 A3012 RMK AO2 SLP199 T01390133 KSMP 160656Z AUTO 02007KT 320V100 1/2SM FG OVC005 01/01 A3001 RMK AO2 UPB0559E04B21E50RAB04E21 SLP182 P0002 T00110006 400220011 FZRANO $ KSMQ 160653Z AUTO 00000KT 10SM OVC021 M05/M07 A3048 RMK AO2 SLP323 T10501072 KSMS 160655Z AUTO 10SM CLR M05/M06 A3046 RMK AO2 KSMX 160651Z AUTO 15003KT 6SM BR CLR 11/10 A3015 RMK AO2 SLP213 T01110100 PWINO $ KSNA 160653Z 15003KT 5SM BR CLR 14/13 A3012 RMK AO2 SLP199 T01390133 KSNC 160655Z AUTO 00000KT 10SM FEW030 M06/M09 A3046 RMK AO2 KSNH 160655Z AUTO 34011KT 10SM BKN009 OVC012 M02/M03 A3044 RMK A01 KSNK 160655Z AUTO 03013G23KT 10SM OVC060 M04/M20 A3064 RMK AO2 T10451200 KSNL 160655Z AUTO 01017G22KT 10SM SCT031 SCT120 M10/M17 A3072 RMK AO2 T11001166 KSNS 160705Z AUTO 32003KT 1/2SM FG VV003 12/12 A3017 RMK AO2 T01170117 RVRNO KSNY 160653Z AUTO 32006KT 10SM CLR M21/M24 A3058 RMK AO2 SLP455 T12111239 410501217 KSOA 160655Z AUTO 01018G27KT 10SM OVC025 M01/M14 A3055 RMK AO2 PWINO KSOP 160656Z AUTO 00000KT 10SM CLR M07/M09 A3045 RMK AO2 SLP332 T10671094 FZRANO KSOW 160655Z AUTO 00000KT 10SM CLR M00/M06 A3028 RMK AO2 KSPA 160655Z AUTO 00000KT 10SM CLR M04/M07 A3043 RMK AO2 KSPB 160653Z AUTO 14004KT 10SM -RA OVC045 08/06 A3004 RMK AO2 RAB04 SLP171 P0000 T00780061 KSPD 160656Z AUTO 32005KT M16/M19 A3058 RMK AO1 SLP412 T11561189 400061167 KSPF 160715Z AUTO 19003KT 10SM M21/M26 A3057 RMK AO2 KSPG 160653Z AUTO 06011KT 10SM SCT060 11/08 A3033 RMK AO2 SLP268 T01060078 KSPI 160652Z AUTO 29011KT 10SM CLR M18/M22 A3054 RMK AO2 SLP356 T11781222 PWINO FZRANO $ KSPR 160655Z AUTO VRB03G10KT 10SM CLR 15/11 A3035 RMK A01 KSPS 160652Z AUTO 01016KT 10SM SCT095 M07/M17 A3072 RMK AO2 PK WND 02027/0619 SLP409 T10721167 KSPW 160653Z AUTO 32011KT 10SM BKN011 M23/M27 A3063 RMK AO2 SLP416 T12281267 $ KSQI 160656Z AUTO 27013KT 10SM CLR M18/M20 A3043 RMK AO2 SNE0557 SLP331 T11781200 FZRANO KSQL 160655Z AUTO 00000KT 9SM SCT025 BKN033 OVC039 13/10 A3016 RMK AO2 KSRB 160655Z AUTO 35004KT 10SM OVC011 M00/M02 A3037 RMK A01 KSRC 160656Z AUTO 35005KT 2SM -SN BR OVC009 M07/M08 A3060 RMK AO2 CIG 008V014 SLP374 P0000 T10721083 FZRANO KSRQ 160653Z AUTO 06008KT 10SM FEW065 10/06 A3031 RMK AO2 SLP262 T01000061 KSRR 160655Z AUTO 13008KT 10SM OVC024 M09/M12 A3047 RMK AO2 KSSC 160656Z AUTO 00000KT 10SM CLR M02/M09 A3043 RMK AO2 SLP308 T10221089 KSSF 160653Z AUTO 01017G29KT 6SM RA OVC015 06/03 A3042 RMK AO2 PK WND 35033/0618 RAB16 SLP301 P0003 T00610033 KSSI 160653Z AUTO 36005KT 10SM CLR 02/01 A3041 RMK AO2 SLP298 T00220006 KSTC 160653Z AUTO 34013KT 10SM OVC012 M18/M21 A3061 RMK AO2 SLP405 T11831206 $ KSTE 160655Z AUTO 35006KT 10SM SCT043 BKN055 M13/M14 A3039 RMK AO2 T11271136 KSTF 160735Z AUTO 00000KT 10SM CLR 00/M02 A3042 RMK AO2 KSTJ 160653Z AUTO A3072 RMK AO2 SLPNO PWINO FZRANO RVRNO KSTK 160650Z AUTO 27004KT 10SM CLR M20/M21 A3061 RMK AO2 KSTL 160651Z 30014G23KT 10SM FEW023 M16/M21 A3059 RMK AO2 SNB0558E15 SLP381 P0000 T11561206 KSTP 160653Z AUTO 31010KT 10SM BKN032 M17/M20 A3060 RMK AO2 SLP379 T11671200 KSTS 160653Z AUTO 00000KT 1 3/4SM BR OVC007 12/12 A3014 RMK AO2 CIG 004V009 SLP201 T01170117 KSUA 160655Z AUTO 06010KT 10SM SCT045 18/11 A3029 RMK AO2 KSUE 160653Z AUTO 35012KT 1/4SM +SN FZFG BKN003 BKN020 OVC028 M09/M10 A3035 RMK AO2 P0000 FZRANO RVRNO KSUN 160655Z AUTO 32009KT 10SM CLR M02/M05 A3031 RMK AO2 KSUS 160654Z AUTO 29010G15KT 10SM CLR M16/M21 A3061 RMK AO2 SLP383 T11561206 KSUT 160655Z AUTO 00000KT 10SM CLR M01/M02 A3043 RMK AO2 T10061023 KSUU 160658Z AUTO 00000KT 1/4SM R21L/1000FT FG VV001 09/09 A3015 RMK AO2 SLP217 T00860086 KSUW 160655Z AUTO 31006KT 4SM -SN OVC020 M13/M16 A3060 RMK AO2 T11351162 KSUX 160652Z AUTO 33017KT 10SM OVC025 M19/M23 A3071 RMK AO2 PK WND 33026/0627 SLP432 T11941233 KSVC 160655Z AUTO 17005KT 10SM SCT110 01/M07 A3030 RMK AO2 T00111071 401771032 KSVE 160715Z AUTO 34005KT 9SM CLR 01/00 A3016 RMK AO2 KSVH 160655Z AUTO 00000KT 10SM CLR M07/M10 A3041 RMK AO2 T10691104 KSVN 160656Z AUTO 00000KT 10SM CLR 01/M04 A3041 RMK AO2 SLP301 T00131038 $ KSWF 160645Z 00000KT 10SM OVC012 M06/M09 A3047 KSWO 160653Z AUTO 34017G21KT 10SM CLR M12/M17 A3076 RMK AO2 SLP430 T11221172 KSWW 160655Z AUTO 36016G24KT 10SM OVC049 M04/M19 A3064 RMK AO2 T10401195 KSXS 160658Z AUTO 00000KT 10SM M 02/00 A3040 RMK AO2 SLP298 T00231005 $ KSXU 160655Z AUTO 06003KT 10SM OVC030 M06/M11 A3055 RMK AO2 T10561110 KSYF 160655Z AUTO 00000KT 10SM CLR M19/M21 A3067 RMK AO2 T11861211 KSYI 160655Z AUTO 35009KT 10SM FEW016 OVC055 M01/M03 A3038 RMK A01 KSYM 160655Z AUTO 00000KT 10SM -SN OVC010 M02/M05 A3037 RMK AO2 KSYN 160655Z AUTO 31008KT 10SM -SN SCT016 SCT028 BKN043 M16/M19 A3055 RMK AO2 T11601193 KSYR 160654Z 08005KT 1 3/4SM -SN BR OVC025 M08/M09 A3036 RMK AO2 SLP286 P0001 T10831089 KSZL 160656Z 33007KT 10SM CLR M18/M23 A3062 RMK AO2A SLP392 T11841226 $ KSZT 160655Z AUTO 04012G19KT 10SM CLR 01/M01 A3020 RMK AO2 KSZY 160655Z AUTO 33008G16KT 300V030 10SM BKN012 OVC038 M03/M05 A3044 RMK A01 KT20 160655Z AUTO 36019G24KT 7SM -RA OVC008 05/04 A3044 RMK AO2 P0006 T00460040 KT35 160655Z AUTO 01019G31KT 10SM OVC018 00/M02 A3055 RMK AO2 T00021021 KT65 160655Z AUTO 11006KT 10SM BKN042 OVC060 16/12 A3024 RMK AO2 T01640116 KT82 160655Z AUTO 02016G21KT 10SM OVC017 01/M02 A3049 RMK AO2 T00101017 KTAD 160654Z AUTO 00000KT 10SM CLR M11/M13 A3048 RMK AO2 SLP379 I1000 T11111128 410171111 KTAN 160652Z AUTO VRB05KT 10SM OVC011 M06/M11 A3049 RMK AO2 SLP325 T10561111 $ KTAZ 160655Z AUTO 28006KT 10SM BKN018 BKN023 M18/M22 A3055 RMK AO2 T11801220 KTBN 160656Z AUTO 30008KT 10SM SCT023 M16/M20 A3057 RMK AO2 UPE0557SNB0558E08 SLP380 P0000 T11631204 KTBR 160655Z AUTO 00000KT 10SM CLR M01/M03 A3043 RMK AO2 T10151031 KTCC 160653Z AUTO 05003KT 10SM OVC055 M04/M12 A3057 RMK AO2 SLP375 T10441117 400501050 KTCL 160653Z AUTO 31003KT 10SM CLR M02/M03 A3039 RMK AO2 SLP292 T10221033 KTCM 160710Z AUTO 28004KT 10SM -RA FEW004 FEW011 SCT022 SCT028 SCT036 OVC048 09/09 A3000 RMK AO2 RAB10 SLP164 $ KTCS 160653Z AUTO 03018G25KT 10SM CLR 01/M06 A3034 RMK AO2 SLP253 T00061056 401670000 TSNO $ KTDF 160655Z AUTO 00000KT 10SM CLR M07/M09 A3045 RMK AO2 KTDR 160656Z AUTO 06004KT 10SM CLR 05/01 A3040 RMK AO2 SLP298 T00470007 $ KTDZ 160655Z AUTO 24011KT 7SM BKN011 BKN029 M11/M14 A3034 RMK AO2 T11111144 KTEB 160651Z 03007KT 10SM CLR M04/M10 A3048 RMK AO2 SLP323 T10441100 KTEW 160656Z AUTO 22003KT 7SM OVC011 M08/M11 A3026 RMK AO2 T10781110 KTEX 160655Z AUTO 13005KT 10SM CLR M06/M10 A3031 RMK AO2 T10631102 400551069 KTFP 160655Z AUTO 12003KT 10SM SCT046 OVC080 16/13 A3028 RMK AO2 T01570130 PNO KTGI 160702Z AUTO 34006KT 3/4SM OVC002 00/00 A3044 RMK AO1 KTHA 160655Z AUTO 01006KT 10SM OVC010 M01/M02 A3035 RMK A01 KTHV 160653Z AUTO VRB03KT 6SM BR FEW012 OVC019 M03/M04 A3042 RMK AO2 SLP312 T10281044 KTIF 160655Z AUTO 33009KT 10SM CLR M20/M24 A3069 RMK AO2 T12011242 KTIK 160656Z AUTO 36021G27KT 10SM FEW150 M10/M18 A3070 RMK AO2 PK WND 35030/15 SLP421 T11011177 KTIP 160655Z AUTO 27012KT 10SM CLR M17/M20 A3047 RMK AO2 T11751205 KTIW 160653Z AUTO 28004KT 10SM OVC047 09/09 A2998 RMK AO2 RAB0554E43 SLP154 P0001 T00890089 $ KTIX 160147Z 33010KT 7SM SKC 11/09 A3037 RMK LAST KTKI 160653Z AUTO 01014G20KT 10SM OVC075 M04/M12 A3066 RMK AO2 UPB0555E02SNE0555B02E03 SLP397 P0000 T10441117 KTKV 160655Z AUTO 00000KT 10SM CLR M13/M15 A3040 RMK AO2 T11351148 KTKX 160655Z AUTO 34012G19KT 10SM BKN028 BKN034 OVC040 M08/M14 A3058 RMK AO2 KTLH 160653Z AUTO 00000KT 10SM CLR 02/M01 A3040 RMK AO2 SLP294 T00171011 KTMA 160650Z AUTO 00000KT 10SM CLR 00/M01 A3040 RMK AO2 T00021010 KTMB 160653Z AUTO 35007KT 10SM FEW037 BKN048 BKN055 15/13 A3023 RMK AO2 SLP235 T01500133 KTME 160655Z AUTO 35017G23KT 3SM RA BKN006 BKN015 OVC034 08/08 A3038 RMK AO2 KTMK 160655Z AUTO 14007KT 10SM BKN030 OVC039 10/08 A3002 RMK AO2 KTMT 160655Z AUTO 25003KT 10SM CLR M03/M07 A3022 RMK AO2 T10331067 KTNB 160655Z AUTO 00000KT 10SM CLR M07/M08 A3031 RMK AO2 T10721084 KTNU 160655Z AUTO 31011KT 10SM OVC009 M22/M25 A3058 RMK AO2 PWINO KTOA 160347Z VRB03KT 10SM BKN200 13/11 A3007 RMK LAST KTOB 160655Z AUTO 31012KT 10SM -SN SCT008 BKN020 OVC042 M18/M20 A3049 RMK AO2 KTOC 160655Z AUTO 00000KT 10SM CLR M01/M04 A3042 RMK AO2 T10101036 KTOI 160653Z AUTO 00000KT 10SM CLR M01/M03 A3040 RMK AO2 SLP295 T10111028 KTOL 160652Z 24013KT 6SM -SN BR OVC014 M12/M13 A3032 RMK AO2 SNB28 SLP280 P0000 T11171133 $ KTOP 160653Z AUTO 31007KT 10SM CLR M17/M22 A3074 RMK AO2 SLP429 T11721222 $ KTOR 160653Z AUTO 00000KT 10SM CLR M17/M20 A3058 RMK AO2 SLP439 T11721200 410391189 KTPA 160653Z 03007KT 10SM SCT060 09/04 A3035 RMK AO2 SLP276 T00940044 KTPF 160655Z AUTO 04009KT 10SM SCT060 08/05 A3034 RMK AO2 KTPH 160656Z AUTO 01008KT 10SM CLR 03/M01 A3022 RMK AO2 SLP220 T00331011 KTPL 160651Z AUTO 35020G31KT 10SM BKN016 OVC025 M01/M03 A3056 RMK AO2 PK WND 35034/0612 SLP369 T10061033 FZRANO KTQE 160709Z AUTO 34014KT 10SM BKN023 M19/M23 A3072 RMK AO2 T11891233 KTQH 160655Z AUTO 36013G19KT 10SM SCT029 SCT070 M11/M17 A3070 RMK AO2 KTRI 160653Z 00000KT 10SM CLR M06/M06 A3033 RMK AO2 SLP276 T10561061 $ KTRK 160655Z AUTO 00000KT 10SM BKN120 05/M05 A3022 RMK AO2 KTRL 160653Z AUTO 35015G23KT 10SM OVC065 M03/M13 A3064 RMK AO2 PK WND 01027/0626 SNE34 SLP377 P0000 T10331128 KTRM 160652Z AUTO 35004KT 10SM CLR 16/08 A3005 RMK AO2 SLP175 T01560078 KTSP 160655Z AUTO 00000KT 10SM CLR 05/M02 A3020 RMK AO2 KTTA 160700Z AUTO 00000KT 10SM CLR M07/M08 A3045 RMK AO2 T10731081 KTTD 160653Z AUTO 09024G30KT 10SM OVC033 08/04 A3005 RMK AO2 PK WND 09032/0603 RAE05 SLP176 P0000 T00830039 KTTF 160656Z AUTO 21009KT 10SM OVC010 M10/M12 A3031 RMK AO2 T10971121 KTTN 160653Z AUTO 36003KT 9SM OVC013 M03/M06 A3047 RMK AO2 SLP314 T10281061 PWINO FZRANO KTTS 160658Z AUTO 01005KT 10SM FEW040 13/13 A3031 RMK AO2 SLP268 T01330133 $ KTUL 160653Z 34013KT 10SM FEW150 BKN180 M12/M18 A3076 RMK AO2 SLP427 T11221178 KTUP 160653Z AUTO 33012KT 10SM BKN018 OVC060 01/M03 A3043 RMK AO2 SLP305 T00111028 KTUS 160653Z 14004KT 10SM CLR 09/M05 A3015 RMK AO2 SLP187 T00941050 402500078 KTVC 160653Z 06005KT 10SM SCT065 M07/M10 A3032 RMK AO2 SNE02 SLP277 P0000 T10721100 KTVF 160701Z AUTO 34008KT 10SM CLR M27/M29 A3077 RMK AO2 SLP469 T12721294 FZRANO KTVI 160655Z AUTO 12003KT 10SM CLR 03/00 A3041 RMK AO2 KTVK 160655Z AUTO 27013KT 030V030 10SM M19/M23 A3059 RMK AO2 KTVL 160653Z AUTO VRB03KT 10SM SCT120 00/M04 A3022 RMK AO2 SLP229 T00001039 KTVR 160653Z AUTO 01015G24KT 10SM OVC060 04/01 A3043 RMK AO2 SLP311 T00390011 KTVY 160655Z AUTO 16007KT 10SM CLR 00/M01 A3031 RMK AO2 KTWF 160653Z AUTO 09010KT 10SM CLR 00/M02 A3025 RMK AO2 SLP246 T00001022 400671033 KTWM 160655Z AUTO 00000KT 10SM CLR M13/M17 A3053 RMK AO2 KTXK 160653Z AUTO 34010KT 3/4SM -SN BR OVC007 M03/M04 A3056 RMK AO2 SLP351 P0002 T10331039 KTYQ 160655Z AUTO 26006KT 10SM CLR M18/M20 A3042 RMK AO2 T11771198 KTYR 160712Z AUTO 36016G22KT 2SM -SN BR OVC016 M05/M07 A3057 RMK AO2 P0001 T10501067 $ KTYS 160653Z 00000KT 10SM CLR M03/M06 A3033 RMK AO2 SLP275 T10331061 KTZR 160655Z AUTO 29010G19KT 1 1/4SM -SN OVC018 M08/M10 A3034 RMK AO2 T10831100 KU42 160655Z AUTO 22003KT 10SM CLR M01/M03 A3033 RMK AO1 T10121028 KU68 160655Z AUTO 03004KT 10SM CLR M15/M17 A3052 RMK AO2 KUAO 160653Z AUTO 00000KT 6SM -RA BR OVC040 09/08 A3005 RMK AO2 RAB24 SLP177 P0001 T00890078 KUBE 160655Z AUTO 35009KT 10SM -SN CLR M15/M18 A3049 RMK AO2 KUCP 160656Z AUTO 00000KT 2SM -SN BR BKN013 OVC019 M03/M04 A3030 RMK AO2 SLP292 P0002 T10331039 KUCY 160655Z AUTO 35012KT 1SM BR OVC003 M09/M11 A3056 RMK A01 KUDG 160656Z AUTO 00000KT 10SM CLR M04/M07 A3046 RMK AO2 SLP322 T10391067 FZRANO KUES 160655Z AUTO 31005KT 10SM SCT043 OVC050 M08/M10 A3031 RMK AO2 KUGN 160709Z AUTO 29006KT 1 3/4SM -SN FEW018 BKN027 OVC035 M08/M12 A3029 RMK AO2 P0000 T10831117 KUIL 160653Z AUTO 15007G19KT 120V190 10SM FEW014 09/08 A2989 RMK AO2 RAE33 SLP122 P0004 T00940078 KUIN 160654Z AUTO 29010KT 10SM CLR M19/M23 A3057 RMK AO2 SLP371 T11891228 $ KUKF 160650Z AUTO 00000KT 10SM CLR M06/M09 A3044 RMK AO2 KUKI 160656Z AUTO 35003KT 3SM RA BR OVC006 12/11 A3015 RMK AO2 RAB18 CIG 006V010 SLP205 P0007 T01170106 KUKT 160655Z AUTO 10SM OVC010 M03/M05 A3045 RMK AO1 KULM 160655Z AUTO 31015KT 3SM -SN SCT025 BKN032 OVC048 M22/M26 A3065 RMK AO2 KUNI 160655Z AUTO 24003KT 10SM OVC048 M02/M04 A3034 RMK AO2 T10171037 KUNO 160653Z AUTO 32011G20KT 10SM FEW026 M14/M19 A3057 RMK AO2 SLP373 T11391189 $ KUNU 160655Z AUTO 34006KT 10SM OVC009 M09/M10 A3034 RMK AO2 T10901105 KUNV 160655Z AUTO 00000KT 10SM BKN050 OVC080 M06/M08 A3034 RMK AO2 T10601078 KUOX 160655Z AUTO 34008G19KT 10SM OVC013 M02/M05 A3048 RMK AO2 KUSE 160700Z AUTO 22010KT 6SM BR OVC014 M11/M12 A3031 RMK AO2 KUTA 160655Z AUTO 34015G21KT 5SM -SN M04/M06 A3056 RMK AO2 TSNO KUTS 160653Z AUTO 36008G17KT 5SM -RA BR OVC007 04/03 A3044 RMK AO2 CIG 004V010 SLP308 P0001 T00440033 KUUU 160704Z AUTO 35005KT 10SM FEW010 OVC032 M06/M11 A3049 RMK AO2 T10561106 KUVA 160655Z AUTO 02017G24KT 10SM DZ OVC028 07/03 A3039 RMK AO2 T00730029 KUXL 160655Z AUTO 12003KT 10SM SCT085 OVC095 08/07 A3034 RMK AO2 T00800068 KUYF 160655Z AUTO 29012KT 10SM BKN012 OVC085 M09/M12 A3034 RMK AO2 KUZA 160654Z AUTO 00000KT 10SM CLR M06/M09 A3044 RMK AO2 SLP320 T10611089 KVAD 160656Z AUTO 09003KT 10SM CLR 01/M01 A3039 RMK AO2 SLP294 T00101011 CHINO RWY36 $ KVAF 160655Z AUTO 14011KT 8SM CLR 19/10 A3031 RMK A01 KVAY 160654Z AUTO 35003KT 10SM OVC016 M02/M04 A3048 RMK AO2 SLP321 T10221039 KVBG 160658Z AUTO 11007KT 9SM CLR 10/09 A3014 RMK AO2 SLP209 T00970088 $ KVBS 160605Z AUTO 09011KT 10SM CLR 13/ A3033 RMK A01 KVBT 160656Z AUTO 34011G16KT 10SM CLR M14/M19 A3067 RMK AO2 SLP411 T11441189 FZRANO KVBW 160655Z AUTO 00000KT 10SM CLR M04/M11 A3036 RMK AO2 T10401107 KVCB 160653Z AUTO 00000KT 1/4SM FG VV002 09/09 A3018 RMK AO2 SLP217 T00890089 KVCT 160651Z AUTO 00000KT 10SM OVC100 12/10 A3029 RMK AO2 SLP258 T01170100 KVCV 160655Z AUTO 00000KT 10SM CLR 09/02 A3016 RMK AO2 KVDF 160715Z AUTO 00000KT 10SM SCT060 07/05 A3035 RMK AO2 KVDI 160655Z AUTO 00000KT 10SM CLR 00/M01 A3044 RMK AO2 KVEL 160653Z AUTO 01005KT 10SM CLR M04/M11 A3045 RMK AO2 SLP337 T10441111 400561083 KVER 160655Z AUTO 31008KT 10SM CLR M17/M23 A3066 RMK AO2 T11721235 KVES 160655Z AUTO 28006KT 10SM OVC021 M13/M15 A3037 RMK AO2 KVGT 160653Z AUTO 00000KT 10SM CLR 12/05 A3014 RMK AO2 SLP220 T01220050 KVIH 160653Z AUTO 30010KT 10SM CLR M17/M21 A3058 RMK AO2 SLP380 T11721211 $ KVIS 160656Z AUTO 26004KT 1 3/4SM BR CLR 08/08 A3016 RMK AO2 SLP222 T00830078 KVJI 160655Z AUTO 00000KT 10SM CLR M02/M04 A3031 RMK AO2 T10251040 KVKS 160655Z AUTO 35011G16KT 10SM OVC055 06/01 A3042 RMK A01 KVKY 160655Z AUTO 12014KT 10SM FEW029 FEW033 FEW065 16/08 A3037 RMK A01 KVLD 160653Z AUTO 00000KT 10SM CLR 00/M02 A3041 RMK AO2 SLP306 T00001017 PNO $ KVLL 160655Z AUTO 00000KT 4SM -SN SCT010 OVC017 M06/M07 A3029 RMK AO2 T10571067 KVNC 160655Z AUTO 05012G17KT 10SM 11/08 A3031 RMK AO2 KVNY 160651Z AUTO 00000KT 10SM CLR 14/05 A3012 RMK AO2 SLP193 T01440050 KVOA 160655Z AUTO 07010KT 8SM SCT024 SCT029 16/03 A3036 RMK A01 KVOK 160704Z AUTO 29007KT 10SM FEW027 OVC044 M A3043 RMK AO2 SNE04 SLPNO ALSTG ESTMD $ KVPC 160653Z AUTO 10003KT 10SM CLR M03/M04 A3041 RMK AO2 SLP296 T10281044 KVPS 160657Z 00000KT 10SM CLR 01/M01 A3040 RMK AO2A SLP301 T00141008 $ KVPZ 160656Z AUTO 23011KT 4SM HZ OVC055 M15/M18 A3035 RMK AO2 SLP294 T11501178 $ KVQQ 160655Z AUTO M01/M01 A3040 RMK AO2 KVQT 160655Z AUTO 11012KT 10SM CLR 16/12 A3035 RMK A01 KVRB 160653Z AUTO 05010KT 10SM CLR 17/11 A3029 RMK AO2 SLP256 T01720106 KVSF 160654Z AUTO 00000KT 10SM OVC043 M09/M13 A3048 RMK AO2 SLP334 T10891128 KVTA 160654Z AUTO 21003KT -SN OVC023 M03/M04 A3031 RMK AO2 SLP275 P0001 T10331044 $ KVTI 160715Z AUTO 30012KT BKN002 OVC007 M19/M22 A3052 RMK AO2 T11901225 PWINO KVTN 160652Z AUTO 31010KT 10SM CLR M21/M26 A3072 RMK AO2 SLP501 T12111256 KVTP 160700Z AUTO 20013G17KT 10SM BKN006 BKN013 M09/M10 RMK AO2 KVUJ 160655Z AUTO 00000KT 10SM CLR M07/M09 A3049 RMK AO2 T10661088 KVUO 160653Z AUTO 12007KT 10SM BKN027 OVC039 08/05 A3005 RMK AO2 RAE03 SLP177 P0000 T00830050 $ KVVG 160650Z AUTO 00000KT 10SM 07/05 A3026 RMK A01 KVVV 160656Z AUTO 33012G18KT 10SM CLR M23/M27 A3074 RMK AO2 KVWU 160655Z AUTO 34004KT 10SM OVC010 M21/M23 A3070 RMK AO2 KVYS 160655Z AUTO 27013G22KT 10SM CLR M18/M21 A3044 RMK AO2 T11801210 KW13 160655Z AUTO 00000KT 10SM SCT120 M05/M12 A3035 RMK AO1 T10501120 KW22 160655Z AUTO 24009G16KT 4SM -UP BKN025 OVC029 01/M03 A3029 RMK AO2 KW29 160650Z AUTO 34003KT 7SM HZ OVC010 M02/M05 A3047 RMK AO2 KW31 160655Z AUTO 00000KT 10SM CLR M07/M08 A3042 RMK AO1 T10681080 KW43 160655Z AUTO 00000KT 10SM CLR M23/M27 A3054 RMK AO2 KW63 160655Z AUTO 00000KT 10SM CLR M06/M07 A3043 RMK AO1 KW75 160655Z AUTO 32003KT 3/4SM OVC003 M01/M01 A3045 RMK AO1 T10081008 KW78 160655Z AUTO 00000KT 10SM CLR M08/M11 A3044 RMK AO1 T10811110 KW81 160655Z AUTO 00000KT 10SM CLR M07/M07 A3043 RMK AO1 T10751075 KW96 160655Z AUTO 30004KT 7SM OVC006 M02/M02 A3046 RMK AO1 T10181018 KW99 160650Z AUTO 00000KT 10SM BKN090 OVC120 M07/M09 A3037 RMK AO2 T10701091 KWAL 160654Z AUTO 32007KT 3/4SM BR VV002 M01/M01 A3043 RMK AO2 SLP302 I1001 T10061011 KWDG 160655Z AUTO 34011KT 10SM CLR M13/M18 A3078 RMK AO2 KWDR 160655Z AUTO 00000KT 10SM CLR M01/M05 A3043 RMK AO1 KWHP 160355Z 12005KT 10SM SKC 18/04 A3011 RMK LAST KWJF 160656Z AUTO 22005KT 10SM CLR 08/04 A3016 RMK AO2 SLP216 T00780039 KWLD 160654Z AUTO 34007KT 10SM CLR M15/M18 A3077 RMK AO2 SLP444 T11501183 $ KWMC 160656Z AUTO 04006KT 10SM CLR 05/M01 A3017 RMK AO2 SLP208 T00501006 KWRB 160656Z AUTO 00000KT 10SM CLR M02/M03 A3042 RMK AO2 SLP306 T10171030 KWRI 160656Z AUTO 03006KT 10SM OVC015 M02/M04 A3044 RMK AO2 SLP309 T10251045 $ KWRL 160653Z AUTO 13003KT 10SM CLR M19/M20 A3051 RMK AO2 SLP418 T11891200 410061206 KWST 160653Z AUTO 02004KT 10SM OVC033 M04/M07 A3049 RMK AO2 SLP325 T10391072 KWVI 160708Z AUTO 33004KT 10SM OVC005 11/09 A3018 RMK AO2 T01060094 KWVL 160656Z AUTO 02011KT 9SM -SN OVC033 M11/M13 A3048 RMK AO2 SLP357 P0000 T11111133 FZRANO KWWD 160655Z AUTO 02003KT 10SM CLR M03/M04 A3044 RMK AO2 SLP312 T10281039 FZRANO KWWR 160655Z AUTO 32007KT 10SM CLR M16/M21 A3076 RMK AO2 KWYS 160650Z AUTO 00000KT 10SM CLR M21/M23 A3039 RMK AO2 KX60 160655Z AUTO 00000KT 10SM 03/01 A3039 RMK A01 KXBP 160655Z AUTO 36015G24KT 10SM OVC075 M05/M16 A3072 RMK AO2 T10471158 KXIF 160656Z AUTO 00000KT 8SM SCT008 OVC010 M04/M06 A3033 RMK AO2 OVC V BKN SLPNO WND DATA ESTMD T10421061 KXIH 160655Z AUTO 14011KT 10SM BKN095 14/13 A3030 RMK A01 KXLL 160655Z AUTO 10003KT 10SM OVC013 M02/M06 A3048 RMK AO2 KXMR 160656Z AUTO 02005KT 10SM FEW039 12/10 A3030 RMK AO2 SLP264 T01220104 $ KXNA 160653Z AUTO 35012KT 10SM CLR M14/M19 A3065 RMK AO2 SNB0554E40 SLP400 P0000 T11391189 $ KXPY 160655Z AUTO 01005KT 10SM CLR 10/09 A3037 RMK A01 KXSA 160655Z AUTO 00000KT 5SM BR OVC004 00/M01 A3047 RMK AO2 T10021006 KXVG 160655Z AUTO 34005KT 10SM OVC012 M20/M22 A3064 RMK AO2 KY19 160655Z AUTO 29009KT 10SM CLR M28/M31 A3078 RMK AO2 KY23 160655Z AUTO 00000KT 10SM SCT026 SCT120 M14/M16 A3049 RMK AO2 T11401160 KY31 160655Z AUTO 00000KT 5SM -SN SCT030 OVC036 M13/M14 A3026 RMK AO2 T11291144 KY49 160655Z AUTO 36008KT 10SM OVC009 M20/M22 A3066 RMK AO2 T11961216 KY50 160656Z AUTO 36006KT 9SM -SN FEW050 SCT090 SCT110 M11/M13 A3038 RMK AO2 SNB48 SLP319 T11111128 KY51 160655Z AUTO 30007KT 10SM OVC010 M15/M16 A3039 RMK AO1 T11551165 KY63 160655Z AUTO 29011KT 7SM CLR M25/M27 A3071 RMK AO2 T12481273 KY70 160655Z AUTO 03003KT 5SM -SN SCT016 BKN023 OVC075 M10/M11 A3027 RMK AO2 T11001111 KYIP 160653Z 22008KT 7SM OVC013 M07/M09 A3028 RMK AO2 SLP264 T10721094 KYKM 160653Z AUTO 28006KT 10SM SCT095 04/02 A3013 RMK AO2 RAB0558E30 SLP209 P0001 T00440022 KYKN 160656Z AUTO 32016KT 9SM -SN OVC018 M19/M23 A3074 RMK AO2 SLP463 P0000 T11941228 FZRANO KYNG 160651Z 23008KT 1SM -SN BR FEW008 BKN019 OVC025 M04/M06 A3028 RMK AO2 SLP270 P0002 T10391056 KZPH 160735Z AUTO 36004KT 10SM SCT060 05/04 A3036 RMK AO2 T00520037 KZZV 160704Z AUTO 19003KT 2SM -SN BR BKN028 OVC032 M03/M04 A3032 RMK AO2 P0000 T10331044 LATI 160650Z 19003KT 8000 -RA FEW016 BKN045 OVC060 08/06 Q1019 NOSIG LBBG 160700Z 23007KT 1800 -RA BR BKN013 OVC015 01/01 Q1019 R99/29//95 NOSIG LBGO 160700Z AUTO 02002KT 8000 -SHSN SCT049/// M05/M06 Q1021 R09/5/9392 NOSIG LBIA 160700Z 30004KT 2100 BR OVC004 M01/M01 Q1019 LBPD 160700Z AUTO 20003KT 170V250 5000 OVC065/// M01/M02 Q1019 NOSIG LBPG 160700Z 28004KT 1500 BR BKN044 BKN100 M03/M04 Q1019 R99/5902// LBPL 160700Z 35002KT 8000 BR SCT050 BKN100 M06/M07 Q1022 LBSF 160700Z 11007KT 3000 BR SCT069 M02/M03 Q1016 R99/590195 BECMG 5000 BR LBWB 160700Z 28010KT 4000 BR OVC005 M02/M03 Q1018 R88/593092 LBWN 160700Z 28011KT 9999 FEW015 SCT023 BKN049 M02/M04 Q1019 R99/29//95 NOSIG LCEN 160650Z 23004KT 9999 FEW025 SCT100 BKN200 11/08 Q1024 NOSIG LCLK 160700Z 30004KT 9999 FEW025 15/10 Q1024 NOSIG LCPH 160700Z 02005KT 9999 FEW020 14/10 Q1024 LCRA 160650Z 30003KT 9999 FEW027 BKN300 12/06 Q1024 NOSIG LDDU 160700Z 09010KT 6000 RA FEW010 BKN036 BKN043 06/06 Q1017 NOSIG LDOS 160700Z 15011KT 7000 -FZRA SCT013 OVC030 M02/M04 Q1012 R11/////// LDPL 160700Z 22010KT 9999 BKN034 10/07 Q1011 NOSIG LDRI 160700Z 13004KT 9999 -RA FEW010 SCT027 OVC040 08/07 Q1011 LDSP 160700Z 01004KT 340V070 9999 RA FEW012 BKN020 OVC040 08/07 Q1015 NOSIG LDZA 160700Z VRB02KT 7000 FEW038 M01/M03 Q1010 BECMG 23006KT LDZD 160700Z 18008KT 9999 SCT030 BKN070 10/08 Q1013 BECMG 24012KT LEAB 160700Z 03003KT 360V080 CAVOK M00/M01 Q1028 NOSIG LEAG 160700Z AUTO VRB07KT 9999 -RA FEW026 08/04 Q1030 LEAL 160700Z 22011KT CAVOK 06/02 Q1027 NOSIG LEAM 160700Z 32009KT CAVOK 07/01 Q1029 LEAO 160700Z 00000KT CAVOK 00/M01 Q1029 LEAS 160700Z 25009KT 9999 FEW038 13/09 Q1023 NOSIG LEBA 160700Z VRB02KT 7000 NSC 01/01 Q1031 LEBB 160700Z 23012KT 200V280 9999 BKN027 12/06 Q1023 NOSIG LEBG 160713Z 19011KT 4000 -DZ BR OVC005 04/03 Q1026 LEBL 160700Z 26014KT 9999 FEW030 10/01 Q1020 NOSIG LEBR 160700Z AUTO 00000KT 0350 R/////// FG VV002 01/M00 Q1025 LEBT 160700Z AUTO VRB01KT 9999 // NCD 04/M01 Q1024 LEBZ 160700Z 15001KT CAVOK 03/03 Q1030 LECH 160700Z AUTO 19004KT 170V330 9999 NCD 05/M01 Q1023 LECO 160700Z 26004KT 200V300 7000 BKN015 BKN022 13/11 Q1027 TEMPO 3000 -RA BR BKN012 LECV 160700Z 11003KT 9999 FEW030 01/M00 Q1026 LEEC 160700Z 05005KT CAVOK 05/04 Q1031 LEGA 160700Z 16003KT CAVOK M01/M02 Q1030 LEGE 160700Z 00000KT CAVOK 02/01 Q1019 LEGR 160700Z 17001KT CAVOK M03/M03 Q1031 LEGT 160700Z 05002KT CAVOK 00/M01 Q1028 LEHC 160700Z AUTO 26010KT 9999 OVC045 04/02 Q1022 LEIB 160700Z 24018KT CAVOK 13/06 Q1025 NOSIG LEJR 160700Z 34001KT CAVOK 01/01 Q1030 LELC 160700Z 28007KT CAVOK 07/03 Q1027 NOSIG LELL 160700Z 28004KT 250V310 CAVOK 06/02 Q1020 LELN 160700Z 26012G22KT 9999 BKN005 07/07 Q1025 LELO 160700Z 27016KT 9999 FEW035 08/04 Q1024 LEMD 160700Z 34002KT 8000 FEW030 M00/M00 Q1028 NOSIG LEMG 160700Z 31006KT CAVOK 03/03 Q1030 NOSIG LEMH 160700Z 25016G26KT 9999 FEW025 12/08 Q1022 LEMO 160700Z VRB02KT 6000 NSC 02/02 Q1030 NOSIG LEPA 160700Z 23009KT 200V260 CAVOK 13/08 Q1023 NOSIG LEPP 160700Z 00000KT 9999 SCT030 OVC034 06/05 Q1024 LERI 160700Z 23006KT CAVOK 02/01 Q1028 NOSIG LERS 160700Z 26012KT 230V290 CAVOK 10/02 Q1022 LERT 160700Z 03005KT 9999 BCFG NSC 04/03 Q1030 NOSIG LESA 160700Z 26008KT 6000 BKN005 BKN012 07/06 Q1028 LESO 160700Z 25010G20KT 200V300 4000 RADZ BKN025 13/10 Q1023 LEST 160700Z 25006KT 210V290 0400 R17/P2000 R35/0500N -DZ FG VV001 11/11 Q1027 TEMPO 1500 BCFG LETL 160700Z AUTO VRB02KT 9999 NCD M03/M05 Q1026 LETO 160700Z 03005KT CAVOK M00/M01 Q1028 NOSIG LETU 160700Z AUTO 29006KT 9999 NCD 03/00 Q1025 LEVC 160700Z 23010KT 9999 FEW040 09/M00 Q1024 NOSIG LEVD 160700Z 25015KT 9000 OVC003 05/04 Q1026 LEVS 160700Z 00000KT 9999 FEW030 02/01 Q1028 LEVT 160700Z 24008KT 9999 BKN045 06/03 Q1024 LEVX 160700Z 20004KT 160V260 0200 R19/0400N R01/0250N BCFG DZ VV001 09/09 Q1028 NOSIG LEXJ 160700Z 25009KT 210V300 9999 BKN020 BKN046 13/09 Q1023 LEZG 160700Z 33003KT 9999 FEW040 03/02 Q1025 LEZL 160700Z VRB02KT CAVOK 07/05 Q1031 NOSIG LFBA 160700Z AUTO 27012KT 9999 -DZ SCT016 OVC022 12/10 Q1018 TEMPO 26015G25KT 4000 -RA BKN008 LFBC 160700Z AUTO 27016KT 230V290 9999 FEW011 SCT023 BKN046 13/11 Q1018 TEMPO 3000 RA BKN010 BECMG 27015G30KT LFBD 160700Z AUTO 28018KT 9999 BKN010 OVC015 12/11 Q1017 TEMPO 27020G35KT 3000 RA LFBE 160700Z AUTO 26014KT 9999 BKN016 BKN025 BKN041 11/09 Q1017 TEMPO 27015G30KT 3000 RA BKN012 LFBG 160700Z AUTO 25012KT 9999 FEW009 BKN016 BKN024 11/09 Q1015 TEMPO 3000 RADZ BKN010 BECMG 26015G25KT LFBH 160700Z AUTO 26016KT 9999 SCT026 BKN035 BKN042 12/09 Q1013 TEMPO 27020G35KT 3000 RA BKN010 LFBI 160700Z AUTO 25016KT 9999 FEW014 BKN029 OVC054 10/08 Q1011 TEMPO 27020G30KT 3000 RA BKN012 LFBL 160700Z AUTO 25014G25KT 9999 -RADZ OVC006 08/08 Q1013 BECMG 27015KT SCT008 BKN015 LFBM 160700Z AUTO 27016KT 9999 SCT011 SCT019 BKN035 12/11 Q1020 BECMG 25015G25KT RA BKN012 OVC020 LFBO 160700Z AUTO 25014KT 9999 BKN013 OVC019 12/09 Q1019 TEMPO 26018G28KT 4000 -RA LFBP 160700Z AUTO 24011KT 6000 DZ BKN012 OVC018 11/10 Q1021 TEMPO 26020G30KT 3000 RA LFBT 160700Z AUTO 25018G29KT 9999 SCT026 BKN031 BKN037 12/08 Q1021 TEMPO 4000 -RA BKN014 LFBY 160624Z 27016G30KT 230V300 2000 RA BKN006 OVC015 13/11 Q1020 RMK M0 LFBZ 160700Z AUTO 26014KT 220V280 5000 -RA BR BKN009 OVC015 12/11 Q1022 TEMPO 24015G30KT RA BKN012 LFCK 160700Z AUTO 25020KT 9999 BKN016 OVC023 11/09 Q1019 TEMPO 4000 -DZRA BKN008 BECMG 26018G28KT LFCR 160700Z AUTO 27009KT 3700 RA BR OVC004 08/08 Q1016 TEMPO 26017G27KT NSW BKN005 LFGJ 160700Z AUTO 20017KT 9999 BKN017/// BKN028/// OVC033/// ///TCU 07/07 Q1008 TEMPO 20025G45KT BKN012 LFJL 160700Z AUTO 25019KT 9999 BKN016/// BKN022/// OVC027/// ///TCU 07/05 Q0998 TEMPO 4000 RA BKN014 BECMG 24018G35KT LFKB 160700Z AUTO 07003KT 360V110 9999 BKN070 06/04 Q1014 NOSIG LFKC 160700Z AUTO 20020G32KT 9999 BKN034 BKN052 BKN068 12/07 Q1016 NOSIG LFKF 160700Z AUTO 26024G35KT 9999 BKN024 BKN030 OVC037 12/09 Q1017 NOSIG LFKJ 160700Z AUTO 26016KT 9999 FEW025 BKN036 BKN042 13/08 Q1019 BECMG 24015G25KT LFKS 160700Z AUTO 35003KT 290V090 9999 OVC054 14/04 Q1013 LFLB 160700Z AUTO 21009KT 6000 RA BKN050 OVC074 07/05 Q1012 TEMPO 18015G25KT 4000 SHRA BKN020TCU LFLC 160700Z AUTO 22008KT 190V270 9999 BKN031 OVC037 11/06 Q1010 TEMPO 23015G30KT 4000 SHRA OVC025TCU LFLL 160700Z 19017KT 9999 -RA BKN046 08/05 Q1011 NOSIG LFLP 160700Z AUTO VRB02KT 9999 -RA FEW024 BKN033 OVC040 05/04 Q1011 TEMPO 22017G27KT 4000 RA OVC014 LFLS 160700Z AUTO VRB04KT 9999 OVC040 07/04 Q1012 TEMPO 20020G35KT 4000 SHRA OVC025TCU LFLU 160700Z AUTO 23013KT 9999 OVC076 07/05 Q1013 LFLW 160700Z AUTO 27012KT 7000 -RADZ OVC010 07/07 Q1015 TEMPO 26015G30KT 3000 RADZ LFLX 160700Z AUTO 25020KT 9999 -RA BKN010 BKN015 OVC020 09/08 Q1008 TEMPO 25025G40KT SCT025TCU LFLY 160700Z AUTO 18017KT 9999 -RA BKN049 BKN056 OVC068 08/06 Q1011 TEMPO 18020G35KT 4000 SHRA OVC025TCU LFMC 160700Z 28010KT 9999 BKN018 BKN030 10/07 Q1015 LFMD 160700Z AUTO 24017G28KT CAVOK 11/04 Q1012 BECMG 26020G45KT LFMH 160700Z AUTO 21010KT 9999 BKN044 OVC068 11/04 Q1011 TEMPO 20015G25KT 4000 SHRA BKN025TCU LFMI 160700Z AUTO 24005KT 9999 BKN045 OVC054 11/09 Q1016 TEMPO 4000 -RA LFMK 160700Z AUTO 29017KT 9999 FEW035 SCT046 BKN062 13/08 Q1017 TEMPO RA BECMG 27020G35KT LFML 160700Z AUTO VRB02KT 9999 FEW020 BKN047 BKN054 12/08 Q1016 TEMPO 4000 -RA BECMG 27013KT LFMN 160700Z 24019KT 9999 FEW020 11/06 Q1011 NOSIG LFMO 160700Z AUTO 14005KT 110V180 9999 FEW017 BKN060 OVC074 09/07 Q1016 NOSIG LFMP 160700Z AUTO 23008KT 210V270 9999 FEW058 BKN070 11/02 Q1017 BECMG 30015G25KT LFMT 160700Z AUTO 23007KT 9999 BKN040 OVC050 12/08 Q1015 NOSIG LFMU 160700Z AUTO 26009KT 9999 FEW045 BKN056 13/09 Q1016 BECMG 27020G30KT LFMV 160700Z AUTO 09006KT 9999 BKN052 OVC064 09/07 Q1016 NOSIG LFMY 160700Z AUTO 06003KT 9999 FEW049 SCT058 OVC074 07/06 Q1016 NOSIG LFOA 160700Z AUTO 25020G30KT 9999 BKN017 OVC024 10/08 Q1007 TEMPO 3000 RADZ SCT008 BKN012 LFOB 160700Z AUTO 27010KT 9999 BKN029/// BKN042/// BKN070/// ///TCU 07/05 Q0999 TEMPO 26025G45KT 4000 SHRA BKN012 BKN020CB LFOC 160700Z AUTO 25016KT 9999 FEW014 SCT021 BKN032 09/08 Q1004 TEMPO 25020G30KT BKN010 SCT025TCU LFOE 160700Z AUTO 28016KT 9999 -RA FEW020/// BKN041/// OVC048/// ///TCU 07/05 Q1001 LFOH 160700Z AUTO 25018KT 9999 BKN024 BKN041 OVC056 08/05 Q1000 TEMPO 26025G45KT 4000 SHRA BKN025CB LFOJ 160700Z AUTO 26017KT 6000 -DZ SCT009 BKN014 BKN021 09/08 Q1004 TEMPO 25020G30KT BKN010 SCT025TCU LFOK 160700Z AUTO 23020KT 9999 -RA FEW010 BKN016 BKN021 08/06 Q1000 TEMPO 25025G40KT 4000 SHRA BKN013 BKN020CB LFOP 160700Z AUTO 27014KT 240V300 9999 BKN019 BKN024 BKN029 07/05 Q1000 TEMPO 26025G40KT 4000 SHRA BKN012 BKN020CB LFOT 160700Z AUTO 24015KT 210V270 9000 -RADZ BKN015 BKN021 OVC029 10/08 Q1007 TEMPO 24020G35KT SCT025TCU LFOV 160700Z AUTO 26010KT 8000 -RA FEW014 BKN023 BKN032 09/08 Q1006 LFPB 160700Z AUTO 25015KT 9999 SCT025 BKN033 BKN039 09/06 Q1000 TEMPO 4000 SHRA BKN020TCU BECMG 24015G25KT LFPG 160700Z 25017KT 9999 SCT017 BKN020 08/06 Q1000 NOSIG LFPO 160700Z 25011KT 9999 SCT030 BKN093 08/05 Q1001 NOSIG LFPV 160700Z AUTO 25013KT 9999 SCT028 SCT039 BKN060 08/05 Q1001 BECMG 27015G35KT SHRA BKN015TCU LFQA 160700Z AUTO 26015KT 9999 -RA BKN025 OVC032 08/05 Q0999 LFQB 160700Z AUTO 25014KT 8000 -RA FEW017/// SCT026/// BKN033/// ///TCU 08/07 Q1002 LFQG 160700Z AUTO 23014KT 9999 BKN019 BKN027 OVC034 10/08 Q1007 LFQQ 160700Z AUTO 24014KT 9999 FEW035 SCT096 BKN110 07/04 Q0994 TEMPO 3000 SHRA BKN013 BKN020TCU BECMG 26020G30KT LFRB 160700Z AUTO 28015G29KT 250V310 9999 BKN033 BKN039 10/06 Q1007 TEMPO 4000 SHRA BKN010TCU LFRD 160700Z AUTO 28020G30KT 9999 FEW023 BKN035 OVC054 10/06 Q1005 TEMPO 27025G40KT 4000 SHRA LFRG 160700Z AUTO 28014KT 250V310 CAVOK 07/06 Q1001 TEMPO 27025G40KT 3000 SHRA BKN015TCU LFRI 160700Z AUTO 26017G29KT 7000 -DZ BKN013 BKN018 OVC024 11/09 Q1010 TEMPO 4000 SHRA BKN020TCU LFRJ 160700Z AUTO 28017G28KT 9999 FEW025 SCT038 BKN046 09/07 Q1007 TEMPO 27025G40KT 4000 SHRA BKN012TCU LFRL 160700Z AUTO 29019KT 9999 FEW035 BKN054 11/06 Q1008 BECMG 27018G28KT LFRM 160700Z AUTO 24011KT 210V270 9999 BKN018 BKN026 OVC034 10/08 Q1005 TEMPO 26018G31KT 4000 SHRA BKN020TCU LFRN 160700Z AUTO 26013KT 9999 SCT035 SCT043 BKN064 10/07 Q1006 TEMPO 26015G25KT 4000 SHRA LFRO 160700Z AUTO 26018KT 9000 SCT016/// BKN026/// BKN043/// ///TCU 09/07 Q1006 TEMPO 28025G40KT 4000 SHRA BKN010TCU LFRS 160700Z AUTO 28020G32KT 250V310 9999 SCT022 SCT028 BKN040 11/09 Q1009 TEMPO 4000 SHRA SCT014 BKN020TCU LFRV 160700Z AUTO 28012G23KT 9999 FEW027 BKN050 10/07 Q1007 LFRZ 160700Z AUTO 27022G33KT 9999 FEW026 SCT035 BKN058 11/08 Q1009 TEMPO 4000 SHRA SCT014 BKN020TCU LFSB 160700Z 25018KT 9999 FEW028 SCT043 BKN083 09/04 Q1002 TEMPO 25020G35KT LFSG 160700Z AUTO 25025KT 9999 FEW023/// BKN028/// BKN052/// ///TCU 08/05 Q1000 LFSI 160700Z AUTO 24018KT 9999 FEW023/// SCT043/// BKN068/// ///CB 09/07 Q1001 LFSL 160700Z AUTO 30009KT 260V330 5000 -RA BR BKN007 OVC013 10/09 Q1015 TEMPO 26015G25KT LFSN 160700Z AUTO 24013G24KT 220V280 9999 FEW015 BKN024 BKN064 08/05 Q0999 LFSO 160700Z AUTO 24019KT 9999 BKN017 BKN025 BKN052 07/05 Q0999 TEMPO 4000 SHRA BKN012 SCT020TCU BECMG 24015G35KT LFST 160700Z AUTO 23017KT 9999 -RA SCT034/// BKN044/// BKN050/// ///TCU 09/05 Q0999 TEMPO 28020G40KT 4000 RA BECMG BKN040 LFSX 160700Z AUTO 23020KT 7000 RA BKN015/// BKN020/// OVC026/// ///TCU 08/06 Q1003 TEMPO 22029G39KT 3000 RA OVC009 LFTH 160700Z AUTO 26014KT 9999 BKN024 BKN030 OVC044 12/09 Q1015 TEMPO 27025G35KT LFTW 160700Z AUTO 23003KT 190V280 CAVOK 11/08 Q1015 BECMG 27025KT LFYR 160700Z AUTO 24014KT 210V280 9999 FEW016 BKN022 OVC030 10/08 Q1007 TEMPO RA BKN007 OVC010 BECMG 24018G30KT LGAD 160650Z 11004KT 9999 FEW020 11/08 Q1021 LGAL 160650Z VRB02KT 9999 FEW012 SCT020 06/04 Q1018 LGAV 160620Z VRB02KT 9999 SCT030 SCT070 10/07 Q1020 NOSIG LGBL 160650Z 31005KT 9999 FEW010 FEW035 SCT080 07/05 Q1020 RMK SCT200 BLU LGEL 160650Z 00000KT 9999 FEW025 BKN070 09/08 Q1020 LGHI 160650Z 22006KT 9999 FEW018TCU BKN025 13/10 Q1019 LGIO 160650Z /////KT 0200 FG VV002 06/06 Q1020 LGIR 160620Z 17010KT 9999 FEW025 SCT080 12/08 Q1023 NOSIG LGKC 160650Z 26020KT 9999 SCT025 12/08 Q1021 LGKF 160650Z 00000KT 9999 SCT018 10/10 Q1021 LGKL 160650Z 02004KT 4000 2000N -RA FEW020 SCT030 BKN080 11/09 Q1022 LGKO 160650Z VRB03KT 9999 SCT018 BKN025 11/07 Q1022 LGKP 160650Z 00000KT 9999 FEW025 14/10 Q1024 LGKR 160620Z 00000KT 9000 FEW005 SCT016 07/07 Q1020 NOSIG LGKV 160650Z 00000KT 9999 FEW012 BKN070 06/05 Q1018 LGKZ 160650Z 00000KT 0500 FG SCT002 OVC016 02/01 Q1018 LGLM 160650Z 00000KT 9999 FEW010 BKN030 10/08 Q1018 LGLR 160650Z 00000KT 3000 BR FEW010 SCT070 03/03 Q1020 RMK FEW025 YLO LGMK 160650Z 21007G17KT 9999 FEW020TCU BKN025 14/11 Q1020 LGMT 160650Z 16010KT 8000 -RA FEW012 BKN020 11/09 Q1021 LGNX 160650Z 19013KT 9999 FEW018 SCT025 14/12 Q1021 LGPA 160650Z 21012KT 9999 FEW015 14/12 Q1021 NOSIG LGPZ 160650Z VRB01KT 9999 FEW012 BKN025 BKN070 09/08 Q1021 RMK FEW018 BLU LGRP 160620Z 23003KT 9999 FEW018 13/10 Q1023 NOSIG LGRX 160650Z 19004KT 9999 SCT025 11/11 Q1021 RMK SCT180 BLU LGSA 160650Z 26015KT 9999 FEW020 SCT070 12/10 Q1022 LGSM 160650Z 15008KT 9999 -DZ SCT020 10/08 Q1023 LGSO 160650Z 24009KT 9999 FEW014 SCT018 14/10 Q1020 LGSR 160650Z 21010KT 9999 BKN025 14/10 Q1022 RMK OVC080 BLU LGSY 160650Z 25005KT 9999 FEW020 SCT030 13/08 Q1018 RMK BKN080 BLU LGTG 160650Z 00000KT 9999 FEW010 SCT030 BKN070 10/08 Q1020 BLU LGTS 160650Z VRB02KT 1800 BR BKN002 OVC018 06/05 Q1019 NOSIG LGZA 160650Z 00000KT 9999 FEW020 11/09 Q1021 LHBC 160645Z 15009KT CAVOK M03/M05 Q1015 LHBP 160710Z 11011KT 1500 SN OVC007 M03/M04 Q1012 88490194 NOSIG LHDC 160645Z 15007KT 9999 FEW010 OVC029 M02/M04 Q1015 NOSIG LHKE 160706Z 14012KT 1000 SN BR BKN007 OVC015 M04/M04 Q1012 TEMPO 0600 +SN RMK AMB LHPA 160645Z 18010KT 8000 OVC017 M00/M04 Q1008 NOSIG RMK WHT LHPP 160645Z 12009KT 2000 -SN FEW013 OVC083 M03/M04 Q1011 LHPR 160645Z 14013KT 6000 BKN008 OVC083 M02/M03 Q1009 RMK GRN LHSM 160645Z 16010KT 8000 FEW007 OVC033 M02/M02 Q1010 RESN LHSN 160645Z 16014KT 8000 -GS OVC010 M03/M05 Q1013 TEMPO 5000 -SN RMK GRN LHUD 160645Z 15013KT 9999 -SN BKN050 M03/M06 Q1014 LIBA 160655Z 22003KT 9999 FEW040 07/04 Q1017 RMK SCT SCT080 VIS MIN 9999 WIND THR11 22005KT WIND THR29 /////KT BLU LIBD 160650Z 21006KT 8000 NSC 06/04 Q1017 LIBG 160700Z 00000KT CAVOK 05/05 Q1018 LIBH 160655Z 00000KT 4000 BR FEW045 05/05 Q1018 RMK FEW QUK 1 QUL 0 VIS MAR 4 KM VIS MIN 4000 LIBN 160655Z 13003KT 7000 FEW008 05/04 Q1019 RMK SCT SCT080 VIS MIN 7000 WIND THR14 14004KT WIND THR32 14003KT WHT LIBP 160650Z 02003KT 350V070 9999 SCT050 08/03 Q1014 LIBQ 160655Z 22016KT 0000 -SN FZFG VV/// 00/M01 Q1016 RMK MON INVIS VAL INVIS VIS MIN 0000 LIBR 160645Z 18010KT 8000 FEW040 07/05 Q1019 NOSIG RMK BKN BKN060 VIS MIN 8000 WIND THR31 18006KT BLU LIBV 160655Z 17009KT 6000 FEW002 05/05 Q1017 RMK SCT VIS MIN 3500SW WIND THR32 18010KT WIND THR14 19005KT YLO LIBY 160655Z 22006KT 9999 FEW020 12/10 Q1019 RMK FEW QUK 2 QUL 1 SW VIS MAR 20 KM VIS MAX 20 KM VIS MIN 9999 LICA 160650Z 26019KT 9999 TS FEW015CB SCT020 13/09 Q1020 LICB 160650Z 13002KT 6000 MIFG BKN010 06/06 Q1024 LICC 160650Z 28006KT CAVOK 07/05 Q1023 LICD 160650Z 27005KT CAVOK 12/08 Q1026 LICF 160655Z 26009KT 9999 FEW030 13/05 Q1021 RMK FEW QUK 2 QUL 0 VIS MAR 20 KM MON E CIME INC NC MON W LIB NC VIS MIN 9999 LICG 160655Z 26005KT 9999 FEW015 11/09 Q1024 LICJ 160650Z 23014KT 9999 SCT025 13/08 Q1023 LICL 160655Z 08003KT 9999 BKN024 10/07 Q1023 RMK BKN QUK 1 QUL 0 VIS MAR 12 KM VIS MIN 9999 LICR 160650Z VRB04KT 9999 FEW040 13/05 Q1022 LICT 160655Z 28012KT 9999 SCT025 12/09 Q1023 LICZ 160655Z 30006KT CAVOK 05/05 Q1024 RMK SKC VIS MIN 9999 WIND THR28 31006KT WIND THR10 30007KT A3026 BLU LIEA 160650Z 26013KT 9999 SCT025 12/07 Q1022 LIEB 160655Z 29010KT 9999 FEW030 11/03 Q1020 RMK SCT QUK 2 QUL 0 VIS MAR 30 KM MON LIB VIS MIN 9999 LIEC 160655Z 25020KT 9999 SCT020 11/09 Q1022 RMK SCT QUK 3 QUL 0 VIS MAR 20 KM VIS MIN 9999 LIED 160655Z 36005KT 9999 FEW025 SCT040 09/07 Q1022 RMK BKN VIS MIN 9999 WIND THR35 36005KT WIND THR17 /////KT BLU LIEE 160650Z 30005KT 270V330 9999 SCT050 09/07 Q1023 LIEO 160650Z 23019G29KT 9999 SCT030 12/07 Q1018 LIMC 160650Z VRB02KT 2000 BR SCT015 BKN045 03/02 Q1011 NOSIG LIME 160650Z 27006KT 2000 BR BKN007 BKN030 03/03 Q1011 NOSIG LIMF 160650Z VRB02KT 4000 BR SCT013 BKN030 02/01 Q1011 LIMH 160655Z /////KT 0100 -SN FZFG VV/// M10/M11 Q1002 RMK MON INVIS VAL INVIS VIS MIN 0100 LIMJ 160650Z 02005KT CAVOK 07/04 Q1011 LIMK 160655Z 00000KT 1100 BR OVC015 01/01 Q1010 RMK OVC VAL FOSCHIA VIS MIN 1100 LIML 160650Z 25004KT 220V290 2500 BR BKN006 BKN010 04/04 Q1012 NOSIG LIMN 160655Z 23003KT 190V260 1200 BR SCT010 BKN020 03/02 Q1011 RMK OVC VIS MIN 1200 AMB LIMP 160650Z 27003KT 2000 BR OVC010 03/03 Q1012 LIMS 160655Z 28003KT 1200 R30/P1500 R12/P1500 BR SCT005 BKN020 03/03 Q1010 LIMT 160655Z 24032KT 0000 FG VV/// 02/01 Q1007 RMK MON INVIS VAL INVIS VIS MIN 0000 LIMU 160655Z 35006KT 9999 FEW020 06/02 Q1010 RMK FEW QUK 2 QUL 1 S VIS MAR 20 KM VIS MIN 9999 LIMV 160655Z /////KT 0800 FG VV/// 01/01 Q1010 RMK MON INVIS VAL INVIS VIS MIN 0800 LIMY 160655Z 16003KT 3500 BR BKN018 01/M00 Q1010 RMK OVC SCT056 VAL FOSCHIA VIS MIN 3500 LIMZ 160650Z 20003KT 2000 BR BKN020 00/00 Q1011 LIPA 160655Z 28003KT 4000 BR FEW020 BKN035 03/03 Q1010 RMK OVC VIS MIN 4000 WIND THR05 /////KT WIND THR23 /////KT A2986 GRN LIPB 160650Z VRB01KT 9000 BKN040 01/M01 Q1011 LIPC 160655Z 30008KT 1200 R11/1500D BR SCT003 SCT004 04/03 Q1012 LIPE 160650Z 27003KT 2000 BR BKN002 BKN010 04/03 Q1012 LIPF 160655Z 00000KT 1500 BR BKN015 04/03 Q1012 LIPH 160650Z 22001KT 9999 FEW020 BKN060 03/02 Q1011 LIPI 160655Z /////KT 2800 BR SCT020 BKN025 03/03 Q1011 RMK OVC VIS MIN 2800 WIND THR06 32003KT WIND THR24 30003KT YLO LIPL 160655Z /////KT 1500 BR FEW003 SCT008 03/02 Q1012 RMK OVC VIS MIN 1500 WIND THR31 24005KT AMB LIPO 160650Z 23006KT 2000 BR BKN010 03/03 Q1011 LIPQ 160650Z VRB02KT 7000 OVC020 04/03 Q1011 LIPR 160645Z 30008KT 9999 BKN050 09/07 Q1011 RMK BKN VIS MIN 9999 WIND THR31 31004KT BLU LIPS 160655Z 00000KT 5000 BR SCT020 BKN060 04/03 Q1011 RMK OVC VIS MIN 5000 WIND THR26 00000KT WIND THR08 00000KT WHT LIPU 160700Z VRB02KT 4000 BR BKN035 03/03 Q1011 LIPX 160650Z 22004KT 2500 -DZ BR SCT015 BKN030 03/03 Q1011 LIPY 160650Z 19003KT 9999 BKN050 09/04 Q1012 LIPZ 160650Z 32003KT 4500 -RA BR SCT006 BKN018 03/02 Q1011 NOSIG LIQC 160655Z 26013KT 9999 -RA SCT015TCU SCT020 10/08 Q1020 RMK OVC QUK 3 QUL 2 W VIS MAR 10 KM VIS MIN 9999 LIQW 160655Z 25004KT 180V300 9999 BKN025 11/07 Q1013 LIRA 160650Z 21006KT 180V240 9999 SCT015 BKN030 11/07 Q1017 LIRE 160707Z 25018KT 8000 RA SCT020 BKN033 13/09 Q1017 RMK OVC VIS MIN 8000 WIND THR13 26015KT WIND THR31 27017KT BLU LIRF 160650Z 26015KT 9999 FEW015 SCT025 13/09 Q1017 NOSIG LIRG 160655Z 14006KT 9999 SCT020 SCT030 09/09 Q1018 LIRH 160655Z 01003KT 0800 -RA FG SCT001 OVC020 06/04 Q1018 LIRK 160655Z AUTO /////KT //// ///// Q//// LIRL 160655Z /////KT 9999 FEW020 SCT030 08/08 Q1018 LIRM 160655Z /////KT 6000 -RA FEW015 BKN025 09/07 Q1018 LIRN 160650Z 00000KT 8000 SCT020 BKN040 09/08 Q1019 NOSIG LIRP 160645Z 24020KT 9999 FEW020 SCT025 BKN040 11/09 Q1013 TEMPO 24015G35KT LIRQ 160650Z 20006KT 9999 BKN025 10/07 Q1013 LIRS 160655Z 05002KT 6000 NSC 05/03 Q1016 LIRT 160655Z 28036KT 0000 FG VV/// 02/00 Q1013 RMK MON INVIS VAL INVIS VIS MIN 0000 LIRU 160650Z 00000KT 7000 SCT020 BKN040 07/07 Q1017 LIRV 160655Z /////KT 9999 FEW008 SCT018 BKN028 08/05 Q1015 LIRX 160655Z 18002KT 9999 FEW010 SCT020 09/06 Q1013 RMK SCT VIS MIN 9999 VIS MAR 20 KM LIRZ 160650Z 19008KT 9999 SCT030 OVC060 09/07 Q1014 LIVC 160655Z 27018G43KT 0000 -SN FZFG VV/// M02/M03 Q1006 RMK MON INVIS VAL INVIS VIS MIN 0000 LIVD 160655Z 27001KT 9999 OVC020 M03/M05 Q1008 RMK OVC VIS MIN 9999 LIVE 160655Z VRB02KT 6000 -SN OVC010 M07/M08 Q1005 RMK OVC VIS MIN 6000 LIVO 160655Z 30001KT 9999 BKN025 M01/M03 Q1006 RMK BKN VIS MIN 9999 LIVP 160655Z 20015KT 0000 FZFG VV/// M06/M07 Q1002 RMK MON INVIS VAL INVIS VIS MIN 0000 LIVR 160655Z 31003KT 9999 OVC010 M06/M08 Q1003 RMK OVC MON INC VIS MIN 9999 LIVT 160655Z 00000KT 9999 -RA FEW009 BKN020 05/05 Q1011 RMK OVC QUK 0 QUL 0 VIS MAR 10 KM VIS MIN 9999 LJCE 160700Z 11002KT 4000 BR BKN005 M01/M02 Q1010 R09/CLRD// RMK YLO LJLJ 160700Z VRB01KT 7000 OVC020 M00/M01 Q1009 NOSIG LJMB 160700Z 35007KT 9999 FEW013 BKN093 M02/M03 Q1007 LJPZ 160700Z 13001KT 6000 -RA FEW010 BKN030 OVC050 05/04 Q1011 LKCV 160700Z 16020KT 9999 SCT030 BKN050 M01/M04 Q1000 RESN NOSIG RMK BLU BLU LKKB 160700Z 18015KT 9999 SCT023 BKN028 M00/M03 Q0998 NOSIG LKKU 160700Z 16011KT 9999 BKN013 OVC018 M02/M04 Q1006 LKKV 160700Z 20006KT 9999 -RA BKN010 BKN017 02/01 Q0995 R29/594091 LKLN 160700Z AUTO 22015KT 9999 -RA SCT022 BKN045 OVC078 04/02 Q0997 LKMT 160700Z 21014KT 9999 BKN024 M02/M06 Q1004 NOSIG LKNA 160700Z 15019KT 0900 -SN FZFG OVC003 M04/M05 Q1003 NOSIG RMK AMB LKPD 160700Z 16011KT 9999 SCT034 BKN045 M00/M05 Q1000 NOSIG RMK BLU BLU LKPR 160700Z 18016KT 9999 SCT024 01/M01 Q0997 R24/520195 R30/410195 NOSIG LKTB 160700Z 14010KT 7000 -SN OVC007 M03/M04 Q1005 R27/420195 BECMG NSW LKVO 160700Z 17007KT 9999 SCT023 BKN028 01/M01 Q0997 LLBG 160650Z VRB03KT 9999 SCT037 14/09 Q1026 NOSIG LLET 160650Z 03014KT CAVOK 15/08 Q1024 LLHA 160650Z VRB03KT 9999 SCT035 14/11 Q1025 LLIB 160650Z VRB01KT 9000 FEW040 13/10 Q1025 LLOV 160650Z VRB02KT CAVOK 11/07 Q1026 LLSD 160650Z 14004KT 9999 SCT035 15/09 Q1025 LMML 160645Z 25004KT 230V290 9999 FEW012 11/08 Q1025 NOSIG LOWG 160650Z VRB01KT 5000 BR FEW004 BKN006 M04/M04 Q1007 R17/19//95 TEMPO 3000 BR LOWI 160650Z 24006KT 200V270 9999 FEW060 SCT070 BKN080 00/M04 Q1005 WS R26 R08/19//95 NOSIG LOWK 160650Z 32003KT 280V350 6000 FEW045 M03/M04 Q1008 NOSIG LOWL 160650Z 08008KT 5000 -FZRASN FEW014 BKN036 M02/M03 Q1003 R08/590295 TEMPO 4000 NSW LOWS 160650Z 15013KT 9999 FEW040 BKN060 04/M01 Q1002 NOSIG LOWW 160650Z 13013KT 4900 BR FEW004 BKN005 M01/M02 Q1006 R88/19//95 NOSIG LOXT 160650Z 12006KT 070V200 8000 SCT008ST BKN040SC M00/M02 Q1005 TEMPO BKN008 RMK BKN LOXZ 160650Z 06003KT 15KM FEW045SC M02/M05 Q1006 NOSIG LPAZ 160700Z 04008KT 010V070 9999 FEW006 BKN012 14/13 Q1035 LPBJ 160700Z VRB01KT CAVOK 06/05 Q1031 LPCS 160700Z VRB01KT 9999 FEW015 BKN035 10/08 Q1031 LPFR 160700Z VRB02KT CAVOK 07/04 Q1030 LPHR 160700Z 05006KT 9999 VCSH SCT012 14/12 Q1037 LPLA 160700Z /////KT 9999 SCT014 SCT030 14/14 Q1037 LPMA 160700Z 02015KT 9999 SCT016 16/08 Q1030 LPMR 160700Z 16004KT 4000 BR BKN007 BKN015 09/08 Q1030 LPMT 160700Z VRB02KT 9999 FEW020 BKN045 10/09 Q1031 LPOV 160700Z 16006KT 6000 SCT004 BKN006 10/10 Q1029 LPPD 160700Z 05007KT 9999 FEW008 BKN012 14/13 Q1036 LPPR 160700Z 17009KT 4000 BR OVC002 11/10 Q1029 LPPS 160700Z 04013KT 360V070 9999 FEW015 15/09 Q1030 LPPT 160700Z 23003KT 9999 FEW013 BKN032 11/09 Q1031 LPST 160700Z VRB01KT 9999 FEW011 BKN018 08/07 Q1031 LQBK 160700Z 28002KT 4000 BR SCT010 M01/M02 Q1011 NOSIG LQMO 160700Z VRB01KT 3000 BR FEW003 SCT030 OVC045 04/04 Q1015 LQSA 160700Z VRB02KT 1200 R12/1100N BR SCT003 BKN045 M00/M00 Q1014 NOSIG LQTZ 160700Z VRB02KT 1600 BR FEW003 BKN050 M02/M02 Q1012 LRAR 160700Z 15011KT 9999 FEW040 M03/M04 Q1014 R09/490594 LRBC 160700Z 16005KT 9999 BKN010 M07/M08 Q1018 LRBM 160700Z /////KT 9999 BKN042 Q1016 LRBO 160700Z 37003KT 3000 -SN BR SCT020 BKN050 M09/M10 YLO YLO LRBS 160700Z 25003KT 6000 FEW025 M07/M07 Q1021 R07/490294 NOSIG LRCK 160700Z 29011KT 6000 -SN SCT012 BKN038 M05/M06 Q1018 R36/490593 BECMG 9999 NSW LRCL 160700Z 09008KT 9999 SCT035 M07/M10 Q1016 LRCT 160700Z 14005KT 8000 OVC035 M07/M08 Q1016 BLU BLU LRCV 160700Z VRB02KT 9999 OVC026 M06/M08 Q1019 R27/490294 LRFT 160700Z 29008KT 8000 BKN040 M06/M08 Q1020 BLU BLU LRIA 160700Z 14004KT 9999 BKN023 M07/M12 Q1019 LROD 160700Z 13004KT 9999 BKN030 M02/M05 Q1014 LROP 160700Z 25004KT 4500 BR NSC M08/M09 Q1020 R08R/450294 BECMG 5000 LRSB 160700Z 12003KT 9000 NSC M08/M10 Q1015 NOSIG LRSM 160700Z 13007KT 9999 SCT028 BKN039 M04/M08 Q1016 LRSV 160700Z 16008KT 6000 -SN BKN008 M12/M13 Q1016 R16/950494 LRTC 160700Z 32012KT 7000 -SN OVC022 M04/M05 Q1018 R16/495092 LRTM 160700Z 06006KT 9999 OVC038 M07/M09 Q1016 LRTR 160700Z 11013KT 9999 FEW023 M03/M06 Q1014 LRTZ 160700Z 31016KT 3000 SN BKN007 OVC015 M04/M05 Q1019 GRN GRN LSGC 160650Z 24017G35KT 200V270 9999 -DZ OVC008 03/02 Q1005 WS R24 LSGG 160650Z 23016KT 9999 -RA FEW015 BKN022 07/04 Q1010 NOSIG LSGS 160650Z VRB03KT 5000 FEW005 SCT030 BKN080 01/00 Q1009 RESN LSMA 160650Z 20010KT 170V230 9999 OVC063 07/04 Q1004 RMK BLU LSMD 160650Z 28020G35KT 240V320 9999 -SHRA FEW032 SCT038 BKN069 09/02 Q1003 RMK BLU LSME 160650Z 24018G33KT 200V290 9999 SCT052 BKN083 11/01 Q1004 RMK BLU LSMM 160650Z VRB02KT 9999 -RA FEW021 BKN045 OVC085 02/01 Q1006 RMK BLU LSMP 160650Z 23023G35KT 9999 -SHRA FEW036 BKN043 BKN053 07/03 Q1007 RMK BLU LSMS 160650Z VRB03KT 5000 FEW005 SCT030 BKN080 01/00 Q1009 RESN RMK WHT LSZA 160650Z VRB01KT 6000 FEW042 OVC050 03/02 Q1011 NOSIG LSZB 160650Z VRB11G24KT 9999 SCT035 BKN050 08/03 Q1005 TEMPO SHRA LSZC 160650Z 04003KT 320V110 9999 -RA OVC060 06/02 Q1004 LSZG 160650Z AUTO 25025G38KT 9999 -RA BKN012 06/04 Q1005 REDZ LSZH 160650Z 23019G34KT 9999 -SHRA FEW018 SCT024 BKN075 07/03 Q1003 NOSIG LSZL 160650Z 00000KT 7000 SCT045 OVC060 03/01 Q1012 RMK WHT LSZR 160650Z 24010G21KT 200V280 9999 -RA SCT050 BKN070 09/02 Q1002 NOSIG RMK C LSZS 160650Z 21010KT 9999 FEW019 BKN087 M04/M07 Q1004 RMK A LTAC 160650Z VRB01KT 9999 SCT040 BKN090 M01/M04 Q1022 NOSIG LTAF 160650Z VRB02KT 4200 BR SCT035 09/06 Q1024 BECMG TL0800 9999 NSW LTAG 160650Z 00000KT CAVOK 08/03 Q1024 NOSIG LTAI 160650Z 35005KT CAVOK 08/03 Q1023 NOSIG LTAJ 160650Z VRB01KT 9999 FEW040 BKN100 07/01 Q1023 NOSIG LTAL 160650Z 01001KT 3500 BR FEW001 BKN050 M04/M04 Q1019 LTAN 160650Z 00000KT 0200 R01/0275U R19/0400U FZFG VV001 M03/M03 Q1023 BECMG TL0750 0500 VV002 LTAP 160650Z 00000KT 9999 SCT040 BKN090 02/M01 Q1022 NOSIG LTAR 160650Z 17003KT 8000 SCT035 BKN100 M04/M05 Q1022 LTAS 160650Z VRB04KT 9999 SCT030 BKN100 03/00 Q1021 LTAT 160650Z 26004KT 220V320 9999 FEW040 SCT100 05/M05 Q1024 NOSIG LTAU 160650Z 26002KT 2000 BR BKN002 M01/M02 Q1024 BECMG TL0800 8000 SCT040 BKN180 LTAW 160650Z VRB02KT 9999 SCT035 BKN080 03/M00 Q1024 LTAY 160650Z 00000KT 9999 BKN035 BKN100 01/M00 Q1023 LTAZ 160650Z 13009KT 9999 FEW040 SCT100 BKN180 M01/M02 Q1023 LTBA 160650Z 19014KT 7000 -SHRA SCT040 BKN070 08/05 Q1020 NOSIG LTBD 160650Z 10010KT 7000 SCT033 BKN080 06/04 Q1023 LTBF 160650Z 00000KT 9999 SCT035 BKN100 05/03 Q1022 NOSIG LTBG 160503Z 14006KT 9999 -SHRA SCT035 BKN100 05/02 Q1021 NOSIG RMK RWY18 13009KT LTBH 160650Z /////KT 9999 SCT035 BKN100 ///// Q//// RESHRA LTBJ 160650Z 16005KT 080V200 6000 SCT030 BKN100 06/04 Q1022 NOSIG LTBL 160615Z 11012KT 8000 -SHRA SCT035 BKN090 08/04 Q1022 NOSIG RMK RWY17 12011KT 090V160 LTBO 160650Z 11005KT 3500 -SN BR FEW013 BKN037 OVC090 00/M00 Q1022 LTBQ 160650Z VRB01KT 8000 SCT040 BKN090 03/03 Q1020 TEMPO 5000 BR LTBR 160650Z 17002KT 9999 SCT035 BKN100 01/00 Q1021 NOSIG LTBS 160650Z 08005KT 9999 FEW030 BKN120 09/04 Q1024 NOSIG LTBU 160650Z 16005KT 6000 BKN030 BKN070 05/04 Q1018 LTBY 160650Z 10009KT 9999 SCT030 BKN100 M00/M03 Q1022 LTBZ 160550Z 16006KT 9999 SCT030 BKN100 01/01 Q1021 LTCA 160650Z 24008KT 9999 FEW035 BKN100 05/M02 Q1024 NOSIG LTCB 160650Z VRB02KT 9999 SCT035 06/00 Q1025 LTCC 160650Z 26004KT 9999 FEW040 BKN100 06/03 Q1023 NOSIG LTCD 160650Z 36006KT 9999 SCT040 BKN100 03/M05 Q1023 NOSIG LTCE 160650Z 00000KT 2000 -SN BR BKN030 BKN060 M06/M07 Q1021 BECMG 4000 LTCF 160650Z 17002KT 6000 -SN BKN020 OVC070 M06/M08 Q1020 LTCG 160650Z 12005KT 100V160 9999 SCT035 07/02 Q1026 NOSIG LTCI 160700Z 36004KT 330V040 4500 2100NE BR FEW010 SCT030 BKN070 00/M03 Q1020 RERA BECMG TL0800 6000 RMK RWY21 02006KT LTCJ 160650Z 20004KT 3000 -RA BR FEW010 BKN035 BKN080 05/04 Q1023 LTCK 160650Z 00000KT 2300 -SN BR FEW004 SCT030 BKN070 M01/M02 Q1022 R29////65 LTCL 160650Z 12005KT 3000 -RA BR SCT010 BKN035 OVC090 04/04 Q1023 LTCM 160650Z 21002KT 9999 FEW025 BKN080 03/01 Q1022 LTCN 160650Z 00000KT 8000 NSC 05/02 Q1024 NOSIG LTCO 160650Z VRB02KT 2700 BR BKN025 BKN060 M08/M09 Q1021 LTCP 160650Z 05003KT 330V100 CAVOK 08/M03 Q1023 LTCR 160650Z 10004KT 6000 SCT040 09/02 Q1023 LTCS 160650Z 06004KT 9999 SCT040 06/01 Q1024 RMK RWY22 08007KT LTCT 160650Z VRB02KT 9999 FEW010 SCT034 BKN060 00/M02 Q1024 LTCU 160650Z 03003KT 320V080 9000 SCT035 BKN100 02/M01 Q1023 LTCV 160650Z 30004KT 5000 BR SCT035 BKN090 06/02 Q1023 LTCW 160650Z 00000KT 3000 BR SCT020 BKN060 M04/M05 Q1021 LTDA 160650Z 00000KT 5000 BR FEW030 BKN100 07/05 Q1025 BECMG TL0800 9999 NSW LTFA 160618Z 13014KT 9000 -SHRA SCT030 BKN100 08/05 Q1021 RMK RWY17 13014KT LTFC 160650Z 02003KT 6000 SCT035 BKN100 00/M02 Q1023 LTFD 160650Z 06007KT 020V090 5000 -SHRA BR SCT030 BKN090 06/05 Q1021 LTFE 160650Z 00000KT 9999 SCT035 BKN090 07/05 Q1024 RESHRA NOSIG LTFG 160650Z 15004KT 9999 FEW035 BKN180 10/07 Q1024 LTFH 160650Z 09002KT CAVOK 04/02 Q1024 NOSIG LTFJ 160650Z VRB02KT 9999 -SHRA SCT035 BKN100 07/02 Q1020 NOSIG LTFK 160650Z VRB03KT 9999 FEW015 BKN030 BKN090 10/09 Q1018 RESHRA LUKK 160700Z 32001KT 3300 -SN BR OVC032 M08/M10 Q1020 R26/490399 TEMPO 2000 SN BKN010 LWOH 160700Z 19003KT 9999 SCT015 BKN040 04/02 Q1018 LWSK 160700Z 30002KT 2000 BR SCT003 OVC013 03/02 Q1019 TEMPO 1500 BR LXGB 160650Z 12001KT 9999 FEW022 10/08 Q1030 NOSIG LYBE 160700Z VRB02KT CAVOK M02/M04 Q1014 R12/5/0393 NOSIG LYBT 160700Z 09004KT CAVOK M03/M04 Q1014 R12/////// NOSIG LYKV 160700Z VRB02KT 9999 SCT015 BKN035 M05/M06 Q1017 R14/////// NOSIG LYNI 160700Z VRB02KT 8000 BKN020 M03/M06 Q1018 R11/4/1093 NOSIG LYPG 160700Z 04003KT 2000 1000SE R18/P2000N R36/1500U -RA BR FEW007 BKN030 BKN070 04/04 Q1019 NOSIG LYTV 160700Z 07003KT 330V120 9999 -RA FEW030 SCT034 OVC070 06/06 Q1017 NOSIG LYUZ 160700Z 23004KT 200V270 9999 FEW020 M01/M01 Q1012 R10/////// LYVR 160700Z 12015KT 080V140 9999 BKN033 M01/M06 Q1015 R01/CLRD// NOSIG LZIB 160700Z 12015KT 3800 -SN BR OVC006 M02/M03 Q1008 R88/410195 NOSIG LZKZ 160700Z 15009KT 8000 -SG OVC009 M04/M06 Q1013 NOSIG LZPP 160700Z 13014KT 5000 -SN BR BKN010 OVC020 M03/M05 Q1008 LZSL 160700Z 12006KT 090V150 3100 FZDZ BR OVC008 M04/M05 Q1011 LZTT 160700Z 15006KT 9999 -SN SCT015 BKN033 M07/M08 Q1007 NOSIG LZZI 160700Z 27005KT 9999 OVC022 M03/M06 Q1007 MDLR 160300Z 00000KT 9999 FEW016 22/21 Q1017 MDPC 160700Z 06007KT 9999 SCT018 SCT070 25/22 Q1016 MDPP 160600Z 00000KT 9999 FEW016 23/22 Q1016 MDSD 160700Z 02004KT 9999 FEW016 22/21 Q1015 MDST 160700Z 00000KT 9999 FEW016 20/20 Q1016 MGGT 160700Z 02014KT CAVOK 10/08 Q1029 A3039 SCT090 MGHT 160700Z 00000KT 9999 OVC012 08/05 QFE 823.3 MGMM 160700Z 00000KT 9999 BKN018 17/16 Q1023 A3021 MGPB 160700Z 00000KT 9999 FEW018 OVC080 19/16 Q1022 A3018 MHCA 160500Z 20002KT 9999 SCT028 21/17 Q1020 MHLC 160600Z 21005KT 4000 -RA SCT022 BKN070 19/19 Q1021 A3015 NOSIG MHLM 160700Z 00000KT 9999 FEW026 BKN080 18/18 Q1022 A3018 NOSIG MHRO 160600Z 36004KT 9999 SCT016 OVC070 21/20 Q1020 A3012 NOSIG MHSC 160658Z AUTO 36015KT 9999 SCT032 OVC075 16/12 A3018 RMK AO2 SLP198 T01570123 $ MHTG 160700Z 02012KT 9999 FEW012 BKN024 13/10 Q1023 A3021 NOSIG MKJP 160700Z VRB02KT 9999 FEW022 25/22 Q1013 MKJS 160700Z 15004KT 9999 SCT020 24/23 Q1014 MMAA 160647Z 00000KT 6SM BKN300 22/19 A2998 RMK 8/002 HZY MMAS 160545Z 05006KT 10SM SKC 10/M16 A3030 RMK SLP187 MMCE 160149Z 05007KT 7SM FEW015 OVC070 22/// A3022 RMK 8/57/ MMCU 160245Z 00000KT 10SM FEW080 11/M06 A3019 RMK SLP224 52014 973 8/070 MMDO 160145Z 23008KT 8SM SCT200 15/M13 A3021 RMK 8/002 MMEP 160149Z 05004KT 12SM SCT250 19/12 A3010 RMK 8/009 MMGL 160547Z 18004KT 8SM SKC 08/M03 A3022 RMK SLP166 52006 961 MMGM 160151Z 00000KT 10SM SKC 20/10 A2995 MMHO 160550Z 08003KT 10SM SKC 17/06 A3007 RMK SLP184 52013 956 HZY MMIA 160350Z 00000KT 8SM SKC 21/16 A3009 MMIO 160640Z 00000KT 10SM SKC 06/01 A3029 RMK SC MMLO 160545Z 04005KT 8SM SKC 11/M15 A3032 RMK SLP19/ 52005 967 MMMD 160647Z 00000KT 7SM SCT025 17/13 A3024 RMK 8/500 MMML 160548Z 19003KT 7SM SCT070 BKN200 14/03 A3008 RMK SLP183 52007 960 8/078 SC MMMM 160445Z 00000KT 7SM SKC 08/M04 A3028 MMMT 160357Z RTD 00000KT 7SM BKN030 19/14 A3021 RMK 8/100 MMMX 160654Z 08004KT 6SM SKC 09/M02 A3036 NOSIG RMK HZY MMMY 160645Z 07006KT 10SM BKN200 13/10 A3019 RMK 8/002 MMMZ 160550Z 11004KT 10SM FEW230 13/12 A2998 RMK SLP148 52013 920 8/002 HZY MMOX 160155Z 36012KT 7SM SKC 13/04 A3027 MMPR 160247Z 00000KT 12SM SCT270 21/21 A2995 RMK SLP141 52012 977 8/001 MMQT 160348Z 11003KT 7SM SKC 08/M02 A3037 MMSD 160645Z 26004KT 12SM SKC 17/09 A3004 MMSL 160247Z 00000KT 6SM SKC 21/14 A3006 MMSP 160649Z 35005KT 7SM SCT250 02/M05 A3031 RMK 8/001 MMTC 160349Z 27003KT 10SM BKN200 17/02 A3014 RMK 8/008 MMTG 160450Z 26004KT 12SM SCT300 14/10 A3020 RMK 8/008 ISOLD AC INCENDIO FORESTAL 10SM SSW MMTJ 160347Z 00000KT 6SM BKN200 14/13 A3010 RMK 8/008 HZY MMTM 160249Z 00000KT 7SM SCT070 18/15 A3023 RMK SLP236 52029 99 8/030 MMTO 160647Z 00000KT 6SM SKC M01/M05 A3040 RMK HZ FU MMUN 160545Z 00000KT 7SM BKN018 BKN250 19/14 A3020 RMK SLP228 56006 969 8/508 MMVA 160451Z 09004KT 7SM SCT010 BKN060 16/13 A3023 RMK 8/620 HZY MMVR 160447Z 23002KT 7SM SCT010 SCT030 1916 A3025 RMK 8/800 HZY MMZC 160458Z RTD 00000KT 8SM SKC 07/M11 A3029 MMZO 160146Z 00000KT 8SM SKC 24/21 A2992 RMK HZY MNMG 160600Z 19004KT 9999 FEW021 SCT300 23/18 Q1013 A2994 NOSIG MPDA 160300Z 00000KT 9999 FEW018 24/24 Q1011 MPMG 160300Z 33005KT 9999 FEW018 25/23 Q1012 NOSIG MPPA 160300Z VRB02KT 9999 FEW018 25/// Q1012 MPSM 160300Z 33008KT 9999 FEW020 24/22 Q1012 MPTO 160700Z 29005KT CAVOK 24/23 Q1010 NOSIG MRLB 160600Z 06004KT CAVOK 25/18 A2991 NOSIG MROC 160700Z 10012G23KT 9999 FEW030 BKN200 20/15 A2998 NOSIG MSLP 160650Z 02013G23KT 340V040 CAVOK 24/11 Q1013 A2993 NOSIG MSSS 160350Z 04014KT CAVOK 17/10 Q1019 A3011 MTPP 160200Z 09007KT 7000 FEW022 26/20 Q1015 A2997 MUCC 160650Z 05017KT 9000 SCT020 23/20 Q1019 MUCF 160659Z AUTO 06009KT 19/19 Q1020 MUCL 160605Z AUTO 05014KT 22/19 Q1020 MUCM 160650Z 04009KT 9000 FEW018 21/20 Q1019 MUCU 160651Z 35006KT 320V040 8000 FEW020 22/19 Q1016 MUGM 160656Z 02006KT 9999 FEW030 SCT250 22/22 A3001 RMK SLP164 T02220222 MUHA 160655Z 00000KT 0900 R06/0550V0800D R24/0800VP2000D MIFG FEW030 16/16 Q1021 MUHG 160650Z 07004KT 7000 VCFG SKC 22/22 Q1017 MUSC 160650Z 03010KT 9000 BKN060 20/17 Q1021 MUVR 160651Z 07009KT 9000 FEW020 20/17 Q1021 MWCR 160300Z 01011KT 9999 SCT016 SCT030 23/21 Q1019 RESHRA MYNN 160700Z 02014KT 9999 FEW018 SCT030 BKN200 24/15 A3017 NCAI 160700Z AUTO 05004KT //// ////// 26/26 Q1013 NCPY 160700Z AUTO 11004KT //// ////// 28/23 Q1010 NCRG 160700Z 01005KT 9999 SCT018 BKN290 27/24 Q1012 NFFN 160700Z 36004KT 9999 FEW027TCU SCT045 BKN110 27/22 Q1010 NOSIG NFNA 160700Z 00000KT 9999 FEW020 BKN045 OVC110 26/25 Q1011 NFTF 160700Z 00000KT 9999 FEW016TCU BKN120 26/24 Q1012 NFTL 160600Z 34007KT 9999 FEW010 SCT017 BKN100 27/26 Q1011 NFTV 160600Z 00000KT 9999 FEW019 BKN290 28/25 Q1012 NGFU 160700Z 09017KT 9999 FEW020 30/24 Q1007 NGTA 160700Z 09023KT 9999 FEW020 SCT300 28/23 Q1006 NIUE 160700Z AUTO 17002KT //// ////// 26/24 Q1012 NSFA 160500Z 09005KT 9999 FEW022 BKN120 29/24 Q1010 NOSIG NSTU 160552Z 11010KT 12SM FEW025TCU SCT040 BKN100 29/24 A2983 RMK TCU E-SE SLP102 8/870 T02930243 10324 20293 52008 NTAA 160700Z 10004KT 050V130 9999 FEW023 28/22 Q1013 NOSIG NVSC 160600Z AUTO 03002KT //// //// 28/25 Q1007 NVSG 160600Z 00000KT 9999 SCT020 OVC040 30/26 Q1007 NVSL 160600Z 04003KT 9999 BKN025 29/24 Q1006 NVSS 160600Z 02004KT 9999 SCT025 FEW028CB BKN120 30/26 Q1006 NVVA 160600Z 18005KT 9999 FEW025 30/25 Q1008 NVVV 160600Z 06005KT 9999 FEW025 BKN300 29/25 Q1007 NVVW 160600Z 05007KT 9999 FEW025 30/22 Q1007 NWWW 160700Z AUTO VRB02KT 9999 FEW046 SCT082 BKN140 27/24 Q1008 TEMPO VRB15G25KT 1000 TSRA BKN010 SCT020CB NZAA 160700Z AUTO 06021KT 9999 FEW028/// OVC055/// 21/15 Q1017 NOSIG NZCH 160700Z AUTO 08012KT 060V130 9999 NCD 21/16 Q1011 NOSIG NZCM 160555Z VRB03KT 9999 FEW005 BKN018 M04/M07 A2879 RMK SLP752 NZSP 160550Z 36014KT 2400 IC BLSN FEW000 M26/ A2847 RMK BLSN FEW000 CLN AIR 01012KT ALL WNDS GRID SDG/HDF NZWD 160655Z 07009KT 9999 FEW005 BKN018 M08/M10 A2881 RMK SLP756 GRID24009KT SDF/HDG HDP GRID W-NW NZWN 160700Z AUTO 01006KT 9999 NCD 25/15 Q1015 NOSIG OAHR 160655Z 127010KT CAVOK 06/M05 Q1019 RMK A3011 BLU OAIX 160658Z COR 23003KT 8000 HZ FEW200 08/M15 A3005 RMK AO2A SLP157 $ COR 0704 OAJL 160655Z 08003KT 6000 HZ FEW250 14/M08 A3004 RMK AO2A SLP171 T01391079 OAKB 160653Z 30006KT 3000 1500SE FU HZ NSC 09/M16 Q1018 RMK A3008 YLO OAKN 160655Z 31007KT 6000 DU CLR 17/M16 A2993 RMK AO2A SLP113 Q1013 PA3296 DA4320 OAMS 160650Z 28008KT 9000 OVC042 01/M05 Q1026 BLU BLU OBBI 160700Z 29015KT CAVOK 20/13 Q1021 NOSIG OEAB 160700Z 35006KT CAVOK 15/M14 Q1028 NOSIG OEAH 160700Z 33012KT CAVOK 18/01 Q1022 NOSIG OEAO 160700Z 04012KT CAVOK 16/02 Q1026 OEAR 160700Z 03003KT CAVOK 23/15 Q1018 OEBA 160700Z 13005KT CAVOK 17/M06 Q1026 NOSIG OEBH 160700Z 00000KT CAVOK 16/M11 Q1024 NOSIG OEDF 160700Z 31010KT CAVOK 18/06 Q1022 NOSIG OEDM 160700Z 06010KT CAVOK 14/M02 Q1026 OEDR 160700Z 32014KT 8000 SKC 20/07 Q1020 NOSIG OEGN 160700Z 12002KT 9999 SCT030 26/21 Q1018 NOSIG OEGS 160700Z 04002KT CAVOK 14/05 Q1030 OEGT 160700Z 06004KT 8000 SKC 07/07 Q1026 OEHL 160700Z 08002KT CAVOK 11/03 Q1027 NOSIG OEJN 160700Z 04008KT CAVOK 26/10 Q1016 NOSIG OEKJ 160700Z 35006KT 9000 SKC 15/00 Q1027 OEKM 160700Z 02008KT CAVOK 16/M18 Q1027 NOSIG OEMA 160700Z 05012KT CAVOK 17/M02 Q1027 NOSIG OEMK 160700Z 00000KT CAVOK 24/17 Q1017 OENG 160700Z 00000KT CAVOK 17/M14 Q1024 NOSIG OEPA 160700Z 36006KT CAVOK 13/04 Q1025 NOSIG OERF 160700Z 23006KT CAVOK 14/02 Q1025 OERK 160700Z 35005KT CAVOK 15/M02 Q1026 NOSIG OERR 160700Z 30007KT CAVOK 13/10 Q1025 NOSIG OERY 160600Z 36005KT CAVOK 14/M01 Q1025 OESH 160700Z 33004KT CAVOK 13/07 Q1023 NOSIG OESK 160700Z 00000KT CAVOK 09/06 Q1027 NOSIG OETB 160700Z 15005KT CAVOK 10/M01 Q1026 NOSIG OETF 160700Z 12004KT CAVOK 17/M03 Q1025 NOSIG OETR 160700Z 25004KT CAVOK 08/07 Q1025 OEWD 160700Z 08022KT 6000 SKC 19/08 Q1024 NOSIG OEWJ 160700Z 05009KT CAVOK 24/05 Q1020 NOSIG OEYN 160700Z 00000KT CAVOK 22/08 Q1018 NOSIG OIAA 160700Z 31012KT 7000 NSC 16/06 Q1023 OIAG 160651Z 29012KT CAVOK 15/04 Q1022 OIAH 160700Z 00000KT CAVOK 15/M01 Q1022 OIAI 160700Z 14004KT CAVOK 15/05 Q1020 OIAM 160700Z 31018KT CAVOK 15/06 Q1022 OIAW 160653Z 30006KT CAVOK 15/04 Q1021 OIBA 160700Z 27014KT CAVOK 23/15 Q1016 OIBB 160650Z 34017KT 8000 NSC 19/07 Q1020 A3015 OIBJ 160700Z 31008KT CAVOK 16/01 Q1020 OIBK 160700Z 31014KT 7000 NSC 23/15 Q1017 OIBL 160700Z 17006KT CAVOK 24/11 Q1016 OIBP 160700Z 30012KT 8000 3900SE NSC 22/09 Q1015 A2999 OIBQ 160700Z 34019KT CAVOK 19/10 Q1021 OIBS 160700Z 27014KT CAVOK 24/13 Q1017 OIBV 160700Z 27016KT 8000 NSC 22/09 Q1017 OICC 160650Z 14004KT 9999 FEW035 05/M02 Q1022 A3021 NOSIG OICI 160700Z 17002KT CAVOK 09/M03 Q1023 A3023 OICJ 160652Z 16002KT 9999 FEW040 06/M05 Q1022 OICK 160650Z 16002KT 9999 FEW040 08/M02 Q1023 OICM 160700Z 29006KT CAVOK 15/00 Q1021 OICS 160655Z 18008KT 9999 FEW035TCU SCT040 BKN090 06/M01 Q1021 OIFK 160700Z 00000KT 9999 FEW040 08/M06 Q1021 OIFM 160700Z 28008KT CAVOK 06/M07 Q1022 A3019 OIFS 160653Z 15004KT CAVOK 04/M09 Q1022 OIGG 160700Z 28004KT 6000 -RA FEW010CB BKN020 OVC080 05/04 Q1030 OIGK 160650Z 00000KT 8000 BKN020 OVC070 M04/M06 Q1020 OIHH 160650Z 00000KT 9999 SCT040 04/M05 Q1021 OIHM 160651Z 14004KT CAVOK 05/M05 Q1022 OIIE 160700Z 32010KT 9999 SCT040 SCT100 05/M07 Q1022 NOSIG OIII 160700Z 10008KT 9999 FEW040 BKN100 05/M06 Q1021 A3017 NOSIG OIIK 160651Z 06006KT CAVOK 01/M04 Q1021 OIIP 160700Z 32012KT 8000 FEW040 BKN100 M01/M05 Q1022 OIIS 160700Z 18004KT 9999 FEW030 BKN100 05/M06 Q1022 OIKB 160700Z 10004KT 4000 HZ NSC 22/16 Q1016 A3000 NOSIG OIKK 160650Z 33008KT CAVOK 07/M20 Q1020 A3015 OIKO 160650Z 16004KT 4000 HZ BKN030 24/15 Q1016 OIKQ 160700Z 30006KT 4000 HZ NSC 22/16 Q1016 OIMB 160650Z 29006KT CAVOK 10/M17 Q1016 OIMC 160650Z 33008KT 9999 SCT040 OVC100 02/M03 Q1028 OIMD 160650Z 00000KT 9000 NSC 05/M07 Q1016 OIMM 160700Z 04004KT 9999 SCT025 BKN080 02/M03 Q1023 A3021 OIMN 160700Z 27004KT 9000 FEW015 SCT035 BKN070 01/M01 Q1023 OIMQ 160700Z 00000KT CAVOK 05/M06 Q1020 OINB 160700Z 03004KT 9999 -RA SCT020 OVC090 07/07 Q1028 OINE 160700Z 15004KT 8000 -RA BKN015 OVC080 04/03 Q1029 OING 160700Z 33004KT 6000 BKN008 FEW025CB OVC080 05/03 Q1031 OINK 160700Z 17004KT 4000 BR SCT020 BKN080 05/04 Q1028 OINN 160700Z 28006KT 9999 FEW024TCU BKN027 BKN090 07/05 Q1028 OINR 160700Z 34004KT 8000 FEW014 FEW020CB BKN080 08/06 Q1028 OINZ 160700Z 21004KT 4000 -RA BKN010 FEW022CB OVC070 07/06 Q1028 OISA 160700Z 27004KT CAVOK 04/M11 Q1022 OISF 160650Z 30008KT CAVOK 14/M07 Q1017 OISL 160650Z 00000KT CAVOK 16/M02 Q1018 OISR 160700Z 30016KT 5000 SA NSC 19/01 Q1018 OISS 160650Z VRB02KT CAVOK 11/M10 Q1020 A3014 OISY 160700Z 00000KT CAVOK 04/M11 Q1022 OITL 160652Z 16004KT 9999 FEW008 SCT030 M03/M06 Q1023 OITM 160700Z 15004KT 3000 BR SCT041 OVC110 00/M01 Q1022 OITP 160700Z 12008KT 9999 BKN040 02/01 Q1025 OITR 160650Z 09002KT 6000 FEW035CB SCT040 BKN090 01/M04 Q1022 TEMPO 5000 BR OITT 160700Z VRB02KT 9999 FEW020 SCT100 BKN170 00/M06 Q1023 A3022 NOSIG OITU 160652Z 00000KT 0300 FG BKN015 M05/M05 Q1021 OITZ 160700Z 00000KT 5000 BR SCT005 BKN020 BKN070 M01/M02 Q1021 OIYY 160650Z 32006KT CAVOK 08/M10 Q1024 OIZB 160700Z 34021G33KT 4000 SA NSC 12/M05 Q1014 OIZH 160700Z 27010KT CAVOK 16/M14 Q1016 A3001 NOSIG OIZI 160700Z 23006KT CAVOK 17/00 Q1017 OIZJ 160650Z 29012KT 8000 NSC 23/18 Q1015 OJAI 160700Z 00000KT 2000 BR NSC 07/06 Q1026 NOSIG OJAM 160700Z 24003KT 5000 BR BKN030 09/07 Q1025 NOSIG OJAQ 160700Z 35012KT CAVOK 15/08 Q1024 OKBK 160700Z 31006KT 8000 SKC 16/04 Q1024 NOSIG OLBA 160700Z 17004KT 8000 BKN040 17/10 Q1026 NOSIG OMAA 160704Z 24006KT 2000 RP2000 BR BKN004 17/17 Q1019 WS ALL RWY BECMG 30012KT 7000 OMAD 160700Z 22004KT 180V280 2000 BR BKN002 16/16 Q1019 WS ALL RWY BECMG 30012KT 4000 HZ OMAL 160700Z 33005KT 300V360 7000 FEW010 18/14 Q1020 NOSIG OMDB 160700Z 20007KT 170V240 9000 NSC 22/15 Q1018 NOSIG OMDW 160700Z 23012KT 9000 NSC 20/15 Q1020 NOSIG OMFJ 160700Z 30015KT 8000 FEW020 24/13 Q1017 A3004 OMRK 160700Z 23010KT CAVOK 22/15 Q1018 A3008 OMSJ 160700Z 21010KT CAVOK 21/15 Q1018 OOMS 160650Z 32011KT 270V340 9999 SCT025 24/16 Q1017 NOSIG OOSA 160650Z 03014KT CAVOK 27/M03 Q1018 NOSIG OOSH 160550Z AUTO VRB01KT //// 22/08 Q1017 RMK 1013 OPKC 160655Z 28010KT 5000 HZ NSC 27/08 Q1014 NOSIG OPLA 160655Z 35003KT 3000 HZ NSC 20/02 Q1015 A29.97 NOSIG OPMT 160552Z 00000KT 1500 FU NSC 15/09 Q1014 TEMPO 2000 OPNH 160700Z 13006KT 1000M FU NSC 23/09 Q.1013 NOSIG OPPS 160700Z 05004KT 4000 HZ FEW200 17/M01 Q1015 OPRN 160700Z 27004KT 2500 HZ NSC 19/M01 Q1015 A29.99 BECMG 2000 OPSK 160700Z 00000KT 2500 HZ NSC 22/10 Q1013 BECMG 3500 HZ OPST 160700Z 23004KT 4000 FU NSC 19/08 Q1015 NOSIG RH50 ORBD 160655Z VRB03KT 8000 HZ CLR 11/02 A3026 RMK SE-S VIS 6000 WND DATA ALSTG ESTMD ORBI 160700Z 32004KT 290V360 CAVOK 12/06 Q1025 NOSIG ORER 160700Z VRB02KT 6000 NSC 08/03 Q1025 NOSIG ORMM 160700Z 27008KT 8000 NSC 15/05 Q1024 NOSIG ORNI 160700Z 31003KT 8000 NSC 14/04 Q1024 NOSIG ORSU 160700Z VRB02KT 7000 FEW040 09/03 Q1025 OSDI 160700Z 00000KT 0500R23/0500 FG 06/05 Q1025 OSKL 160700Z 07002KT 3000 BR 08/01 Q1023 OSLK 160700Z 07002KT 9999 FEW026 SCT030 BKN100 13/09 Q1024 OTBD 160600Z 32013KT CAVOK 21/10 Q1020 NOSIG OTBH 160656Z 34020G25KT 9000 HZ CLR 21/11 A3015 RMK AO2A SLP212 T02090107 $ OTHH 160600Z 33016KT CAVOK 20/10 Q1020 NOSIG PAAD 160655Z AUTO 25007KT 10SM CLR M18/M19 A2961 RMK AO2 T11761194 PAAK 160656Z AUTO 29018G24KT 10SM FEW042 SCT049 OVC060 01/M06 A2963 RMK AO2 UPB14E16SNB16E27 SLP036 P0000 T00061056 FZRANO PAAQ 160653Z AUTO 14003KT 10SM OVC085 M04/M04 A2949 RMK AO2 SLP990 I1000 T10391039 TSNO PABA 160652Z AUTO 25008KT 10SM CLR M15/M17 A2962 PABE 160653Z 12004KT 10SM BKN040 OVC060 M01/M03 A2944 RMK AO2 SLP971 T10061028 $ PABI 160653Z AUTO 00000KT 10SM CLR M08/M08 A2960 PABL 160708Z AUTO 12021G27KT 10SM SCT017 M03/M05 A2950 RMK AO2 PK WND 12027/0708 FZRANO PABR 160653Z 12010KT 10SM CLR M16/M18 A2951 PABT 160653Z 32005KT 10SM FEW090 M14/M17 A2966 RMK AO2 SLP063 T11441172 PABV 160656Z AUTO 20003KT 10SM OVC011 M02/M04 A2951 RMK AO2 SLP002 T10221044 FZRANO $ PACD 160653Z AUTO 15011KT 10SM FEW095 01/00 A2933 PACM 160712Z AUTO 13011KT 10SM SCT007 BKN012 OVC024 00/M01 A2938 RMK AO2 FZRANO PACV 160653Z 00000KT 10SM -RA OVC041 06/06 A2943 RMK AO2 SLP966 P0005 T00560056 PACZ 160709Z AUTO 17017KT 1 1/2SM -PL BR OVC003 00/00 A2930 RMK AO2 SLP930 PADE 160653Z AUTO 14017KT 10SM CLR 02/M01 A2939 RMK AO2 SLP951 T00171011 TSNO $ PADK 160656Z AUTO 32011G18KT 10SM FEW049 01/M07 A2971 PADL 160656Z AUTO 05006KT 10SM OVC055 00/M01 A2947 PADM 160656Z AUTO 12012KT 10SM OVC060 02/M02 A2948 RMK AO2 SLP992 T00171017 FZRANO PADQ 160653Z AUTO 31010G17KT 10SM CLR 03/M01 A2937 PADU 160256Z 21004KT 6SM -SN BR SCT001 BKN008 OVC012 01/M01 A2931 RMK BP PAEC 160154Z 36010KT 15SM BKN050 M02/M04 A2951 RMK NOSPECI LAST PAED 160656Z 02005KT 10SM BKN014 BKN100 M02/M04 A2949 PAEG 160653Z AUTO 00000KT 10SM CLR M02/M04 A2958 RMK AO2 SLP027 T10171039 TSNO $ PAEH 160655Z AUTO 17015G21KT 120V190 10SM FEW026 03/M01 A2939 PAEI 160711Z 00000KT 10SM SCT070 M10/M11 A2962 RMK AO2A SLP044 $ PAEL 160146Z 10009KT 10SM -RA OVC025 09/06 A2957 RMK NOSPECI LAST PAEM 160656Z AUTO 16013KT 10SM -RA OVC005 01/00 A2939 RMK AO2 UPE09RAB51 SLP010 P0000 T00060000 FZRANO PAEN 160653Z AUTO 04003KT 10SM FEW070 M07/M07 A2949 PAFA 160653Z 02004KT 10SM SCT070 BKN200 M14/M16 A2964 PAFB 160658Z AUTO 00000KT 10SM SCT065 M13/M14 A2965 PAFE 160656Z AUTO 09005KT 10SM OVC095 10/04 A2953 RMK AO2 SLPNO T01000039 PAFM 160656Z AUTO 05004KT 10SM OVC050 M04/M07 A2962 RMK AO2 SLP043 T10391072 FZRANO PAFR 160658Z AUTO 02003KT 10SM OVC009 M03/M05 A2946 PAFS 160701Z AUTO 00000KT 10SM CLR M17/M19 A2958 PAGA 160656Z AUTO 10004KT 10SM CLR M09/M11 A2961 PAGH 160656Z AUTO 11014G20KT 10SM OVC050 M04/M08 A2960 RMK AO2 SNB15E50 SLP031 P0000 T10391078 FZRANO PAGK 160653Z AUTO 33005KT 10SM OVC065 M04/M05 A2953 RMK AO2 SLP034 T10441050 TSNO $ PAGL 160656Z AUTO 15020KT 10SM OVC021 01/M01 A2944 RMK AO2 PK WND 15026/0635 SLP967 T00061011 FZRANO PAGM 160656Z AUTO 26007KT 10SM OVC012 M06/M07 A2931 RMK AO2 SLP931 T10561067 FZRANO PAGN 160656Z AUTO 18004KT 10SM OVC100 04/04 A2952 RMK AO2 SLP985 T00440039 PAGS 160656Z AUTO 00000KT 4SM BR FEW002 OVC100 04/04 A2951 RMK AO2 SLP994 T00440039 PAGY 160710Z AUTO 00000KT 2 1/2SM BR BKN095 03/02 A2959 RMK AO2 VIS 1 3/4V4 T00280022 TSNO PAHC 160656Z AUTO 00000KT 10SM OVC060 01/M02 A2949 RMK AO2 SLP990 T00061017 FZRANO PAHL 160656Z AUTO 12004KT 10SM OVC110 M08/M10 A2961 RMK AO2 SLP038 T10781100 FZRANO PAHN 160654Z AUTO 30015KT 10SM SCT100 05/04 A2957 RMK AO2 SLP015 T00500039 TSNO PAHO 160653Z AUTO 03005KT 10SM CLR M03/M04 A2945 RMK AO2 SLP972 I1000 T10281044 TSNO PAHP 160656Z AUTO 16014KT 8SM OVC008 M01/M01 A2924 RMK AO2 UPE0559SNB0559E12 CIG 006V010 SLP939 P0000 T10061011 FZRANO PAHX 160256Z AUTO 11005KT 10SM CLR 01/M02 A2946 RMK AO2 SLP975 T00061022 53015 FZRANO PAIG 160656Z AUTO 00000KT 10SM CLR M03/M04 A2947 RMK AO2 SLP990 T10331039 FZRANO $ PAII 160656Z AUTO 06006KT 10SM CLR M02/M02 A2945 RMK AO2 SLP976 T10171022 FZRANO PAIK 160656Z AUTO 10011G16KT 10SM FEW060 BKN085 OVC120 M03/M06 A2954 RMK AO2 SNB0559E33 SLP010 P0000 T10281056 FZRANO PAIL 160653Z AUTO 32006KT 10SM FEW050 M01/M03 A2948 RMK AO2 SLP986 T10111033 TSNO PAIM 160655Z AUTO 00000KT 10SM CLR M11/M13 A2958 PAIN 160656Z AUTO 00000KT 10SM CLR M07/M08 A2953 RMK AO2 SLP038 T10721078 FZRANO PAIW 160710Z AUTO 19024KT 3SM -SN BR BKN004 OVC007 M03/M03 A2928 RMK AO2 PK WND 19028/0709 P0000 FZRANO PAJC 160657Z AUTO 15003KT 10SM BKN034 01/00 A2942 RMK AO2 SLP962 T00110000 FZRANO PAJN 160653Z 06003KT 10SM FEW001 BKN100 01/01 A2953 PAJZ 160656Z AUTO 06006KT 8SM OVC034 01/M01 A2953 RMK AO2 SLP006 T00061006 FZRANO $ PAKF 160701Z AUTO 23004KT 10SM OVC026 00/M01 A2934 RMK AO2 SLP029 T00001011 FZRANO PAKH 160656Z AUTO 10SM CLR 02/M02 A2939 RMK AO2 SLP952 T00171017 FZRANO $ PAKI 160656Z AUTO 13014KT 10SM OVC027 01/M01 A2936 RMK AO2 SLP943 T00061006 FZRANO PAKK 160656Z AUTO 15008KT 10SM OVC060 01/M02 A2944 RMK AO2 SLP985 T00061022 FZRANO PAKN 160654Z 02003KT 10SM BKN047 M01/M03 A2943 PAKP 160656Z AUTO 19008KT 10SM CLR M12/M14 A2955 RMK AO2 SLP071 T11171139 FZRANO PAKT 160653Z AUTO 17009KT 10SM OVC048 11/04 A2958 PAKU 160345Z 17007KT 10SM R06/P6000FT SKC M19/M21 A2956 RMK LAST PAKV 160705Z AUTO 00000KT 1 3/4SM -SN BR OVC023 M04/M05 A2961 RMK AO2 UPE0656SNB0656 P0000 T10391050 TSNO PAKW 160653Z AUTO 14016G29KT 10SM -RA OVC043 12/07 A2946 RMK AO2 PK WND 14029/0653 SLP977 P0000 T01220067 TSNO PALG 160656Z 07007KT 10SM OVC060 02/M01 A2946 RMK AO2 SLP295 PWINO FZRANO TSNO RVRNO PALH 160653Z 03007KT 10SM OVC065 M02/M05 A2951 RMK AO2 SLP993 T10171050 PALJ 160151Z 00000KT 30SM SKC M00/M03 A2945 RMK 400391006 EST PASS OPEN LAST NOSPECI PALP 160545Z 00000KT 10SM SKC M16/M18 A2958 RMK LAST PALU 160655Z AUTO 17021G30KT 130V190 10SM BKN120 BKN140 02/M02 A2936 PAMB 160656Z AUTO 03005KT 10SM OVC006 01/00 A2946 RMK AO2 SLPNO T00060000 FZRANO $ PAMC 160653Z AUTO 31003KT 10SM CLR M17/M19 A2960 RMK AO2 SLP033 T11671194 TSNO $ PAMD 160713Z AUTO 06017KT 1 3/4SM -RA BR OVC003 06/06 A2933 RMK AO2 P0001 PAMH 160656Z 00000KT 10SM CLR M18/M20 A2960 RMK AO2 SLP297 PWINO FZRANO RVRNO PAMK 160656Z AUTO 15011KT 10SM CLR 00/M02 A2946 RMK AO2 SLP980 T00001022 FZRANO $ PAMM 160456Z AUTO 18008G17KT 10SM -RA FEW080 BKN100 14/02 A2957 RMK AO2 RAB45 SLP006 P0000 T01390022 $ PAMO 160701Z AUTO 14015KT 10SM OVC026 01/M01 A2940 RMK AO2 SLP963 T00061006 FZRANO PAMR 160653Z 04004KT 10SM BKN017 OVC060 M02/M05 A2950 RMK AO2 SLP991 T10221050 $ PAMY 160656Z AUTO 16008KT 10SM UP OVC038 M01/M01 A2932 RMK AO2 UPE17B49 SLP930 P0000 T10061011 FZRANO PANA 160656Z AUTO 09005KT 10SM FEW036 BKN060 M02/M03 A2943 RMK AO2 SLP965 T10171028 FZRANO PANC 160653Z 03004KT 10SM FEW015 BKN065 OVC110 M02/M05 A2949 PANI 160656Z AUTO 12003KT 10SM CLR M02/M03 A2949 RMK AO2 SLP954 T10221028 FZRANO PANN 160653Z AUTO 00000KT 10SM BKN060 M15/M17 A2963 RMK AO2 SLP046 T11501172 TSNO PANV 160356Z AUTO 07005KT 10SM OVC060 M01/M02 A2944 RMK AO2 SLP991 T10061022 FZRANO PANW 160656Z AUTO 04005KT 10SM BKN039 OVC050 00/M01 A2948 RMK AO2 SLP001 T00001011 FZRANO PAOH 160704Z AUTO 00000KT 10SM BKN100 03/03 A2951 RMK AO2 PAOM 160653Z AUTO 15012KT 1 3/4SM -SN BR OVC008 M01/M01 A2935 PAOR 160653Z 00000KT 10SM BKN120 M13/M14 A2959 PAOT 160653Z 12023KT 10SM SCT100 BKN120 M03/M05 A2944 PAOU 160656Z AUTO 10SM CLR 02/00 A2937 RMK AO2 SLP946 T00170000 FZRANO $ PAPB 160653Z AUTO 32009KT 8SM -SN FEW016 FEW021 BKN046 M01/M02 A2939 RMK AO2 SNB35 SLP940 P0000 T10061017 TSNO PAPG 160656Z 00000KT 10SM BKN110 07/03 A2954 RMK AO2 SLP006 T00720033 PAPH 160656Z AUTO VRB04KT 10SM CLR 01/M02 A2942 RMK AO2 SLP964 T00061017 FZRANO PAPM 160656Z AUTO 04004KT 10SM SCT055 01/M01 A2941 RMK AO2 SLP963 T00111011 FZRANO PAPN 160656Z AUTO 07008KT 10SM CLR M01/M02 A2942 RMK AO2 SLP965 T10111022 FZRANO PAPO 160656Z AUTO 14020G27KT 10SM OVC008 M02/M03 A2934 RMK AO2 PK WND 14027/0653 SNE21 SLP935 P0000 T10171028 FZRANO PAPT 160156Z 00000KT 25SM FEW050 M14/M14 A2950 RMK NOSPECI LAST PAQH 160656Z AUTO 11010KT 10SM CLR 00/M01 A2942 RMK AO2 SLP961 T00001011 PWINO FZRANO $ PAQT 160653Z AUTO 18004KT 10SM UP CLR M16/M17 A2960 RMK AO2 UPB04E30B47 SLP025 P0000 T11561172 TSNO $ PARC 160656Z AUTO 28003KT 10SM SCT026 OVC036 M13/M15 A2957 RMK AO2 SLP084 T11331150 FZRANO PARS 160656Z AUTO 00000KT 10SM SCT046 OVC065 M01/M02 A2946 RMK AO2 SLP980 T10111017 FZRANO $ PARY 160656Z AUTO 06008KT 10SM CLR M11/M13 A2960 PASC 160653Z 10003KT 10SM SCT150 M19/M21 A2959 PASD 160656Z AUTO 13005KT 10SM FEW027 BKN039 BKN075 02/M01 A2928 RMK AO2 UPB09E22RAB22E35 SLP918 P0000 T00171006 FZRANO PASH 160656Z AUTO 18011KT 10SM FEW037 M02/M03 A2932 RMK AO2 SLP929 T10171033 FZRANO PASI 160653Z 13019G29KT 10SM FEW047 BKN070 OVC110 14/04 A2941 PASK 160656Z AUTO 08015KT 10SM OVC065 M04/M07 A2954 RMK AO2 SLP002 T10441067 FZRANO $ PASL 160556Z AUTO 17003KT 10SM BKN045 M02/M04 A2957 RMK AO2 SLP010 60000 T10221044 10000 21022 51011 FZRANO PASM 160656Z AUTO 14011G16KT 10SM SCT024 BKN029 OVC036 01/M01 A2942 RMK AO2 SLP981 T00111011 FZRANO PASN 160704Z AUTO 32007KT 4SM -SN BR SCT016 OVC029 M01/M01 A2939 PASO 160653Z AUTO 00000KT 10SM CLR M02/M03 A2944 RMK AO2 SLP969 I1001 T10221028 TSNO $ PASV 160655Z AUTO 07004KT 10SM CLR M01/M06 A2946 PASX 160656Z AUTO 00000KT 10SM CLR M09/M11 A2951 RMK AO2 SLP003 T10941106 FZRANO PASY 160658Z AUTO 22020KT 7SM SCT021 SCT032 BKN050 BKN060 00/M02 A2969 PATA 160701Z AUTO 00000KT 10SM OVC015 M12/M13 A2967 RMK AO2 T11171128 TSNO PNO PATC 160655Z AUTO 18027KT 2 1/2SM -FZRA BR FEW003 OVC010 M02/M02 A2925 PATE 160656Z AUTO 16022KT 10SM -SN FEW090 M01/M02 A2929 RMK AO2 PK WND 17026/0641 UPB21E53SNB53 SLP927 P0000 T10061017 FZRANO PATG 160656Z AUTO 03003KT 10SM CLR M01/M01 A2945 RMK AO2 SLP068 T10061011 FZRANO PATK 160653Z AUTO 08003KT 10SM BKN080 OVC090 M04/M06 A2951 RMK AO2 SLP001 T10441056 TSNO $ PATL 160655Z AUTO 00000KT 10SM CLR M08/M09 A2957 PATO 160710Z AUTO 00000KT 10SM FEW009 OVC039 02/01 A2946 RMK AO2 RAE03 P0000 T00220011 TSNO PATQ 160656Z AUTO 15008KT 10SM M12/M13 A2950 PAUN 160656Z AUTO 07015KT 10SM OVC065 00/M02 A2952 RMK AO2 SLP001 T00001022 FZRANO PAUT 160655Z AUTO 33015KT 10SM SCT017 BKN032 OVC049 02/00 A2934 RMK AO2 T00190004 PAVA 160656Z AUTO 14011KT 10SM BKN017 OVC025 M01/M01 A2934 RMK AO2 SLP021 T10061011 FZRANO PAVC 160522Z AUTO VRB03KT 6SM -RA BR FEW007 BKN023 OVC033 02/01 A2935 RMK AO2 UPB19E21 P0001 FZRANO PAVD 160656Z 00000KT 10SM FEW001 SCT050 OVC075 02/01 A2949 PAVL 160653Z AUTO 13017KT 9SM FEW018 FEW034 OVC060 M01/M02 A2938 RMK AO2 PK WND 13026/0622 SNE00 SLP949 P0000 T10061022 TSNO $ PAWD 160653Z AUTO 03011G18KT 10SM OVC060 03/M03 A2941 RMK AO2 SLP958 T00281028 TSNO PAWG 160656Z 00000KT 10SM BKN100 06/02 A2958 PAWI 160653Z AUTO 13007KT 10SM CLR M11/M12 A2945 RMK AO2 SLP973 T11061122 TSNO PAWM 160656Z AUTO 15017G23KT 10SM OVC015 00/M01 A2941 RMK AO2 UPE01 SLP966 P0000 T00001011 FZRANO PAWN 160656Z AUTO 12012KT 10SM OVC021 M01/M03 A2946 RMK AO2 SNE38 SLP989 P0000 T10111033 FZRANO PAWS 160656Z AUTO 00000KT 10SM SCT085 OVC120 M03/M06 A2950 RMK AO2 SLP004 T10331056 FZRANO PAYA 160215Z 08003KT 10SM OVC050 07/06 A2954 RMK VIA PHONE PAZK 160713Z AUTO 2SM -SN OVC002 A2945 RMK AO2 P0000 FZRANO $ PFCL 160656Z AUTO 13006KT 10SM OVC050 01/00 A2946 RMK AO2 SLP970 T00060000 FZRANO TSNO PFEL 160656Z AUTO 18010KT 10SM SCT032 OVC065 M01/M02 A2947 RMK AO2 SLP980 T10061017 FZRANO PFKT 160703Z AUTO 17012KT 10SM UP BKN014 OVC046 M01/M02 A2934 RMK AO2 P0000 FZRANO PFKW 160656Z AUTO 10004KT 10SM OVC060 01/M02 A2944 RMK AO2 SLP967 T00061017 FZRANO PFNO 160656Z AUTO 08013KT 10SM OVC085 M02/M04 A2950 RMK AO2 SLP991 T10171039 FZRANO PFSH 160656Z AUTO 14015KT 10SM OVC065 01/M02 A2949 RMK AO2 SLP986 T00061022 PWINO FZRANO $ PFWS 160656Z AUTO 09005KT 10SM OVC050 01/M02 A2946 RMK AO2 SLP984 T00061022 FZRANO PFYU 160706Z AUTO 00000KT 5SM BR BKN008 OVC011 M12/M13 A2970 PGRO 160650Z 09013KT 7SM SCT013 27/22 A2980 PGSN 160654Z 08010KT 10SM SCT023 28/24 A2980 RMK AO2 RAE0558 SLP113 P0000 T02830239 PGUA 160656Z AUTO 08012KT 10SM CLR 27/21 A2981 RMK AO2 SLP085 T02740205 $ PGUM 160654Z 08015G19KT 10SM CLR 29/21 A2980 RMK AO2 SLP083 T02940206 PGWT 160650Z 08010KT 7SM SCT016 BKN100 28/23 A2979 PHHI 160656Z AUTO 29006KT 10SM CLR 18/16 A3014 RMK AO2 SLP200 T01760159 $ PHJH 160245Z 03015KT 15SM SCT035 24/18 A3003 PHJR 160653Z 05003KT 10SM CLR 21/16 A3012 RMK AO2 SLP205 T02060161 PHKO 160653Z 00000KT 10SM OVC038 24/18 A3005 PHLI 160653Z 03011KT 10SM CLR 22/18 A3013 PHMK 160654Z AUTO RMK AO2 SLPNO PWINO TSNO $ PHNL 160653Z 06006KT 10SM FEW024 24/17 A3010 PHNY 160656Z AUTO 06006KT 10SM BKN022 BKN027 21/17 A3014 RMK AO2 SLP189 T02060167 PHOG 160654Z 04013KT 10SM FEW030 SCT050 23/20 A3009 PHSF 160656Z AUTO 13004KT 10SM FEW075 11/M01 A3038 RMK AO2 SLP171 WND DATA ESTMD T01061008 $ PHTO 160653Z 00000KT 10SM FEW025 FEW030 BKN043 22/19 A3011 PKMJ 160152Z 10012KT 15SM FEW015 SCT300 31/25 A2975 RMK LAST PKMR 160650Z 09008KT 15SM FEW015 SCT300 28/25 A2975 RMK SLP076 T02780245 PKWA 160700Z AUTO 11012KT 10SM SCT026 29/23 A2975 RMK AO2 T02900230 PLCH 160700Z 14009KT 9999 FEW020 SCT300 26/23 Q1010 PMDY 160656Z AUTO 02008KT 10SM OVC041 18/11 A3018 RMK AO2 SLP219 T01780106 PPIT 160656Z AUTO 13009KT 10SM CLR M01/M02 A2942 RMK AO2 SLP961 T10111017 FZRANO TSNO PPIZ 160656Z AUTO 13010KT 10SM OVC060 M04/M06 A2944 RMK AO2 SLP973 T10441056 FZRANO TSNO PTKK 160655Z VRB04KT 15SM FEW014 BKN120 OVC280 27/25 A2969 RMK SLP055 T02720250 PTKR 160651Z 07008KT 15SM SCT017 SCT120 OVC290 29/24 A2968 RMK SLP050 T02890244 PTPN 160450Z 09004KT 15SM BKN018TCU BKN130 OVC300 30/26 A2966 RMK TCU NE-NW LAST PTRO 160650Z 07008KT 15SM SCT015TCU BKN120 OVC300 27/24 A2967 RMK TCU ALQDS PTSA 160250Z 11008KT 10SM FEW021 SCT130 BKN300 31/23 A2977 RMK LAST PTTP 160650Z 05004KT 12SM -SHRA BKN016TCU OVC120 26/25 A2973 RMK SHRAB08 TCU ALQDS SLP068 T02610254 PTYA 160650Z 08007KT 12SM SCT018 BKN300 29/23 A2970 RMK SLP057 T02900233 PWAK 160558Z AUTO 08013KT 9000 HZ FEW025 27/23 A2987 RMK AO2 SLP121 53005 RCFN 160700Z 07006KT 020V120 9999 VCSH FEW020 BKN060 24/18 Q1012 NOSIG RMK A2990 RCKH 160700Z 34008KT 310V030 8000 FEW015 SCT030 BKN050 27/06 Q1011 NOSIG RMK A2988 RCMQ 160700Z 32005KT 9999 FEW010 SCT025 BKN050 22/11 Q1012 NOSIG RMK A2989 RCNN 160700Z 02010KT 9999 FEW012 BKN060 25/11 Q1011 NOSIG RMK A2988 RCSS 160700Z 29007KT 260V320 9999 FEW025 BKN080 23/15 Q1012 NOSIG RMK A2989 RCTP 160700Z 35004KT 320V030 9999 FEW010 BKN060 19/17 Q1012 NOSIG RMK A2991 RJAA 160700Z 06007KT 9999 FEW030 BKN/// 12/06 Q1018 BECMG 09005KT RJAF 160700Z 18020KT 9999 FEW080 BKN/// 10/M04 Q1015 RJAH 160700Z 10006KT 080V140 9999 FEW025 BKN210 12/04 Q1018 RJAW 160700Z 09019KT 9999 FEW020 SCT030 20/12 Q1017 RMK 1CU020 4CU030 A3004 RJBB 160700Z VRB01KT 9999 FEW030 12/06 Q1018 NOSIG RJBD 160700Z 17008KT 130V200 9999 FEW035 14/09 Q1019 RJBE 160700Z VRB01KT 9999 FEW030 13/06 Q1018 RJBT 160700Z 20005KT 160V240 9999 FEW040 SCT070 12/05 Q1016 RJCA 160645Z 20006KT 8000 -SHSN FEW008 SCT010 BKN020 M02/M04 Q1016 RMK 1ST008 3ST010 7CU020 A3000 RJCB 160700Z 08003KT 040V120 9999 FEW040 BKN/// M03/M09 Q1015 RJCC 160700Z VRB02KT 9999 FEW030 BKN110 BKN/// M00/M07 Q1017 RMK 1CU030 6AC110 A3004 RJCH 160700Z 29008KT 270V350 9999 FEW040 SCT100 BKN/// 01/M05 Q1017 RJCK 160700Z 06003KT 030V110 9999 FEW020 SCT040 BKN/// M00/M04 Q1015 RJCM 160700Z 09003KT 8000 -SHSN FEW008 SCT020 BKN040 M04/M06 Q1016 RJCN 160700Z 09008KT 9999 -SHSN FEW015 SCT030 BKN045 M01/M05 Q1016 RJCW 160700Z 16006KT 8000 -SHSN FEW015 SCT020 BKN035 M04/M05 Q1015 RJDC 160700Z 07012KT 9999 FEW005 SCT060 BKN100 12/10 Q1015 RJDT 160700Z VRB06G17KT 4500 SHRA BR FEW006 SCT015 BKN020 14/13 Q1013 RJEB 160700Z 14006KT 4000 -SHSN FEW005 BKN030 M04/M05 Q1016 RJEC 160700Z 20005KT 9999 FEW010 BKN025 M02/M06 Q1015 RJFF 160700Z 13010KT 090V150 9999 FEW040 SCT050 BKN080 17/08 Q1014 RMK 1CU040 3SC050 7AC080 A2995 RJFG 160700Z 16010KT 130V200 9999 FEW035 17/09 Q1017 RJFK 160700Z 15008KT 9999 VA FEW030 SCT040 16/07 Q1017 RMK 1CU030 3CU040 A3003 ASH FALL VOLCANIC ASH CLOUD S-NW RJFM 160700Z 17014KT 9999 FEW030 19/09 Q1017 RJFO 160700Z 18004KT 140V220 9999 FEW025 SCT060 16/11 Q1015 RJFR 160709Z 30003KT 2500 BR FEW001 SCT003 BKN090 09/08 Q1015 RMK 1ST001 3ST003 7AC090 A2999 RJFS 160700Z 18006KT 9999 FEW035 SCT070 BKN100 15/09 Q1015 RJFT 160700Z 21004KT 160V250 9999 FEW035 SCT100 17/06 Q1015 RJFU 160700Z 17015KT 9999 FEW040 SCT050 BKN070 18/08 Q1015 RJGG 160700Z 25006KT 9999 FEW025 BKN/// 10/06 Q1019 BECMG 18010KT RJKA 160700Z 17019KT 9999 FEW035 SCT040 21/12 Q1016 RJNG 160523Z VRB03KT 9999 FEW030 SCT060 BKN240 14/02 Q1020 RMK 1CU030 3SC060 A3012 RJNK 160700Z 21006KT 180V240 9999 FEW030 BKN200 09/M01 Q1016 RJNS 160700Z 29014KT 9999 FEW030 SCT/// 15/M01 Q1017 RJNT 160700Z 19007KT 140V210 9999 FEW050 SCT060 BKN080 11/01 Q1016 RJNW 160700Z 22010KT 9999 FEW020 SCT030 BKN040 09/03 Q1015 RJNY 160545Z 28010KT 230V310 9999 FEW030 16/M01 Q1017 RMK 1CU030 A3005 RJOA 160700Z 13004KT 9999 FEW010 BKN050 09/06 Q1017 RJOB 160700Z 14005KT 110V170 9999 FEW025 SCT100 11/05 Q1017 RJOC 160700Z 17006KT 140V230 9999 -SHRA FEW030 SCT050 BKN070 13/06 Q1015 RJOF 160119Z 04004KT 9999 FEW010 BKN080 11/08 Q1022 RMK 1CU010 5AC080 A3020 RJOH 160700Z 20005KT 9999 -SHRA FEW020 SCT030 BKN050 12/03 Q1015 RJOI 160655Z 00000KT 9999 FEW025 BKN050 BKN080 11/08 A3004 RMK SLP172 T01110078 RJOK 160700Z 17004KT 9999 FEW025 BKN030 15/08 Q1018 RJOM 160700Z 36011KT 8000 FEW025 BKN070 13/08 Q1016 RJOO 160700Z 00000KT 9999 FEW030 BKN060 14/02 Q1018 RMK 1CU030 5SC060 A3007 RJOR 160700Z 17005KT 9999 FEW035 SCT070 BKN120 14/04 Q1015 RJOT 160700Z 07005KT 040V110 9999 FEW030 10/08 Q1017 RJOW 160700Z 16011KT 9999 FEW030 SCT070 BKN100 16/08 Q1014 RJOY 160700Z 36007KT 9999 FEW035 SCT070 15/01 Q1018 RJOZ 160615Z 20005KT 150V230 5000 BR SCT004 BKN080 11/09 Q1015 RMK 4ST004 6AC080 A3000 RJSA 160700Z 17007KT 9999 FEW030 SCT120 BKN150 01/M05 Q1016 RJSC 160700Z 02005KT 9999 FEW040 SCT070 BKN080 03/M01 Q1018 RJSF 160700Z VRB02KT CAVOK 09/M03 Q1017 RJSI 160700Z 09004KT 9999 FEW030 SCT130 BKN/// 03/M02 Q1018 RJSK 160700Z 15004KT 110V190 9999 FEW035 SCT090 BKN120 03/M01 Q1018 RJSN 160700Z VRB02KT CAVOK 06/01 Q1016 RJSR 160700Z 06003KT 9999 FEW030 BKN/// 03/M02 Q1017 RJSS 160700Z 12008KT 9999 FEW040 SCT080 BKN/// 08/04 Q1018 RJSU 160630Z 13004KT 9999 FEW030 SCT100 BKN120 08/M00 Q1019 RMK 1CU030 3AC100 5AC120 A3009 RJSY 160700Z 11005KT 9999 FEW030 SCT050 BKN070 04/M02 Q1017 RJTF 160700Z 18004KT 9999 FEW030 BKN/// 13/M04 Q1018 RJTI 160700Z 16003KT 9999 FEW030 BKN/// 13/M02 Q1018 RJTO 160700Z 06004KT 9999 FEW030 SCT/// 12/03 Q1018 RJTT 160700Z VRB01KT 9999 FEW030 SCT/// 12/M02 Q1018 NOSIG RMK 1CU030 A3008 RJTY 160656Z 17004KT 10SM SCT200 12/M04 A3012 RMK AO2A SLP209 T01181040 FZRANO $ RKJB 160700Z 01006KT 2300 -RA BR FEW010 BKN030 OVC080 07/07 Q1014 NOSIG RKJK 160656Z 33005KT 7SM BR OVC015 06/04 A3001 RMK AO2A RAE06 SLP167 P0000 T00630036 RKNY 160700Z 10005KT 9999 SCT035 BKN100 09/M05 Q1015 NOSIG RKPC 160700Z 26006KT 8000 -RA FEW015 BKN025 OVC090 15/12 Q1012 NOSIG RKPK 160700Z 03003KT 1600 -RA BR BKN015 OVC030 08/07 Q1014 NOSIG RKSG 160656Z 01006KT 2SM BR BKN050 OVC100 05/05 A3003 RMK AO2A SLP173 T00520049 PWINO $ RKSI 160700Z 06004KT 2500 -RA HZ BKN025 OVC100 04/M01 Q1017 NOSIG RKSM 160700Z 22003KT 6000 -RA HZ BKN030 OVC080 07/M02 A3005 RKSO 160708Z 00000KT 2 1/2SM R27/5500FT RA BR BKN036 06/05 A3003 RMK AO2A RAB0712 SLPNO RKSS 160700Z 25002KT 3300 -RA HZ BKN030 OVC090 05/M04 Q1017 NOSIG RKTN 160700Z 32002KT 4000 -RA BR SCT015 BKN025 OVC040 07/04 Q1015 NOSIG RKTU 160700Z 18004KT 3600 BR FEW030 BKN060 05/01 Q1016 NOSIG ROAH 160700Z 14015KT 9999 FEW035 23/12 Q1014 RMK 2CU035 A2996 RODN 160656Z AUTO 12014G21KT 10SM CLR 22/14 A2998 RMK AO2 SLP159 T02200141 ROIG 160700Z 11012KT 9999 -SHRA FEW017 SCT023 BKN045 21/19 Q1012 ROMY 160700Z 14015KT 9999 VCSH BKN022 BKN080 22/17 Q1013 RORS 160700Z 13019KT 9999 SCT024 BKN048 23/17 Q1013 RORY 160700Z AUTO 15015KT 9999 NSC 21/12 Q1015 ROTM 160656Z AUTO 14014G23KT 10SM FEW041 22/13 A2999 RMK AO2 SLP141 T02220133 $ ROYN 160700Z AUTO 25008KT 1300 BR FEW005 BKN007 BKN011 //////TCU 20/20 Q1012 RPLB 160700Z 10007KT 9999 FEW020 BKN080 31/21 Q1006 NOSIG RMK A2971 RPLC 160700Z 35008KT 9999 SCT020 BKN300 31/20 Q1009 NOSIG RMK A2980 RPLI 160700Z 32004KT 9999 FEW019 30/22 Q1007 NOSIG RMK A2974 RPLL 160700Z 05004KT 300V080 9000 -SHRA SCT023 OVC090 29/22 Q1007 NOSIG RMK A2974 RPMD 160700Z 02007KT 9999 -RA SCT016 BKN090 BKN290 28/24 Q1005 RMK A2968 RPMR 160700Z 15002KT 9999 FEW018 SCT080 OVC250 30/22 Q1007 NOSIG RMK A2974 RPMZ 160700Z 27004KT 9000 VCSH SCT016CB OVC100 30/24 Q1005 RMK A2968 CB NW-NE S W/ VCSH N RPVD 160700Z 00000KT 9999 SCT015 OVC080 25/24 Q1006 RMK A2971 RPVM 160700Z 23005KT 6000 RA SCT020 OVC080 23/22 Q1007 RMK A2974 RPVP 160700Z 18004KT 3000 SHRA SCT019 OVC080 26/24 Q1006 RMK A2971 SAAR 160700Z 09004KT CAVOK 21/18 Q1014 SABE 160700Z 06011KT CAVOK 22/11 Q1015 SACO 160700Z 35004KT CAVOK 17/13 Q1014 SADF 160700Z 04006KT 020V080 CAVOK 21/17 Q1015 SAEZ 160700Z 11002KT CAVOK 16/15 Q1015 SAME 160700Z 14014G24KT 9999 SCT045 SCT050 19/14 Q1015 SANT 160600Z 36006KT 9999 SCT040 21/18 Q1012 SAOC 160700Z 09007KT 9999 SCT030 BKN100 19/17 Q1014 SARC 160700Z 20002KT 8000 MIFG FEW023 20/19 Q1011 SARE 160700Z 21003KT 9999 FEW040 20/19 Q1011 SARF 160700Z 23002KT 5000 BR NSC 20/19 Q1011 SARI 160700Z 00000KT 0200 FG OVC001 22/22 Q1011 SARL 160600Z 14009KT CAVOK 22/20 Q1012 SARP 160700Z 11002KT CAVOK 21/19 Q1012 SASA 160700Z 00000KT CAVOK 16/15 Q1016 SASJ 160600Z 36003KT 9999 FEW020 BKN100 21/16 Q1015 SAVC 160700Z 27010KT CAVOK 18/08 Q1010 SAWE 160300Z 32016KT CAVOK 10/03 Q0996 SAWG 160700Z 32007KT CAVOK 11/04 Q0996 SAWH 160700Z 23006KT 9999 BKN045 10/02 Q0991 SAZM 160700Z 28003KT CAVOK 09/09 Q1016 SAZN 160700Z 27012KT CAVOK 20/09 Q1013 SAZS 160700Z 18003KT CAVOK 07/05 Q1018 SBAN 160600Z 10006KT 9999 FEW025 SCT100 19/17 Q1020 SBAR 160700Z 11011KT 9999 SCT017 26/21 Q1013 SBBE 160700Z 07002KT CAVOK 24/23 Q1010 SBBH 160600Z 20005KT 9999 SCT030 21/18 Q1018 SBBR 160700Z VRB02KT CAVOK 19/16 Q1019 SBBU 160200Z 19009KT 9999 SCT030 FEW040TCU BKN070 26/23 Q1018 SBBV 160700Z 08009KT CAVOK 26/22 Q1010 SBCA 160200Z 03012KT 9000 SCT006 SCT080 21/20 Q1016 SBCF 160700Z 16003KT CAVOK 20/18 Q1019 SBCG 160700Z 01006KT 9999 FEW030 22/21 Q1014 SBCO 160200Z 15005KT 9999 FEW035 BKN100 24/21 Q1012 SBCT 160700Z 06002KT CAVOK 20/18 Q1017 SBCY 160700Z 32004KT 9999 BKN040 24/23 Q1013 SBCZ 160545Z 00000KT 9999 SCT020 BKN100 23/22 Q1013 SBDN 160200Z 07006KT 9999 -RA FEW003 BKN005 22/21 Q1016 SBEG 160700Z 03001KT 9999 FEW008 22/22 Q1011 SBFI 160700Z 03002KT 0900 FG SCT015 22/22 Q1011 SBFL 160700Z VRB02KT CAVOK 23/22 Q1010 SBFZ 160700Z 13008KT 9999 FEW023 SCT090 27/22 Q1010 SBGL 160700Z 12003KT CAVOK 24/21 Q1012 SBGO 160700Z 10007KT CAVOK 21/19 Q1017 SBGR 160700Z 00000KT CAVOK 21/20 Q1017 SBIL 160600Z 24003KT 9999 SCT018 SCT035 24/22 Q1015 SBIZ 160600Z 00000KT 0050 FG BKN004 23/23 Q1010 SBJP 160700Z 17003KT 9999 BKN020 23/21 Q1012 SBJU 160600Z 10004KT 9999 SCT020 25/19 Q1015 SBKG 160600Z 10008KT 9999 SCT010 21/20 Q1014 SBKP 160700Z 22005KT CAVOK 20/19 Q1017 SBLO 160700Z 04002KT 0100 FG VV001 21/21 Q1016 SBMA 160700Z 00000KT CAVOK 23/23 Q1011 SBME 160200Z 36005KT CAVOK 26/22 Q1014 SBMG 160600Z 36010KT 5000 1200N BR BKN002 21/20 Q1013 SBMK 160200Z 00000KT CAVOK 25/17 Q1017 SBMN 160700Z 17004KT 9999 FEW010 BKN100 24/23 Q1011 SBMO 160700Z 08003KT 9999 BKN024 23/21 Q1013 SBMQ 160700Z 31002KT 9999 FEW020 24/24 Q1010 SBNF 160200Z 30001KT 9999 FEW020 SCT080 25/24 Q1012 SBNT 160700Z 13010KT 9999 SCT027 26/21 Q1011 SBPA 160700Z 12005KT 9999 FEW030 OVC080 23/20 Q1012 SBPJ 160300Z 30004KT 9999 FEW015 25/23 Q1014 SBPL 160700Z 13008KT 9999 SCT030 24/18 Q1015 SBPS 160700Z 27004KT CAVOK 23/23 Q1015 SBPV 160700Z 06001KT 9999 -RA FEW002 SCT020 FEW035TCU OVC050 23 /22 Q1011 SBQV 160200Z 10011KT CAVOK 19/17 Q1020 SBRB 160700Z 26003KT 3000 -RA SCT004 SCT018 BKN100 22/20 Q1013 SBRF 160700Z 12010KT 9999 SCT023 26/21 Q1012 SBRJ 160700Z 33004KT CAVOK 24/22 Q1012 SBRP 160700Z 18003KT CAVOK 22/19 Q1017 SBSC 160600Z 04009KT CAVOK 25/20 Q1012 SBSG 160700Z 23003KT 9999 FEW023 22/21 Q1012 SBSJ 160700Z 05003KT 9999 SCT005 BKN100 20/19 Q1017 SBSL 160700Z 06007KT 9999 FEW017 26/23 Q1010 SBSM 160200Z 13005KT 9999 BKN030 24/21 Q1012 SBSN 160700Z 11003KT 9999 SCT015 26/23 Q1010 SBSP 160700Z AUTO 31007KT CAVOK 21/17 Q1018 SBSR 160300Z 25009KT 9999 FEW005 SCT030 23/20 Q1018 SBSV 160700Z 08007KT 9999 SCT023 25/21 Q1014 SBTE 160700Z 00000KT 9999 SCT040 25/23 Q1010 SBUR 160300Z 05006KT 9999 FEW040 21/18 Q1019 SBVT 160700Z 03010KT 9999 FEW015 26/24 Q1015 SCAR 160700Z 08002KT CAVOK 20/12 Q1014 SCAT 160700Z AUTO VRB01KT //// // ///011 16/13 Q1017 SCBA 160700Z AUTO 31016KT CAVOK 11/04 Q1014 SCCF 160700Z 12013KT CAVOK 07/M09 Q1026 SCCH 160700Z AUTO 00000KT 9999 NCD 11/10 Q1017 SCCI 160700Z 30009KT 9999 SCT043 BKN150 09/07 Q0994 NOSIG SCCY 160700Z AUTO 26005KT 190V350 9999 BKN049 13/05 Q1015 SCDA 160700Z 19004KT CAVOK 19/14 Q1015 SCEL 160700Z 15007KT CAVOK 14/10 Q1017 NOSIG SCFA 160700Z 23003KT 9999 SCT030 19/13 Q1015 NOSIG SCFT 160700Z AUTO VRB02KT //// SKC 11/06 Q1020 SCIC 160700Z AUTO 19005KT 160V220 9999 OVC032 16/11 Q1016 SCIE 160700Z VRB02KT 9999 BKN045 12/10 Q1018 SCIP 160700Z 12003KT 9999 SCT025 20/19 Q1022 NOSIG SCON 160700Z AUTO 00000KT CAVOK 10/08 Q1021 SCPQ 160700Z AUTO 23005KT //// R35///// NCD 09/08 Q1021 SCQP 160700Z 00000KT CAVOK 08/08 Q1019 SCRM 160700Z 01012KT 0800 FG OVC003 01/01 Q0982 SCSE 160700Z 10006KT CAVOK 14/11 Q1015 SCSN 160700Z AUTO VRB02KT 9999 BKN004 BKN019 11/10 Q1017 SCTE 160700Z VRB02KT CAVOK 09/08 Q1020 NOSIG SCVM 160700Z 00000KT 9999 BKN040 16/13 Q1017 SECU 160700Z AUTO VRB02KT ////NDV BKN004 BKN009 OVC012 12/11 Q1025 SEGU 160700Z 25005KT 220V280 9999 FEW026 BKN100 26/17 Q1011 NOSIG RMK A2987 SELT 160700Z 19003KT 9999 FEW010 BKN030 OVC100 10/09 Q1029 SEMT 160700Z 21004KT 9999 OVC020 25/21 Q1012 SEQM 160700Z 33003KT 4000 BCFG BKN005 OVC023 12/11 Q1026 TEMPO 2000 RMK A3030 SERO 160200Z 34004KT 9999 OVC030 26/20 Q1012 SESA 160400Z 22005KT CAVOK 25/21 Q1013 SESG 160700Z 10006KT 9999 FEW040 08/M05 Q1024 SGAS 160600Z 00000KT CAVOK 21/21 Q1011 SGES 160600Z 00000KT 0200 FG VV/// 22/22 Q1011 SKAR 160500Z 00000KT 9999 BKN020 SCT090 19/18 A3009 SKBG 160500Z 00000KT 9999 FEW007 SCT070 19/19 A3001 SKBO 160700Z 33003KT 9999 FEW015 BKN070 11/10 A3028 SKBQ 160700Z 36006KT CAVOK 27/24 A2981 SKCC 160500Z VRB02KT 9999 SCT020 25/22 A2993 SKCG 160700Z VRB02KT CAVOK 25/24 A2980 SKCL 160700Z VRB02KT 5000 BR SCT020 BKN060 19/19 A3000 SKIB 160200Z 01003KT 9999 BKN020 22/22 A3008 SKLT 160700Z 21005KT 3000 RA BKN006 BKN080 24/24 A2985 RMK AD OPER IMC SKMR 160300Z 00000KT 9999 FEW022 SCT090 26/24 A2985 SKNV 160300Z 00000KT 9999 NSC 25/22 A2990 SKPE 160500Z VRB02KT 7000 VCFG BKN010 SCT080 19/18 A3009 SKRG 160700Z VRB02KT 4000 BR BKN010 SCT080 13/13 A3025 SKSM 160400Z 04004KT 9999 FEW020 SCT200 28/22 A2980 SKSP 160700Z 04007KT 360V070KT 9999 FEW013 BKN080 25/23 A2991 SKUC 160200Z 00000KT 9999 FEW020 27/23 A2984 SKUI 160200Z 00000KT 4000 DZ BKN007 OVC080 24/23 A2987 SLAL 160200Z 36012KT 9999 FEW015 13/09 Q1029 SLCB 160700Z 32003KT 9999 FEW027 BKN070 15/12 Q1025 SLLP 160700Z 00000KT 8000 -RA FEW003 FEW017CB BKN070 06/05 Q1036 SLTJ 160300Z 00000KT 9999 NSC 17/11 Q1021 SLVR 160700Z 32003KT 9999 SCT030 BKN070 22/22 Q1013 SMJP 160700Z 07006KT 9999 -RA SCT004 SCT030 24/24 Q1011 NOSIG SOCA 160700Z AUTO 00000KT 9999 BKN014/// OVC021/// ///TCU 25/24 Q1010 TEMPO 3000 SHRA SPCL 160700Z 00000KT 9999 SCT015 BKN070 24/23 Q1013 RMK PP000 SPHI 160700Z 20008KT CAVOK 21/17 Q1012 RMK PP000 SPJC 160700Z 16007KT 9999 FEW011 SCT170 20/19 Q1013 NOSIG RMK PP000 SPJL 160200Z 22005KT 8000 -RA BKN010 OVC080 07/05 Q1034 RMK PP018 SPME 160300Z 30003KT 9999 FEW017 SCT025 24/20 Q1013 RMK BIRD HAZARD RWY 32/14 PP000 SPQT 160700Z 00000KT 9999 SCT020 BKN100 23/22 Q1011 TEMPO -RA RMK PP000 SPQU 160700Z 35002KT 9999 BKN100 11/08 Q1025 RMK PP000 SPRU 160700Z 14005KT 7000 NSC 19/18 Q1013 RMK BR PP000 SPSO 160700Z 22005KT 9999 BKN100 21/18 Q1012 RMK PP000 SPST 160300Z 00000KT 9999 SCT020 SCT080 22/21 Q1013 RMK BIRD HAZARD RWY 17/35 PP000 SPTN 160700Z 32002KT 9999 SCT140 18/15 Q1016 RMK PP000 SPZO 160700Z 09002KT 9999 SCT040 BKN100 09/06 Q1030 RMK BIRD HAZARD RWY 28 PP000 SULS 160700Z 06003KT CAVOK 19/18 Q1015 SUMU 160700Z 00000KT 9999 FEW030 18/17 Q1015 NOSIG SVMI 160700Z 00000KT 9999 SCT016 24/21 Q1012 SVVA 160300Z /////KT CAVOK 24/23 Q1014 SYCJ 160700Z 12004KT 050V130 9000 -SHRA SCT011 BKN032 23/23 Q1011 NOSIG TAPA 160700Z 10009KT 9999 -SHRA BKN018 25/22 Q1014 NOSIG TBPB 160600Z 09015KT 9999 FEW020 26/23 Q1013 NOSIG TFFF 160700Z AUTO 09007KT 060V120 9999 SCT023 BKN029 BKN035 25/23 Q1014 TEMPO 4000 SHRA FEW018TCU TFFR 160700Z AUTO 12005KT CAVOK 23/22 Q1014 TEMPO 3000 SHRA FEW010CB SCT018TCU TGPY 160700Z 07006KT 9999 FEW018 25/23 Q1012 NOSIG TIST 160653Z AUTO 09003KT 10SM CLR 24/23 A2999 TISX 160653Z AUTO 05006KT 10SM SCT014 24/23 A2999 TJPS 160650Z 00000KT 10SM FEW100 21/21 A3001 TJSJ 160656Z 00000KT 10SM FEW022 FEW046 SCT110 24/23 A3000 TKPK 160200Z 07010KT 9999 FEW020 26/23 Q1017 TLPL 160500Z 09016KT 9999 FEW024 27/22 Q1014 NOSIG TNCA 160500Z 08014KT 9999 FEW018 27/23 Q1012 NOSIG TNCB 160655Z AUTO 12009KT 090V160 9999 FEW016/// SCT021/// BKN026/// 25/24 Q1012 TNCC 160700Z 13006KT 090V150 9999 SCT018 26/22 Q1012 NOSIG TNCE 160655Z AUTO 08010KT 050V120 //// // ///////// 25/22 Q1015 RE// TNCM 160700Z 09008KT 050V130 9999 SCT018 26/22 Q1015 A2998 TTCP 160700Z 09010KT 9999 -SHRA FEW016 25/23 Q1012 NOSIG RMK VCSH TO NE/ E/ S TTPP 160700Z 10006KT 9999 FEW016 25/23 Q1012 NOSIG TXKF 160703Z 31008KT 6000 -DZ BKN006 OVC020 20/19 Q1020 UAAA 160700Z 02003MPS 3900 BR SCT014 OVC100 M11/M12 Q1025 R88/91//40 NOSIG UAAH 160700Z 11003MPS CAVOK M19/M23 Q1029 R05/720145 NOSIG RMK QFE734/0978 UACC 160700Z 24006MPS 9999 BKN015 M20/M22 Q1028 R22/450350 NOSIG RMK QFE739/0985 UACK 160700Z 28009MPS 9999 -SN DRSN OVC011 M12/M13 Q1024 R20/850250 NOSIG RMK QFE744/0993 UACP 160700Z 26006MPS 9999 BKN007 OVC026 M09/M10 Q1023 R23/3/0534 NOSIG RMK QFE754/1006 UADD 160700Z 22001MPS 8000 -SN BKN046 OVC100 M09/M09 Q1023 R13/890332 NOSIG RMK QFE710/0947 UAII 160700Z VRB01MPS 4000 -SHSN BR SCT010 OVC040CB M02/M03 Q1023 R10/490542 NOSIG RMK QFE732/0976 UAKD 160700Z 36001MPS 6000 NSC M25/M25 Q1029 R04/990335 NOSIG RMK QFE738/0985 UAKK 160700Z 24005MPS 9999 FEW013 SCT016 M17/M20 Q1026 R23/950745 NOSIG RMK QFE722/0963 UAOO 160700Z 03005MPS CAVOK M12/M14 Q1030 R05/CLRD70 NOSIG RMK QFE760/1014 UARR 160700Z 31004MPS 3000 SN BR BKN011 OVC016 M08/M10 Q1034 R22/490150 TEMPO 1500 BR BKN004 RMK QFE772/1030 UASK 160700Z 15006MPS 9999 BKN050 OVC086 M10/M18 Q1028 R12/410150 NOSIG RMK QFE745/0994 UASP 160700Z 26010MPS 2800 SHSN BLSN OVC015CB M12/M14 Q1023 R21/720345 NOSIG RMK QFE756/1008 UASS 160700Z 19005MPS 9999 -SHSN BKN033CB M12/M16 Q1027 NOSIG RMK QFE752/1003 UATE 160700Z 10006MPS CAVOK M08/M14 Q1035 R12/0///70 NOSIG RMK QFE774/1032 UATG 160700Z 01001MPS 9999 SCT030 M16/M18 Q1037 R14/82//60 NOSIG RMK QFE780/1040 UATT 160700Z 27001MPS 6000 -SN BKN007 M15/M17 Q1030 R31/490150 NOSIG RMK QFE752/1003 UAUU 160700Z 26002MPS 9999 SCT007 M12/M14 Q1028 R33/810058 NOSIG RMK QFE755/1007 UBBB 160700Z 05010KT 9999 BKN038 04/M03 Q1031 R88/CLRD// NOSIG UBBG 160700Z 08008KT 6000 OVC003 01/00 Q1028 R12/CLRD// NOSIG UBBL 160700Z VRB02KT 9999 OVC100 05/03 Q1031 R33/CLRD// NOSIG RMK MT OP UBBN 160700Z 15008KT 9999 FEW050 BKN100 01/M05 Q1023 R14R/CLRD// NOSIG RMK MT OP QFE692 UBBQ 160700Z 16006KT 9999 -SN SCT007 OVC022 01/M01 Q1029 R16/29//60 NOSIG RMK MT OBSC UBBY 160700Z 15008KT 8000 -SN OVC019 01/M00 Q1031 R33//NOSIG RMK MT OBSC UBEE 160700Z 13007KT 9999 BKN015 OVC066 03/01 Q1030 R30/CLRD// NOSIG UCFL 160700Z 11003MPS 070V130 9999 FEW026CB BKN083 02/M04 Q1014 R07/CLRD70 RMK V/G/CH/Z UCFM 160700Z 28002MPS 8000 SCT009 M06/M07 Q1022 R08/19//60 NOSIG UCFO 160700Z 26003MPS 0100 R12/M0200N FZFG VV001 M00/M00 Q1019 R12/29//55 NOSIG UDSG 160700Z 00000KT 9000 -SN SCT018 OVC033 M03/M05 Q1021 R02/410150 NOSIG UDYZ 160700Z 00000KT 9999 OVC034 01/M03 Q1024 R09/010070 NOSIG UEEE 160700Z 01002MPS 2400 BR NSC M40/M44 Q1013 R23L/490150 NOSIG RMK QFE751 UGKO 160700Z 08005KT 9999 BKN035 06/05 Q1027 R07/29//50 NOSIG UGSB 160700Z 11003KT 080V140 9999 FEW035 06/04 Q1029 R13/29//55 NOSIG UGTB 160700Z 18004KT 3700 BR OVC002 01/00 Q1029 R31L/19//60 TEMPO 0800 FG UHBB 160700Z 21002MPS 3000 HZ NSC M17/M24 Q1015 R36/090060 NOSIG RMK QFE744/0992 UHHH 160700Z 27003MPS CAVOK M17/M25 Q1019 R23L/090060 NOSIG RMK QFE758/1010 UHMA 160700Z 34005MPS 4000 -SN BR FEW006 BKN016 OVC080 M20/M23 Q0997 RMK END R01/32003MPS QFE744/0992 UHMD 160500Z 00000MPS P1000 -SN OVC008 M06/M09 Q0988 RMK QBB250 MT OBSC QFE740/0987 UHMM 160700Z 00000MPS 9999 NSC M35/M38 Q1003 R10/85//40 NOSIG RMK QFE738 UHPP 160700Z 02003MPS 9999 NSC M13/M15 Q1003 R34L/450350 NOSIG RMK QFE749/0998 UHSS 160700Z 11002MPS 9999 SCT034 M10/M14 Q1017 R01/810365 NOSIG RMK QFE762/1016 UHWW 160700Z 05002MPS 9999 SCT033 M06/M11 Q1017 R25L/0///70 NOSIG RMK QFE762 UIAA 160700Z 23001MPS 5000 BR NSC M23/M26 Q1005 R29/820155 NOSIG RMK QFE696/0928 UIBB 160700Z 22003MPS 190V260 6000 -SHSN SCT031CB M21/M24 Q1005 R30/851040 NOSIG RMK QFE711/0948 UIII 160700Z 10001MPS CAVOK M18/M20 Q1008 R12/490250 NOSIG RMK QFE714/0952 UIUU 160700Z 27001MPS 3000 BR FEW033CB M22/M26 Q1010 R26/851550 NOSIG RMK QFE713/0951 UKBB 160700Z 13003MPS 3000 -SN BR OVC008 M09/M09 Q1022 R18L/290050 R18R/190050 TEMPO 2000 -SN BR OVC006 UKDD 160700Z VRB01MPS 9999 SCT005 BKN100 M11/M13 Q1024 R08/850536 NOSIG UKDE 160700Z VRB01MPS 8000 NSC M14/M15 Q1025 R02/490740 NOSIG UKDR 160710Z 15002MPS 110V190 3400 BR OVC008 M09/M10 Q1023 R36/492030 NOSIG UKHH 160700Z 16004MPS 3200 -SN BKN008 OVC020 M07/M08 Q1025 R07/490340 NOSIG UKKK 160700Z 14002MPS 080V200 4300 BR SCT004 BKN049 M09/M11 Q1021 R08/190058 TEMPO 2000 BR BKN003 UKKM 160700Z 12002MPS 090V150 9000 NSC M10/M12 Q1021 R15/710150 NOSIG UKLI 160700Z 14005MPS 110V170 6000 -SHSN BKN007 BKN020CB M12/M14 Q1015 R10/090070 NOSIG UKLL 160700Z 15006MPS CAVOK M12/M14 Q1013 R13/CLRD// NOSIG UKLN 160710Z 14005MPS 100V190 4400 -SHSN BKN013 BKN026CB M11/M13 Q1017 R15/420350 NOSIG UKLR 160700Z 14005MPS 080V170 CAVOK M12/M13 Q1016 NOSIG UKLU 160700Z 12004MPS 080V180 9999 OVC026 M04/M12 Q1015 R10/090070 NOSIG UKOH 160700Z 10006MPS 1400 SHSN BKN006 BKN020CB M07/M08 Q1023 R03/CLRD65 NOSIG UKON 160700Z 11006MPS 9999 -SHSN SCT020CB OVC100 M07/M10 Q1022 NOSIG UKOO 160700Z 09008MPS 1000 R16/1000V1400D SN BR BKN004 OVC008 M02/M02 Q1019 R16/491035 NOSIG UKWW 160700Z 11002MPS CAVOK M14/M16 Q1018 NOSIG ULAA 160700Z 20002MPS 150V250 9999 -FZDZ OVC006 M06/M06 Q1025 R26/390137 NOSIG RMK QBB190 QFE767/1023 ULLI 160700Z 14004G09MPS 110V190 9999 FEW009 BKN015 M12/M14 Q1022 R88/290050 NOSIG ULMM 160700Z 00000MPS CAVOK M13/M15 Q1010 R13/690144 NOSIG RMK QFE751 ULOO 160700Z 14005MPS P5000 SCT033 M12/M14 Q1021 R19/090070 NOSIG RMK QFE761 ULPB 160700Z 19002MPS 9999 -SN BKN016 M04/M07 Q1022 R19/590135 NOSIG RMK QFE763/1017 ULWC 160700Z 19004G09MPS 6000 -SN BKN009 M05/M07 Q1028 R21/690139 NOSIG RMK QFE761/1014 UMBB 160700Z 13005G08MPS 6000 SCT010 M11/M12 Q1014 R11/390146 NOSIG UMGG 160700Z 08005MPS CAVOK M12/M14 Q1023 R10/CLRD// NOSIG UMII 160700Z 12004G07MPS 4800 -SHSN BKN008CB M14/M16 Q1023 R23/491035 TEMPO 2100 BKN005 UMKK 160700Z 15010MPS 9999 FEW010 M08/M11 Q1003 R24/19//60 NOSIG RMK QFE751/1002 UMMG 160700Z 15007G10MPS CAVOK M11/M14 Q1014 R17/CLRD// NOSIG UMMM 160700Z 12004MPS CAVOK M13/M15 Q1019 RMK QFE744 UMMS 160700Z 13004MPS 9000 NSC M13/M15 Q1020 R13/CLRD// NOSIG UMOO 160700Z 09002MPS 9999 SCT010 M12/M15 Q1022 R13/410170 NOSIG UNAA 160700Z 25012G17MPS 9000 DRSN NSC M08/M16 Q1009 R20/820155 NOSIG RMK QFE734 UNBB 160700Z 24010MPS 0800 0650NE R24/0900D +SHSN BLSN BKN002 OVC020CB M15/M17 Q1018 R24/424048 NOSIG RMK QBB070 QFE741 UNEE 160700Z 22008MPS 3800 -SN DRSN OVC020 M16/M19 Q1010 R23/452032 NOSIG RMK QFE735 UNKL 160700Z 27004MPS 6000 -SN OVC033 M15/M19 Q1007 R29/420150 NOSIG RMK QFE730 UNNT 160700Z 24008MPS 3900 -SHSN DRSN OVC017CB M14/M17 Q1014 R25/490150 R16/453035 NOSIG RMK QFE751/1001 UNOO 160700Z 29008MPS 3300 -SHSN BLSN BKN010 BKN033CB M08/M11 Q1019 R25/390137 TEMPO 1400 SHSN BLSN RMK QFE756 UNTT 160700Z 23007MPS 1900 1200S R21/1900N SHSN DRSN SCT016CB OVC023 M14/M16 Q1007 R21/490530 NOSIG RMK QFE740 URKA 160700Z VRB01MPS 9999 FEW/// M02/M02 Q1026 R04/491055 TEMPO 3000 -SHSN BKN010 BKN020CB RMK QFE765/1021 URKK 160700Z 12003MPS 6000 -SN OVC017 M00/M01 Q1027 R23L/490345 TEMPO 1000 SHSNRA BKN005 BKN020CB RMK QFE767 URMG 160700Z 11004MPS 9999 -SN OVC007 M01/M01 Q1030 R26/590245 NOSIG RMK MT OBSC OBST OBSC QFE757/1010 URML 160700Z 14006MPS 9999 OVC026 02/M02 Q1031 R14/290060 TEMPO 3100 -SN BR OVC011 RMK QFE773/1031 URMM 160700Z 09004MPS 9999 -SN SCT006 M05/M06 Q1029 R12/890132 NOSIG RMK MT OBSC QFE743/0991 URMN 160700Z 00000MPS 0300 -SG FZFG VV001 M04/M04 Q1027 R24/210250 NOSIG RMK QBB040 MT OBSC OBST OBSC QFE733 URMO 160700Z VRB01MPS 6000 -SN OVC035 M03/M05 Q1027 R09/190160 NOSIG RMK QFE726/0968 URMT 160700Z 13006MPS 5000 -SN BKN009 OVC020 M06/M06 Q1027 R07/490235 NOSIG RMK QFE730 URSS 160700Z 07004MPS 9999 OVC083 05/01 Q1026 R06/090070 R02/////// NOSIG RMK R02/04003MPS QFE769 URWA 160700Z 09002MPS 060V120 7000 SCT006 M13/M15 Q1037 R09/420150 NOSIG RMK OBST OBSC QFE780/1040 URWI 160700Z 11004MPS 9999 FEW006 M08/M08 Q1032 R09/390155 TEMPO 0800 +SHSN BKN003 BKN020CB URWW 160700Z 12006MPS 9000 SCT002 M13/M15 Q1033 R06/450250 TEMPO 0500 FZFG OVC002 RMK QBB060 OBST OBSC USCC 160700Z 29004MPS 9999 FEW020 M10/M13 Q1025 R27/390050 NOSIG RMK QFE749 USCM 160700Z 00000MPS 6000 NSC M15/M17 Q1025 R18/090060 TEMPO 0300 FZFG RMK QFE731 USHH 160700Z 28003MPS CAVOK M10/M13 Q1016 R24/390035 NOSIG RMK QFE758 USNN 160700Z 28005MPS 9999 OVC012 M04/M05 Q1006 R21/450333 NOSIG RMK QFE750 USPP 160700Z 30004MPS 9999 OVC007 M06/M07 Q1029 R21/290245 NOSIG RMK QFE761 USRR 160700Z 29007MPS 7000 SCT014 M06/M08 Q1009 R25/39//37 NOSIG RMK QFE752 USSS 160700Z 28005MPS 9999 OVC011 M06/M08 Q1024 R26R/290039 NOSIG RMK QFE747/0996 USTR 160700Z 27004MPS 9999 FEW010 M09/M10 Q1023 R30/390045 NOSIG RMK QFE757/1010 UTAA 160700Z VRB01KT 3200 -SN OVC006 M01/M03 Q1028 R88/290055 NOSIG QBB600 UTAK 160700Z 06010KT 9999 BKN037 BKN100 M01/M05 Q1030 R34L/CLRD70 NOSIG UTAM 160700Z 30006KT 9999 BKN036 SCT230 01/M06 Q1030 NOSIG UTAT 160700Z 02006KT CAVOK M08/M15 Q1032 R08/CLRD70 NOSIG UTAV 160700Z 30004KT CAVOK M01/M11 Q1029 NOSIG UTDD 160700Z VRB01MPS 3400 FU HZ OVC023 04/M03 Q1023 R09/D NOSIG RMK QFE698/0931 UTDK 160700Z 23003MPS 8000 OVC026 04/M02 Q1023 R01/09//70 RMK QFE710/0946 UTDL 160700Z 24006MPS 9999 FEW010 OVC021 00/M02 Q1023 R26/CLRD// NOSIG RMK QFE729/0972 UTDT 160700Z 20003MPS 170V260 7000 SCT026 OVC110 05/M02 Q1023 35CLRD70 RMK QFE728/0971 UTFF 160700Z 30006KT 3000 BR OVC008 00/M02 Q1021 R18/CLRD70 UTFN 160700Z 23008KT 2600 BR OVC005 01/M00 Q1021 R28/CLRD70 NOSIG RMK BASE560 UTNN 160700Z 36008KT CAVOK M11/M17 Q1033 R33/CLRD60 NOSIG UTNU 160700Z 02008KT CAVOK M07/M13 Q1031 R31/CLRD70 NOSIG UTSA 160700Z 16008KT 8000 OVC015 M03/M06 Q1025 R25/CLRD70 NOSIG UTSB 160700Z 35006KT 9999 OVC013 M02/M06 Q1026 R01/CLRD70 NOSIG UTSK 160700Z 22010KT 9999 BKN015 OVC026CB M03/M07 Q1026 R16/CLRD70 UTSS 160700Z 33008KT 2000 BR OVC005 M03/M04 Q1023 R09/70D NOSIG RMK BASE500 UTST 160700Z 31006KT 280V340 9999 SCT060CB 02/M05 Q1026 R88/CLRD70 NOSIG UTTT 160700Z 23004KT 200V260 7000 OVC019 M02/M04 Q1024 R08R/CLRD70 NOSIG UUBC 160700Z 11003MPS 9999 BKN010 M10/M12 Q1028 R31/820160 NOSIG RMK QFE754/1005 UUBP 160700Z 08004MPS 9000 -SN NSC M12/M13 Q1024 R34/CLRD70 NOSIG RMK QFE750/1000 UUBW 160700Z 14004MPS 9999 OVC010 M07/M09 Q1031 R30/810255 NOSIG UUDD 160700Z 18005MPS 9999 OVC008 M08/M11 Q1030 R88/520195 NOSIG UUDL 160700Z 18004MPS 9999 OVC011 M06/M08 Q1031 R23/820148 NOSIG RMK QFE765 UUEE 160700Z 14003MPS 9999 BKN011 M07/M10 Q1029 R06L/290040 R06R/290051 NOSIG UUMO 160700Z 15004MPS 9999 OVC010 M08/M10 Q1030 R26/290050 NOSIG RMK QFE757/1010 UUOB 160700Z 13005MPS 3200 -SN BR OVC011 M07/M08 Q1024 R11/450548 NOSIG UUOK 160700Z 13006MPS 7000 -SN OVC015 M08/M10 Q1025 R12/490532 NOSIG RMK QFE751/1001 UUOO 160700Z 12005MPS 5000 -SN OVC011 M10/M12 Q1029 R12/420350 NOSIG RMK QFE758 UUWW 160700Z 14003MPS 7000 -SN BKN009 M09/M11 Q1029 R06/290050 NOSIG UUYY 160700Z 25003MPS 9999 OVC004 M08/M08 Q1030 R01/420250 NOSIG RMK QBB130 QFE763/1018 UWGG 160700Z 17002MPS 6000 -SN BKN010 M06/M07 Q1034 R18R/450138 NOSIG RMK QFE768 UWKD 160700Z 32002MPS 9999 OVC006 M07/M07 Q1033 R29/320045 NOSIG RMK QFE763/1018 UWKE 160700Z 32004MPS 1000 BR BKN001 M08/M10 Q1031 R21/650338 NOSIG RMK QBB050 OBST OBSC QFE756/1008 UWKS 160700Z 00000MPS 9000 SCT023 M07/M08 Q1033 R24/350145 TEMPO BKN004 RMK QFE761 UWLW 160700Z 35003MPS 8000 BKN008 M06/M07 Q1034 R20/350145 NOSIG RMK QFE770 UWOO 160700Z 29003MPS 9999 SCT020 M12/M14 Q1031 R26/490339 NOSIG RMK QFE763/1017 UWOR 160700Z 28004MPS 9999 BKN013 M16/M20 Q1028 R25/810155 NOSIG RMK QFE747/0996 UWSS 160700Z 20003MPS 1500 R12/1500 SN BR OVC006 M10/M11 Q1035 R12/410255 TEMPO 1000 SN BR OVC005 RMK QFE764 UWUU 160700Z 14001MPS 2100 -SN BR OVC007 M10/M11 Q1030 R14R/690244 NOSIG RMK QBB210 QFE762/1016 UWWW 160700Z 30002MPS 5000 BR OVC003 M07/M08 Q1033 R23/450540 NOSIG RMK QFE763/1018 VAAH 160700Z 16004KT 5000 FU NSC 30/12 Q1014 NOSIG VAAU 160700Z 10004KT 5000 HZ NSC 30/14 Q1016 NOSIG VABB 160700Z 02007KT 3000 FU FEW020 SCT100 33/16 Q1012 NOSIG VABO 160600Z 09004KT 6000 NSC 29/13 Q1014 NOSIG VABP 160700Z 06003KT 8000 NSC 25/04 Q1017 NOSIG VAID 160600Z 16006KT 5000 HZ NSC 26/09 1018 NOSIG VAJB 160600Z 00000KT 5000 HZ NSC 23/05 Q1018 VAJJ 160600Z VRB08KT 4000 FU SCT100 35/22 Q1013 BECMG 5000 VANP 160700Z 31003KT 5000 HZ NSC 28/07 Q1015 NOSIG VAPR 160700Z 18004KT 6000 NSC 31/11 Q1014 VASU 160700Z 07005KT 6000 NSC 35/12 Q1013 VAUD 160700Z 18004KT 5000 HZ NSC 27/05 Q1016 NOSIG VCBI 160610Z 01010KT 330V050 8000 NSC 30/18 Q1011 NOSIG VCRI 160610Z 02013KT 9999 FEW080 30/21 Q1011 NOSIG VDPP 160630Z 01007KT 300V060 9999 FEW017 31/21 Q1008 VDSR 160700Z 20006KT 9999 SCT015 SCT040 29/19 Q1009 VEAT 160700Z 00000KT 1000 MIFG VV/// 16/15 Q1012 NOSIG VEBN 160700Z 29005KT 1500 HZ NSC 20/08 Q1015 NOSIG VEBS 160700Z 11005KT 2000 HZ NSC 27/14 Q1013 NOSIG VECC 160700Z 34007KT 2600 HZ NSC 23/11 Q1013 NOSIG VEDG 160700Z 32007KT 2500 HZ NSC 24/07 Q1014 NOSIG VEGT 160700Z 32004KT 1800 BR NSC 22/18 Q1012 NOSIG VEGY 160700Z 30008KT 2500 HZ NSC 21/05 Q1015 NOSIG VEIM 160300Z 15005KT 2000 BR SCT018 SCT100 13/11 Q1017 BECMG 3000 BR VEJS 160600Z 00000KT 3500 HZ NSC 23/06 Q1016 VEKO 160600Z 36002KT 4000 HZ NSC 23/04 Q1017 VELP 160700Z 36004KT 3000 HZ FEW018 20/14 Q1011 NOSIG VELR 160600Z 07004KT 4500 HZ FEW020 22/15 Q1014 VEMN 160400Z 35002KT 4000 BR FEW100 19/15 Q1016 BECMG 5000 HZ VEPT 160700Z 00000KT 0800 R25/1000 FG VV/// 14/12 Q1015 NOSIG VERC 160700Z 33005KT 5000 HZ NSC 22/01 Q1016 NOSIG VERP 160600Z 01004KT5000 HZ NSC 2601 Q1017 NOSIG VGEG 160600Z 03003KT 2400 HZ NSC 21/15 Q1013 NOSIG VGHS 160700Z 35007KT 3200 HZ NSC 24/14 Q1013 BECMG S/VIS 3500M VHHH 160700Z 28007KT 4800 BR NSC 21/18 Q1013 NOSIG VIAR 160700Z VRB02KT 3000 HZ NSC 19/10 Q1014 NOSIG VIDP 160700Z 26008KT 2200 HZ NSC 21/07 Q1015 NOSIG VIGR 160600Z 00000KT 3000 HZ NSC 22/M0.3 Q1017 VIJP 160700Z 00000KT 4000 HZ NSC 23/08 Q1017 NOSIG VILK 160700Z 00000KT 2000 HZ NSC 20/10 Q1015 NOSIG VLLB 160700Z 02002KT 9999 SCT018 25/16 Q1010 NOSIG VLLN 160700Z 18006KT 9999 FEW020 24/18 Q1014 NOSIG VLPS 160700Z 32004KT 9999 SCT020 33/17 Q1010 NOSIG VLSK 160700Z 34002KT 7000 FEW020 26/14 Q1012 NOSIG VLVT 160700Z 18002KT 8000 SCT020 FEW200 28/15 Q1011 NOSIG VMMC 160700Z 06004KT 020V120 9000 NSC 19/13 Q1013 TEMPO 4000 HZ VNKT 160520Z VRB02KT 3500 HZ FEW010 15/06 Q1020 BECMG FM0550 4000 HZ VOBG 160700Z 08008KT 8000 NSC 27/12 Q1016 VOBL 160700Z 08006KT 040V140 8000 NSC 27/11 Q1017 NOSIG VOBM 160600Z 05005KT CAVOK 28/14 Q1018 VOBZ 160700Z 11003KT 5000 HZ SCT020 29/21 Q1013 NOSIG VOCB 160700Z 10006KT 5000 HZ NSC 29/15 Q1015 NOSIG VOCI 160700Z 00000KT 5000 HZ NSC 32/17 Q1011 NOSIG VOCL 160700Z 35006KT 6000 NSC 31/20 Q1011 NOSIG VOCP 160530Z VRB02KT 5000 HZ FEW020 29/19 Q1014 VOGO 160500Z 10004KT 4000 HZ SCT090 26/19 Q1013 BECMG 5000 HZ VOHS 160700Z 32009KT 6000 NSC 29/21 Q1016 NOSIG VOHY 160630Z 05004KT 5000 HZ NSC 30/14 Q1017 NOSIG VOMD 160700Z 06008KT 4000 HZ FEW018 31/19 Q1013 NOSIG VOML 160630Z 18006KT 8000 NSC 33/17 Q1012 NOSIG VOMM 160700Z 05006KT 5000 HZ SCT020 SCT100 31/21 Q1013 NOSIG VOMY 160700Z 06007KT 7000 NSC 28/17 Q1017 VOND 160430Z 05003KT 3000 HZ NSC 25/12 Q1018 BECMG3500 VOPB 160400Z 02008KT 4000 HZ FEW014 28/22 Q1012 BECMG5000 VOPC 160600Z 01006KT 5000 HZ FEW020 SCT025 27/22 Q1015 VORY 160700Z 23004KT 3000 HZ FEW020 28/19 Q1014 NOSIG VOTK 160700Z 07008KT 5000 HZ FEW020 29/20 Q1012 VOTP 160700Z 07004KT 5000 HZ FEW020 30/17 Q1013 VOTR 160700Z 08005KT 2500 HZ SCT016 29/20 Q1012 BECMG 3000 HZ VOTV 160700Z 28006KT 6000 FEW015 SCT080 30/22 Q1011 NOSIG VOVZ 160700Z 14006KT 4000 HZ FEW018 29/19 Q1013 NOSIG VQPR 160700Z 20004KT 9999 SKC 15/M04 Q1016 VRMM 160600Z 06013KT 9999 SCT018 30/23 Q1012 NOSIG VTBD 160700Z 02005KT 300V070 9000 NSC 31/19 Q1009 NOSIG VTBO 160700Z 28005KT 6000 FEW025 32/20 Q1009 VTBS 160700Z 07004KT 360V140 CAVOK 31/17 Q1009 NOSIG VTBU 160700Z 34006KT 3000 HZ FEW020 30/18 Q1009 NOSIG VTCC 160700Z 03004KT 9999 SCT035 27/14 Q1013 NOSIG VTCH 160700Z VRB02KT 9999 FEW025 27/13 Q1011 VTCL 160700Z VRB02KT 9999 FEW025 29/16 Q1011 VTCN 160600Z VRB01KT 9999 SCT025 27/11 Q1012 VTCP 160600Z AUTO VRB04KT 9999 // ////// 28/14 Q1012 VTCT 160700Z 17005KT 9999 FEW022 26/17 Q1012 VTPH 160700Z 05007KT 020V080 8000 FEW032 28/21 Q1009 NOSIG VTPM 160700Z 26004KT 160V330 9999 FEW030 30/14 Q1010 VTPO 160700Z 26004KT 6000 FEW022 28/18 Q1010 VTPP 160700Z 28007KT 7000 FEW030 29/15 Q1010 VTSB 160700Z 03010KT 8000 SCT020 29/24 Q1009 VTSC 160700Z 13007KT 100V160 9999 SCT020 BKN100 27/22 Q1009 VTSE 160700Z 05009KT 020V080 7000 NSC 28/21 Q1009 VTSF 160600Z 07006KT 010V120 9999 FEW018 30/23 Q1010 VTSG 160700Z 08006KT 040V120 9999 SCT020 33/23 Q1009 VTSH 160600Z 06006KT 9999 FEW020CB 29/24 Q1010 NOSIG VTSM 160700Z 05006KT 9000 FEW020 29/23 Q1010 VTSP 160700Z 09006KT 360V130 9999 FEW020 SCT100 31/21 Q1008 NOSIG VTSR 160700Z 03004KT 330V100 9999 FEW027 BKN066 29/24 Q1009 NOSIG VTSS 160700Z 07011KT 9999 SCT020 SCT100 31/23 Q1009 NOSIG VTST 160700Z 09012KT 9999 SCT020 31/24 Q1007 VTUD 160700Z VRB03KT 9000 NSC 30/15 Q1011 VTUI 160700Z 10005KT 050V140 CAVOK 28/16 Q1010 VTUK 160700Z VRB04KT CAVOK 30/14 Q1010 NOSIG VTUL 160700Z 25003KT 200V300 8000 NSC 28/15 Q1011 VTUO 160700Z VRB03KT 9999 FEW020 31/18 Q1011 A2986 INFO H RWY 04 VTUQ 160700Z AUTO VRB04KT ////NDV ////// 33/18 Q1011 A2985 VTUU 160700Z 32005KT 270V350 9999 SCT025 32/18 Q1010 NOSIG VTUV 160600Z 03006KT 8000 NSC 30/16 Q1011 A2987 INFO G RWY 36 VTUW 160700Z 32007KT 290V360 9999 FEW030 30/15 Q1010 VVCI 160700Z 08005KT 9999 SCT013 BKN019 19/15 Q1013 NOSIG VVCR 160700Z 06007KT 9999 FEW013 BKN050 26/21 Q1011 NOSIG VVCT 160700Z 35004KT 8000 SCT015 BKN050 29/23 Q1009 NOSIG VVDN 160700Z 08006KT 7000 SCT013 BKN060 24/20 Q1013 NOSIG VVNB 160700Z 13003KT 030V160 3400 BR SCT008 BKN013 19/17 Q1014 NOSIG VVPB 160700Z 01005KT 8000 SCT015 SCT020 BKN030 23/20 Q1013 NOSIG VVPQ 160700Z 23004KT 190V270 9999 FEW017 SCT050 28/21 Q1009 NOSIG VVTS 160700Z VRB02KT 9999 SCT017 31/22 Q1008 NOSIG VYMD 160630Z 25002KT 7000 BKN018 SCT020 27/15 Q1011 VYYY 160700Z 22004KT 7000 FEW018 29/20 Q1011 WAAA 160700Z 07004KT 030V110 7000 -RA BKN018 24/23 Q1008 NOSIG WABB 160600Z 33010KT 9999 FEW018 27/24 Q1004 WADD 160700Z 27011KT 9999 FEW016CB FEW017 29/24 Q1005 NOSIG RMK CB TO SE WADL 160700Z 31007KT 290V350 9000 SCT016 29/23 Q1006 NOSIG WAHS 160700Z 29016KT 8000 FEW014 30/22 Q1006 NOSIG WAJJ 160630Z 28010KT 9000 VCSH FEW013CB SCT014 32/23 Q1001 NOSIG WALL 160700Z 21005KT 140V260 9999 FEW018 30/24 Q1005 NOSIG WAMM 160700Z 26006KT 220V300 9999 SCT021 29/23 Q1006 NOSIG WAOO 160700Z 23012KT 9999 SCT016 29/24 Q1006 WAPP 160330Z 20005KT 140V240 9999 FEW015CB SCT017 32/26 Q1005 NOSIGRMK CB TO S WAQQ 160600Z 27003KT 9999 FEW015 29/24 Q1006 WARR 160500Z 31015KT 9999 SCT020 30/24 Q1006 NOSIG WATT 160700Z 23007KT 9999 SCT017 28/25 Q1004 NOSIG WBGB 160700Z VRB03KT 9999 SCT014 BKN150 30/25 Q1005 WBGG 160700Z 30008KT 270V330 2000 SHRA FEW015CB SCT020 BKN150 26/25 Q1006 NOSIG WBGR 160700Z 27004KT 9999 SCT016 BKN150 30/24 Q1005 WBGS 160700Z VRB02KT 9999 SCT018 BKN150 31/24 Q1006 WBGY 160700Z 33003KT 290V010 9999 -SHRA BKN022 BKN150 30/26 Q1005 WBKK 160700Z VRB02KT 9999 -RA FEW013 SCT035 BKN260 29/26 Q1005 NOSIG WBKL 160700Z VRB05KT 9999 FEW014 SCT140 BKN290 28/25 Q1006 WBKS 160700Z 32006KT 290V010 9999 SCT016 SCT140 BKN280 30/24 Q1005 WBKT 160700Z 35005KT 320V030 9999 FEW013 SCT130 BKN260 28/25 Q1006 WBKW 160700Z 16006KT 090V240 9999 FEW016CB SCT030 BKN140 29/25 Q1006 WBSB 160700Z 23005KT 9999 FEW015 BKN140 29/22 Q1006 NOSIG WIBB 160700Z AUTO 33007KT 290V010 9999NDV FEW070 FEW080 31/23 Q1007 WIDD 160700Z 36006KT 9999 SCT014 29/23 Q1010 WIEE 160200Z 21003 KT 9999 FEW020 28/22 Q1010 WIHH 160700Z 30010KT 7000 SCT012 30/19 Q1007 NOSIG WIII 160700Z 32009KT 280V350 9000 SCT020 31/21 Q1007 NOSIG WIMM 160700Z 34007KT 9999 SCT018 28/24 Q1008 WIOO 160700Z 27009KT 9999 BKN011 30/24 Q1007 NOSIG WIPP 160700Z 31012KT 9999 BKN012 32/22 Q1006 NOSIG WMAU 160700Z 01007KT 280V090 9999 FEW020 SCT140 BKN260 28/23 Q//// QFF1009 WMBA 160700Z VRB04KT 9999 FEW022 SCT140 BKN280 32/25 Q1008 WMKA 160700Z VRB04KT 9999 FEW020 BKN280 32/23 Q1008 WMKB 160700Z 28004KT 210V330 8000 FEW020 SCT140 BKN270 32/24 Q1007 NOSIG WMKC 160700Z 07006KT 020V100 9999 SCT018 BKN140 BKN280 28/23 Q1009 WMKD 160700Z 10006KT 030V160 9000 -SHRA FEW017CB SCT018 BKN280 28/25 Q1008 NOSIG WMKE 160700Z VRB03KT 5000 -RA FEW006 BKN019 BKN140 24/23 Q1009 WMKI 160700Z VRB03KT 9999 FEW017CB SCT140 BKN280 33/21 Q1007 WMKJ 160700Z VRB07KT 9999 SCT018 SCT140 BKN270 30/26 Q1007 WMKK 160700Z 25003KT 180V290 9999 FEW018 SCT140 BKN280 30/23 Q1008 NOSIG WMKL 160700Z 12008KT 070V170 9999 FEW020 BKN280 32/21 Q1008 WMKM 160700Z 05005KT 010V120 9999 FEW021 BKN140 29/23 Q1009 WMKN 160700Z 35005KT 280V030 9999 FEW018 SCT150 BKN300 28/23 Q1009 WMKP 160700Z VRB02KT 9000 FEW020 SCT140 BKN280 33/20 Q1008 NOSIG WMSA 160700Z 24005KT 210V300 9999 FEW020 BKN140 30/21 Q1008 WSAP 160700Z 03012KT 9999 SCT018 BKN280 30/23 Q1008 WSSL 160700Z 01008KT 320V040 9999 SCT018 BKN260 30/22 Q1008 RMK 0630Z Q1008 WSSS 160700Z 02006KT 330V120 9999 FEW022 BKN280 29/24 Q1008 NOSIG YABA 160701Z AUTO 06009KT 9999 // SCT008 BKN012 21/20 Q1008 YAMB 160700Z 11007KT 090V150 CAVOK 28/10 Q1012 RF00.0/000.0 NOSIG YARG 160700Z AUTO 05009KT 9999 // NCD 36/18 Q1003 YAYE 160700Z AUTO 10013KT 9999 // NCD 35/00 Q1010 YAYT 160700Z 00000KT 9999 FEW040 BKN100 11/M07 Q1020 YBAS 160700Z AUTO 11015KT 9999 // NCD 36/M01 Q1009 RF00.0/000.0 YBBN 160701Z 12016G26KT CAVOK 25/13 Q1013 FM0800 14014KT CAVOK YBCG 160700Z AUTO 15017KT 9999 // SCT058 24/12 Q1013 RF00.0/000.0 YBCS 160700Z 13015KT 9999 FEW025 SCT060 BKN300 30/23 Q1006 NOSIG YBCV 160700Z AUTO 11014KT 9999 // NCD 36/M02 Q1009 YBDV 160700Z AUTO 12014KT //// // ////// 40/M00 Q1005 YBHI 160600Z AUTO 12008KT 080V150 9999 // NCD 34/06 Q1014 YBHM 160700Z AUTO 12023KT 9999 // SCT035 27/20 Q1009 YBMA 160700Z AUTO 18006KT 120V230 9999 // OVC120 39/10 Q1003 YBMK 160600Z AUTO 11015KT 9999 // SCT038 30/19 Q1009 YBNA 160605Z AUTO 17016G26KT 9999 // NCD 24/15 Q1014 YBOK 160600Z 02007KT 350V050 CAVOK 30/08 Q1012 NOSIG YBPN 160600Z AUTO 11015KT 9999 // SCT041 28/18 Q1009 YBRK 160700Z AUTO 09009KT 9999 // NCD 29/17 Q1010 RF00.0/000.0 YBRM 160700Z AUTO 27009KT 9999 // NCD 32/23 Q1003 RF00.0/000.0 YBTL 160700Z 12013KT 9999 VCSH SCT030 BKN070 28/21 Q1008 INTER 0700/0800 3000 SHRA BKN015 RMK USE TAF FOR ARRIVALS AFTER 0800Z YBUD 160700Z AUTO 11018KT 9999 // NCD 27/17 Q1012 YBWP 160714Z AUTO 05015KT 340V070 9999 // BKN030 BKN085 29/21 Q1003 YBWX 160700Z AUTO 06013KT //// // ////// 32/26 Q1004 YCAR 160700Z AUTO 23015KT 9999 // NCD 29/22 Q1006 YCAS 160700Z AUTO 11014KT //// // ////// 25/13 Q1014 YCBA 160700Z AUTO 13007KT 090V170 9999 // NCD 33/M00 Q1013 YCBB 160700Z AUTO 17012KT //// // ////// 27/M00 Q1016 YCBP 160700Z AUTO 15014KT 9999 // NCD 37/03 Q1010 YCCY 160700Z AUTO 13014KT 090V150 //// // ////// 35/13 Q1003 YCDU 160600Z AUTO 19017KT 9999 // NCD 28/17 Q1013 YCFS 160700Z AUTO 18025G37KT //// // NCD 23/14 Q1014 RF00.0/000.0 PRESENT WEATHER SENSOR US YCIN 160700Z AUTO 25007KT 210V270 9999 // SCT044 SCT053 SCT065 35/25 Q1002 YCNM 160600Z AUTO 19011KT 150V210 //// // ////// 33/M08 Q1013 YCOM 160600Z AUTO 19012KT 9999 // NCD 19/06 Q1021 YDBY 160600Z AUTO 19006KT 150V250 //// // NCD 34/24 Q1003 YEML 160600Z AUTO 05013KT 9999 // NCD 34/13 Q1009 YESP 160600Z AUTO 01012KT 9999 // SCT100 30/12 Q1011 YFRT 160700Z AUTO 04008KT //// // ////// 34/04 Q1012 YGEL 160700Z 31025KT 9999 FEW015 27/21 Q1004 YGFN 160600Z AUTO 15012KT 9999 // NCD 25/11 Q1013 YGLA 160700Z AUTO 09013KT 9999 // NCD 29/16 Q1011 RF00.0/000.0 YGTE 160600Z AUTO 36005KT 310V030 9999 // SCT043 34/24 Q1002 YGTH 160600Z AUTO 17010KT 130V220 9999 // NCD 31/05 Q1015 YHID 160700Z AUTO 32006KT 9999 // NCD 31/25 Q1002 YHUG 160600Z AUTO 11013G24KT 070V130 9999 // SCT085 36/10 Q1005 YKRY 160600Z AUTO 13007KT 080V180 //// // NCD 29/08 Q1013 YLEC 160600Z AUTO 09008KT 070V160 //// // ////// 36/02 Q1013 YLHI 160700Z AUTO 23019G29KT 9000 // SCT065 21/12 Q1007 YLIS 160600Z AUTO 14014KT 9999 // SCT048 25/13 Q1013 YLRE 160600Z AUTO 13012KT 9999 // SCT115 38/07 Q1006 YMAV 160700Z AUTO 17016KT 9999 // NCD 24/13 Q1020 RF00.0/000.0 YMAY 160600Z AUTO 12011KT 9999 // NCD 28/05 Q1017 YMDG 160600Z AUTO 33005KT 9999 // NCD 28/04 Q1015 YMEK 160600Z AUTO 36013KT 9999 // NCD 37/17 Q1008 YMEN 160600Z AUTO 18016KT 9999 // NCD 26/08 Q1019 YMHB 160700Z 17013KT 9999 FEW050 18/07 Q1022 YMIA 160600Z AUTO 14010KT 9999 // NCD 35/02 Q1015 YMLT 160700Z AUTO 34021KT 9999 // NCD 20/10 Q1021 RF00.0/000.0 YMML 160700Z 18017KT 9999 FEW035 24/09 Q1019 NOSIG YMOR 160600Z AUTO 21008KT 150V230 9999 // NCD 33/01 Q1011 YMTG 160600Z AUTO 19016KT 9999 // NCD 26/13 Q1019 YNAR 160600Z AUTO 15009KT //// // ////// 31/02 Q1016 YNBR 160600Z AUTO 16014KT 9999 // NCD 31/M01 Q1012 YNTN 160600Z AUTO 29013KT 9999 // SCT085 BKN105 35/22 Q1002 YNWN 160600Z AUTO 08006KT 030V120 9999 // NCD 35/19 Q1008 YOLD 160600Z AUTO 09007KT 090V150 9999 // NCD 37/02 Q1011 YPAD 160700Z 23015KT CAVOK 26/17 Q1015 FM0900 14010KT CAVOK YPBO 160600Z AUTO 06009KT 9999 // NCD 33/19 Q1007 YPCC 160700Z 20007KT 9999 FEW025 SCT042 29/21 Q1007 YPDN 160700Z 30011KT 9999 FEW026 SCT280 31/25 Q1002 TEMPO 0700/1000 VRB20G35KT 1000 TSRA BKN010 SCT020CB YPEA 160700Z AUTO 25011KT 9999 // SCT027 30/22 Q1004 RF00.0/000.0 YPGV 160700Z AUTO 04009KT 9999 // NCD 30/// Q1003 RF00.0/000.0 YPJT 160700Z AUTO 31016KT 9999 // OVC022 28/20 Q1004 RF00.0/000.0 YPKG 160700Z AUTO 01010KT 9999 // BKN074 32/12 Q1010 YPKU 160700Z AUTO 15009KT 9999 // SCT064 SCT078 SCT105 36/24 Q1002 YPLM 160700Z AUTO 04012KT 9999 // NCD 35/20 Q1005 YPMQ 160709Z AUTO 19015G25KT 9999 // SCT068 22/13 Q1015 YPPD 160700Z AUTO 35011KT 9999 // NCD 34/25 Q1003 YPPH 160700Z 29011KT 9999 BKN025 28/21 Q1004 NOSIG YPTN 160700Z AUTO 29005KT 9999 // SCT059 SCT071 37/22 Q1001 YPWR 160700Z AUTO 12013KT 9999 // NCD 36/01 Q1012 RF00.0/000.0 YPXM 160700Z AUTO 29011G21KT 9999 // BKN014 27/23 Q1007 YRMD 160630Z AUTO 12015G25KT 9999 // SCT100 40/12 Q1003 YSCB 160700Z 17014KT CAVOK 25/03 Q1018 NOSIG RMK USE TAF FOR ARRIVALS AFTER 0930Z YSDU 160700Z AUTO 13006KT 9999 // NCD 31/M04 Q1013 RF00.0/000.0 YSNF 160700Z AUTO 33002KT 9999 // SCT055 SCT070 SCT089 22/20 Q1007 YSNW 160600Z 17016KT 9999 SCT035 BKN050 20/10 Q1019 YSRI 160700Z AUTO 12017KT 9999 // NCD 24/09 Q1017 RF00.0/000.0 PRESENT WEATHER SENSOR US YSSY 160700Z 18021KT 9999 FEW035 SCT045 20/14 Q1018 FM0700 MOD/SEV TURB BLW 5000FT YSTW 160700Z AUTO 17015KT 9999 // NCD 28/02 Q1014 RF00.0/000.0 YSWG 160700Z AUTO 21009KT 9999 // NCD 30/00 Q1015 YTEF 160700Z AUTO 36007KT 9999 // SCT066 35/20 Q1005 YTNK 160700Z AUTO 12008KT 080V140 9999 // NCD 39/M03 Q1004 YTRE 160700Z AUTO 18014KT //// // BKN053 BKN064 22/11 Q1016 YWGT 160700Z AUTO 07004KT 360V140 9999 // NCD 30/03 Q1016 YWHA 160700Z AUTO 18015KT 9999 // NCD 31/15 Q1013 YWLM 160709Z 19018G28KT 9999 FEW030 BKN060 22/13 Q1018 RF00.0/000.0 FU TO WNW. USE TAF FOR ARRIVALS FROM 0900Z FM0709 MOD TURB BLW 5000FT ZBAA 160700Z VRB02MPS CAVOK 05/M16 Q1018 NOSIG ZBHH 160700Z VRB01MPS CAVOK M04/M19 Q1009 NOSIG ZBSJ 160700Z 14004MPS 4000 HZ NSC 05/M11 Q1017 NOSIG ZBTJ 160700Z 07002MPS 030V110 CAVOK 05/M15 Q1018 NOSIG ZBYN 160700Z 17002MPS 100V240 CAVOK 05/M20 Q1012 NOSIG ZGGG 160700Z 21002MPS 160V320 CAVOK 23/05 Q1013 NOSIG ZGHA 160700Z 31003MPS 3200 BR BKN008 OVC040 08/06 Q1018 BECMG TL0800 2700 BKN011 OVC040 ZGKL 160700Z VRB01MPS 2000 BR SCT016 OVC036 13/11 Q1016 BECMG FM0900 3000 ZGNN 160700Z 02002MPS 350V050 9999 BKN016 19/15 Q1014 NOSIG ZGOW 160700Z 25002MPS 200V340 CAVOK 24/11 Q1012 NOSIG ZGSZ 160700Z 28003MPS 5000 HZ NSC 21/12 Q1013 NOSIG ZHCC 160700Z 03003MPS 1500 HZ NSC 06/M07 Q1017 NOSIG ZHHH 160700Z 26002MPS 1100 R04L/1700D R04R/1800D BR SCT007 OVC033 07/05 Q1017 BECMG TL0810 1600 BR ZJHK 160700Z VRB01MPS CAVOK 24/17 Q1013 NOSIG ZJSY 160700Z 18003MPS 130V260 9999 SCT020 26/18 Q1012 NOSIG ZLLL 160700Z 20004MPS 140V220 CAVOK 05/M14 Q1006 NOSIG ZLXY 160700Z 05006MPS 1800 HZ NSC 04/M03 Q1012 NOSIG ZMUB 160700Z 00000MPS 8000NW NSC M19/M23 Q1003 NOSIG RMK QFE646.5 68 NW MO ZPPP 160700Z VRB03MPS 9999 SCT026 14/00 Q1018 BECMG TL0830 04005MPS ZSAM 160700Z 12003MPS 060V160 CAVOK 23/11 Q1012 NOSIG ZSFZ 160700Z 14005MPS CAVOK 19/12 Q1012 NOSIG ZSHC 160700Z 36004MPS 330V050 6000 NSC 15/04 Q1014 NOSIG ZSNB 160700Z 35005MPS 6000 NSC 18/09 Q1013 NOSIG ZSNJ 160700Z 30002MPS 2100 -RA BR NSC 08/06 Q1016 NOSIG ZSOF 160700Z 30004MPS 1100 R33/1100N -RA BR SCT005 OVC030 05/04 Q1016 NOSIG ZSPD 160700Z 34006MPS 5000 BR NSC 14/10 Q1013 NOSIG ZSQD 160700Z 31003MPS 3000 HZ NSC 06/M03 Q1016 NOSIG ZSSS 160700Z 32004MPS 5000 BR NSC 13/09 Q1013 NOSIG ZUCK 160700Z 16003MPS 110V200 2500 BR FEW020 BKN050 10/06 Q1017 BECMG TL0740 3200 ZUGY 160700Z 08002MPS 030V180 9999 SCT030 11/03 Q1016 NOSIG ZUUU 160700Z 16004MPS 130V190 CAVOK 18/M06 Q1013 NOSIG ZWSH 160700Z 05005MPS 5000 FU SCT040 02/M11 Q1010 NOSIG ZWWW 160700Z VRB01MPS 3500 BR NSC M07/M14 Q1028 BECMG TL0800 2500 BR ZYCC 160700Z 35002MPS 320V030 6000 NSC M08/M13 Q1018 NOSIG ZYHB 160700Z 35003MPS 4000 HZ NSC M12/M16 Q1018 BECMG TL0830 2000 ZYTL 160700Z 33003MPS 8000 NSC 03/M08 Q1017 NOSIG ZYTX 160700Z 31002MPS 250V040 CAVOK M01/M12 Q1018 NOSIG
Current TAF: AGGH 160505Z 1606/1706 20010KT 9999 FEW017 SCT110 PROB40 INTER 1606/1609 5000 TSSH SCT018 FEW019CB T 30 28 26 24 Q 1004 1006 1007 1005 BGSF 160130Z 1600/1706 06008KT 9999 SCT025 BKN100 TEMPO 1600/1612 2500 -SN VV012 TEMPO 1612/1702 4000 -SN BKN020 BGTL 160200Z 1602/1708 10009KT 9999 FEW170 QNH2955INS TXM21/1615Z TNM32/1621Z LAST NO AMDS AFT 1602 NEXT 1610 BIAR 160102Z 1603/1703 30013KT 5000 SN BKN015 OVC025 TXM03/1615Z TNM07/1605Z BECMG 1603/1604 22015G25KT 9999 NSW SCT025 BKN035 TEMPO 1612/1623 5000 SHSN BKN015 BIEG 160102Z 1603/1703 27015KT 9999 FEW025 SCT040 TXM03/1623Z TNM06/1609Z TEMPO 1603/1615 27020G30KT TEMPO 1616/1622 5000 SHSN BKN020 BIKF 160102Z 1603/1703 36008KT 9999 SCT025 BKN035 TX00/1617Z TNM05/1603Z BECMG 1604/1607 36018KT BECMG 1610/1613 32028G38KT 5000 -SHSN BKN015 OVC025 TEMPO 1613/1618 1000 SHSN BLSN VV005 BECMG 1618/1621 32020KT 9999 FEW020 BKN030 BIRK 160102Z 1603/1703 36008KT 9999 FEW030 BKN040 TX00/1616Z TNM05/1603Z BECMG 1606/1609 36018KT BECMG 1610/1613 32028G38KT 5000 -SHSN BKN015 OVC025 TEMPO 1613/1618 1000 SHSN BLSN VV005 BECMG 1618/1621 32015KT FEW020 BKN030 BKPR 160530Z 1606/1706 21005KT 8000 SCT012 SCT040 TEMPO 1606/1609 1500 BR PROB30 TEMPO 1606/1608 0300 FZFG BKN003 TEMPO 1611/1620 24015KT CBBC 160040Z 1601/1606 22005KT P6SM -RA FEW060 BKN090 OVC110 TEMPO 1601/1606 3SM -RA BR SCT020 OVC040 RMK FCST BASED ON AUTO OBS. NXT FCST WILL BE ISSUED AT 161345Z CWSA 152309Z 1523/1601 05020G30KT 6SM -RA BR FEW008 OVC012 TEMPO 1523/1601 2SM -RA BR BKN008 OVC012 RMK FCST BASED ON AUTO OBS. NXT FCST WILL BE ISSUED AT 160845Z CWWU 160600Z 1606/1706 06012G20KT 1SM SNIP OVC006 TEMPO 1606/1608 P6SM NSW SCT006 SCT015 BKN025 FM160900 06012G20KT 1SM SNIP OVC006 FM161200 08020G30KT 2SM -SNIP OVC010 FM161800 02015G25KT P6SM OVC006 TEMPO 1618/1622 4SM -SHSN BR FM162200 35010KT P6SM OVC010 FM170200 30008KT P6SM BKN015 RMK FCST BASED ON AUTO OBS. NXT FCST BY 161200Z CYAM 160139Z 1602/1614 08012KT P6SM -SN SCT040 BKN060 TEMPO 1602/1609 5SM -SN BKN020 BKN060 BECMG 1604/1606 05008KT FM160900 03007KT P6SM BKN030 BKN120 RMK NXT FCST BY 160800Z CYAW 152319Z 1523/1606 FCST CNCLD DUE END OF FLYING PROGRAM RMK NXT FCST WILL BE ISSUED AT 161415Z CYAY 160138Z 1602/1614 27010KT P6SM SCT200 BECMG 1602/1604 VRB03KT FM160600 02005KT P6SM SCT015 BKN180 TEMPO 1610/1614 BKN020 RMK FCST BASED ON AUTO OBS. NXT FCST BY 160800Z CYAZ 152018Z 1520/1601 16012KT P6SM SCT060 BKN140 TEMPO 1520/1523 3SM BR BKN060 FM152300 12008KT P6SM FEW050 BKN100 TEMPO 1523/1601 P6SM -SHRA RMK NXT FCST WILL BE ISSUED AT 161645Z CYBC 160138Z 1602/1614 36005KT P6SM SCT015 TEMPO 1602/1606 BKN015 FM160600 34005KT P6SM SCT020 BKN200 TEMPO 1606/1614 BKN015 RMK FCST BASED ON AUTO OBS. NXT FCST BY 160800Z CYBG 160530Z 1606/1706 VRB03KT P6SM BKN160 FM160800 VRB03KT P6SM FEW020 BKN120 FM161500 VRB03KT P6SM SCT020 BKN080 RMK NXT FCST BY 161200Z CYBK 160539Z 1606/1618 VRB03KT P6SM OVC030 TEMPO 1606/1618 3SM -SN BR OVC015 BECMG 1611/1613 08012KT RMK NXT FCST BY 161200Z CYBL 160328Z 1603/1605 VRB03KT 1/2SM FG OVC002 TEMPO 1603/1605 2SM -RA BR OVC006 RMK NXT FCST WILL BE ISSUED AT 161545Z CYBN 160400Z 1603/1612 FCST CNCLD DUE END OF FLYING PROGRAM RMK NXT FCST WILL BE ISSUED AT 161015Z CYBR 160538Z 1606/1618 28010KT P6SM SKC FM160900 28012KT P6SM BKN120 RMK NXT FCST BY 161200Z CYBW 160207Z 1602/1605 14005KT 1/4SM FZFG VV002 TEMPO 1602/1605 1SM BR OVC004 RMK FCST BASED ON AUTO OBS. NXT FCST WILL BE ISSUED AT 161245Z CYBX 160138Z 1602/1614 33005KT P6SM FEW230 BECMG 1602/1604 VRB03KT FM160600 03008KT P6SM BKN180 RMK NXT FCST BY 160800Z CYCA 160138Z 1602/1614 ADVISORY OFFSITE 29008KT P6SM SKC BECMG 1602/1604 20006KT RMK NXT FCST BY 160800Z CYCB 160638Z 1607/1619 06008KT P6SM OVC100 TEMPO 1607/1619 3SM -SN BR SCT008 BKN020 OVC100 RMK NXT FCST BY 161300Z CYCO 160638Z 1607/1619 VRB03KT P6SM BKN080 TEMPO 1607/1613 23008KT RMK NXT FCST BY 161300Z CYCX 160452Z 1600/1612 FCST CNCLD DUE END OF FLYING PROGRAM RMK NXT FCST WILL BE ISSUED AT 161015Z CYCY 160638Z 1607/1619 28015KT P6SM SKC RMK FCST BASED ON AUTO OBS. NXT FCST BY 161300Z CYDB 160539Z 1606/1618 12012KT P6SM SCT100 BKN160 FM161400 VRB03KT P6SM SCT050 BKN100 TEMPO 1614/1618 P6SM -SN BKN050 PROB30 1614/1618 P6SM -FZRA RMK FCST BASED ON AUTO OBS. NXT FCST BY 161200Z CYDF 160138Z 1602/1614 VRB03KT P6SM FEW020 BKN240 FM160700 04008KT P6SM -SN SCT025 OVC140 TEMPO 1607/1609 11/2SM -SN OVC015 FM160900 05012KT 3SM -SN OVC025 TEMPO 1609/1612 1SM -SN VV012 FM161200 04012G22KT 1SM -SN VV008 TEMPO 1612/1614 3SM -SN OVC012 RMK NXT FCST BY 160800Z CYDN 160538Z 1606/1618 25012KT P6SM SCT140 BECMG 1606/1608 BKN120 FM161700 25015KT P6SM SCT120 RMK FCST BASED ON AUTO OBS. NXT FCST BY 161200Z CYDP 151938Z 1520/1524 28015G25KT P6SM FEW090 RMK NXT FCST WILL BE ISSUED AT 161045Z CYDQ 160043Z 1601/1605 06005KT 1/8SM FZFG VV002 TEMPO 1601/1605 11/2SM BR OVC003 RMK FCST BASED ON AUTO OBS. NXT FCST WILL BE ISSUED AT 161245Z CYED 160530Z 1606/1618 18008KT P6SM BKN250 FM161200 16005KT P6SM FEW005 PROB30 1612/1617 OVC005 RMK FCST BASED ON AUTO OBS. NXT FCST BY 161200Z CYEG 160539Z 1606/1706 15010KT P6SM SCT250 FM161100 16006KT P6SM FEW005 TEMPO 1611/1617 2SM BR BKN005 FM161900 16005KT P6SM SKC FM170200 28012G22KT WS005/24040KT P6SM SCT040 BKN100 RMK NXT FCST BY 160900Z CYEK 160539Z 1606/1618 22015KT P6SM OVC060 TEMPO 1606/1618 3SM -SN BR OVC030 BECMG 1609/1611 29012KT RMK FCST BASED ON AUTO OBS. NXT FCST BY 161200Z CYEV 160638Z 1607/1619 VRB03KT P6SM SCT200 PROB30 1613/1619 1/2SM FZFG VV002 RMK NXT FCST BY 161300Z CYFB 160539Z 1606/1706 VRB03KT P6SM OVC060 TEMPO 1606/1624 6SM -SN FM170000 VRB03KT P6SM SCT080 RMK NXT FCST BY 161200Z CYFC 160538Z 1606/1618 36010G20KT 6SM -SN OVC015 TEMPO 1606/1615 5SM -SN BECMG 1611/1613 02010KT FM161500 VRB03KT P6SM SCT015 TEMPO 1615/1618 BKN015 RMK FCST BASED ON AUTO OBS. NXT FCST BY 161200Z CYFS 160539Z 1606/1618 14005KT P6SM FEW120 SCT210 RMK NXT FCST BY 161200Z CYGK 160140Z 1602/1604 05010KT P6SM -SN FEW025 OVC080 TEMPO 1602/1603 2SM -SN OVC025 FM160300 06008KT 4SM -SN OVC025 TEMPO 1603/1604 11/2SM -SN OVC012 RMK NXT FCST WILL BE ISSUED AT 161245Z CYGL 160539Z 1606/1706 18008KT P6SM IC OVC040 TEMPO 1606/1618 5SM -SN IC SCT008 OVC015 FM161800 20012G22KT P6SM SCT015 BKN025 TEMPO 1618/1706 P6SM -SN BKN015 BKN180 RMK NXT FCST BY 161200Z CYGP 160138Z 1602/1614 VRB03KT P6SM SCT020 BKN180 TEMPO 1602/1614 BKN020 BECMG 1604/1606 36005KT RMK NXT FCST BY 160800Z CYGQ 160309Z 1603/1614 02008KT 5SM -SN BR OVC006 TEMPO 1603/1612 P6SM NSW OVC012 FM161200 22005KT P6SM SCT008 BKN012 TEMPO 1612/1614 P6SM -SN BKN008 RMK NXT FCST BY 160800Z CYGR 151938Z 1520/1603 03015G25KT P6SM -SN OVC025 TEMPO 1520/1603 4SM -SHSN OVC020 RMK NXT FCST WILL BE ISSUED AT 161145Z CYGV 160138Z 1602/1614 02007KT P6SM BKN200 RMK FCST BASED ON AUTO OBS. NXT FCST BY 160800Z CYGW 160549Z 1606/1618 20008KT P6SM SCT008 TEMPO 1606/1609 5SM -SN BKN008 FM160900 19010G20KT P6SM FEW012 TEMPO 1609/1617 6SM -SN BKN012 PROB30 1609/1617 BKN008 FM161700 18015G25KT P6SM SCT020 BKN140 RMK FCST BASED ON AUTO OBS. NXT FCST BY 161200Z CYGX 160638Z 1607/1619 24012G22KT P6SM BKN030 OVC100 TEMPO 1607/1612 6SM -SN OVC030 FM161200 24012G22KT P6SM BKN030 TEMPO 1612/1619 BKN020 RMK NXT FCST BY 161300Z CYHD 160307Z 1603/1614 01006KT 5SM -SN OVC008 TEMPO 1603/1614 P6SM NSW OVC015 BECMG 1606/1608 VRB03KT RMK FCST BASED ON AUTO OBS. NXT FCST BY 160800Z CYHK 160539Z 1606/1618 14010KT 2SM -SN BR OVC080 TEMPO 1606/1618 P6SM NSW RMK FCST BASED ON AUTO OBS. NXT FCST BY 161200Z CYHM 160538Z 1606/1706 VRB03KT P6SM -SN SCT006 BKN015 OVC040 TEMPO 1606/1614 2SM -SN BR BKN006 OVC015 PROB30 1606/1614 11/2SM -SN BR BKN005 OVC010 FM161400 23010KT P6SM SCT008 BKN025 TEMPO 1614/1616 5SM -SN BKN008 OVC020 FM161600 23012KT P6SM -SHSN BKN012 BKN025 TEMPO 1616/1624 P6SM NSW SCT012 BKN025 FM170000 23008KT P6SM SCT008 BKN020 FM170500 23008KT 6SM -SN BKN008 BKN020 RMK NXT FCST BY 161200Z CYHU 160545Z 1606/1706 02008KT P6SM SCT030 OVC100 TEMPO 1607/1609 4SM -SN OVC025 FM160900 02006KT 4SM -SN OVC030 TEMPO 1609/1613 11/2SM -SN OVC020 FM161300 02006KT 4SM -SN OVC015 TEMPO 1613/1624 P6SM NSW SCT015 OVC025 FM170000 01005KT 4SM -SN BR BKN008 OVC015 RMK FCST BASED ON AUTO OBS. NXT FCST BY 161200Z CYHY 160539Z 1606/1618 19006KT P6SM FEW230 RMK NXT FCST BY 161200Z CYHZ 160538Z 1606/1706 01015G25KT 1SM -SN OVC005 TEMPO 1607/1609 3SM -SN OVC010 FM160900 01010G20KT 3SM -SN OVC015 TEMPO 1609/1618 6SM -SN FM161800 30010G20KT P6SM -SN OVC020 FM162100 33010KT P6SM BKN020 FM170200 VRB03KT P6SM SCT020 BKN150 RMK NXT FCST BY 160900Z CYIO 160638Z 1607/1619 17008KT P6SM SKC RMK FCST BASED ON AUTO OBS. NXT FCST BY 161300Z CYIV 160638Z 1607/1619 24010KT P6SM FEW120 BKN200 FM161000 24012KT P6SM OVC100 TEMPO 1610/1615 5SM -SN FM161500 24015G25KT P6SM SCT100 BKN160 RMK NXT FCST BY 161300Z CYJT 160545Z 1606/1706 06012KT P6SM BKN140 FM160700 06012G22KT 6SM -SN OVC050 TEMPO 1607/1609 2SM -SN OVC020 FM160900 06012G22KT 11/2SM -SN OVC015 TEMPO 1609/1614 3SM -SN OVC025 FM161400 06012KT 5SM -SN OVC020 FM161600 03012KT P6SM BKN030 BECMG 1618/1620 30006KT FM162000 29008KT P6SM BKN020 TEMPO 1622/1706 6SM -SHSN BECMG 1622/1624 27015KT RMK NXT FCST BY 161200Z CYKA 160638Z 1607/1619 10008KT P6SM OVC009 TEMPO 1607/1611 OVC015 FM161100 10012KT P6SM FEW008 BKN012 OVC100 TEMPO 1611/1616 3SM -RASN BR BKN008 OVC012 PROB30 1611/1614 5SM -FZRA BR FM161600 09008KT P6SM OVC025 TEMPO 1616/1619 OVC009 RMK NXT FCST BY 161300Z CYKF 160243Z 1602/1614 09007KT 6SM -SN SCT012 OVC030 TEMPO 1602/1604 11/2SM -SN OVC012 FM160400 09005KT 6SM -SN SCT008 OVC025 TEMPO 1604/1609 11/2SM -SN OVC008 FM160900 VRB03KT P6SM SCT007 BKN025 OVC050 TEMPO 1609/1614 2SM -SN OVC007 BECMG 1612/1614 22008KT RMK FCST BASED ON AUTO OBS. NXT FCST BY 160800Z CYKL 160252Z 1602/1614 22005KT P6SM SCT008 TEMPO 1602/1614 2SM IC BKN008 BECMG 1612/1614 24012KT RMK FCST BASED ON AUTO OBS. NXT FCST BY 160800Z CYKZ 160538Z 1606/1618 05005KT P6SM -SN OVC010 TEMPO 1606/1616 3SM -SN BR OVC006 BECMG 1612/1614 VRB03KT FM161600 22005KT P6SM SCT008 BKN015 OVC040 TEMPO 1616/1618 5SM -SN BKN008 OVC015 RMK NXT FCST BY 161200Z CYLD 151938Z 1520/1602 11008KT P6SM SCT020 OVC050 TEMPO 1520/1602 3SM -SN OVC020 RMK NXT FCST WILL BE ISSUED AT 161245Z CYLL 160539Z 1606/1618 18012KT WS005/19035KT P6SM SKC FM161500 18012KT P6SM SKC RMK FCST BASED ON AUTO OBS. NXT FCST BY 161200Z CYLW 160638Z 1607/1619 VRB03KT 4SM BR OVC006 TEMPO 1607/1612 P6SM NSW SCT006 OVC010 FM161200 03005KT P6SM OVC006 TEMPO 1612/1619 3SM -RASN BR OVC010 PROB30 1612/1615 5SM -FZRA BR RMK FCST BASED ON AUTO OBS. NXT FCST BY 161300Z CYMA 160539Z 1606/1618 04008KT P6SM SCT100 BKN200 RMK NXT FCST BY 161200Z CYMH 160315Z 1603/1604 26005KT P6SM SKC TEMPO 1603/1604 5SM IC RMK FCST BASED ON AUTO OBS. NXT FCST WILL BE ISSUED AT 160945Z CYMJ 160105Z 1600/1612 FCST CNCLD DUE END OF FLYING PROGRAM RMK NXT FCST WILL BE ISSUED AT 161115Z CYMM 160638Z 1607/1619 10006KT P6SM SKC RMK FCST BASED ON AUTO OBS. NXT FCST BY 161300Z CYMO 160539Z 1606/1618 VRB03KT P6SM FEW020 OVC050 TEMPO 1606/1610 6SM -SN OVC020 FM161000 28005KT P6SM SCT008 OVC020 TEMPO 1610/1617 5SM -SN OVC008 FM161700 22008KT P6SM SCT008 BKN020 RMK FCST BASED ON AUTO OBS. NXT FCST BY 161200Z CYMX 160545Z 1606/1706 05005KT P6SM SCT030 OVC100 TEMPO 1607/1609 3SM -SN OVC025 FM160900 03006KT 4SM -SN OVC030 TEMPO 1609/1613 11/2SM -SN OVC012 FM161300 05005KT 4SM -SN OVC012 TEMPO 1613/1624 P6SM NSW SCT012 OVC025 FM170000 VRB03KT 4SM -SN BR BKN008 OVC015 RMK NXT FCST BY 161200Z CYNA 160138Z 1602/1614 01007KT P6SM BKN200 RMK FCST BASED ON AUTO OBS. NXT FCST BY 160800Z CYNE 160638Z 1607/1619 FCST NOT AVBL DUE CLD HGT SENSOR INOP RMK FCST BASED ON AUTO OBS. NXT FCST BY 161300Z CYOA 152010Z 1520/1524 26015KT 5SM BLSN BKN006 TEMPO 1520/1522 P6SM NSW SCT008 FM152200 26012KT P6SM SCT008 TEMPO 1522/1524 5SM BR BKN008 RMK NXT FCST WILL BE ISSUED AT 161345Z CYOD 160530Z 1606/1706 18008KT P6SM SKC FM161400 15005KT P6SM FEW012 TEMPO 1614/1620 BKN012 BECMG 1618/1620 24005KT FM162000 24005KT P6SM FEW012 RMK NXT FCST BY 161200Z CYOJ 160638Z 1607/1619 VRB03KT P6SM SKC FM161100 VRB02KT P6SM SCT004 TEMPO 1611/1619 2SM IC BR HZ BKN004 BECMG 1617/1619 15005KT RMK FCST BASED ON AUTO OBS. NXT FCST BY 161300Z CYOW 160545Z 1606/1706 06008KT 6SM -SN OVC040 TEMPO 1606/1607 2SM -SN OVC020 FM160615 07008KT 4SM -SN OVC030 TEMPO 1606/1610 11/2SM -SN OVC012 FM161000 07008KT 4SM -SN OVC012 TEMPO 1610/1624 P6SM NSW SCT012 OVC025 FM170000 07005KT 4SM -SN BR BKN008 OVC015 FM170400 06005KT 2SM -SN BR BKN005 OVC010 RMK NXT FCST BY 160900Z CYOY 160202Z 1600/1612 FCST CNCLD DUE END OF FLYING PROGRAM RMK NXT FCST WILL BE ISSUED AT 161115Z CYPA 160638Z 1607/1619 VRB03KT WS005/22025KT P6SM FEW160 FM161500 22010KT P6SM SKC RMK NXT FCST BY 161300Z CYPE 160638Z 1607/1619 23005KT P6SM FEW008 TEMPO 1609/1617 3SM BR BKN008 PROB30 1610/1617 1/2SM FZFG VV002 FM161700 24005KT P6SM SKC RMK NXT FCST BY 161300Z CYPG 160403Z 1600/1612 FCST CNCLD DUE END OF FLYING PROGRAM RMK NXT FCST WILL BE ISSUED AT 161315Z CYPH 160539Z 1606/1618 24015G25KT P6SM OVC025 TEMPO 1606/1618 5SM -SN OVC020 BECMG 1612/1614 20015G25KT RMK FCST BASED ON AUTO OBS. NXT FCST BY 161200Z CYPL 151938Z 1520/1602 03006KT P6SM SCT015 BKN040 TEMPO 1520/1602 4SM -SN OVC015 RMK NXT FCST WILL BE ISSUED AT 161245Z CYPQ 151938Z 1520/1603 08010G20KT 5SM -SHSN BKN015 OVC090 TEMPO 1520/1521 P6SM NSW BKN025 BKN120 FM152100 08010KT 6SM -SN BKN025 OVC080 TEMPO 1521/1601 11/2SM -SN OVC015 FM160100 11010KT 1SM -SN OVC008 TEMPO 1601/1603 3SM -SN OVC025 RMK FCST BASED ON AUTO OBS. NXT FCST WILL BE ISSUED AT 161045Z CYPR 160638Z 1607/1619 13008KT P6SM SCT040 BKN080 TEMPO 1607/1613 P6SM -RA BKN040 FM161300 13012KT P6SM -RA SCT007 OVC025 TEMPO 1613/1619 3SM -SHRA BR BKN007 OVC025 RMK FCST BASED ON AUTO OBS. NXT FCST BY 161300Z CYPX 160539Z 1606/1618 22015KT P6SM SCT020 TEMPO 1606/1618 3SM -SN HZ VV020 RMK FCST BASED ON AUTO OBS. NXT FCST BY 161200Z CYQA 152224Z 1522/1603 08007KT 2SM -SN OVC025 TEMPO 1522/1603 6SM -SN RMK FCST BASED ON AUTO OBS. NXT FCST WILL BE ISSUED AT 161245Z CYQB 160538Z 1606/1706 07012KT P6SM OVC030 TEMPO 1606/1609 2SM -SN BKN015 OVC030 FM160900 07010KT P6SM BKN030 OVC140 TEMPO 1609/1616 5SM -SN BKN015 OVC140 FM161600 08006KT P6SM -SN SCT020 OVC030 FM162200 VRB03KT P6SM OVC020 TEMPO 1622/1702 OVC030 FM170200 VRB03KT P6SM OVC015 RMK NXT FCST BY 161200Z CYQD 160638Z 1607/1619 21008KT P6SM OVC070 FM161000 21008KT P6SM SCT150 FM161400 24010KT P6SM SKC RMK NXT FCST BY 161300Z CYQF 160539Z 1606/1618 17012KT 2SM IC BR BKN003 TEMPO 1606/1610 6SM BR SCT003 FM161000 17006KT 2SM BR BKN005 TEMPO 1610/1616 1/2SM FZFG VV002 FM161600 17006KT P6SM FEW005 RMK NXT FCST BY 161200Z CYQG 160538Z 1606/1706 23007KT P6SM -SN SCT008 OVC050 TEMPO 1606/1616 3SM -SN BR BKN008 OVC050 FM161600 24012KT 5SM -SN BKN012 OVC030 TEMPO 1616/1703 P6SM NSW SCT012 BKN030 FM170300 23010KT 4SM -SN BKN008 OVC030 TEMPO 1703/1706 P6SM NSW SCT008 BKN030 RMK NXT FCST BY 161200Z CYQH 160539Z 1606/1618 VRB03KT P6SM SCT020 BKN120 TEMPO 1606/1609 BKN020 FM160900 VRB03KT P6SM SCT004 TEMPO 1609/1618 1SM BR BKN004 PROB30 1609/1618 1/2SM FZFG VV002 RMK NXT FCST BY 161200Z CYQI 160602Z 1606/1618 35010KT 6SM -SN OVC025 TEMPO 1606/1618 2SM -SN OVC020 BECMG 1614/1616 33012KT RMK NXT FCST BY 161200Z CYQK 160138Z 1602/1614 35008KT P6SM FEW015 TEMPO 1602/1612 5SM -SN BKN015 BECMG 1606/1608 VRB03KT FM161200 22008KT P6SM BKN015 BKN120 RMK NXT FCST BY 160800Z CYQL 160539Z 1606/1618 18015G25KT P6SM SCT300 BECMG 1608/1610 22012KT RMK FCST BASED ON AUTO OBS. NXT FCST BY 161200Z CYQM 160538Z 1606/1706 02012G22KT P6SM -SN OVC015 TEMPO 1606/1618 5SM -SN OVC008 BECMG 1612/1614 36010KT FM161800 35007KT P6SM -SN OVC015 FM170000 VRB03KT P6SM SCT020 RMK NXT FCST BY 161200Z CYQQ 160539Z 1606/1706 VRB03KT P6SM -RA FEW006 BKN040 OVC080 TEMPO 1606/1615 5SM -RA BR SCT006 BKN014 OVC025 BECMG 1607/1608 14010G20KT BECMG 1608/1610 14018G28KT FM161500 14015G25KT P6SM SCT014 BKN025 FM170000 14012G22KT P6SM FEW014 SCT025 BECMG 1704/1706 14018G28KT P6SM -RA FEW008 OVC025 RMK NXT FCST BY 161200Z CYQR 160538Z 1606/1706 13010KT P6SM SKC FM160900 13015KT P6SM SCT150 FM161800 13015KT P6SM SKC BECMG 1701/1703 18010KT RMK NXT FCST BY 161200Z CYQT 160138Z 1602/1614 01008KT P6SM SCT020 BKN040 TEMPO 1602/1614 5SM -SN BKN020 BECMG 1606/1608 29008KT RMK NXT FCST BY 160800Z CYQU 160638Z 1607/1619 VRB03KT 1/2SM FZFG VV002 TEMPO 1607/1619 1/4SM FZFG VV001 RMK NXT FCST BY 161300Z CYQW 160538Z 1606/1618 12010KT P6SM SKC RMK FCST BASED ON AUTO OBS. NXT FCST BY 161200Z CYQX 160545Z 1606/1706 06005KT P6SM FEW015 OVC190 TEMPO 1606/1607 5SM -SN BKN015 OVC040 FM160700 04008KT 6SM -SN OVC030 TEMPO 1607/1609 11/2SM -SN OVC015 FM160900 04010G20KT 3/4SM -SN VV008 TEMPO 1609/1616 1SM -SN VV010 PROB30 1611/1615 3/8SM SN BLSN VV004 FM161600 03010G20KT 5SM -SN OVC015 PROB30 1616/1618 21/2SM -SN OVC010 FM161800 03012KT P6SM OVC020 BECMG 1622/1624 29005KT RMK NXT FCST BY 161200Z CYQY 160538Z 1606/1618 05015G25KT 1/2SM SN BLSN VV006 TEMPO 1606/1612 2SM -SN OVC012 PROB30 1606/1612 1/4SM +SN BLSN VV002 FM161200 01015G25KT 1SM -SN BLSN OVC008 TEMPO 1612/1615 4SM -SN OVC015 FM161500 01010G20KT 6SM -SN OVC015 TEMPO 1615/1618 4SM -SN RMK NXT FCST BY 161200Z CYQZ 160255Z 1602/1606 VRB03KT 1/4SM FZFG VV001 TEMPO 1602/1606 1SM -SN BR OVC003 RMK FCST BASED ON AUTO OBS. NXT FCST WILL BE ISSUED AT 161145Z CYRB 160539Z 1606/1706 VRB03KT P6SM IC SKC TEMPO 1606/1624 08010G20KT RMK NXT FCST BY 161200Z CYRJ 151938Z 1520/1603 33008KT P6SM BKN180 RMK NXT FCST WILL BE ISSUED AT 161245Z CYRL 151938Z 1520/1603 33008KT P6SM FEW015 TEMPO 1520/1603 5SM -SN BKN015 BECMG 1600/1602 VRB03KT RMK NXT FCST WILL BE ISSUED AT 161145Z CYRQ 160139Z 1602/1614 05010KT P6SM BKN200 FM160800 05008KT P6SM SCT020 BKN080 RMK FCST BASED ON AUTO OBS. NXT FCST BY 160800Z CYRT 160539Z 1606/1618 21015KT P6SM SCT015 SCT080 TEMPO 1606/1609 3SM -SN BR BKN015 OVC080 FM160900 06005KT P6SM BKN060 TEMPO 1609/1618 3SM -SN BR OVC015 BECMG 1609/1611 VRB03KT RMK NXT FCST BY 161200Z CYSB 160404Z 1604/1614 08007KT P6SM -SN SCT020 OVC050 TEMPO 1604/1609 21/2SM -SN OVC020 FM160900 04007KT P6SM -SN BKN020 OVC040 RMK NXT FCST BY 160800Z CYSF 160539Z 1606/1618 VRB03KT P6SM SKC RMK FCST BASED ON AUTO OBS. NXT FCST BY 161200Z CYSJ 160606Z 1606/1618 03012G22KT P6SM -SN BKN030 TEMPO 1606/1609 4SM -SN BKN008 FM160900 36010G20KT 6SM -SN OVC015 TEMPO 1609/1615 5SM -SN OVC008 BECMG 1615/1617 33005KT RMK NXT FCST BY 161200Z CYSM 160539Z 1606/1618 15006KT P6SM SKC RMK NXT FCST BY 161200Z CYSN 152021Z 1520/1602 07008KT 6SM -SN OVC025 TEMPO 1520/1524 11/2SM -SN OVC020 BECMG 1521/1523 11008KT FM160000 11008KT 1SM -SN OVC008 TEMPO 1600/1602 3SM -SN OVC025 RMK NXT FCST WILL BE ISSUED AT 161345Z CYSP 151938Z 1520/1522 07008KT P6SM SCT020 BKN040 TEMPO 1520/1522 5SM -SN OVC020 RMK NXT FCST WILL BE ISSUED AT 161445Z CYTE 160638Z 1607/1619 VRB03KT P6SM -SN OVC012 TEMPO 1607/1619 P6SM NSW SCT012 OVC080 RMK FCST BASED ON AUTO OBS. NXT FCST BY 161300Z CYTH 160638Z 1607/1619 23010KT P6SM IC OVC100 FM161200 24010KT P6SM SCT160 RMK NXT FCST BY 161300Z CYTL 160138Z 1602/1614 25005KT P6SM BKN220 FM161000 23012G22KT P6SM SCT060 BKN100 RMK FCST BASED ON AUTO OBS. NXT FCST BY 160800Z CYTR 160530Z 1606/1706 05008KT 1SM -SN OVC015 TEMPO 1606/1607 6SM -SN SCT015 OVC025 FM160700 04008KT P6SM FEW010 BKN030 TEMPO 1607/1706 3SM -SHSN BKN010 OVC030 BECMG 1617/1619 VRB03KT RMK NXT FCST BY 161200Z CYTS 160139Z 1602/1614 06012KT P6SM OVC100 TEMPO 1602/1606 5SM -SN BKN020 OVC100 FM160600 VRB03KT P6SM -SN SCT015 BKN030 OVC120 RMK NXT FCST BY 160800Z CYTZ 160347Z 1603/1702 07005KT 6SM -SN SCT008 BKN015 OVC025 TEMPO 1603/1612 11/2SM -SN BKN008 OVC015 FM161200 03005KT 4SM -SN OVC006 TEMPO 1612/1616 P6SM NSW SCT006 BKN012 OVC050 BECMG 1612/1614 27006KT FM161600 25010KT P6SM -SHSN BKN020 BKN040 FM161900 23012KT P6SM FEW020 BKN040 FM170000 25012KT P6SM -SHSN BKN025 RMK FCST BASED ON AUTO OBS. NXT FCST BY 160800Z CYUB 160213Z 1602/1606 VRB03KT P6SM -SN OVC050 TEMPO 1602/1606 5SM -SN BR VV020 BECMG 1604/1606 26010KT RMK NXT FCST WILL BE ISSUED AT 161545Z CYUL 160545Z 1606/1706 03010KT P6SM SCT030 OVC100 TEMPO 1607/1609 4SM -SN OVC025 FM160900 04008KT 4SM -SN OVC030 TEMPO 1609/1613 11/2SM -SN OVC020 FM161300 04008KT 4SM -SN OVC015 TEMPO 1613/1624 P6SM NSW SCT015 OVC025 FM170000 03005KT 4SM -SN BR BKN008 OVC015 RMK NXT FCST BY 160900Z CYUX 160638Z 1607/1619 32010KT P6SM SKC RMK FCST BASED ON AUTO OBS. NXT FCST BY 161300Z CYUY 160538Z 1606/1618 04005KT P6SM BKN100 TEMPO 1606/1617 P6SM -SN BKN020 BKN100 BECMG 1606/1608 VRB03KT FM161700 VRB03KT P6SM FEW030 SCT100 RMK NXT FCST BY 161200Z CYVC 160638Z 1607/1619 18005KT P6SM SKC RMK NXT FCST BY 161300Z CYVM 160638Z 1607/1619 VRB03KT P6SM SKC TEMPO 1607/1619 20008KT RMK FCST BASED ON AUTO OBS. NXT FCST BY 161300Z CYVO 160538Z 1606/1618 06005KT P6SM OVC120 TEMPO 1606/1617 P6SM -SN BKN020 OVC120 BECMG 1606/1608 VRB03KT FM161700 VRB03KT P6SM FEW030 SCT100 RMK FCST BASED ON AUTO OBS. NXT FCST BY 161200Z CYVP 160539Z 1606/1618 22010KT P6SM SCT090 SCT140 FM160900 23010KT P6SM BKN040 TEMPO 1609/1618 5SM -SN IC BKN020 RMK NXT FCST BY 161200Z CYVQ 160539Z 1606/1618 12006KT P6SM FEW250 RMK NXT FCST BY 161200Z CYVR 160539Z 1606/1712 VRB03KT P6SM -RA SCT020 OVC050 TEMPO 1606/1610 5SM -RA BR BKN020 OVC040 FM161000 10010KT P6SM SCT008 BKN015 OVC030 TEMPO 1610/1619 3SM -SHRA BR BKN007 OVC015 FM161900 12012KT P6SM SCT025 OVC040 TEMPO 1619/1703 BKN015 OVC025 FM170300 13008KT P6SM SCT040 BKN140 RMK NXT FCST BY 160900Z CYVT 160038Z 1601/1604 18012KT P6SM FEW140 SCT240 RMK NXT FCST WILL BE ISSUED AT 161345Z CYVV 152050Z 1520/1524 09012G22KT 6SM -SN OVC025 TEMPO 1520/1524 1SM -SN OVC012 RMK NXT FCST WILL BE ISSUED AT 161145Z CYWA 160709Z 1607/1618 VRB03KT 1SM -SN VV012 TEMPO 1607/1609 6SM -SN OVC025 FM160900 VRB03KT P6SM SCT020 BKN030 TEMPO 1609/1618 3SM -SN BKN020 OVC030 RMK FCST BASED ON AUTO OBS. NXT FCST BY 161200Z CYWE 152247Z 1522/1602 18005KT P6SM FEW240 RMK FCST BASED ON AUTO OBS. NXT FCST WILL BE ISSUED AT 161345Z CYWG 160538Z 1606/1706 26006KT P6SM SCT180 FM161200 20010KT P6SM BKN120 BECMG 1613/1615 20015KT FM162000 20020G30KT P6SM SCT120 BKN180 FM170200 20015KT P6SM SKC RMK NXT FCST BY 161200Z CYWK 160138Z 1602/1614 20006KT P6SM FEW140 TEMPO 1602/1614 5SM IC RMK NXT FCST BY 160800Z CYWL 160638Z 1607/1619 13012KT P6SM SCT140 BKN240 RMK NXT FCST BY 161300Z CYXC 160638Z 1607/1619 VRB03KT P6SM OVC012 TEMPO 1607/1619 P6SM -SN OVC008 RMK NXT FCST BY 161300Z CYXE 160538Z 1606/1706 17012KT P6SM SKC BECMG 1701/1703 19008KT RMK NXT FCST BY 161200Z CYXH 160539Z 1606/1618 36005KT WS005/18030KT P6SM SKC FM161000 18010KT P6SM SKC RMK FCST BASED ON AUTO OBS. NXT FCST BY 161200Z CYXJ 160638Z 1607/1619 14005KT 1/8SM FZFG VV001 TEMPO 1615/1619 1/2SM FZFG VV002 RMK NXT FCST BY 161300Z CYXL 160708Z 1607/1614 35005KT 5SM -SN OVC006 TEMPO 1607/1614 P6SM NSW OVC012 RMK NXT FCST BY 160800Z CYXR 152231Z 1522/1601 06006KT P6SM SCT015 OVC110 TEMPO 1522/1601 P6SM -SN BKN015 OVC120 RMK FCST BASED ON AUTO OBS. NXT FCST WILL BE ISSUED AT 161245Z CYXS 160638Z 1607/1619 VRB03KT 1/2SM FZFG VV001 TEMPO 1607/1618 P6SM NSW SCT001 BKN240 FM161800 20010KT P6SM FEW001 BKN160 RMK FCST BASED ON AUTO OBS. NXT FCST BY 161300Z CYXT 160638Z 1607/1619 01012G22KT P6SM OVC120 FM160900 02010KT P6SM SCT020 OVC080 TEMPO 1609/1619 5SM -RASN BR BKN020 OVC050 RMK NXT FCST BY 161300Z CYXU 160538Z 1606/1706 09005KT 6SM -SN BKN012 OVC030 TEMPO 1606/1608 3SM -SN BR OVC008 FM160800 VRB03KT 3SM -SN BR OVC006 TEMPO 1608/1615 6SM -SN SCT006 OVC012 PROB30 1608/1615 21/2SM -SN BR BKN005 OVC010 FM161500 23008KT 5SM -SN BKN008 OVC015 TEMPO 1615/1618 P6SM NSW SCT008 BKN015 FM161800 22008KT P6SM -SHSN BKN015 OVC025 FM170300 21006KT 5SM -SN BKN008 OVC015 RMK NXT FCST BY 161200Z CYXX 160539Z 1606/1706 03012KT P6SM SCT080 BKN130 FM160700 06012KT P6SM -RA FEW020 OVC050 TEMPO 1607/1611 5SM -RA BR FM161100 15015G25KT P6SM FEW020 SCT050 TEMPO 1611/1618 P6SM -SHRA SCT020 BKN050 FM161800 18008KT P6SM BKN030 OVC060 RMK NXT FCST BY 161200Z CYXY 160539Z 1606/1618 17015KT P6SM SCT080 BKN160 FM161400 17010KT P6SM BKN080 TEMPO 1614/1618 P6SM -RA PROB30 1614/1618 P6SM -FZRA RMK NXT FCST BY 161200Z CYXZ 151938Z 1520/1524 07005KT P6SM SCT020 BKN040 OVC070 TEMPO 1520/1524 4SM -SN OVC020 RMK NXT FCST WILL BE ISSUED AT 161245Z CYYB 160139Z 1602/1614 09010G20KT P6SM BKN090 TEMPO 1602/1609 4SM -SN BKN020 BKN090 BECMG 1604/1606 08008KT FM160900 04007KT P6SM -SN BKN020 OVC040 RMK NXT FCST BY 160800Z CYYC 160539Z 1606/1706 20006KT P6SM FEW006 PROB40 1606/1615 1SM BR BKN006 FM161500 24007KT P6SM SKC FM162200 26012G22KT P6SM SCT120 BKN240 RMK NXT FCST BY 160900Z CYYD 160043Z 1601/1606 13005KT P6SM FEW025 SCT120 BKN230 BECMG 1604/1606 SCT010 BKN025 RMK NXT FCST WILL BE ISSUED AT 161345Z CYYE 160638Z 1607/1619 VRB03KT P6SM FEW200 PROB30 1609/1619 1/4SM FZFG VV002 RMK NXT FCST BY 161300Z CYYF 160638Z 1607/1619 VRB03KT P6SM OVC012 TEMPO 1607/1612 4SM -DZ BR BKN005 OVC010 FM161200 18008KT P6SM SCT005 OVC010 TEMPO 1612/1619 3SM -RASN BR BKN005 OVC010 PROB30 1612/1615 5SM -FZRA BR RMK NXT FCST BY 161300Z CYYG 160538Z 1606/1618 04012G22KT 6SM -SN OVC015 TEMPO 1606/1612 2SM -SN OVC008 FM161200 03010G20KT 6SM -SN OVC012 TEMPO 1612/1618 4SM -SN OVC008 BECMG 1615/1616 35007KT RMK NXT FCST BY 161200Z CYYH 160539Z 1606/1618 VRB03KT P6SM IC SCT100 FM160900 02008KT P6SM BKN080 TEMPO 1609/1618 5SM -SN RMK NXT FCST BY 161200Z CYYJ 160539Z 1606/1706 VRB03KT P6SM SCT060 OVC120 TEMPO 1606/1609 5SM -RA BR OVC060 FM160900 16008KT P6SM FEW020 SCT050 OVC120 TEMPO 1615/1701 P6SM -SHRA SCT020 BKN050 FM170100 14008KT P6SM SCT040 OVC100 RMK NXT FCST BY 161200Z CYYL 160638Z 1607/1619 24010G20KT P6SM FEW150 SCT180 TEMPO 1607/1610 BKN150 OVC180 RMK FCST BASED ON AUTO OBS. NXT FCST BY 161300Z CYYN 160538Z 1606/1618 19022KT WS005/20045KT P6SM SKC FM161400 19022KT P6SM SKC RMK FCST BASED ON AUTO OBS. NXT FCST BY 161200Z CYYQ 160538Z 1606/1706 24015G25KT P6SM SCT050 OVC100 TEMPO 1606/1609 5SM -SN BLSN BKN050 OVC080 FM160900 26015G25KT P6SM BKN050 TEMPO 1609/1613 5SM -SN BLSN FM161300 27012KT P6SM BKN025 TEMPO 1613/1701 BKN015 FM170100 29010KT P6SM SCT008 BKN015 FM170400 34010KT P6SM BKN008 OVC015 RMK NXT FCST BY 161200Z CYYR 160530Z 1606/1706 VRB03KT P6SM SCT180 BECMG 1606/1608 24006KT FM170300 25010KT P6SM FEW030 SCT180 RMK NXT FCST BY 161200Z CYYT 160637Z 1606/1706 08012G22KT 3/4SM -SN BLSN VV006 TEMPO 1606/1610 2SM -PLSN OVC010 FM161000 08015G25KT 1SM -PL BR OVC006 TEMPO 1610/1612 3SM -PL BR OVC010 PROB40 1610/1612 3/4SM -FZRA BR OVC003 FM161200 08020G30KT 3/4SM -FZRA -PL BR OVC003 FM161700 01020G30KT 2SM -FZDZ -SN BR OVC008 FM162100 36015G25KT P6SM OVC015 BECMG 1622/1624 35012KT BECMG 1704/1706 28010KT RMK NXT FCST BY 161200Z CYYU 160139Z 1602/1614 VRB03KT P6SM FEW025 SCT210 TEMPO 1602/1606 5SM -SN BKN020 BKN140 FM160600 VRB03KT P6SM -SN SCT015 BKN030 BKN140 BECMG 1610/1612 36005KT RMK NXT FCST BY 160800Z CYYY 160138Z 1602/1614 14005KT P6SM BKN015 TEMPO 1602/1606 SCT015 FM160600 VRB03KT P6SM FEW015 BKN200 TEMPO 1606/1614 BKN015 RMK NXT FCST BY 160800Z CYYZ 160538Z 1606/1712 05005KT P6SM -SN SCT006 OVC015 TEMPO 1606/1615 3SM -SN BR OVC006 BECMG 1613/1615 27006KT FM161500 27006KT P6SM SCT008 BKN015 OVC050 TEMPO 1615/1617 5SM -SN BKN008 OVC015 FM161700 24010KT P6SM BKN025 BKN040 TEMPO 1617/1708 P6SM -SHSN BKN020 BKN040 FM170800 26006KT P6SM FEW008 BKN025 RMK NXT FCST BY 160900Z CYZE 151939Z 1520/1523 08015G25KT 11/2SM -SHSN BKN012 OVC025 TEMPO 1520/1523 6SM -SN SCT012 OVC025 PROB40 1520/1523 3/4SM -SHSN RMK FCST BASED ON AUTO OBS. NXT FCST WILL BE ISSUED AT 161045Z CYZF 160539Z 1606/1706 18006KT P6SM FEW240 BECMG 1610/1612 10005KT RMK NXT FCST BY 161200Z CYZH 160638Z 1607/1619 09012G22KT P6SM SKC FM161200 11008KT P6SM SKC TEMPO 1612/1617 5SM IC HZ RMK FCST BASED ON AUTO OBS. NXT FCST BY 161300Z CYZP 160638Z 1607/1619 13030G40KT 11/2SM RA BR OVC008 TEMPO 1607/1609 6SM -RA BR SCT020 OVC050 FM160900 15015G25KT P6SM SCT010 OVC025 TEMPO 1609/1617 5SM -SHRA BR BKN010 OVC020 FM161700 15015G25KT P6SM BKN025 BKN040 TEMPO 1617/1619 SCT030 BKN040 RMK FCST BASED ON AUTO OBS. NXT FCST BY 161300Z CYZR 151939Z 1520/1603 13010G20KT 6SM -SN OVC040 TEMPO 1520/1522 2SM -SN BKN020 OVC040 PROB40 1520/1522 11/2SM -SN FM152200 13012G22KT 11/4SM -SN OVC012 TEMPO 1522/1602 6SM -SN OVC030 PROB30 1522/1602 3/4SM -SN VV015 FM160200 12008KT 11/4SM -SN OVC012 TEMPO 1602/1603 6SM -SN OVC030 RMK FCST BASED ON AUTO OBS. NXT FCST WILL BE ISSUED AT 160845Z CYZS 160638Z 1607/1619 VRB03KT P6SM IC SCT200 TEMPO 1607/1619 03010KT RMK NXT FCST BY 161300Z CYZT 160638Z 1607/1619 12010KT P6SM -RA FEW030 OVC050 TEMPO 1607/1619 3SM -RA BR FEW008 OVC020 RMK NXT FCST BY 161300Z CYZU 152253Z 1522/1523 10010KT P6SM SCT040 TEMPO 1522/1523 BKN004 RMK NXT FCST WILL BE ISSUED AT 161415Z CYZV 160538Z 1606/1706 02007KT P6SM SKC FM161200 36005KT P6SM BKN200 BECMG 1620/1622 27007KT FM170300 VRB03KT P6SM FEW150 RMK NXT FCST BY 161200Z CYZX 160533Z 1606/1706 03005KT 3SM -SN OVC020 TEMPO 1606/1608 P6SM -SN BKN020 OVC030 FM160800 02010KT P6SM -SHSN OVC020 BECMG 1612/1614 36005KT FM161800 32005KT P6SM BKN015 FM170000 27005KT P6SM SCT015 BKN240 FM170300 VRB03KT P6SM SCT015 BKN160 RMK NXT FCST BY 161200Z CYZY 160638Z 1607/1609 VRB03KT 1/2SM FZFG VV002 TEMPO 1607/1609 6SM -SN BR OVC003 RMK FCST BASED ON AUTO OBS. NXT FCST WILL BE ISSUED AT 161445Z CZBF 160138Z 1602/1604 VRB03KT P6SM -SN OVC025 TEMPO 1602/1604 5SM -SN OVC020 RMK NXT FCST WILL BE ISSUED AT 160945Z CZFM 152316Z 1523/1524 14006KT P6SM BKN080 TEMPO 1523/1524 P6SM -FZRA BKN070 RMK NXT FCST WILL BE ISSUED AT 161545Z CZMT 160014Z 1600/1602 12005KT P6SM SCT025 BKN050 BKN080 TEMPO 1600/1602 5SM -SHRA BR SCT015 BKN025 OVC050 BECMG 1600/1602 14020G35KT RMK NXT FCST WILL BE ISSUED AT 161615Z CZUM 160138Z 1602/1614 VRB03KT P6SM SKC TEMPO 1602/1614 5SM IC RMK FCST BASED ON AUTO OBS. NXT FCST BY 160800Z CZVL 160539Z 1606/1618 15005KT P6SM SKC FM160900 16006KT P6SM FEW005 TEMPO 1609/1617 2SM BR HZ BKN005 RMK FCST BASED ON AUTO OBS. NXT FCST BY 161200Z DAAE 160500Z 1606/1706 24006KT 9999 FEW020 PROB40 TEMPO 1606/1609 3000 BR FEW010 BECMG 1610/1612 28010KT DAAG 160500Z 1606/1706 22006KT 9999 FEW020 PROB30 TEMPO 1606/1608 4000 BR DAAJ 160500Z 1606/1706 04008KT CAVOK DAAS 160500Z 1606/1706 VRB02KT 9999 FEW033 PROB30 TEMPO 1609/1609 3000 BR FEW008 BECMG 1610/1612 29010KT DAAT 160500Z 1606/1706 08012KT CAVOK PROB30 TEMPO 1608/1612 08015G25KT DAAV 160500Z 1606/1706 24006KT 9999 FEW020 PROB40 TEMPO 1606/1609 3000 BR FEW010 BECMG 1610/1612 28010KT DABB 160500Z 1606/1706 24006KT 8000 SCT026 PROB30 TEMPO 1606/1609 2000 BR FEW010 PROB40 TEMPO 1606/1610 FEW026TCU BECMG 1610/1612 27010KT BECMG 1613/1615 32010KT CAVOK DABC 160500Z 1606/1706 VRB02KT 9999 FEW033 PROB40 TEMPO 1606/1609 3000 BR FEW010 BECMG 1611/1613 28008KT DABS 160500Z 1606/1706 VRB02KT 9999 FEW040 BECMG 1609/1611 29010KT PROB30 TEMPO 1613/1618 FEW033TCU DABT 160500Z 1606/1706 VRB02KT 9999 FEW033 BECMG 1611/1613 24008KT PROB30 TEMPO 1613/1618 FEW033TCU DAOB 160500Z 1606/1706 20008KT 9999 FEW020 PROB40 1606/1610 4000 BR BKN015 PORB30 TEMPO 1606/1608 0600 FZFG BKN006 DAOI 160500Z 1606/1706 VRB02KT 9999 FEW030 SCT100 BECMG 1612/1614 24010KT CAVOK DAON 160500Z 1606/1706 VRB02KT 9999 FEW026 PROB40 TEMPO 1606/1608 3000 BR BECMG 1612/1614 CAVOK DAOO 160500Z 1606/1706 VRB02KT 5000 NSC TEMPO 1606/1609 3000 BR SCT010 PROB30 TEMPO 1600/1608 0500 FG BECMG 1608/1610 19010KT 6000 FEW026 BECMG 1612/1615 26008KT CAVOK DAUA 160500Z 1606/1706 06015KT 8000 NSC PROB40 1606/1616 08015G25KT 5000 DRSA PROB40 TEMPO 1610/1615 08020G30KT 3000 DRSA DAUB 160500Z 1606/1706 34008KT CAVOK BECMG 1610/1612 34016KT DAUG 160500Z 1606/1706 02010KT CAVOK BECMG 1620/1623 VRB02KT DAUH 160500Z 1606/1706 02012KT CAVOK BECMG 1700/1703 VRB02KT DAUI 160500Z 1606/1706 06015KT 8000 NSC PROB40 1606/1615 04015G25KT 3000 DRSA DAUZ 160500Z 1606/1706 06010KT CAVOK DBBB 160500Z 1606/1712 22010KT 8000 SCT012 TEMPO 1606/1610 VRB03KT 4000 BR TEMPO 1704/1710 VRB03KT 4000 BR DFFD 160500Z 1606/1712 10008KT 8000 NSC TEMPO 1606/1610 3500 DU TEMPO 1617/1620 4000 DU DFOO 160500Z 1606/1706 06008KT 8000 NSC TEMPO 1606/1610 4000 DU DGAA 160500Z 1606/1712 27010KT 3000 BR NSC BECMG 1610/1612 5000 HZ BECMG 1613/1615 18010KT FEW020 BECMG 1619/1621 8000 FEW012 DGSI 160500Z 1606/1706 23005KT 4000 BR BKN011 BECMG 1610/1612 7000 FEW016 BECMG 1614/1616 17005KT BECMG 1620/1622 00000KT NSC DIAP 160500Z 1606/1712 26005KT 8000 SCT012 PROB30 1606/1608 3000 BR PROB30 1616/1619 BKN012 FEW020CB DIBK 160500Z 1606/1706 16004KT 8000 NSC PROB30 1606/1608 4000 BR TEMPO 1608/1612 FEW015 PROB40 TEMPO 1613/1619 4000 HZ DIYO 160500Z 1606/1706 14006KT 8000 FEW013 PROB30 1606/1608 3000 BR PROB30 TEMPO 1606/1607 0600 FG PROB30 TEMPO 1614/1620 4000 HZ DNAA 160340Z 1606/1712 06005KT 5000 HZ NSC TEMPO 1606/1612 3000 DNCA 160340Z 1606/1712 VRB02KT 3000 BR SCT008 PROB30 1606/1607 0600 FG VV/// BECMG 1608/1610 04008KT 7000 NSW BKN010 DNEN 160340Z 1606/1712 03005KT 1500 HZ NSC BECMG 1608/1610 3000 DNIL 160340Z 1606/1712 07005KT 5000 HZ NSC PROB30 TEMPO 1606/1612 3000 BECMG 1610/1612 7000 NSW DNIM 160340Z 1606/1712 07004KT 3000 HZ NSC BECMG 1607/1609 5000 DNJO 160340Z 1606/1712 04006G16KT 5000 HZ NSC TEMPO 1602/1612 2000 DNKA 160340Z 1606/1712 04007KT 4000 HZ NSC TEMPO 1606/1612 2000 DNMM 160350Z 1606/1712 VRB02KT 5000 BR FEW010 TEMPO 1606/1607 2000 BECMG 1608/1610 27010KT 7000 NSW BKN013 BECMG 1615/1617 17005KT NSC DNPO 160340Z 1606/1712 00000KT 6000 FEW008 TEMPO 1606/1608 1500 BR PROB30 1606/1607 0800 FG VV/// BECMG 1608/1610 07006KT BKN010 DRRN 160500Z 1606/1712 08008KT 3000 DU NSC PROB40 TEMPO 1606/1612 08018KT 0800 BLDU DRZA 160500Z 1606/1706 10015KT 6000 NSC BECMG 1606/1608 10030KT PROB40 TEMPO 1608/1616 0800 BLDU BECMG 1616/1618 10012KT DRZR 160500Z 1606/1706 06008KT 1200 DU NSC TEMPO 1606/1610 0300 BECMG 1612/1614 3500 BECMG 1616/1618 6000 NSW DTMB 160540Z 1606/1706 19006KT 7000 NSC BECMG 1608/1610 25010KT 9999 FEW026 BECMG 1616/1618 18008KT DTNH 160540Z 1606/1706 20005KT 7000 NSC PROB30 TEMPO 1606/1607 4000 BR BECMG 1607/1609 25010KT 9999 FEW026 BECMG 1617/1619 18008KT DTTA 160540Z 1606/1706 20008KT 9999 SCT026 BECMG 1610/1612 26015KT BECMG 1618/1620 19004KT DTTJ 160630Z 1606/1706 30002KT 1000 FG NSC BECMG 1607/1609 VRB03KT 3000 BR NSC BECMG 1609/1611 32008KT 8000 FEW026 BECMG 1618/1620 18005KT BECMG 1700/1702 20013KT DTTZ 160540Z 1606/1706 31006KT 8000 FEW040 BECMG 1609/1611 22008KT 9999 SCT033 DXNG 160530Z 1606/1706 06010KT 6000 NSC DXXX 160530Z 1606/1712 VRB04KT 3500 FEW012 TEMPO 1606/1608 2000 BR BECMG 1608/1610 20010KT 7000 NSW BECMG 1622/1624 26004KT BECMG 1703/1705 2500 BR BECMG 1708/1710 7000 NSW EBBR 160500Z 1606/1712 25014KT 9999 FEW15TCU SCT030 TEMPO 1606/1706 25015G25KT PROB40 TEMPO 1606/1712 4000 SHRA SCT009 BKN014TCU PROB40 TEMPO 1621/1624 3000 SHRASN SHGS BKN004 SCT015CB EBCI 160500Z 1606/1712 25014KT 9999 SCT015TCU SCT025 TEMPO 1606/1706 25015G25KT PROB40 TEMPO 1606/1712 4000 SHRA BKN007 BKN014TCU PROB40 TEMPO 1620/1624 2500 SHSNRA SHSN BKN003 SCT015CB EBLG 160500Z 1606/1712 25014KT 9999 SCT015TCU BKN025 TEMPO 1606/1706 25015G25KT PROB40 TEMPO 1606/1712 4000 SHRA BKN008 BKN014TCU PROB40 TEMPO 1621/1624 2500 SHSNRA SHSN BKN003 SCT015CB EBOS 160500Z 1606/1712 26020G30KT 9999 SCT015TCU SCT035 PROB40 TEMPO 1606/1706 4000 SHRA BKN014TCU PROB40 TEMPO 1616/1624 26025G45KT 4000 SHRA SHGS BKN014CB EDDB 160500Z 1606/1706 21012KT 9999 SCT015 BKN030 PROB40 TEMPO 1612/1618 25015G25KT SHRA SCT015CB BKN020 EDDC 160500Z 1606/1706 17015G30KT 9999 SCT020 BKN035 TEMPO 1606/1608 17020G30KT 4000 -SNRA BKN010 BECMG 1610/1612 24015G25KT TEMPO 1610/1617 SHRA SCT015CB BKN025 BECMG 1621/1623 24010KT EDDE 160500Z 1606/1706 20015G25KT 9999 BKN030 TEMPO 1606/1621 24020G30KT SHRAGS SCT020CB EDDF 160500Z 1606/1712 21012KT 9999 BKN025 TEMPO 1606/1712 24015G25KT PROB30 TEMPO 1606/1712 24020G35KT TEMPO 1606/1703 SHRA BKN020TCU TEMPO 1703/1712 SHSN BKN020TCU PROB30 TEMPO 1703/1712 24020G35KT TSRA BKN015CB EDDG 160515Z 1606/1706 26010KT 9999 BKN020 TEMPO 1606/1618 27020G35KT 4000 SHRA BKN020CB PROB40 TEMPO 1606/1608 1200 TSSNRA BKN005 BKN012CB EDDH 160500Z 1606/1712 24010KT 9999 FEW010 SCT015 TEMPO 1606/1616 24015G25KT SHRA BKN008CB PROB30 TEMPO 1606/1616 3000 TSRAGS TEMPO 1616/1622 2500 SHRASN BKN008CB PROB30 TEMPO 1622/1712 2000 SHSN BKN008CB EDDK 160500Z 1606/1712 22011KT 9999 BKN030 PROB30 TEMPO 1606/1608 27020G30KT SHRA BKN020CB BECMG 1607/1609 25015G25KT TEMPO 1609/1618 27020G35KT SHRA BKN020CB BECMG 1617/1619 23010KT BECMG 1702/1705 27015G25KT TEMPO 1702/1704 SHRA BKN014CB PROB30 TEMPO 1704/1712 TSRASN BKN014CB TEMPO 1710/1712 27020G35KT EDDL 160500Z 1606/1712 23015G25KT 9999 BKN020 PROB30 TEMPO 1606/1608 27020G30KT 4500 SHRA BKN012CB TEMPO 1608/1618 27020G35KT SHRA BKN020CB BECMG 1618/1621 23012KT BECMG 1701/1703 27015G25KT TEMPO 1701/1704 SHSNRA BKN014CB PROB30 TEMPO 1704/1708 TSRASN BKN012CB TEMPO 1710/1712 27020G35KT EDDM 160500Z 1606/1712 23015G25KT 9999 BKN040 PROB30 TEMPO 1606/1608 RA TEMPO 1608/1624 27020G35KT 4000 SHRA BKN012CB PROB30 TEMPO 1612/1615 31030G45KT 2500 TSRAGS BKN008CB PROB30 TEMPO 1700/1706 2500 SHGSRA BKN012CB TEMPO 1706/1712 29020G35KT 1200 SHSN BKN008CB PROB30 TEMPO 1709/1712 0700 TSSN BKN004 EDDN 160500Z 1606/1706 21010KT 9999 SCT015 BKN030 TEMPO 1606/1616 4000 SHRA BKN012CB BECMG 1607/1609 26015G25KT PROB30 TEMPO 1610/1613 30025G35KT TSRA BKN008CB BECMG 1615/1617 25010KT PROB30 TEMPO 1619/1624 30015G30KT 3000 SHGSRA BKN012CB TEMPO 1700/1706 30015G30KT 1200 SHSN BKN008CB PROB30 TEMPO 1704/1706 31020G35KT 0700 TSSN BKN004 EDDP 160500Z 1606/1706 20015KT 9999 BKN030 BECMG 1606/1609 20015G25KT TEMPO 1611/1621 24020G30KT SHRAGS SCT020CB EDDR 160701Z 1607/1706 25015G30KT 9999 BKN015 PROB40 TEMPO 1607/1621 26020G35KT SHRA BKN008 BKN010TCU PROB40 TEMPO 1621/1706 26020G35KT SHRASN BKN010TCU PROB30 TEMPO 1700/1706 TSRASN BKN007CB EDDS 160500Z 1606/1706 22012KT 9999 BKN025 TEMPO 1606/1706 23015G30KT RA PROB30 TEMPO 1606/1621 SHRA BKN012 BKN025TCU PROB30 TEMPO 1621/1706 4000 -SHRASN BKN020TCU PROB30 TEMPO 1700/1706 23020G35KT TSRASN BKN020CB EDDT 160500Z 1606/1706 21012KT 9999 SCT015 BKN030 PROB40 TEMPO 1612/1618 25015G25KT SHRA SCT015CB BKN020 EDDV 160500Z 1606/1706 24010KT 9999 FEW010 SCT015 TEMPO 1606/1616 24015G25KT SHRA BKN008CB PROB30 TEMPO 1606/1616 3000 TSRAGS PROB30 TEMPO 1622/1706 2000 SHSN BKN008CB EDDW 160500Z 1606/1706 24010KT 9999 FEW010 SCT015 TEMPO 1606/1616 24015G25KT SHRA BKN008CB PROB30 TEMPO 1606/1616 3000 TSRAGS TEMPO 1616/1622 2500 SHRASN BKN008CB PROB30 TEMPO 1622/1706 2000 SHSN BKN008CB EDFH 160500Z 1606/1706 26015G30KT 9999 BKN012 TEMPO 1606/1621 27020G40KT SHRA BKN010TCU TEMPO 1621/1706 27020G40KT SHRASN BKN010TCU PROB30 TEMPO 1700/1706 TSSNRA BKN007CB EDLP 160500Z 1606/1706 23015G25KT 9999 BKN020 PROB30 TEMPO 1606/1609 27020G30KT 4500 SHRA BKN020CB TEMPO 1609/1618 27020G35KT SHRA BKN020CB TEMPO 1700/1706 27020G30KT TSRASN BKN020CB EDLV 160500Z 1606/1706 23015G25KT 9999 BKN020 TEMPO 1606/1609 27020G30KT 4500 SHRA BKN014CB TEMPO 1609/1618 27020G35KT SHRA BKN020CB BECMG 1619/1622 22012KT BECMG 1700/1703 27015G25KT PROB30 TEMPO 1700/1704 27020G30KT TSRASN BKN020CB EDLW 160630Z 1606/1706 23015KT 9999 BKN020 TEMPO 1606/1618 27020G35KT 4000 SHRA BKN012CB PROB40 TEMPO 1607/1608 TSRA TEMPO 1618/1706 27020G30KT 2000 SHSNRA BKN005 BKN015CB PROB30 TEMPO 1618/1702 TSSNRA EDNY 160500Z 1606/1706 23015G25KT 9999 BKN035 TEMPO 1606/1621 4000 SHRA BKN012CB BECMG 1606/1608 25020G35KT PROB30 TEMPO 1610/1614 25025G45KT PROB30 TEMPO 1614/1617 30025G45KT 2500 TSRA BKN008CB BECMG 1620/1622 25015G25KT TEMPO 1700/1703 3000 SHRAGS BKN012CB TEMPO 1703/1706 30020G35KT 1200 TSSNRA BKN008CB EDOP 160500Z 1606/1706 21012KT 9999 BKN011 BECMG 1606/1608 SCT010 BKN025 PROB30 TEMPO 1613/1616 24015G25KT SHRA SCT015CB BKN020 BECMG 1622/1701 BKN012 EDSB 160500Z 1606/1706 21015G25KT 9999 BKN030 TEMPO 1606/1706 21015G35KT SHRA BKN025TCU PROB30 TEMPO 1621/1706 22020G40KT TSRA BKN020CB EEEI 160530Z 1606/1706 15016G26KT CAVOK TEMPO 1606/1609 OVC010 TEMPO 1610/1621 16020G38KT BECMG 1622/1700 BKN008 EETN 160530Z 1606/1706 15018G30KT 9999 BKN015 BECMG 1608/1610 SCT020 PROB40 TEMPO 1609/1619 15020G40KT BECMG 1700/1702 12014KT EFHK 160535Z 1606/1706 15017KT 9999 -SN BKN013 TEMPO 1606/1610 BKN015 TEMPO 1608/1706 14017G27KT BECMG 1610/1612 SCT012 EFJY 160523Z 1606/1706 15016KT 9999 -SN OVC016 TEMPO 1606/1613 16015G25KT 3000 OVC012 TEMPO 1613/1621 16015G25KT BECMG 1700/1703 OVC008 TEMPO 1703/1706 OVC012 EFKU 160528Z 1606/1706 14013KT 9999 -SN OVC014 TEMPO 1606/1614 16015G25KT 3000 BKN015 BECMG 1614/1616 NSW FEW015 BECMG 1701/1703 BKN013 TEMPO 1703/1706 5000 -SN BKN008 EFOU 160533Z 1606/1706 16014KT 9999 -SN OVC025 TEMPO 1606/1621 15017G27KT 7000 -SG OVC014 EFRO 160533Z 1606/1706 16012KT 9000 -SG OVC008 TEMPO 1606/1618 17015G25KT 2000 -SN OVC015 TEMPO 1618/1623 7000 -SN OVC015 BECMG 1623/1701 10006KT SCT015 EFTP 160523Z 1606/1706 15010KT 9999 -SN OVC017 TEMPO 1606/1613 16015G25KT 2500 OVC011 TEMPO 1613/1624 14017G27KT TEMPO 1700/1706 12015G25KT OVC013 EFTU 160535Z 1606/1706 14013G23KT 9999 SCT010 BKN016 TEMPO 1606/1612 14017G27KT BKN010 PROB40 1606/1609 6000 -SG BKN008 TEMPO 1612/1620 14017G27KT EFVA 160535Z 1606/1706 15017KT 9999 -SN SCT012 OVC020 TEMPO 1606/1609 14018G28KT BKN014 TEMPO 1609/1614 14015G25KT BECMG 1703/1706 09010KT EGAA 160457Z 1606/1706 25013KT 9999 FEW015CB SCT025 TEMPO 1606/1706 26020G35KT 0800 SHSN BKN004 BKN012CB PROB40 TEMPO 1606/1706 0200 +SHSN VV/// EGBB 160503Z 1606/1706 25015KT 9999 FEW012 SCT030 TEMPO 1606/1609 6000 SHRA PROB30 TEMPO 1606/1616 27016G26KT 2500 SHRASN BKN008 TEMPO 1616/1622 27020G30KT 1200 SHSN BKN005 PROB30 TEMPO 1622/1706 27020G30KT 1200 SHSN BKN005 EGCC 160503Z 1606/1712 25017KT 9999 SCT030 TEMPO 1606/1610 26020G30KT 2500 SHRASN PROB40 TEMPO 1606/1610 1200 SHSN BKN004 BKN008CB TEMPO 1610/1706 26020G30KT 1200 SHSN BKN005 PROB30 TEMPO 1615/1705 27030G40KT 0700 +SHSN BKN002 TEMPO 1706/1712 26020G30KT 2500 SHRASN EGCN 160459Z 1606/1706 26014KT 9999 SCT025 TEMPO 1606/1706 27018G28KT 2000 -SHSN BKN005 PROB40 TEMPO 1606/1706 1200 SHSN BKN002 EGFF 160503Z 1606/1706 28017KT 9999 FEW010 SCT020 TEMPO 1606/1615 28020G30KT 6000 SHRA PROB30 TEMPO 1606/1615 29030G40KT 4000 +SHRA SHGS BKN010CB TEMPO 1615/1703 2500 SHRASN BKN008 BKN010CB PROB30 TEMPO 1615/1703 1200 SHSN BKN004 EGGD 160502Z 1606/1706 25016KT 9999 SCT020 TEMPO 1606/1618 27025G40KT 7000 SHRA BKN012CB PROB30 TEMPO 1606/1618 3000 +SHGS BKN008 TEMPO 1618/1706 27025G40KT 1000 SHSN +SHGS BKN004 BKN010CB EGGP 160503Z 1606/1706 25017KT 9999 SCT030 TEMPO 1606/1610 26020G30KT 2500 SHRASN PROB40 TEMPO 1606/1610 1200 SHSN BKN004 BKN008CB TEMPO 1610/1704 26020G30KT 1200 SHSN BKN005 PROB30 TEMPO 1615/1704 27030G40KT 0700 +SHSN BKN002 TEMPO 1704/1706 26020G30KT 2500 SHRASN EGGW 160459Z 1606/1706 26017KT 9999 FEW025 TEMPO 1606/1706 26020G34KT PROB30 TEMPO 1606/1616 4000 SHRASN SHGS BKN012 BKN020CB PROB30 TEMPO 1616/1706 1500 SHSN BKN007 EGKK 160455Z 1606/1712 26015KT 9999 SCT020 TEMPO 1608/1615 27015G25KT TEMPO 1615/1623 26020G32KT 4000 SHGS SHRASN SCT005 BKN012CB PROB30 TEMPO 1617/1623 1200 SHSN BKN005 BKN010CB PROB30 TEMPO 1623/1706 4000 -SHSN SCT005 BKN012 BECMG 1706/1709 26015G25KT EGLL 160454Z 1606/1712 25012KT 9999 SCT025 PROB30 TEMPO 1606/1612 26015G25KT 7000 SHRA TEMPO 1612/1617 26018G28KT 7000 SHRA PROB30 TEMPO 1617/1624 27018G28KT 4000 SHGS SHRASN BKN014CB TEMPO 1700/1712 27018G28KT EGNM 160502Z 1606/1706 26018KT 9999 SCT020 TEMPO 1606/1706 27025G40KT 1000 SHSN SHGS BKN005 BKN010CB PROB30 TEMPO 1612/1706 0200 +TSSN BKN001 EGNT 160459Z 1606/1706 27015KT 9999 SCT030 TEMPO 1606/1706 28018G28KT 2000 -SHSN BKN006 PROB30 TEMPO 1606/1706 1200 SHSN BKN002 EGNX 160503Z 1606/1706 25017KT 9999 SCT030 TEMPO 1606/1610 26020G30KT 2500 SHRASN PROB40 TEMPO 1606/1610 1200 SHSN BKN004 BKN008CB TEMPO 1610/1622 26020G30KT 1200 SHSN BKN005 PROB30 TEMPO 1615/1622 27030G40KT 0700 +SHSN BKN002 PROB30 TEMPO 1622/1706 26020G30KT 1200 SHSN BKN005 EGPD 160458Z 1606/1706 24009KT 9999 FEW040 PROB40 TEMPO 1606/1615 24015G25KT TEMPO 1703/1706 27018G28KT 6000 -SHSN BKN008 EGPF 160459Z 1606/1706 23012KT 9999 FEW012CB SCT020 TEMPO 1606/1706 1500 SHSN BKN003 PROB30 TEMPO 1606/1706 25018G28KT 0300 +SHSN VV/// EGPH 160458Z 1606/1706 23012KT 9999 SCT040 TEMPO 1606/1706 24017G27KT 1800 SHSN BKN006CB EGPK 160459Z 1606/1706 28015KT 9999 FEW010CB SCT020 TEMPO 1606/1706 30020G30KT 2000 SHRASN BKN006 PROB30 TEMPO 1606/1706 28026G40KT 1200 SHSN +TSGS BKN003 EGQS 160126Z 1603/1621 23012KT 9999 FEW014CB SCT040 TEMPO 1603/1621 2000 SHSN SHGS SCT005 BKN012CB PROB30 TEMPO 1603/1621 24018G28KT 0500 +SHSN VV/// EGSS 160459Z 1606/1712 26014KT 9999 FEW025 TEMPO 1606/1712 26020G32KT PROB30 TEMPO 1606/1616 4000 SHRASN SHGS BKN012 BKN020CB PROB30 TEMPO 1616/1706 1500 SHSN BKN007 EGUL 160443Z 1604/1710 26012G20KT 6000 -SHRA SCT015 BKN020 610209 QNH2918INS TEMPO 1604/1607 BKN018 BECMG 1611/1612 26015G25KT 6000 -SHRA BKN020 620209 QNH2920INS TEMPO 1618/1623 5000 -RASN BKN018 BECMG 1701/1702 27015G25KT 6000 -SHRA BKN030 620309 QNH2926INS TEMPO 1702/1710 27025G35KT TX08/1614Z TN03/1609Z EGUN 160621Z 1606/1710 26012G20KT 6000 -SHRA BKN020 610209 QNH2918INS BECMG 1611/1612 26015G25KT 6000 -SHRA BKN020 620209 QNH2920INS TEMPO 1618/1623 5000 -RASN BECMG 1701/1702 27015G25KT 6000 -SHRA BKN030 QNH2926INS TEMPO 1702/1710 27025G35KT TX08/1614Z TN03/1609Z EGVN 160439Z 1606/1706 26012KT 9999 FEW030 PROB30 TEMPO 1606/1612 7000 SHRA BKN020 BECMG 1609/1611 27015G25KT PROB40 TEMPO 1612/1618 4000 -SHRASN SCT014CB PROB30 TEMPO 1618/1703 2000 SHSN BKN007 BECMG 1703/1705 27012KT EGVO 151929Z 1521/1609 26014KT 9999 BKN030 TEMPO 1521/1606 27016G26KT PROB30 TEMPO 1521/1609 -SHRA SCT015 BECMG 1606/1609 27018G28KT EGWU 160452Z 1606/1624 26013KT 9999 FEW025 TEMPO 1606/1624 27015G25KT PROB30 TEMPO 1606/1616 SCT022 PROB30 TEMPO 1616/1624 3000 SHRASN BKN012CB EGXC 160117Z 1603/1621 25014KT 9999 SCT025 TEMPO 1603/1621 -SHRA SCT020 TEMPO 1603/1610 26015G25KT PROB30 TEMPO 1603/1621 3000 SHRASN BKN010CB BECMG 1610/1612 26018G28KT EGXW 160316Z 1603/1621 26014KT 9999 SCT025 PROB30 TEMPO 1603/1607 27017G27KT 3000 SHRASN BKN012CB BECMG 1607/1610 26016G26KT PROB30 TEMPO 1607/1621 1500 SHSN BKN007 BKN015CB EGYP 160135Z 1603/1621 29011KT CAVOK BECMG 1608/1611 31015G25KT 520003 PROB40 TEMPO 1610/1613 34020G30KT 530003 PROB30 TEMPO 1610/1613 VRB08KT SCT007 560003 BECMG 1613/1615 34015G25KT 50//// TEMPO 1615/1620 34025G35KT BECMG 1619/1621 30015G25KT EHAM 160546Z 1606/1712 27018G28KT 9999 SCT025 TEMPO 1606/1618 28022G33KT 6000 SHRA SHRAGS SCT008 SCT015CB BKN020 BECMG 1617/1619 24014KT TEMPO 1618/1712 27022G35KT 4500 SHRAGS SHRASN BKN012 SCT015CB PROB30 TEMPO 1618/1712 1500 SHSN VV003 BECMG 1703/1706 27020G30KT BECMG 1709/1712 30025G35KT EHBK 160508Z 1606/1712 24015KT 9999 BKN020 TEMPO 1606/1618 26018G28KT 6000 SHRA SHRAGS SCT012 SCT015CB BKN018 PROB40 TEMPO 1618/1712 26015G27KT 4000 SHRAGS SHRASN SCT008 BKN012 SCT015CB PROB30 TEMPO 1618/1712 1600 SHSN VV003 BECMG 1709/1712 27020G32KT EHEH 160507Z 1606/1712 23013KT 9999 SCT020 BKN030 TEMPO 1606/1712 25015G25KT 4000 SHRA SCT010 SCT018CB BKN022 PROB30 TEMPO 1619/1712 3000 SHRASN TSRAGS SCT008 SCT015CB BKN020 EHGG 160508Z 1606/1712 25015KT 9999 BKN020 TEMPO 1606/1618 27017G27KT 6000 SHRA SHRAGS SCT012 SCT015CB BKN018 PROB40 TEMPO 1618/1712 4000 SHRAGS SHRASN SCT008 BKN012 SCT015CB PROB30 TEMPO 1618/1712 1600 SHSN VV003 BECMG 1709/1712 29020G35KT EHGR 160449Z 1606/1618 25012G22KT 9999 SCT020 BKN050 TEMPO 1606/1618 27015G30KT 4500 SHRA SCT010 SCT018CB BKN022 PROB30 TEMPO 1606/1618 3000 SHRASN TSRAGS SCT008 BKN015CB EHKD 160543Z 1606/1618 26018G28KT 9999 SCT020 BKN070 TEMPO 1606/1618 27025G38KT 4000 -SHRA SCT010 SCT018CB BKN020 PROB30 TEMPO 1606/1618 27025G42KT 2500 SHRASN TSRAGS SCT008 BKN015CB EHRD 160542Z 1606/1712 27018G28KT 9999 SCT025 TEMPO 1606/1618 28022G33KT 6000 SHRA SHRAGS SCT008 SCT015CB BKN020 BECMG 1617/1619 24014KT TEMPO 1618/1712 27022G35KT 4500 SHRAGS SHRASN BKN012 SCT015CB PROB30 TEMPO 1618/1712 1500 SHSN VV003 BECMG 1703/1706 27020G30KT BECMG 1709/1712 30025G35KT EHWO 160538Z 1606/1618 24012G22KT 9999 SCT020 BKN050 TEMPO 1606/1618 25015G30KT 4500 SHRA SCT010 SCT018CB BKN022 PROB30 TEMPO 1606/1618 26015G35KT 3000 SHRASN TSRAGS SCT008 BKN015CB EICK 160500Z 1606/1706 28022G33KT 9999 FEW020 TEMPO 1610/1624 5000 SHRASNGS BKN010 BKN018CB PROB40 TEMPO 1616/1624 1200 SHSN BKN004 BKN012CB TEMPO 1619/1624 29030G48KT EIDW 160500Z 1606/1706 26020G30KT 9999 SCT012 BKN045 TEMPO 1606/1621 5000 SHRASN SCT018CB PROB30 TEMPO 1615/1621 1500 SHSN BKN004 EIKN 160500Z 1606/1706 27022G33KT 9999 FEW012 SCT020CB TEMPO 1606/1706 3000 SHRASNGS BKN008 BKN018CB PROB40 TEMPO 1606/1624 0400 SHSN BKN003 BKN014CB TEMPO 1612/1624 27030G45KT PROB40 TEMPO 1612/1618 TSRASN EINN 160500Z 1606/1706 28022G33KT 9999 FEW015 SCT020CB TEMPO 1606/1624 4000 SHRAGS BKN010 BKN018CB BECMG 1606/1608 29028G43KT TEMPO 1606/1706 SHRASN PROB40 TEMPO 1609/1620 TSRASN BKN008 EKAH 160516Z 1606/1706 22010KT 9999 BKN015 TEMPO 1606/1706 4000 SHRASN BKN008 SCT020CB EKBI 160516Z 1606/1706 22010KT 9999 BKN015 TEMPO 1606/1706 2500 SHRASNGS BKN008 SCT020CB EKCH 160539Z 1606/1706 22015KT 9999 BKN007 BECMG 1606/1609 BKN015 TEMPO 1609/1618 4000 SHRASN BKN008 FEW020CB TEMPO 1618/1706 BKN008 EKKA 160605Z 1606/1706 22010KT 9999 SCT015 TEMPO 1606/1706 22012G22KT 2500 SHRASNGS BKN008 SCT020CB EKSP 160537Z 1606/1706 25015KT 9999 SCT007 BKN015 TEMPO 1606/1706 2500 SHRASNGS BKN008 SCT020CB EKYT 160604Z 1606/1706 21012KT 9999 SCT015 TEMPO 1606/1706 21015G25KT 2500 SHRASNGS BKN008 SCT020CB ELLX 160500Z 1606/1712 24015G25KT 9999 BKN012 TEMPO 1606/1620 24020G35KT TEMPO 1606/1620 4000 SHRA BKN012TCU BECMG 1620/1623 SCT015 TEMPO 1620/1712 6000 -SHSNRA BKN010 ENAN 160500Z 1606/1706 16020KT CAVOK TEMPO 1606/1706 16025G35KT ENBO 160500Z 1606/1706 13030G40KT 9999 FEW045 SCT100 TEMPO 1606/1615 13040G55KT BECMG 1615/1617 11025KT TEMPO 1615/1706 11030G40KT ENBR 160646Z 1606/1706 15008KT 9999 -SHRASN SCT010 BKN025 TEMPO 1606/1706 1200 SHSNRAGS BKN008 SCT018CB TEMPO 1606/1615 22015KT PROB30 TEMPO 1612/1706 TS ENDU 160500Z 1606/1706 15009KT 9999 FEW040 SCT100 TEMPO 1606/1612 15020G35KT TEMPO 1612/1706 13015G25KT ENGC 160500Z 1606/1706 23020KT 9999 FEW015TCU SCT025 TEMPO 1606/1706 23025G35KT 4000 SHRAGS BKN012CB PROB30 TEMPO 1606/1706 TS ENGM 160500Z 1606/1706 15010KT 3000 -SN VV012 TEMPO 1606/1614 0800 SN VV004 TEMPO 1614/1706 2000 BR OVC004 PROB30 1620/1706 0300 FZFG VV001 ENNA 160500Z 1606/1706 18025G35KT 9999 FEW010 BKN025 TEMPO 1606/1612 18035G45KT TEMPO 1606/1706 BKN012 TEMPO 1612/1706 18012KT ENOA 160500Z 1606/1706 23020KT 9999 FEW015TCU SCT025 TEMPO 1606/1706 23025G35KT 4000 SHRAGS BKN012CB PROB30 TEMPO 1606/1706 TS ENOL 160500Z 1606/1706 14030G40KT 9999 FEW040 BKN070 PROB40 TEMPO 1606/1609 14040G50KT BECMG 1610/1612 14020G30KT TEMPO 1612/1615 14030G40KT BECMG 1618/1620 13015KT ENRY 160500Z 1606/1706 15015KT 3000 -SNRA SCT004 OVC012 TEMPO 1606/1612 16018G28KT 0800 SN VV004 BECMG 1612/1615 21012KT 9999 SCT020 PROB40 1622/1706 0500 FZFG VV002 ENSB 160500Z 1606/1706 12008KT 9999 FEW020 BKN035 TEMPO 1609/1706 12020KT ENTC 160500Z 1606/1706 18020KT 9999 FEW040 BKN070 TEMPO 1606/1609 18025G35KT TEMPO 1615/1706 20008KT ENTO 160500Z 1606/1706 15018KT 3000 -SNRA OVC008 TEMPO 1606/1611 17018G28KT 0800 SN BR VV002 BECMG 1611/1614 22012KT 9999 SCT020 PROB40 1623/1706 0300 FZFG VV001 ENVA 160500Z 1606/1706 12015KT 9999 SCT045 TEMPO 1606/1624 14020G30KT ENZV 160500Z 1606/1706 15008KT 9999 FEW015 BKN030 TEMPO 1606/1706 4000 SHRASNGS BKN012CB TEMPO 1606/1618 25015KT PROB30 TEMPO 1612/1706 TS PROB40 TEMPO 1700/1706 1200 SHSNGS VV008 EPBY 160530Z 1606/1706 15012KT 6000 -SN OVC015 TEMPO 1606/1610 15018G30KT 2000 SN BLSN BKN004 OVC009 TEMPO 1610/1618 3000 SN BKN004 OVC009 BECMG 1618/1620 22012KT PROB40 TEMPO 1618/1706 24015G25KT -SN OVC009 EPGD 160530Z 1606/1706 15020KT 9999 OVC014 TEMPO 1606/1618 15022G35KT BECMG 1606/1608 4000 -SN TEMPO 1606/1618 1500 SN BLSN BKN003 OVC009 BECMG 1618/1620 14010KT BKN005 BECMG 1622/1624 25010KT EPKK 160530Z 1606/1706 06007KT 9999 BKN040 TEMPO 1607/1609 3500 -SN BR BKN014 BECMG 1609/1612 BKN014 TEMPO 1613/1620 1500 SN BKN005 OVC014 BECMG 1618/1620 25022G34KT TEMPO 1620/1703 2000 SHRASN SHSN BKN007 OVC013 BECMG 1703/1706 24014KT SCT020 EPKT 160530Z 1606/1706 16012KT 9999 BKN030 TEMPO 1606/1609 17016G28KT 3000 -SN BR BKN014 BECMG 1609/1611 18018G28KT BKN012 TEMPO 1611/1621 1500 SN BKN004 OVC013 PROB30 TEMPO 1611/1615 -FZRA BECMG 1618/1621 24017G27KT TEMPO 1621/1702 1500 SHRASN SHSN BKN005 BKN013CB BECMG 1702/1705 21012KT SCT017 EPLL 160530Z 1606/1706 13012KT 7000 -SN BKN025 BECMG 1606/1608 2000 -SN BKN012 TEMPO 1607/1701 15020G32KT 1000 SN BKN005 BKN010 PROB40 TEMPO 1608/1624 0800 SN BLSN OVC002 BECMG 1700/1703 26015KT 9999 TEMPO 1700/1706 26018G30KT 3000 -SN BKN007 EPMO 160530Z 1606/1706 15016KT CAVOK TEMPO 1607/1614 16020G32KT BECMG 1612/1614 3000 -SN BKN008 OVC014 TEMPO 1614/1702 16016G28KT 0800 SN BLSN OVC002 BECMG 1702/1705 26015KT 9999 TEMPO 1704/1706 26018G30KT 3000 -SN BKN005 EPPO 160530Z 1606/1706 16010KT 9999 BKN020 TEMPO 1606/1615 17020G30KT 4000 -SN BR BKN012 PROB40 TEMPO 1606/1612 1000 SN OVC004 TEMPO 1615/1706 17018G30KT 4000 RASN BKN008 BECMG 1622/1701 24006KT EPRZ 160530Z 1606/1706 13012KT 9999 SCT027 BECMG 1606/1609 17017G27KT TEMPO 1609/1618 18022G37KT BECMG 1612/1615 BKN014 TEMPO 1615/1624 1200 BLSN SN BKN007 OVC014 PROB30 TEMPO 1618/1621 -FZRA BECMG 1621/1624 24016G27KT TEMPO 1700/1706 1500 BLSN SN BKN005 OVC013 EPSC 160530Z 1606/1706 14018KT 3000 -SN BKN005 TEMPO 1606/1607 14020G32KT 0800 SN BLSN BKN002 BECMG 1607/1609 16008KT 9999 NSW BKN013 TEMPO 1607/1624 4000 RA BR BKN007 BECMG 1616/1618 24012KT PROB40 TEMPO 1618/1624 27015G25KT 3000 SN SNRA BKN003 EPWA 160530Z 1606/1706 15016KT CAVOK TEMPO 1607/1614 16020G32KT BECMG 1612/1614 3000 -SN BKN008 OVC014 TEMPO 1614/1702 16016G28KT 0800 SN BLSN OVC002 BECMG 1702/1705 26015KT 9999 TEMPO 1704/1706 26018G30KT 3000 -SN BKN007 EPWR 160530Z 1606/1706 17014KT 9999 BKN030 TEMPO 1606/1615 17022G34KT PROB40 TEMPO 1606/1612 4000 -SN BR BKN012 PROB40 TEMPO 1612/1702 4000 RA BKN014 BECMG 1620/1623 25010KT PROB40 TEMPO 1702/1706 BKN007 ESGG 160530Z 1606/1706 14018G33KT 4000 -SN BKN015 TEMPO 1606/1609 1200 SN VV005 BECMG 1607/1609 20006KT BECMG 1609/1611 9999 NSW SCT005 PROB40 1609/1613 2500 RASN BKN004 PROB40 1613/1618 3000 BR BKN005 PROB40 1619/1706 0300 FG VV002 ESKN 160530Z 1606/1706 17022G38KT 9999 OVC012 BECMG 1606/1608 4000 -SN TEMPO 1608/1619 1200 SN VV009 TEMPO 1619/1706 1000 RASN BR BKN003 ESMS 160522Z 1606/1706 17020KT 0700 SN BKN002 TEMPO 1606/1608 5000 -SN BKN010 BECMG 1608/1610 20010KT 9999 NSW SCT008 BKN015 TEMPO 1610/1618 4000 SHRASN BKN008 SCT020CB TEMPO 1618/1706 BKN008 ESSA 160530Z 1606/1706 17020G32KT 9999 OVC020 BECMG 1608/1610 4000 -SN VV012 TEMPO 1610/1706 1200 SN VV006 ETAD 160631Z 1606/1709 23010G15KT 8000 -SHRA BKN020 620209 621102 QNH2934INS TEMPO 1606/1610 23015G20KT BKN015 BECMG 1609/1610 27018G25KT 8000 -SHRASN SCT030 QNH2944INS TEMPO 1610/1614 26025G35KT 520004 BECMG 1623/1624 24012G20KT 8000 -SHRASN BKN020 610209 611102 QNH2942INS TX07/1612Z TN01/1703Z ETAR 160517Z 1606/1708 24015G20KT 8000 -SHRA BKN020 620209 621102 520004 QNH2937INS TEMPO 1606/1608 BKN015 BECMG 1623/1624 26015G25KT 8000 -SHRASN BKN020 610209 611102 520004 QNH2940INS TX07/1612Z TN02/1619Z ETEB 160632Z 1606/1712 22010G15KT 8000 -SHRA BKN014 620209 QNH2941INS TEMPO 1606/1610 BKN015 BECMG 1614/1615 22015G25KT 8000 -SHRA BKN025 620259 510003 QNH2940INS BECMG 1702/1703 24010G15KT 9999 NSW BKN010 620259 QNH2938INS TEMPO 1702/1709 8000 -SHSN BKN008 BECMG 1709/1710 24015G25KT 6000 -SHSN BKN015 620159 QNH2930INS TX08/1612Z TNM01/1606Z ETIC 160641Z 1606/1712 15012KT 8000 -SHRA BKN015 620209 QNH2941INS TEMPO 1606/1610 BKN010 BECMG 1614/1615 22015G25KT 8000 -SHRA BKN025 620259 QNH2940INS BECMG 1702/1703 24010G15KT 9999 NSW BKN010 620259 QNH2938INS TEMPO 1702/1709 8000 -SHSN BKN008 BECMG 1709/1710 24015G25KT 6000 -SHSN BKN015 620159 QNH2930INS TX05/1612Z TNM01/1606Z ETIK 160602Z 1606/1712 22010G15KT 8000 -SHRA BKN020 620209 QNH2941INS TEMPO 1606/1610 BKN015 BECMG 1614/1615 22015G25KT 8000 -SHRA BKN025 620259 QNH2940INS BECMG 1702/1703 24010G15KT 9999 NSW BKN010 620259 QNH2938INS TEMPO 1702/1709 8000 -SHRA BKN008 BECMG 1709/1710 24015G25KT 6000 -SHRA BKN015 620159 QNH2930INS TX08/1612Z TNM01/1606Z ETNG 160500Z 1606/1621 25015G28KT 9999 SCT012TCU SCT025 TEMPO 1606/1621 27018G35KT 5000 SHRA BKN010TCU BKN020 PROB30 TEMPO 1609/1621 3000 SHRAGS BECMG 1615/1618 25010G20KT ETNH 160533Z 1606/1618 24012G22KT 8000 NSW SCT012 BKN030 TEMPO 1606/1618 23015G25KT 3000 SHRA SCT006 BKN010CB PROB30 1606/1618 23015G30KT 2500 TSRAGS BKN005 BKN010CB BY ETGL ETNW 160520Z 1606/1706 25012G22KT 9999 NSW BKN030 BKN100 TEMPO 1606/1615 24015G30KT 2000 TSGS BKN010 BKN015CB TEMPO 1615/1706 24015G25KT 3000 SHRASN BKN005 BKN012CB PROB30 1615/1624 24015G30KT 2500 TSRASN BKN004 BKN012CB BY ETGL ETOU 160631Z 1606/1709 23009KT 8000 -SHRA BKN015 620159 621052 QNH2935INS TEMPO 1606/1611 BKN010 BECMG 1610/1611 26010G15KT 8000 -SHRA BKN020 610209 611102 QNH2938INS BECMG 1623/1624 24010G15KT 8000 -SHRASN BKN020 610209 611102 QNH2942INS TX07/1612Z TN01/1703Z EVLA 160203Z 1603/1703 15012KT CAVOK TEMPO 1603/1621 15017G30KT TEMPO 1618/1621 1500 SN BKN010 TEMPO 1621/1703 1500 SN BKN005 OVC010 EVRA 160201Z 1603/1703 15017G27KT 9999 FEW020 TEMPO 1603/1621 15020G30KT FACT 160400Z 1606/1712 20008KT CAVOK BECMG 1612/1614 18022KT BECMG 1618/1620 14010KT TX31/1612Z TN19/1704Z FAGG 160600Z 1606/1706 14012KT 9999 FEW035 FM162000 VRB03KT 9999 SCT010 BKN020 PROB40 1621/1704 2000 BR BKN008 TX26/1612Z TN17/1704Z FCBB 160500Z 1606/1712 22004KT 4500 TSRA SCT013 BKN023 FEW026CB BECMG 1607/1610 8000 NSW BECMG 1616/1619 SCT013 FCPP 160500Z 1606/1706 18007KT 9000 SCT013 BKN023 PROB30 1614/1618 SCT013 FEW030CB FEFF 160500Z 1606/1712 00000KT 3000 BR NSC FM160900 34006KT CAVOK BECMG 1615/1616 3000 HZ FU BECMG 1619/1621 CAVOK FGBT 160500Z 1606/1706 20006KT 9999 SCT010 BECMG 1608/1610 BKN010 FEW020CB TEMPO 1614/1622 TS FGSL 160500Z 1606/1712 24006KT 8000 SCT010 FEW018CB TEMPO 1607/1613 4000 TSRA BKN010 FEW018CB TEMPO 1617/1623 TS FIMP 160510Z 1606/1712 15020G30KT 9999 SCT015 TEMPO 7000 -SHRA FEW008 BKN014 TEMPO 1612/1712 3000 SHRA/TSRA FEW005 FEW013CB BKN013 0VC050 BECMG 1612/1614 12030G40KT FIMR 160515Z 1606/1700 13030G50KT 5000 -RA FEW006 FEW013CB BKN015 OVC090 TEMPO 2000 RA/TSRA FEW004 FEW012CB BKN013 FJDG 160100Z 1601/1701 26009KT 9999 FEW020 BKN250 QNH2975INS TX32/1606Z TN27/1601Z FKKD 160500Z 1606/1712 VRB03KT 4000 HZ SCT016 TEMPO 1606/1608 2000 BR BKN013 FEW016CB FKYS 160500Z 1606/1706 VRB03KT 2000 BR BKN006 BECMG 1606/1609 6000 NSW BKN020 BECMG 1620/1622 BKN006 FMCZ 160500Z 1606/1706 33012KT 9999 FEW022 SCT022TCU PROB30 TEMPO 1606/1610 VRB15G25KT 2000 TSRA SCT015CB FMEE 160500Z 1606/1712 32004KT 9999 FEW030 SCT050 BECMG 1606/1608 14015KT TEMPO 1606/1706 14025G35KT FEW020TCU BECMG 1621/1623 7000 RA BKN030 OVC100 TEMPO 1620/1706 4000 SHRA BKN015 FMMI 160500Z 1606/1712 14010KT 9999 SCT017 SCT020 FMNM 160500Z 1606/1706 10005KT 9999 SCT017CB SCT040 BECMG 1607/1610 32010KT PROB30 TEMPO 1615/1624 4000 TSRA BECMG 1615/1618 10005KT FNLU 160500Z 1606/1712 VRB03KT 8000 BKN020 BECMG 1611/1613 27004KT 9999 BKN023 TEMPO 1615/1619 VRB03KT 9999 NSC BECMG 1621/1623 17004KT 8000 NSW FOOG 160500Z 1606/1706 20008KT 9999 SCT008 BKN030 PROB30 TEMPO 1607/1612 4000 RA BKN006 OVC026 TEMPO 1615/1621 TS FOOL 160500Z 1606/1712 20006KT 9999 TS SCT010 FEW020CB BKN030 TEMPO 1607/1611 4000 TSRA BKN008 FEW018CB OVC026 BECMG 1612/1615 NSW FEW013 FPST 160500Z 1606/1712 12008KT 9999 FEW020CB BKN040 BECMG 1613/1617 5000 SHRA FEW017CB BKN030 BECMG 1620/1623 NSW FSIA 160501Z 1606/1706 33015KT 9999 SCT020 PROB40 TEMPO 1612/1618 -SHRA BKN018 PROB40 TEMPO 1622/1702 -SHRA BKN018 FTTJ 160515Z 1606/1712 03012KT 4000 DU NSC TEMPO 1608/1615 6000 NSW FZAA 160500Z 1606/1712 22004KT 6000 -TSRA BKN016 FEW028CB BECMG 1608/1610 30010KT 9999 NSW FEW022 FEW030CB PROB30 TEMPO 1614/1618 TS BECMG 1620/1622 24004KT FEW018 GABS 160500Z 1606/1712 VRB05KT 8000 NSC PROB40 TEMPO 1606/1610 4500 HZ GAGO 160500Z 1606/1706 09012KT 6000 NSC TEMPO 1608/1616 12015G25KT 3500 BLDU GBYD 160530Z 1606/1712 01010KT CAVOK GCFV 160200Z 1603/1703 01025KT 9999 BKN030 TX20/1614Z TN16/1606Z PROB40 TEMPO 1603/1621 02020G30KT PROB30 TEMPO 1608/1618 02030G40KT GCGM 160200Z 1603/1703 35010G22KT 9999 SCT030 TX22/1614Z TN16/1606Z TEMPO 1603/1621 VRB05G20KT PROB40 TEMPO 1603/1621 36020G35KT PROB40 TEMPO 1604/1620 02035G49KT GCHI 160200Z 1603/1703 02020KT 9999 BKN025 TX20/1614Z TN17/1606Z PROB40 TEMPO 1603/1621 02020G30KT PROB40 TEMPO 1603/1620 02030G42KT PROB30 TEMPO 1606/1621 4500 RA GCLA 160200Z 1603/1703 01015KT 9999 BKN030 TX19/1614Z TN16/1606Z PROB40 TEMPO 1603/1621 01015G27KT PROB40 TEMPO 1603/1621 01025G35KT PROB40 TEMPO 1609/1621 4500 RA GCLP 160200Z 1603/1703 02025KT 9999 BKN030 TX20/1614Z TN16/1606Z TEMPO 1603/1621 02025G35KT PROB30 TEMPO 1603/1613 4500 RA GCRR 160200Z 1603/1703 01022KT 9999 BKN030 TX21/1614Z TN14/1606Z TEMPO 1603/1621 01022G35KT PROB30 TEMPO 1603/1606 4500 SHRA FEW030TCU GCTS 160200Z 1603/1703 06016KT 9999 SCT040 TX22/1614Z TN15/1606Z TEMPO 1603/1606 30009KT TEMPO 1606/1621 06016G29KT PROB40 TEMPO 1608/1620 06030G42KT GCXO 160200Z 1603/1703 34015KT 9999 BKN015 TX15/1614Z TN11/1606Z TEMPO 1603/1618 32022G34KT TEMPO 1603/1615 3000 RA BCFG BKN008 GEML 160200Z 1603/1703 28004KT 9999 FEW030 TX16/1614Z TN07/1606Z GLRB 160400Z 1606/1712 23010KT 8000 BKN018 BECMG 1606/1608 01004KT 0200 FG OVC001 TEMPO 1610/1614 24008KT 8000 BKN018 BECMG 1615/1617 23006KT 7000 SCT016 GMAD 160500Z 1606/1712 06006KT 9999 SCT026TCU TEMPO 1612/1618 36014G24KT GMFF 160500Z 1606/1712 08006KT CAVOK BECMG 1612/1616 18011KT SCT030 BECMG 1622/1701 08012KT GMFM 160500Z 1606/1712 09012KT CAVOK TEMPO 1614/1618 32010KT SCT020 SCT100 BECMG 1622/1702 CAVOK GMFO 160500Z 1606/1712 20007KT 9999 FEW020 BECMG 1614/1618 34012KT 9999 FEW026 GMME 160500Z 1606/1712 04008KT 8000 NSC TEMPO 1618/1624 VRB02KT CAVOK GMMH 160500Z 1606/1712 02021KT 8000 SCT013 BECMG 1610/1612 SCT020 GMMI 160500Z 1606/1712 05011KT 8000 NSC GMML 160500Z 1606/1712 02016KT 8000 SCT020 SCT040 TEMPO 1612/1619 02019G30KT GMMN 160500Z 1606/1712 04012KT 9999 FEW016 TEMPO 1610/1620 02016KT CAVOK BECMG 1622/1624 04006KT 8000 TEMPO 1700/1708 VRB02KT 4000 BR SCT010 GMMW 160500Z 1606/1712 20005KT 9999 SCT016 BECMG 1610/1612 CAVOK GMMX 160500Z 1606/1712 06006KT 8000 NSC GMMZ 160500Z 1606/1712 02016KT 8000 SCT030 BECMG 1618/1621 03005KT GMTA 160500Z 1606/1712 17007KT 9999 FEW016 BECMG 1609/1611 CAVOK GMTT 160500Z 1606/1712 07009KT 9999 SCT016 BECMG 1622/1701 09019G30KT GOBD 160530Z 1606/1712 01014KT 8000 NSC GOGS 160530Z 1606/1706 01008KT CAVOK GOOY 160530Z 1606/1712 02015KT 8000 NSC= GBYD 160530Z 1606/1712 01010KT CAVOK GOSS 160530Z 1606/1706 01010KT CAVOK GQNO 160500Z 1606/1712 03012KT 7000 NSC TEMPO 1623/1706 36008KT GQPP 160500Z 1606/1706 02014KT 8000 NSC GUCY 160500Z 1606/1712 27006KT 5000 HZ FEW015 BECMG 1606/1610 VRB02KT 3000 BR TEMPO 1620/1702 4000 HZ NSC GVAC 160500Z 1606/1712 05018KT 8000 SCT014 BECMG 1612/1614 05020G30KT FEW014 HBBA 160500Z 1606/1712 03005KT 9999 FEW030 SCT100 BECMG 1608/1610 18012G25KT 9999 FEW035 BKN100 BECMG 1618/1620 36004KT CAVOK BECMG 1702/1704 00000KT 8000 FEW025 SCT100 BECMG 1708/1710 9999 FEW030 BKN100 HDAM 160500Z 1606/1706 08010KT 9999 FEW023 BECMG 1615/1621 VRB03KT CAVOK BECMG 1700/1706 00000KT HEAX 160710Z 1607/1712 VRB03KT 4000 BR NSC BECMG 1609/1611 33012KT 9999 SCT020 HECA 160500Z 1606/1712 03008KT 6000 NSC TEMPO 1606/1608 VRB03KT 4000BR BECMG 1609/1611 35010KT 9999 SCT025 HELX 160500Z 1606/1712 36010KT CAVOK TEMPO 1606/1610 VRB03KT 4000 HZ NSC HKEL 160500Z 1606/1706 06010KT 9999 SCT026 TEMPO 1612/1618 31010KT -TSRA FEW020CB SCT021 BKN080 BECMG 1620/1623 12005KT CAVOK HKJK 160500Z 1606/1712 06010KT CAVOK TEMPO 1612/1618 05010KT 9999 SCT030 BECMG 1620/1623 36005KT CAVOK BECMG 1708/1711 SCT028 HKKI 160500Z 1606/1706 00000KT 9999 FEW025 SCT290 BECMG 1608/1612 23015KT FEW023CB SCT024 TEMPO 1615/1621 33007KT -TSRA FEW022CB SCT023 BKN090 BECMG 1622/1706 08005KT FEW019 BKN090 HKMO 160500Z 1606/1712 34005KT 9999 FEW020 BECMG 1609/1615 07010KT FEW026 BECMG 1618/1621 05005KT FEW023 BECMG 1700/1706 33005KT FEW020 HRYR 160500Z 1606/1712 13003KT 2000 BR FEW010 SCT025 FM 160800 09008KT 8000 SCT025 F TEMPO 1611/1616 14012KT 9999 -TSRA FEW023CB BKN025 FM 162100 18006KT SCT024 BKN100 BECMG 1703/1706 VRB03KT 7000 SCT025 SCT100 FM 170900 12008KT BKN025 HSSS 160500Z 1606/1712 36012G22KT CAVOK TEMPO 1606/1612 6000 NSC HTDA 160500Z 1606/1712 35010KT 9999 SCT016 TEMPO 1610/1614 RA BKN017 FEW019CB HTDO 152300Z 1600/1624 00000KT 9999 FEW020 FEW022CB BKN080 HTGW 152300Z 1600/1624 00000KT 9999 TS SCT019 FEW020CB BKN080 TEMPO 1600/1605 11010KT RA HTKJ 160500Z 1606/1706 08010KT 9999 SCT030 HTZA 160500Z 1606/1706 02010KT 9999 SCT016 SCT080 BECMG 1619/1621 00000KT BECMG 1701/1703 01010KT BKN016 HUEN 160500Z 1606/1712 28010KT 9000 FEW019 FEW021CB BECMG 1607/1612 9999 FEW024 FEW026CB FM161700 20008KT FEW022 FEW024CB BECMG 1619/1623 09010KT 9000 FEW020 FEW022CB TEMPO 1702/1706 VRB08KT 8000 -TS FEW018 FEW020CB BECMG 1707/1712 19013KT 9999 FEW024 FEW026CB HUSO 160440Z 1606/1706 32004KT 9999 FEW021 BECMG 1609/1614 36005KT SCT024 FM 161600 20005KT 9999 FEW022 SCT140 BECMG 1700/1706 18002KT CAVOK KABE 160521Z 1606/1706 VRB03KT P6SM OVC018 TEMPO 1611/1615 3SM -SN OVC008 FM161700 17004KT P6SM SCT015 BKN025 FM162200 VRB03KT P6SM -SN OVC015 FM170100 VRB03KT 1SM -SN OVC005 KABI 160520Z 1606/1706 01020G30KT P6SM OVC045 TEMPO 1606/1610 P6SM -PLSN FM161200 01014G20KT P6SM OVC050 FM161800 36012KT P6SM SCT250 KABQ 160532Z 1606/1706 09022G35KT P6SM BKN050 FM161400 08010G20KT P6SM OVC050 FM161700 10010KT P6SM SCT050 FM162200 12007KT P6SM FEW050 KABR 160640Z 1607/1706 35009KT P6SM SCT013 TEMPO 1607/1610 BKN013 FM161000 29005KT P6SM SKC FM161500 20006KT P6SM SCT250 KABY 160524Z 1606/1706 VRB04KT P6SM SCT250 FM170400 31010G15KT P6SM BKN050 KACK 160543Z 1606/1706 36014KT P6SM OVC008 FM161300 01008KT P6SM BKN015 FM161500 35007KT P6SM BKN020 FM161900 VRB03KT P6SM BKN020 FM170200 14006KT P6SM OVC130 FM170500 13007KT P6SM VCSH OVC080 KACT 160647Z 1607/1706 36020G30KT P6SM -SN OVC045 FM161100 35017G27KT P6SM BKN060 FM161300 36016KT P6SM SCT060 BKN090 FM170000 36008KT P6SM SCT100 SCT300 KACV 160613Z 1606/1706 12004KT P6SM -RA SCT025 OVC035 FM160900 12004KT 6SM BR VCSH SCT025 BKN045 FM161600 15008KT 6SM BR SCT025 SCT050 FM161900 28005KT P6SM SCT050 BKN250 FM170300 07002KT 6SM BR OVC025 KACY 160521Z 1606/1706 VRB03KT P6SM BKN015 TEMPO 1607/1611 SCT015 FM161400 12006KT P6SM SCT020 BKN045 FM170100 VRB03KT P6SM BKN025 KADF 160546Z 1606/1706 35010KT 2SM -SN BR BKN009 OVC014 TEMPO 1606/1610 2SM -SN BR FM161200 36011G16KT P6SM SCT015 BKN025 FM161800 33009KT P6SM SCT040 BKN250 FM170000 34005KT P6SM SCT250 KADW 160640Z 1606/1707 VRB06KT 9999 OVC004 620045 QNH3040INS TEMPO 1606/1615 OVC006 BECMG 1614/1615 VRB06KT 9999 FEW010 SCT080 BKN120 QNH3036INS BECMG 1702/1703 31009KT 8000 -SN OVC015 620159 QNH3033INS TX03/1619Z TNM03/1612Z KAEG 160634Z 1607/1706 12011KT P6SM SCT050 TEMPO 1607/1611 12011G21KT FM161100 08007KT P6SM BKN050 FM162000 14006KT P6SM SCT050 FM170000 VRB05KT P6SM FEW050 NOT SKED KAEX 160533Z 1606/1706 VRB05KT P6SM FEW060 BKN090 FM160800 36008KT P6SM -RA BKN060 FM161000 36014KT P6SM -RASNPL OVC015 FM161200 36014G20KT P6SM -SNPL OVC015 FM162000 34012KT P6SM OVC070 KAFW 160520Z 1606/1706 36020G30KT P6SM -SN SCT035 OVC060 TEMPO 1606/1608 6SM -SN BR BKN040 FM161000 36017G27KT P6SM SCT050 OVC090 FM161600 36016KT P6SM SCT100 SCT150 SCT300 FM170100 01008KT P6SM SCT300 KAGC 160520Z 1606/1706 17006KT 3SM -SN OVC025 TEMPO 1606/1610 2SM -SN OVC015 FM161000 21005KT 6SM -SN OVC008 FM161800 24007KT 6SM -SN OVC015 FM170200 28010KT P6SM OVC025 KAGS 160520Z 1606/1706 VRB03KT P6SM SCT250 FM170000 VRB03KT P6SM BKN100 KAHN 160545Z 1606/1706 00000KT P6SM FEW200 FM161500 23003KT P6SM FEW120 FM170000 27005KT P6SM BKN040 BKN100 FM170200 29007KT P6SM OVC025 PROB30 1702/1706 5SM -SN BR BKN035 KAIA 160531Z 1606/1706 VRB03KT P6SM SKC FM161800 20010KT P6SM SKC KALB 160534Z 1606/1706 VRB03KT P6SM OVC025 FM161000 VRB03KT P6SM VCSH OVC025 TEMPO 1612/1616 5SM -SN SCT015 OVC025 FM161600 17008KT 2SM -SN BR OVC015 KALI 160533Z 1606/1706 12005KT P6SM BKN060 FM160800 08005KT P6SM VCSH SCT025 OVC050 TEMPO 1608/1610 5SM SHRA BR OVC025 FM161000 36017G26KT P6SM -SHRA OVC008 FM161500 01023G32KT P6SM -SHRA OVC012 FM161800 01018G28KT P6SM -FZRA OVC015 TEMPO 1620/1624 5SM -FZRAPL FM170200 35012KT P6SM OVC025 KALO 160651Z 1607/1706 31012KT 6SM -SN BKN015 OVC030 FM161300 31010G16KT 5SM HZ OVC010 FM161600 32010G16KT 6SM HZ OVC010 FM162200 30009KT P6SM SCT250 KALS 160534Z 1606/1706 VRB05KT P6SM FEW200 KALW 160533Z 1606/1706 VRB03KT 1SM BR OVC002 TEMPO 1606/1610 1/4SM FG OVC001 FM161300 19004KT 1SM -RA BR OVC003 FM161900 20005KT P6SM FEW005 SCT060 FM170100 12005KT P6SM FEW060 KAMA 160520Z 1606/1706 36010KT P6SM BKN080 FM161800 VRB06KT P6SM SCT250 FM170100 17008KT P6SM SKC KANB 160532Z 1606/1706 00000KT P6SM SKC FM161400 33007KT P6SM BKN050 FM161900 35010KT 5SM -SN OVC035 FM162200 35010KT 3SM -SN OVC020 FM170300 35012KT P6SM BKN050 KAND 160540Z 1606/1706 VRB02KT P6SM SCT250 FM161600 21006KT P6SM SCT120 BKN250 FM170100 22004KT P6SM SCT050 BKN120 PROB30 1702/1706 4SM -RA OVC025 KAOO 160559Z 1606/1706 18004KT P6SM SCT050 OVC060 FM161200 21007KT 2SM -SN BR OVC025 FM161400 22007KT 1 1/2SM -SN BR OVC015 FM161800 22006KT 1/2SM SN FG OVC009 KAPA 160525Z 1606/1706 14007KT P6SM FEW025 FM160800 17007KT P6SM SKC FM161200 21007KT P6SM FEW220 FM161600 12006KT P6SM SKC FM170300 18006KT P6SM SKC KAPF 160534Z 1606/1706 03010KT P6SM SKC FM161500 04010KT P6SM SCT040 FM170100 04005KT P6SM SKC KAPN 160652Z 1607/1706 06008KT 4SM -SHSN OVC015 TEMPO 1607/1611 1SM -SHSN FM161300 02007KT 4SM -SHSN OVC020 FM161900 35006KT P6SM -SHSN BKN020 FM170100 31005KT P6SM BKN060 FM170400 28005KT P6SM SCT250 KARA 160533Z 1606/1706 VRB05KT P6SM SKC FM161000 VRB06KT P6SM -RA BKN060 FM161400 01015G21KT P6SM -RA OVC007 FM161800 01018G25KT P6SM -SNPL OVC007 FM170100 36014G20KT P6SM OVC070 KART 160525Z 1606/1706 11005KT 1 1/2SM -SN OVC025 FM161000 11004KT 3SM -SN OVC015 FM161700 23005KT P6SM OVC015 FM162100 25004KT P6SM BKN020 FM162200 VRB03KT P6SM BKN025 KASD 160550Z 1606/1706 00000KT P6SM SKC FM161100 VRB03KT P6SM SCT050 BKN110 FM161400 01007KT P6SM BKN050 BKN090 FM161700 36010KT P6SM BKN030 BKN130 FM162100 36010G21KT P6SM -FZRAPL BKN014 OVC030 FM162300 36015G23KT 5SM -SNPL BKN014 OVC020 FM170300 36012G20KT P6SM BKN015 OVC050 KASE 160536Z 1606/1706 00000KT P6SM BKN045 FM160800 VRB03KT P6SM FEW045 FM161000 20004KT P6SM SKC KASN 160532Z 1606/1706 00000KT P6SM SKC FM161300 33007KT P6SM BKN050 FM161900 35010KT 5SM -SN OVC035 FM162200 35010KT 3SM -SN OVC020 FM170300 35012KT P6SM BKN050 KAST 160539Z 1606/1706 16012G18KT P6SM -SHRA FEW015 BKN035 OVC070 FM161700 19009KT P6SM OVC060 KATL 160545Z 1606/1712 16004KT P6SM FEW200 FM161000 20003KT P6SM FEW200 FM161600 25007KT P6SM SCT120 FM162100 30008KT P6SM BKN040 BKN100 FM170000 32012G18KT P6SM OVC015 PROB30 1700/1706 5SM -SN BR BKN025 FM170600 32012G18KT P6SM BKN040 BKN100 KATW 160628Z 1606/1706 36008KT P6SM -SHSN SCT015 BKN035 TEMPO 1608/1610 4SM -SHSN BKN015 FM161100 35007KT P6SM -SHSN SCT015 BKN040 FM161600 33007KT P6SM BKN050 FM170100 29006KT P6SM SCT250 KATY 160524Z 1606/1706 35014KT P6SM OVC012 FM161300 32007KT P6SM SCT015 FM161600 23005KT P6SM SCT250 KAUG 160530Z 1606/1706 01007KT P6SM OVC035 FM161200 VRB03KT P6SM BKN040 PROB30 1703/1706 4SM -SN BR OVC020 KAUS 160538Z 1606/1712 01025G35KT 6SM -RA BR OVC015 FM160930 01022G32KT 6SM -FZRAPL OVC015 FM161500 01020G30KT 6SM -PLSN OVC020 FM161800 01015G25KT P6SM OVC050 FM170000 01010KT P6SM OVC050 KAUW 160630Z 1607/1706 36005KT P6SM -SHSN SCT015 BKN035 TEMPO 1608/1610 -SHSN BKN025 FM161500 33007KT P6SM BKN050 FM162300 29005KT P6SM SCT250 KAVL 160540Z 1606/1706 VRB02KT P6SM FEW140 FM161700 24005KT P6SM BKN180 PROB30 1621/1624 4SM -RA OVC025 FM170000 31005KT P6SM OVC040 PROB30 1700/1702 4SM -SN OVC025 FM170200 32007KT 4SM -SN OVC025 TEMPO 1702/1706 2SM -SN OVC015 KAVP 160535Z 1606/1706 VRB03KT P6SM OVC018 FM161000 18005KT 5SM -SN OVC025 FM161500 19005KT 3/4SM -SN OVC012 TEMPO 1617/1621 1/2SM SN OVC008 FM170400 18003KT 1SM -SN OVC015 KAXN 160520Z 1606/1706 34010KT P6SM OVC012 FM161200 34006KT P6SM SCT015 FM161800 28008KT P6SM FEW150 FM170000 23007KT P6SM BKN100 KAZO 160540Z 1606/1706 23006KT 4SM -SN BR OVC035 FM161200 21005KT 5SM -SN BR OVC015 FM170300 32004KT 6SM BR OVC025 KBAF 160543Z 1606/1706 35005KT P6SM OVC035 FM161700 00000KT P6SM VCSH OVC030 FM162200 VRB03KT P6SM VCSH OVC020 FM170000 VRB03KT 4SM BR VCSH OVC020 FM170100 VRB03KT 1 1/2SM -SN BR OVC015 KBBD 160520Z 1606/1706 02020G30KT P6SM OVC035 TEMPO 1606/1610 P6SM -PLSN FM161200 02014G20KT P6SM OVC035 FM161800 02012KT P6SM OVC050 NOT SKED KBBG 160532Z 1606/1706 32012KT P6SM BKN130 FM170000 32008KT P6SM FEW200 FM170300 32004KT P6SM FEW060 KBCB 160520Z 1606/1706 14004KT P6SM SCT100 FM161400 VRB03KT P6SM BKN080 FM161800 24003KT 6SM -SN OVC050 FM162200 26006KT 2SM -SN OVC030 FM170300 32006KT P6SM -SHSN BKN030 OVC100 KBCE 160521Z 1606/1706 27005KT P6SM BKN150 FM161800 13005KT P6SM BKN150 FM170100 26005KT P6SM BKN150 KBDL 160543Z 1606/1712 36005KT P6SM OVC035 FM161700 00000KT P6SM OVC030 FM170200 VRB03KT 1 1/2SM -SN OVC020 FM170600 VRB03KT 1/2SM SN OVC008 FM171000 VRB03KT 3/4SM -SN OVC008 KBDN 160533Z 1606/1706 VRB03KT 1SM BR OVC001 TEMPO 1606/1609 1/4SM FG OVC001 FM160900 15003KT 1SM -SHRA BR SCT002 BKN035 OVC050 FM161400 17005KT P6SM SCT040 FM162200 32005KT P6SM FEW040 BKN070 KBDR 160523Z 1606/1706 VRB04KT P6SM SCT020 TEMPO 1606/1609 BKN020 FM160900 VRB03KT P6SM BKN020 FM161400 VRB05KT P6SM BKN020 FM161800 13006KT P6SM BKN020 FM170000 VRB04KT 6SM -SN BKN015 FM170100 VRB04KT 2SM -SN BKN015 KBED 160543Z 1606/1706 35005KT P6SM BKN030 FM160900 VRB03KT P6SM BKN015 FM161900 00000KT P6SM OVC035 FM162100 00000KT P6SM OVC030 FM170200 00000KT P6SM VCSH OVC030 FM170500 00000KT P6SM VCSH OVC020 KBFD 160607Z 1606/1706 15005KT 1 1/2SM -SN BR OVC025 FM160700 17004KT 3/4SM -SN BR OVC018 FM161000 20005KT 2SM -SN BR OVC009 FM170300 25006KT 1 1/2SM -SN BR OVC009 KBFF 160531Z 1606/1706 VRB04KT P6SM SKC FM161800 15008KT P6SM SKC FM170100 10005KT P6SM SKC KBFI 160534Z 1606/1706 15007KT P6SM -RA FEW070 OVC090 FM160800 16007KT P6SM -RA SCT025 OVC045 FM161000 16006KT P6SM -RA OVC025 FM161300 16007KT P6SM VCSH OVC030 FM161900 17009G20KT P6SM VCSH SCT025 BKN040 KBFL 160524Z 1606/1706 VRB04KT 4SM HZ SCT150 KBFM 160535Z 1606/1706 VRB03KT P6SM SKC FM161000 VRB04KT P6SM BKN050 FM161500 35011KT P6SM OVC025 FM162300 34011KT P6SM -RA OVC015 FM170300 35015G20KT P6SM -SN OVC015 KBGM 160535Z 1606/1706 17008KT 6SM -SN OVC025 FM161500 18008KT 1SM -SN OVC006 TEMPO 1620/1624 1/2SM SN OVC004 FM170200 20006KT 1SM -SN OVC010 KBGR 160555Z 1606/1706 36005KT P6SM -SN OVC025 TEMPO 1607/1609 3SM -SN OVC015 FM161400 VRB03KT P6SM SCT020 BKN040 FM170300 VRB03KT 4SM -SN SCT020 OVC035 KBHB 160555Z 1606/1706 36010G20KT P6SM -SN OVC020 FM160900 36006KT P6SM OVC015 FM161400 01008KT P6SM SCT020 BKN120 FM170300 VRB02KT 5SM -SN SCT025 OVC035 KBHM 160532Z 1606/1706 00000KT P6SM SKC FM161000 33007KT P6SM BKN050 FM161800 35010KT 5SM -SN OVC035 FM162100 35010KT 3SM -SN OVC015 FM170200 35012KT P6SM BKN050 KBIF 160611Z 1606/1712 07012G18KT 9999 SCT050 SCT150 510009 QNH3034INS TEMPO 1606/1609 08020G30KT 520009 BECMG 1616/1617 10010G15KT 9999 FEW050 SCT150 QNH3041INS BECMG 1702/1703 10009KT 9999 FEW100 QNH3041INS TX02/1622Z TNM02/1613Z KBIH 160520Z 1606/1706 32005KT P6SM BKN150 BKN200 FM161800 VRB05KT P6SM SCT250 FM170300 32005KT P6SM BKN250 KBIL 160528Z 1606/1706 VRB03KT P6SM SKC FM161200 22009KT P6SM SKC FM161600 23015KT P6SM SKC FM170000 24018G28KT P6SM FEW200 KBIS 160535Z 1606/1706 23004KT P6SM SKC FM161800 19007KT P6SM SCT250 KBIX 160200Z 1602/1708 10006KT 9999 SKC QNH3036INS BECMG 1611/1612 VRB06KT 9999 SCT030 QNH3040INS BECMG 1617/1618 35010G15KT 9999 SCT020 BKN030 QNH3038INS BECMG 1623/1624 36015G25KT 9999 BKN020 QNH3042INS BECMG 1702/1703 36015G25KT 9999 BKN015 QNH3046INS BECMG 1705/1706 35015G20KT 8000 -RAPL BKN008 QNH3048INS TX10/1618Z TN04/1611Z KBJC 160525Z 1606/1706 12005KT P6SM FEW025 FM160700 24006KT P6SM SKC FM161500 VRB04KT P6SM FEW220 FM161800 12005KT P6SM FEW220 FM170200 28005KT P6SM SCT120 SCT220 KBJI 160532Z 1606/1706 33006KT P6SM -SN OVC009 FM160800 33006KT P6SM BKN015 FM161000 32005KT P6SM SCT250 FM170400 23008KT P6SM SCT250 KBKE 160531Z 1606/1706 10012KT P6SM BKN200 FM161500 11008KT 5SM -RASN OVC030 FM161800 10004KT 4SM -RA OVC025 FM162000 09003KT P6SM SCT025 BKN100 KBKF 160100Z 1601/1707 06009KT 9999 FEW015 BKN030 610307 QNH3042INS BECMG 1602/1603 09009KT 9999 FEW015 SCT030 SCT150 QNH3045INS BECMG 1611/1612 16006KT 9999 FEW150 FEW250 QNH3026INS BECMG 1700/1701 22006KT 9999 FEW250 QNH3020INS TX04/1621Z TNM15/1611Z KBKW 160547Z 1606/1706 22004KT P6SM OVC050 FM161200 28004KT P6SM OVC050 FM161600 28005KT 5SM -SN OVC040 FM162000 29006KT 2SM -SN OVC015 FM162300 32006KT 3SM -SN OVC015 FM170500 32005KT P6SM BKN025 KBLF 160520Z 1606/1706 20006KT P6SM BKN080 FM161300 22006KT 6SM -SN OVC050 FM161500 26008KT 5SM -SN OVC035 FM161700 26008KT 1SM -SN OVC020 FM170200 32007KT 4SM -SHSN OVC015 KBLH 160520Z 1606/1706 33005KT P6SM FEW150 OVC200 FM161600 VRB04KT P6SM BKN250 TEMPO 1620/1624 07006KT KBLI 160534Z 1606/1706 07003KT P6SM FEW120 FM160800 16013KT P6SM -RA SCT025 OVC070 FM161100 17008KT P6SM -RA OVC025 FM161600 18007KT P6SM VCSH SCT025 OVC040 FM161900 17010G17KT P6SM VCSH SCT025 BKN040 KBLV 160000Z 1600/1706 30010G15KT 9999 BKN150 QNH3044INS BECMG 1605/1606 29010G15KT 9999 SKC QNH3053INS BECMG 1613/1614 29012KT 9999 SCT035 QNH3057INS TXM08/1600Z TNM15/1612Z KBMG 160520Z 1606/1706 29011G19KT 6SM -SN FEW014 OVC021 FM160700 28008KT P6SM SCT140 FM170000 27005KT 5SM BR BKN010 FM170500 27005KT P6SM BKN045 LTD TO CLD VIS AND WIND TIL 161400 KBMI 160526Z 1606/1706 27014KT P6SM SCT012 FM161200 28013KT P6SM -SN BKN012 FM170100 30008KT P6SM BKN025 KBNA 160521Z 1606/1706 35013KT 4SM -SN BKN015 OVC040 TEMPO 1606/1610 2SM -SN FM161000 34010KT 2SM -SN BR OVC015 FM161500 34009KT 6SM -SN OVC020 FM161800 34008KT P6SM OVC025 KBNO 160531Z 1606/1706 VRB05KT P6SM BKN200 FM161400 VRB05KT 3SM -RA BR OVC020 FM161700 VRB05KT P6SM BKN100 KBOI 160531Z 1606/1706 14007KT P6SM BKN200 FM161500 14007KT P6SM OVC070 FM161700 16007KT P6SM -SHRA OVC050 FM162200 15007KT P6SM BKN080 KBOS 160543Z 1606/1712 33010KT P6SM OVC012 FM160800 33006KT P6SM BKN015 FM161600 00000KT P6SM OVC025 FM162200 VRB03KT P6SM OVC035 FM170700 17004KT 1SM -SN BR SCT020 OVC040 FM171100 09005KT 1SM -SN BR OVC015 KBPI 160531Z 1606/1706 VRB04KT P6SM BKN025 FM161900 VRB05KT P6SM FEW025 FM170300 35007KT P6SM SCT090 KBPK 160546Z 1606/1706 34008KT P6SM BKN028 FM161500 32010KT P6SM SCT250 FM162100 30006KT P6SM SCT250 KBPT 160533Z 1606/1706 VRB06KT P6SM FEW060 BKN090 FM160800 VRB06KT P6SM -RA BKN060 FM161200 36018G24KT P6SM -RA OVC007 FM161600 36020G27KT P6SM -SNPL OVC007 FM170000 36014KT P6SM OVC070 KBRD 160540Z 1606/1706 34011KT P6SM OVC010 TEMPO 1606/1609 OVC009 FM161100 33008KT P6SM BKN010 FM161800 29006KT P6SM SCT015 FM162000 25007KT P6SM BKN100 FM170000 23008KT P6SM BKN100 KBRL 160520Z 1606/1706 30012KT P6SM SCT025 FM160800 31010KT P6SM BKN025 FM162100 30007KT P6SM BKN035 KBRO 160520Z 1606/1706 12005KT P6SM BKN070 FM161500 33020G35KT P6SM -DZRA OVC010 KBTL 160540Z 1606/1706 12003KT 3SM -SN BR OVC035 FM161100 21005KT 5SM -SN BR OVC015 FM170100 27005KT 5SM BR BKN015 KBTM 160520Z 1606/1706 30004KT P6SM SCT015 FM161600 16005KT P6SM SKC KBTR 160550Z 1606/1706 08004KT P6SM SKC FM161000 04004KT P6SM BKN060 BKN200 FM161300 36009KT P6SM BKN070 BKN090 FM161600 36011KT P6SM VCSH BKN015 OVC040 FM162000 36014G20KT P6SM -PLSN BKN015 OVC040 FM170000 36013G20KT P6SM BKN020 OVC060 FM170300 36014G21KT P6SM SCT020 OVC100 KBTV 160539Z 1606/1706 00000KT P6SM VCSH BKN120 FM160900 16004KT 3SM -SN OVC045 FM161300 16004KT P6SM VCSH OVC045 FM170100 18006KT 2SM -SN OVC035 KBUF 160525Z 1606/1706 16006KT 5SM -SN OVC020 TEMPO 1606/1609 2SM -SN OVC015 FM161100 22006KT P6SM SCT007 BKN015 FM161700 23010KT P6SM BKN025 FM162300 24009KT P6SM BKN025 FM170500 23010KT P6SM BKN015 KBUR 160548Z 1606/1706 VRB03KT P6SM BKN200 FM162100 16008KT P6SM BKN200 FM170300 VRB03KT P6SM BKN200 KBVI 160520Z 1606/1706 17006KT 2SM -SN OVC008 FM161000 21005KT 3SM -SN OVC005 FM161600 24007KT 6SM -SN OVC008 FM170000 28012KT P6SM OVC025 NOT SKED KBVO 160538Z 1606/1706 35010KT P6SM SCT030 FM161600 35008KT P6SM SKC FM170000 00000KT P6SM SKC KBWG 160527Z 1606/1706 32009KT 1 1/2SM -SN BR OVC025 TEMPO 1606/1610 3/4SM -SN BKN012 FM161000 33008KT 2SM -SN OVC025 FM161500 31007KT P6SM BKN030 KBWI 160531Z 1606/1712 00000KT P6SM OVC015 FM161200 00000KT 4SM BR OVC008 FM161300 00000KT 4SM BR OVC003 FM161500 VRB03KT P6SM BKN008 FM161700 VRB03KT P6SM BKN025 FM161900 VRB03KT P6SM BKN045 FM170100 VRB03KT P6SM -SN OVC035 FM170600 33008KT 1SM -SN OVC020 KBYI 160520Z 1606/1706 06015KT P6SM BKN250 FM162100 26010KT P6SM SCT035 BKN100 FM170100 26011KT P6SM BKN030 OVC050 KBZN 160548Z 1606/1712 VRB03KT P6SM VCFG SCT015 TEMPO 1611/1615 2SM BR SCT005 FM161900 VRB06KT P6SM SCT100 BKN180 KCAE 160520Z 1606/1706 VRB03KT P6SM SCT250 FM170000 VRB03KT P6SM BKN100 KCAK 160712Z 1607/1706 25005KT P6SM BKN015 OVC025 TEMPO 1607/1611 SCT025 OVC050 FM161400 24008KT P6SM BKN015 OVC025 FM161600 24009KT P6SM BKN025 OVC040 FM170400 25005KT P6SM BKN010 KCAR 160555Z 1606/1706 01004KT P6SM VCSH OVC025 FM161300 VRB03KT P6SM SCT025 BKN120 FM170200 VRB03KT P6SM SCT020 OVC040 KCDC 160521Z 1606/1706 VRB04KT P6SM BKN200 FM162000 18005KT P6SM BKN100 OVC200 FM170400 VRB03KT P6SM SCT100 BKN200 KCDR 160531Z 1606/1706 VRB03KT P6SM SKC FM161800 20007KT P6SM SKC KCDS 160520Z 1606/1706 02015KT P6SM BKN090 FM161400 01010KT P6SM SCT100 SCT250 KCEC 160529Z 1606/1706 12007KT P6SM VCSH OVC040 FM161000 12005KT 4SM BR SCT025 OVC045 FM161700 15006KT P6SM SCT050 BKN250 FM170300 14005KT P6SM OVC100 KCEF 160300Z 1603/1709 03009KT 9999 OVC020 620203 QNH3046INS TEMPO 1612/1619 6000 -SN OVC008 620089 BECMG 1618/1619 17006KT 3200 -SN BKN008 OVC012 620089 QNH3033INS BECMG 1703/1704 18006KT 0800 SN VV002 620029 QNH3020INS TXM05/1619Z TNM09/1603Z LAST NO AMDS AFT 1604 NEXT 1611 KCGI 160520Z 1606/1706 34011G17KT P6SM OVC100 FM161100 34010KT P6SM SKC FM161800 34010KT P6SM SCT025 TEMPO 1620/1624 BKN030 FM170000 33006KT P6SM BKN030 KCHA 160530Z 1606/1706 00000KT P6SM SCT060 BKN250 FM161200 33004KT P6SM SCT025 OVC050 FM161600 35006KT P6SM OVC025 FM161800 34007KT 5SM -SN BR OVC015 FM170100 34011KT P6SM SCT025 BKN050 FM170400 35012KT P6SM SCT035 KCHO 160531Z 1606/1706 00000KT P6SM BKN250 FM170100 00000KT 6SM -SN OVC060 KCHS 160523Z 1606/1706 01004KT P6SM SCT250 FM162300 00000KT P6SM BKN250 KCID 160520Z 1606/1706 30015KT P6SM SCT015 TEMPO 1606/1608 -SHSN BKN015 FM160800 31014KT 4SM -SHSN BR OVC012 FM161200 32013KT P6SM BKN025 FM162100 30010KT P6SM BKN035 KCKB 160547Z 1606/1706 22007KT P6SM OVC040 FM160700 22006KT 6SM -SN OVC025 FM160900 22006KT 5SM -SN OVC015 TEMPO 1609/1611 2SM -SN OVC007 FM161100 23006KT 2SM -SN OVC015 TEMPO 1611/1615 3/4SM -SN OVC007 FM161500 25007KT 3/4SM -SN OVC007 FM162300 28005KT 4SM -SN OVC015 FM170200 29004KT P6SM BKN025 KCKV 160521Z 1606/1706 35014KT 2SM -SN BKN015 OVC035 TEMPO 1606/1610 1SM -SN BR BKN009 OVC015 FM161000 34011KT 5SM -SN SCT007 OVC020 FM161500 33007KT P6SM OVC025 KCLE 160531Z 1606/1712 23006KT P6SM SCT025 BKN035 TEMPO 1606/1608 BKN025 OVC035 FM160800 24006KT P6SM SCT015 OVC025 FM170300 24007KT P6SM OVC015 KCLL 160522Z 1606/1706 36019G29KT 6SM -RA BKN008 OVC015 FM160900 35018G28KT 6SM -FZRAPL SCT008 OVC012 FM161200 35015G25KT 5SM -FZRASNPL BR SCT008 OVC015 FM161500 36018KT 6SM -SN BR OVC025 FM161900 36016KT P6SM OVC045 FM162100 36014KT P6SM BKN080 BKN250 FM170100 36008KT P6SM BKN100 KCLM 160534Z 1606/1706 00000KT P6SM -RA OVC080 FM160800 26010KT P6SM -RA SCT025 OVC045 FM161000 26005KT P6SM VCSH OVC025 FM161600 23004KT P6SM VCSH SCT025 OVC040 FM161900 30005KT P6SM VCSH SCT025 BKN070 KCLT 160540Z 1606/1712 17003KT P6SM SCT250 FM161600 21006KT P6SM SCT120 BKN250 FM170100 18004KT P6SM SCT050 BKN120 PROB30 1704/1708 4SM -RASN OVC025 FM170800 30005KT 4SM -SN SCT012 OVC028 TEMPO 1709/1712 2SM -SN SCT007 OVC012 KCMA 160601Z 1606/1706 VRB03KT 6SM BR BKN008 FM161700 VRB03KT P6SM SCT015 BKN150 FM162000 23008KT P6SM BKN150 FM170300 VRB03KT P6SM BKN200 KCMH 160542Z 1606/1706 22004KT 2SM -SN BR BKN018 OVC035 FM160630 27010KT 4SM -SN BR SCT015 OVC035 TEMPO 1607/1609 BKN015 FM160900 27007KT P6SM SCT015 BKN070 FM161200 26007KT P6SM SCT020 FM161900 26007KT P6SM BKN022 FM170300 24003KT P6SM BKN015 OVC040 KCMI 160526Z 1606/1706 26012KT P6SM SCT012 FM161300 28013KT P6SM -SN BKN012 FM170300 28008KT P6SM BKN025 KCMX 160534Z 1606/1706 04008KT 5SM -SHSN BKN025 TEMPO 1606/1610 2SM -SHSN OVC015 FM161000 02010KT 4SM -SHSN OVC015 FM161900 33007KT 4SM -SHSN BKN010 FM162100 31007KT 2SM -SHSN BKN015 FM162200 30007KT 3SM -SHSN BKN015 FM170000 27009KT P6SM BKN015 FM170100 27010KT P6SM BKN020 FM170500 26013G22KT P6SM BKN035 KCNM 160520Z 1606/1706 04010KT P6SM OVC050 FM161200 10008KT P6SM BKN120 KCNU 160525Z 1606/1706 34011KT 4SM -SN BR SCT015 TEMPO 1606/1607 2SM -SN BR BKN015 FM160900 34012KT P6SM VCSH SCT100 FM162200 32009KT P6SM SCT200 KCNY 160536Z 1606/1706 13006KT P6SM FEW250 FM161800 35005KT P6SM FEW250 KCOD 160531Z 1606/1706 13006KT P6SM BKN008 FM161000 17007KT P6SM SCT012 FM161800 06006KT P6SM SKC FM170400 25008G17KT P6SM SCT120 LTD TO CLD VIS AND WIND KCOE 160533Z 1606/1706 02015KT P6SM SCT150 OVC250 FM161500 04008KT P6SM VCSH BKN040 OVC100 FM161600 18006KT P6SM -RASN OVC025 FM170000 VRB05KT P6SM VCSH BKN025 OVC050 FM170300 09004KT P6SM BKN010 OVC020 KCON 160530Z 1606/1706 32004KT P6SM OVC030 FM161000 VRB03KT P6SM SCT030 BKN040 KCOS 160534Z 1606/1706 16005KT 3SM -SN SCT008 OVC015 TEMPO 1606/1609 2SM -SN BKN006 FM161000 VRB05KT P6SM SCT008 SCT012 FM161600 VRB04KT P6SM SKC FM161900 15009KT P6SM FEW250 FM170200 14006KT P6SM SCT250 KCOU 160520Z 1606/1706 31012KT P6SM FEW025 FM161500 30012KT P6SM BKN025 FM162100 30010KT P6SM BKN035 FM170000 30007KT P6SM SCT040 KCPR 160531Z 1606/1706 21007KT P6SM SKC FM161400 22017G25KT P6SM SKC KCPS 160520Z 1606/1706 30011G18KT P6SM SCT025 TEMPO 1606/1609 BKN025 FM161400 30010KT P6SM BKN025 FM162300 31009KT P6SM BKN035 FM170000 31007KT P6SM SCT035 KCRE 160520Z 1606/1706 VRB04KT P6SM SKC KCRG 160553Z 1606/1706 04008KT P6SM FEW250 FM170000 VRB03KT P6SM BKN250 KCRP 160533Z 1606/1706 10005KT P6SM SCT030 BKN060 FM160800 07007KT P6SM VCSH SCT025 OVC050 TEMPO 1608/1610 5SM SHRA BR OVC025 FM161000 36022G33KT P6SM -SHRA OVC008 FM161500 01028G38KT P6SM -SHRA OVC012 FM161900 01026G36KT P6SM -FZRA OVC015 TEMPO 1621/1624 5SM -FZRAPL FM170200 36017G25KT P6SM OVC025 KCRQ 160530Z 1606/1706 26007KT P6SM SCT200 FM160800 VRB03KT 2SM BR BKN003 FM161200 VRB03KT 3SM BR SCT005 BKN200 FM161500 29007KT P6SM FEW005 SCT200 FM170200 VRB04KT P6SM BKN200 KCRW 160547Z 1606/1706 22006KT P6SM OVC040 FM160800 24005KT 6SM -SN OVC045 TEMPO 1608/1610 4SM -SN OVC025 FM161000 25004KT 4SM -SN OVC015 TEMPO 1610/1613 2SM -SN OVC008 FM161300 27004KT 2SM -SN OVC008 TEMPO 1613/1615 3/4SM -SN OVC003 FM161500 27005KT 3/4SM -SN OVC005 FM162100 29005KT 3SM -SN OVC015 FM170000 30005KT P6SM BKN025 KCSG 160545Z 1606/1706 00000KT P6SM FEW250 FM161500 20003KT P6SM FEW250 FM162000 27006KT P6SM SCT120 FM170000 31008KT P6SM BKN040 BKN100 FM170200 33010KT P6SM OVC025 PROB30 1702/1706 5SM -SN BR BKN035 KCSM 160520Z 1606/1706 36014KT P6SM SCT120 FM170000 04006KT P6SM SKC FM170400 12006KT P6SM SKC NOT SKED KCSV 160521Z 1606/1706 VRB03KT P6SM BKN060 OVC100 FM160900 32005KT P6SM OVC015 FM161200 33003KT 4SM -SN BKN007 OVC015 FM161400 32004KT 2SM -SN BR BKN005 OVC011 FM161800 32006KT 4SM -SN OVC010 FM162300 33008KT P6SM OVC015 KCTB 160548Z 1606/1706 14006KT 1/2SM FZFG VV001 TEMPO 1606/1608 4SM BR SCT005 OVC015 FM160800 17008KT P6SM SCT008 BKN015 TEMPO 1608/1610 4SM BR BKN008 FM161200 20011KT P6SM SKC FM162200 25015G24KT P6SM SCT100 BKN180 KCUB 160520Z 1606/1706 VRB03KT P6SM SCT250 FM170000 VRB03KT P6SM BKN100 KCVG 160542Z 1606/1712 30011KT P6SM SCT015 OVC070 FM161100 28007KT P6SM SCT020 FM161900 27007KT P6SM BKN025 FM170400 27005KT P6SM BKN035 FM170900 26004KT P6SM OVC022 KCVS 160200Z 1602/1708 05009KT 9999 BKN030 QNH3043INS BECMG 1617/1618 17009KT 9999 SCT040 QNH3042INS BECMG 1702/1703 VRB06KT 9999 FEW050 QNH3040INS TXM01/1622Z TNM10/1613Z KCWA 160630Z 1607/1706 36006KT P6SM SCT020 BKN040 TEMPO 1609/1611 -SHSN BKN020 FM161600 33007KT P6SM BKN050 FM162300 29006KT P6SM SCT250 LTD TO CLD VIS AND WIND TIL 161200 KCXO 160520Z 1606/1706 35014G24KT P6SM -RA SCT007 OVC015 FM160730 35017G27KT 6SM -RA BR BKN007 OVC012 FM161100 35017G27KT 6SM -FZRAPL BR SCT008 OVC012 FM161700 36013G23KT 5SM -SNPL BR OVC015 FM162000 36013KT P6SM -SN OVC025 FM162300 35010KT P6SM SCT035 BKN080 FM170100 34007KT P6SM BKN100 KCXP 160521Z 1606/1706 VRB03KT P6SM BKN100 OVC180 FM161200 24008KT P6SM VCSH BKN040 BKN080 FM161600 VRB04KT P6SM SCT050 SCT200 FM162100 07008KT P6SM BKN200 KCYS 160531Z 1606/1706 VRB05KT P6SM SKC FM161800 24010KT P6SM SKC KDAB 160534Z 1606/1706 01008KT P6SM SKC FM161400 03008KT P6SM FEW040 SCT250 FM170000 01003KT P6SM SCT250 KDAG 160520Z 1606/1706 27008KT P6SM BKN200 FM162000 30007KT P6SM SCT250 FM170300 27006KT P6SM BKN250 KDAL 160520Z 1606/1706 36020G30KT P6SM -SN SCT035 OVC060 TEMPO 1606/1608 6SM -SN BR BKN040 FM161000 36017G27KT P6SM SCT050 OVC090 FM161600 36016KT P6SM SCT100 SCT150 SCT300 FM170100 01008KT P6SM SCT300 KDAN 160520Z 1606/1706 00000KT P6SM SCT250 FM161800 VRB03KT P6SM SCT130 BKN250 FM170000 VRB03KT P6SM OVC080 KDAY 160542Z 1606/1706 27010KT P6SM SCT018 FM161100 25008KT P6SM SCT020 FM161800 26008KT P6SM BKN022 FM170200 24006KT P6SM BKN015 OVC040 KDBQ 160520Z 1606/1706 32010KT 6SM -SHSN BR BKN020 TEMPO 1606/1609 3SM -SN BR OVC010 FM161000 32011KT P6SM BKN025 FM162100 31010KT P6SM BKN035 KDCA 160531Z 1606/1712 VRB03KT P6SM OVC009 FM161200 VRB03KT 3SM BR OVC003 FM161500 VRB03KT P6SM BKN010 FM161700 VRB03KT P6SM BKN110 FM170100 01004KT P6SM -SN OVC060 FM170700 34007KT 3SM -SN OVC015 FM170900 34009KT 3SM -SN OVC020 KDDC 160520Z 1606/1706 34008KT P6SM SKC KDEC 160526Z 1606/1706 28013KT P6SM SCT015 FM161400 29013KT P6SM -SN BKN015 FM170200 29007KT P6SM BKN025 KDEN 160525Z 1606/1712 13008KT P6SM FEW035 FM160800 18008KT P6SM SKC FM162000 12006KT P6SM FEW220 FM170200 18008KT P6SM FEW220 KDET 160520Z 1606/1706 25005KT 5SM -SHSN BKN025 FM161400 26005KT 6SM -SHSN BKN020 FM162000 26006KT 3SM -SHSN BKN020 FM170100 30007KT P6SM BKN020 KDFW 160520Z 1606/1712 36020G30KT P6SM -SN SCT035 OVC060 TEMPO 1606/1608 6SM -SN BR BKN040 FM161000 36017G27KT P6SM SCT050 OVC090 FM161600 36016KT P6SM SCT100 SCT150 SCT300 FM170100 01008KT P6SM SCT300 KDHN 160524Z 1606/1706 VRB04KT P6SM SCT250 FM170200 32012G18KT P6SM OVC040 KDHT 160520Z 1606/1706 VRB06KT P6SM FEW250 FM162000 20008KT P6SM SKC KDIJ 160520Z 1606/1706 VRB05KT P6SM SCT025 SCT250 FM162000 18007KT P6SM SCT045 SCT100 FM170400 16007KT P6SM BKN025 OVC040 LTD TO CLD VIS AND WIND KDIK 160535Z 1606/1706 25007KT P6SM SKC FM160900 21008KT P6SM SKC FM161600 19012KT P6SM SCT250 KDLH 160714Z 1607/1706 34008KT P6SM FEW070 TEMPO 1608/1610 5SM -SN OVC020 FM161000 33010KT P6SM BKN020 FM161600 31008KT P6SM SCT020 FM162100 28009KT P6SM SCT100 BKN150 FM170000 26010KT P6SM BKN080 KDLS 160533Z 1606/1706 09006KT P6SM SCT010 OVC020 FM160800 VRB05KT P6SM -SHRA SCT020 BKN040 OVC050 FM161500 31007KT P6SM SCT050 FM162300 31005KT P6SM FEW050 BKN080 KDMA 160607Z 1606/1712 VRB06KT 9999 FEW200 QNH3010INS BECMG 1615/1616 11012KT 9999 SCT160 QNH3017INS TEMPO 1616/1622 11012G18KT BECMG 1702/1703 12009KT 9999 FEW150 BKN200 QNH3021INS TX20/1622Z TN07/1614Z KDMN 160536Z 1606/1706 06012KT P6SM SCT040 BKN140 FM160800 07015G25KT P6SM SCT030 BKN140 FM161800 11010KT P6SM SCT040 BKN160 KDNL 160520Z 1606/1706 VRB03KT P6SM SCT250 FM170000 VRB03KT P6SM BKN100 KDOV 160616Z 1606/1706 07009KT 9999 OVC020 620202 QNH3042INS BECMG 1607/1608 VRB06KT 9999 OVC015 620152 QNH3029INS BECMG 1705/1706 31009KT 9000 -SN OVC015 620159 QNH3028INS TX03/1621Z TNM03/1606Z KDPA 160529Z 1606/1706 27012KT 1SM -SN SCT015 OVC025 TEMPO 1606/1609 3/4SM -SN BR BKN009 OVC015 FM161000 30010KT 2SM -SN SCT015 OVC025 FM161400 32012KT 6SM -SN BKN025 FM161800 33010KT P6SM BKN035 FM170000 32007KT P6SM SCT040 KDRO 160536Z 1606/1706 00000KT P6SM BKN250 FM162000 15005KT P6SM FEW250 FM170400 05004KT P6SM FEW250 KDRT 160520Z 1606/1706 34015G25KT P6SM VCSH OVC035 FM161300 33015G25KT 6SM -FZRAPL OVC035 FM161500 33018KT P6SM OVC050 FM162200 35005KT P6SM BKN100 KDSM 160538Z 1606/1706 32014G22KT P6SM BKN015 FM161300 32012G17KT P6SM BKN015 FM162100 31009KT P6SM SCT250 KDTW 160520Z 1606/1712 25005KT 5SM -SHSN BKN025 FM161400 26005KT 6SM -SHSN BKN020 FM162000 26006KT 3SM -SHSN BKN020 FM170100 30007KT P6SM BKN020 KDUG 160528Z 1606/1706 02007KT P6SM SCT250 FM160900 04009KT P6SM BKN250 FM161700 09012G20KT P6SM SCT140 BKN250 FM170400 05009KT P6SM SCT250 KDUJ 160520Z 1606/1706 12008KT 2SM -SN OVC008 FM161200 21006KT 6SM -SN OVC008 FM161800 22007KT 6SM -SN OVC015 FM170400 27007KT P6SM OVC015 KDVL 160532Z 1606/1706 27006KT P6SM FEW250 FM161800 23012KT P6SM FEW250 KEAR 160541Z 1606/1706 35015KT P6SM FEW020 FM161000 33012KT P6SM BKN020 FM161300 33010KT P6SM FEW250 FM162000 29008KT P6SM SKC KEAT 160659Z 1607/1706 31003KT 1/2SM FG BKN001 OVC035 FM160900 00000KT 3SM BR VCSH BKN003 OVC025 FM161100 VRB02KT 1 1/2SM -RA BR BKN007 OVC015 FM161700 VRB02KT 5SM BR SCT007 BKN060 FM170100 VRB02KT P6SM BKN120 KEAU 160520Z 1606/1706 33007KT P6SM SCT018 BKN050 FM161700 30006KT P6SM FEW018 FM170000 25004KT P6SM SCT100 KECG 160605Z 1606/1706 36006KT 2SM BR OVC003 TEMPO 1606/1610 1/2SM FZFG OVC002 FM161400 35006KT P6SM SCT004 OVC009 FM161600 34006KT P6SM BKN020 FM161700 34005KT P6SM BKN040 KECP 160524Z 1606/1706 VRB04KT P6SM SCT250 FM170300 34010G15KT P6SM BKN250 KEED 160520Z 1606/1706 30006KT P6SM BKN200 FM161800 01008KT P6SM BKN250 FM170200 31006KT P6SM SCT250 KEET 160532Z 1606/1706 00000KT P6SM SKC FM161200 33007KT P6SM BKN050 FM161900 35010KT 5SM -SN OVC035 FM162200 35010KT 3SM -SN OVC015 FM170300 35012KT P6SM BKN050 KEGE 160536Z 1606/1706 14003KT P6SM SKC LTD TO CLD VIS AND WIND TIL 161400 KEKN 160547Z 1606/1706 17005KT P6SM OVC040 FM161000 23004KT 6SM -SN OVC040 TEMPO 1610/1612 4SM -SN OVC025 FM161200 26005KT 5SM -SN OVC025 TEMPO 1612/1615 2SM -SN OVC015 FM161500 26006KT 3SM -SN OVC015 FM161700 26007KT 1 1/2SM -SN OVC008 FM170200 30004KT 3SM -SN OVC015 FM170500 30003KT P6SM BKN025 KEKO 160520Z 1606/1706 VRB05KT P6SM SCT120 BKN200 FM161800 VRB04KT P6SM -SHRA OVC035 KEKS 160548Z 1606/1706 VRB03KT P6SM SCT015 TEMPO 1606/1608 BKN015 FM160900 16010KT P6SM VCFG SCT010 TEMPO 1611/1615 2SM BR SCT005 FM161900 18011G20KT P6SM SCT100 BKN180 KELD 160520Z 1606/1706 36010KT P6SM -RA FEW012 BKN020 OVC035 FM160800 35014G20KT 6SM -SN OVC015 FM161500 35009G15KT P6SM OVC025 FM161700 35009KT P6SM OVC100 FM170000 34006KT P6SM SKC KELM 160535Z 1606/1706 19003KT 3SM -SN SCT015 OVC025 FM161600 19005KT 2SM -SN OVC015 TEMPO 1620/1624 1SM -SN OVC012 FM170200 26006KT P6SM -SN OVC020 KELP 160536Z 1606/1706 06013G23KT P6SM SCT040 BKN140 TEMPO 1608/1612 06020G30KT BKN030 FM161500 07012KT P6SM SCT040 BKN160 FM162100 11010KT P6SM SCT040 BKN200 KELY 160520Z 1606/1706 17010KT P6SM SCT120 BKN200 FM161900 VRB04KT P6SM VCSH SCT040 BKN060 FM170000 20006KT P6SM -SHRA BKN035 KENV 160521Z 1606/1706 29005KT P6SM BKN200 FM162100 10004KT P6SM BKN100 FM170400 VRB04KT P6SM SCT100 KENW 160520Z 1606/1706 34007KT 2SM -SN SCT015 OVC020 FM160800 33008KT 4SM -SN OVC020 FM161300 32008KT 3SM -SN BKN020 FM161800 34012KT P6SM BKN040 KERI 160531Z 1606/1706 18008KT P6SM SCT015 OVC025 FM160900 24008KT P6SM SCT015 OVC025 FM170200 24009KT P6SM BKN015 OVC025 KEUG 160539Z 1606/1706 VRB03KT P6SM -SHRA OVC060 FM160900 19006KT P6SM VCSH SCT015 BKN035 BKN060 FM161800 19008KT P6SM OVC070 KEUL 160531Z 1606/1706 13007KT P6SM BKN200 FM161400 14012KT P6SM OVC070 FM161700 16007KT P6SM -SHRA OVC050 FM162200 15007KT P6SM BKN080 NOT SKED KEVV 160520Z 1606/1706 31009G15KT P6SM BKN035 OVC130 FM161100 31011KT P6SM SCT020 FM161600 31010KT P6SM BKN018 TEMPO 1620/1624 -SN OVC020 FM170300 31006KT P6SM BKN030 KEVW 160521Z 1606/1706 08008KT P6SM SKC FM162000 22007KT P6SM FEW200 FM170300 24005KT P6SM BKN100 KEWN 160551Z 1606/1706 VRB03KT P6SM SKC FM160800 VRB04KT 5SM BR BKN035 FM161100 VRB04KT 3SM BR BKN010 FM161500 VRB04KT P6SM SCT010 FM161700 VRB04KT P6SM FEW200 KEWR 160704Z 1607/1712 VRB05KT P6SM SCT015 TEMPO 1607/1609 BKN015 FM160900 VRB04KT P6SM BKN030 FM161400 VRB05KT P6SM BKN025 FM161800 14006KT P6SM BKN020 FM162100 13006KT 6SM -SN BKN020 FM170000 VRB05KT 2SM -SN BKN015 FM170500 VRB05KT 1SM -SN OVC008 FM170900 VRB05KT 1SM -SN BR OVC008 KEYW 160536Z 1606/1706 03012G21KT P6SM SCT035 SCT050 BKN250 FM161500 04014G23KT P6SM SCT035 BKN050 BKN250 KFAR 160532Z 1606/1706 34013KT 5SM BLSN OVC015 FM160700 33009KT P6SM SCT015 FM161400 26005KT P6SM SCT250 FM162000 19012KT P6SM FEW250 KFAT 160524Z 1606/1706 VRB03KT 2SM BR OVC150 FM161800 33008KT 3SM HZ SCT100 BKN200 KFAY 160535Z 1606/1706 00000KT P6SM SCT250 FM161500 20005KT P6SM BKN250 FM162300 17005KT P6SM BKN120 OVC250 KFBG 160200Z 1602/1708 36006KT 9999 SKC QNH3038INS BECMG 1614/1615 03006KT 9999 SKC QNH3032INS BECMG 1617/1618 18006KT 9999 SCT250 QNH3025INS BECMG 1623/1624 27006KT 9999 SCT250 QNH3022INS TX11/1621Z TNM06/1612Z KFCS 160514Z 1605/1711 18009KT 9999 BKN006 620104 QNH3044INS TEMPO 1605/1610 BKN010 BECMG 1610/1611 18009KT 9999 SCT020 QNH3044INS TEMPO 1611/1615 BKN020 620202 BECMG 1614/1615 19009KT 9999 FEW250 QNH3030INS BECMG 1700/1701 33006KT 9999 FEW250 QNH3020INS TX02/1621Z TNM13/1615Z KFDY 160531Z 1606/1706 25015KT P6SM -SN BKN025 OVC040 TEMPO 1607/1611 BKN015 OVC025 FM161100 25011KT P6SM BKN025 OVC040 FM170300 25006KT P6SM SCT007 OVC010 KFFO 160349Z 1603/1709 25009KT 9999 OVC010 620104 QNH3028INS TEMPO 1603/1605 6000 -SN BECMG 1608/1609 26008KT 9999 SCT015 BKN040 620402 QNH3040INS BECMG 1617/1618 25010KT 9999 BKN020 OVC040 620204 QNH3046INS BECMG 1623/1624 27006KT 9999 BKN015 OVC030 620155 QNH3051INS TXM03/1603Z TNM15/1614Z KFHU 160203Z 1602/1708 29009KT 9999 FEW250 QNH3012INS BECMG 1609/1610 VRB06KT 9999 BKN180 QNH3020INS BECMG 1617/1618 30010G15KT 9999 FEW250 QNH3025INS BECMG 1701/1702 29009KT 9999 FEW250 QNH3028INS TX22/1622Z TN05/1614Z KFKL 160520Z 1606/1706 12008KT 2SM -SN OVC008 TEMPO 1606/1610 1SM -SN OVC004 FM161100 21006KT 6SM -SN OVC010 FM162300 27007KT P6SM OVC015 KFLG 160539Z 1606/1706 VRB05KT P6SM SCT150 OVC200 FM161800 21008KT P6SM SCT150 BKN200 FM170200 VRB03KT P6SM BKN100 OVC130 KFLL 160534Z 1606/1712 06010G20KT P6SM VCSH FEW035 SCT045 BKN060 FM161000 06012KT P6SM SCT030 SCT045 FM161400 05012KT P6SM SCT040 FM170100 03010KT P6SM SCT040 FM170900 34006KT P6SM SCT025 SCT035 KFLO 160520Z 1606/1706 00000KT P6SM SKC KFMH 160543Z 1606/1706 01007KT P6SM BKN006 OVC012 FM160700 36008KT P6SM BKN010 FM161400 34005KT P6SM BKN010 FM170100 VRB03KT P6SM OVC110 FM170400 14005KT P6SM VCSH OVC100 KFMN 160532Z 1606/1706 25006KT P6SM BKN200 FM160800 08006KT P6SM BKN200 FM162200 20006KT P6SM SCT200 FM170400 07005KT P6SM FEW200 KFMY 160521Z 1606/1706 04012KT P6SM FEW050 FM160800 04007KT P6SM FEW050 FM161600 06010KT P6SM SCT050 SCT250 KFNT 160600Z 1606/1706 00000KT 2SM -SN BR SCT025 OVC045 TEMPO 1606/1608 1SM -SN BR OVC025 FM160900 35005KT 6SM -SHSN BKN020 FM161600 34007KT 3SM -SHSN BKN020 FM162300 36009KT P6SM BKN025 KFOD 160538Z 1606/1706 32011G16KT P6SM VCSH BKN027 FM161200 32010KT P6SM BKN021 FM162000 32007KT P6SM SCT250 KFOE 160702Z 1607/1706 33012KT P6SM SCT030 FM162100 32007KT P6SM SCT030 KFPR 160534Z 1606/1706 04010KT P6SM SCT030 FM161400 04010G17KT P6SM SCT035 FM170000 04009KT P6SM SCT040 SCT250 KFRI 160000Z 1600/1706 33010G15KT 9999 SCT035 QNH3061INS BECMG 1605/1606 34009KT 9999 SCT030 510102 QNH3070INS BECMG 1623/1624 30006KT 9999 SCT035 QNH3069INS TXM10/1621Z TNM16/1614Z KFSD 160520Z 1606/1706 34013G19KT P6SM BKN020 FM160800 33012KT P6SM SCT020 FM161200 32009KT P6SM SCT035 FM161900 29005KT P6SM SKC FM162300 VRB04KT P6SM FEW120 KFSM 160538Z 1606/1706 33014G22KT P6SM SCT030 OVC100 FM161000 33013G20KT P6SM SKC FM161600 32013KT P6SM SKC FM170000 33006KT P6SM SKC KFST 160557Z 1606/1706 04011KT P6SM OVC035 FM161700 05010KT P6SM BKN120 KFTK 160653Z 1606/1707 33012KT 3200 -SN OVC013 620139 QNH3035INS TEMPO 1606/1608 1600 -SN OVC007 620079 BECMG 1608/1609 34012KT 9999 NSW SCT040 BKN100 QNH3040INS TXM10/1606Z TNM13/1610Z KFTW 160520Z 1606/1706 36020G30KT P6SM -SN SCT035 OVC060 TEMPO 1606/1608 6SM -SN BR BKN040 FM161000 36017G27KT P6SM SCT050 OVC090 FM161600 36016KT P6SM SCT100 SCT150 SCT300 FM170100 01008KT P6SM SCT300 KFTY 160545Z 1606/1706 00000KT P6SM FEW200 FM161000 22003KT P6SM FEW200 FM161600 25007KT P6SM SCT120 FM162000 30008KT P6SM BKN040 BKN100 FM162300 32011G16KT P6SM OVC015 PROB30 1623/1705 5SM -SN BR BKN025 FM170500 32011G16KT P6SM BKN040 BKN100 KFVE 160555Z 1606/1706 VRB03KT P6SM VCSH SCT015 BKN120 TEMPO 1608/1610 BKN015 FM161000 VRB03KT P6SM BKN015 FM161900 VRB03KT P6SM SCT020 BKN100 FM170000 VRB03KT P6SM BKN015 KFWA 160520Z 1606/1706 24010KT P6SM BKN020 FM162000 24008KT 5SM BR OVC015 KFXE 160534Z 1606/1706 05010KT P6SM VCSH SCT035 SCT045 BKN060 FM161500 04012KT P6SM SCT040 FM170100 02006KT P6SM SCT035 KFYV 160538Z 1606/1706 34014G20KT P6SM SCT030 OVC150 FM160900 33012G18KT P6SM SCT030 FM161600 33010KT P6SM SKC FM170000 33004KT P6SM SKC KGAG 160520Z 1606/1706 35010KT P6SM FEW120 FM170000 13004KT P6SM SKC KGBD 160525Z 1606/1706 35009KT P6SM SKC FM162100 02005KT P6SM SKC FM170500 18004KT P6SM SKC LTD TO CLD VIS AND WIND KGCC 160610Z 1606/1706 19013KT P6SM SKC KGCK 160520Z 1606/1706 35008KT P6SM SKC KGCN 160539Z 1606/1706 VRB06KT P6SM SCT150 OVC200 FM161800 06007KT P6SM SCT150 BKN200 FM170200 VRB03KT P6SM BKN100 OVC130 KGDV 160530Z 1606/1706 20007KT P6SM SKC FM160800 20005KT P6SM FEW200 KGEG 160533Z 1606/1706 05012KT P6SM SCT150 BKN200 FM161400 07006KT P6SM VCSH BKN050 OVC100 FM161500 16006KT 3SM -RASN OVC015 FM161800 20008KT P6SM -RA OVC025 FM162100 21008KT P6SM BKN030 OVC070 FM170100 13004KT P6SM OVC020 KGFA 160406Z 1604/1710 21009KT 0600 FZFG BKN002 610103 QNH3028INS TEMPO 1604/1609 1600 BR BKN005 BECMG 1608/1609 22012KT 4800 -SHSN BR BKN005 610103 QNH3013INS BECMG 1614/1615 21012KT 9999 -SHSN BKN010 BKN030 610104 QNH3010INS BECMG 1617/1618 22012KT 9999 NSW SCT030 QNH3004INS BECMG 1702/1703 22015G25KT 9999 SCT050 SCT120 510009 QNH3010INS TXM05/1620Z TNM18/1612Z KGFK 160532Z 1606/1706 34007KT P6SM SKC FM161800 21012KT P6SM SCT250 KGFL 160534Z 1606/1706 VRB03KT P6SM VCSH BKN030 OVC100 FM161200 VRB03KT P6SM VCSH OVC030 TEMPO 1612/1616 5SM -SN SCT015 OVC030 FM161600 17005KT 2SM -SN BR OVC015 KGGG 160520Z 1606/1706 35013G21KT P6SM -RA OVC010 FM160700 35017G24KT 3SM -SN BKN010 OVC025 FM161500 36015G21KT P6SM OVC050 FM162200 35012KT P6SM SCT100 FM170000 34005KT P6SM SKC KGGW 160530Z 1606/1706 11012KT P6SM FEW200 FM162100 12008KT P6SM SKC KGJT 160536Z 1606/1706 32009KT P6SM FEW250 FM160900 08006KT P6SM FEW250 FM161700 14006KT P6SM FEW250 FM170000 32004KT P6SM FEW250 KGKY 160520Z 1606/1706 36020G30KT P6SM -SN SCT035 OVC060 TEMPO 1606/1608 6SM -SN BR BKN040 FM161000 36017G27KT P6SM SCT050 OVC090 FM161600 36016KT P6SM SCT100 SCT150 SCT300 FM170100 01008KT P6SM SCT300 KGLD 160524Z 1606/1706 33007KT P6SM SKC FM162000 23005KT P6SM SKC FM162300 17006KT P6SM SKC KGLH 160616Z 1606/1706 03012G20KT P6SM OVC050 FM160700 01015G26KT P6SM -SNPL BKN015 FM160900 36015G29KT 4SM -SN BKN015 FM161100 36017G30KT 2SM -SN BR BKN010 FM161600 35014G25KT 4SM -SN BKN025 BKN050 FM161800 35012G22KT P6SM SCT025 BKN090 KGLS 160520Z 1606/1706 10008KT P6SM SCT035 BKN090 FM161000 36015G25KT P6SM -SHRA OVC015 FM161200 36021G31KT 6SM -RA BR SCT008 OVC012 FM161900 35019G29KT 6SM -RAPL BR OVC015 FM162100 36018G28KT 6SM -SNPL BR OVC025 FM170100 36017G27KT P6SM SCT025 BKN045 KGMU 160540Z 1606/1706 20003KT P6SM SCT250 FM161600 21006KT P6SM SCT120 BKN250 FM170100 22004KT P6SM SCT050 BKN120 PROB30 1702/1706 4SM -RA OVC025 KGNV 160553Z 1606/1706 VRB03KT P6SM SKC FM161500 06006KT P6SM FEW250 FM170000 VRB03KT P6SM BKN250 KGON 160523Z 1606/1706 01008KT P6SM BKN035 FM161000 VRB04KT P6SM BKN030 FM161400 VRB04KT P6SM BKN025 FM161800 14006KT P6SM BKN020 FM170100 VRB05KT 6SM -SN BKN020 FM170400 VRB04KT 2SM -RASN BKN015 KGPI 160520Z 1606/1706 01010KT P6SM FEW020 FM161000 00000KT 2SM BR VCFG SCT007 BKN020 FM161500 VRB04KT 5SM BR VCFG FEW007 SCT020 FM161800 VRB05KT P6SM SCT050 KGPT 160550Z 1606/1706 00000KT P6SM SKC FM160800 05004KT P6SM FEW130 SCT150 FM161200 03004KT P6SM FEW050 SCT080 FM161500 36009KT P6SM FEW060 SCT080 FM161600 36009KT P6SM BKN035 BKN080 FM162200 36016G24KT P6SM -PLRASN BKN015 OVC035 FM170100 36014G22KT P6SM -SN BKN014 OVC040 KGRB 160627Z 1606/1706 01010G15KT P6SM -SHSN SCT015 OVC035 TEMPO 1606/1610 3SM -SHSN BKN015 FM161100 35007KT P6SM -SHSN SCT015 BKN040 FM161800 32006KT P6SM BKN050 FM170200 29005KT P6SM SCT250 KGRF 160512Z 1605/1711 15009KT 6000 -RA SCT040 BKN060 620703 QNH2987INS BECMG 1608/1609 17009KT 3200 -RA BR BKN015 620505 QNH2996INS TEMPO 1609/1614 4800 -RA BKN020 BECMG 1617/1618 20012G20KT 8000 -SHRA BKN015 610307 QNH3011INS BECMG 1702/1703 15009KT 8000 -RA BKN020 620305 QNH3022INS BECMG 1705/1706 15009KT 9999 NSW BKN030 620307 QNH3011INS TX11/1622Z TN06/1611Z KGRI 160541Z 1606/1706 34017KT P6SM FEW020 FM160830 33013KT P6SM BKN020 FM161200 33009KT P6SM FEW020 FM162100 29007KT P6SM SKC KGRK 160650Z 1606/1706 01025G35KT 8000 -RA OVC010 620109 510002 QNH3048INS TEMPO 1606/1609 6000 -FZRA 690001 BECMG 1608/1609 01025G35KT 6000 -PL OVC020 630251 510002 QNH3050INS BECMG 1611/1612 01015G25KT 4800 -SN BKN020 610209 QNH3060INS BECMG 1616/1617 01012G20KT 9999 NSW SCT030 BKN100 QNH3064INS BECMG 1701/1702 01010KT 9999 SCT060 BKN100 QNH3060INS TX02/1606Z TNM05/1610Z KGRR 160540Z 1606/1706 06006KT 4SM -SN BR OVC025 FM161100 01005KT 2SM -SN BR OVC015 FM170100 31006KT 5SM -SN BR BKN015 KGSB 160310Z 1603/1703 34009KT 9999 SKC QNH3038INS BECMG 1614/1615 VRB06KT 9999 SKC QNH3035INS TX07/1621Z TNM03/1609Z LAST NO AMDS AFT 1603 NEXT 1605 KGSO 160535Z 1606/1706 00000KT P6SM SCT250 FM161500 21005KT P6SM SCT080 BKN250 FM170000 18005KT P6SM OVC080 KGSP 160540Z 1606/1706 20003KT P6SM SCT250 FM161600 21006KT P6SM SCT120 BKN250 FM170100 22004KT P6SM SCT050 BKN120 PROB30 1702/1706 4SM -RA OVC025 KGTB 160100Z 1601/1707 05006KT 9999 FEW035 OVC070 620702 QNH3035INS BECMG 1604/1605 12006KT 4800 -SN SCT015 BKN020 620209 QNH3029INS TEMPO 1605/1610 2400 -SN BECMG 1609/1610 12006KT 4800 -SN OVC015 620159 QNH3026INS BECMG 1620/1621 16006KT 9999 NSW OVC015 620155 QNH3026INS TXM06/1622Z TNM12/1601Z KGTF 160548Z 1606/1706 19011G20KT P6SM SKC FM170000 22015G24KT P6SM SCT100 BKN180 KGTR 160616Z 1606/1706 35005KT P6SM SCT010 BKN060 FM160900 34012KT P6SM BKN015 FM161300 35013G23KT 4SM -SN BR BKN012 FM161700 35013G23KT 2SM -SN BR BKN010 FM162000 34012G17KT P6SM -SN BKN025 FM162200 34011KT P6SM SCT025 OVC100 KGUC 160536Z 1606/1706 00000KT P6SM SKC KGUP 160532Z 1606/1706 07006KT P6SM BKN200 FM162100 VRB05KT P6SM SCT200 KGUS 160412Z 1604/1709 27012KT 6000 BLSN BR OVC004 620045 QNH3035INS BECMG 1700/1701 28006KT 3200 -SN BKN006 620066 QNH3048INS TEMPO 1701/1709 0800 SN TXM08/1702Z TNM14/1611Z KGUY 160520Z 1606/1706 VRB06KT P6SM FEW250 FM170100 16008KT P6SM SKC KGWO 160616Z 1606/1706 36008KT P6SM BKN050 FM160900 36012KT P6SM BKN025 BKN050 FM161200 36013G17KT 6SM -SNPL BR BKN015 FM161400 36012G17KT 2SM -SN BR BKN010 FM161700 34010KT P6SM -SN BKN025 FM162100 34009KT P6SM SCT025 BKN100 KGYY 160529Z 1606/1706 26012KT 1 1/2SM -SN SCT015 OVC025 TEMPO 1607/1611 1SM -SN BR BKN009 OVC015 FM161100 30010KT 2SM -SN SCT015 OVC025 TEMPO 1614/1618 1SM -SN SCT009 OVC015 FM161800 33010KT 6SM -SHSN BKN025 FM170000 32008KT P6SM SCT040 KHBG 160616Z 1606/1706 VRB03KT P6SM SKC FM161100 36010KT P6SM SCT025 BKN050 FM161500 35006KT P6SM BKN012 FM161900 35011KT 6SM -RASN OVC015 FM162100 35013KT 4SM -SN BR OVC015 KHBR 160520Z 1606/1706 36014KT P6SM SCT110 FM170000 05006KT P6SM SKC FM170400 12006KT P6SM SKC KHCR 160521Z 1606/1706 VRB03KT P6SM FEW200 FM170300 VRB03KT P6SM SCT100 BKN200 KHDC 160550Z 1606/1706 00000KT P6SM SKC FM161400 36008KT P6SM BKN050 BKN080 FM161700 36010KT P6SM BKN030 BKN130 FM162000 36010G21KT P6SM -FZRAPL BKN014 OVC030 FM162130 36015G23KT 5SM -SNPL BKN014 OVC020 FM170100 36012G20KT P6SM BKN015 OVC050 KHIB 160540Z 1606/1706 35010KT P6SM OVC009 FM161000 32007KT P6SM OVC010 FM161700 32007KT P6SM SCT015 FM161900 28006KT P6SM BKN150 FM162100 28007KT P6SM BKN090 KHIE 160530Z 1606/1706 VRB03KT P6SM SCT035 BKN250 FM161000 VRB03KT P6SM -SHSN OVC035 KHIO 160539Z 1606/1706 VRB03KT P6SM -RA BKN035 OVC050 FM161000 VRB03KT P6SM VCSH SCT015 BKN040 BKN060 FM161800 VRB04KT P6SM OVC070 KHKS 160616Z 1606/1706 VRB03KT P6SM BKN050 FM161200 35012G15KT 6SM -SN BKN015 FM161600 35013G18KT 3SM -SN BR BKN010 FM162100 34011G15KT P6SM -SN BKN020 FM170000 34008KT P6SM BKN090 KHKY 160540Z 1606/1706 VRB03KT P6SM SCT250 FM161700 21006KT P6SM SCT120 BKN250 FM170100 16003KT P6SM SCT045 BKN100 PROB30 1701/1706 4SM -RASN OVC025 KHLG 160520Z 1606/1706 21006KT 3SM -SN OVC025 TEMPO 1606/1610 2SM -SN OVC010 FM161000 24005KT 6SM -SN OVC008 FM161800 24007KT 6SM -SN OVC015 FM170100 28010KT P6SM OVC025 KHLN 160548Z 1606/1706 VRB03KT P6SM VCFG SCT015 TEMPO 1611/1615 3SM BR SCT005 FM161900 VRB06KT P6SM SCT100 BKN180 KHMN 160401Z 1604/1710 08010G15KT 9999 SCT030 BKN180 QNH3027INS TEMPO 1605/1608 31012G20KT BKN015 BECMG 1614/1615 19006KT 9999 FEW030 QNH3041INS BECMG 1620/1621 21009KT 9999 FEW050 QNH3037INS BECMG 1702/1703 16006KT 9999 SKC QNH3036INS TX04/1622Z TNM05/1613Z KHNB 160525Z 1606/1706 32009KT P6SM SCT025 BKN080 FM161400 28007KT P6SM FEW040 FM162100 28007KT P6SM BKN030 KHND 160520Z 1606/1706 17007KT P6SM BKN200 FM161800 VRB04KT P6SM BKN250 FM170300 17007KT P6SM SCT250 KHOB 160520Z 1606/1706 05011KT P6SM OVC070 FM161200 04009KT P6SM BKN120 KHON 160520Z 1606/1706 33013G21KT P6SM BKN020 FM160800 32010KT P6SM SCT020 FM161500 30005KT P6SM SKC FM161800 27004KT P6SM SKC FM162000 20005KT P6SM FEW120 FM170100 17008KT P6SM FEW120 KHOP 160701Z 1607/1706 35012KT 3200 -SN BLSN BR FEW002 OVC015 620157 QNH3038INS TEMPO 1607/1608 4800 -SN OVC007 620079 BECMG 1607/1608 33012G18KT 4800 -SN BKN007 OVC020 620079 QNH3042INS BECMG 1610/1611 33012KT 9999 NSW BKN040 620406 QNH3047INS WND 33009KT AFT 1622 TXM09/1607Z TNM12/1611Z KHOT 160546Z 1606/1706 34006KT 4SM -SN BR FEW009 OVC015 FM161200 36011G16KT P6SM SCT025 OVC040 FM161800 33009KT P6SM SCT040 BKN250 FM170000 34005KT P6SM SCT250 KHOU 160520Z 1606/1706 11006KT P6SM BKN060 FM160830 35015G25KT 6SM -SHRA FEW008 OVC012 FM161400 35019G29KT 6SM -RAPL BR SCT008 OVC012 FM161630 36019G29KT 5SM -FZRAPL OVC015 FM161900 36017G27KT P6SM -SNPL SCT025 OVC045 FM162300 36016KT P6SM SCT045 OVC080 FM170400 36014KT P6SM BKN100 KHPN 160523Z 1606/1706 VRB05KT P6SM SCT025 TEMPO 1606/1609 BKN025 FM160900 VRB03KT P6SM BKN025 FM161400 09006KT P6SM BKN015 FM161800 11006KT P6SM BKN015 FM162100 VRB04KT 6SM -SN BKN012 FM170100 VRB03KT 2SM -SN BKN008 NOT SKED KHQM 160534Z 1606/1706 15015KT P6SM -RA OVC028 FM161000 14006KT P6SM VCSH OVC035 FM161600 15009KT P6SM VCSH SCT025 OVC040 FM161900 16008KT P6SM VCSH SCT025 BKN040 KHRL 160520Z 1606/1706 11005KT P6SM BKN070 FM161500 34022G35KT P6SM -DZRA OVC010 KHRO 160546Z 1606/1706 33013KT P6SM SCT027 FM161200 31011G15KT P6SM SCT250 FM162100 31010KT P6SM SCT060 BKN250 KHRT 160100Z 1601/1707 VRB06KT 9999 FEW250 QNH3030INS BECMG 1617/1618 34009KT 9999 FEW030 FEW200 QNH3027INS BECMG 1623/1624 36015G22KT 9999 BKN030 BKN150 QNH3032INS TX13/1621Z TN02/1612Z KHST 160000Z 1600/1706 05012KT 9999 FEW020 SCT040 QNH3017INS BECMG 1615/1616 03012G18KT 9999 BKN030 510301 QNH3015INS TX23/1619Z TN17/1610Z KHSV 160520Z 1606/1706 25008KT P6SM SCT100 FM160800 31008KT P6SM BKN035 FM161200 33010KT P6SM BKN015 FM161500 34011KT 4SM -SN BR BKN007 FM162100 35010KT P6SM OVC025 KHTS 160547Z 1606/1706 26005KT 6SM -SN OVC015 FM160900 26005KT 4SM -SN OVC015 TEMPO 1609/1612 1SM -SN OVC007 FM161200 27005KT 2SM -SN OVC007 TEMPO 1612/1615 3/4SM -SN OVC003 FM161500 27006KT 3/4SM -SN OVC005 FM161900 27006KT 3SM -SN OVC015 FM162100 28006KT P6SM BKN025 FM162200 29005KT P6SM BKN035 KHUF 160520Z 1606/1706 29007KT P6SM SCT025 FM161400 27009KT P6SM BKN070 FM161900 27008KT P6SM BKN015 FM170400 28006KT P6SM BKN035 KHUL 160555Z 1606/1706 01004KT 3SM -SN OVC025 FM160800 36004KT 4SM -SN OVC020 FM161500 03003KT 6SM -SN SCT020 OVC100 FM170300 18004KT P6SM SCT020 OVC050 KHUM 160709Z 1607/1706 00000KT 3SM BR SCT001 TEMPO 1607/1611 1/2SM FG BKN001 FM161100 02004KT 4SM BR SCT050 BKN100 FM161300 01008KT P6SM SCT030 BKN060 FM161700 36012KT P6SM BKN030 BKN070 FM162200 36014G20KT P6SM -PLSN BKN015 OVC040 FM170200 36013G20KT P6SM BKN020 OVC060 KHUT 160525Z 1606/1706 35013KT P6SM SKC FM162100 34008KT P6SM SKC FM170100 01004KT P6SM SKC KHVR 160548Z 1606/1706 VRB05KT P6SM SKC FM161100 VRB03KT P6SM VCFG FEW010 FM161800 20008KT P6SM SKC KHYA 160543Z 1606/1706 01011KT P6SM OVC012 FM160900 36010G18KT P6SM BKN015 FM161400 34007KT P6SM OVC025 FM170200 15004KT P6SM OVC120 FM170500 14005KT P6SM VCSH OVC090 KHYR 160540Z 1606/1706 03004KT 3SM -SN BKN018 OVC035 TEMPO 1606/1608 1 1/2SM -SN FM160900 01004KT 6SM -SN BKN020 OVC035 FM161800 29004KT P6SM SCT020 FM162300 22003KT P6SM BKN100 KHYS 160520Z 1606/1706 33006KT P6SM SKC KIAB 160200Z 1602/1708 34009KT 9999 SCT040 QNH3067INS BECMG 1614/1615 34012G18KT 9999 SKC QNH3075INS BECMG 1617/1618 35012KT 9999 SKC QNH3069INS BECMG 1623/1624 35006KT 9999 SKC QNH3065INS TXM08/1620Z TNM14/1611Z KIAD 160531Z 1606/1712 00000KT P6SM OVC008 FM161100 VRB03KT P6SM OVC003 FM161200 VRB03KT 3SM BR OVC003 FM161500 VRB03KT P6SM BKN003 FM161800 18004KT P6SM OVC060 FM170000 36004KT P6SM OVC060 FM170100 36005KT P6SM -SN OVC045 FM170600 34007KT 2SM -SN OVC020 KIAG 160525Z 1606/1706 16006KT 5SM -SN OVC020 TEMPO 1606/1609 2SM -SN OVC015 FM161100 22006KT P6SM SCT007 BKN015 FM161700 23010KT P6SM BKN025 FM162300 24009KT P6SM BKN025 FM170500 23010KT P6SM BKN015 KIAH 160520Z 1606/1712 12007KT P6SM BKN045 BKN080 FM160730 35015G25KT 5SM -SHRA SCT008 OVC012 FM161200 36018G28KT 6SM -RAPL BR SCT008 OVC012 FM161400 35017G27KT 5SM -FZRAPL BR OVC012 FM161700 36019KT 5SM -SNPL BR OVC015 FM162000 36016KT P6SM -SN OVC025 FM162300 35012KT P6SM OVC080 FM170900 35006KT P6SM SKC KICT 160525Z 1606/1706 35014KT P6SM SKC FM162100 34009KT P6SM SKC FM170100 36006KT P6SM SKC KIDA 160520Z 1606/1706 36006KT P6SM SCT250 FM162200 VRB05KT P6SM SCT035 BKN100 FM170200 VRB05KT P6SM BKN030 OVC050 KIFP 160520Z 1606/1706 02008KT P6SM BKN200 FM161800 36012G20KT P6SM BKN250 FM170200 03006KT P6SM SCT250 KILG 160521Z 1606/1706 VRB03KT P6SM OVC015 FM161600 15004KT P6SM SCT015 BKN035 FM170100 07004KT P6SM OVC015 FM170500 01004KT 1SM -SN OVC005 KILM 160520Z 1606/1706 VRB02KT P6SM SKC KILN 160542Z 1606/1706 27010KT 3SM -SN BR SCT012 OVC035 TEMPO 1606/1607 2SM -SN BR BKN012 FM160800 27009KT P6SM SCT015 BKN070 FM161200 26008KT P6SM SCT020 FM161900 27007KT P6SM BKN022 FM170400 25005KT P6SM BKN015 OVC040 KIND 160520Z 1606/1712 27014KT P6SM SCT015 BKN170 FM160800 27008KT P6SM SCT200 FM170000 26007KT 5SM BR BKN015 FM170500 27006KT P6SM BKN040 KINK 160556Z 1606/1706 04013G19KT P6SM OVC040 FM161500 05010KT P6SM BKN120 NOT SKED KINL 160540Z 1606/1706 35010KT P6SM OVC009 FM161200 32005KT P6SM OVC013 FM161600 25004KT P6SM SCT015 FM161800 25007KT P6SM SCT050 BKN100 TEMPO 1620/1623 BKN050 KINT 160535Z 1606/1706 00000KT P6SM SCT250 FM161500 21005KT P6SM SCT080 OVC250 FM162300 17005KT P6SM OVC080 KINW 160539Z 1606/1706 VRB05KT P6SM SCT150 BKN200 KIPL 160520Z 1606/1706 25005KT P6SM BKN200 FM161600 VRB04KT P6SM BKN180 TEMPO 1620/1624 09005KT KIPT 160607Z 1606/1706 09006KT 1 1/2SM -SN BKN018 OVC060 FM160900 10004KT 4SM -SN OVC025 FM161300 11007KT 3/4SM -SN BR OVC015 FM161800 11006KT 3/4SM -SN BR OVC009 KISM 160534Z 1606/1706 36006KT P6SM SKC FM161500 03009KT P6SM FEW040 FM162300 02006KT P6SM SCT250 KISN 160535Z 1606/1706 19003KT P6SM SKC FM161800 19007KT P6SM SCT150 KISO 160520Z 1606/1706 VRB03KT P6SM SKC LTD TO CLD VIS AND WIND KISP 160705Z 1607/1706 VRB03KT P6SM SCT009 TEMPO 1607/1610 BKN009 FM161000 VRB04KT P6SM BKN015 FM161400 VRB05KT P6SM BKN020 FM161800 14006KT P6SM BKN020 FM170000 13006KT 6SM -SN BKN020 FM170300 VRB04KT 2SM -RASN BKN015 KITH 160535Z 1606/1706 16009KT 3SM -SN OVC025 FM161700 17008KT 1SM -SN OVC008 TEMPO 1618/1622 1/2SM SN OVC005 FM170200 23006KT 6SM -SN OVC012 KIWA 160714Z 1607/1706 12006KT P6SM BKN200 TEMPO 1617/1621 12010G20KT LTD TO CLD VIS AND WIND TIL 161300 KIWD 160641Z 1607/1706 36004KT 2SM -SHSN SCT025 FM160800 01010KT 2SM -SHSN OVC015 FM161500 33006KT 2SM -SHSN OVC010 FM161800 31006KT 5SM -SHSN BKN015 FM162100 29005KT P6SM -SHSN SCT025 FM162200 28005KT P6SM SCT025 KIXD 160520Z 1606/1706 33012KT P6SM SKC FM161500 31010KT P6SM OVC025 FM162200 31005KT P6SM SCT025 KJAC 160531Z 1606/1706 03005KT 5SM BR BKN003 FM161000 VRB03KT 1/2SM FZFG OVC002 FM162100 19006KT P6SM VCFG SCT002 FM170300 VRB05KT P6SM VCFG SCT090 LTD TO CLD VIS AND WIND KJAN 160616Z 1606/1706 VRB03KT P6SM BKN050 FM161200 35012G15KT 6SM -SN BKN015 FM161600 35013G18KT 3SM -SN BR BKN010 FM162100 34011G15KT P6SM -SN BKN020 FM170000 34008KT P6SM BKN090 KJAX 160553Z 1606/1706 VRB03KT P6SM SKC FM161500 06007KT P6SM SCT250 FM170000 VRB03KT P6SM BKN250 KJBR 160635Z 1607/1706 36008KT 2SM -SN BKN020 OVC040 FM161200 33009KT P6SM SKC FM161800 32009KT P6SM OVC250 FM170000 33004KT P6SM BKN250 KJCT 160613Z 1606/1706 01020G30KT P6SM BKN025 TEMPO 1608/1612 P6SM -PLSN FM161200 02014G20KT P6SM OVC035 TEMPO 1612/1615 P6SM -PLSN FM161800 02012KT P6SM OVC050 KJER 160531Z 1606/1706 05018KT P6SM BKN200 FM161400 05025KT P6SM BKN150 FM162100 06010KT P6SM VCSH OVC080 FM170300 05007KT P6SM BKN100 KJFK 160554Z 1606/1712 04006KT P6SM SCT015 TEMPO 1606/1609 BKN015 FM160900 VRB04KT P6SM BKN030 FM161400 10006KT P6SM BKN025 FM161800 14007KT P6SM BKN020 FM162200 13006KT 6SM -SN BKN020 FM170100 VRB05KT 2SM -SN BKN015 TEMPO 1703/1706 -RASN FM170600 06006KT 1SM -RASN OVC008 FM170900 04007KT 1SM -SN BR OVC008 KJHW 160525Z 1606/1706 17006KT 3SM -SN OVC025 TEMPO 1606/1609 1SM -SN OVC007 FM161600 23006KT P6SM BKN007 FM170100 25005KT P6SM BKN007 LTD TO CLD VIS AND WIND KJKL 160539Z 1606/1706 VRB05KT 6SM -SHSN BR SCT008 OVC015 FM160900 VRB05KT 2SM -SN BR OVC015 FM161200 VRB05KT 3/4SM -SN BR BKN005 OVC008 FM161600 VRB05KT 2SM -SN BR OVC010 FM162200 VRB05KT 4SM -SN BKN008 FM170200 VRB04KT 6SM -SHSN BR BKN015 KJLN 160532Z 1606/1706 33012KT P6SM SCT130 FM162200 32008KT P6SM FEW130 FM170100 32004KT P6SM FEW250 KJMS 160535Z 1606/1706 32010KT P6SM SKC FM161200 28007KT P6SM SKC FM161500 24006KT P6SM SKC FM161900 21009KT P6SM SCT150 KJST 160559Z 1606/1706 18008KT P6SM BKN045 OVC060 FM160900 21007KT 2SM -SN BR OVC030 FM161300 22007KT 1 1/2SM -SN BR OVC009 FM161500 22006KT 1/2SM SN FG OVC003 KJXN 160540Z 1606/1706 20008KT 5SM -SN OVC035 FM161100 21005KT 5SM -SN BR OVC015 FM162200 27005KT 5SM BR OVC015 KLAF 160520Z 1606/1706 27012G17KT P6SM FEW025 OVC050 FM160900 26010KT P6SM SCT070 FM161700 26009KT P6SM OVC015 FM162000 26009KT P6SM BKN008 FM170400 28007KT P6SM BKN040 LTD TO CLD VIS AND WIND TIL 161400 KLAL 160521Z 1606/1706 03006KT P6SM FEW250 FM161600 06006KT P6SM SCT050 SCT250 NOT SKED 1606/1612 KLAN 160540Z 1606/1706 10004KT 3SM -SN BR OVC035 FM160900 05004KT 5SM -SN BR OVC025 FM161100 01005KT 5SM -SN BR OVC015 FM170100 35008KT 5SM BR OVC020 KLAR 160531Z 1606/1706 15005KT P6SM SKC FM161800 28010KT P6SM SKC FM170100 18006KT P6SM SKC KLAS 160520Z 1606/1712 22006KT P6SM BKN200 FM161600 VRB04KT P6SM BKN200 FM162000 09005KT P6SM BKN250 FM170300 22006KT P6SM SCT250 KLAW 160520Z 1606/1706 01018G27KT P6SM SCT100 FM160900 36015KT P6SM FEW120 FM170000 02005KT P6SM SKC KLAX 160548Z 1606/1712 27008KT P6SM BKN008 FM161600 VRB03KT P6SM SCT010 BKN200 FM162000 26010KT P6SM BKN200 FM170300 VRB03KT P6SM BKN200 FM170900 VRB03KT P6SM BKN010 KLBB 160520Z 1606/1706 03015KT P6SM SCT060 OVC090 FM160900 03010KT P6SM OVC090 FM162000 11005KT P6SM SCT100 SCT250 KLBE 160520Z 1606/1706 13005KT 6SM -SN OVC035 FM160800 21005KT 4SM -SN OVC010 TEMPO 1608/1612 2SM -SN OVC008 FM170300 29010KT 6SM -SN OVC015 KLBF 160520Z 1606/1706 33010KT P6SM FEW250 FM161300 32006KT P6SM SKC FM162000 19005KT P6SM FEW250 KLBL 160520Z 1606/1706 35004KT P6SM SKC KLBT 160520Z 1606/1706 00000KT P6SM SKC KLBX 160520Z 1606/1706 12008KT P6SM BKN035 BKN060 FM160900 35015G25KT P6SM -SHRA FEW008 OVC015 FM161300 35018G28KT 6SM -RA BR SCT007 OVC012 FM161700 36017G27KT 5SM -FZRAPL BR SCT007 OVC015 FM162100 36017KT 6SM -SNPL OVC020 FM170100 36014KT P6SM SCT045 BKN080 KLCH 160533Z 1606/1706 VRB05KT P6SM SKC FM160800 VRB06KT P6SM -RA BKN060 FM161200 02015G21KT P6SM -RA OVC007 FM161600 02019G25KT P6SM -SNPL OVC007 FM170000 01014KT P6SM OVC070 KLCK 160542Z 1606/1706 22004KT 2SM -SN BR BKN018 OVC035 FM160630 27010KT 4SM -SN BR SCT015 OVC035 TEMPO 1607/1609 BKN015 FM160900 27006KT P6SM SCT015 BKN070 FM161200 25007KT P6SM SCT020 FM161900 26007KT P6SM BKN022 FM170300 24003KT P6SM BKN015 OVC040 KLEB 160530Z 1606/1706 VRB02KT P6SM OVC035 TEMPO 1614/1618 4SM -SHSN BR OVC025 FM170000 VRB03KT 3SM -SN BR OVC015 KLEE 160534Z 1606/1706 36006KT P6SM SKC FM161500 02008KT P6SM FEW050 FM162330 01006KT P6SM SCT250 KLEX 160525Z 1606/1706 29008KT 3SM -SN OVC015 TEMPO 1606/1608 1 1/2SM -SN OVC008 FM160800 29008KT 2SM -SN OVC015 TEMPO 1608/1612 3/4SM -SN OVC008 FM161400 28008KT P6SM VCSH OVC025 FM161700 27008KT P6SM BKN035 KLFI 160640Z 1606/1708 VRB06KT 1200 BR OVC001 620015 QNH3033INS TEMPO 1606/1615 OVC002 BECMG 1702/1703 VRB06KT 9999 NSW FEW010 BKN120 QNH3029INS TX04/1619Z TNM01/1612Z KLFK 160522Z 1605/1706 35010KT P6SM -RA VCSH BKN007 OVC050 FM160800 35011KT 6SM -RAPLSN OVC005 FM161100 36015G21KT 5SM -SN OVC015 FM161400 36014G21KT P6SM -SN OVC025 FM161800 35010G16KT P6SM OVC050 KLFT 160533Z 1606/1706 VRB05KT P6SM SKC FM161000 VRB06KT P6SM -RA BKN060 FM161400 01015G21KT P6SM -RA OVC007 FM161800 01018G25KT P6SM -SNPL OVC007 FM170100 36014G20KT P6SM OVC070 KLGA 160523Z 1606/1712 06008KT P6SM SCT015 TEMPO 1606/1609 BKN015 FM160900 VRB05KT P6SM BKN030 FM161400 09006KT P6SM BKN025 FM161800 11006KT P6SM BKN020 FM162200 12006KT 6SM -SN BKN020 FM170100 VRB05KT 2SM -SN BKN015 TEMPO 1703/1706 -RASN FM170600 06006KT 1SM -SN OVC008 FM170900 05007KT 1SM -SN BR OVC008 KLGB 160548Z 1606/1706 VRB03KT P6SM BKN200 FM160900 VRB03KT 6SM BR OVC010 FM161600 VRB03KT P6SM SCT010 BKN200 FM161900 17007KT P6SM BKN200 FM170000 28008KT P6SM BKN200 FM170400 VRB03KT P6SM BKN200 KLGU 160521Z 1606/1706 VRB04KT P6SM SKC FM161200 00000KT 2SM BR BCFG FEW002 FM161600 VRB03KT 5SM BR FEW100 SCT200 FM170100 00000KT P6SM SCT100 BKN200 KLIT 160546Z 1606/1706 36012KT 3SM -SN BR SCT025 OVC035 TEMPO 1606/1610 1SM -SN BR BKN015 OVC025 FM161200 34013G19KT P6SM SCT025 BKN040 FM161800 32011KT P6SM SCT040 BKN250 FM170000 34009KT P6SM SCT250 KLLQ 160546Z 1606/1706 03010G17KT P6SM OVC011 TEMPO 1608/1610 4SM -SN BR FM161400 35011G18KT P6SM OVC035 FM161800 34009G15KT P6SM SCT040 BKN250 KLMT 160547Z 1606/1706 16010KT P6SM BKN060 OVC080 FM160700 16007KT P6SM -RA OVC050 FM160900 17004KT P6SM -SHRA BKN030 OVC050 FM161500 VRB03KT P6SM OVC030 FM162200 18006KT P6SM SCT035 BKN080 KLND 160531Z 1606/1706 15006KT P6SM BKN015 FM161600 VRB04KT P6SM SCT020 FM161900 VRB06KT P6SM SKC KLNK 160520Z 1606/1706 33013KT P6SM SCT025 FM161500 33010KT P6SM SCT100 FM170000 VRB03KT P6SM SKC KLNS 160607Z 1606/1706 00000KT P6SM OVC012 FM160800 VRB02KT P6SM OVC009 FM161100 VRB02KT 2SM -SN BR OVC009 FM162000 14002KT 3/4SM -SN BR OVC015 FM170000 14002KT 3/4SM -SN BR OVC015 KLOZ 160539Z 1606/1706 VRB05KT 6SM -SHSN BR OVC015 FM161000 30006KT 3SM -SN SCT007 OVC015 FM161300 VRB05KT 3/4SM -SN BR BKN005 OVC008 FM161600 VRB05KT 2SM -SN BR OVC010 FM162300 VRB05KT 6SM -SHSN BR BKN015 KLRD 160533Z 1606/1706 07006KT P6SM SCT050 FM160730 07006KT P6SM VCSH SCT025 BKN050 FM161000 02020G30KT P6SM -SHRA OVC008 FM161500 01021G32KT P6SM -SHRA OVC012 FM161800 35018G28KT P6SM -FZRAPL OVC015 FM162200 35012KT P6SM OVC025 KLRF 160700Z 1607/1713 33009KT 8000 -SN BKN018 610189 QNH3050INS BECMG 1607/1608 33009KT 8000 -SN BKN020 610209 QNH3052INS BECMG 1610/1611 26015G20KT 9999 NSW FEW020 BKN040 610409 QNH3054INS BECMG 1618/1619 34012KT 9999 SKC QNH3063INS BECMG 1708/1709 VRB06KT 9999 SKC QNH3070INS TXM04/1620Z TNM09/1700Z KLRU 160536Z 1606/1706 11013G23KT P6SM SCT040 BKN140 TEMPO 1608/1612 09020G30KT FM161500 07012KT P6SM SCT040 BKN160 FM161900 11010KT P6SM SCT040 BKN200 KLSE 160531Z 1606/1706 32009KT 6SM -SN OVC020 FM161200 32008KT P6SM BKN030 FM161700 32008KT P6SM BKN045 KLSF 160100Z 1601/1707 VRB06KT 9999 SKC QNH3033INS BECMG 1614/1615 20006KT 9999 FEW250 QNH3028INS BECMG 1623/1624 32009KT 9999 SCT030 SCT100 QNH3033INS BECMG 1703/1704 35012KT 9999 BKN020 OVC080 QNH3035INS TX10/1621Z TN00/1612Z KLSV 160700Z 1607/1713 VRB06KT 9999 BKN160 QNH3008INS BECMG 1609/1610 VRB06KT 9999 FEW150 QNH3012INS BECMG 1613/1614 VRB06KT 9999 BKN150 QNH3014INS BECMG 1621/1622 VRB06KT 9999 FEW150 QNH3014INS TX14/1700Z TN08/1612Z KLUF 160400Z 1604/1710 VRB05KT 9999 FEW200 QNH3001INS BECMG 1611/1612 04006KT 9999 BKN180 QNH3010INS BECMG 1618/1619 11009KT 9999 SCT200 QNH3013INS TEMPO 1619/1701 11012G18KT BECMG 1701/1702 VRB06KT 9999 FEW250 QNH3017INS TX22/1623Z TN07/1614Z KLUK 160542Z 1606/1706 30010KT P6SM SCT018 OVC070 FM161100 28006KT P6SM SCT022 FM161900 27007KT P6SM BKN028 FM170400 26005KT P6SM BKN040 KLVK 160700Z 1607/1706 14004KT 4SM BR OVC050 FM161200 VRB03KT P6SM -RA OVC030 FM161600 VRB03KT P6SM BKN030 FM162000 31005KT P6SM SCT040 KLVM 160623Z 1606/1706 00000KT 4SM BR OVC003 FM161000 20014KT P6SM SCT005 SCT012 FM161200 24020G30KT P6SM SKC FM170300 25018KT P6SM SCT200 KLVS 160532Z 1606/1706 16010KT 5SM BR OVC006 TEMPO 1606/1610 3SM -FZDZ BR FM161400 18008KT P6SM SCT015 KLWB 160520Z 1606/1706 00000KT P6SM BKN080 FM161400 VRB03KT 6SM -SN OVC050 FM161600 25007KT 4SM -SN OVC035 FM161800 25004KT 1 1/2SM -SN OVC020 FM170200 32006KT 6SM -SHSN BKN020 OVC050 KLWS 160533Z 1606/1706 10008KT P6SM FEW150 BKN200 FM161400 16005KT P6SM VCSH BKN060 OVC100 FM161600 08004KT P6SM -RA OVC050 FM162200 20005KT P6SM SCT050 BKN100 FM170100 14004KT P6SM FEW040 BKN120 KLWT 160548Z 1606/1706 13006KT P6SM SKC FM161800 24008KT P6SM SKC KLYH 160520Z 1606/1706 00000KT P6SM SCT130 FM161900 19005KT P6SM OVC090 FM170000 20003KT 6SM -SN OVC050 FM170500 VRB03KT 3SM -SN OVC030 KMAF 160520Z 1606/1706 04015G21KT P6SM OVC040 FM161300 04011KT P6SM BKN120 KMBG 160524Z 1606/1706 30006KT P6SM SKC FM161400 19007KT P6SM SCT250 KMBL 160652Z 1607/1706 04004KT P6SM -SHSN BKN050 FM161700 03007KT 6SM -SHSN OVC025 FM170200 VRB03KT 5SM -SHSN OVC020 KMBS 160520Z 1606/1706 05004KT P6SM -SHSN BKN045 FM160900 35004KT 6SM -SHSN BKN030 FM161300 34007KT 3SM -SHSN BKN025 FM161600 36011KT 4SM -SHSN BKN025 FM162100 36009KT P6SM BKN030 KMCB 160550Z 1606/1706 00000KT P6SM SKC FM161000 35004KT P6SM SCT070 BKN150 FM161300 36009KT P6SM BKN030 BKN100 FM161500 36010KT P6SM VCSH BKN015 OVC140 FM161700 36012G20KT P6SM -PLSN BKN015 OVC025 FM161900 36013G22KT 2SM -SN BKN014 OVC016 FM162300 36012G20KT P6SM -SN BKN017 OVC060 FM170100 36014KT P6SM SCT020 OVC080 KMCE 160604Z 1606/1706 30004KT 1/4SM FG VV002 FM160900 32005KT 2SM BR VCSH BKN060 OVC120 FM161800 33008KT 3SM HZ SCT100 BKN200 KMCF 160100Z 1601/1707 05009KT 9999 FEW030 QNH3025INS TX20/1620Z TN10/1609Z KMCI 160520Z 1606/1706 33012KT P6SM SKC FM161500 31010KT P6SM OVC025 FM162200 31005KT P6SM SCT025 KMCK 160524Z 1606/1706 32007KT P6SM SKC FM162000 25005KT P6SM SKC FM162300 18004KT P6SM FEW030 FEW250 KMCN 160545Z 1606/1706 00000KT P6SM FEW250 FM161500 18003KT P6SM FEW250 FM162100 24005KT P6SM SCT120 FM170100 28005KT P6SM BKN050 BKN100 FM170300 32008KT P6SM BKN030 PROB30 1703/1706 5SM -SN BR BKN035 KMCO 160534Z 1606/1712 01010KT P6SM SKC FM161430 03009KT P6SM FEW040 FM162300 02006KT P6SM SCT250 KMCW 160649Z 1607/1706 32017KT 5SM -SN SCT007 BKN015 OVC040 FM160900 32015G22KT P6SM BKN015 FM161500 32012G18KT P6SM BKN015 FM162100 30009KT P6SM SCT250 KMDT 160607Z 1606/1706 VRB02KT P6SM OVC015 FM161100 VRB02KT 2SM -SN BR OVC009 FM161300 14002KT 3/4SM -SN BR OVC009 FM161800 14002KT 3/4SM -SN BR OVC020 KMDW 160529Z 1606/1712 27012KT 1 1/2SM -SN SCT015 OVC025 TEMPO 1607/1609 1SM -SN BR BKN009 OVC015 FM161000 30010KT 2SM -SN SCT015 OVC025 FM161500 32012KT 6SM -SN BKN025 FM161800 33010KT P6SM BKN035 FM170000 32008KT P6SM SCT040 KMEI 160616Z 1606/1706 00000KT P6SM SKC FM161000 36010KT P6SM SCT025 BKN050 FM161500 35012G15KT P6SM BKN015 FM161700 35012G17KT P6SM -SN BKN015 FM161900 34015G19KT 4SM -SN BR BKN015 FM162100 34016G20KT 2SM -SN BR BKN015 KMEM 160528Z 1606/1712 35016G23KT 5SM -SN BR OVC010 TEMPO 1606/1610 2SM -SN BR FM161400 36011KT P6SM -SN OVC035 FM161800 35007KT P6SM SCT035 KMER 160524Z 1606/1706 VRB03KT 1/4SM FG OVC001 FM160900 32005KT 2SM BR VCSH BKN060 OVC120 FM161800 33008KT 3SM HZ SCT100 BKN200 KMFD 160531Z 1606/1706 25007KT P6SM -SN BKN015 OVC025 TEMPO 1608/1612 SCT015 OVC025 FM161400 24010KT P6SM BKN025 FM170100 25006KT P6SM SCT007 OVC010 KMFE 160520Z 1606/1706 11007KT P6SM SCT250 FM161500 34020G35KT P6SM -DZRA OVC010 KMFR 160547Z 1606/1706 VRB03KT P6SM -RA SCT025 OVC040 FM161100 VRB03KT P6SM -SHRA OVC035 FM161500 00000KT 4SM BR BKN010 OVC025 FM162300 00000KT P6SM SCT030 BKN100 KMGE 160600Z 1606/1712 VRB06KT 9999 SKC QNH3035INS BECMG 1614/1615 25009KT 9999 FEW050 SCT200 QNH3030INS BECMG 1623/1624 33012G18KT 8000 -SN BKN025 OVC080 610259 QNH3034INS BECMG 1702/1703 35012G18KT 8000 -SN OVC015 610159 QNH3036INS TX07/1621Z TNM02/1612Z KMGM 160532Z 1606/1706 00000KT P6SM SKC FM161700 33005KT P6SM SCT050 FM162200 33008KT P6SM BKN035 FM170000 35012KT 5SM -SN OVC025 KMGW 160520Z 1606/1706 19006KT P6SM -SN OVC035 FM160800 17006KT 3SM -SN OVC015 FM161200 21005KT 3SM -SN OVC008 FM161800 24007KT 5SM -SN OVC015 FM170300 28007KT 6SM -SN OVC025 KMHK 160520Z 1606/1706 34008KT P6SM SCT035 KMHR 160521Z 1606/1706 18005KT 1/4SM FG OVC002 FM160800 VRB04KT 1/2SM -RA FG OVC004 FM161400 VRB03KT 1/2SM FG OVC002 FM162200 32005KT 4SM BR OVC025 FM170300 00000KT 2SM BR OVC015 NOT SKED KMHT 160530Z 1606/1706 35005KT P6SM OVC030 FM160900 VRB03KT P6SM SCT030 OVC040 PROB30 1701/1706 4SM -SN BR OVC020 KMIA 160534Z 1606/1712 34006KT P6SM SCT035 BKN060 FM161400 05012KT P6SM SCT040 FM170100 02008KT P6SM SCT040 FM170900 34006KT P6SM SCT025 SCT035 KMIB 160100Z 1601/1707 27009KT 9999 FEW120 QNH3038INS WND 21006KT AFT 1606 BECMG 1619/1620 20010G15KT 9999 SCT100 QNH3029INS BECMG 1623/1624 21012KT 9999 FEW090 QNH3017INS TXM10/1620Z TNM29/1605Z KMIV 160521Z 1606/1706 VRB03KT P6SM BKN015 TEMPO 1607/1611 SCT015 FM161500 12004KT P6SM SCT020 BKN045 FM170100 VRB03KT P6SM BKN025 KMKC 160520Z 1606/1706 33012KT P6SM SKC FM161500 31010KT P6SM OVC025 FM162200 31005KT P6SM SCT025 KMKE 160520Z 1606/1712 34007KT 4SM -SHSN OVC015 TEMPO 1606/1610 2SM -SN OVC015 FM161200 34009KT 3SM -SN BKN020 FM161600 34010KT P6SM VCSH BKN040 FM161800 34011KT P6SM BKN070 KMKG 160540Z 1606/1706 06006KT 6SM -SN BR OVC040 FM161100 01005KT 5SM -SN BR OVC025 FM161600 35008KT 3SM -SN BR BKN035 FM170100 34005KT P6SM OVC050 KMKL 160528Z 1606/1706 36013KT 4SM -SN BR OVC010 TEMPO 1607/1611 1SM -SN BR FM161500 35010KT P6SM -SN OVC035 FM161800 34009KT P6SM OVC050 FM170100 35005KT P6SM OVC100 KMKT 160520Z 1606/1706 32013KT P6SM SCT015 BKN040 TEMPO 1606/1610 BKN018 FM161400 32008KT P6SM SCT015 FM170000 26005KT P6SM SCT120 KMLB 160534Z 1606/1706 36008KT P6SM SCT040 FM161400 03010KT P6SM SCT040 FM170000 01006KT P6SM SCT250 KMLC 160538Z 1606/1706 36015G24KT P6SM SCT030 OVC100 FM161000 35014G22KT P6SM SKC FM161600 35014KT P6SM SKC FM170000 36005KT P6SM SKC KMLI 160520Z 1606/1706 29013KT P6SM -SHSN BKN030 FM160900 29012KT 4SM -SHSN BR OVC015 FM161200 30011KT P6SM BKN025 FM162100 29008KT P6SM BKN035 KMLS 160528Z 1606/1706 15007KT P6SM SKC KMLU 160520Z 1606/1706 02010KT P6SM VCSH OVC050 FM160900 01014KT 5SM -RASN OVC007 FM161100 01015G21KT P6SM -SN OVC015 FM161700 02011KT P6SM OVC050 FM162000 01011KT P6SM SCT120 FM170200 36008KT P6SM SKC KMMH 160521Z 1606/1706 23005KT P6SM BKN120 OVC180 FM161800 26009KT P6SM FEW120 SCT180 FM170000 VRB03KT P6SM BKN180 KMMT 160422Z 1604/1706 02009KT 9999 SKC QNH3036INS BECMG 1606/1607 VRB06KT 9999 FEW160 QNH3030INS TX07/1621Z TNM06/1612Z KMOB 160535Z 1606/1706 VRB03KT P6SM SKC FM161000 VRB04KT P6SM BKN050 FM161500 35011KT P6SM OVC025 FM162300 34011KT P6SM -RA OVC015 FM170300 35015G20KT P6SM -SN OVC015 KMOT 160535Z 1606/1706 22007KT P6SM SKC FM161300 21007KT P6SM SCT150 FM161800 20011KT P6SM SCT150 KMPV 160539Z 1606/1706 00000KT P6SM SCT025 OVC040 TEMPO 1606/1610 BKN025 FM161000 00000KT P6SM VCSH BKN040 FM161400 16004KT P6SM BKN040 FM162000 18005KT P6SM VCSH OVC030 FM170300 18005KT 2SM -SN BKN020 KMQY 160521Z 1606/1706 35012KT 6SM -SN BKN015 OVC040 TEMPO 1606/1610 4SM -SN FM161000 34010KT 2SM -SN BR OVC015 FM161500 34009KT 6SM -SN OVC020 FM161800 34008KT P6SM OVC025 KMRB 160531Z 1606/1706 00000KT P6SM OVC060 FM161200 VRB03KT 6SM -SN OVC045 FM170000 33004KT 1 1/2SM -SN OVC025 FM170300 32005KT 4SM -SN OVC015 FM170500 32006KT P6SM OVC015 KMRY 160658Z 1607/1706 VRB03KT 3SM BR BKN002 FM161600 31004KT P6SM SCT030 KMSL 160520Z 1606/1706 34006KT P6SM SCT100 FM160700 34008KT P6SM BKN035 FM161000 35010KT P6SM BKN015 FM161300 35010KT 4SM -SN BR BKN006 FM162000 36009KT P6SM OVC025 KMSN 160708Z 1607/1706 36008KT 5SM -SN OVC016 FM160900 33007KT P6SM OVC020 FM161400 34008KT P6SM BKN035 FM170400 30006KT P6SM SCT150 KMSO 160520Z 1606/1706 12015KT P6SM SCT050 FM161000 12008KT P6SM FEW030 FM161900 27005KT P6SM BKN100 KMSP 160520Z 1606/1712 32012KT P6SM SCT018 BKN050 FM161600 30007KT P6SM FEW018 FM170000 24004KT P6SM SCT100 KMSS 160552Z 1606/1706 06006KT 2SM -SN BR OVC025 FM160900 05005KT 1SM -SN BR OVC025 FM161200 06004KT 3SM -SN BR OVC025 FM161400 06006KT P6SM VCSH OVC035 FM170000 VRB03KT P6SM OVC035 KMSY 160550Z 1606/1712 00000KT P6SM FEW250 FM161100 03004KT P6SM SCT035 BKN140 FM161400 01009KT P6SM SCT020 BKN060 FM161700 36013KT P6SM BKN030 BKN080 FM161900 35014KT P6SM BKN020 OVC060 FM162200 36015G22KT P6SM VCSH BKN014 OVC025 FM170100 36016G23KT P6SM -PLSN BKN014 OVC020 KMTC 160100Z 1601/1707 VRB06KT 4800 -SN BKN008 620086 QNH3025INS BECMG 1603/1604 VRB06KT 6000 -SN BKN015 620156 QNH3025INS TEMPO 1604/1612 3200 -SN OVC008 620087 BECMG 1611/1612 33006KT 9999 NSW BKN020 620208 QNH3031INS TXM04/1617Z TNM09/1611Z LAST NO AMDS AFT 1604 NEXT 1609 KMTH 160536Z 1606/1706 03011G20KT P6SM SCT035 SCT050 BKN250 FM161500 04013G22KT P6SM SCT035 BKN050 BKN250 KMTJ 160536Z 1606/1706 16005KT P6SM FEW250 FM161800 VRB03KT P6SM FEW250 KMTW 160629Z 1606/1706 36007KT 6SM -SHSN SCT015 OVC035 TEMPO 1608/1610 3/4SM -SHSN BKN015 FM161000 36009KT 1 1/2SM -SHSN OVC018 FM161200 35011G17KT 6SM -SHSN BKN018 FM161500 35010G16KT P6SM -SHSN BKN030 FM161800 32007KT P6SM BKN050 FM170100 29006KT P6SM SCT250 KMWH 160533Z 1606/1706 02007KT P6SM BKN200 FM160900 36006KT P6SM VCSH SCT070 OVC100 FM161000 35004KT P6SM -RA BKN020 OVC030 FM161900 20006KT P6SM SCT050 FM170300 36005KT P6SM BKN120 KMYL 160531Z 1606/1706 00000KT 1/2SM FZFG OVC002 FM162000 VRB02KT 2SM -SHSN BKN005 OVC015 FM170300 00000KT 1/2SM FZFG OVC001 KMYR 160520Z 1606/1706 01005KT P6SM SKC KNBC 1603/1703 02004KT 9999 SKC QNH3036INS BECMG 1621/1623 VRB04KT 9999 FEW200 QNH3033INS T01/1610Z T11/1621Z KNBG 1607/1707 VRB03KT 9999 SCT020 QNH3030INS TEMPO 1607/1613 4800 BR BKN005 BECMG 1613/1615 01008KT 9999 NSW SCT020 BKN035 OVC050 QNH3032INS BECMG 1700/1702 36013KT 9999 VCSH SCT020 BKN035 OVC050 QNH3035INS TEMPO 1702/1706 36013G18KT 6000 -SHPL BKN005 AUTOMATED SENSOR METWATCH 1607 TIL 1611 T04/1610Z T10/1621Z FN00162 KNEW 160652Z 1607/1706 00000KT 4SM BR SKC TEMPO 1607/1611 3/4SM BR BKN002 FM161100 03005KT 2SM BR BKN020 BKN110 FM161300 01010KT P6SM SCT015 BKN060 FM161700 36012KT P6SM BKN025 BKN080 FM161900 35014KT P6SM BKN020 OVC060 FM162200 36015G22KT P6SM VCSH BKN014 OVC025 FM170100 36016G23KT P6SM -PLSN BKN014 OVC020 KNFG 1603/1703 VRB05KT 9999 BKN200 QNH3006INS TEMPO 1605/1611 0400 FG VV002 BECMG 1619/1621 21008KT 9999 SCT250 QNH3007INS T05/1614Z T21/1622Z KNFW 1607/1707 01020G30KT 9999 VCSH OVC030 540005 QNH3060INS BECMG 1617/1619 36017KT 9999 FEW080 500000 QNH3061INS AUTOMATED SENSOR METWATCH 1607 TIL 1611 TM05/1615Z T01/1621Z FN00162 KNGP 1607/1707 11012KT 9999 VCSH SCT015 BKN050 QNH3022INS TEMPO 1608/1612 8000 -SHRA OVC030 BECMG 1610/1612 36025G35KT 8000 -SHRA OVC020 540005 QNH3026INS AUTOMATED SENSOR METWATCH 1607 TIL 1610 T13/1608Z TM02/1707Z FN00162 KNGU 1607/1707 35006KT 1200 BR OVC002 QNH3036INS BECMG 1609/1611 VRB05KT 4800 BR BKN006 OVC015 QNH3038INS BECMG 1615/1617 VRB04KT 9999 NSW BKN015 BKN100 QNH3028INS TM01/1609Z T07/1621Z FN00185 KNHK 1607/1707 32008 8000 BR OVC006 QNH3036INS TEMPO 1612/1615 1600 BR OVC002 BECMG 1615/1617 VRB04KT 9999 BKN015 BKN180 QNH3028INS BECMG 1701/1703 33006KT 4800 -SN OVC010 AUTOMATED SENSOR METWATCH 1607 TIL 1609 TM03/1609Z T04/1621Z FN00185 KNIP 1607/1707 02006KT 9999 FEW250 QNH3033INS BECMG 1621/1623 04006KT 9999 SCT250 QNH3029INS T06/1611Z T16/1620Z FN00184 KNKT 1521/1621 35009KT 9999 SCT020 QNH3039INS BECMG 1522/1600 01006KT 9999 SKC QNH3040INS TM03/1612Z T12/1620Z KNKX 1603/1703 VRB05KT 9999 OVC250 QNH3005INS TEMPO 1606/1612 4800 BR BKN005 BECMG 1619/1621 30008KT 9999 SCT250 QNH3008INS T11/1614Z T24/1622Z KNMM 1607/1707 VRB05KT 9999 FEW060 QNH3031INS BECMG 1610/1612 33008KT 9999 FEW020 OVC060 QNH3034INS BECMG 1616/1618 34013KT 6000 -SN SCT020 OVC050 QNH3035INS BECMG 1700/1702 33011KT 9999 VCSH SCT020 OVC060 QNH3037INS AUTOMATED SENSOR METWATCH 1607 TIL 1611 TM04/1612Z T01/1621Z FN00162 KNPA 1607/1707 VRB03KT 9999 FEW250 QNH3035INS BECMG 1618/1620 36010KT 9999 VCSH SCT020 BKN050 OVC250 QNH3036INS TEMPO 1702/1707 36015G20KT 6000 BR OVC010 AUTOMATED SENSOR METWATCH 1607 TIL 1610 T03/1612Z T15/1620Z FN00162 KNQI 1607/1707 03008KT 9999 VCSH SCT015 BKN050 QNH3020INS TEMPO 1607/1612 8000 -SHRA OVC030 BECMG 1610/1612 36020G30KT 8000 -SHRA OVC020 540005 QNH3024INS BECMG 1700/1702 36017G23KT 9999 VCSH BKN020 OVC050 500000 QNH3024INS TEMPO 1702/1707 8000 -SHRA OVC010 AUTOMATED SENSOR METWATCH 1607 TIL 1613 T12/1608Z TM02/1701Z FN00162 KNQX 1607/1707 03015G20KT 9999 SCT030 BKN060 QNH3016INS BECMG 1705/1707 02012KT FEW010 BKN030 QNH3017INS AUTOMATED SENSOR METWATCH 1607 TIL 1611 T18/1611Z T21/1620Z FN00184 KNRB 1607/1707 03007KT 9999 SKC QNH3033INS BECMG 1701/1703 VRB05KT 9999 SCT250 QNH3029INS AUTOMATED SENSOR METWATCH 1607 TIL 1611 T05/1607Z T12/1618Z FN00184 KNSE 1607/1707 VRB03KT 9999 FEW030 SCT250 QNH3038INS BECMG 1616/1618 33007KT 9999 BKN035 OVC250 BECMG 1700/1702 34013KT 9999 VCSH BKN030 OVC250 QNH3036INS TEMPO 1702/1707 35015G20KT 6000 BR OVC010 AUTOMATED SENSOR METWATCH 1607 TIL 1610 T02/1612Z T13/1621Z FN00162 KNTU 1607/1707 34006KT 3200 BR OVC002 QNH3036INS BECMG 1609/1611 VRB03KT 4800 BR BKN006 OVC015 QNH3036INS BECMG 1615/1617 VRB04KT 9999 NSW BKN015 BKN100 QNH3028INS TM01/16011Z T08/1621Z FN00185 KNXP 1603/1703 30005KT 9999 SCT250 QNH3016INS TEMPO 1603/1609 VRB05KT TEMPO 1609/1615 VRB05KT FM161530 VRB05KT 9999 SCT250 QNH3016INS AUTOMATED SENSOR METWATCH 1603 TIL 1614 T08/1614Z T22/1622Z KNYG 1603/1703 VRB05KT 9999 SCT010 BKN050 OVC100 QNH3047INS TEMPO 1603/1609 BKN010 FM160900 VRB06KT 9999 SCT010 BKN030 QNH3034INS BECMG 1621/1623 VRB03KT 9999 SCT010 BKN020 OVC030 QNH3030INS TEMPO 1623/1703 -SN OVC010 TM05/1610Z T06/1621Z KOAJ 160520Z 1606/1706 VRB03KT P6SM SKC LTD TO CLD VIS AND WIND KOAK 160520Z 1606/1712 14005KT P6SM OVC022 FM161000 11007KT 4SM -RA OVC020 FM161500 24005KT P6SM BKN025 FM161600 VRB03KT P6SM SCT020 BKN050 FM162000 28004KT P6SM SCT050 KOFF 160612Z 1606/1708 32012KT 9999 BKN035 620353 QNH3064INS TEMPO 1606/1615 32015G25KT BECMG 1614/1615 32012G18KT 9999 SCT020 BKN030 620303 QNH3065INS BECMG 1620/1621 33012KT 9999 FEW030 QNH3064INS TXM11/1620Z TNM22/1613Z KOFK 160520Z 1606/1706 33012G22KT P6SM BKN025 FM161400 33010KT P6SM SCT100 FM170000 VRB04KT P6SM SKC KOGB 160520Z 1606/1706 VRB03KT P6SM SCT250 FM170000 VRB03KT P6SM BKN100 KOGD 160521Z 1606/1706 17005KT P6SM FEW200 FM161900 33005KT P6SM SCT120 SCT200 FM170300 17005KT P6SM BKN100 BKN200 KOKC 160520Z 1606/1706 35015KT P6SM FEW120 FM170000 01004KT P6SM SKC KOLF 160530Z 1606/1706 VRB03KT P6SM SKC KOLM 160534Z 1606/1706 21004KT P6SM -RA OVC070 FM160800 20005KT P6SM -RA SCT025 OVC045 FM161000 21004KT 6SM -RA BR OVC025 FM161600 21006KT 5SM BR VCSH SCT025 OVC040 FM161900 20009KT P6SM VCSH SCT025 BKN040 KOLS 160528Z 1606/1706 VRB04KT P6SM BKN250 FM161700 10009KT P6SM FEW140 BKN250 FM170300 05006KT P6SM SCT250 KOMA 160520Z 1606/1706 33013KT P6SM SCT025 TEMPO 1607/1611 BKN025 FM161500 33010KT P6SM SCT050 FM170000 VRB03KT P6SM SKC KONP 160539Z 1606/1706 18012G20KT P6SM -SHRA SCT035 OVC090 FM161600 15007KT P6SM OVC060 KONT 160530Z 1606/1712 VRB06KT P6SM BKN200 KOPF 160534Z 1606/1706 34008KT P6SM SCT040 BKN060 FM161400 05012KT P6SM SCT040 FM170000 02008KT P6SM SCT035 SCT045 KORD 160529Z 1606/1712 27012KT 1 1/2SM -SN SCT015 OVC025 TEMPO 1606/1609 3/4SM -SN BR BKN009 OVC015 FM161000 30010KT 2SM -SN SCT015 OVC025 FM161500 32012KT 6SM -SN BKN025 FM161800 33010KT P6SM BKN035 FM170000 32008KT P6SM SCT040 KORF 160542Z 1606/1706 35005KT 1SM BR OVC003 TEMPO 1606/1610 1/2SM FZFG OVC002 FM161400 VRB03KT P6SM SCT004 OVC007 FM161600 35004KT P6SM BKN015 FM161800 VRB03KT P6SM SCT025 BKN035 FM162100 00000KT P6SM BKN040 KORH 160543Z 1606/1706 01005KT P6SM OVC025 FM160900 01005KT P6SM BKN030 FM161200 VRB03KT P6SM OVC070 FM162000 VRB03KT P6SM OVC030 FM170300 18005KT 1 1/2SM -SN OVC020 FM170500 18004KT 3/4SM -SN OVC003 KOTH 160547Z 1606/1706 17006KT P6SM -SHRA BKN030 BKN050 OVC080 FM161900 17006KT P6SM BKN035 FM162200 16007KT P6SM SCT035 BKN120 FM170300 15005KT P6SM SCT030 BKN070 KOTM 160538Z 1606/1706 31014G20KT P6SM BKN035 FM161100 31012G18KT P6SM BKN025 FM162200 30009KT P6SM SCT035 KOUN 160520Z 1606/1706 35016KT P6SM SCT120 FM170000 36004KT P6SM SKC KOWB 160520Z 1606/1706 32009G16KT P6SM OVC060 FM161200 31011KT P6SM SCT020 FM161800 31010KT P6SM BKN018 TEMPO 1620/1624 -SN OVC020 FM170300 31006KT P6SM BKN030 KOXR 160548Z 1606/1706 VRB03KT P6SM BKN009 FM161700 VRB03KT P6SM SCT015 BKN150 FM162000 26008KT P6SM BKN150 FM170300 VRB03KT P6SM BKN200 KOZR 160000Z 1600/1706 10006KT 9999 SKC QNH3036INS BECMG 1614/1615 16006KT 9999 FEW250 QNH3038INS BECMG 1620/1621 30009KT 9999 FEW200 SCT250 QNH3033INS BECMG 1623/1624 33009KT 9999 FEW040 SCT080 BKN100 QNH3036INS BECMG 1702/1703 33015G20KT 9999 SCT020 BKN040 QNH3040INS TX13/1621Z TNM01/1612Z KPAE 160534Z 1606/1706 19007KT P6SM -RA BKN070 OVC100 FM160800 15014G21KT P6SM -RA SCT025 OVC070 FM161100 16012KT P6SM -RA OVC020 FM161600 17012KT P6SM VCSH SCT025 OVC040 FM161900 17014G22KT P6SM VCSH SCT025 BKN040 KPAH 160520Z 1606/1706 35009G15KT P6SM BKN060 OVC100 FM161200 34010KT P6SM SKC FM161800 34009KT P6SM SCT025 TEMPO 1620/1624 BKN025 FM170000 33004KT P6SM BKN030 KPAM 160300Z 1603/1709 07006KT 9999 SKC QNH3036INS BECMG 1617/1618 24006KT 9999 FEW250 QNH3032INS BECMG 1702/1703 36010G15KT 9999 FEW250 QNH3035INS BECMG 1705/1706 36010G15KT 9999 FEW035 SCT150 QNH3037INS BECMG 1708/1709 36010G15KT 9999 SCT035 BKN050 QNH3040INS TX15/1620Z TN04/1612Z KPBF 160546Z 1606/1706 01018KT 1 1/2SM -SN BR BKN006 BKN010 OVC015 TEMPO 1606/1610 1SM -SN BR BKN005 OVC010 FM161400 35011G18KT P6SM SCT025 BKN030 FM161800 34009G15KT P6SM SCT040 BKN250 FM170000 35008KT P6SM SCT250 KPBG 160539Z 1606/1706 00000KT P6SM VCSH OVC130 FM160800 16004KT 3SM -SN OVC040 FM161300 VRB03KT P6SM VCSH OVC040 FM170100 18006KT 4SM -SN OVC035 KPBI 160534Z 1606/1706 06012KT P6SM FEW020 SCT045 BKN060 FM161400 04012KT P6SM SCT040 FM170100 01008KT P6SM SCT035 KPDK 160545Z 1606/1706 00000KT P6SM FEW200 FM161000 22003KT P6SM FEW200 FM161600 25007KT P6SM SCT120 FM162100 30008KT P6SM BKN040 BKN100 FM170000 32011G16KT P6SM OVC015 PROB30 1700/1706 5SM -SN BR BKN025 KPDT 160533Z 1606/1706 VRB03KT 2SM BR OVC003 TEMPO 1606/1610 1/2SM FG OVC001 FM161200 19004KT 2SM -RA BR OVC005 FM161900 27007KT P6SM FEW006 SCT060 FM170100 12005KT P6SM FEW060 KPDX 160623Z 1606/1706 13010G18KT P6SM -SHRA BKN050 OVC090 TEMPO 1606/1608 -SHRA BKN025 BKN035 OVC045 FM161000 12009KT P6SM VCSH SCT015 BKN040 BKN060 FM161800 11007KT P6SM OVC070 KPEQ 160520Z 1606/1706 03011KT P6SM OVC035 FM161200 04008KT P6SM BKN120 KPGA 160539Z 1606/1706 VRB04KT P6SM SCT150 BKN200 FM170000 VRB03KT P6SM BKN080 OVC150 KPGD 160521Z 1606/1706 04006KT P6SM FEW060 FM161500 06010KT P6SM SCT250 FM170200 04006KT P6SM SCT060 SCT250 KPGV 160551Z 1606/1706 00000KT P6SM SKC FM161000 VRB03KT 4SM BR SCT010 BKN035 FM161300 VRB03KT 4SM BR BKN010 FM161500 VRB03KT P6SM SCT010 FM161600 VRB03KT P6SM SKC LTD TO CLD VIS AND WIND KPHF 160629Z 1606/1706 VRB03KT 2SM BR OVC003 TEMPO 1606/1610 1SM BR OVC002 FM161400 VRB03KT P6SM SCT004 OVC007 FM161600 VRB03KT P6SM SCT012 FM170000 VRB03KT P6SM BKN090 KPHL 160521Z 1606/1712 VRB03KT P6SM OVC015 FM161600 15004KT P6SM SCT015 BKN035 FM170100 07004KT P6SM OVC015 FM170500 02004KT 1SM -SN OVC005 FM171000 34010KT 2SM -SN OVC008 KPHX 160520Z 1606/1712 VRB03KT P6SM SCT250 FM160900 10004KT P6SM BKN200 TEMPO 1611/1615 BKN150 FM161700 09010G20KT P6SM FEW150 BKN250 FM162200 09006KT P6SM BKN250 KPIA 160526Z 1606/1706 29013KT P6SM SCT015 FM161100 29010KT P6SM -SN BKN015 FM170000 30005KT P6SM BKN025 KPIE 160521Z 1606/1706 05007KT P6SM FEW060 FM161900 34007KT P6SM SCT050 SCT250 FM170200 02005KT P6SM SCT050 SCT250 KPIH 160520Z 1606/1706 VRB03KT P6SM SCT250 FM162200 VRB05KT P6SM SCT035 BKN100 FM170200 VRB05KT P6SM BKN030 OVC050 KPIR 160524Z 1606/1706 33011KT P6SM SKC FM160900 29005KT P6SM SKC FM161500 19006KT P6SM SCT250 KPIT 160520Z 1606/1712 21006KT 3SM -SN OVC025 TEMPO 1606/1610 2SM -SN OVC015 FM161000 24005KT 6SM -SN OVC008 FM161800 24007KT 6SM -SN OVC015 FM170100 28010KT P6SM OVC025 KPKB 160547Z 1606/1706 24005KT 6SM -SN OVC015 FM160800 22005KT 1 1/2SM -SN OVC008 FM160900 24004KT 2SM -SN OVC008 TEMPO 1609/1613 3/4SM -SN OVC003 FM161600 26006KT 3SM -SN OVC015 FM161900 26006KT P6SM OVC025 FM162200 28005KT P6SM BKN050 FM170200 29003KT P6SM SCT025 KPLN 160652Z 1607/1706 03006KT 5SM -SHSN OVC015 TEMPO 1607/1610 P6SM NSW BKN050 FM161000 03006KT P6SM BKN050 FM162100 33005KT P6SM BKN070 FM170000 VRB03KT P6SM SCT090 KPMD 160548Z 1606/1706 VRB03KT P6SM BKN200 FM162000 28008KT P6SM BKN200 KPNA 160531Z 1606/1706 VRB04KT P6SM BKN025 FM161600 29005KT P6SM SCT025 FM161900 30006KT P6SM SKC LTD TO CLD VIS AND WIND KPNC 160520Z 1606/1706 35010KT P6SM SKC FM170000 01003KT P6SM SKC KPNE 160521Z 1606/1706 VRB03KT P6SM OVC015 FM161600 16004KT P6SM SCT015 BKN035 FM170100 06004KT P6SM OVC015 FM170500 03004KT 1SM -SN OVC005 KPNS 160535Z 1606/1706 VRB03KT P6SM SKC FM161500 34007KT P6SM OVC050 FM162300 34015G23KT P6SM -RA OVC025 KPOB 160200Z 1602/1708 36006KT 9999 SKC QNH3038INS BECMG 1614/1615 03006KT 9999 SKC QNH3032INS BECMG 1617/1618 18006KT 9999 SCT250 QNH3025INS BECMG 1623/1624 27006KT 9999 SCT250 QNH3022INS TX11/1621Z TNM06/1612Z KPOE 160555Z 1605/1706 VRB06KT 9999 OVC060 610602 QNH3030INS BECMG 1608/1609 36009KT 9999 OVC010 620603 QNH3038INS BECMG 1611/1612 02015G25KT 8000 -RA OVC007 620073 620803 510202 QNH3046INS TEMPO 1612/1615 4800 -RASN BECMG 1614/1615 01015G20KT 4800 -SN OVC007 620079 510202 QNH3056INS BECMG 1621/1622 01012G18KT 9999 NSW SCT020 OVC050 QNH3058INS TX15/1605Z TNM02/1614Z KPOU 160536Z 1606/1706 VRB03KT P6SM BKN015 OVC100 FM161200 00000KT P6SM VCSH OVC015 TEMPO 1613/1617 5SM -SHSN FM161800 17004KT 2SM -SN BR OVC015 KPQI 160555Z 1606/1706 01004KT P6SM -SN BKN025 FM161300 VRB03KT P6SM VCSH SCT020 BKN140 FM170000 VRB03KT P6SM SCT020 OVC050 KPRB 160548Z 1606/1706 VRB03KT P6SM BKN200 FM161600 VRB03KT P6SM BKN100 FM170100 06006KT P6SM BKN150 NOT SKED KPRC 160539Z 1606/1706 21006KT P6SM BKN150 OVC200 KPSC 160533Z 1606/1706 VRB03KT P6SM OVC010 FM161200 19003KT P6SM -RA OVC012 FM161800 22005KT P6SM SCT070 FM170100 VRB04KT P6SM FEW070 KPSF 160534Z 1606/1706 VRB03KT P6SM SCT035 BKN090 FM161000 VRB03KT P6SM VCSH OVC035 TEMPO 1613/1617 5SM -SN SCT015 OVC030 FM161700 17006KT 2SM -SN BR OVC015 KPSM 160530Z 1606/1706 36007KT P6SM OVC035 FM160900 VRB03KT P6SM BKN040 PROB30 1701/1706 3SM -SN BR OVC015 KPSP 160530Z 1606/1706 VRB06KT P6SM BKN200 KPTK 160520Z 1606/1706 VRB05KT 4SM -SHSN BKN025 FM160900 VRB05KT 3SM -SHSN BKN015 FM161300 26005KT 4SM -SHSN BKN020 FM170000 30007KT P6SM BKN020 KPUB 160534Z 1606/1706 10008KT P6SM BKN030 FM160900 VRB04KT P6SM SCT030 FM161700 13006KT P6SM SKC FM162100 14008KT P6SM FEW250 FM170100 VRB06KT P6SM SCT250 KPUW 160533Z 1606/1706 11015KT P6SM BKN200 FM161400 10007KT P6SM VCSH BKN050 OVC100 FM161500 19006KT P6SM -RA OVC040 FM162100 17010KT P6SM BKN050 BKN100 FM170100 11005KT P6SM SCT030 BKN120 KPVD 160543Z 1606/1706 36006KT P6SM FEW015 OVC035 FM161200 36004KT P6SM SCT025 OVC080 FM161900 00000KT P6SM OVC025 FM162100 VRB03KT P6SM OVC020 FM170100 00000KT P6SM OVC040 FM170200 VRB03KT P6SM VCSH OVC030 FM170500 13004KT P6SM VCSH OVC020 KPVU 160521Z 1606/1706 VRB03KT P6SM FEW200 FM162000 VRB04KT P6SM SCT110 BKN200 FM170400 VRB03KT P6SM BKN100 BKN200 KPVW 160520Z 1606/1706 03015KT P6SM SCT060 OVC090 FM160900 03010KT P6SM OVC090 FM162000 14005KT P6SM SCT100 SCT250 KPWM 160530Z 1606/1706 02006KT P6SM OVC025 FM160800 VRB03KT P6SM BKN035 PROB30 1703/1706 4SM -SN BR OVC020 KPWT 160534Z 1606/1706 00000KT P6SM -RA FEW040 BKN050 OVC070 FM160900 19006KT P6SM -RA SCT025 OVC050 FM161800 18016G22KT P6SM VCSH OVC025 FM162100 19014G20KT P6SM SCT025 BKN050 KQD3 160647Z 1606/1709 VRB06KT 9999 FEW020 QNH2999INS BECMG 1608/1609 08010G15KT 9999 SKC QNH2995INS BECMG 1613/1614 VRB06KT 9999 FEW030 QNH2991INS TX28/1612Z TN19/1703Z KQN3 160232Z 1602/1703 VRB06KT 1800 HZ SKC QNH2992INS TEMPO 1602/1605 2600 HZ BECMG 1607/1608 08010G15KT 8000 HZ SKC QNH2988INS BECMG 1613/1614 09009KT 8000 HZ SKC QNH2986INS TX35/1615Z TN16/1606Z KQNA 160300Z 1603/1703 35006KT 9999 FEW030 QNH3003INS BECMG 1611/1612 26009KT 9999 SCT025 QNH3000INS BECMG 1616/1617 24012KT 9999 VCSH SCT015 BKN020 QNH2998INS TEMPO 1617/1621 24015G25KT BKN015 TX13/1604Z TN00/1621Z KQRH 160303Z 1603/1709 VRB06KT 9999 FEW020 QNH2999INS BECMG 1608/1609 08010G15KT 9999 SKC QNH2995INS BECMG 1613/1614 VRB06KT 9999 FEW030 QNH2991INS TX28/1612Z TN18/1603Z KRAP 160522Z 1606/1706 VRB05KT P6SM SKC FM161700 15011KT P6SM SKC FM162300 VRB04KT P6SM SKC KRBG 160547Z 1606/1706 00000KT P6SM -RA OVC035 FM161000 00000KT P6SM SCT005 OVC035 FM161500 00000KT 1SM BR SCT003 OVC035 FM170000 VRB03KT P6SM OVC250 KRBL 160521Z 1606/1706 VRB04KT P6SM VCSH OVC050 FM160630 16009KT 4SM -RA BR OVC040 FM160900 VRB03KT 4SM -RA BR OVC025 FM161300 VRB03KT 2SM BR OVC007 TEMPO 1617/1620 4SM BR BKN008 OVC015 FM162000 35004KT P6SM OVC025 FM170000 34002KT P6SM OVC100 KRCA 160301Z 1603/1709 33009KT 9999 FEW200 QNH3032INS WND 18006KT AFT 1608 BECMG 1620/1621 16012G18KT 9999 FEW150 QNH3025INS BECMG 1623/1624 15006KT 9999 FEW120 QNH3013INS TXM06/1620Z TNM20/1611Z KRDD 160521Z 1606/1706 VRB05KT P6SM -RA OVC050 FM160900 VRB05KT 4SM -RA BR OVC015 FM161300 VRB03KT 2SM BR OVC007 TEMPO 1617/1620 4SM BR BKN008 OVC015 FM162000 VRB03KT P6SM OVC015 FM170000 00000KT P6SM OVC100 KRDG 160521Z 1606/1706 VRB03KT P6SM OVC015 TEMPO 1610/1614 3SM -SN OVC008 FM161600 17004KT P6SM SCT015 BKN035 FM162200 VRB03KT P6SM -SN OVC015 FM170100 VRB03KT 1SM -SN OVC005 KRDM 160533Z 1606/1706 VRB03KT 1SM BR OVC002 TEMPO 1606/1609 1/4SM FG OVC002 FM160900 VRB04KT 1SM -SHRA BR SCT002 BKN040 OVC060 FM161400 17005KT P6SM SCT050 FM162200 32005KT P6SM FEW050 BKN070 KRDR 160200Z 1602/1708 34009KT 9999 SCT015 QNH3063INS BECMG 1615/1616 22009KT 9999 BKN100 QNH3030INS BECMG 1702/1703 21009KT 9999 FEW080 QNH3028INS TXM13/1620Z TNM26/1608Z KRDU 160535Z 1606/1706 00000KT P6SM SCT250 FM161500 19005KT P6SM BKN250 FM162300 16005KT P6SM BKN120 OVC250 KRFD 160529Z 1606/1706 29012KT 2SM -SN SCT015 OVC025 TEMPO 1606/1609 3/4SM -SN BR SCT009 OVC015 FM160900 31010KT 3SM -SN SCT015 OVC025 FM161300 32012KT 6SM -SN BKN025 FM161700 33010KT P6SM BKN035 FM170000 32007KT P6SM SCT040 KRHI 160635Z 1607/1706 01004KT P6SM SCT025 BKN070 TEMPO 1608/1610 -SHSN BKN025 FM161000 35004KT P6SM -SHSN BKN015 FM161700 34007KT P6SM -SHSN BKN023 FM161900 33007KT P6SM BKN030 FM162000 29005KT P6SM SCT050 KRIC 160546Z 1606/1706 00000KT 4SM BR OVC004 FM160700 00000KT 3SM BR OVC004 FM161400 VRB03KT P6SM SCT004 OVC009 FM161600 VRB03KT P6SM SCT090 FM162200 VRB03KT P6SM BKN250 KRIL 160536Z 1606/1706 VRB03KT P6SM SKC FM161400 14004KT P6SM FEW250 KRIV 160528Z 1605/1710 VRB04KT 9999 BKN200 QNH3006INS BECMG 1619/1620 30009KT 9999 BKN250 QNH3009INS BECMG 1703/1704 VRB04KT 9999 FEW150 SCT200 QNH3010INS TX22/1622Z TN03/1614Z KRIW 160531Z 1606/1706 19006KT P6SM BKN020 FM161700 VRB06KT P6SM SCT025 FM162000 VRB06KT P6SM SKC FM170400 30007KT P6SM FEW120 KRKD 160530Z 1606/1706 04010G17KT P6SM -SN OVC020 FM161000 VRB04KT P6SM BKN040 NOT SKED KRKS 160531Z 1606/1706 11006KT P6SM SKC FM162100 24010KT P6SM SKC KRME 160535Z 1606/1706 12008KT 2SM -SN OVC025 FM161500 VRB05KT 1SM -SN OVC012 FM162000 00000KT 2SM -SN OVC015 FM170300 VRB03KT 4SM -SN OVC008 KRNH 160520Z 1606/1706 33008KT P6SM SCT018 BKN050 FM161600 30007KT P6SM FEW018 FM170000 24004KT P6SM SCT100 KRNO 160521Z 1606/1706 VRB04KT P6SM BKN110 OVC180 FM161200 21009KT P6SM VCSH BKN050 BKN090 FM161600 24006KT P6SM SCT060 SCT200 FM162300 11004KT P6SM BKN200 KROA 160520Z 1606/1706 14005KT P6SM SCT130 FM161500 00000KT P6SM BKN090 FM161700 19004KT P6SM -SN OVC070 FM162200 15003KT 5SM -SN OVC040 KROC 160525Z 1606/1706 16006KT 5SM -SN OVC020 TEMPO 1606/1609 1SM -SN OVC015 FM161100 22006KT P6SM SCT007 BKN015 FM161700 23010KT P6SM BKN025 FM162300 24009KT P6SM BKN025 FM170500 23010KT P6SM BKN015 KROG 160538Z 1606/1706 33014G22KT P6SM SCT030 OVC150 FM160900 32012G20KT P6SM SCT030 FM161600 32011KT P6SM SKC FM170000 32005KT P6SM SKC KROW 160532Z 1606/1706 04010KT P6SM OVC050 FM161300 07008KT P6SM OVC050 FM161700 16008KT P6SM SCT080 FM170100 18006KT P6SM FEW080 KRSL 160525Z 1606/1706 34014KT P6SM SKC FM161000 33009KT P6SM SCT250 FM162000 04005KT P6SM SKC FM170000 07005KT P6SM SKC KRST 160553Z 1606/1706 32015KT P6SM OVC015 TEMPO 1606/1608 2SM -SN FM161300 32011KT P6SM BKN025 FM161800 31009KT P6SM BKN035 FM161900 31009KT P6SM SCT045 KRSW 160521Z 1606/1706 04008KT P6SM FEW060 FM161600 06010KT P6SM SCT050 SCT250 KRUT 160539Z 1606/1706 13006KT P6SM BKN040 FM160800 13005KT P6SM VCSH OVC040 FM161000 14005KT 3SM -SN OVC040 FM161400 15004KT P6SM VCSH OVC030 FM162000 17004KT 4SM -SN OVC030 FM170200 00000KT 1 1/2SM -SN BR OVC020 KRVS 160538Z 1606/1706 35012G19KT P6SM SCT030 FM161600 35009KT P6SM SKC FM170000 00000KT P6SM SKC KRWF 160520Z 1606/1706 32012G18KT P6SM SCT015 BKN045 FM161200 31008KT P6SM SCT015 FM170000 23007KT P6SM SCT100 KRWI 160535Z 1606/1706 00000KT P6SM SCT250 FM161500 20005KT P6SM BKN250 FM162300 15003KT P6SM BKN120 OVC250 KRWL 160531Z 1606/1706 VRB04KT P6SM SKC FM161800 24012G20KT P6SM SKC FM170000 24010KT P6SM SKC KRYY 160545Z 1606/1706 00000KT P6SM FEW200 FM161000 22003KT P6SM FEW200 FM161600 25007KT P6SM SCT120 FM162000 30008KT P6SM BKN040 BKN100 FM162300 32011G16KT P6SM OVC015 PROB30 1623/1705 5SM -SN BR BKN025 FM170500 32011G16KT P6SM BKN040 BKN100 KSAC 160521Z 1606/1706 13004KT 1SM BR OVC002 FM160800 15004KT 1/2SM -RA FG OVC004 FM161400 14003KT 1/2SM FG OVC002 FM162200 32004KT 3SM BR OVC015 FM170300 33003KT 1 1/2SM BR OVC015 KSAF 160532Z 1606/1706 14020G30KT P6SM BKN020 FM160900 15012G20KT P6SM OVC025 FM161400 15012KT P6SM BKN050 FM161700 12010KT P6SM SCT050 FM162100 18008KT P6SM FEW050 FM170000 VRB05KT P6SM SKC KSAN 160530Z 1606/1712 VRB03KT P6SM BKN200 FM160900 VRB03KT 3SM BR VCFG SCT003 FM161200 VRB04KT P6SM FEW005 BKN200 FM162100 29008KT P6SM BKN200 FM170200 VRB04KT P6SM BKN200 KSAT 160538Z 1606/1712 01023G33KT P6SM -RA OVC015 FM161100 01020G30KT 6SM -FZRAPL OVC015 FM161900 36015G25KT P6SM OVC050 FM170000 01005KT P6SM OVC050 KSAV 160523Z 1606/1706 VRB04KT P6SM SCT250 FM162300 00000KT P6SM BKN250 KSAW 160534Z 1606/1706 00000KT 6SM -SHSN SCT020 OVC045 FM160700 00000KT 3SM -SHSN OVC020 FM160900 00000KT 1SM -SHSN OVC015 FM161300 36003KT 2SM -SHSN OVC020 FM161800 36006KT 3SM -SHSN OVC025 FM162300 32004KT P6SM BKN050 FM170000 31004KT P6SM SCT060 KSBA 160548Z 1606/1706 VRB03KT 5SM BR SCT005 FM160900 VRB03KT 5SM BR OVC010 FM161600 VRB03KT 6SM BR BKN015 FM161800 16006KT P6SM BKN150 FM162100 23007KT P6SM BKN150 FM170300 VRB03KT P6SM BKN200 KSBD 160530Z 1606/1706 VRB06KT P6SM BKN200 KSBN 160520Z 1606/1706 23009KT P6SM VCSH BKN020 OVC050 TEMPO 1612/1616 3SM -SHSN OVC015 FM161600 23008KT 3SM -SHSN OVC025 FM162000 30007KT P6SM VCSH OVC025 FM170200 31004KT 3/4SM -SHSN BR OVC010 KSBP 160548Z 1606/1706 VRB03KT P6SM BKN200 FM160900 VRB03KT P6SM OVC012 FM161700 31006KT P6SM SCT015 BKN100 FM162100 31012KT P6SM BKN100 FM170300 31006KT P6SM BKN200 KSBY 160705Z 1607/1706 VRB03KT 5SM BR SCT006 OVC015 TEMPO 1607/1610 BKN007 FM161300 VRB03KT P6SM BKN045 FM162100 00000KT P6SM BKN040 FM170400 VRB03KT P6SM OVC015 KSCK 160605Z 1606/1706 VRB03KT 1 1/2SM BR OVC003 FM160900 VRB04KT 1/2SM FG OVC004 TEMPO 1611/1613 -SHRA FM161500 VRB04KT 1/2SM FG OVC003 FM162200 32005KT 3SM BR OVC012 FM170300 31006KT 2SM BR OVC015 KSDF 160528Z 1606/1712 30009KT P6SM VCSH SCT015 OVC035 TEMPO 1606/1607 3SM -SN BKN015 FM160800 30009KT P6SM OVC035 FM161500 27006KT P6SM BKN120 KSDL 160520Z 1606/1706 VRB04KT P6SM SCT250 FM161000 VRB03KT P6SM BKN150 FM161700 12006KT P6SM BKN250 TEMPO 1617/1621 12008G18KT KSDY 160530Z 1606/1706 20005KT P6SM FEW200 KSEA 160534Z 1606/1712 11008KT P6SM -RA FEW070 OVC080 FM160800 16011KT P6SM -RA SCT025 OVC045 FM161000 17009KT P6SM -RA OVC025 FM161200 18008KT P6SM VCSH OVC025 FM161900 19010G20KT P6SM VCSH SCT025 BKN040 KSEZ 160539Z 1606/1706 04011KT P6SM FEW150 OVC200 FM161500 VRB05KT P6SM SCT150 BKN200 FM170100 06010KT P6SM BKN120 OVC150 KSFB 160534Z 1606/1706 36008KT P6SM SKC FM161500 03009KT P6SM FEW040 FM162300 02006KT P6SM SCT250 KSFF 160533Z 1606/1706 00000KT P6SM SCT150 BKN200 FM161400 00000KT P6SM VCSH BKN050 OVC100 FM161500 20005KT 6SM -RA OVC025 FM162300 22006KT P6SM BKN035 OVC070 FM170200 07002KT P6SM OVC020 KSFO 160520Z 1606/1712 27004KT 5SM BR OVC025 FM160900 28004KT 4SM -RA OVC020 FM161400 27005KT P6SM BKN025 FM161600 27004KT P6SM SCT030 BKN050 FM162000 33004KT P6SM SCT050 KSGF 160532Z 1606/1706 33014G21KT P6SM SCT110 FM162300 32010KT P6SM SCT050 KSGJ 160553Z 1606/1706 03010KT P6SM FEW250 FM170000 VRB03KT P6SM SCT250 KSGR 160520Z 1606/1706 12006KT P6SM VCSH BKN035 OVC050 FM160730 35016G26KT 6SM -SHRA SCT008 OVC012 FM161200 35018G28KT 6SM -RAPL BR OVC012 FM161500 36017G27KT 5SM -FZRAPL OVC020 FM161800 36018KT P6SM -SNPL SCT025 OVC045 FM162300 36014KT P6SM SCT045 OVC080 FM170400 36010KT P6SM BKN100 KSGU 160521Z 1606/1706 VRB04KT P6SM BKN200 KSHR 160528Z 1606/1706 VRB03KT 6SM BR FEW001 FM161500 VRB05KT P6SM SKC KSHV 160556Z 1606/1706 34012KT 5SM -RA BR BKN009 OVC014 TEMPO 1606/1608 3SM -RASN FM160800 36018KT 5SM -SN OVC007 FM161200 36016G22KT 5SM -SN OVC010 FM161500 36015KT P6SM SCT120 FM170100 35009KT P6SM SKC FM170500 34006KT P6SM SKC KSJC 160520Z 1606/1706 19004KT P6SM BKN040 FM161300 15005KT P6SM VCSH SCT015 BKN030 FM161800 VRB03KT P6SM SCT030 BKN050 FM162000 31006KT P6SM SCT050 FM170200 VRB03KT P6SM SCT050 KSJS 160539Z 1606/1706 VRB03KT 6SM -SHSN BR SCT015 OVC035 FM161000 VRB05KT 2SM -SN BR OVC015 FM161300 VRB05KT 3/4SM -SN BR BKN005 OVC008 FM161800 VRB05KT 2SM -SN BR OVC010 FM170000 VRB05KT 4SM -SN BKN008 FM170400 VRB04KT 6SM -SHSN BR BKN015 KSJT 160520Z 1606/1706 02020G30KT P6SM OVC035 TEMPO 1606/1610 P6SM -PLSN FM161200 02014G20KT P6SM OVC035 FM161800 02012KT P6SM OVC050 KSKA 160306Z 1603/1709 03009KT 4800 BR FEW003 QNH3006INS TEMPO 1612/1615 0600 FG VV001 BECMG 1614/1615 VRB05KT 8000 -RA BKN003 BKN050 620109 QNH3010INS BECMG 1617/1618 17009KT 9000 -RA BKN005 OVC030 620109 QNH3015INS BECMG 1620/1621 16009KT 8000 -RA BKN010 BKN050 620105 QNH3022INS BECMG 1705/1706 16009KT 9999 NSW SCT030 SCT080 QNH3025INS TX04/1603Z TNM01/1612Z KSKF 160555Z 1605/1708 08010KT 9999 BKN030 OVC070 QNH3016INS BECMG 1605/1606 01015G25KT 8000 -RA OVC015 610409 QNH3010INS TEMPO 1606/1613 01025G35KT 510004 BECMG 1612/1613 02020G30KT 8000 -FZRA OVC015 690002 QNH3020INS TEMPO 1612/1616 6000 -PL OVC020 630251 BECMG 1619/1620 03012G18KT 9999 NSW BKN030 610309 QNH3021INS BECMG 1702/1703 35009KT 9999 SCT060 QNH3025INS TX13/1605Z TNM03/1610Z KSLC 160521Z 1606/1712 16005KT P6SM FEW200 FM161900 33005KT P6SM SCT100 BKN200 FM170400 15005KT P6SM BKN100 BKN200 KSLE 160539Z 1606/1706 VRB03KT P6SM -RA BKN045 OVC070 FM161000 19007KT P6SM VCSH SCT015 BKN035 BKN060 FM161800 13008KT P6SM OVC070 KSLI 160641Z 1606/1711 VRB06KT 0800 FG SCT150 QNH3006INS BECMG 1609/1610 VRB06KT 4800 BR FEW250 QNH3008INS BECMG 1620/1621 23006KT 9999 NSW SCT190 BKN250 QNH3008INS BECMG 1703/1704 VRB03KT 8000 BR FEW150 BKN210 QNH3009INS TX18/1622Z TN12/1614Z KSLK 160700Z 1607/1706 VRB03KT 2SM -SN BR OVC020 TEMPO 1607/1611 1SM -SN BR OVC015 FM161200 00000KT 6SM -SN BR OVC030 FM161300 17004KT P6SM VCSH OVC035 FM161800 21006KT 3SM -SN OVC020 FM170000 VRB03KT P6SM VCSH OVC015 KSLN 160525Z 1606/1706 34014KT P6SM SCT030 FM161900 33009KT P6SM SCT150 FM170100 31004KT P6SM SKC KSME 160539Z 1606/1706 30007KT 6SM -SHSN BR SCT007 OVC015 FM160800 31007KT 4SM -SN BR SCT007 OVC015 FM161000 VRB05KT 2SM -SN BR OVC015 FM161200 VRB05KT 3/4SM -SN BR BKN005 OVC008 FM161600 VRB05KT 2SM -SN BR OVC010 FM162200 31006KT 6SM -SHSN BR BKN015 FM170400 VRB04KT P6SM SCT015 KSMF 160521Z 1606/1706 15005KT 3/4SM BR OVC002 FM160800 16005KT 1/2SM -RA FG OVC004 FM161400 15004KT 1/2SM FG OVC002 FM162200 32004KT 3SM BR OVC015 FM170200 34002KT 1 1/2SM BR OVC015 KSMN 160520Z 1606/1706 VRB03KT P6SM OVC016 FM161000 00000KT P6SM SCT016 BKN050 KSMO 160548Z 1606/1706 VRB03KT P6SM SCT008 BKN200 FM160700 VRB03KT 5SM BR OVC008 FM161600 VRB03KT P6SM SCT010 BKN200 FM162000 24008KT P6SM BKN200 FM170300 VRB03KT P6SM BKN200 KSMX 160548Z 1606/1706 VRB03KT P6SM SCT012 FM160700 VRB03KT P6SM OVC012 FM161700 30006KT P6SM SCT015 BKN200 FM162100 30012KT P6SM BKN100 FM170300 31006KT P6SM BKN200 KSNA 160530Z 1606/1706 22006KT P6SM BKN200 FM160900 00000KT 1SM BR VCFG SCT002 FM161200 VRB03KT 3SM BR SCT005 BKN200 FM161700 21007KT P6SM BKN200 FM170200 VRB04KT P6SM BKN200 KSNS 160658Z 1607/1706 00000KT 1/4SM FG OVC003 FM161700 28005KT P6SM SCT050 KSNY 160531Z 1606/1706 30006KT P6SM SKC FM161200 25006KT P6SM SKC FM161800 20010KT P6SM SKC KSOA 160649Z 1607/1706 01020G30KT P6SM BKN025 TEMPO 1608/1612 P6SM -PLSN FM161200 03014G20KT P6SM OVC035 TEMPO 1612/1615 P6SM -PLSN FM161800 02012KT P6SM OVC050 KSPI 160526Z 1606/1706 29013KT P6SM SCT015 FM161400 29013KT P6SM -SN BKN015 FM170200 30007KT P6SM BKN025 KSPS 160520Z 1606/1706 01020G27KT P6SM BKN100 FM161100 36016KT P6SM SCT100 FM170000 03007KT P6SM SKC KSRQ 160521Z 1606/1706 03007KT P6SM SCT060 FM161600 06008KT P6SM SCT250 FM161900 34007KT P6SM SCT250 KSSC 160422Z 1604/1706 02009KT 9999 SKC QNH3036INS BECMG 1606/1607 VRB06KT 9999 FEW160 QNH3030INS TX07/1621Z TNM05/1612Z KSSF 160538Z 1606/1706 01023G33KT P6SM -RA OVC015 FM161200 01020G30KT 6SM -FZRAPL OVC015 FM161900 36015G25KT P6SM OVC050 FM170000 01005KT P6SM OVC050 KSSI 160553Z 1606/1706 03004KT P6SM SKC FM161500 05008KT P6SM SCT250 FM170000 VRB03KT P6SM BKN250 KSTC 160520Z 1606/1706 34010KT P6SM BKN015 BKN040 FM161600 31006KT P6SM SCT015 FM170000 23006KT P6SM SCT100 KSTL 160520Z 1606/1712 30012G18KT P6SM SCT025 TEMPO 1606/1609 BKN025 FM161400 29009KT P6SM BKN025 FM162200 30009KT P6SM BKN035 FM170100 30007KT P6SM SCT040 KSTS 160659Z 1607/1706 VRB03KT 2SM BR OVC008 FM161000 15008KT 3SM -RA OVC010 FM161400 VRB03KT P6SM BKN025 FM161600 VRB03KT P6SM SCT040 KSUA 160534Z 1606/1706 05011G17KT P6SM SCT035 SCT060 FM161400 05012G19KT P6SM SCT035 FM170000 04009KT P6SM SCT040 SCT250 KSUN 160520Z 1606/1712 32010KT P6SM SCT150 BKN250 FM161900 15009KT P6SM VCSH SCT030 BKN080 TEMPO 1622/1702 SCT025 BKN035 FM170200 33006KT P6SM SCT035 SCT150 LTD TO CLD VIS AND WIND TIL 161400 KSUS 160520Z 1606/1706 30010G16KT P6SM SCT025 TEMPO 1606/1609 BKN025 FM161400 29009KT P6SM BKN025 FM162200 30009KT P6SM BKN035 FM170000 30006KT P6SM SCT040 KSUU 160647Z 1605/1709 VRB06KT 0800 FG VCSH OVC001 QNH3008INS TEMPO 1606/1608 OVC002 BECMG 1607/1608 14009KT 6000 -RA BR BKN010 OVC030 QNH3014INS TEMPO 1608/1612 BKN009 BECMG 1621/1622 VRB06KT 9999 NSW BKN030 QNH3026INS BECMG 1705/1706 VRB06KT 6000 BR BKN030 QNH3023INS TX16/1621Z TN08/1609Z KSUX 160520Z 1606/1706 33016G24KT P6SM -SN BKN025 FM161000 33014KT P6SM SCT025 FM161500 33011KT P6SM FEW035 FM161900 32007KT P6SM SKC FM170000 VRB03KT P6SM FEW120 KSVN 152100Z 1521/1703 03006KT 9999 FEW250 QNH3038INS BECMG 1617/1618 06003KT 9999 FEW250 QNH3032INS TX14/1621Z TN01/1609Z KSWF 160523Z 1606/1712 VRB03KT P6SM BKN015 FM161500 VRB05KT P6SM -SN BKN015 FM161700 17006KT 6SM -SN OVC010 FM162200 VRB05KT 2SM -SN OVC008 FM170200 VRB04KT 1SM -SN OVC008 FM170600 VRB04KT 1SM -SN OVC008 NOT SKED KSYM 160539Z 1606/1706 27006KT 4SM -SN BR OVC010 FM160800 29006KT 3/4SM -SN BR OVC020 FM161400 28006KT 2SM -SN BR OVC015 FM161900 27006KT 4SM -SHSN BR BKN015 FM162300 28006KT 6SM -SHSN BR SCT015 KSYR 160535Z 1606/1706 10008KT 3SM -SN OVC025 TEMPO 1606/1609 1 1/2SM -SN OVC015 FM161700 22008KT 4SM -SN OVC025 FM162200 33008KT 2SM -SN OVC015 FM170300 VRB03KT 5SM -SN OVC018 KSZL 160646Z 1606/1709 32009KT 9999 SCT020 QNH3058INS BECMG 1617/1618 31012KT 9999 SCT020 QNH3067INS BECMG 1623/1624 30006KT 9999 BKN025 620252 QNH3067INS TXM12/1620Z TNM18/1611Z KTCC 160532Z 1606/1706 07008KT P6SM OVC040 TEMPO 1606/1610 -FZDZ BKN030 FM161000 11006KT P6SM BKN050 FM161600 21008KT P6SM SCT100 KTCL 160532Z 1606/1706 00000KT P6SM SKC FM160900 35007KT P6SM BKN050 FM161800 35010KT 5SM -SN OVC035 FM162100 35010KT 3SM -SN OVC015 FM170200 35012KT P6SM BKN050 KTCM 160512Z 1605/1711 15009KT 6000 -RA SCT040 BKN060 620703 QNH2987INS BECMG 1608/1609 17009KT 3200 -RA BR BKN015 620505 QNH2996INS TEMPO 1609/1614 4800 -RA BKN020 BECMG 1617/1618 20012G20KT 8000 -SHRA BKN015 610307 QNH3011INS BECMG 1702/1703 15009KT 8000 -RA BKN020 620305 QNH3022INS BECMG 1705/1706 15009KT 9999 NSW BKN030 620307 QNH3011INS TX11/1622Z TN06/1611Z KTCS 160536Z 1606/1706 03015G25KT P6SM SCT040 BKN140 FM161500 06012KT P6SM SCT040 BKN160 FM161800 14010KT P6SM SCT040 BKN200 FM170000 20008KT P6SM FEW040 SCT160 KTEB 160523Z 1606/1712 VRB03KT P6SM SCT035 TEMPO 1606/1609 BKN035 FM160900 VRB03KT P6SM BKN030 FM161400 VRB04KT P6SM BKN025 FM161800 VRB04KT P6SM BKN020 FM162100 VRB04KT 6SM -SN BKN020 FM170000 VRB04KT 2SM -SN BKN015 FM170500 VRB03KT 1SM -SN OVC008 KTEX 160536Z 1606/1706 VRB03KT P6SM FEW250 FM161900 27006KT P6SM FEW250 KTIK 160200Z 1602/1708 36015G25KT 9999 BKN080 510105 530604 QNH3058INS BECMG 1609/1610 35012G20KT 9999 SCT120 510105 520605 QNH3065INS BECMG 1618/1619 35012KT 9999 SKC 510109 QNH3068INS BECMG 1623/1624 02009KT 9999 SKC QNH3065INS TXM05/1620Z TNM12/1613Z KTIX 160534Z 1606/1706 36009KT P6SM SCT040 FM161400 03010KT P6SM SCT030 FM170000 02007KT P6SM SCT250 NOT SKED TIL 161200 KTLH 160524Z 1606/1706 VRB04KT P6SM SCT250 FM170500 33004KT P6SM BKN050 KTMB 160534Z 1606/1706 34008KT P6SM SCT040 OVC050 FM161500 05012KT P6SM SCT040 FM170000 03008KT P6SM SCT035 KTOI 160532Z 1606/1706 00000KT P6SM SKC FM161800 33005KT P6SM SCT050 FM170000 33008KT P6SM BKN035 FM170300 35012KT 5SM -SN OVC025 KTOL 160542Z 1606/1706 25010KT P6SM BKN010 BKN040 FM160800 25010KT P6SM BKN015 OVC030 FM170100 24006KT P6SM SCT007 BKN010 KTOP 160520Z 1606/1706 31013KT P6SM SCT035 FM162000 32007KT P6SM SCT035 KTPA 160521Z 1606/1712 04006KT P6SM FEW060 FM161900 33007KT P6SM SCT050 SCT250 FM170200 VRB04KT P6SM SCT050 SCT250 KTPH 160520Z 1606/1706 36006KT P6SM BKN110 KTRI 160530Z 1606/1706 00000KT P6SM FEW060 BKN250 FM161200 VRB03KT P6SM BKN060 FM161800 27004KT P6SM VCSH SCT025 OVC035 FM162000 28006KT 2SM -SN SCT007 OVC015 KTRK 160521Z 1606/1706 21005KT P6SM BKN090 OVC150 FM161200 22008KT P6SM -SHRA BKN025 OVC035 FM161600 VRB04KT P6SM SCT030 BKN040 FM161900 VRB03KT P6SM SCT040 BKN180 KTRM 160530Z 1606/1706 VRB06KT P6SM BKN200 KTTD 160624Z 1606/1706 08021G32KT P6SM -SHRA BKN040 OVC060 TEMPO 1606/1608 -SHRA BKN025 BKN035 OVC045 FM161000 09013G21KT P6SM VCSH SCT015 BKN035 BKN060 FM161800 08007KT P6SM OVC070 KTTN 160521Z 1606/1706 VRB03KT P6SM OVC012 FM161700 15004KT P6SM SCT015 BKN025 FM170100 09004KT P6SM OVC015 FM170500 04004KT 1SM -SN OVC005 KTUL 160538Z 1606/1706 34015G22KT P6SM SCT030 FM161600 34012KT P6SM SKC FM170000 35005KT P6SM SKC KTUP 160528Z 1606/1706 33010KT P6SM OVC060 FM160900 34013G20KT 4SM -SN BR OVC015 TEMPO 1610/1614 1SM -SN BR OVC010 FM161800 02013KT P6SM OVC015 FM170000 01010KT P6SM BKN050 KTUS 160528Z 1606/1706 14008KT P6SM BKN250 FM161400 12018G26KT P6SM SCT150 BKN250 FM162200 10013KT P6SM SCT150 BKN250 FM170300 13012KT P6SM SCT250 KTVC 160652Z 1607/1706 36006KT P6SM -SHSN BKN040 TEMPO 1607/1610 4SM -SHSN BKN020 OVC040 FM161000 03007KT P6SM -SHSN SCT020 OVC050 FM161600 36008KT 6SM -SHSN BKN025 FM170100 VRB03KT P6SM VCSH BKN025 KTVF 160532Z 1606/1706 33007KT P6SM FEW250 FM161800 21012KT P6SM SCT250 KTVL 160521Z 1606/1706 19005KT P6SM BKN090 OVC150 FM161200 20005KT P6SM -SHRA BKN030 OVC050 FM161500 18008KT P6SM SCT030 BKN045 FM161900 VRB04KT P6SM SCT040 BKN180 KTWF 160531Z 1606/1706 07010KT P6SM SCT200 FM161400 10014KT P6SM BKN150 FM162100 27010KT P6SM VCSH OVC080 FM170300 19005KT P6SM BKN100 KTXK 160604Z 1606/1706 36010KT 4SM -SN BR SCT007 OVC011 TEMPO 1606/1610 3/4SM -SN BR FM161000 36013G22KT 4SM -SN OVC010 FM161300 35013G19KT P6SM SCT120 FM161900 35011G19KT P6SM SKC FM170000 34006KT P6SM SKC KTYR 160520Z 1606/1706 01018G24KT 6SM -FZRA BR OVC010 FM160700 36017G23KT 3SM -SN OVC020 FM160900 35017G24KT 6SM -SN BKN035 OVC050 FM161400 36015G21KT P6SM OVC050 FM170000 35008KT P6SM SKC KTYS 160530Z 1606/1706 21005KT P6SM SCT050 BKN250 FM161200 29005KT P6SM SCT035 OVC050 FM161600 30007KT P6SM VCSH OVC025 FM161830 29007KT 2SM -SN SCT007 OVC015 FM170200 34009KT P6SM SCT015 OVC025 KUAO 160624Z 1606/1706 VRB03KT P6SM -SHRA SCT040 OVC060 TEMPO 1606/1608 -SHRA BKN025 BKN035 OVC045 FM160900 18006KT P6SM VCSH SCT015 BKN035 BKN060 FM161800 19005KT P6SM OVC070 KUES 160520Z 1606/1706 33006KT 5SM -SN SCT015 OVC025 FM161200 32008KT P6SM VCSH BKN025 FM161600 34011KT P6SM BKN035 KUIN 160520Z 1606/1706 30013G18KT P6SM SCT020 FM161000 30012KT P6SM BKN020 FM170000 30008KT P6SM BKN040 FM170200 31007KT P6SM SCT040 KUKI 160612Z 1606/1706 00000KT P6SM VCSH OVC011 FM160700 17004KT 4SM -SHRA BR OVC010 FM161000 VRB03KT 2SM SHRA BR BKN007 OVC015 FM161800 VRB03KT 6SM BR SCT007 OVC025 FM162200 VRB03KT P6SM SCT025 BKN250 KUNV 160607Z 1606/1706 21004KT 4SM -SN BKN025 OVC060 FM161000 21007KT 2SM -SN BR OVC025 FM161400 22007KT 1SM -SN BR OVC015 FM161800 22006KT 1/2SM SN FG OVC009 KUTS 160521Z 1606/1706 34011G21KT 6SM -RA BR BKN004 OVC015 FM160930 35012G22KT P6SM -FZRAPL BKN007 OVC012 FM161200 35011G21KT 5SM -FZRASNPL OVC015 FM161500 36012KT 6SM -SN BR OVC025 FM162000 35013KT P6SM OVC045 FM162200 35011KT P6SM BKN070 BKN250 FM170200 36006KT P6SM BKN100 KVCT 160533Z 1606/1706 07006KT P6SM VCSH SCT035 OVC060 TEMPO 1606/1608 6SM SHRA OVC030 FM160800 36018G26KT P6SM -RA OVC007 FM161200 01022G33KT P6SM -RA OVC012 FM161500 01022G33KT P6SM -FZRA OVC015 TEMPO 1616/1619 -FZRAPL OVC010 FM161900 36018G28KT P6SM -FZRAPL OVC018 FM162300 36014KT P6SM OVC025 KVEL 160536Z 1606/1706 06005KT P6SM SKC FM162000 13004KT P6SM FEW250 KVGT 160520Z 1606/1706 32005KT P6SM BKN200 FM161800 VRB04KT P6SM BKN250 FM170300 32005KT P6SM SCT250 KVIS 160524Z 1606/1706 VRB05KT 2SM BR SCT150 FM160800 VRB03KT 1SM BR OVC120 TEMPO 1610/1614 1/4SM FG FM162100 32005KT 4SM HZ BKN250 KVLD 160524Z 1606/1706 VRB04KT P6SM SCT250 KVNY 160548Z 1606/1706 VRB03KT P6SM BKN200 FM162100 14007KT P6SM BKN200 FM170300 VRB03KT P6SM BKN200 KVOK 160546Z 1605/1707 30009KT 8000 -SN SCT013 OVC025 620257 QNH3042INS BECMG 1612/1613 30009KT 9999 NSW SCT010 BKN030 620309 QNH3047INS BECMG 1620/1621 28006KT 9999 FEW030 QNH3050INS TXM07/1620Z TNM13/1611Z KVPS 160200Z 1602/1708 02008KT 9999 FEW250 QNH3037INS BECMG 1616/1617 08005KT 9999 SCT035 BKN200 QNH3036INS BECMG 1622/1623 35012KT 9999 BKN030 BKN100 OVC180 QNH3035INS BECMG 1706/1707 35012G18KT 9999 BKN020 BKN100 OVC180 QNH3037INS TX14/1620Z TN01/1611Z FCST BY USAF WX MET TECH KVQQ 160553Z 1606/1706 VRB03KT P6SM SKC FM161500 06007KT P6SM SCT250 FM170000 VRB03KT P6SM BKN250 KVRB 160534Z 1606/1706 04010KT P6SM SCT030 FM161400 04010G17KT P6SM SCT040 FM170000 03009KT P6SM SCT040 SCT250 KVTN 160520Z 1606/1706 32009KT P6SM FEW250 FM161300 29005KT P6SM SKC FM162100 20008KT P6SM FEW250 KWJF 160548Z 1606/1706 26006KT P6SM BKN200 FM160900 VRB03KT P6SM BKN200 FM162000 28008KT P6SM BKN200 KWMC 160520Z 1606/1706 VRB06KT P6SM BKN120 FM161700 18003KT P6SM -SHRA OVC040 FM162300 VRB05KT P6SM SCT050 SCT200 KWRB 160500Z 1605/1711 VRB06KT 9999 SKC QNH3033INS BECMG 1707/1708 31010G15KT 9999 SCT010 QNH3036INS TX09/1621Z TNM04/1612Z KWRI 160243Z 1602/1708 09009KT 9999 OVC020 620202 QNH3043INS BECMG 1603/1604 09009KT 9999 OVC015 620152 QNH3028INS TEMPO 1604/1608 OVC020 620202 BECMG 1705/1706 31009KT 8000 -SN OVC015 620159 QNH3026INS TX04/1618Z TNM03/1606Z KWRL 160531Z 1606/1706 16004KT P6SM SKC FM161300 VRB05KT P6SM VCFG SCT003 FM161800 17007KT P6SM SKC KWWR 160520Z 1606/1706 35005KT P6SM SKC FM161600 35011KT P6SM SKC FM170000 13004KT P6SM SKC KXNA 160538Z 1606/1706 35015G23KT P6SM SCT030 OVC150 FM160900 34014G20KT P6SM SCT030 FM161600 33012KT P6SM SKC FM170000 34007KT P6SM SKC KYIP 160520Z 1606/1706 25005KT 5SM -SHSN BKN025 FM161400 26005KT 6SM -SHSN BKN020 FM162000 26006KT 3SM -SHSN BKN020 FM170100 30007KT P6SM BKN020 KYKM 160533Z 1606/1706 VRB03KT P6SM -SHRA BKN040 OVC060 FM161000 VRB04KT P6SM -RA BKN025 OVC040 FM161500 VRB03KT P6SM SCT040 FM162200 VRB04KT P6SM FEW040 BKN080 KYNG 160531Z 1606/1706 23004KT 1SM -SN OVC010 FM161000 25004KT 2SM -SN OVC015 FM161200 25006KT P6SM -SN OVC010 FM161500 24007KT P6SM BKN010 OVC020 FM161800 23008KT P6SM BKN020 OVC040 FM170400 25005KT P6SM BKN015 KZZV 160658Z 1607/1706 24006KT 4SM -SN OVC015 TEMPO 1607/1611 1SM -SN BKN008 FM161500 27008KT 6SM -SN OVC025 FM161800 26008KT P6SM BKN035 LATI 160500Z 1606/1706 14008KT 9999 -RA SCT030 BKN060 TEMPO 1610/1617 22012KT 5000 SHRA SCT020CB OVC040 LBBG 160500Z 1606/1706 VRB04KT 5000 BR BKN010 OVC025 TEMPO 1606/1608 2000 RA BR FEW002 BKN008 OVC015 BECMG 1608/1610 25012KT 9999 SCT015 BKN040 LBGO 160500Z 1606/1706 VRB04KT 7000 SCT030 BKN060 TEMPO 1606/1608 3000 SN SCT020 OVC040 LBPD 160500Z 1606/1706 VRB04KT 7000 SCT015 OVC040 TEMPO 1606/1609 3000 BR BKN012 BECMG 1610/1612 04010KT LBSF 160500Z 1606/1706 31008KT 8000 SCT020 OVC040 PROB40 TEMPO 1606/1608 5000 SN BKN013 OVC030 BECMG 1609/1611 24010KT TEMPO 1611/1616 5000 RA SCT020 OVC030 LBWN 160500Z 1606/1706 VRB04KT 4000 BR SCT005 BKN012 OVC025 TEMPO 1606/1608 1200 RASN BR BKN005 OVC012 BECMG 1608/1610 28012KT 9999 SCT015 BKN045 LCLK 160530Z 1606/1706 32008KT 9999 FEW030 BECMG 1608/1611 22012KT BECMG 1616/1618 28009KT LCPH 160530Z 1606/1706 04008KT 9999 SCT030 BECMG 1608/1611 29015KT PROB30 TEMPO 1619/1704 5000 SHRA SCT025TCU BECMG 1621/1623 35009KT LCRA 160101Z 1603/1621 33006KT 9999 FEW040 BECMG 1609/1612 27015G25KT BECMG 1615/1618 30008KT LDDU 160525Z 1606/1706 10008KT 9999 SCT020 BKN040 TX12/1613Z TN06/1606Z TEMPO 1606/1614 RA PROB30 TEMPO 1608/1613 4000 TSRA FEW020CB BKN025 BECMG 1612/1614 22008KT BECMG 1616/1618 09006KT LDOS 160525Z 1606/1706 14008KT 9999 SCT015 OVC035 TX08/1613Z TNM03/1606Z PROB30 TEMPO 1606/1608 -FZRA BKN012 BECMG 1610/1612 21010KT PROB40 TEMPO 1614/1620 21015G25KT BECMG 1620/1622 VRB02KT TEMPO 1702/1706 RA LDPL 160525Z 1606/1706 21008KT 9999 BKN035 TX12/1613Z TN07/1705Z PROB30 TEMPO 1606/1609 4000 -RA BKN012 LDRI 160525Z 1606/1706 VRB02KT 9999 BKN040 TX11/1612Z TN07/1702Z TEMPO 1606/1615 4000 -RA BKN010 OVC030 PROB30 TEMPO 1704/1706 TS FEW030CB BKN040 LDSP 160525Z 1606/1706 10006KT 9999 FEW015 BKN025 TX12/1613Z TN08/1621Z TEMPO 1606/1612 RA PROB30 TEMPO 1606/1611 4000 SHRA SCT020 BKN025 BECMG 1610/1612 24008KT BECMG 1616/1618 VRB02KT LDZA 160525Z 1606/1706 23006KT 9999 SCT040 TX11/1613Z TN00/1606Z BECMG 1609/1611 23010KT PROB30 TEMPO 1613/1618 23015G25KT BECMG 1618/1620 25005KT PROB30 TEMPO 1702/1706 4000 -RA LDZD 160525Z 1606/1706 14008KT 9999 FEW025 BKN050 TX12/1613Z TN07/1606Z TEMPO 1606/1610 RA PROB30 TEMPO 1606/1609 4000 TSRA FEW025CB BKN030 BECMG 1606/1608 24012KT PROB30 TEMPO 1703/1706 30015G25KT 4000 TSRA FEW025CB BKN030 LEAL 160500Z 1606/1706 27012KT 9999 SCT040 TX19/1613Z TN05/1607Z PROB40 TEMPO 1612/1618 29015G25KT LEAM 160200Z 1603/1703 34010KT CAVOK TX16/1614Z TN06/1606Z BECMG 1610/1612 22010KT BECMG 1619/1621 VRB02KT LEAS 160455Z 1604/1703 26009KT 9999 BKN050 TX15/1615Z TN09/1608Z TEMPO 1604/1621 26015G27KT PROB40 TEMPO 1621/1703 30017G27KT 3000 RA BKN010 LEBB 160500Z 1606/1706 21009KT 9999 FEW050 TX15/1615Z TN09/1608Z PROB40 TEMPO 1607/1615 4000 RADZ PROB30 TEMPO 1612/1706 29012KT TEMPO 1621/1706 30018G30KT 3000 RA BKN012 LEBL 160500Z 1606/1706 33010KT 9999 FEW030 TX17/1613Z TN08/1607Z PROB40 TEMPO 1606/1608 24009KT LEBZ 160500Z 1606/1706 23004KT CAVOK TX15/1615Z TN01/1607Z TEMPO 1606/1610 3000 BR BKN006 PROB30 TEMPO 1606/1608 0600 FG VV001 PROB40 TEMPO 1700/1706 0500 FG VV001 LECH 160500Z 1606/1706 VRB04KT 9999 FEW020 BKN050 TX18/1613Z TN05/1607Z TEMPO 1614/1620 09006KT LECO 160200Z 1603/1703 20009KT 9999 FEW010 BKN035 TX15/1615Z TN09/1608Z TEMPO 1603/1703 3000 RADZ BKN010 PROB40 TEMPO 1603/1703 1500 BCFG BKN005 PROB40 TEMPO 1603/1608 0350 FG VV001 TEMPO 1609/1703 28011KT LEGE 160500Z 1606/1706 VRB04KT 9999 FEW020 BKN050 TX18/1613Z TN03/1607Z PROB30 TEMPO 1606/1608 3000 BR SCT002 LEGR 160200Z 1603/1703 VRB02KT 9999 FEW040 TX13/1615Z TNM03/1607Z LEHC 160200Z 1603/1703 27010KT 8000 FEW020 TX12/1614Z TN06/1607Z BECMG 1610/1612 27015KT LEIB 160200Z 1603/1703 23014KT 9999 FEW020 BKN030 TX16/1613Z TN08/1607Z PROB30 TEMPO 1603/1608 23015G25KT LEJR 160500Z 1606/1706 03005KT CAVOK TX17/1615Z TN01/1608Z LELC 160500Z 1606/1706 26006KT CAVOK TX16/1614Z TN06/1607Z LELL 160200Z 1603/1703 28008KT 9999 FEW040 TX16/1613Z TN05/1607Z LEMD 160500Z 1606/1712 VRB05KT CAVOK TX13/1615Z TNM01/1607Z PROB40 TEMPO 1606/1609 4000 BR NSC PROB30 TEMPO 1606/1608 0800 FG VV002 PROB30 TEMPO 1612/1618 22010KT TEMPO 1701/1710 3000 BR BKN008 PROB40 TEMPO 1703/1709 0200 FG VV001 LEMG 160500Z 1606/1706 29005KT CAVOK TX16/1613Z TN03/1607Z BECMG 1612/1614 13006KT BECMG 1618/1620 30006KT LEMH 160200Z 1603/1703 24012KT 9999 FEW020 TX16/1613Z TN08/1607Z TEMPO 1603/1612 25015G25KT TEMPO 1618/1703 26015G25KT LEPA 160500Z 1606/1706 24012KT 9999 FEW025 TX16/1613Z TN07/1607Z TEMPO 1612/1618 24012G22KT LEPP 160200Z 1603/1703 24009KT 9999 SCT050 TX10/1615Z TN05/1607Z TEMPO 1701/1703 30010KT LERS 160200Z 1603/1703 26010KT 9999 FEW040 TX18/1613Z TN05/1607Z PROB40 TEMPO 1612/1622 28020G30KT LESA 160500Z 1606/1706 25008KT 9999 BKN014 TX10/1615Z TN04/1607Z TEMPO 1606/1618 BKN008 PROB40 TEMPO 1606/1610 3000 BR BKN005 PROB30 TEMPO 1606/1609 0600 FG VV002 PROB40 TEMPO 1610/1706 BKN004 LESO 160500Z 1606/1706 22009KT 9999 BKN055 TX15/1615Z TN09/1607Z PROB40 TEMPO 1606/1612 23015G25KT PROB30 TEMPO 1606/1621 4000 RADZ PROB40 TEMPO 1616/1706 29015G25KT TEMPO 1621/1706 30020G35KT 3000 RA BKN012 LEST 160639Z 1606/1706 23009KT 3000 -RADZ BKN010 TX10/1614Z TN06/1607Z TEMPO 1606/1624 0800 RADZ BCFG BKN004 TEMPO 1606/1624 0350 FG VV001 PROB40 TEMPO 1612/1624 8000 NSW BKN016 BECMG 1621/1624 29011KT 8000 NSW BKN020 TEMPO 1700/1706 3000 -RA BR BKN010 LESU 160200Z 1603/1703 VRB03KT 9999 SCT014 TX14/1614Z TN00/1607Z TEMPO 1612/1615 22008KT LETO 160500Z 1606/1706 VRB05KT CAVOK TX13/1615Z TNM01/1607Z PROB40 TEMPO 1606/1609 4000 BR NSC PROB30 TEMPO 1606/1608 0800 FG VV002 PROB30 TEMPO 1612/1618 22010KT TEMPO 1701/1706 3000 BR BKN008 PROB40 TEMPO 1703/1706 0200 FG VV001 LEVC 160500Z 1606/1706 26009KT 9999 FEW025 TX20/1613Z TN06/1706Z TEMPO 1609/1615 27015G25KT LEVD 160500Z 1606/1706 23012KT 9999 BKN008 TX08/1615Z TN02/1607Z TEMPO 1606/1610 3000 BR BKN002 TEMPO 1612/1621 BKN015 TEMPO 1700/1706 BKN002 LEVT 160500Z 1606/1706 22009KT 9999 SCT030 TX10/1614Z TN02/1607Z LEVX 160500Z 1606/1706 18009KT 3000 -RADZ BKN010 TX10/1614Z TN06/1607Z TEMPO 1606/1624 0800 RADZ BCFG BKN004 TEMPO 1606/1624 0350 FG VV001 TEMPO 1606/1610 0150 FG VV001 PROB40 TEMPO 1612/1702 8000 NSW BKN016 BECMG 1612/1614 28010KT BECMG 1702/1706 8000 NSW SCT020 LEXJ 160200Z 1603/1703 22009KT 9999 BKN050 TX15/1614Z TN10/1608Z PROB40 TEMPO 1603/1612 27015G25KT BECMG 1612/1614 28011KT TEMPO 1612/1703 28015G28KT PROB40 TEMPO 1621/1703 30020G38KT 3000 RA LEZG 160602Z 1606/1706 26009KT 9999 FEW040 TX14/1613Z TN05/1706Z LEZL 160200Z 1603/1703 04006KT CAVOK TX16/1615Z TN04/1607Z LFBC 160530Z 1603/1703 27015G30KT 9999 FEW010 BKN030 TEMPO 1605/1623 3000 RA BKN010 TEMPO 1618/1703 27025G40KT LFBD 160500Z 1606/1712 27015G30KT 9999 BKN015 TEMPO 1606/1712 3000 RA BKN008 PROB30 TEMPO 1606/1712 27020G35KT BECMG 1621/1623 BKN030 TX13/1615Z TN10/1706Z LFBE 160500Z 1606/1706 27015KT 9999 BKN020 TEMPO 1606/1706 27015G30KT TEMPO 1606/1702 3000 RA BKN012 BECMG 1702/1704 BKN030 TEMPO 1702/1706 4000 SHRA BKN015 LFBG 160634Z 1606/1703 26015G25KT 9999 BKN020 BKN040 TEMPO 1606/1703 3000 RADZ BKN010 LFBH 160500Z 1606/1706 27015G30KT 9999 BKN025 TEMPO 1606/1706 27020G35KT 3000 RA BKN010 LFBI 160500Z 1606/1706 27015KT 9999 BKN020 TEMPO 1606/1706 27020G30KT TEMPO 1606/1702 3000 RA BKN012 LFBL 160500Z 1606/1706 27015KT 9999 SCT008 BKN015 TEMPO 1606/1607 27018G30KT 4000 -RA BKN005 TEMPO 1617/1703 27023G40KT 4000 -SHRA BKN008TCU LFBM 160200Z 1603/1703 25015G25KT 9999 RA BKN012 OVC020 TEMPO 1603/1607 4000 RADZ BKN005 TEMPO 1607/1612 BKN025 BECMG 1620/1622 BKN025 LFBO 160500Z 1606/1712 26014KT 9999 BKN020 TEMPO 1606/1618 26018G28KT PROB40 TEMPO 1606/1620 4000 -RA BKN012 TEMPO 1620/1708 28022G35KT LFBP 160514Z 1606/1706 25015KT 9999 OVC020 TEMPO 1606/1706 26020G30KT 3000 RA BKN012 PROB30 TEMPO 1620/1705 26025G40KT LFBT 160500Z 1606/1706 26015G25KT 9999 BKN030 TEMPO 1606/1706 26020G35KT 4000 -RA BKN014 PROB30 TEMPO 1620/1706 26025G40KT LFBU 160500Z 1606/1706 27015G25KT 9999 BKN020 TEMPO 1606/1706 27020G35KT 3000 RA BKN012 LFBZ 160708Z 1607/1706 25015KT 9999 BKN020 TEMPO 1607/1706 24015G30KT 3000 RA BKN009 PROB30 TEMPO 1620/1706 26025G40KT LFCR 160500Z 1606/1706 26013KT 9999 BKN010 TEMPO 1606/1702 26017G27KT 3000 -RADZ BKN005 TEMPO 1620/1701 27022G35KT TEMPO 1703/1706 4000 SHRA BKN008TCU LFJL 160500Z 1606/1706 24018G35KT 9999 BKN025 TEMPO 1606/1609 4000 RA BKN014 TEMPO 1609/1706 4000 SHRA SCT030TCU PROB40 TEMPO 1609/1616 29020G40KT 2000 SHRA BKN014 FEW025CB PROB30 TEMPO 1621/1624 -SHRA BKN008 LFKB 160200Z 1603/1703 24004KT 9999 FEW020 BKN100 BECMG 1609/1612 27015G25KT FEW030 TEMPO 1615/1621 27020G35KT TEMPO 1621/1703 27025G40KT TX16/1612Z TN07/1604Z LFKC 160200Z 1603/1703 20012G22KT 9999 BKN035 BECMG 1603/1606 21022G35KT TEMPO 1612/1703 21025G45KT TX16/1613Z TN08/1604Z LFKF 160200Z 1603/1703 26017KT 9999 BKN040 BECMG 1603/1606 26020G35KT BECMG 1609/1612 26025G48KT FEW035 LFKJ 160200Z 1603/1703 05004KT 9999 FEW030 BKN100 TEMPO 1609/1624 -RA BKN035 BECMG 1606/1608 24015G25KT TEMPO 1609/1624 -RA BKN035 LFLB 160500Z 1606/1706 18010KT 9999 BKN030 BKN050 PROB40 TEMPO 1606/1618 18015G25KT 4000 SHRA BKN020TCU LFLC 160200Z 1603/1703 20010G20KT 9999 BKN040 BKN080 TEMPO 1603/1618 23015G30KT 4000 SHRA OVC025TCU PROB40 TEMPO 1612/1621 27020G35KT LFLL 160500Z 1606/1712 18018G28KT 9999 BKN040 TEMPO 1606/1623 -RA BECMG 1611/1614 18010KT TEMPO 1623/1712 27010KT -SHRA PROB30 TEMPO 1623/1712 27015G30KT 5000 SHRA SCT030TCU BKN040 LFLP 160200Z 1603/1703 VRB03KT 9999 BKN025 TEMPO 1603/1703 22013KT 4000 RA OVC014 PROB30 TEMPO 1606/1703 22017G27KT LFLS 160200Z 1603/1703 20015KT 9999 BKN040 BKN080 PROB40 TEMPO 1603/1618 20020G35KT 4000 SHRA OVC025TCU BECMG 1700/1703 33010KT LFLX 160500Z 1606/1712 25017G27KT 9999 BKN017 TEMPO 1606/1712 25025G40KT -SHRA SCT025TCU PROB30 TEMPO 1606/1608 BKN010 PROB40 TEMPO 1618/1624 3000 SHRA BKN012 SCT025CB LFLY 160500Z 1606/1706 18015G25KT 9999 BKN030 BKN050 TEMPO 1606/1618 18020G35KT 4000 SHRA OVC025TCU LFMD 160200Z 1603/1703 24010KT 9999 BKN070 BECMG 1607/1609 26020G45KT LFMH 160200Z 1603/1703 20010KT 9999 BKN035 BKN080 PROB30 TEMPO 1603/1612 20015G25KT 4000 SHRA BKN025TCU BECMG 1700/1703 30010KT LFMI 160200Z 1603/1703 VRB03KT CAVOK TEMPO 1603/1608 26009KT 4000 -RA BKN020 BECMG 1608/1612 27013KT TEMPO 1612/1703 27017G27KT SCT025 LFMK 160200Z 1603/1703 28008KT 9999 BKN030 TEMPO 1603/1703 RA BKN020 BECMG 1603/1606 27020G35KT LFML 160200Z 1603/1709 VRB03KT CAVOK TEMPO 1603/1608 26009KT 4000 -RA BKN020 BECMG 1608/1612 27013KT TEMPO 1612/1709 27017G27KT SCT025 TX15/1613Z TN07/1604Z LFMN 160200Z 1603/1709 24025KT 9999 SCT050 BKN110 TEMPO 1606/1709 26030G45KT LFMO 160200Z 1603/1703 15010KT 9999 SCT030 BKN050 TEMPO 1603/1606 -RA PROB40 TEMPO 1606/1609 BKN015 BECMG 1610/1612 VRB02KT PROB30 TEMPO 1700/1703 3000 BR LFMP 160200Z 1603/1703 26003KT 9999 FEW040 BKN060 BECMG 1605/1608 30015G25KT FEW040 BECMG 1612/1615 31020G35KT LFMT 160200Z 1603/1703 24010KT CAVOK TEMPO 1609/1621 27020G30KT LFMU 160200Z 1603/1703 28010KT 9999 BKN035 BECMG 1605/1608 27020G30KT TEMPO 1615/1618 27020G35KT TEMPO 1618/1703 27030G40KT LFMV 160200Z 1603/1703 VRB03KT CAVOK TEMPO 1603/1606 4000 -RA BKN020 BECMG 1612/1615 26009KT TEMPO 1615/1703 SCT025 LFMY 160520Z 1603/1703 26005KT 9999 BKN030 BECMG 1610/1612 28015KT TEMPO 1612/1703 28015G25KT LFOA 160505Z 1605/1703 26020G30KT 5000 -RA SCT015 BKN030 TEMPO 1605/1608 3000 RADZ SCT008 BKN012 BECMG 1608/1610 NSW BKN020 TEMPO 1610/1703 26025G40KT 4000 SHRA SCT010 BKN020TCU PROB30 TEMPO 1622/1703 26030G50KT LFOB 160500Z 1606/1706 24020G30KT 9999 SCT025 TEMPO 1606/1706 26025G45KT 4000 SHRA BKN012 BKN020CB PROB30 TEMPO 1616/1706 2000 TSRA BKN007 BKN015CB LFOC 160530Z 1606/1703 23015KT 9999 SCT015 BKN020 TEMPO 1606/1609 25020G30KT 5000 -RA BKN010 SCT025TCU TEMPO 1609/1622 25025G35KT 4000 SHRA BKN015 SCT020CB PROB30 1612/1618 2000 SHRAGS TEMPO 1622/1703 29025G40KT 4000 RA BKN007 BKN015CB LFOE 160200Z 1603/1703 26015G25KT 9999 BKN025 TEMPO 1603/1703 32020G30KT 3000 SHRA BKN015 BKN030TCU PROB40 TEMPO 1605/1607 26020G40KT PROB40 TEMPO 1618/1703 32020G45KT 1500 SHRAGS BKN012 BKN025CB LFOH 160500Z 1606/1706 26020G30KT 9999 SCT035 TEMPO 1606/1706 26025G45KT 4000 SHRA BKN025CB PROB40 TEMPO 1615/1706 26030G55KT 1500 TSRAGS BKN013 BKN020CB LFOJ 160530Z 1606/1703 24016KT 9999 SCT013 BKN030 TEMPO 1606/1609 25020G30KT 5000 -RA BKN010 SCT025TCU TEMPO 1609/1622 25025G35KT 4000 SHRA BKN015 SCT020CB PROB30 1612/1618 2000 SHRAGS TEMPO 1622/1703 29025G40KT 4000 RA BKN007 BKN015CB LFOK 160500Z 1606/1706 25020G30KT 9999 BKN025 TEMPO 1606/1706 25025G40KT 4000 SHRA BKN013 BKN020CB PROB30 TEMPO 1620/1706 2000 TSRA BKN007 BKN015CB LFOP 160500Z 1606/1706 26016G26KT 9999 BKN025 TEMPO 1606/1706 26025G40KT 4000 SHRA BKN012 BKN020CB PROB30 TEMPO 1616/1706 2000 TSRA BKN007 BKN015CB LFOT 160500Z 1606/1706 25015G25KT 9999 SCT020 TEMPO 1606/1706 24020G35KT -SHRA SCT025TCU PROB30 TEMPO 1606/1608 BKN010 PROB40 TEMPO 1616/1624 3000 SHRA BKN012 SCT025CB LFPB 160500Z 1606/1706 24015G25KT 9999 SCT025 BKN040 TEMPO 1606/1706 4000 SHRA BKN020TCU PROB40 1619/1706 25020G35KT 2500 SHRAGS SCT015CB BKN025 PROB30 TEMPO 1621/1706 TSRA SCT006 BKN015CB LFPG 160500Z 1606/1712 24015G25KT 9999 SCT025 BKN040 TEMPO 1606/1712 4000 SHRA BKN020TCU PROB40 1619/1706 25020G35KT 2500 SHRAGS SCT015CB BKN025 PROB30 TEMPO 1621/1706 TSRA SCT006 BKN015CB TX08/1612Z TN04/1706Z LFPO 160500Z 1606/1712 25015G25KT 9999 SCT025 SCT040 TEMPO 1606/1712 24020G35KT 4000 SHRA SCT015TCU PROB40 TEMPO 1620/1706 SCT020CB PROB30 TEMPO 1700/1706 2000 TSRA BKN008 BKN020CB LFPV 160200Z 1603/1703 24010KT 9999 BKN013 TEMPO 1603/1606 25015G25KT 9999 -RA BKN015 BECMG 1607/1609 27015G35KT SHRA BKN015TCU TEMPO 1610/1702 4000 SHRA BKN015TCU BKN015CB LFQQ 160500Z 1606/1712 26020G30KT 9999 SCT025 TEMPO 1606/1608 3000 SHRA BKN013 BKN020TCU TEMPO 1616/1708 4000 SHRA BKN020CB PROB30 TEMPO 1616/1620 26025G40KT TSRA PROB40 TEMPO 1700/1708 24025G40KT 2000 TSRAGS BKN013CB LFRB 160500Z 1606/1712 28017KT 9999 BKN019 BKN030 TEMPO 1606/1712 28020G35KT 4000 SHRA BKN010TCU BECMG 1618/1620 28027G45KT LFRD 160500Z 1606/1706 26015G30KT 9999 BKN030 TEMPO 1606/1614 4000 SHRA TEMPO 1606/1702 27025G40KT TEMPO 1614/1618 3000 SHRA BKN020TCU TEMPO 1618/1706 3000 SHRAGS BKN020CB PROB40 TEMPO 1620/1706 27030G55KT 2000 TSRAGS BKN015CB BECMG 1702/1704 27020G40KT LFRH 160500Z 1606/1706 28015G30KT 9999 BKN025 BKN040 BECMG 1606/1608 BKN035 BKN045 TEMPO 1606/1706 28020G35KT 5000 SHRA BKN015 OVC030 PROB30 TEMPO 1618/1704 28025G40KT 3000 SHRA BKN015TCU OVC020 BECMG 1622/1624 SCT045 LFRI 160553Z 1606/1706 26014G24KT 9999 SCT015 BKN020 TEMPO 1606/1609 BKN011 TEMPO 1606/1706 26022G37KT 4000 SHRA BKN020TCU LFRN 160500Z 1606/1706 26010KT 9999 SCT030 TEMPO 1606/1610 26015G25KT TEMPO 1606/1616 4000 SHRA BECMG 1610/1612 27020G30KT TEMPO 1616/1619 3000 SHRA BKN020TCU PROB40 TEMPO 1616/1706 27025G40KT TEMPO 1619/1624 3000 SHRAGS BKN020TCU PROB30 TEMPO 1700/1706 3000 SHRAGS BKN020TCU LFRO 160500Z 1606/1706 26020KT 9999 BKN019 BKN030 TEMPO 1606/1706 28025G40KT 4000 SHRA BKN010TCU PROB30 TEMPO 1618/1706 TSGR BKN010CB BECMG 1618/1620 28027G45KT LFRS 160554Z 1606/1712 26014G24KT 9999 SCT015 BKN040 TEMPO 1606/1707 26022G35KT 4000 SHRA SCT014 BKN020TCU LFRZ 160554Z 1606/1706 26016G26KT 9999 SCT015 BKN050 TEMPO 1606/1706 26025G40KT 4000 SHRA SCT014 BKN020TCU LFSB 160542Z 1606/1706 23015G25KT 9999 BKN035 BKN050 TEMPO 1606/1608 25020G35KT -RA BECMG 1608/1610 27020G35KT TEMPO 1610/1621 27025G45KT 4000 SHRA BKN025TCU PROB40 TEMPO 1611/1616 28030G50KT TEMPO 1621/1706 29025G45KT 3000 SHRA SCT025CB PROB40 TEMPO 1622/1624 30030G55KT LFSI 160200Z 1603/1703 23015G25KT 9999 BKN020 TEMPO 1603/1703 26020G35KT 3000 SHRA BKN014CB PROB40 TEMPO 1613/1703 2000 TSRAGS BKN010CB LFSO 160615Z 1606/1703 24015G35KT 9999 BKN015 OVC020 TEMPO 1606/1703 4000 SHRA BKN012 SCT020TCU PROB40 TEMPO 1609/1616 27025G40KT 2000 SHRAGS BKN012 SCT020CB TEMPO 1617/1624 23010G20KT -DZRA BKN008 LFST 160500Z 1606/1706 19012KT 9999 BKN040 BECMG 1606/1609 25015G27KT PROB40 TEMPO 1606/1612 28020G40KT 4000 RA TEMPO 1612/1706 4000 -SHRA FEW025TCU PROB30 TEMPO 1612/1618 SHRA FEW030CB TEMPO 1618/1624 23007KT LFSX 160610Z 1607/1703 22018KT 9999 BKN012 OVC020 TEMPO 1607/1612 22029G39KT 3000 RA OVC009 FM161230 25015KT 9999 SCT020 BKN040 TEMPO 1613/1703 24018G30KT 2500 SHRA SCT014TCU LFTH 160200Z 1603/1703 27015G25KT CAVOK TEMPO 1603/1605 -RA BKN050 TEMPO 1605/1703 27025G35KT LFTW 160200Z 1603/1703 27015KT CAVOK TEMPO 1603/1703 BKN030 BECMG 1608/1611 27025KT BKN050 LGAV 160500Z 1606/1706 23010KT 9999 FEW018 SCT030 LGEL 160500Z 1606/1706 VRB05KT 9999 FEW025 SCT070 TEMPO 1615/1621 33010G20KT LGIR 160500Z 1606/1706 17010KT 9999 FEW020 BKN080 PROB30 TEMPO 1609/1615 5000 RA FEW010 BKN020 BKN070 BECMG 1610/1612 31010KT BECMG 1616/1618 18010KT LGKO 160500Z 1606/1706 23013KT 9999 FEW018 SCT025 TEMPO 1606/1618 25015G25KT PROB40 TEMPO 1607/1624 5000 RA FEW018 SCT025 BKN050 PROB40 TEMPO 1609/1621 4000 TSRA SCT016 FEW018CB BKN020 BKN050 LGKR 160500Z 1606/1706 VRB05KT 9999 FEW015 SCT025 BKN070 PROB40 TEMPO 1606/1616 5000 RA SCT012 BKN025 BKN070 PROB30 TEMPO 1606/1615 4000 TSRA SCT010 FEW016CB BKN020 BKN070 LGPZ 160500Z 1606/1706 08008KT 9999 SCT025 BKN080 PROB40 TEMPO 1606/1706 6000 RA PROB30 TEMPO 1606/1615 4000 SHRA FEW016CB BKN020 BKN080 BECMG 1610/1612 27012KT BECMG 1701/1703 05007KT LGRP 160500Z 1606/1706 27012KT 9999 FEW018 PROB40 TEMPO 1610/1624 5000 RA SCT025 BKN050 PROB30 TEMPO 1612/1624 4000 TSRA SCT016 FEW018CB BKN020 BKN050 LGSA 160500Z 1606/1706 VRB05KT 9999 FEW020 BKN080 BECMG 1610/1612 27015G25KT PROB40 TEMPO 1606/1615 5000 RA FEW010 BKN020 BKN070 LGSR 160500Z 1606/1706 26012KT 9999 SCT025 PROB30 TEMPO 1606/1612 6000 RA FEW018 BKN025 TEMPO 1606/1706 26012G22KT LGTS 160500Z 1606/1706 VRB03KT 3000 BR BKN004 BKN015 TEMPO 1606/1608 0300 FG BKN002 OVC015 BECMG 1608/1610 8000 FEW030 BECMG 1702/1704 5000 BR SCT004 LHBP 160630Z 1606/1706 12008KT 5000 BR OVC015 TEMPO 1606/1613 2500 -SN BR BKN004 OVC010 PROB40 TEMPO 1606/1612 1200 SN BR TEMPO 1613/1622 1200 FZBCFG BR BKN001 BECMG 1615/1617 VRB03KT LHPA 160515Z 1606/1706 17012KT 8000 OVC020 TEMPO 1606/1611 18014G24KT TEMPO 1607/1612 5000 -SN BKN015 OVC025 TEMPO 1610/1615 3000 SNRA BKN015 OVC025 BECMG 1612/1614 SCT030 BKN060 TEMPO 1612/1706 6000 -RA TEMPO 1618/1624 VRB03KT 5000 BR BECMG 1700/1703 VRB03KT 3000 BR BKN020 LIBD 160500Z 1606/1706 24005KT 7000 NSC BECMG 1606/1608 22015KT= LIBP 160500Z 1606/1706 23008KT 9999 FEW030 TEMPO 1606/1608 2000 BR TEMPO 1700/1706 23015G25KT LIBP 160500Z 1606/1706 23008KT 9999 FEW030 TEMPO 1606/1608 2000 BR TEMPO 1700/1706 23015G25KT LIBR 160500Z 1606/1706 27005KT CAVOK BECMG 1608/1610 21015KT BECMG 1618/1620 20005KT TEMPO 1700/1706 5000 BR LICA 160500Z 1606/1706 25015KT 9999 SCT030 BECMG 1607/1609 27018G28KT TEMPO 1606/1609 4000 TSRA TEMPO 1609/1612 4000 RA LICC 160500Z 1606/1706 25015KT 9999 SCT030 LICD 160500Z 1606/1706 29015KT CAVOK LICJ 160500Z 1606/1706 21012KT 9999 SCT030 BECMG 1607/1609 27018KT LICR 160500Z 1606/1706 35008KT 9999 SCT030 BECMG 1607/1609 35018KT TEMPO 1606/1612 SHRA LIEA 160500Z 1606/1706 25016KT 9999 SCT030 LIEE 160500Z 1606/1706 30010KT 9999 SCT030 BECMG 1607/1609 28018G28KT LIEO 160500Z 1606/1706 26020G30KT 9999 SCT030 LIMC 160500Z 1606/1712 VRB05KT 3000 BR SCT012 OVC050 TEMPO 1606/1609 1500 DZ BECMG 1609/1611 9999 SCT040 LIME 160500Z 1606/1706 VRB05KT 2000 BR SCT005 BKN050 TEMPO 1606/1609 1000 DZ BKN003 BKN030 BECMG 1609/1611 6000 SCT040 LIMF 160500Z 1606/1706 VRB05KT 6000 SCT040 TEMPO 1606/1608 0800 FG BKN005 LIMJ 160500Z 1606/1706 VRB06KT 9999 SCT035 LIML 160500Z 1606/1706 VRB05KT 2000 BR SCT005 BKN050 TEMPO 1606/1609 1000 DZ BKN003 BKN030 BECMG 1609/1611 6000 SCT040 LIMP 160500Z 1606/1706 VRB05KT 2500 BR SCT005 BKN050 TEMPO 1606/1609 1000 DZ BKN006 BKN030 BECMG 1609/1611 6000 SCT040 LIMZ 160500Z 1606/1706 VRB05KT 6000 SCT040 TEMPO 1606/1608 0800 FG BKN005 LIPB 160500Z 1606/1706 VRB05KT 9999 BKN040 TEMPO 1700/1706 RA LIPE 160500Z 1606/1706 VRB04KT 1500 BR SCT010 BKN050 BECMG 1608/1610 6000 BECMG 1610/1612 24010KT BECMG 1616/1618 VRB05KT BECMG 1618/1620 2000 BR TEMPO 1700/1706 1200 BCFG BKN005 LIPH 160500Z 1606/1706 VRB04KT 7000 BKN050 TEMPO 1606/1608 3000 RA LIPO 160500Z 1606/1706 VRB05KT 2500 BR SCT010 BKN050 TEMPO 1606/1609 1000 DZ BKN003 BKN030 BECMG 1609/1611 6000 SCT040 LIPQ 160500Z 1606/1706 VRB04KT 9999 BKN040 TEMPO 1606/1608 2000 RA BKN010 LIPY 160500Z 1606/1706 22010KT 9999 SCT030 TEMPO 1622/1706 22020G30KT LIPZ 160500Z 1606/1712 02006KT 9999 SCT040 TEMPO 1606/1608 3000 RA TEMPO 1622/1706 3000 BR BECMG 1706/1708 26013KT LIRA 160500Z 1606/1706 23012KT 9999 SCT030 LIRF 160500Z 1606/1712 24016KT 9999 SCT030 BECMG 1610/1612 24020G32KT BECMG 1709/1711 30023G35KT LIRN 160500Z 1606/1706 26015KT 8000 SCT030 TEMPO 1606/1609 4000 SHRA TEMPO 1618/1624 RA LIRP 160500Z 1606/1706 24015KT 9999 SCT020 SCT050 TEMPO 1606/1615 24012G22KT 5000 RA PROB40 TEMPO 1606/1612 3000 SHRA FEW015CB BKN030 TEMPO 1621/1700 5000 SHRA FEW015CB BKN030 LIRQ 160500Z 1606/1706 24012KT 9999 SCT030 TEMPO 1606/1615 4000 RA LIRZ 160500Z 1606/1706 23012KT 9999 SCT030 TEMPO 1612/1618 RA TEMPO 1700/1706 RA LJLJ 160200Z 1603/1703 VRB02KT 9999 OVC035 TEMPO 1603/1609 6000 -SN OVC017 BECMG 1611/1613 22005KT SCT030 PROB30 TEMPO 1612/1617 22010KT TEMPO 1613/1624 BKN030 BECMG 1617/1619 VRB02KT LJMB 160200Z 1603/1703 19005KT 9999 BKN020 PROB30 TEMPO 1603/1606 20010KT FEW020 BECMG 1606/1609 FEW030 SCT120 TEMPO 1606/1618 20013KT LKCV 160500Z 1606/1706 15015G25KT 9999 BKN020 BKN080 TEMPO 1606/1610 4000 -SN OVC010 PROB40 TEMPO 1606/1610 1000 SN BKN005 OVC010 TEMPO 1610/1620 4000 RA BKN010 OVC020 BECMG 1612/1614 23015G25KT BECMG 1622/1700 24014KT SCT030 BKN050 LKKB 160500Z 1606/1706 20012KT 9999 BKN027 TEMPO 1606/1706 23017KT TEMPO 1606/1608 4000 SN OVC015 TEMPO 1608/1620 23018G30KT 4000 RASN BKN012 OVC020 BECMG 1618/1620 SCT030 LKKV 160500Z 1606/1712 22010KT 9999 BKN017 TEMPO 1606/1712 18011G21KT 2000 SHSNRA BKN003 PROB40 TEMPO 1706/1712 1000 SHSNGS SCT002CB BKN003 LKMT 160500Z 1606/1712 21014KT 9999 BKN025 TEMPO 1606/1700 22015G25KT 3000 SHSNRA BKN005 LKNA 160500Z 1607/1706 14018KT 3000 BR OVC002 TEMPO 1607/1615 1000 SN OVC001 BECMG 1615/1617 27016KT 5000 BR BKN010 TEMPO 1616/1700 3000 SNRA BKN005 LKPD 160500Z 1606/1706 16016KT 9999 OVC022 TEMPO 1606/1609 1500 SN OVC008 BECMG 1609/1611 24018KT BKN035 TEMPO 1609/1619 22020G32KT 5000 RA BKN015 PROB40 TEMPO 1609/1613 3500 RASN BKN012 BECMG 1700/1702 26008KT LKPR 160500Z 1606/1712 20014KT 9999 BKN025 TEMPO 1606/1619 24015G25KT 5000 SHRASN BKN005 PROB30 TEMPO 1708/1712 27015G25KT 3000 SHSNRA FEW004TCU BKN005 LKTB 160500Z 1606/1712 14014KT 9999 OVC015 TEMPO 1606/1621 15015G25KT 3000 SHSNRA BKN004 LLBG 160505Z 1606/1706 VRB03KT 9999 SCT035 BECMG 1607/1609 27010KT BECMG 1616/1618 VRB03KT BECMG 1623/1701 16004KT BKN030 PROB40 1701/1706 22010KT 7000 RA FEW020TCU BKN025 TX18/1611Z TN10/1704Z LLET 160505Z 1606/1706 02014KT CAVOK BECMG 1618/1620 35008KT TX22/1613Z TN13/1704Z LLHA 160502Z 1606/1706 14004KT 9999 SCT035 BECMG 1608/1610 27008KT BECMG 1616/1618 20005KT BKN030 BECMG 1623/1701 14005KT PROB40 1701/1706 22015KT 5000 TSRA FEW020CB BKN025 TX18/1612Z TN12/1704Z LLHZ 160504Z 1606/1706 17004KT 9999 SCT035 BECMG 1607/1609 27008KT BECMG 1616/1618 VRB03KT BECMG 1623/1701 20005KT BKN030 PROB40 1701/1706 22015KT 6000 VCTS FEW020CB BKN025 TX18/1611Z TN12/1704Z LLIB 160508Z 1606/1706 VRB03KT 9000 SCT025 TEMPO 1606/1607 6000 BKN020 BECMG 1607/1609 16006KT 9999 SCT035 BECMG 1612/1614 30010KT BECMG 1617/1619 VRB03KT 4000 BR BKN012 PROB40 1701/1706 2000 VCTS BR SCT005 FEW010CB BKN020 TX15/1612Z TN08/1704Z LLOV 160504Z 1606/1706 22004KT CAVOK BECMG 1607/1609 03008KT BECMG 1616/1618 30005KT BECMG 1623/1701 24005KT 7000 SCT025 PROB30 1701/1706 5000 BR BKN020 TX16/1612Z TN05/1704Z LLSD 160503Z 1606/1706 13005KT 9999 SCT035 BECMG 1607/1609 27012KT BECMG 1617/1619 20006KT BKN025 PROB40 1701/1706 22015G25KT 6000 VCTS FEW020CB BKN025 TX18/1612Z TN13/1704Z LOWG 160635Z 1606/1706 VRB02KT 6000 SCT006 OVC008 TEMPO 1606/1610 4000 BR SCT005 OVC006 TEMPO 1610/1618 9999 FEW050 BKN100 PROB30 TEMPO 1618/1624 33005KT -FZRA FEW050 BKN070 LOWI 160515Z 1606/1706 27010KT 9999 SCT050 BKN080 TX08/1613Z TNM00/1606Z PROB40 1606/1607 -FZRASN TEMPO 1606/1608 RASN SCT030 BKN060 TEMPO 1608/1620 27015G25KT SHRA SCT020 BKN040 PROB40 TEMPO 1609/1622 30020G40KT TEMPO 1620/1706 27015G30KT 4000 SNRA FEW010 BKN020 LOWK 160515Z 1606/1706 VRB02KT 9999 FEW050 SCT120 TX05/1614Z TNM03/1606Z PROB30 TEMPO 1606/1609 1200 FZBCFG SCT004 PROB40 TEMPO 1619/1624 4000 -SHRASN FEW040 BKN060 LOWL 160515Z 1606/1706 09004KT 9999 -SHSN SCT030 BKN050 TX03/1619Z TNM02/1606Z TEMPO 1606/1612 10007KT 3000 FZRASN FEW006 BKN012 BECMG 1611/1613 26008KT -RA TEMPO 1614/1618 27015G30KT SHRA BKN020 TEMPO 1618/1706 26005KT -RASN BKN020 LOWS 160515Z 1606/1706 15008KT 9999 SCT035 BKN060 TX07/1612Z TN01/1703Z TEMPO 1606/1612 16015G25KT -SHRA SCT025 BKN040 BECMG 1612/1614 26012KT TEMPO 1612/1624 28015G30KT 4000 SHRA SCT012 BKN025 TEMPO 1700/1706 27015G25KT 3500 SHRASN SCT008 BKN012 PROB30 TEMPO 1704/1706 28020G35KT 2000 SHSN BKN006 LOWW 160515Z 1606/1712 15010KT 7000 BKN008 TX06/1712Z TNM01/1606Z TEMPO 1606/1608 4000 BR OVC004 PROB40 TEMPO 1606/1612 -FZRA BECMG 1612/1615 9999 FEW012 BKN060 BECMG 1616/1618 27012KT TEMPO 1618/1703 28015G25KT -SHRA PROB40 TEMPO 1710/1712 30018G30KT SHRA FEW045TCU BKN050 LPAZ 160131Z 1600/1706 CNL LPBJ 160500Z 1606/1706 VRB02KT 9999 FEW020 TEMPO 1606/1622 SCT014 BKN018 BECMG 1613/1615 35008KT PROB40 1700/1706 0800 FG BKN003 LPFR 160500Z 1606/1706 01005KT CAVOK BECMG 1607/1609 VRB03KT BECMG 1612/1614 23005KT BECMG 1617/1619 03005KT BECMG 1621/1624 9999 SCT012 BECMG 1704/1706 34008KT LPLA 160500Z 1606/1706 01008KT 9999 FEW014 SCT020 PROB30 TEMPO 1606/1624 8000 -SHRA SCT010 BKN014 BECMG 1616/1618 08008KT LPMA 160500Z 1606/1706 01015KT 9999 SCT015 TEMPO 1606/1706 02020G30KT BECMG 1615/1617 SCT013 BKN030 PROB30 TEMPO 1617/1706 6000 -RA SCT008 BKN013 LPMR 160501Z 1606/1706 19008KT 9999 SCT020 BKN030 TEMPO 1606/1624 7000 -RADZ SCT006 BKN012 PROB40 TEMPO 1606/1611 3000 -DZRA BR SCT002 BKN007 BECMG 1608/1610 34008KT PROB40 1620/1706 1200 BR BKN003 LPMT 160507Z 1606/1706 VRB02KT 9999 FEW018 BKN035 PROB30 TEMPO 1607/1612 SCT010 BKN014 BECMG 1615/1617 35008KT FEW020 PROB30 TEMPO 1702/1706 5000 BR SCT006 LPOV 160501Z 1606/1706 16008KT 9999 SCT020 BKN030 TEMPO 1606/1621 7000 -RADZ SCT006 BKN012 PROB40 TEMPO 1606/1614 3000 -DZRA BR SCT002 BKN006 BECMG 1613/1615 32005KT PROB40 1621/1705 1200 BR BKN003 BECMG 1700/1702 02005KT LPPD 160500Z 1606/1706 03007KT 9999 BKN018 TEMPO 1606/1706 SCT008 BKN012 PROB30 TEMPO 1606/1706 6000 -RA SCT006 BKN010 BECMG 1608/1610 04013KT BECMG 1618/1620 02005KT LPPR 160500Z 1606/1706 18010KT 5000 BR SCT004 BKN008 TEMPO 1606/1612 2000 DZRA BKN002 PROB30 TEMPO 1606/1610 0200 DZ FG BKN000 BECMG 1612/1615 32005KT 9999 NSW SCT008 SCT012 BECMG 1618/1620 VRB03KT 5000 BR SCT004 BKN008 TEMPO 1620/1701 2000 BR BKN002 BECMG 1703/1705 36008KT 9999 NSW SCT020 LPPS 160500Z 1606/1712 05012KT 9999 SCT015 TEMPO 1606/1712 05015G25KT BECMG 1615/1617 SCT012 BKN030 PROB30 TEMPO 1617/1712 6000 -RA SCT006 BKN012 LPPT 160500Z 1606/1712 VRB03KT 9999 BKN035 PROB30 TEMPO 1606/1612 24005KT 5000 DZ BR SCT002 BKN005 BECMG 1612/1615 35010KT BECMG 1619/1621 35010KT FEW020 BECMG 1705/1707 03008KT PROB30 1707/1711 2000 BR BKN003 LQBK 160500Z 1605/1705 VRB02KT 5000 BR SCT020 BKN040 TX09/1613Z TNM01/1606Z PROB30 TEMPO 1606/1608 3000 -FZRA BR BECMG 1608/1610 23012KT 9999 NSW PROB40 TEMPO 1612/1618 23015G25KT LQMO 160500Z 1605/1705 13004KT 9999 FEW015 SCT035 BKN070 TX11/1613Z TN04/1606Z TEMPO 1606/1621 RA TEMPO 1608/1621 20012KT PROB30 TEMPO 1609/1616 4000 TSRA FEW013 FEW025CB BKN030 LQTZ 160500Z 1606/1706 15004KT 5000 BR SCT017 BKN040 TX10/1616Z TNM02/1606Z TEMPO 1606/1608 2000 BR BKN008 OVC035 BECMG 1609/1611 21012KT 9999 NSW LRBS 160500Z 1606/1706 VRB04KT 9999 SCT030 PROB30 TEMPO 1615/1619 5000 -SN BECMG 1619/1621 24010KT BKN015 PROB40 TEMPO 1621/1624 5000 -RASN BR BKN010 BKN030 PROB40 TEMPO 1700/1706 3000 -FZRA BR BKN005 BKN025 LRCK 160500Z 1606/1706 VRB04KT 3000 -SN BR BKN005 OVC030 BECMG 1607/1609 28012KT 7000 NSW BKN015 BECMG 1609/1611 CAVOK BECMG 1615/1617 VRB04KT PROB30 TEMPO 1700/1705 3000 BR BKN010 LROP 160500Z 1606/1706 VRB04KT 9999 SCT030 PROB30 TEMPO 1615/1619 5000 -SN BECMG 1619/1621 24010KT BKN015 PROB40 TEMPO 1621/1624 5000 -RASN BR BKN010 BKN030 PROB40 TEMPO 1700/1706 3000 -FZRA BR BKN005 BKN025 LRSB 160500Z 1606/1706 VRB04KT 9999 BKN035 PROB40 TEMPO 1615/1618 5000 -SN BECMG 1618/1620 5000 BR PROB30 TEMPO 1703/1706 3000 -FZRA BKN010 BKN025 LRTR 160500Z 1606/1706 11008KT 9999 BKN030 PROB30 TEMPO 1608/1610 5000 -FZRA BECMG 1610/1612 19012KT TEMPO 1612/1616 5000 -RA BKN015 OVC030 BECMG 1622/1624 5000 -RA BKN015 BKN045 TEMPO 1703/1706 3000 SHRA BKN010 SCT030CB OVC040 BECMG 1704/1706 VRB04KT LSGG 160525Z 1606/1712 22018G30KT 9999 -RA SCT015 BKN025 TX09/1615Z TN05/1606Z TN05/1706Z TEMPO 1606/1616 22030G40KT RA TEMPO 1706/1712 24030G40KT RA LSMD 160213Z 1602/1623 28010KT 9999 SCT050 BKN065 TEMPO 1602/1623 RA TEMPO 1609/1620 24020G45KT LSME 160218Z 1602/1623 VRB03KT 9999 -SHRA FEW030 OVC055 TEMPO 1602/1623 RA TEMPO 1609/1620 24015G30KT LSMM 160229Z 1602/1623 VRB05KT 9999 -DZ FEW030 BKN050 TEMPO 1602/1623 RA PROB40 TEMPO 1602/1610 SNRA BKN014 TEMPO 1612/1623 26015G35KT LSZH 160614Z 1606/1712 24016G33KT 9999 SCT020 BKN090 TX07/1613Z TN05/1623Z TN02/1706Z PROB40 TEMPO 1610/1620 25020G45KT 4000 +SHRA BKN020TCU BECMG 1703/1706 4000 SHRASN PROB40 TEMPO 1706/1712 2000 SHSN BKN010 LTFC 160324Z 1603/1624 VRB02KT 9999 SCT035 BECMG 1609/1611 -RA BKN030 BKN090 BECMG 1611/1613 4000 -SN PROB40 TEMPO 1613/1617 2000 SN BKN020 OVC080 BECMG 1617/1620 9999 BECMG 1620/1624 SCT030 BKN100= LUKK 160524Z 1606/1706 10010KT 5000 SN BR BKN020 TEMPO 1606/1608 2800 BKN010 BECMG 1608/1610 9999 NSW BKN010 TEMPO 1610/1616 5000 SN BR BKN006 BECMG 1616/1618 5000 BR BKN008 TEMPO 1618/1706 2800 BKN004 LWOH 160530Z 1606/1706 VRB02KT 9999 SCT020 OVC040 TEMPO 1609/1615 RA BECMG 1608/1610 20010KT TEMPO 1618/1706 5000 RA SCT015 OVC033 LWSK 160630Z 1607/1706 VRB02KT 3000 BR SCT005 OVC012 TEMPO 1607/1608 1500 BR SCT003 OVC010 BECMG 1608/1610 5000 BR BKN015 BECMG 1611/1613 14006KT 8000 NSW SCT020 BKN040 LYBE 160500Z 1606/1706 14009KT 9999 SCT040 TX06/1621Z TNM03/1606Z TEMPO 1607/1609 -FZRA TEMPO 1700/1706 5000 RA LYBT 160500Z 1606/1706 10008KT 9999 SCT040 TX06/1621Z TNM03/1606Z TEMPO 1607/1609 -FZRA TEMPO 1700/1706 5000 RA LYKV 160500Z 1606/1706 15005KT 9999 SCT017 BKN035 TX07/1613Z TNM05/1606Z TEMPO 1606/1608 5000 BR BECMG 1614/1616 22012KT LYNI 160500Z 1606/1706 17007KT 9999 SCT015 BKN033 TX07/1615Z TNM04/1606Z LYPG 160500Z 1606/1706 VRB02KT 0600 FG FEW010 SCT030 BKN070 TX08/1613Z TN02/1606Z TEMPO 1606/1607 0200 BECMG 1607/1608 2000 BR BECMG 1608/1610 6000 NSW TEMPO 1610/1706 16012KT 4000 RA LYTV 160500Z 1606/1706 VRB02KT 9999 SCT040 SCT070 TX10/1613Z TN04/1606Z TEMPO 1608/1706 4000 RA BECMG 1610/1612 16015KT LYUZ 160500Z 1606/1706 22008KT CAVOK TX06/1615Z TNM00/1606Z BECMG 1616/1618 23015G25KT LYVR 160500Z 1606/1706 13015KT 9999 BKN040 TX03/1618Z TNM02/1606Z TEMPO 1609/1620 13015G25KT TEMPO 1608/1610 FZRA TEMPO 1612/1720 RA TEMPO 1703/1706 5000 RA MBGT 152320Z 1600/1624 09005KT 9999 VCSH SCT016 PROB30 TEMPO 1609/1613 09009KT 7000 SHRA FEW015CB SCT018 BKN040 BECMG 1618/1620 08015KT MBPV 152320Z 1600/1624 09005KT 9999 VCSH SCT016 PROB30 TEMPO 1609/1613 09009KT 7000 SHRA FEW015CB SCT018 BKN040 BECMG 1618/1620 08015KT MKJP 160515Z 1606/1706 36005KT 9999 FEW022 BECMG 1612/1614 14018KT FEW022CB TEMPO 1620/1624 8000 SHRA SCT020 BECMG 1700/1702 36005KT FEW020CB MKJS 160515Z 1606/1706 04015KT 9999 SCT020 BECMG 1612/1614 05025KT FEW020CB PROB40 TEMPO 1619/1623 4000 SHRA BKN018 BECMG 1700/1702 05012KT SCT020 MMAN 160533Z 1606/1706 09008KT P6SM SKC FM161000 06010G20KT 4SM BR BKN010 OVC030 TEMPO 1612/1615 1SM BR DZ BKN005 OVC010 FM161500 34015G25KT 3SM -RA BKN010 OVC030 FM161800 03020G35KT 5SM -RA BKN010 OVC020 TEMPO 1619/1623 2SM RA BR BKN005 OVC010 FM170300 04015KT 4SM HZ BKN010 OVC020 MMCS 160533Z 1606/1706 08012KT P6SM SCT020 SCT200= MMCU 160533Z 1606/1706 16005KT P6SM SKC FM161800 16010G20KT P6SM SCT030 SCT200 FM170400 16010KT 6SM HZ SCT200 MMCU 160533Z 1606/1706 16005KT P6SM SKC FM161800 16010G20KT P6SM SCT030 SCT200 FM170400 16010KT 6SM HZ SCT200 MMCV 160527Z 1606/1706 16015KT P6SM SCT020 SCT250 TEMPO 1610/1614 2SM BR BKN010 FM161800 36015G35KT 5SM RA BKN010 OVC020 TEMPO 1620/1624 2SM SHRA FM170000 36015KT 5SM HZ SCT015 OVC020 MMCZ 160509Z 1606/1712 02005KT 6SM HZ SCT015 BKN060 TEMPO 1612/1615 BKN015 FM161900 03015KT P6SM BKN020 FM170400 03015KT 6SM HZ BKN015 MMIO 160533Z 1606/1706 00000KT P6SM SKC FM161000 03010KT 3SM BR BKN010 TEMPO 1612/1615 1SM BR DZ BKN005 OVC010 FM161800 03010G20KT 4SM -RA BKN010 OVC020 TEMPO 1619/1623 2SM BR DZ BKN005 OVC010 FM70200 34015KT 4SM HZ BKN015 OVC030 MMMA 160527Z 1606/1706 12008KT TEMPO 1610/1614 2SM BR BKN012 FM161400 36015G35KT 5SM -RA BKN010 OVC020 TEMPO 1618/1622 2SM DZ BKN008 FM170000 6015KT 6SM HZ OVC020 MMMD 160509Z 1606/1712 08005KT 6SM HZ SCT020 TX25/1620Z TN15/1612Z TEMPO 1612/1615 2SM BR BKN010 FM161800 03015KT 6SM HZ BKN030 FM170300 03010KT 5SM HZ BKN020 MMMY 160533Z 1606/1712 08008KT P6SM SCT200 TX10/1620Z TN03/1612Z FM161000 05010G20KT 5SM BR BKN010 OVC020 TEMPO 1612/1616 1SM BR DZ BKN005 OVC010 FM161600 03015G30KT 4SM -RA BR BKN005 OVC010 FM161800 34020G35KT 5SM -A BKN008 OVC015 TEMPO 1621/1701 1SM BR DZ OVC005 FM170300 34015G25KT 5SM HZ BKN007 OVC012 MMNL 160527Z 1606/1706 12010KT P6SM SCT250 FM160900 36015G35KT 5SM -RA BKN010 OVC020 TEMPO 1613/1617 2SM -DZ OVC008 FM170000 35015KT 5SM HZ OVC010 MMPA 160527Z 1606/1706 08005KT 5SM HZ BKN020 TEMPO 1610/1614 2SM BR BKN008 FM161400 04008T 5SM HZ BKN010 TEMPO 1615/1619 3SM RA FM162000 03010G20KT 2SM -RA OVC010 FM162200 03015KT 2SM -DZ OVC008 MMPG 160527Z 1606/1706 36010G20KT 5SM RA BKN010 OVC020 TEMPO 1610/1614 2SM -DZ OVC005 FM161600 36015KT 5SM HZ OVC010 FM162300 30010KT P6SM BKN020 MMRX 160527Z 1606/1706 12008KT 6SM HZ SCT250 FM161500 36015G30KT 4SM -RA BKN010 OVC020 TEMPO 1616/1620 2SM DZ OVC008 FM170000 36015KT 5SM HZ OVC015 MMTC 160533Z 1606/1706 00000KT P6SM SCT200 FM161800 35010KT P6SM SCT020 BKN200 FM170400 33008KT P6SM SCT020 SCT200 MMTG 160509Z 1606/1706 26005KT P6SM SCT300 FM161000 33005KT 5SM HZ SCT015 TEMPO 1612/1615 1SM BR BKN010 FM161800 33010G20KT P6SM SCT030 BKN300 FM170300 34020G30KT 6SM HZ BKN030 BKN070 MMTP 160509Z 1606/1712 00000KT P6SM SKC FM161800 25010KT P6SM SCT250 FM170400 24005KT 6SM HZ SCT250 MMUN 160509Z 1606/1712 03008KT 6SM HZ BKN015 TX23/1620Z TN17/1612Z FM161800 02015KT 6SM HZ BKN020 FM170200 03010G20KT 6SM HZ BKN015 TEMPO 1702/1706 4SM RA MPDA 160300Z 1600/1612 CNL MPMG 160300Z 1600/1612 CNL MPPA 160300Z 1600/1706 CNL= MPSM 160300Z 1600/1706 CNL MUCU 152000Z 1520/1618 36010KT 3000 SHRA RA SCT018CB BKN060 FM152300 36010KT 9000 SCT020 MUGM 1607/1707 02007KT 9999 FEW030 SCT250 QNH2995INS BECMG 1615/1617 10012G18KT 9999 FEW030 SCT280 QNH2992INS BECMG 1701/1703 34008KT 9999 FEW030 BKN250 QNH3001INS T23/1610Z T30/1620Z FN00185 MWCR 160300Z 1600/1624 CNL MYGF 152320Z 1600/1624 05015G25KT 9999 VCSH FEW025 BKN250 MYNN 152320Z 1600/1624 01016G26KT 9999 VCSH SCT018 BKN030 NCRG 160511Z 1606/1706 34008KT 9999 SCT020 BKN100 NFFN 160511Z 1606/1706 34008KT 9999 -SHRA SCT018 SCT045 BKN100 TEMPO 1608/1618 3000 TSRA BKN015 FEW018CB PROB40 TEMPO 1702/1706 3000 TSRA BKN015 FEW018CB NFNA 160514Z 1606/1706 VRB03KT 9999 -SHRA SCT017 BKN045 OVC100 TEMPO 1607/1618 3000 TSRA BKN015 FEW017CB PROB40 TEMPO 1618/1706 5000 TSRA BKN015 FEW017CB NFTF 160512Z 1606/1706 VRB03KT 9999 -SHRA SCT010 BKN016 BKN100 PROB40 TEMPO 1606/1624 5000 TSRA BKN009 FEW016CB NFTV 160515Z 1606/1706 03007KT 9999 SCT017 BKN100 PROB30 TEMPO 1606/1612 5000 SHRA BKN015 NGFU 160515Z 1606/1706 06013KT 9999 SCT018 PROB30 TEMPO 1615/1624 5000 SHRA BKN015 NGTA 160514Z 1606/1706 09018KT 9999 SCT019 SCT100 NIUE 160514Z 1606/1706 34008KT 9999 SCT018 BKN100 NLWF 160500Z 1606/1706 07010KT 9999 FEW035 TEMPO 1615/1624 4000 SHRA BKN012 FEW018TCU= NLWW 160500Z 1606/1706 09008KT 9999 FEW035 TEMPO 1606/1624 4000 SHRA BKN012 FEW018TCU PROB30 TEMPO 1615/1624 2000 TSRA BKN010 SCT020CB NLWW 160500Z 1606/1706 09008KT 9999 FEW035 TEMPO 1606/1624 4000 SHRA BKN012 FEW018TCU PROB30 TEMPO 1615/1624 2000 TSRA BKN010 SCT020CB NSFA 160513Z 1606/1706 08008KT 9999 SCT020 BKN100 PROB30 TEMPO 1612/1618 5000 TSRA FEW018CB NSTU 160539Z 1606/1706 11011KT P6SM VCSH SCT020 SCT040 SCT100 NTAA 160500Z 1606/1712 VRB02KT 9999 FEW023 BECMG 1618/1620 04012KT TEMPO 1622/1702 22010KT NVSS 160430Z 1606/1706 02006KT 9999 SCT020 INTER 1606/1612 8000 SHRA BKN018 OVC040 NVVV 160430Z 1606/1706 05006KT 9999 SCT022 NWWD 160650Z 1606/1706 07006KT 9999 SCT030 BKN040 TEMPO 1606/1614 VRB15G25KT 1000 TSRA BKN006 BKN018CB TEMPO 1615/1623 4000 SHRA FEW020TCU TEMPO 1700/1706 VRB15G25KT 1000 TSRA BKN010 FEW018CB NWWK 160500Z 1606/1706 VRB02KT 9999 FEW025 SCT035 BKN048 TEMPO 1606/1612 VRB15G25KT 2000 TSRA BKN012 SCT018CB TEMPO 1613/1623 4000 SHRA FEW020TCU TEMPO 1700/1706 VRB15G25KT 1000 TSRA BKN014 SCT018CB NWWW 160500Z 1606/1706 VRB02KT 9999 SCT030 BKN065 TEMPO 1606/1706 4000 SHRA BKN014 SCT025TCU PROB30 TEMPO 1606/1609 VRB15G25KT 1000 TSRA BKN010 SCT020CB BECMG 1700/1703 15010KT PROB30 TEMPO 1700/1706 1000 TSRA BKN010 SCT020CB NZCH 160010Z 1600/1700 08015KT CAVOK BECMG 1608/1610 05005KT PROB30 TEMPO 1612/1618 BKN008 BECMG 1622/1700 08015KT NZFX 1603/1703 VRB06KT 9999 FEW005 BKN015 620153 QNH2875INS BECMG 1609/1611 VRB06KT 0800 FZFG FEW010 QNH2876INS BECMG 1615/1617 06012KT 9999 NSW SCT025 QNH2881INS GRID23012KT BECMG 1623/1701 16010G15KT 9999 SCT150 QNH2886INS GRID33010G15KT NZQN 160350Z 1603/1612 04010KT 9999 FEW070 TEMPO 1610/1612 7000 SHRA NZSP 1603/1703 01013KT 2400 IC BLSN FEW000 FEW010 QNH2837INS BLSN FEW000 ALL WINDS GRID BECMG 1606/1608 36011KT 4800 IC BR FEW005 BKN010 QNH2840INS 060203 NZWD 1603/1703 VRB06KT 9999 FEW005 BKN015 620153 QNH2875INS BECMG 1609/1611 VRB06KT 0800 FZFG FEW010 QNH2876INS BECMG 1615/1617 06012KT 9999 NSW SCT025 QNH2881INS GRID23012KT BECMG 1623/1701 16010G15KT 9999 SCT150 QNH2886INS GRID33010G15KT NZWN 160103Z 1601/1700 01012KT 9999 FEW040 OAHR 160130Z 1602/1624 25008KT CAVOK BECMG 1610/1612 33012KT OAJL 160000Z 1600/1706 VRB06KT 8000 HZ SKC QNH2997INS TEMPO 1602/1606 5000 HZ BECMG 1610/1611 12009KT 6000 HZ FEW180 QNH2995INS TEMPO 1614/1618 5000 HZ BECMG 1617/1618 VRB06KT 9000 HZ SCT150 QNH2998INS BECMG 1701/1702 VRB06KT 9999 NSW BKN080 QNH3000INS TX18/1610Z TNM01/1602Z OAKB 160225Z 1602/1624 VRB02KT 2000 FU NSC TEMPO 1603/1606 1200 BECMG 1606/1608 8000 NSW BECMG 1614/1615 2000 FU SCT070 BKN110 TEMPO 1616/1621 1200 TEMPO 1621/1624 12008KT 3000 VCSH FEW030 BKN055 OAKN 160700Z 1607/1713 28009KT 6000 DU SKC QNH2988INS BECMG 1608/1609 24012G18KT 5000 BLDU SKC QNH2985INS BECMG 1614/1615 24012KT 6000 DU SKC QNH2991INS BECMG 1617/1618 24009KT 3200 DU SKC QNH2995INS TEMPO 1618/1624 5000 DU BECMG 1623/1624 VRB06KT 6000 DU SKC QNH2998INS TX20/1611Z TN01/1701Z OAMS 160618Z 1606/1706 25012KT 8000 NSW SCT015 OVC045 BECMG 1607/1609 27015KT 8000 VCSH FEW010 BKN020 OVC040 TEMPO 1611/1618 26015KT 6000 -RASN SCT010 OVC020 BECMG 1616/1618 27012KT 5000 -SN SCT005 BKN010 OVC020 TEMPO 1618/1704 28008KT 1000 SN BKN001 OVC003 BECMG 1702/1704 06006KT 6000 NSW FEW007 BKN012 OVC020 OBBI 160500Z 1606/1712 33015G27KT 9999 SCT030 BECMG 1702/1704 33015KT OIAA 160500Z 1606/1712 28006MPS CAVOK OIAW 160500Z 1606/1712 29005MPS CAVOK OIBK 160500Z 1606/1712 28006MPS 7000 NSC BECMG 1612/1714 27011MPS TEMPO 1614/1624 2000 SA BECMG 1704/1706 28004MPS OICI 160500Z 1606/1712 26005MPS 8000 FEW040= OISL 160500Z 1606/1712 27005MPS CAVOK OIFM 160500Z 1606/1712 28004MPS 8000 NSC PROB30 TEMPO 1702/1707 4000 HZ OIIE 160500Z 1606/1712 33005MPS 8000 FEW040 TEMPO 1617/1704 FEW035CB SCT040 BKN100 OIII 160500Z 1606/1712 16004MPS 8000 FEW040 TEMPO 1617/1704 FEW035CB SCT040 BKN100 OIKB 160500Z 1606/1712 01004MPS 3000 BR NSC BECMG 1607/1609 6000 TEMPO 1612/1619 23009MPS BECMG 1623/1701 4000 HZ BECMG 1704/1706 6000 OIKK 160500Z 1606/1712 12003MPS 8000 NSC TEMPO 1611/1616 32007MPS 4000 SA OIMM 160500Z 1606/1712 09004MPS SCT025 BKN090 BECMG 1616/1618 4000 BR BKN015 BKN080 TEMPO 1618/1624 0500 FG BKN006 BECMG 1703/1705 7000 SCT020 SCT080 OISL 160500Z 1606/1712 27005MPS CAVOK OISS 160500Z 1606/1712 28004MPS CAVOK OITR 160500Z 1606/1712 08004MPS 8000 SCT025 BKN090 OITT 160500Z 1606/1712 07004MPS 8000 SCT025 SCT090 OIZC 160500Z 1606/1712 35003MPS 7000 NSC TEMPO 1611/1618 25008MPS 3000 SA BECMG 1622/1624 5000 BR SCT020 BECMG 1703/1705 7000 OIZH 160500Z 1606/1712 35007MPS CAVOK OJAI 160450Z 1606/1712 VRB02KT 0200 FG NSC BECMG 1608/1610 28006KT 3000 BR BECMG 1610/1612 28012KT 5000 HZ SCT030 SCT200 BECMG 1618/1620 6000 SCT030 OJAM 160450Z 1606/1712 VRB02KT 5000 HZ SCT020 SCT200 BECMG 1608/1610 28010KT BECMG 1618/1620 6000 SCT030 OJAQ 160450Z 1606/1712 36010KT 7000 FEW030 TEMPO 1610/1618 36016KT 4000 HZ OKBK 160445Z 1606/1712 34014KT 7000 SKC OLBA 160447Z 1606/1712 23014KT 7000 SCT030 BKN180 PROB30 TEMPO 1606/1624 -RA BECMG 1618/1620 17005KT 8000 BKN026 PROB40 TEMPO 1700/1712 RA BECMG 1706/1708 22016KT OMAA 160500Z 1606/1712 30014KT 7000 FEW030 TEMPO 1621/1705 24009KT OMAD 160500Z 1606/1712 VRB02KT 7000 FEW030 BECMG 1606/1607 33014KT BECMG 1622/1700 25006KT BECMG 1705/1707 32012KT OMDB 160458Z 1606/1712 20005KT 8000 NSC BECMG 1606/1608 29015KT BECMG 1621/1623 21007KT BECMG 1707/1709 27010KT OMDW 160110Z 1601/1706 20005KT 3000 BR SCT020 PROB40 1601/1604 0100 FG BKN001 BECMG 1605/1607 8000 NSW BECMG 1606/1608 30016KT PROB30 TEMPO 1609/1613 3000 BLDU BECMG 1620/1622 24007K OMRK 160458Z 1606/1712 18005KT 4000 HZ FEW020 BECMG 1606/1608 30015KT 8000 NSW BECMG 1615/1617 18005KT PROB30 1623/1705 3000 HZ BECMG 1710/1712 27010KT OMSJ 160458Z 1606/1712 19005KT 8000 NSC BECMG 1606/1608 29016KT BECMG 1619/1621 21007KT BECMG 1708/1710 27012KT OOMS 160500Z 1606/1712 33012KT 8000 NSC BECMG 1618/1620 25005KT BECMG 1706/1708 35012KT OOSH 160500Z 1606/1712 02012KT 8000 NSC BECMG 1618/1620 27005KT BECMG 1706/1708 05012KT ORBD 160320Z 1603/1709 VRB06KT 5000 FUHZ FEW010 FEW280 QNH3022INS FU FEW010 BECMG 1607/1608 30010KT 8000 HZ FEW200 SCT250 QNH3020INS BECMG 1615/1616 30008KT 9000 HZ SCT150 BKN250 QNH3012INS BECMG 1700/1701 VRB05KT 5000 FUHZ SCT200 QNH3015INS TX19/1612Z TN03/1604Z OSDI 1606/1712 VRB03KT 3000 BR BECMG 1608/1610 22010KT 9999 FEW030 BECMG 1700/1702 VRB03KT 2000 BR PROB30 TEMPO 1703/1706 0200 FG BECMG 1708/1710 22010KT 9999 FEW030 OSLK 1606/1706 24010KT 5000 SHRA FEW026CB SCT030 BKN100 TEMPO 1623/1706 12010KT 5000 TS RA SCT026CB BKN100 OTBD 160501Z 1606/1712 32015KT CAVOK TEMPO 1610/1618 33015G25KT 4000 BLDU BECMG 1702/1704 29008KT OTHH 160518Z 1606/1712 32015KT CAVOK TEMPO 1610/1618 33015G25KT 4000 BLDU BECMG 1702/1704 29008KT PAAQ 160556Z 1606/1706 00000KT P6SM VCFG FEW002 BKN100 TEMPO 1606/1608 1/2SM FZFG FM160900 36008KT P6SM SCT060 OVC100 FM161400 02015KT P6SM -SHRASN OVC050 FM161800 02015KT P6SM VCSH SCT040 BKN070 PABE 160527Z 1606/1706 11008KT P6SM SCT100 FM161100 07005KT 4SM BR SCT001 TEMPO 1614/1618 1SM BR BKN001 FM162200 35011KT P6SM SCT015 BKN040 PABR 160520Z 1606/1706 11007KT 6SM BR SCT003 FM160700 11008KT 2SM BR SCT003 FM161000 12009KT P6SM FEW250 PABT 160520Z 1606/1706 34006KT P6SM FEW090 BKN200 FM161000 34005KT P6SM FEW040 SCT200 FM170000 00000KT P6SM OVC050 PROB30 1700/1703 2SM -SN OVC015 PACD 160527Z 1606/1706 14010KT P6SM VCSH SCT020 SCT080 FM161200 VRB05KT P6SM VCSH SCT025 BKN040 FM162200 33010KT 5SM -SHSN SCT015 OVC025 FM170400 33017G25KT 4SM -SHSN BKN015 OVC025 PACV 160522Z 1606/1706 10011G18KT 4SM -RA OVC025 TEMPO 1606/1610 VRB05KT 6SM -RA OVC035 FM161500 10015G22KT 6SM -SHRA OVC035 PADL 160527Z 1606/1706 05006KT P6SM FEW015 SCT050 FM160900 02004KT 3SM BR SCT008 BKN015 FM161500 35011KT P6SM SCT015 BKN150 FM170200 35014KT 5SM -SN BKN025 OVC040 PADQ 160556Z 1606/1706 31013G19KT P6SM SCT100 BKN200 FM161200 33020G28KT 5SM -RA BR OVC020 FM162100 36015G22KT 3SM -RA BR SCT008 OVC015 PADU 160527Z 1606/1706 32008KT 6SM -RASN BR BKN008 OVC012 TEMPO 1606/1610 2SM -SN BKN003 OVC008 FM161100 33010G20KT 4SM -SN SCT008 BKN015 OVC025 FM161800 34017G25KT 6SM -SHSN BKN025 PAED 160705Z 1607/1709 VRB06KT 9000 -RASN BKN015 BKN025 OVC160 630155 QNH2935INS BECMG 1610/1612 VRB06KT 9000 -RASN BKN015 OVC050 630159 QNH2930INS BECMG 1702/1703 09009KT 4800 -RASN BKN005 630059 QNH2920INS TX03/1621Z TNM05/1703Z PAEI 160400Z 1604/1710 VRB03KT 9999 SCT080 BKN100 QNH2955INS BECMG 1612/1613 VRB03KT 4800 BR SCT010 OVC080 620802 QNH2960INS BECMG 1621/1622 VRB06KT 6000 -RA BR BKN010 OVC040 620109 QNH2935INS TEMPO 1622/1706 4800 -FZRA 690003 TXM01/1703Z TNM13/1608Z PAEN 160522Z 1606/1706 02008KT P6SM SCT080 BKN150 FM160900 02011KT P6SM VCSH SCT040 OVC060 FM161200 02018KT P6SM -RASN OVC030 FM161800 04015KT P6SM SCT035 BKN060 PAFA 160520Z 1606/1712 VRB03KT P6SM VCSH BKN070 BKN200 FM161000 VRB03KT P6SM SCT050 SCT100 BKN200 FM162200 12002KT P6SM OVC100 TEMPO 1703/1706 P6SM -FZRA OVC070 PAGA 160520Z 1606/1706 30004KT P6SM BKN040 OVC070 FM160700 09003KT P6SM BKN015 OVC040 PAGK 160638Z 1607/1706 VRB03KT P6SM VCFG FEW005 OVC070 TEMPO 1607/1608 2SM BR BKN005 FM161000 VRB04KT P6SM VCSH OVC050 FM162100 15005KT P6SM SCT015 BKN040 PAGS 160533Z 1606/1706 35004KT P6SM BKN007 OVC090 WS020/12030KT TEMPO 1609/1611 BKN050 OVC080 FM161200 35005KT 5SM BR SCT007 BKN030 OVC050 WS020/13030KT FM161500 13005KT 6SM -RA BR SCT015 BKN025 OVC050 WS020/13040KT FM162100 14009KT P6SM VCSH BKN015 OVC025 LTD TO CLD VIS AND WIND PAGY 160533Z 1606/1706 04003KT P6SM VCSH FEW004 SCT045 OVC080 TEMPO 1606/1608 2SM BR FM161800 21008KT 4SM -RA BR BKN040 OVC060 WS020/16040KT FM162100 19010KT P6SM -RA OVC050 NOT SKED PAHN 160533Z 1606/1706 29014G20KT P6SM VCSH FEW010 BKN080 FM161200 31008KT 5SM -RA BR SCT015 BKN040 OVC060 FM161700 08008KT P6SM -RA BKN025 OVC050 WS020/16040KT LTD TO CLD VIS AND WIND PAHO 160522Z 1606/1706 03005KT P6SM SCT100 BKN200 FM160900 05008KT P6SM VCSH SCT040 OVC060 FM161200 06011KT 5SM -RA BR OVC020 FM161800 06015KT P6SM -SHRA SCT025 OVC040 PAIL 160527Z 1606/1706 33005KT P6SM SCT050 FM161000 35008KT P6SM SCT200 FM161500 33014KT P6SM BKN100 FM161900 34009KT 4SM -RASN BKN030 OVC050 PAJN 160533Z 1606/1706 10005KT P6SM FEW050 OVC100 FM161500 11012KT 5SM -RA BR SCT007 BKN025 OVC050 WS020/14040KT PAKN 160527Z 1606/1706 05005KT P6SM SKC FM160700 04003KT P6SM VCFG SCT008 TEMPO 1608/1612 1SM BR BKN004 FM161400 35010KT P6SM SCT015 FM162200 35013KT 2SM -SN BKN020 OVC035 PAKT 160626Z 1606/1706 14014G22KT P6SM VCSH BKN060 OVC080 WS020/14045KT FM160800 15012G22KT 6SM -RA BR OVC030 WS020/14050KT FM161200 15011KT P6SM -RA BKN015 OVC025 WS020/15045KT FM161800 14015G25KT 4SM -RA BR BKN015 OVC025 WS020/16035KT FM162200 14013KT P6SM -RA BKN025 OVC050 LTD TO CLD VIS AND WIND 1606/1615 PAKW 160539Z 1606/1706 14010G22KT P6SM VCSH SCT025 BKN050 OVC070 WS020/14050KT FM160800 14011G22KT 6SM -RA BR SCT025 OVC040 WS020/14050KT FM161300 14005KT P6SM -RA SCT025 OVC050 FM161700 15004KT P6SM VCSH OVC050 FM170300 07005KT P6SM VCSH OVC050 LTD TO CLD VIS AND WIND PAMC 160520Z 1606/1706 VRB03KT P6SM FEW030 SCT120 BKN200 FM160800 VRB03KT P6SM FEW070 SCT200 FM170000 32001KT P6SM OVC050 PANC 160522Z 1606/1712 01006KT P6SM VCSH FEW020 BKN060 OVC100 FM161400 02009KT P6SM -SHSNRA OVC050 FM161800 32006KT P6SM SCT050 BKN080 FM170000 36006KT P6SM VCSH SCT040 BKN070 PAOM 160551Z 1606/1706 14015KT 2SM -SN BR OVC006 FM160800 14012KT 2SM -SN BR OVC010 FM161400 09007KT P6SM VCSH SCT025 BKN050 OVC100 PAOR 160520Z 1606/1706 VRB03KT P6SM SCT004 BKN060 FM160900 VRB03KT P6SM VCSH OVC025 FM170000 00000KT P6SM OVC050 PROB30 1700/1704 2SM -SN OVC015 PAOT 160520Z 1606/1706 12027KT P6SM BKN080 FM161100 11020KT 1 1/2SM -SN BR SCT025 OVC050 FM161400 10015KT 4SM BR VCSH SCT025 OVC050 PAPG 160539Z 1606/1706 VRB03KT P6SM BCFG FEW005 SCT050 BKN110 WS020/14030KT FM160900 11007KT P6SM VCSH OVC100 WS020/14035KT FM161200 10008KT 6SM -RA BR SCT025 OVC040 WS020/14035KT FM162100 10006KT P6SM VCSH BKN040 OVC090 WS020/15035KT LTD TO CLD VIS AND WIND 1606/1615 PAQT 160520Z 1606/1706 17005KT P6SM SKC FM160900 09005KT 4SM BR SCT004 FM170000 09006KT P6SM SCT003 PASC 160520Z 1606/1706 23006KT P6SM SCT150 FM170000 09006KT P6SM SCT003 PASD 160527Z 1606/1706 19008KT P6SM VCSH SCT025 BKN045 TEMPO 1606/1610 -SHRA BKN025 FM161000 10005KT P6SM SCT080 FM161800 33010KT P6SM SCT050 FM170300 33020G30KT P6SM BKN050 LTD TO CLD VIS AND WIND PASI 160705Z 1607/1706 13018G28KT P6SM VCSH OVC070 WS020/13040KT FM160900 13018G28KT P6SM -RA OVC060 WS020/13040KT FM162000 13020G30KT P6SM -RA SCT025 OVC040 WS020/14040KT PASN 160527Z 1606/1706 33012KT P6SM VCSH SCT015 BKN035 TEMPO 1606/1610 2SM -SHSN BKN015 FM161000 34015KT 6SM -SHSN SCT015 BKN025 OVC035 LTD TO CLD VIS AND WIND PASY 160630Z 1606/1712 23015G25KT 9000 -SN FEW010 SCT020 BKN035 610359 QNH2960INS TEMPO 1606/1610 1600 -FZRA BKN010 BKN020 690003 610307 BECMG 1612/1613 27020G30KT 9999 NSW SCT025 QNH2950INS BECMG 1705/1706 14030G40KT 4800 -SN BKN015 610159 510003 QNH2940INS TX03/1706Z TNM01/1616Z PATA 160520Z 1606/1706 24005KT P6SM BKN015 OVC040 FM161800 06004KT P6SM BKN250 PATK 160522Z 1606/1706 02007KT P6SM SCT060 BKN120 PAUN 160520Z 1606/1706 08018KT P6SM -SN BKN035 BKN070 FM160900 09018KT P6SM BKN050 FM170000 03009KT P6SM SCT250 PAVD 160522Z 1606/1706 00000KT 6SM -RA OVC045 FM161500 VRB03KT P6SM -SHRA OVC045 LTD TO CLD VIS AND WIND PAWG 160539Z 1606/1706 VRB05KT P6SM FEW060 BKN100 WS020/13030KT FM161200 10008KT 6SM -RA BR SCT025 OVC050 WS020/14035KT FM162100 12008KT P6SM VCSH BKN040 OVC090 WS020/15035KT LTD TO CLD VIS AND WIND 1606/1615 PAYA 160533Z 1606/1706 07006KT P6SM OVC050 FM160700 10008KT 5SM -RA BR SCT015 OVC030 FM161800 11016G25KT 6SM -RA BR OVC025 WS020/13045KT FM162100 10013G22KT P6SM -RA OVC030 WS020/13040KT NOT SKED PGRO 160521Z 1606/1706 08015KT P6SM SCT013 SCT050 PGSN 160521Z 1606/1706 06016KT P6SM SCT025 SCT060 PGUA 160200Z 1602/1708 07015G20KT 9999 SCT020 QNH2975INS TX29/1602Z TN25/1618Z PGUM 160521Z 1606/1712 07013G21KT P6SM FEW030 FEW050 FM160900 08009KT P6SM FEW020 PGWT 160521Z 1606/1706 06014KT P6SM SCT015 SCT060 PHJH 160227Z 1602/1624 04014G19KT P6SM FEW035 FM160500 06008KT P6SM FEW035 FM162000 04014G19KT P6SM FEW035 NOT SKED AFT 160400 PHJR 160539Z 1606/1706 05005KT P6SM FEW045 FM162000 07008G15KT P6SM FEW030 SCT045 FM170400 05005KT P6SM FEW045 PHKO 160539Z 1606/1706 VRB05KT P6SM SCT040 BKN060 FM161200 07005KT P6SM FEW060 FM162000 22010KT P6SM FEW040 SCT060 FM170500 05007KT P6SM FEW040 SCT060 PHLI 160539Z 1606/1706 04010KT P6SM SCT025 FM162000 04013KT P6SM FEW025 SCT035 FM170000 04015KT P6SM SCT025 BKN035 PHMK 160539Z 1606/1706 03010KT P6SM FEW025 SCT035 FM162000 04014G22KT P6SM FEW025 SCT035 FM170400 04012G19KT P6SM FEW025 SCT035 PHNG 1603/1703 05008KT 9999 SCT025 SCT035 QNH3000INS BECMG 1606/1608 05010KT 9999 SCT025 BKN045 QNH3001INS TEMPO 1610/1615 8000 -SHRA BKN020 BKN030 FM161800 05010G15KT 9999 SCT020 SCT040 QNH3002INS T23/1614Z T27/1623Z PHNL 160539Z 1606/1712 04008KT P6SM FEW025 SCT045 FM162100 05012G19KT P6SM FEW025 SCT045 FM170500 04010KT P6SM FEW025 SCT045 PHNY 160539Z 1606/1706 05007KT P6SM FEW025 FM162000 04012KT P6SM SCT025 FM170000 04020G25KT P6SM FEW025 PHOG 160539Z 1606/1706 04008KT P6SM FEW025 SCT045 FM162000 04017G25KT P6SM FEW030 SCT045 FM170500 04010G17KT P6SM FEW030 SCT045 LTD TO VIS AND WIND 1609/1616 PHTO 160539Z 1606/1706 24005KT P6SM SCT025 BKN045 FM162000 05008KT P6SM SCT025 SCT045 FM170500 24005KT P6SM VCSH SCT025 BKN045 PKMJ 160521Z 1606/1706 11013KT P6SM VCSH FEW016 FEW050 FM161100 09014KT P6SM VCSH SCT015 SCT040 BKN100 TEMPO 1611/1615 3SM SHRA SCT014 BKN025 OVC050 PKWA 160521Z 1606/1706 11015KT P6SM VCSH FEW020 SCT040 FM161800 09012KT P6SM VCSH SCT018 SCT040 BKN120 PLCH 160514Z 1606/1706 13008KT 9999 SCT018 BKN100 PMDY 160539Z 1606/1706 01012KT P6SM FEW025 BKN035 FM161000 04012KT P6SM FEW025 BKN035 FM161500 07013KT P6SM SCT025 BKN035 FM170000 09020KT P6SM VCSH SCT020 BKN035 PROB30 1701/1706 3SM -SN BR OVC015 PTKK 160521Z 1606/1706 10010KT P6SM VCSH FEW014 FEW050 OVC130 PTRO 160521Z 1606/1706 06011KT P6SM VCSH SCT016 SCT120 PTYA 160521Z 1606/1706 07011KT P6SM FEW018 FEW130 PWAK 160610Z 1606/1712 10010G15KT 9999 FEW030 QNH2984INS BECMG 1614/1615 15009KT 9999 FEW030 QNH2986INS BECMG 1620/1621 VRB06KT 9999 SCT020 QNH2990INS TX29/1702Z TN24/1612Z RCFN 160500Z 1606/1706 01005KT 9999 FEW016 BKN032 TEMPO 1606/1612 08008KT TEMPO 1701/1706 06010KT RCKH 160500Z 1606/1712 34005KT 7000 FEW016 TEMPO 1606/1611 28007KT TEMPO 1620/1702 04005KT 3500 BR TEMPO 1703/1709 25007KT RCMQ 160500Z 1606/1706 01005KT 9999 FEW010 BKN050 TX24/1704Z TN16/1620Z BECMG 1607/1609 8000 BECMG 1610/1613 35004KT 5000 BR SCT006 BKN012 TEMPO 1618/1623 3200 BR BECMG 1701/1704 01008KT 8000 FEW010 BKN030 RCNN 160500Z 1606/1706 36008KT 8000 FEW012 BKN060 TX23/1606Z TN14/1621Z BECMG 1610/1613 6000 FEW012 BKN040 BECMG 1614/1617 36004KT 5000 BR BECMG 1620/1623 3200 BR BECMG 1701/1702 36008KT 5000 BR BECMG 1703/1704 7000 RCSS 160500Z 1606/1706 28005KT 8000 FEW017 BKN032 TEMPO 1618/1624 23005KT 4000 BR BECMG 1700/1702 09005KT FEW009 BKN018 BKN040 TEMPO 1702/1706 10010KT FEW016 BKN032 RCTP 160500Z 1606/1712 32005KT 7000 FEW016 BKN032 TEMPO 1611/1615 03005KT 4000 BR FEW009 BKN017 BKN035 BECMG 1615/1617 3200 BR BECMG 1621/1623 02007KT FEW005 BKN008 BKN020 TEMPO 1700/1704 03012KT 1200 BR FEW003 BKN005 BKN015 BECMG 1704/1706 03015KT 6000 FEW013 BKN032 RJAA 160508Z 1606/1712 12006KT 9999 FEW030 TEMPO 1615/1621 3000 BR BECMG 1700/1703 19010KT TEMPO 1706/1712 4500 SHRA BR FEW005 BKN009 RJAH 160505Z 1606/1712 09006KT 9999 FEW030 TEMPO 1610/1615 2000 BR TEMPO 1615/1621 0800 FG FEW003 BKN005 BECMG 1616/1618 20010KT TEMPO 1621/1700 3000 -RA BR TEMPO 1706/1712 4000 -RA BR RJBB 160507Z 1606/1712 02004KT 9999 FEW030 SCT045 BECMG 1609/1611 21018KT TEMPO 1621/1703 3000 TSRA BR FEW005 BKN008 BKN015 FEW020CB TEMPO 1703/1709 4000 -SHRA BR BECMG 1709/1712 33014KT RJCB 160507Z 1606/1712 14004KT 9999 FEW040 BECMG 1608/1610 36005KT RJCC 160505Z 1606/1712 28007KT 9999 FEW030 BECMG 1606/1608 22005KT BECMG 1614/1616 33006KT RJCH 160511Z 1606/1712 28010KT 9999 FEW020 BKN040 BECMG 1609/1611 05005KT TEMPO 1615/1621 2000 -SHSN FEW005 BKN008 RJCK 160510Z 1606/1712 09005KT 9999 FEW020 BKN035 BECMG 1606/1608 03004KT RJCM 160513Z 1606/1712 03006KT 9999 FEW008 BKN020 TEMPO 1606/1609 3000 -SHSN BECMG 1607/1609 19007KT BECMG 1700/1703 03005KT BECMG 1709/1712 22004KT RJEC 160509Z 1606/1712 18008KT 9999 FEW015 BKN040 TEMPO 1606/1609 4000 -SHSN BECMG 1618/1621 32004KT BECMG 1709/1712 19005KT RJFF 160509Z 1606/1712 17016KT 9000 -SHRA FEW015 SCT025 BKN035 TEMPO 1611/1615 17018G28KT BECMG 1615/1617 32009KT TEMPO 1615/1618 1500 +SHRA BR FEW003 BKN008 BKN015 TEMPO 1618/1621 3000 -SHRA BR FEW003 BKN008 BKN015 TEMPO 1700/1709 4000 -SHRA BR FEW003 BKN008 BKN015 RJFK 160506Z 1606/1712 15007KT 9999 VA FEW020 BKN040 TEMPO 1615/1618 3000 SHRA BR FEW005 BKN008 BKN015 BECMG 1618/1621 32010KT TEMPO 1618/1621 1500 +TSRA BR FEW002 BKN005 BKN010 FEW020CB TEMPO 1621/1700 4000 -SHRA BR FEW005 BKN008 BKN015 RJFM 160519Z 1606/1712 17015KT 9999 FEW030 BECMG 1607/1609 20007KT TEMPO 1618/1700 2000 +SHRA BR FEW003 BKN008 BKN015 BECMG 1621/1700 27016KT TEMPO 1703/1709 27020G30KT RJFO 160520Z 1606/1712 02010KT 9999 FEW030 SCT060 BECMG 1606/1608 17012KT TEMPO 1615/1621 3000 SHRA BR FEW003 BKN008 BKN015 BECMG 1618/1621 23005KT BECMG 1621/1700 32010KT TEMPO 1700/1706 4000 -SHRA BR RJFR 160614Z 1606/1712 14007KT 8000 -RA FEW020 BKN050 TEMPO 1606/1609 2000 BR FEW001 SCT002 BKN003 TEMPO 1612/1615 4000 -SHRA BR TEMPO 1615/1618 2000 +SHRA BR FEW003 BKN008 BKN015 BECMG 1618/1621 30012KT TEMPO 1618/1703 4000 -SHRA BR FEW003 BKN008 BKN015 RJFS 160510Z 1606/1712 20012KT 9999 FEW030 BKN050 BECMG 1610/1612 18021KT TEMPO 1611/1616 18023G33KT TEMPO 1616/1618 1500 +SHRA BR BECMG 1616/1618 24005KT TEMPO 1618/1700 1000 -SHRA BR FEW005 BKN008 BKN015 RJFT 160520Z 1606/1712 21004KT 9999 FEW030 SCT050 TEMPO 1616/1618 4000 -SHRA BR TEMPO 1618/1621 0800 +SHRA FG FEW001 SCT003 BKN005 TEMPO 1621/1703 1500 -SHRA BR FEW003 SCT005 BKN008 RJFU 160649Z 1606/1712 18016KT 9999 FEW025 BKN050 TEMPO 1606/1613 18018G28KT TEMPO 1613/1617 19025G40KT 3000 +SHRA BR BECMG 1616/1618 33008KT TEMPO 1617/1700 3000 -SHRA BR FEW005 BKN008 BKN015 RJGG 160517Z 1606/1712 33005KT 9999 FEW015 BKN040 BECMG 1606/1608 18010KT BECMG 1618/1621 36008KT BECMG 1621/1700 4000 -SHRA BR FEW005 BKN008 TEMPO 1700/1706 3000 SHRA BR FEW003 BKN005 BECMG 1709/1712 31022KT 9999 NSW FEW010 BKN020 RJNK 160505Z 1606/1712 19008KT 9999 FEW030 BKN050 BECMG 1614/1616 3000 -SHRA BR TEMPO 1615/1621 1500 SHRA BR FEW005 BKN008 BECMG 1616/1618 03010KT TEMPO 1621/1703 SHRA FEW005 BKN008 BECMG 1709/1712 8000 -SHRA RJNS 160505Z 1606/1712 24012KT 9999 FEW030 TEMPO 1614/1617 4000 -SHRA BR FEW005 BKN008 BECMG 1700/1703 18010KT TEMPO 1700/1709 3000 SHRA BR FEW005 BKN008 BECMG 1706/1709 25018KT TEMPO 1709/1712 25020G30KT RJNT 160506Z 1606/1712 20012KT 9999 FEW020 BKN060 BECMG 1615/1616 4000 -SHRA BR TEMPO 1615/1700 2000 SHRA BR BECMG 1621/1700 36006KT FEW005 BKN008 TEMPO 1700/1712 2500 -SHRA BR FEW003 BKN005 BECMG 1709/1712 26004KT RJOA 160505Z 1606/1712 14004KT 9999 FEW010 BECMG 1611/1613 3000 -SHRA BR FEW002 SCT005 BKN008 TEMPO 1618/1621 0700 SHRA FG FEW000 SCT003 BKN005 TEMPO 1621/1700 1500 -SHRA BR BCFG FEW000 SCT003 BKN005 BECMG 1703/1706 33009KT 9999 NSW FEW015 BKN040 RJOB 160505Z 1606/1712 09004KT 9999 FEW015 SCT045 BECMG 1615/1617 3000 -SHRA BR BCFG FEW000 SCT005 BKN008 TEMPO 1617/1700 0700 SHRA FG FEW000 SCT001 BKN003 BECMG 1700/1703 24006KT TEMPO 1700/1706 1500 -SHRA BR BCFG FEW000 SCT002 BKN005 BECMG 1706/1709 9999 NSW FEW008 SCT020 BKN035 RJOC 160507Z 1606/1712 06005KT 9999 FEW008 SCT015 BKN025 BECMG 1608/1610 4000 -SHRA BR TEMPO 1610/1618 2000 SHRA BR FEW001 SCT005 BKN008 TEMPO 1618/1700 3000 -SHRA BR FEW001 SCT005 BKN008 BECMG 1706/1709 8000 -SHRA RJOH 160506Z 1606/1712 06005KT 9999 FEW008 SCT015 BKN025 BECMG 1608/1610 4000 -SHRA BR TEMPO 1610/1618 2000 SHRA BR FEW001 SCT005 BKN008 TEMPO 1618/1703 3000 -SHRA BR FEW001 SCT005 BKN008 BECMG 1706/1709 9999 NSW RJOI 1603/1703 VRB06KT 8000 BR SCT015 BKN030 BKN080 BKN230 650608 542009 562905 QNH3005INS TEMPO 1603/1606 18008KT 6000 BR SCT008 BKN020 BKN030 BKN080 OVC240 FM160600 18011KT 9000 BR VCSH SCT020 BKN040 OVC110 650709 651609 540009 540909 541808 562609 QNH2999INS FM160900 18014G20KT 9999 VCSH BKN020 BKN030 OVC060 650709 651609 540009 540909 541808 562609 QNH2996INS TEMPO 1609/1615 18017G25KT 8000 -SHRA BR BKN010 OVC025 FM161500 18016G24KT 8000 -SHRA BR BKN015 BKN030 OVC050 650709 651609 540009 540909 541808 562609 QNH2992INS TEMPO 1615/1620 19012KT 4800 SHRA BR BKN008 OVC020 FM162000 20008KT 8000 -SHRA BR BKN015 BKN040 BKN070 OVC110 650709 651609 540809 541709 562609 QNH2990INS FM170200 30006KT 9999 SCT015 SCT030 BKN070 BKN240 650709 651609 540809 541709 562609 QNH2988INS T12/1606Z T08/1620Z RJOK 160507Z 1606/1712 18005KT 9999 FEW020 SCT040 TEMPO 1618/1621 4000 SHRA BR BECMG 1621/1700 24005KT TEMPO 1621/1700 3000 SHRA BR BECMG 1709/1712 34010KT RJOM 160506Z 1606/1712 36009KT 9999 FEW025 SCT050 BECMG 1613/1615 15015KT TEMPO 1618/1621 3000 SHRA BR FEW002 BKN008 BKN015 BECMG 1700/1703 28012KT RJOO 160507Z 1606/1712 32005KT 9999 FEW020 SCT035 BECMG 1618/1621 07005KT TEMPO 1618/1700 3000 SHRA BR TEMPO 1700/1703 4000 SHRA BR BECMG 1706/1709 32005KT RJOT 160509Z 1606/1712 15004KT 9999 FEW020 BKN060 BECMG 1618/1621 4000 -SHRA BR FEW002 SCT005 BKN008 TEMPO 1621/1700 1500 SHRA BR BCFG FEW000 SCT003 BKN005 TEMPO 1703/1706 1500 -SHRA BR BCFG FEW000 SCT003 BKN005 BECMG 1706/1709 30008KT 6000 NSW FEW002 SCT005 BKN015 RJSA 160511Z 1606/1712 23007KT 9999 FEW030 SCT050 BECMG 1609/1611 04005KT BECMG 1612/1614 3000 -SN BR FEW005 BKN008 BKN015 TEMPO 1614/1618 0700 -SN FG FEW001 BKN003 BKN005 TEMPO 1618/1700 1500 -SHSN BR BECMG 1700/1703 9999 NSW FEW020 BKN040 RJSF 160516Z 1606/1712 14004KT 9999 FEW030 BECMG 1700/1703 36010KT 3000 -RA BR FEW003 BKN006 BKN015 TEMPO 1703/1712 1500 RA BR FEW001 BKN003 BKN005 RJSK 160514Z 1606/1712 13004KT 9999 FEW020 BKN050 TEMPO 1609/1612 1500 -SN BR FEW003 BKN008 BKN015 BECMG 1612/1614 1500 -SHRASN BR FEW001 BKN003 BKN008 TEMPO 1614/1700 0700 SHRASN FG BECMG 1700/1703 8000 NSW FEW020 SCT030 BKN040 RJSN 160507Z 1606/1712 17010KT 9999 FEW020 BKN060 BECMG 1614/1616 4000 -SHRA BR TEMPO 1616/1700 2000 SHRA BR FEW005 BKN008 BECMG 1621/1700 04006KT TEMPO 1700/1709 3000 -SHRA BR FEW005 BKN008 RJSS 160511Z 1606/1712 12005KT 9999 FEW030 BECMG 1609/1611 24004KT BECMG 1621/1700 02007KT TEMPO 1700/1703 4000 -RA BR FEW005 BKN008 BKN015 TEMPO 1703/1712 3000 RA BR FEW005 BKN008 BKN015 RJTT 160505Z 1606/1712 16008KT 9999 FEW030 BECMG 1612/1614 25004KT TEMPO 1613/1617 BKN008 BECMG 1616/1618 20020KT TEMPO 1621/1706 20024G36KT TEMPO 1706/1712 20024G36KT 3000 SHRA BR FEW005 BKN008 RJTY 152100Z 1521/1703 VRB06KT 9999 SKC QNH2997INS TX09/1605Z TNM05/1522Z RKJK 160700Z 1607/1713 VRB06KT 8000 BR BKN015 610309 QNH2995INS TEMPO 1607/1612 4800 -RA BECMG 1611/1612 VRB06KT 4800 BR SCT030 BKN080 610809 QNH2990INS TEMPO 1612/1616 3200 BR BECMG 1615/1616 VRB06KT 1000 BR SCT025 OVC050 610509 QNH2987INS BECMG 1622/1623 VRB03KT 4800 BR SCT030 OVC060 610609 QNH2984INS TX09/1706Z TN02/1622Z RKPC 160500Z 1606/1712 18006KT 6000 -RA FEW010 BKN025 OVC100 TN08/1620Z TX11/1705Z TEMPO 1608/1611 03010KT 4200 RA BECMG 1613/1614 08014KT BECMG 1620/1621 35010KT BECMG 1623/1624 NSW BECMG 1705/1706 SCT030 BKN150 RKPK 160500Z 1606/1712 33006KT 1600 -RA BR BKN015 OVC030 TN03/1621Z TX08/1705Z BECMG 1700/1701 4800 SCT015 OVC030 BECMG 1705/1706 9999 NSW BKN030 RKSG 160400Z 1604/1710 05006KT 3200 BR SCT050 OVC100 QNH2997INS BECMG 1605/1606 VRB06KT 3200 -SHRA BR BKN015 OVC060 610309 QNH2994INS BECMG 1612/1613 VRB06KT 3200 BR BKN015 BKN070 610309 QNH2990INS TEMPO 1616/1622 1600 BR BECMG 1702/1703 VRB06KT 4800 BR OVC015 610159 QNH2992INS TX07/1703Z TNM01/1622Z RKSI 160500Z 1606/1712 05006KT 1800 -RA FEW010 BKN025 OVC100 TN00/1621Z TX06/1706Z BECMG 1608/1609 BR BECMG 1612/1613 FEW010 SCT030 BECMG 1618/1619 1400 BECMG 1701/1702 18006KT 6000 NSW BECMG 1710/1711 2000 BR RKSM 160500Z 1606/1712 12006KT 6000 HZ BKN100 BECMG 1606/1607 12006KT 4800 -RA BR SCT015 BKN030 TNM01/1621Z TX07/1706Z RKSO 160300Z 1603/1709 04006KT 3200 BR FEW020 OVC130 QNH3003INS BECMG 1605/1606 VRB06KT 3200 -RA BR BKN015 OVC060 610309 BECMG 1611/1612 VRB06KT 3200 BR BKN015 610309 QNH2997INS TEMPO 1615/1621 1600 BR BECMG 1701/1702 VRB06KT 4800 BR OVC015 610159 QNH2994INS TX08/1703Z TNM01/1622Z RKSS 160500Z 1606/1712 34005KT 3100 HZ FEW010 BKN030 OVC120 TX07/1606Z TNM02/1622Z TX08/1706Z BECMG 1607/1608 -RA BECMG 1609/1610 BR BECMG 1612/1613 FEW030 BKN150 TEMPO 1615/1702 2000 BECMG 1709/1710 22005KT 2000 RKTN 160500Z 1606/1712 15006KT 3200 -RA BR BKN015 OVC030 TX07/1607Z TN02/1621Z BECMG 1623/1624 4800 BR SCT015 BKN030 BECMG 1702/1703 31006KT 9000 NSW SCT030 RKTU 160620Z 1606/1712 21006KT 3200 BR SCT030 BKN100 TN01/1621Z TX07/1706Z BECMG 1607/1608 1600 -RA BR BKN015 BKN030 BECMG 1700/1701 4800 BR BKN030 BECMG 1702/1703 8000 NSW ROAH 160506Z 1606/1712 15012KT 9999 FEW030 BECMG 1700/1703 21012KT BECMG 1706/1709 03013KT TEMPO 1706/1709 4000 SHRA RODN 160000Z 1600/1706 12012G18KT 9999 BKN040 QNH3000INS BECMG 1607/1608 15012G18KT 9999 BKN040 QNH2994INS BECMG 1620/1621 19012KT 9999 BKN040 QNH2994INS TX22/1606Z TN13/1600Z ROIG 160509Z 1606/1712 12013KT 9999 FEW025 SCT030 BECMG 1609/1611 15009KT BECMG 1700/1703 02010KT TEMPO 1700/1703 4000 SHRA RPLB 160500Z 1606/1706 06010KT 9999 FEW020 BKN300 TX31/1606Z TN24/1622Z TEMPO 1606/1612 05010G20KT SCT020 BKN080 RPLI 160500Z 1606/1706 05006KT 9999 FEW019 BKN280 TEMPO 1606/1612 35010KT FEW019 BKN100 TEMPO 1612/1618 12006KT RPLL 160500Z 1606/1712 07006KT 9999 FEW023 SCT100 TX30/1606Z TN24/1622Z TEMPO 1606/1612 08012KT SCT023 BKN100 TEMPO 1612/1618 05006KT RPMD 160500Z 1606/1706 35006KT 9999 FEW016 SCT090 BKN290 TEMPO 1606/1612 02010KT 9000 -SHRA SCT016 BKN090 RPMZ 160500Z 1606/1706 24004KT 9999 SCT017 BKN090 TEMPO 1606/1612 29008KT 9000 -SHRA SCT016CB OVC070 RPVM 160500Z 1606/1712 02005KT 9999 FEW020 BKN100 TEMPO 1606/1612 04012KT 8000 -RA SCT020 OVC090 TEMPO 1612/1618 03008KT 9000 SHRA FEW020 BKN090 OVC290 SAAR 160500Z 1606/1706 VRB03KT CAVOK TX33/1619Z TN18/1609Z BECMG 1607/1610 5000 BR SCT010 BECMG 1611/1614 05010KT CAVOK BECMG 1618/1620 09010KT SABE 160500Z 1606/1706 09010KT 9999 BKN020 TX29/1619Z TN19/1609Z BECMG 1607/1609 05010KT 9999 BKN015 BECMG 1610/1613 CAVOK BECMG 1618/1620 09010KT SACO 160500Z 1606/1706 05010KT 9999 SCT040 TX31/1618Z TN15/1610Z PROB30 TEMPO 1608/1612 02005KT 2000 BR SCT010 BECMG 1612/1614 18010KT 9999 SCT020 SADF 160500Z 1606/1706 07010KT 9999 SCT020 TX29/1619Z TN18/1609Z BECMG 1607/1609 05010KT 9999 SCT015 BECMG 1610/1613 CAVOK BECMG 1618/1620 09010KT SAEZ 160500Z 1606/1706 VRB03KT 8000 NSC TX29/1618Z TN14/1609Z BECMG 1607/1609 3000 BR BKN015 BECMG 1610/1612 05005KT 9999 SCT020 BECMG 1620/1622 07010KT CAVOK SAME 160500Z 1606/1706 14005KT 9999 SCT040 TX29/1620Z TN18/1610Z SANR 160500Z 1606/1706 27010KT 9999 SCT035 TX32/1618Z TN17/1610Z SANT 160500Z 1606/1706 09005KT 9999 SCT030 TX32/1618Z TN17/1610Z SARE 160500Z 1606/1706 00000KT CAVOK TX33/1618Z TN18/1609Z PROB30 1607/1611 3000 BR NSC SARF 160500Z 1606/1706 00000KT CAVOK TX31/1618Z TN19/1609Z PROB30 1609/1611 3000 BR NSC SARI 160500Z 1606/1706 18005KT 0200 FG OVC001 TX29/1617Z TN21/1609Z BECMG 1612/1614 9999 BKN015 SARP 160500Z 1606/1706 18005KT CAVOK TX29/1617Z TN20/1609Z BECMG 1607/1609 3000 BR NSC PROB30 1608/1611 0500 FG OVC005 BECMG 1614/1616 CAVOK SASA 160500Z 1606/1706 36005KT 9999 SCT020 TX30/1618Z TN14/1610Z SASJ 160500Z 1606/1706 05005KT 9999 SCT035 TX31/1618Z TN15/1610Z SAVC 160500Z 1606/1706 29025G35KT CAVOK TX28/1619Z TN16/1611Z BECMG 1700/1702 27020KT SAWE 160500Z 1606/1706 32020G35KT 9999 -RA BKN015 OVC050 TX15/1618Z TN08/1611Z BECMG 1615/1617 27020G30KT NSW BKN020 BKN090 BECMG 1700/1702 27020KT CAVOK SAWG 160500Z 1606/1706 32015KT 9999 SCT030 BKN090 TX19/1619Z TN11/1611Z BECMG 1611/1613 27025G35KT BECMG 1703/1705 27020KT CAVOK SAWH 160500Z 1606/1706 VRB03KT 9999 BKN045 BKN090 TX13/1618Z TN06/1611Z BECMG 1609/1611 23015KT -RA BKN025 OVC050 BECMG 1700/1702 VRB03KT NSW SCT030 SCT090 SAZM 160500Z 1606/1706 VRB03KT CAVOK TX28/1619Z TN10/1609Z BECMG 1607/1609 34005KT 3000 BR BKN008 BECMG 1610/1613 05010KT 9999 SCT015 BECMG 1618/1620 05015KT 9999 SCT030 SAZN 160500Z 1606/1706 27010KT CAVOK TX32/1619Z TN17/1609Z BECMG 1609/1612 25020KT BECMG 1618/1621 27010KT BECMG 1623/1701 25020KT SAZS 160500Z 1606/1706 29010KT CAVOK TX25/1619Z TN08/1609Z BECMG 1613/1615 29020KT BECMG 1619/1622 29010KT SBAF 160100Z 1606/1618 05005KT 9999 FEW030TN25/1608Z TX33/1617Z BECMG 1616/1618 31005KT FEW020 RMK PGY SBAN 160200Z 1606/1618 07005KT 7000 FEW005 TN17/1606Z TX25/1614Z BECMG 1612/1614 36007KT 7000 SCT030 PROB30 1614/1618 3000 TSRA BKN025 FEW030CB RMK PDE SBAR 160300Z 1606/1618 10008KT 9000 SCT017 TN26/1607Z TX30/1614Z BECMG 1610/1611 11013KT RMK PEU SBAT 160400Z 1606/1618 00000KT CAVOK TN20/1607Z TX31/1618Z BECMG 1611/1613 15005KT 6000 SCT008 BKN012 FEW025TCU BECMG 1615/1617 32002KT 9999 FEW020 RMK PDY SBBE 160400Z 1606/1706 08002KT CAVOK TN24/1607Z TX32/1617Z BECMG 1607/1609 9999 FEW015 BECMG 1611/1613 10010KT BKN025 BECMG 1615/1617 03008KT 9999 TSRA BKN025 FEW030CB BECMG 1619/1621 07002KT 9999 FEW030 BECMG 1623/1701 CAVOK BECMG 1703/1705 13003KT RMK PDY SBBI 160215Z 1606/1618 30008KT 9999 SCT015 TN19/1608Z TX27/1617Z PROB40 TEMPO 1608/1610 BKN013 BECMG 1613/1615 BKN025 BECMG 1616/1618 BKN030 FEW040TCU RMK PDW SBBR 160200Z 1606/1706 10005KT CAVOK TN18/1606Z TX26/1616Z BECMG 1612/1614 03010KT 7000 FEW020 BECMG 1618/1620 36005KT 7000 FEW040 BECMG 1700/1702 11005KT CAVOK RMK PDE SBBU 160215Z 1606/1618 03005KT 9999 FEW030 TN22/1608Z TX30/1617Z BECMG 1612/1614 35006KT SCT035 RMK PDW SBBV 160400Z 1606/1706 09010KT CAVOK TN25/1609Z TX34/1618Z BECMG 1611/1613 9999 SCT030 BECMG 1615/1617 BKN040 FEW045TCU BECMG 1619/1621 FEW040 BECMG 1623/1701 CAVOK RMK PDY SBBW 160200Z 1606/1618 05005KT 7000 SCT004 TN19/1606Z TX27/1617Z BECMG 1612/1614 10005KT 7000 SCT010 RMK PDE SBCF 160200Z 1606/1706 15005KT CAVOK TN19/1608Z TX22/1620Z BECMG 1612/1614 36005KT 7000 SCT040 PROB30 1614/1618 BKN040 BECMG 1618/1620 09005KT 7000 FEW030 BECMG 1700/1702 16005KT CAVOK RMK PDE SBCG 160215Z 1606/1706 35007KT 9999 FEW030 TN22/1608Z TX29/1617Z PROB40 TEMPO 1609/1611 VCSH SCT010 FEW030TCU BECMG 1612/1614 SCT035 FEW040TCU BECMG 1622/1624 02007KT FEW040 RMK PDW SBCJ 160400Z 1606/1618 00000KT CAVOK TN18/1607Z TX26/1618Z BECMG 1607/1609 1200 BR BKN002 BECMG 1611/1613 05003KT 9999 SCT010 BKN017 BECMG 1615/1617 12005KT SCT025 RMK PDY SBCO 160215Z 1606/1618 16005KT 9999 BKN030 TN22/1608Z TX29/1617Z BECMG 1610/1612 12010KT SCT040 BECMG 1616/1618 12014KT FEW045 RMK PDW SBCP 160100Z 1606/1618 05005KT CAVOK TN25/1609Z TX33/1617Z BECMG 1611/1613 34010KT FEW020 BECMG 1614/1616 07015KT RMK PGY SBCR 160215Z 1606/1706 23005KT 9999 FEW012 TN23/1608Z TX31/1618Z BECMG 1613/1615 12005KT SCT025 RMK PDW SBCT 160215Z 1606/1706 33005KT 9999 SCT015 TX27/1617Z TN18/1706Z PROB40 TEMPO 1608/1611 BKN012 BECMG 1613/1615 30008KT BKN025 BECMG 1616/1618 BKN030 FEW040TCU PROB40 TEMPO 1620/1622 7000 TSRA BKN010 FEW040CB BECMG 1622/1624 12007KT BKN009 PROB40 TEMPO 1700/1706 5000 RA BR BKN005 OVC009 RMK PDW SBCY 160400Z 1606/1706 12005KT CAVOK TN23/1609Z TX33/1617Z BECMG 1607/1609 15005KT 9999 SCT010 BECMG 1611/1613 33010KT SCT020 BECMG 1615/1617 20010KT BKN020 FEW025TCU BECMG 1619/1621 34005KT FEW025 BECMG 1623/1701 33005KT CAVOK RMK PDY SBDN 152130Z 1600/1612 30007KT 9999 SCT025 TN21/1608Z TX25/1612Z BECMG 1601/1603 08005KT CAVOK RMK PER SBEG 160400Z 1606/1706 00000KT 9999 SCT010 TN22/1606Z TX29/1616Z BECMG 1607/1609 14002KT BKN005 BECMG 1611/1613 09010KT BKN010 BECMG 1615/1617 07015KT 3000 TSRA BKN010 FEW025CB BECMG 1619/1621 07005KT 9999 FEW012 BECMG 1623/1701 00000KT RMK PDY SBFI 152130Z 1600/1624 06005KT 9999 FEW012 TN21/1608Z TX29/1618Z BECMG 1600/1602 09005KT PROB30 1608/1609 BKN010 BECMG 1610/1612 01008KT SCT020 PROB30 TEMPO 1612/1614 VCSH SCT020 FEW025TCU BECMG 1621/1623 05007KT RMK PER SBFL 160215Z 1606/1706 27005KT 9999 FEW030 TX28/1613Z TN22/1706Z PROB40 TEMPO 1608/1610 VCSH SCT020 FEW030TCU BECMG 1613/1615 16010KT BKN030 RMK PDW SBFN 160300Z 1606/1618 12012KT 8000 SCT017 TN26/1608Z TX31/1615Z RMK PEU SBFZ 160300Z 1606/1706 10008KT 9999 SCT020 TN26/1607Z TX31/1615Z BECMG 1607/1608 12008KT BECMG 1610/1611 11012KT 9000 BKN020 BECMG 1613/1615 10017KT SCT030 BECMG 1520/1522 09008KT RMK PEU SBGL 160100Z 1606/1712 03005KT 9999 SCT025TX36/1617Z TN26/1707Z BECMG 1609/1611 12005KT FEW020 BECMG 1612/1614 34005KT BECMG 1616/1618 03005KT SCT025 FEW030TCU PROB30 1620/1623 34015KT 5000 TSRA BKN015 FEW030CB BECMG 1700/1702 28005KT FEW025 BECMG 1704/1706 04005KT FEW020 BECMG 1709/1711 12005KT RMK PGY SBGO 160200Z 1606/1706 09005KT 7000 FEW030 TN19/1607Z TX29/1615Z BECMG 1612/1614 36005KT PROB30 1616/1618 TS SCT040 FEW040CB BECMG 1618/1620 30005KT 7000 FEW015 BECMG 1700/1702 36005KT CAVOK RMK PDE SBGR 160116Z 1606/1712 04005KT CAVOK TN20/1608Z TX30/1618Z BECMG 1612/1614 33010KT FEW025 BECMG 1615/1617 SCT030 FEW045TCU PROB40 1617/1700 28015KT 6000 TSRA BKN030 FEW045CB BECMG 1702/1704 35005KT SCT030 RMK PGQ SBGW 160100Z 1606/1618 00000KT 8000 FEW025TN20/1609Z TX30/1617Z PROB30 1608/1611 21005KT 4000 BR BKN007 BECMG 1612/1614 04005KT BECMG 1616/1618 07005KT RMK PGY SBIH 160400Z 1606/1618 00000KT 9999 SCT005 TN22/1607Z TX30/1618Z BECMG 1609/1611 15005KT 3000 TSRA BKN007 FEW025CB BECMG 1613/1614 12003KT 9999 SCT015 BECMG 1616/1617 03005KT SCT020 FEW025TCU RMK PDY SBIL 160300Z 1606/1618 27004KT 8000 SCT020 TN23/1607Z TX29/1614Z BECMG 1611/1612 05009KT RMK PEU SBIZ 160400Z 1606/1618 00000KT 9999 BKN015 TN24/1606Z TX32/1617Z BECMG 1607/1609 18002KT SCT020 BECMG 1611/1613 10010KT BKN020 BECMG 1615/1617 9999 TS BKN020 FEW025CB RMK PDY SBJP 160300Z 1606/1706 12006KT 9999 SCT020 TN26/1607Z TX31/1615Z BECMG 1610/1612 12016KT 9000 BKN018 BECMG 1615/1617 12011KT SCT030 BECMG 1621/1623 13007KT RMK PEU SBJV 160215Z 1606/1618 27005KT 9999 FEW030 TN24/1608Z TX31/1614Z BECMG 1612/1614 12007KT BECMG 1616/1618 VCSH SCT030 FEW040TCU RMK PDW SBKG 160300Z 1606/1618 11008KT 9000 BKN008 TN23/1607Z TX30/1616Z BECMG 1609/1611 12013KT BKN020 BECMG 1615/1616 SCT035 RMK PEU SBKP 160116Z 1606/1706 03005KT CAVOK TN20/1608Z TX30/1617Z BECMG 1607/1609 36005KT 9000 FEW009 BECMG 1611/1613 34010KT 9999 FEW030 BECMG 1615/1617 31008KT 9999 SCT035 FEW045TCU PROB40 1617/1624 28015G30KT 6000 TSRA BKN030 FEW045CB BECMG 1700/1702 03003KT SCT030 RMK PGQ SBLO 152130Z 1600/1612 36005KT 9999 SCT040 TN21/1608Z TX25/1612Z BECMG 1600/1602 05005KT SCT030 RMK PER SBLP 160300Z 1606/1618 08006KT 9999 SCT030 TN25/1608Z TX36/1617Z RMK PEU SBME 160100Z 1606/1618 35005KT CAVOK TN24/1608Z TX33/1617Z BECMG 1611/1613 12005KT 9999 FEW025 BECMG 1616/1618 04010KT SCT020 FEW030TCU RMK PGY SBMN 160400Z 1606/1706 15002KT 9999 SCT005 TN23/1606Z TX29/1616Z BECMG 1607/1609 18002KT BKN005 BECMG 1611/1613 15005KT BKN010 BECMG 1615/1617 10015KT 2000 TSRA BKN008 FEW025CB BECMG 1619/1621 09005KT 9999 SCT010 BECMG 1623/1701 04002KT CAVOK BECMG 1703/1705 18002KT 9999 SCT005 RMK PDY SBMO 160300Z 1606/1706 30004KT 8000 SCT020 TN24/1607Z TX30/1616Z BECMG 1610/1612 12013KT BKN020 BECMG 1616/1618 SCT020 BECMG 1620/1622 11008KT RMK PEU SBMQ 160400Z 1606/1706 01003KT 9999 FEW015 TN25/1607Z TX33/1617Z BECMG 1607/1609 33002KT BECMG 1611/1613 05005KT BECMG 1615/1617 08010KT SCT025 FEW030TCU BECMG 1619/1621 05010KT FEW020 BECMG 1623/1701 01005KT PDY SBNF 160215Z 1606/1706 24007KT 9999 FEW025 TX30/1614Z TN22/1706Z BECMG 1614/1616 14010KT SCT025 FEW030TCU PROB40 TEMPO 1619/1621 6000 TSRA BKN015 FEW030CB BECMG 1621/1623 BKN015 PROB40 TEMPO 1623/1706 6000 RADZ BKN012 RMK PDW SBNT 160300Z 1606/1706 15005KT 9999 SCT017 TN25/1608Z TX31/1616Z BECMG 1610/1612 12015KT 8000 FEW010 BKN018 BECMG 1614/1616 SCT023 BECMG 1621/1623 14008KT RMK PEU SBPJ 160200Z 1606/1618 14005KT 7000 SCT015 TN23/1606Z TX28/1617Z BECMG 1612/1614 24005KT 7000 SCT025 RMK PDE SBPL 160300Z 1606/1706 13008KT 9999 SCT025 TN25/1607Z TX34/1617Z RMK PEU SBPS 160300Z 1606/1706 30004KT 9000 SCT017 TN23/1607Z TX29/1615Z BECMG 1610/1612 07015KT BECMG 1621/1622 04007KT BECMG 1702/1703 01005KT RMK PEU SBRB 160400Z 1606/1706 22002KT 5000 RA SCT004 TN22/1609Z TX30/1616Z BECMG 1607/1609 9999 BKN005 BECMG 1611/1613 BKN013 BECMG 1615/1617 32010KT BKN025 FEW030TCU BECMG 1619/1621 25005KT FEW008 FEW025TCU BECMG 1623/1701 22002KT FEW005 BECMG 1703/1705 BKN003 RMK PDY SBRF 160300Z 1606/1706 12010KT 9999 SCT020 TN27/1607Z TX30/1614Z BECMG 1609/1610 14012KT RMK PEU SBRJ 160100Z 1606/1618 02005KT 9999 SCT025TN26/1608Z TX34/1617Z BECMG 1610/1612 35005KT BECMG 1616/1618 14005KT RMK PGY SBRP 160116Z 1606/1706 35005KT CAVOK TN20/1608Z TX30/1616Z PROB30 1607/1610 FEW009 SCT025 BECMG 1610/1612 04005KT SCT025 BECMG 1612/1614 35007KT SCT040 BECMG 1614/1616 SCT040 FEW045TCU PROB40 1616/1622 30010G25KT 6000 TSRA BKN030 FEW045CB BECMG 1622/1624 06003KT SCT040 RMK PGQ SBSC 160100Z 1606/1618 05010KT 9999 SCT025TN25/1608Z TX32/1617Z BECMG 1610/1612 01015KT FEW020 BECMG 1616/1618 04005KT RMK PGY SBSJ 160100Z 1606/1706 03005KT 9999 SCT020TX30/1617Z TN19/1705Z BECMG 1608/1610 18005KT BECMG 1612/1614 05010KT BECMG 1616/1618 26005KT SCT030 FEW040TCU PROB40 1620/1623 5000 TSRA BKN015 FEW040CB BECMG 1700/1702 04005KT SCT025 RMK PGY SBSL 160400Z 1606/1706 07005KT 9999 SCT017 TN25/1606Z TX30/1614Z BECMG 1609/1611 07010KT BECMG 1613/1615 05015KT BKN017 FEW025TCU BECMG 1617/1619 SCT017 BECMG 1621/1623 05010KT BECMG 1703/1705 07005KT RMK PDY SBSM 160215Z 1606/1618 11010KT 9999 SCT030 TN22/1608Z TX30/1617Z PROB40 TEMPO 1609/1611 SCT010 RMK PDW SBSN 160400Z 1606/1706 14005KT 4000 TSRA SCT010 FEW020CB TN23/1607Z TX30/1618Z BECMG 1607/1609 09005KT 9999 SCT010 BECMG 1611/1613 SCT015 BECMG 1615/1617 07010KT SCT020 BECMG 1619/1621 12005KT BECMG 1623/1701 14005KT 9999 TS FEW017 FEW025CB BECMG 1703/1705 4000 TSRA SCT010 FEW025CB RMK PDY SBSP 160116Z 1606/1706 04005KT CAVOK TN21/1608Z TX30/1617Z BECMG 1612/1614 34012KT SCT025 BECMG 1614/1616 SCT030 FEW045TCU PROB40 1617/1624 24013KT 6000 TSRA BKN030 FEW045CB BECMG 1700/1702 02005KT SCT020 RMK PGQ SBSV 160300Z 1606/1706 08008KT 9000 SCT018 TN25/1607Z TX30/1615Z BECMG 1611/1612 10013KT BECMG 1622/1623 09009KT RMK PEU SBTE 160300Z 1606/1618 00000KT 9999 SCT020 TN23/1607Z TX33/1617Z PROB30 1609/1611 BKN010 BECMG 1609/1611 13005KT RMK PEU SBTT 160400Z 1606/1706 00000KT CAVOK TN21/1607Z TX29/1617Z BECMG 1611/1613 12005KT 9999 SCT010 BECMG 1615/1617 25005KT BKN020 FEW025TCU BECMG 1619/1620 22005KT 5000 TSRA BKN015 FEW025CB BECMG 1622/1624 00000KT CAVOK RMK PDY SBUG 160215Z 1606/1706 12007KT 9999 FEW030 TN22/1608Z TX33/1619Z BECMG 1617/1619 08007KT CAVOK RMK PDW SBUL 160116Z 1606/1618 03005KT CAVOK TN19/1608Z TX29/1617Z PROB30 1609/1611 FEW002 SCT009 BECMG 1612/1614 33005KT SCT040 RMK PGQ SBUR 160116Z 1606/1618 30005KT 9999 FEW030TN19/1608Z TX30/1617Z PROB30 1608/1611 BKN002 BECMG 1612/1614 33005KT SCT040 RMK PGQ SBVH 160400Z 1606/1618 09003KT CAVOK TN18/1607Z TX25/1618Z BECMG 1607/1609 1200 BR BKN002 BECMG 1611/1613 09005KT 8000 SCT006 BECMG 1615/1617 06003KT SCT013 RMK PDY SBVT 160300Z 1606/1706 36007KT 9999 SCT020 TN25/1608Z TX31/1615Z BECMG 1610/1612 02013KT BECMG 1615/1617 05015KT BECMG 1622/1623 02010KT BECMG 1702/1703 35005KT RMK PEU SBYS 160116Z 1606/1618 35003KT CAVOK TN20/1607Z TX30/1617Z PROB30 1609/1611 FEW006 BECMG 1614/1616 31008KT SCT035 FEW045TCU RMK PGQ SCAR 160430Z 1606/1706 34004KT CAVOK TN21/1606Z TX24/1617Z BECMGE 1610/1612 23004KT BECMG 1615/1617 22015KT BECMG 1622/1700 19004KT SCAT 160430Z 1606/1706 12004KT 9999 SCT017 TN16/1606Z TX22/1616Z BECMG 1608/1610 18004KT OVC020 BECMG 1616/1618 24014KT CAVOK SCBA 160418Z 1606/1706 31025KT 9999 SCT040 TN06/1610Z TX16/1619Z BECMG 1610/1612 30025G37KT BKN040 TEMPO 1619/1700 30030KT BECMG 1621/1623 SCT040 SCCF 160430Z 1606/1706 11015KT CAVOK TN07/1606Z TX24/1618Z BECMG 1612/1614 08004KT BECMG 1617/1619 27027KT BECMG 1700/1702 30004KT BECMG 1704/1706 10008KT SCCI 160436Z 1606/1706 30015KT 9999 SCT035 TN08/1609Z TX14/1618Z BECMG 1606/1608 8000 -RA SCT020 BKN040 TEMPO 1606/1612 28020G35KT BECMG 1611/1613 27020G35KT 9999 NSW FEW040 TEMPO 1615/1620 8000 -SHRA BKN035 BECMG 1701/1703 27015KT SCDA 160430Z 1606/1706 12004KT CAVOK TN20/1606Z TX24/1616Z BECMG 1616/1618 22017KT BECMG 1702/1704 18004KT SCEL 160410Z 1606/1706 16007KT CAVOK TX28/1619Z TN14/1610Z TEMPO 1609/1613 VRB03KT 7000 SCT020 BECMG 1615/1617 19012KT BECMG 1700/1702 16005KT SCFA 160430Z 1606/1706 14004KT 9999 BKN028 TN19/1606Z TX23/1617Z BECMG 1612/1614 FEW025 SCT300 BECMG 1615/1617 21018KT BECMG 1622/1624 BKN030 BECMG 1702/1704 15004KT SCIE 160410Z 1606/1706 21005KT CAVOK TX21/1619Z TN12/1610Z BECMG 1612/1614 22012KT BECMG 1618/1620 24016KT BECMG 1700/1702 21010KT SCIP 160421Z 1606/1706 10005KT 9999 SCT023 TN18/1612Z TX26/1620Z TEMPO 1610/1615 03005KT 8000 -SHRA BKN020 SCT040 BECMG 1616/1618 SCT020 SCT250 TEMPO 1623/1703 03005KT 8000 -SHRA BKN020 SCT050 BECMG 1704/1706 VRB03KT SCQP 160416Z 1606/1706 VRB01KT 9999 SCT030 TN09/1610Z TX24/1619Z BECMG 1607/1609 5000 BR SCT004 TEMPO 1609/1612 0800 FG BKN002 BECMG 1613/1615 19006KT CAVOK BECMG 1618/1620 26012KT SCSE 160410Z 1606/1706 12004KT CAVOK TX22/1619Z TN14/1610Z TEMPO 1608/1613 VRB03KT SCT025 BECMG 1615/1617 29010KT CAVOK BECMG 1700/1702 30005KT BECMG 1704/1706 VRB03KT SCT012 SCTE 160417Z 1606/1706 17006KT 9999 BKN015 TN09/1610Z TX20/1619Z TEMPO 1609/1612 VRB02KT OVC015 BECMG 1615/1617 23007KT SCT040 BECMG 1620/1622 SCT025 BKN060 SEGU 160440Z 1606/1706 23008KT 9999 SCT026 BKN100 BECMG 1608/1609 BKN023 BKN100 FM161500 03005KT 9999 SCT030 SCT100 BECMG 1617/1618 16008KT TEMPO 1621/1624 BKN023 BKN100 BECMG 1623/1624 23012KT TX30/1619Z TN23/1610Z SELT 160440Z 1606/1706 00000KT 9999 BKN030 BKN100 BECMG 1615/1617 18012KT TEMPO 1619/1621 RA FM170000 34005KT 9999 FEW005 BKN026 BKN100 TX17/1619Z TN09/1611Z SEMT 160440Z 1606/1706 20003KT 9999 BKN020 SCT100 FM161400 20008KT 9999 SCT026 SCT100 FM170000 19006KT 9999 BKN023 BKN100 TX31/1620Z TN23/1610Z SEQM 160440Z 1606/1706 00000KT 4000 BCFG SCT005 OVC023 FM161400 VRB03KT 9999 SCT026 SCT080 FM161800 34008KT 9999 SCT023 BKN100 TEMPO 1619/1621 RA FM170000 30010KT 9999 RA SCT005 BKN026 TX20/1619Z TN10/1611Z SPCL 160500Z 1606/1706 14004KT 9999 SCT020 BKN080 TX33/1620Z TN23/1611Z TEMPO 1607/1611 8000 -RA SCT010 BKN060 BECMG 1611/1615 24006KT 9999 FEW020 SCT100 PROB40 1618/1622 04010KT -SHRA FEW010TCU BKN100 BECMG 1622/1702 00000KT 9999 FEW100 SPHI 160500Z 1606/1706 18007KT CAVOK TX29/1620Z TN20/1611Z TEMPO 1609/1612 SCT015 BKN060 BECMG 1616/1618 19016KT SPJC 160500Z 1606/1706 16006KT CAVOK TX26/1620Z TN20/1611Z BECMG 1608/1610 7000 BKN010 BECMG 1614/1616 9999 BKN022 FM161800 18010KT 9999 FEW022 SCT130 BECMG 1621/1623 SCT015 SCT140 SPJL 152350Z 1600/1624 35006KT 9999 SCT020 SCT080 TX19/1618Z TN04/1610Z TEMPO 1600/1603 VRB12KT -RA BKN010 BKN080 BECMG 1612/1614 15004KT BECMG 1618/1620 33010KT 8000 -RA BKN010 OVC080 SPME 160300Z 1600/1624 CNL SPQT 160500Z 1606/1706 19004KT 9999 SCT010 BKN080 TX32/1619Z TN23/1611Z TEMPO 1607/1611 08012KT 4000 RA BR BKN020 OVC080 BECMG 1611/1615 29006KT FEW020 SCT100 PROB40 1620/1700 36008KT -SHRA FEW030TCU BKN100 TEMPO 1700/1704 02018G28KT 0800 +TSRA BKN005 OVC070 SPQU 160500Z 1606/1706 02003KT 9999 SCT020 BKN050 TX18/1618Z TN11/1610Z FM161200 24005KT 9999 FEW030 SCT100 BECMG 1617/1619 27011KT 9999 SCT010 BKN015 TEMPO 1620/1623 6000 -RA BECMG 1700/1703 VRB03KT SCT040 BKN100 SPRU 160500Z 1606/1706 14005KT 8000 FEW050 SCT150 TX24/1620Z TN19/1611Z TEMPO 1609/1611 6000 BKN010 SCT050 BECMG 1614/1616 17010KT FM170000 14007KT 8000 SCT030 BKN150 SPSO 160500Z 1606/1706 VRB02KT CAVOK TX26/1620Z TN18/1611Z FM160800 28004KT 7000 SCT012 SCT150 TEMPO 1609/1613 4000 BR SCT006 FM161400 33010KT 8000 NSC BECMG 1619/1621 24016KT SPST 160300Z 1600/1624 CNL SPTN 160500Z 1606/1706 23004KT 9999 SCT040 BKN130 TX27/1619Z TN18/1611Z FM161300 25005KT 9999 CAVOK BECMG 1616/1618 22012KT SCT060 BECMG 1700/1702 21004KT SPZO 160500Z 1606/1706 VRB03KT 9999 SCT040 BKN080 TX20/1619Z TN08/1610Z TEMPO 1607/1610 9000 RA FM161330 VRB02KT 9999 SCT040 BKN100 TEMPO 1618/1622 27010KT FEW040TCU SCT050 BKN100 SYCJ 160500Z 1606/1706 VRB02KT 6000 SHRA BKN014 BKN038 BECMG 1611/1613 9999 BKN015 BKN040 TEMPO 1615/1618 6000 SHRA FEW014CB BKN015 TIST 160535Z 1606/1706 08006KT P6SM VCSH FEW025 FM161400 11012KT P6SM SCT025 SCT050 FM162230 07007KT P6SM FEW025 TISX 160535Z 1606/1706 05006KT P6SM VCSH FEW025 FM161430 10012KT P6SM SCT025 SCT050 FM162230 07007KT P6SM FEW025 TJBQ 160535Z 1606/1706 10006KT P6SM SCT018 BKN090 FM161430 07014KT P6SM VCSH SCT025 SCT060 FM162200 10008KT P6SM SCT030 NOT SKED TIL 161100 TJMZ 160535Z 1606/1706 07005KT P6SM SCT025 BKN050 BKN090 FM161500 28010KT P6SM VCSH SCT030 BKN050 FM162200 06005KT P6SM SCT030 NOT SKED TJPS 160535Z 1606/1706 00000KT P6SM SCT030 BKN050 BKN090 FM161400 13014KT P6SM VCSH SCT030 FM162200 07005KT P6SM FEW025 TJSJ 160535Z 1606/1706 VRB03KT P6SM FEW026 SCT045 SCT120 FM161400 07014KT P6SM SCT025 SCT060 FM162200 08007KT P6SM SCT030 TKPK 160535Z 1606/1706 07010KT P6SM FEW020 FM161500 08011KT P6SM SCT022 NOT SKED TIL 161100 TKPN 160200Z 1600/1624 CNL TNCB 160542Z 1606/1712 08015KT 9999 FEW020 PROB30 TEMPO 1606/1712 6000 SHRA SCT018CB BKN020 TNCM 160535Z 1606/1706 08012KT P6SM FEW022 FM161500 11012KT P6SM SCT022 TQPF 160200Z 1600/1624 CNL TRPG 160200Z 1600/1624 CNL TUPJ 160200Z 1600/1624 CNL TXKF 160535Z 1606/1706 18010KT 9999 FEW007 BKN015 OVC080 TEMPO 1606/1609 VRB06KT 6000 -RA BR SCT007 BKN012 OVC035 PROB40 TEMPO 1606/1609 3200 SHRA BKN007 OVC020 PROB30 TEMPO 1606/1609 VRB15G25KT 1600 TSRA BKN007CB OVC012 BECMG 1608/1612 36018KT 9999 SCT007 BKN015 PROB30 TEMPO 1609/1612 4000 -SHRA SCT007 BKN012 TEMPO 1612/1706 SCT007 BKN012 BECMG 1620/1624 04020KT UAAA 160500Z 1606/1706 04005MPS 3000 BR BKN005 OVC010CB TXM10/1609Z TNM13/1701Z TEMPO 1606/1612 1200 -SN BR BKN003 TEMPO 1612/1616 0500 FZFG VV002 TEMPO 1616/1706 16004MPS 0200 -SN FZFG VV001 UACC 160500Z 1606/1706 23006MPS 9999 BKN015 BKN100 TXM17/1609Z TNM23/1702Z TEMPO 1606/1617 5000 -SN BKN007 TEMPO 1617/1704 3000 -SN BR SCT005 UAII 160500Z 1606/1706 29005MPS 3000 -SHSN BR BKN007 OVC030CB TXM02/1609Z TNM07/1701Z TEMPO 1606/1609 22006MPS 1000 SHSN BKN003 OVC015CB TEMPO 1609/1613 34006MPS 0500 SHSN FZFG BKN002 OVC010CB TEMPO 1613/1622 24005MPS 0300 SN FZFG BKN002 OVC010 TEMPO 1622/1704 16004MPS 0200 -SN FZFG BKN002 OVC010 UAKK 160500Z 1606/1706 23006MPS 9999 SCT010 BKN030 TXM16/1609Z TNM21/1701Z TEMPO 1606/1614 3000 SN BKN004 TEMPO 1614/1702 1500 -SN BR BKN003 UATE 160503Z 1606/1706 08006MPS CAVOK TXM04/1609Z TNM10/1702Z UATG 160502Z 1606/1706 05005MPS 3000 BR BKN005 TXM15/1611Z TNM20/1704Z BECMG 1609/1610 9999 NSW BKN010 BECMG 1616/1618 11005MPS UATT 160500Z 1606/1706 29005MPS 3000 -SN BR BKN005 BKN010 TXM09/1612Z TNM17/1701Z TEMPO 1606/1610 1500 OVC003 TEMPO 1613/1706 0500 FZFG VV002 UBBG 160640Z 1607/1706 09008KT 6000 BKN005 OVC020 TX03/1612Z TNM00/1703Z TEMPO 1607/1609 1500 BR OVC003 BECMG 1617/1619 VRB04KT 3000 BR OVC007 TEMPO 1700/1706 0600 DZ FG VV002 UCFM 160439Z 1606/1706 24003G08MPS 2000 BR FU BKN007 TEMPO 1606/1612 32003G08MPS 0500 SN FZFG OVC002 TEMPO 1612/1618 0500 FZFG OVC002 UCFO 160625Z 1606/1706 28003G08MPS 0200 FG VV001 TEMPO 1606/1612 0600 SNRA FZFG VV002 TEMPO 1612/1618 17003G08MPS 0800 SN FZFG VV002 UEEE 160500Z 1606/1712 02003MPS 2100 -SN BR OVC070 TXM38/1606Z TNM43/1623Z TEMPO 1606/1618 0300 FG VV003 UHBB 160437Z 1606/1706 16003MPS 5000 HZ NSC FM162000 11003MPS 4000 -SN OVC070 TEMPO 1620/1706 2100 -SN SCT007 OVC070 UHHH 160449Z 1606/1712 VRB01MPS 9999 NSC TEMPO 1615/1623 2000 BR FM170000 06003MPS CAVOK UHMA 160442Z 1606/1706 01005MPS 4000 BR SCT007 BKN020 TEMPO 1606/1612 31007G12MPS 1000 SN BLSN VV003 BECMG 1612/1614 9999 SCT030 TEMPO 1612/1706 30007MPS 4000 BR UHMM 160450Z 1606/1712 10003G08MPS 9999 SCT040 BKN070 UHPP 160441Z 1606/1712 01003G12MPS 9999 SCT040CB UHSS 160500Z 1606/1712 36007MPS 9999 BKN025CB TEMPO 1606/1712 5000 -SHSN BECMG 1607/1609 33003MPS UHWW 160455Z 1606/1706 36003MPS 3100 -SHSN SCT011 BKN015CB BECMG 1622/1624 18003MPS BECMG 1701/1703 5000 HZ SCT025 TEMPO 1703/1706 4000 -SHSN SCT015CB UIAA 160500Z 1606/1706 30003MPS 3100 BR NSC TEMPO 1612/1620 2100 BR TEMPO 1620/1701 0500 FG UIBB 160500Z 1606/1706 22003G08MPS 3100 -SHSN BKN015CB UIII 160500Z 1606/1706 14003MPS 3100 BR FU SCT020CB UIUU 160500Z 1606/1706 26003G08MPS 3100 BR FU SCT030CB TEMPO 1606/1703 2100 -SHSN FU UKBB 160501Z 1606/1706 07003G08MPS 9999 BKN020 TEMPO 1606/1608 2000 -SN BR OVC006 BECMG 1608/1609 13005G11MPS TEMPO 1609/1624 2100 -SN BR OVC007 TEMPO 1700/1706 15008G14MPS 1600 -SHSN BR BKN005 SCT012CB TXM04/1706Z TNM09/1606Z UKDD 160526Z 1606/1706 16004MPS 4000 BR BKN006 BKN015CB TEMPO 1606/1611 1100 SHSN BR BKN003 BKN012CB BECMG 1610/1612 13007MPS TEMPO 1612/1706 14008G13MPS 2100 -SHSN BLSN BKN012CB TXM04/1612Z TNM11/1606Z UKDR 160510Z 1606/1706 14005MPS 3100 -SHSN BR BKN011 BKN015CB TXM01/1706Z TNM10/1606Z TEMPO 1606/1609 1100 -SHSN BR BKN004 BKN015CB TEMPO 1612/1706 13008G13MPS 1000 SHSN BLSN BKN004 BKN015CB UKKK 160625Z 1606/1706 13003G08MPS 9999 BKN012 TEMPO 1606/1609 2000 -SN BR BKN003 BECMG 1609/1610 14005G11MPS TEMPO 1609/1618 2100 -SN BR BKN007 TEMPO 1618/1706 15008G14MPS 1500 -SHSN BR BKN005 SCT020CB TXM04/1706Z TNM10/1606Z UKKM 160505Z 1606/1706 14005MPS 6000 BKN010 BKN020 TEMPO 1606/1616 15007G12MPS 1500 -SHSN BR BKN004 SCT015CB BECMG 1616/1618 14007G12MPS BKN005 BKN007 TEMPO 1618/1706 1000 SHSN BR OVC003 SCT015CB TXM03/1616Z TNM11/1606Z UKLL 160511Z 1606/1706 15007G12MPS 9999 SCT007 BKN010 TEMPO 1606/1615 17009G14MPS 2100 -SN BKN007 BECMG 1615/1617 17006G12MPS 2100 BR OVC007 TEMPO 1617/1624 19005MPS 1400 -FZRA BR BKN003 TEMPO 1700/1706 21005MPS 0500 SHSN FZFG BKN002 BKN015CB TXM00/1703Z TNM12/1606Z UKOO 160512Z 1606/1706 09005G12MPS 1200 SHSN BR BKN004 SCT015CB TEMPO 1606/1610 0400 +FZSNRA VV002 TEMPO 1610/1615 0400 +SHRASN VV002 BECMG 1615/1616 23004G10MPS 2100 -SHSNRA BR BKN007 SCT015CB TX02/1613Z TNM02/1606Z ULAA 160452Z 1606/1706 21003MPS 6000 BKN011 TEMPO 1606/1609 3100 -FZDZ BR BKN007 TEMPO 1609/1618 18003G08MPS 4000 -SN BKN008 PROB40 TEMPO 1609/1618 -FZDZ ULLI 160456Z 1606/1706 15007MPS 9999 SCT011 BKN020 TEMPO 1606/1609 16007G12MPS 3100 -SHSN BKN008 BKN015CB TEMPO 1609/1621 16008G13MPS -SN DRSN BKN025 BECMG 1621/1623 13007G12MPS TEMPO 1621/1706 14009G15MPS 3100 -SHSN DRSN BKN008 BKN015CB ULMM 160454Z 1606/1706 17003G09MPS 9999 BKN011 TEMPO 1606/1610 21005G11MPS 1000 -SHSN BR BKN003 BKN011CB TEMPO 1610/1706 20006G13MPS 3100 -SHSN DRSN BKN011CB UMGG 160500Z 1606/1706 12006MPS 6000 BKN010 TEMPO 1606/1615 14007G12MPS 3000 -SN BLSN BKN005 TEMPO 1615/1706 14010G15MPS 2000 SHSN BLSN BKN005 BKN015CB UMKK 160455Z 1606/1706 15009G18MPS CAVOK BECMG 1610/1612 5000 -SN BR OVC011 TEMPO 1612/1618 3100 -SHSN BLSN BKN007 BKN015CB BECMG 1618/1620 2000 SHSN BLSN BKN007 BKN015CB TEMPO 1618/1706 1000 SHSN BLSN BKN003 BKN015CB UMMS 160652Z 1607/1706 14007G12MPS 9999 BKN010 TEMPO 1607/1616 15011G16MPS 1200 -SN BLSN BR BKN002 FM161600 15009G14MPS 3000 -SN BLSN BKN005 TEMPO 1616/1706 16012G17MPS 0500 +SHSN BKN003 BKN010CB UNAA 160500Z 1606/1706 23007G13MPS 9999 SCT017CB TEMPO 1606/1703 25012G19MPS 3100 -SHSN BLSN BKN013CB UNBB 160500Z 1606/1706 22009G16MPS 1500 SHSN DRSN BKN005 BKN011CB TEMPO 1606/1612 0500 +SHSN BLSN OVC002 BKN005CB FM161200 26008G15MPS 3100 -SHSN DRSN SCT002 BKN011CB TEMPO 1612/1706 0500 +SHSN BLSN SCT002 BKN005CB UNEE 160500Z 1606/1706 22007G12MPS 3100 -SHSN BKN015CB TEMPO 1606/1706 24012G17MPS 0700 +SHSN BLSN BKN002 BKN010CB UNKL 160500Z 1606/1706 24003G09MPS 5000 -SN OVC020 TEMPO 1606/1615 0800 +SN VV003 TEMPO 1615/1706 25009G16MPS 3100 -SN BLSN OVC011 UNNT 160500Z 1606/1706 23008G17MPS 3000 -SHSN DRSN OVC016CB TEMPO 1606/1618 0600 +SHSN BLSN OVC011CB BECMG 1618/1620 27008G17MPS UNOO 160504Z 1606/1706 27006G11MPS 6000 BKN007 BKN025CB TEMPO 1606/1615 2000 FZRA SHSN BKN004 BKN020CB URKA 160455Z 1606/1706 05003G08MPS 9999 SCT011 SCT020CB TEMPO 1606/1612 3100 -SHSN BKN011 BKN020CB TEMPO 1612/1618 2100 -SHSNRA BKN007 BKN020CB FM161800 14005G12MPS 3100 -SHRA SCT011 BKN020CB TEMPO 1618/1706 1000 -SHRA BR BKN005 BKN020CB URKK 160458Z 1606/1706 16003G08MPS 9999 SCT020CB TEMPO 1606/1608 12003G08MPS 3100 -SHSN BKN011 BKN020CB BECMG 1608/1609 16005G14MPS TEMPO 1608/1612 3100 -SHRASN BKN011 BKN020CB TEMPO 1612/1618 12005G10MPS 3100 -SHRA BKN011 BKN020CB URMM 160500Z 1606/1706 10003G08MPS 5000 -SN BKN011 OVC020 TXM02/1612Z TNM05/1703Z TEMPO 1606/1706 3100 -FZRA BKN004 OVC020 URSS 160455Z 1606/1706 05006MPS 9999 SCT020CB OVC100 TEMPO 1609/1614 16005G10MPS TEMPO 1618/1706 12009G14MPS 2100 -SHRA BKN006 BKN020CB OVC100 USCC 160500Z 1606/1706 26005MPS 9999 BKN020 TEMPO 1606/1612 3100 BR SCT011 USHH 160457Z 1606/1706 28003G08MPS 9999 BKN015 TEMPO 1606/1612 3100 -SN BR SCT005 BKN011 TEMPO 1612/1624 4000 BR SCT007 USNN 160500Z 1606/1706 29007G13MPS 9999 BKN010 TEMPO 1606/1618 2000 SHSN BKN007 BKN015CB BECMG 1621/1622 01003MPS USPP 160458Z 1606/1706 32003MPS 9999 OVC007 TEMPO 1606/1618 3100 -FZDZ BR OVC004 BECMG 1618/1620 3100 BR USRR 160455Z 1606/1706 30007G14MPS 9999 BKN011 TEMPO 1606/1621 2100 -SHSN BKN007 BKN015CB USSS 160455Z 1606/1706 27008MPS 9999 BKN011 OVC070 USTR 160458Z 1606/1706 27005MPS 5000 BR SCT015 TEMPO 1606/1706 1000 BR FU SCT005 BKN015 UTAA 160440Z 1606/1706 07016KT 3000 BR -SN OVC005 SCT010CB 650100 550100 TEMPO 1606/1608 01014KT 2000 BR SN BKN004 BECMG 1610/1612 2000 BR BECMG 1614/1617 1000 FZDZ BR OVC003 TEMPO 1621/1705 0200 FZFG VV002 UTAK 160430Z 1606/1706 05016G26KT 9999 BKN014 BKN100 530007 TEMPO 1608/1612 12016KT BKN020 OVC100 UTAM 160435Z 1606/1706 33012KT 5000 BKN015 SCT020CB 530007 PROB40 TEMPO 1606/1612 2000 BR -SN OVC007 BECMG 1612/1614 36010KT UTAT 160433Z 1606/1706 04014KT CAVOK 530005 TEMPO 1606/1612 05016G26KT TEMPO 1612/1616 09012KT UTAV 160430Z 1606/1706 02014KT 5000 BKN020 SCT030CB 530003 TEMPO 1606/1612 29016KT 2000 BR SHSN BKN007 UTDD 160638Z 1607/1619 28005MPS 3000 HZ SCT020 BKN030CB OVC050 TEMPO 1610/1619 27009G14MPS 1000 SHRASN BR BKN007 OVC030CB UTFN 160500Z 1606/1706 22010KT 2100 BR OVC012 TEMPO 1606/1618 VRB10G20KT 1100 -RA BR OVC006 UTNN 160500Z 1606/1706 01008KT CAVOK TEMPO 1606/1612 33010G20KT UTNU 160500Z 1606/1706 03010G20KT 8000 NSC TEMPO 1606/1612 36006KT BKN020CB BKN100 UTSA 160501Z 1606/1706 VRB05KT 7000 FEW009 SCT050CB BKN100 TEMPO 1606/1615 33014G24KT 3500 -SHSN BR BKN005 OVC030CB UTSB 160500Z 1606/1706 VRB05KT 7000 FEW009 SCT050CB BKN100 TEMPO 1606/1615 33012G22KT 3500 -SHSN BR BKN005 OVC030CB UTSS 160459Z 1606/1706 32010KT 5000 -FZDZ BR BKN007 BKN020 TEMPO 1606/1614 26010G20KT 0600 -SHSN FZFG BKN002 BKN020CB TEMPO 1614/1622 07008KT 0600 -SN FZFG VV002 UTST 160500Z 1606/1706 25014G24KT 5000 -DS SCT050CB BKN100 TEMPO 1606/1615 26029G39KT 1500 SHRA DS BKN003 OVC033CB TEMPO 1615/1702 27010G20KT 1000 SHSN BR BKN002 OVC030CB UTTT 160500Z 1606/1706 33012KT 4000 BR SCT007 BKN020CB OVC100 TEMPO 1606/1612 1700 SHSN BKN003 TEMPO 1612/1624 0700 SHSN FZFG BKN002 UUBW 160458Z 1606/1706 12006MPS 9000 BKN012 TXM04/1610Z TNM08/1623Z TEMPO 1606/1610 3000 -SN BR OVC007 TEMPO 1610/1706 14011MPS -SN OVC005 UUDD 160459Z 1606/1712 14005MPS 9999 BKN011 TXM07/1612Z TNM10/1621Z TEMPO 1606/1613 -SN OVC006 TEMPO 1615/1624 14010MPS BECMG 1700/1701 OVC006 TEMPO 1701/1712 14010MPS 3100 -SN PROB40 TEMPO 1703/1712 -FZDZ UUDL 160500Z 1606/1706 15005MPS 6000 -SN OVC011 UUEE 160450Z 1606/1706 15005MPS 9999 BKN011 TXM06/1609Z TNM10/1616Z TEMPO 1606/1615 -SN OVC005 TEMPO 1615/1706 15008G13MPS 3100 -SN OVC005 UUWW 160456Z 1606/1706 13006MPS 9000 BKN011 TXM07/1612Z TNM10/1701Z TEMPO 1606/1610 3100 -SN BR OVC007 TEMPO 1610/1706 12011MPS 3100 -SN OVC006 UUYY 160500Z 1606/1706 24003MPS 4000 BR BKN006 TEMPO 1606/1612 25005MPS 2100 -SN -FZDZ BR BKN004 BECMG 1612/1613 BKN008 TEMPO 1613/1706 1000 -SN BR BKN004 UWGG 160453Z 1606/1706 15003MPS 6000 -SN OVC011 TXM06/1612Z TNM10/1701Z TEMPO 1606/1703 13006G14MPS UWKD 160455Z 1606/1706 32003MPS 3100 BR OVC005 TXM05/1612Z TNM07/1702Z TEMPO 1606/1609 VRB01MPS 0700 FZFG OVC003 BECMG 1612/1614 2000 BR OVC004 TEMPO 1615/1703 0500 FZFG OVC002 UWKE 160445Z 1606/1706 32003G08MPS 2100 BR OVC002 TEMPO 1606/1612 27005G10MPS 0300 FZDZ FZFG OVC001 BECMG 1612/1613 3100 BR BKN011 TEMPO 1613/1706 VRB01MPS 1000 -SN BR OVC003 UWLW 160445Z 1606/1706 30003MPS 3100 -SN BR OVC011 TEMPO 1606/1609 0800 FZFG VV002 TEMPO 1615/1706 0300 FZFG VV001 UWOO 160450Z 1606/1706 30003MPS 3100 -SN BR OVC011 TXM08/1610Z TNM14/1701Z TEMPO 1606/1615 27003MPS BKN008 TEMPO 1615/1706 10003MPS 1000 SN BR OVC003 UWUU 160459Z 1606/1706 VRB01MPS 1500 -SN BR OVC005 TEMPO 1606/1610 20003MPS 0300 -FZRA FZFG VV002 BECMG 1610/1612 3100 -SN BR OVC011 TEMPO 1610/1706 27003G08MPS UWWW 160500Z 1606/1706 34003G08MPS 3100 -SN BR OVC003 TXM06/1610Z TNM10/1703Z TEMPO 1606/1609 VRB01MPS 0300 FZFG VV001 TEMPO 1609/1616 01006MPS 1000 SN BR OVC007 TEMPO 1616/1706 VRB01MPS 0500 FZFG VV002 VAAH 160500Z 1606/1712 09005KT 4000 FU NSC BECMG 1607/1609 6000 BECMG 1612/1614 35004KT 4000 FUHZ BECMG 1701/1703 02003KT 2000 HZ BECMG 1704/1706 35006KT 4000 FU BECMG 1706/1708 34006KT 6000 VANP 160500Z 1606/1712 02005KT 5000 HZ NSC BECMG 1612/1614 VRB03KT 3000 HZ BECMG 1700/1702 00000KT 1500 BR HZ BECMG 1704/1706 02005KT 5000 HZ VDPP 160500Z 1606/1624 01008KT 9999 SCT017= VDSR 160500Z 1606/1624 11005KT 9999 FEW017 VEBN 160500Z 1606/1712 27004KT 2000 HZ NSC BECMG 1613/1615 VRB02KT 1000 MIFG BECMG 1622/1624 0400 FG BECMG 1703/1705 29005KT 2500 BR VECC 160500Z 1606/1712 35006KT 2800 HZ FU NSC BECMG 1613/1615 1800 BR BECMG 1700/1702 1000 MIFG BECMG 1704/1706 34005KT 1800 BR VEPT 160500Z 1606/1712 26003KT 1000 MIFG NSC BECMG 1609/1611 1500 FU BECMG 1613/1615 30003KT 1200 BR BECMG 1620/1622 00000KT 0300 FG VV/// BECMG 1705/1707 24003KT 1200 BR FU BECMG 1709/1711 28003KT 2000 HZ FU VGHS 160500Z 1606/1712 30008KT 2200 HZ FEW015 BECMG 1608/1610 31008KT 3000 HZ FEW015 BECMG 1618/1620 29005KT 2500 HZ NSC BECMG 1621/1623 VRB03KT 1500 BR FEW015 BECMG 1623/1701 00000KT 0700 FG BKN007 TEMPO 1623/1703 00000KT 0300 FG BKN002 BECMG 1704/1706 34005KT 1200 BR FEW015 BECMG 1706/1708 33008KT 2200 HZ NSC VHHH 160500Z 1606/1712 30010KT 7000 FEW040 TX21/1607Z TX23/1706Z TN16/1623Z TEMPO 1606/1610 4000 HZ BECMG 1609/1611 36005KT BECMG 1702/1704 30010KT TEMPO 1702/1710 4000 HZ BECMG 1709/1711 06005KT VIAR 160500Z 1606/1712 VRB02KT 0600 MIFG NSC BECMG 1608/1610 31005KT 1500 FU BECMG 1618/1620 00000KT 0400 FG MIFG BECMG 1700/1702 0050 VV/// BECMG 1705/1707 11006KT 1200 FU NSC VIDP 160500Z 1606/1712 29008KT 2500 HZ NSC BECMG 1608/1610 4000 HZ BECMG 1615/1617 VRB02KT 1500 HZ BECMG 1700/1702 13004KT 0400 FG BECMG 1706/1708 07006KT 2500 HZ VIJP 160500Z 1606/1712 25005KT 4000 HZ NSC BECMG 1613/1614 VRB02KT 2500 HZ BECMG 1700/1702 00000KT 1500 FU BECMG 1704/1706 25005KT 3000 HZ BECMG 1706/1707 4000 HZ VILK 160500Z 1606/1712 VRB03KT 2500 HZ NSC BECMG 1613/1615 00000KT 1500 FU BECMG 1622/1624 0600 MIFG FG BECMG 1703/1705 VRB03KT 2000 HZ VLLB 160500Z 1606/1706 32004KT 7000 SCT020 FEW060 TEMPO 1614/1620 3000 BR SCT010 BKN080 VLLN 160500Z 1606/1706 34004KT 7000 SCT020 SCT100 TEMPO 1614/1620 3000 BR SCT010 OVC090 VLPS 160500Z 1606/1706 27004KT 9999 FEW020 FEW050 VLSK 160500Z 1606/1706 27004KT 7000 SCT020 FEW100 TEMPO 1614/1620 3000 BR FEW020 SCT100 VLVT 160500Z 1606/1706 09004KT 7000 FEW020 FEW200 TEMPO 1614/1620 4000 BR FEW050 FEW200 VMMC 160500Z 1606/1712 03010KT 7000 NSC TEMPO 1606/1610 4000 HZ TEMPO 1608/1615 09006KT TEMPO 1622/1710 4000 HZ VNKT 152300Z 1600/1624 VRB02KT 3000 BR FEW015 PROB40 1601/1603 1000 BR BECMG 1604/1605 13003KT 4000 HZ FEW015 BECMG 1607/1608 24007KT 8000 FEW020 BECMG 1614/1615 VRB02KT 5000 BR FEW015 VOBL 152300Z 1600/1706 VRB03KT 1500 BR SCT010 TEMPO 1600/1603 0800 FG BKN005 BECMG 1604/1605 11010KT 6000 FEW015 BECMG 1618/1619 VRB03KT 3000 BR FEW010 BECMG 1621/1622 2000 BR SCT010 TEMPO 1700/1703 0800 FG BKN005 BECMG 1704/1705 11010KT 6000 FEW015 VOCI 160500Z 1606/1712 09005KT 5000 HZ SCT015 BECMG 1607/1608 29010KT 6000 BECMG 1615/1616 00000KT 4000 HZ TEMPO 1622/1702 2000 BR BECMG 1704/1705 08005KT 5000 HZ SCT015 VOCL 160500Z 1606/1712 07005KT 6000 FEW015 BECMG 1608/1609 28010KT BECMG 1614/1615 00000KT 4000 HZ TEMPO 1622/1702 2000 BR BECMG 1704/1705 09005KT 6000 SCT090 VOML 152300Z 1600/1706 09005KT 3000 BR SCT010 TEMPO 1600/1603 1500 BR SCT008 BECMG 1604/1605 6000 FEW015 BECMG 1608/1609 27010KT BECMG 1617/1618 09005KT TEMPO 1700/1703 3000 BR FEW010 VOTV 160500Z 1606/1712 27010KT 6000 SCT015 SCT090 BECMG 1614/1615 00000KT 4000 HZ SCT015 TEMPO 1622/1702 2000 BR BECMG 1704/1705 27005KT 5000 HZ SCT015 SCT090 VRMG 160500Z 1606/1712 09006KT 9000 FEW018 TEMPO 1607/1611 5000 -SHRA FEW018CB VRMM 160500Z 1606/1712 07013KT 9000 FEW019 TEMPO 1607/1615 FEW019CB VTBD 160500Z 1606/1712 34005KT 9999 FEW040 BECMG 1702/1704 05008KT VTBO 160500Z 1606/1706 05008KT 7000 NSC BECMG 1614/1616 00000KT BECMG 1622/1624 3000 BR BECMG 1702/1704 05008KT 8000 NSW VTBS 160500Z 1606/1712 35005KT 9999 FEW040 BECMG 1623/1701 05008KT VTBU 160500Z 1606/1706 04004KT 4000 HZ FEW020 BECMG 1606/1608 20006KT 6000 BECMG 1612/1614 34006KT 5000 HZ VTCC 160500Z 1606/1712 VRB02KT 9999 SCT035 BECMG 1621/1623 5000 BR BECMG 1702/1704 9999 NSW VTCH 160500Z 1606/1706 VRB02KT 9999 SCT025 BECMG 1621/1623 2000 BR BECMG 1702/1704 9999 NSW VTCL 160500Z 1606/1706 26005KT 9999 SCT025 BECMG 1621/1623 2000 BR BECMG 1702/1704 9999 NSW VTCN 160500Z 1606/1706 VRB02KT 9999 SCT025 BECMG 1621/1623 0800 FG BECMG 1702/1704 9999 NSW VTCP 160500Z 1606/1706 VRB02KT 9999 SCT025 BECMG 1621/1623 0800 FG BECMG 1702/1704 9999 NSW VTCT 160500Z 1606/1712 VRB02KT 9999 SCT025 BECMG 1621/1623 0800 FG BECMG 1702/1704 9999 NSW VTPB 160500Z 1606/1706 07005KT 9999 SCT025 BECMG 1621/1623 2000 BR BECMG 1702/1704 9999 NSW VTPH 160500Z 1606/1706 02008KT 8000 FEW030 BECMG 1614/1616 00000KT NSC BECMG 1702/1704 05008KT FEW030 VTPM 160500Z 1606/1706 VRB02KT 9999 SCT025 BECMG 1621/1623 4000 BR BECMG 1702/1704 9999 NSW VTPO 160500Z 1606/1706 VRB02KT 9999 SCT022 BECMG 1621/1623 2000 BR BECMG 1702/1704 9999 NSW VTPP 160500Z 1606/1706 07005KT 9999 SCT025 BECMG 1621/1623 2000 BR BECMG 1702/1704 9999 NSW VTPT 160500Z 1606/1706 VRB02KT 9999 SCT030 BECMG 1621/1623 4000 BR BECMG 1702/1704 9999 NSW VTSB 160500Z 1606/1706 05008KT 7000 SCT020 TEMPO 1606/1612 6000 -RA SCT015 OVC100 BECMG 1620/1622 5000 BR BECMG 1702/1704 7000 NSW VTSC 160500Z 1606/1706 09008KT 9999 SCT020 SCT100 VTSE 160500Z 1606/1706 06010KT 7000 FEW020 BECMG 1612/1614 00000KT 5000 BR BECMG 1703/1705 06010KT 7000 NSW VTSF 160500Z 1606/1706 06008KT 9999 SCT020 SCT100 TEMPO 1606/1612 6000 -RA SCT015 OVC100 VTSG 160500Z 1606/1706 06006KT 9999 FEW020 PROB40 TEMPO 1606/1610 VRB10G20KT 5000 TSRA FEW018CB SCT020 BKN100 BECMG 1612/1614 VRB02KT 9000 VTSH 160500Z 1606/1706 09010KT 8000 FEW020 BKN100 BECMG 1616/1618 VRB02KT BECMG 1702/1704 10010KT VTSK 160500Z 1606/1706 09008KT 9999 FEW020 BKN100 VTSM 160500Z 1606/1706 03006KT 8000 FEW020 SCT100 VTSP 160500Z 1606/1712 08008KT 9999 FEW020 PROB30 TEMPO 1608/1612 VRB10G20KT 5000 TSRA FEW018CB SCT020 BKN100 BECMG 1612/1614 VRB02KT 9000 FEW020 BKN100 BECMG 1702/1704 08010KT 9999 FEW020 VTSR 160500Z 1606/1706 09004KT 9999 FEW030 PROB30 TEMPO 1608/1612 VRB10G20KT 5000 TSRA FEW018CB SCT020 BKN100 VTSS 160500Z 1606/1706 08010KT 9999 FEW020 BKN100 TEMPO 1608/1614 6000 -RA SCT015 OVC100 BECMG 1614/1616 30003KT BECMG 1702/1704 08010KT VTST 160500Z 1606/1706 06008KT 9999 FEW020 PROB40 TEMPO 1606/1610 VRB10G20KT 5000 TSRA FEW018CB SCT020 BKN100 BECMG 1612/1614 VRB02KT 9000 VTUD 160500Z 1606/1706 08006KT CAVOK BECMG 1621/1623 VRB02KT 5000 BR NSC BECMG 1700/1702 12003KT 9999 NSW FEW040 VTUI 160500Z 1606/1706 12006KT CAVOK BECMG 1621/1623 02003KT 8000 NSC BECMG 1700/1702 14006KT 9999 FEW040 VTUJ 160500Z 1606/1706 12005KT 9000 FEW025 BECMG 1622/1624 5000 BR NSC BECMG 1702/1704 8000 FEW030 VTUK 160500Z 1606/1706 04008KT 9000 FEW040 BECMG 1622/1624 34003KT 5000 BR NSC BECMG 1701/1703 VRB02KT 8000 NSW FEW035 VTUL 160500Z 1606/1706 VRB02KT 8000 NSC BECMG 1622/1624 36003KT 3000 BR NSC BECMG 1701/1703 VRB02KT 8000 NSW SCT040 VTUO 160500Z 1606/1706 16005KT 9999 FEW030 BECMG 1622/1624 4000 BR NSC BECMG 1701/1703 9000 NSW VTUQ 160500Z 1606/1706 14005KT 9999 FEW030 SCT100 BECMG 1622/1624 5000 BR NSC BECMG 1701/1703 9000 NSW VTUU 160500Z 1606/1706 14005KT 9999 FEW025 SCT100 VTUV 160500Z 1606/1706 12005KT 9999 FEW030 BECMG 1622/1624 4000 BR NSC BECMG 1702/1704 9000 NSW VTUW 160500Z 1606/1706 13006KT CAVOK BECMG 1622/1624 03003KT 8000 NSC BECMG 1701/1703 14006KT 9999 FEW040 VVCI 160500Z 1606/1706 06006KT 6000 SCT020 BKN050 TEMPO 1609/1614 2500 -DZ BR SCT003 BKN030 TEMPO 1620/1701 4000 -RA BR SCT010 BKN040 VVCR 160500Z 1606/1706 04010KT 9999 FEW013 SCT050 VVCT 160500Z 1606/1706 VRB02KT 9999 SCT015 SCT040 VVDN 160500Z 1606/1706 11004KT 7000 SCT013 BKN050 BECMG 1610/1611 4000 BR BECMG 1620/1621 2500 BR BECMG 1700/1701 4000 BR BECMG 1701/1702 7000 NSW VVNB 160700Z 1607/1706 16002KT 3500 BR SCT008 BKN016 BECMG 1609/1610 5000 BR SCT012 BKN020 BECMG 1615/1616 3000 BR BECMG 1618/1620 2000 -DZ BR SCT004 BKN012 TEMPO 1623/1702 0800 DZ FG SCT002 BKN012 VVPB 160500Z 1606/1706 03006KT 6000 SCT013 BKN050 BECMG 1609/1610 4000 BR BECMG 1618/1619 2000 BR BECMG 1700/1701 4000 BR BECMG 1701/1702 6000 NSW VVPQ 160500Z 1606/1706 VRB02KT 9999 FEW017 SCT040 VVTS 160500Z 1606/1712 30006KT 9999 SCT017 SCT040 BECMG 1613/1614 VRB02KT BECMG 1621/1622 3000 BR BECMG 1701/1702 03010KT 9999 NSW VYYY 160500Z 1606/1706 26006KT 7000 SCT015 BKN090 TEMP0 1621/1701 32005KT BECMG 1623/1705 7000 HZ WAAA 160500Z 1606/1712 31009KT 9000 SCT018 TEMPO 1607/1611 5000 -RA FEW017CB SCT018 BECMG 1611/1613 07004KT 8000 BECMG 1700/1702 30010KT 9999 WABB 160500Z 1606/1712 29005KT 9999 SCT018 BECMG 1610/1612 00000KT TEMPO 1618/1622 5000 RA FEW017CB BKN018 BECMG 1622/1700 22005KT WAFD 160500Z 1606/1618 09003KT 9000 SCT019 TEMPO 1607/1611 6000 -RA BECMG 1611/1613 00000KT 8000 SCT018 WAFJ 160500Z 1606/1618 33005KT 9000 SCT018 BECMG 1611/1613 15003KT 7000 SCT016 BKN100 WAFM 160500Z 1606/1618 12003KT 8000 SCT016 TEMPO 1607/1611 6000 -RA BECMG 1611/1613 00000KT 8000 FEW017 BKN090 WAFT 160500Z 1606/1618 21005KT 8000 FEW015CB BKN100 BECMG 1611/1613 00000KT 6000 SCT013 WALL 160500Z 1606/1712 20005KT 9999 FEW020 BECMG 1610/1612 8000 FEW020CB FEW020 WALS 160500Z 1606/1618 27004KT 9999 SCT016 BECMG 1610/1612 18005KT WAMM 160000Z 1600/1706 25008KT 9999 SCT022 PROB40 TEMPO 1604/1608 7000 -RA SCT018 BECMG 1609/1611 06002KT WAPC 160500Z 1606/1618 23006KT 5000 -RA SCT017 WAPS 160500Z 1606/1618 24004KT 5000 -RA SCT018 WAQA 160500Z 1606/1618 00000KT 8000 SCT012 TEMPO 1612/1616 6000 -RA FEW015CB BKN016 WAQD 160500Z 1606/1618 00000KT 6000 SCT015CB TEMPO 1606/1610 5000 -RA WAQJ 160500Z 1606/1618 30006KT 3000 -DZ BKN012 BECMG 1608/1610 6000 BKN015 WAQQ 160500Z 1606/1618 26005KT 9999 SCT015 TEMPO 1612/1616 6000 -RA FEW015CB BKN016 WAQT 160500Z 1606/1618 VRB04KT 9999 BKN015 TEMPO 1608/1612 8000 -RA FEW012CB SCT015 WATT 160500Z 1606/1706 23005KT 9000 SCT018 PROB40 TEMPO 1606/1609 4000 RA BECMG 1612/1615 VRB05KT WAWB 160500Z 1606/1618 20005KT 6000 -RA FEW016CB BECMG 1611/1613 05005KT 7000 WAWH 160500Z 1606/1618 27006KT 6000 -RA FEW017CB BKN018 WAWP 160500Z 1606/1618 27007KT 9000 SCT015 TEMPO 1606/1610 6000 -RA BECMG 1611/1613 00000KT 8000 SCT016 WAWS 160500Z 1606/1618 23003KT 9000 SCT016 TEMPO 1606/1609 6000 -RA WAWW 160500Z 1606/1618 27005KT 9999 SCT016 BECMG 1612/1614 00000KT 6000 WBGB 160500Z 1606/1706 35007KT 9999 SCT016 BKN150 TEMPO 1609/1613 4000 SHRA SCT014 FEW015CB WBGG 160500Z 1606/1706 26009KT 9999 SCT020 SCT150 BKN300 TEMPO 1606/1611 3000 TSRA FEW015CB SCT018 BKN150 WBGR 160500Z 1606/1706 26005KT 9999 SCT016 BKN150 TEMPO 1609/1613 4000 TSRA FEW015CB WBGS 160500Z 1606/1706 22006KT 9999 SCT018 BKN150 TEMPO 1607/1611 4000 TSRA FEW015CB SCT016 WBKK 160500Z 1606/1706 22006KT 9999 FEW014 TEMPO 1607/1611 3000 TSRA SCT012 FEW016CB SCT035 TEMPO 1611/1614 5000 RA FEW012 FEW016CB SCT040 WBKL 160500Z 1606/1706 22006KT 9999 FEW012 SCT140 BKN290 TEMPO 1606/1610 5000 TSRA FEW010 FEW014CB BKN140 TEMPO 1613/1617 3000 SCT010 SCT035 BKN130 WBKS 160500Z 1606/1706 26007KT 9999 FEW015 TEMPO 1610/1614 3500 TSRA SCT010 FEW016CB SCT030 WBKW 160500Z 1606/1706 VRB05KT 9999 FEW017 WBSB 160450Z 1606/1712 23011KT 9999 SCT015 FEW016CB BKN140 PROB40 TEMPO 1612/1616 6000 -SHRA BECMG 1620/1622 19001KT FEW004 BKN150 WIDD 160500Z 1606/1706 34010KT 9000 SCT014 TEMPO 1607/1611 6000 -RA FEW015CB WIHH 160500Z 1606/1706 27012KT 8000 SCT020 TEMPO 1608/1612 4000 -RA FEW018CB SCT016 BECMG 1612/1614 24006KT 6000 SCT022 BECMG 1700/1702 26008KT 8000 WIMM 160500Z 1606/1706 34008KT 9999 SCT018 BECMG 1611/1613 VRB04KT 4000 HZ BECMG 1701/1703 8000 NSW WITT 160500Z 1606/1706 15006KT 9999 SCT018 PROB30 TEMPO 1611/1615 5000 -RA FEW016CB SCT017 BECMG 1619/1621 00000KT 7000 FEW018 BECMG 1623/1701 11006KT 9999 SCT020 WMKJ 160500Z 1606/1706 34005KT 9999 FEW020 BKN130 TEMPO 1607/1611 4000 SHRA FEW010 FEW017CB SCT020 WMKK 160500Z 1606/1712 03005KT 9999 FEW020 SCT140 BKN280 TEMPO 1608/1612 4000 TSRA FEW017CB SCT020 WMKP 160500Z 1606/1706 26005KT 9999 FEW020 SCT140 BKN280 BECMG 1613/1615 02005KT WMSA 160500Z 1606/1706 34005KT 9999 FEW018 BKN140 BKN270 TEMPO 1609/1613 4000 TSRA FEW017CB SCT020 WPDL 160103Z 1601/1612 27010KT 9999 SCT030 FM160900 15005KT CAVOK PROB30 TEMPO 1605/1609 VRB20G35KT 1000 TSRA BKN010 SCT020CB WSSS 160500Z 1606/1712 34008KT 9999 FEW015 BKN140 TEMPO 1606/1610 4500 SHRA FEW012CB BKN015 TEMPO 1706/1710 4500 SHRA FEW012CB BKN015 YAMB 160532Z 1606/1624 13013KT CAVOK FM161000 19003KT CAVOK YBAS 160505Z 1606/1706 11014KT CAVOK FM161100 12007KT CAVOK FM170000 10014KT CAVOK YBBN 160504Z 1606/1712 11016G26KT CAVOK FM160700 14014KT CAVOK FM161100 17012KT 9999 FEW030 FM161600 22006KT 9999 FEW025 FM162200 16010KT CAVOK FM170100 11012KT CAVOK FM170800 14010KT 9999 FEW025 YBCG 160504Z 1606/1706 16019G29KT 9999 FEW040 FM160800 17014KT 9999 FEW035 FM161200 20009KT 9999 FEW030 FM170000 16016KT 9999 FEW040 YBCS 160514Z 1606/1706 13012KT 9999 SCT025 SCT050 FM160800 15008KT 9999 -SHRA SCT020 BKN040 INTER 1610/1614 3000 SHRA BKN018 TEMPO 1614/1624 3000 SHRA BKN015 INTER 1700/1706 3000 SHRA BKN018 PROB30 TEMPO 1612/1624 VRB15G25KT 1000 TSRA BKN012 SCT020CB YBMA 160036Z 1600/1612 08014KT CAVOK PROB30 TEMPO 1608/1612 VRB20G30KT 1000 TSRA BKN014 SCT070CB YBRK 160503Z 1606/1706 08010KT 9999 FEW040 FM161100 13008KT 9999 FEW030 FM170000 08012KT 9999 FEW045 YBRM 160530Z 1606/1706 28010KT 9999 FEW020 PROB30 INTER 1609/1624 VRB25G45KT 2000 TSRA BKN010 FEW030CB YBTL 160509Z 1605/1706 09016KT 9999 -SHRA SCT025 FM160900 12012KT 9999 -SHRA FEW012 SCT020 INTER 1605/1614 3000 SHRA BKN015 YCFS 160500Z 1606/1706 19025G35KT 9999 SCT030 FM161200 22012KT 9999 FEW030 FM162200 20015G25KT 9999 SCT030 YCIN 160651Z 1608/1620 30007KT CAVOK PROB30 INTER 1608/1620 VRB25G45KT 2000 TSRA BKN010 FEW030CB YFRT 160655Z 1608/1620 09010KT CAVOK FM160900 13015KT CAVOK FM161500 09010KT CAVOK YGEL 160414Z 1606/1624 31017KT 9999 -SHRA FEW015 BKN020 FM161100 31008KT 8000 -DZ BKN008 TEMPO 1612/1624 2000 DZ BKN005 YGLA 160403Z 1606/1618 10014KT 9999 FEW040 FM161400 16010KT 9999 SCT030 YHID 160516Z 1606/1706 28010KT 9999 SCT020 SCT035 FM160900 VRB05KT 9999 SCT016 SCT025 FM170000 07008KT 9999 SCT020 SCT035 PROB40 TEMPO 1612/1624 VRB15G25KT 1000 TSRA BKN010 SCT018CB YLHI 160531Z 1606/1706 23030G40KT 8000 -SHRA SCT020 BKN050 FM160900 22025G35KT 9999 -SHRA SCT020 BKN050 INTER 1606/1608 4000 SHRA BKN015 INTER 1612/1706 4000 SHRA BKN015 YMAV 160517Z 1606/1706 12012KT CAVOK FM161000 11008KT CAVOK FM161700 18005KT CAVOK FM170200 14010KT CAVOK YMHB 160517Z 1606/1706 15012KT CAVOK FM161000 19006KT 9999 SCT020 FM161500 30008KT 9999 FEW020 FM170000 14012KT CAVOK YMLT 160657Z 1607/1706 33018KT 9999 SCT025 FM161200 34005KT 9999 FEW010 BKN020 FM170000 33012KT CAVOK YMML 160516Z 1606/1712 18014KT CAVOK FM161100 26005KT CAVOK BECMG 1623/1701 18008KT CAVOK FM171100 27005KT CAVOK YPAD 160457Z 1606/1712 23012KT CAVOK FM160900 14010KT CAVOK FM161800 05008KT CAVOK FM170100 24010KT CAVOK FM170900 VRB05KT CAVOK YPCC 160531Z 1606/1706 19010KT 9999 -SHRA SCT025 INTER 1704/1706 3000 SHRA BKN010 YPDN 160504Z 1606/1712 29009KT 9999 SCT035 FM161000 29005KT 9999 SCT025 FM170300 28008KT 9999 SCT035 PROB30 TEMPO 1606/1612 VRB20G35KT 1000 TSRA BKN010 SCT020CB PROB30 TEMPO 1705/1710 VRB20G35KT 1000 TSRA BKN010 SCT020CB YPGV 160305Z 1603/1614 34010KT 9999 FEW030 TEMPO 1605/1609 VRB20G35KT 1000 TSRA BKN010 SCT020CB YPJT 160416Z 1604/1624 31015KT 9999 -DZ BKN025 BKN040 FM161200 35008KT 8000 -DZ BKN008 TEMPO 1612/1624 2000 DZ BKN005 YPKG 160530Z 1606/1706 04012KT 9999 -SHRA BKN080 YPKU 160650Z 1608/1620 VRB05KT CAVOK PROB30 INTER 1608/1614 VRB25G45KT 2000 TSRA BKN010 FEW060CB YPLM 160530Z 1606/1706 34012KT CAVOK FM161000 22012KT CAVOK FM170000 16008KT CAVOK FM170300 05008KT CAVOK YPPD 160530Z 1606/1706 33008KT 9999 SCT025 FM161600 VRB05KT 9999 -SHRA BKN020 PROB30 INTER 1615/1703 VRB25G45KT 2000 TSRA BKN010 FEW040CB YPPH 160534Z 1606/1712 28010KT 9999 BKN025 FM161200 35008KT 8000 -DZ BKN008 FM170600 26010KT 9999 -DZ BKN018 TEMPO 1612/1706 2000 DZ BKN005 INTER 1706/1712 6000 -DZ BKN010 YPWR 160454Z 1606/1624 13012KT CAVOK FM162300 05014KT CAVOK YPXM 160531Z 1606/1706 28010KT 9999 -SHRA BKN012 TEMPO 1606/1706 3000 SHRA BKN010 YSCB 160502Z 1606/1706 16014KT CAVOK FM161100 12007KT 9999 FEW020 FM162200 15007KT CAVOK FM170200 28008KT CAVOK YSDU 160517Z 1606/1624 15012KT CAVOK FM161200 10012KT CAVOK YSNF 160532Z 1606/1624 30015G25KT 8000 -SHRA BKN005 OVC015 BECMG 1606/1607 30014KT 9999 -SHRA SCT010 BKN020 TEMPO 1606/1607 2000 +SHRA BKN002 TEMPO 1607/1610 3000 SHRA BKN005 YSRI 160509Z 1606/1706 17015KT 9999 FEW045 FM161000 20010KT 9999 FEW030 FM161200 23006KT 9999 SCT020 FM162200 20010KT 9999 SCT030 FM170300 16010KT CAVOK YSSY 160504Z 1606/1712 18025G35KT 9999 SCT035 FM161000 19018KT 9999 SCT030 FM161800 23015KT 9999 SCT030 FM170000 17018KT 9999 FEW035 FM171000 18008KT 9999 FEW030 YSTW 160516Z 1605/1624 18012KT CAVOK FM161000 14010KT CAVOK YTNK 160023Z 1602/1614 11014KT CAVOK FM160400 12008KT CAVOK YTRE 160650Z 1608/1620 22010KT 9999 SCT030 YWGT 160029Z 1602/1614 15008KT CAVOK YWLM 160508Z 1606/1706 19022G32KT 9999 FEW030 SCT060 FM161000 19015KT 9999 SCT030 FM161400 22012KT 9999 SCT025 FM161800 27010KT 9999 SCT020 BKN030 FM162200 21016KT 9999 SCT025 SCT040 FM170400 17014KT 9999 FEW030 ZHHH 160006Z 1600/1624 02003MPS 2500 -RA BR SCT020 TX11/1607Z TN02/1622Z BECMG 1603/1604 3000 BR ZSSS 160148Z 1600/1624 20003MPS 0350 FG OVC001 TX14/1606Z TN09/1621Z BECMG 1602/1603 0800 FG BKN002 BECMG 1605/1606 29004MPS 1500 BR BKN005 ZUUU 160012Z 1600/1624 20003MPS 3500 BR SCT050 TX15/1607Z TN03/1600Z BECMG 1622/1623 2300

Map